SQLite format 3@ -È--)v?tablebuoy_nowbuoy_nowCREATE TABLE buoy_now ( STN, LAT, LON, YYYY, MM, DD, hh, minute, WDIR, WSPD, GST, WVHT, DPD, APD, MWD, PRES, PTDY, ATMP, WTMP, DEWP, VIS, TIDE, raw_text DEFAULT '', timestamp TIMESTAMP DEFAULT CURRENT_TIMESTAMP )j7tablebuoybuoyCREATE TABLE buoy ( STN, LAT, LON, YYYY, MM, DD, hh, minute, WDIR, WSPD, GST, WVHT, DPD, APD, MWD, PRES, PTDY, ATMP, WTMP, DEWP, VIS, TIDE, raw_text DEFAULT '', timestamp TIMESTAMP DEFAULT C   xph`XPH@80( xph`XPH@80( xph`XPH@80( A #ɷj#n# "&"]"d!W!LN Z g ;eNF*MϷ`tirpcSD`R? !A5A0շxzķ"i-8X~ G6۷fy%ʷo*<F^{uM <t+rзtu| l dl O ; S> O  B 4 1C ַZ {Q LŷUj]nVY<DVH\TR77ܷv&˷&pCSY_ AmHķ($Y$N j7tablebuoybuoyCREATE TABLE buoy ( STN, LAT, LON, YYYY, MM, DD, hh, minute, WDIR, WSPD, GST, WVHT, DPD, APD, MWD, PRES, PTDY, ATMP, WTMP, DEWP, VIS, TIDE, raw_text DEFAULT '', timestamp TIMESTAMP DEFAULT CURRENT_TIMESTAMP )v?tablebuoy_nowbuoy_nowCREATE TABLE buoy_now ( STN, LAT, LON, YYYY, MM, DD, hh, minute, WDIR, WSPD, GST, WVHT, DPD, APD, MWD, PRES, PTDY, ATMP, WTMP, DEWP, VIS, TIDE, raw_text DEFAULT '', timestamp TIMESTAMP DEFAULT CURRENT_TIMESTAMP ) nnj}tablemetarmetarCREATE TABLE metar ( raw_text DEFAULT '', station_id, observation_time, latitude, longitude, temp_c, dewpoint_c, wind_dir_degrees, wind_speed_kt, wind_gust_kt, visibility_statute_mi, altim_in_hg, sea_level_pressure_mb, corrected, auto, auto_station, maintenance_indicator_on, no_signal, lightning_sensor_off, freezing_rain_sensor_off, present_weather_sensor_off, wx_string, sky_cover, cloud_base_ft_agl, flight_category, three_hr_pressure_tendency_mb, maxT_c, minT_c, maxT24hr_c, minT24hr_c, precip_in, pcp3hr_in, pcp6hr_in, pcp24hr_in, snow_in, vert_vis_ft, metar_type, elevation_m, timestamp TIMESTAMP DEFAULT CURRENT_TIMESTAMP ) l~ytojd^XRLF@:4.(" ztnhb\VPJD>82,& ~xrlf`ZTNHB<60*$06„:51ֿ,־(ֽ#ָֺֹֻּ ִֵֶַ{ֳwֲrֱmְh֯c֮_֭[֬V֫R֪N֩I֨D֧?֦;֥7֤3֣.֢*֡%֠ ֛֟֞֝֜ ֚֙֘{֗w֖r֕n֔j֓f֒b֑^֐Z֏U֎Q֍M֌I֋E֊@։<ֈ7և3ֆ/օ+ք'փ"ւցր~ }|{z{yvxrwmviuet`s[rVqQpLoHnDm?l:k6j2i.h)g%f!edcba `_^]{\w[rZnYiXeW`V\UXTTSPRLQHPDO?N;M7L3QيH ب:7mƏjFXƇZŃ{ )tablemetar_nowmetar_nowCREATE TABLE metar_now ( raw_text DEFAULT '', station_id, observation_time, latitude, longitude, temp_c, dewpoint_c, wind_dir_degrees, wind_speed_kt, wind_gust_kt, visibility_statute_mi, altim_in_hg, sea_level_pressure_mb, corrected, auto, auto_station, maintenance_indicator_on, no_signal, lightning_sensor_off, freezing_rain_sensor_off, present_weather_sensor_off, wx_string, sky_cover, cloud_base_ft_agl, flight_category, three_hr_pressure_tendency_mb, maxT_c, minT_c, maxT24hr_c, minT24hr_c, precip_in, pcp3hr_in, pcp6hr_in, pcp24hr_in, snow_in, vert_vis_ft, metar_type, elevation_m, timestamp TIMESTAMP DEFAULT CURRENT_TIMESTAMP )T tableshipship CREATE TABLE ship (day, dewpoint_c, gust, latitude, longitude, maxgst, sea_level_pressure_mb, station_id, temp_c, wind, raw_text DEFAULT '', timestamp TIMESTAMP DEFAULT CURRENT_TIMESTAMP )pexph`XPH@80( xph`XPH@80( xph`XPH@80( 17>3=%<;:w9i8[7M6?514#321z0m/_.Q-C,5+'*) (|'n&`%Q$C#5"(! ~qbTG:- wi[NA3&  r e WG6)seXK>0#{naSD5&zl_RE 2௃TKߞ4CcލM2}׃0|Z!ƃ8kc ۩<BmA%+ysmga[UOIC=71+.54104428.0130102019-10-18 08:24:54B   318/0821.6G1021.1-64.84104327.709082019-10-18 08:24:54I   318/0824.0G1414.6-53.01012.74104028.0090122019-10-18 08:24:54H   318/087.9G1935.0-75.41011.24102517.2330162019-10-18 08:24:54H   318/087.0G1733.4-77.71013.44101319.1340122019-10-18 08:24:54B   318/0814.8G1228.9-78.54101024.732082019-10-18 08:24:54G   318/0818.1G828.5-80.21013.34100924.931062019-10-18 08:24:54L  318/087.3G1031.4-80.9330101013.24100821.932082019-10-18 08:24:54@     318/08G1232.5-79.11013.24100433082019-10-18 08:24:54I   318/0812.6G1431.9-74.91012.24100222.0300102019-10-18 08:24:54A     318/08G1934.5-72.51009.94ʄɃxȃkǃ\ƃNŃAă4Ã&ƒ |㿂n㾂`㽂R㼂D㻂6㺂)㹂㸂 㷂㶁r㵁d㴁W㳁I㲁:㱁+㰁㯁 rdVH8+ =uWFuindexi3buoyCREATE UNIQUE INDEX i3 ON buoy(STN,YYYY,MM,DD,hh,mm)F kindexi2metar_nowCREATE UNIQUE INDEX i2 ON metar_now(station_id)`tableship_nowship_now CREATE TABLE ship_now (day, dewpoint_c, gust, latitude, longitude, maxgst, sea_level_pressure_mb, station_id, temp_c, wind, raw_text DEFAULT '', timestamp TIMESTAMP DEFAULT CURRENT_TIMESTAMP )t;tablestationss`tableship_nowship_now CREATE TABLE ship_now (day, dewpoint_c, gust, latitude, longitude, maxgst, sea_level_pressure_mb, station_id, temp_c, wind, raw_text DEFAULT '', timestamp TIMESTAMP DEFAULT CURRENT_TIMESTAMP )t;tablestationsstations CREATE TABLE stations ( metar TEXT, wmob INT, wmos INT, city TEXT, state TEXT, country TEXT, latitude DOUBLE, longitude DOUBLE, elevation DOUBLE, x DOUBLE, y DOUBLE, z DOUBLE, humor TEXT, source TEXT )B[indexi_metarstations CREATE INDEX i_metar ON stations(metar) ~xrlf`ZTNHB<60*$ |vpjd^XRLF@:4.(" ztnhb\VPJD>82,& DDSuRmQeP\OSNJMAL8K/J&IHG FEyDoCeB[AR@I?@>7=.<$;:98|7r6h5^4T3I2?150+/!.-,+~*u)l(c'Z&Q%H$?#6"-!$ vmd[RJB90' { r i ` W OG>6.' zqi`XOF>6.% {ri`YQI@7.% zrj#S檴}9qȤqWAזcWVyugYK=/!yk]OA3% }oaSE7) { KNBG KMSS KMJX KMAI < KLOT  KLAM KJFX_ KIGC ^ KHRL , KHCD KGPT KFYV KFGN S KESF  KECP KDNV KD19 z KCOS C KCEW KBUR KBIH KAWI c KALY1~ K9W7} K87Q| K62W{ K4A6cz K36Yy K25Rx K13Aw HSTR!v HFFF7u GUMAt GCLAs FYWBr FQLCVq FLMPp FCOGo FAMMn ETUNwm ESSK4l EPSKk ENHEj EHMA i EGSY[h EGDYg EDSBf EBLBe DISSfd DABCc CYYUb CYSKa CYLK^` CYCQ_ CXOX^ CXBK] CWVO\ CWRHZ[ CWMZZ CWIUY CWETXCWAR4 KMJXLp^L:(ucQ?- zhVD2 ~ ţ|DA %*% A V ЫMP J KWX1 #쇡  ٦Z=  pq#a Ț 򆪲- +;>}i  Qz DNv* ̘\} ͽ\? = έщp#  ϔUZ _ "~~ :_A Ҵ2 h)L% > +v !%瀕W V/m# vfr &F:f T l9x# I Fw ؒ'4z QWG PWM> ;h# E Nh5 ڽ =^-0 ܤv# 1}{ \Y%B ]x>0L # ac> ⚏ M rp#   ?UWsUy ?by+ Jp^L:(tbP>,xfTB0 | 8 Wg7 f> 6 y#85 [J4 )YG b3 笸@2 O-1 Μ 0 ufb+/  . Ӱ%l- i$ , /bh + E5xe* _L]) xni( z20@' ʢy@& Q@d%  1 $ .7 ;# QpG"" }GdK ! 雋`qx ^*  ԭ߷A T عT I ,  KVb t ͗ ް !1 Ni~   [  -p ! 8HJ  _wN ū\4 Jir/ GV >^# NOA %cg RC( _ ' T63p {2tfp ?ҿt/(< ە|0ie; 笸@p^L:(tbP>,xfTB0 |! ?1mrOG ?ZZ ?߭PU^ ?=@! ?޷r! ?O=8 ?ᵇj ? MUCU LTCN LRBC  LIQNx LGSA LFOB LEMH B KXBP  KUOX KTIK KSOW? KSCRvڿ KRLD Qھ KPSF ڽ KPAN&ڼ KOKV ڻ KN38 ں KMMKڹ KMBT ڸ KLNK ڷ KJST ڶ KIIBڵ KHOU&ڴ KGVE^ڳ KGCCڲ KFFZ |ڱ KELK @ڰ KDRTگ KCXOڮ KCLIڭ KBYS ڬ KBIX ګ KATYbڪ KAFWک K5C1ڨ K1K1rڧ GMTTڦ FMNMڥ ETIH ڤ ENTCڣ EIWFڢ EGPFbڡ EFET5ڠ DRZRHڟ CYZV&ڞ CYQVMڝ CYDFEڜ CXDK4ڛ CWQHtښ CWGB   6n1yAkindexi6shipCREATE UNIQUE INDEX i6 ON ship(station_id, day)Diindexi5ship_nowCREATE UNIQUE INDEX i5 ON ship_now(station_id)6 Kindexi_xstationsCREATE INDEX i_x ON stations(x)6 Kindexi_ystationsCREATE INDEX i_y ON stations(y)6 Kindexi_zstationsCREATE INDEX i_z ON stations(z)Q indexi1metarCREATE UNIQUE INDEX i1 ON metar(station_id, observation_time)F kindexi2metar_nowCREATE UNIQUE INDEX i2 ON metar_now(station_id)Fuindexi3buoyCREATE UNIQUE INDEX i3 ON buoy(STN,YYYY,MM,DD,hh,mm)=[indexi4buoy_nowCREATE UNIQUE INDEX i4 ON buoy_now(STN)ukaWMC9/%{qg]SI?5+! wmcYOE;1' 45006T 45005S 45004R 45003Q 45002P 45001O 44258N 44139M 44137L 44100K 44099J 44098I 44097H 44095G 44091F 44090E 44089D 44087C 44086B 44072A 44066@ 44065? 44064> 44063= 44062< 44056; 44042: 440419 440408 440277 440256 440225 440204 440183 440142 440131 440110 44009/ 44008. 44007- 44005, 42395+ 42099* 42097) 42095( 42059' 42058& 42057% 42056$ 42055# 42040" 42039! 42036 42035 42020 42012 42003 42002 42001 41159 41117 41115 41114 41113 41110 41108 41049 41048 41047 41046 41044 41043 41040 TFGSK PSCM4 LDTM4a EUCDE24 BATFR63 46211 44100K zdN8" t^H2lV@*zd4236017/13x4209817/16x]4209517/19x4205917/22x4205718/01x=4205518/04xc4203918/07x 4203617/10xJ4202017/13x4200317/16x4200117/19x4111917/17x4111517/18x4111317/21xr4111017/23xa4106418/01x_4105318/04x҃4104918/08x߷4104817/11x4104617/14xa4104317/17x4103817/19x4103317/22x4102518/02x4101318/05x4100918/08x߭4100817/11xb4100217/14xX3FPQ917/23xsVRRD717/23xVLSHIP17/18x$PCNT217/11xLWTV217/22xFPTM418/02x?DELD117/08xBDVF117/15xdAMOUK0517/17xb=6215417/22x=5131118/06x"4620517/22x 4515017/21x4205718/01x= %:uKj)5    3YABA 170830Z AUTO 22011KT 7000 // BKN008 BKN013 OVC022 14/13 Q1019YABA2019-10-17T08:30:00Z-34.93117.814.013.0220114.3530.088583TRUEIFRSPECI69.02019-10-17 08:33:04?i(w5   3YCOM 170830Z AUTO 27017G27KT 9999 // NCD 07/M01 Q1010YCOM2019-10-17T08:30:00Z-36.3148.977.0-1.027017276.2129.822834TRUEVFRSPECI941.02019-10-17 08:33:04eh)=5     3CYZP 170831Z AUTO 16009KT 9SM -RA BKN055 OVC076 09/09 A2902 RMK SLP828 DENSITY ALT 300FTCYZP2019-10-17T08:31:00Z53.25-131.829.09.016099.029.019686982.8TRUE-RAVFRSPECI6.02019-10-17 08:33:04Ug)5     3CYBU 170831Z AUTO 01006KT 2 1/4SM BR BKN002 M03/M03 A2973 RMK SLP087CYBU2019-10-17T08:31:00Z53.32-104.0-3.0-3.01062.2529.7312981008.7TRUEBRLIFRSPECI374.02019-10-17 08:33:04 @z\o)/5   3CYGQ 170830Z 34004KT 15SM BKN012 OVC065 01/M01 A2999 RMK SF6SC2 MOON VISBL SLP173CYGQ2019-10-17T08:30:00Z49.77-86.921.0-1.0340415.029.9911421017.3MVFRSPECI351.02019-10-17 08:33:042n(o5    3TFFF 170830Z AUTO VRB03KT 9999 FEW020 26/24 Q1012TFFF2019-10-17T08:30:00Z14.6-61.026.024.0036.2129.88189TRUEVFRMETAR5.02019-10-17 08:33:04Am(w5   3YPBO 170830Z AUTO 29017G29KT 9999 // NCD 37/M09 Q1010YPBO2019-10-17T08:30:00Z-23.2117.7537.0-9.029017296.2129.822834TRUEVFRSPECI1292.02019-10-17 08:33:04@l(w5   3YNWN 170830Z AUTO 33015G26KT 9999 // NCD 36/M03 Q1011YNWN2019-10-17T08:30:00Z-23.42119.836.0-3.033015266.2129.852362TRUEVFRSPECI525.02019-10-17 08:33:04:k(w5   3YMDG 170830Z AUTO 26019G30KT //// // NCD 16/M06 Q1014YMDG2019-10-17T08:30:00Z-32.57149.6216.0-6.0260193029.940945TRUESPECI471.02019-10-17 08:33:04 )1|)Et)5     3LBPD 170830Z AUTO 32004KT 250V030 9999 NCD 18/07 Q1020 NOSIGLBPD2019-10-17T08:30:00Z42.1324.818.07.032046.2130.11811TRUETRUEVFRMETAR185.02019-10-17 08:33:04;s(u5     3LBGO 170830Z AUTO 00000KT 9999 NCD 17/10 Q1020 NOSIGLBGO2019-10-17T08:30:00Z43.1525.7217.010.0006.2130.11811TRUETRUEVFRMETAR86.02019-10-17 08:33:04Ar)5    3LBBG 170830Z 27006KT 240V310 9999 BKN014 17/14 Q1020 NOSIGLBBG2019-10-17T08:30:00Z42.5727.5217.014.027066.2130.11811TRUEMVFRMETAR28.02019-10-17 08:33:04/q(e5    3LBSF 170830Z VRB02KT CAVOK 15/07 Q1021 NOSIGLBSF2019-10-17T08:30:00Z42.723.4215.07.0026.2130.147638TRUEVFRMETAR530.02019-10-17 08:33:04Ip)5    3LBWN 170830Z 25004KT 190V280 8000 SCT006 SCT009 15/12 Q1019 NOSIGLBWN2019-10-17T08:30:00Z43.2227.8215.012.025044.9730.088583TRUEMVFRMETAR43.02019-10-17 08:33:04 !!k!6y(k5    3GOBD 170830Z 33009KT 8000 NSC 27/25 Q1012 NOSIGGOBD2019-10-17T08:30:00Z14.67-17.0727.025.033094.9729.88189TRUEMVFRMETAR88.02019-10-17 08:33:04Mx)5     3SOCA 170830Z AUTO 00000KT 9999 FEW003 SCT160 OVC240 24/24 Q1011 NOSIGSOCA2019-10-17T08:30:00Z4.82-52.3724.024.0006.2129.852362TRUETRUEVFRMETAR9.02019-10-17 08:33:045w(q5    3LZTT 170830Z VRB01KT 9999 FEW002 10/07 Q1020 NOSIGLZTT2019-10-17T08:30:00Z49.0720.2510.07.0016.2130.11811TRUEVFRMETAR707.02019-10-17 08:33:040v(e5    3LZKZ 170830Z VRB02KT CAVOK 15/10 Q1020 NOSIGLZKZ2019-10-17T08:30:00Z48.6721.2315.010.0026.2130.11811TRUEVFRMETAR232.02019-10-17 08:33:04Yu)95    3LZIB 170830Z 05005KT 1700 R31/1300U R22/P2000N BR BKN002 09/09 Q1020 BECMG 3000 BKN003LZIB2019-10-17T08:30:00Z48.1717.229.09.05051.0630.11811BRLIFRMETAR134.02019-10-17 08:33:04 4[;~(u5    3UGTB 170830Z 19005KT 150V230 CAVOK 22/10 Q1026 NOSIGUGTB2019-10-17T08:30:00Z41.6744.9522.010.019056.2130.295275TRUEVFRMETAR495.02019-10-17 08:33:046}(o5     3UGKO 170830Z AUTO 09014KT CAVOK 27/11 Q1016 NOSIGUGKO2019-10-17T08:30:00Z42.1842.4827.011.090146.2130.0TRUETRUEVFRMETAR68.02019-10-17 08:33:049|(u5    3UGSB 170830Z 30004KT 250V340 CAVOK 20/17 Q1018 NOSIGUGSB2019-10-17T08:30:00Z41.6241.620.017.030046.2130.059055TRUEVFRMETAR32.02019-10-17 08:33:04S{)5     3NWWW 170830Z AUTO 14005KT 110V170 9999 SCT047 SCT054 21/13 Q1017 NOSIGNWWW2019-10-17T08:30:00Z-22.02166.2221.013.014056.2130.029528TRUETRUEVFRMETAR16.02019-10-17 08:33:04Fz) 5    3TFFR 170830Z AUTO 23001KT 9999 FEW024 SCT054 BKN066 24/24 Q1012TFFR2019-10-17T08:30:00Z16.27-61.5324.024.023016.2129.88189TRUEVFRMETAR11.02019-10-17 08:33:04 wJ"w%(Y5   3LDRI 170830Z VRB02KT CAVOK 19/12 Q1020LDRI2019-10-17T08:30:00Z45.2214.5719.012.0026.2130.11811VFRMETAR85.02019-10-17 08:33:04/(e5    3LDSP 170830Z VRB02KT CAVOK 21/15 Q1019 NOSIGLDSP2019-10-17T08:30:00Z43.5216.321.015.0026.2130.088583TRUEVFRMETAR21.02019-10-17 08:33:049(5   3LDZA 170830Z VRB01KT 9999 OVC009 14/13 Q1020 BECMG SCT010LDZA2019-10-17T08:30:00Z45.7216.0714.013.0016.2130.11811IFRMETAR107.02019-10-17 08:33:04.(e5    3LDZD 170830Z 00000KT CAVOK 19/13 Q1020 NOSIGLDZD2019-10-17T08:30:00Z44.115.3719.013.0006.2130.11811TRUEVFRMETAR84.02019-10-17 08:33:040(e5    3LHBP 170830Z VRB03KT CAVOK 16/11 Q1020 NOSIGLHBP2019-10-17T08:30:00Z47.4219.2716.011.0036.2130.11811TRUEVFRMETAR185.02019-10-17 08:33:04 E:E((Y5   3LWOH 170830Z 15002KT CAVOK 17/09 Q1021LWOH2019-10-17T08:30:00Z41.1820.7517.09.015026.2130.147638VFRMETAR761.02019-10-17 08:33:04L)5    3VOML 170830Z 25010KT 9999 FEW015 FEW025TCU SCT090 32/25 Q1007 NOSIGVOML2019-10-17T08:30:00Z12.9774.8832.025.0250106.2129.734253TRUEVFRMETAR103.02019-10-17 08:33:04;(u5    3LDDU 170830Z 12005KT 090V150 CAVOK 21/16 Q1019 NOSIGLDDU2019-10-17T08:30:00Z42.5718.2721.016.012056.2130.088583TRUEVFRMETAR165.02019-10-17 08:33:04.(i5   3LDOS 170830Z 05003KT 010V100 CAVOK 18/13 Q1020LDOS2019-10-17T08:30:00Z45.4718.8218.013.05036.2130.11811VFRMETAR89.02019-10-17 08:33:04@)5    3LDPL 170830Z 11003KT 070V140 9999 FEW015 19/14 Q1020 NOSIGLDPL2019-10-17T08:30:00Z44.8813.9219.014.011036.2130.11811TRUEVFRMETAR63.02019-10-17 08:33:04 !9a!; (y5     3FOOL 170830Z VRB02KT 9000 -RA FEW008 24/23 Q1014 NOSIGFOOL2019-10-17T08:30:00Z0.459.4224.023.0025.5929.940945TRUE-RAVFRMETAR15.02019-10-17 08:33:040 (o5   3LUBM 170830Z VRB01KT CAVOK 18/12 Q1020 R07/CLRD65LUBM2019-10-17T08:30:00Z47.8728.2218.012.0016.2130.11811VFRMETAR95.02019-10-17 08:33:04C )5    3UBBB 170830Z 04003KT 9999 SCT030 22/14 Q1023 R88/CLRD// NOSIGUBBB2019-10-17T08:30:00Z40.4550.0722.014.04036.2130.206694TRUEVFRSPECI-6.02019-10-17 08:33:04R )#5    3WSSS 170830Z 18008KT 150V220 9999 FEW017 FEW020TCU SCT270 29/23 Q1007 NOSIGWSSS2019-10-17T08:30:00Z1.37103.9729.023.018086.2129.734253TRUEVFRMETAR16.02019-10-17 08:33:04A )5    3VHHH 170830Z 17005KT 110V240 9999 FEW035 29/16 Q1015 NOSIGVHHH2019-10-17T08:30:00Z22.32113.9229.016.017056.2129.970472TRUEVFRMETAR9.02019-10-17 08:33:04 Cx@(5    3VOCB 170830Z 09007KT 6000 SCT012 BKN080 30/21 Q1010 NOSIGVOCB2019-10-17T08:30:00Z11.0277.0330.021.09073.7329.822834TRUEMVFRMETAR399.02019-10-17 08:33:04R)5  3YSNW 170830Z 28017G27KT CAVOK 17/M03 Q1009 FM0830 MOD/SEV TURB BLW 5000FTYSNW2019-10-17T08:30:00Z-34.95150.5217.0-3.028017276.2129.793306VFRSPECI110.02019-10-17 08:33:04;(w5     3VGHS 170830Z 06004KT 4000 HZ FEW015 34/22 Q1011 NOSIGVGHS2019-10-17T08:30:00Z23.8590.434.022.06042.4929.852362TRUEHZIFRMETAR10.02019-10-17 08:33:04E)5    3FMMI 170830Z 14010KT 100V170 9999 BKN020 22/14 Q1023 NOSIGFMMI2019-10-17T08:30:00Z-18.847.4722.014.0140106.2130.206694TRUEMVFRMETAR1276.02019-10-17 08:33:047(q5    3VTSM 170830Z 04007KT 9999 FEW020 32/26 Q1009 NOSIGVTSM2019-10-17T08:30:00Z9.55100.0732.026.04076.2129.793306TRUEVFRMETAR17.02019-10-17 08:33:04 =r0(a5  3YSSY 170830Z 26019G29KT CAVOK 20/M05 Q1010YSSY2019-10-17T08:30:00Z-33.95151.1720.0-5.026019296.2129.822834VFRSPECI3.02019-10-17 08:33:04M)5   3YSRI 170830Z AUTO 25015G27KT 9999 // NCD 19/M03 Q1011 RF00.0/000.0YSRI2019-10-17T08:30:00Z-33.6150.7719.0-3.025015276.2129.852362TRUEVFRSPECI21.02019-10-17 08:33:04E) 5    3VOBL 170830Z VRB02KT 6000 SCT012 SCT018 BKN080 23/23 Q1014 NOSIGVOBL2019-10-17T08:30:00Z13.277.723.023.0023.7329.940945TRUEMVFRMETAR915.02019-10-17 08:33:04=({5    3OBBI 170830Z 32008KT 280V350 8000 NSC 33/20 Q1014 NOSIGOBBI2019-10-17T08:30:00Z26.2750.6333.020.032084.9729.940945TRUEMVFRMETAR2.02019-10-17 08:33:04 'KI) 5    3ZMUB 170830Z 20004MPS CAVOK 11/M15 Q1014 NOSIG RMK QFE653.7 14ZMUB2019-10-17T08:30:00Z47.83106.7811.0-15.020086.2129.940945TRUEVFRMETAR1330.02019-10-17 08:33:040(e5    3BKPR 170830Z VRB01KT CAVOK 16/08 Q1021 NOSIGBKPR2019-10-17T08:30:00Z42.5821.0316.08.0016.2130.147638TRUEVFRMETAR576.02019-10-17 08:33:04V)+5    3UBBN 170830Z 25006KT 9999 SCT100 21/01 Q1023 R14R/CLRD// NOSIG RMK MT OP QFE692UBBN2019-10-17T08:30:00Z39.1845.4521.01.025066.2130.206694TRUEVFRSPECI873.02019-10-17 08:33:04S)%5    3UBBG 170830Z 02006KT 320V070 9999 FEW020 SCT083 19/13 Q1023 R30/CLRD// NOSIGUBBG2019-10-17T08:30:00Z40.7346.3219.013.02066.2130.206694TRUEVFRSPECI330.02019-10-17 08:33:04 >?>8(w5   3WIBB 170830Z 16005KT 8000 SCT013 FEW017CB 30/24 Q1005WIBB2019-10-17T08:30:00Z0.47101.4530.024.016054.9729.675198MVFRMETAR31.02019-10-17 08:33:04R)!5    3WAAA 170830Z 33009KT 9999 FEW018CB FEW019 33/21 Q1007 NOSIG RMK CB IN APCHWAAA2019-10-17T08:30:00Z-5.07119.5333.021.033096.2129.734253TRUEVFRSPECI14.02019-10-17 08:33:04%(Y5   3LEJR 170830Z VRB01KT CAVOK 14/09 Q1021LEJR2019-10-17T08:30:00Z36.75-6.0714.09.0016.2130.147638VFRMETAR30.02019-10-17 08:33:04:(q5     3OPMT 170830Z 31004KT 4000 HZ NSC 34/15 Q1012 NOSIGOPMT2019-10-17T08:30:00Z30.1871.4234.015.031042.4929.88189TRUEHZIFRMETAR123.02019-10-17 08:33:04;({5    3LUKK 170830Z VRB02KT CAVOK 16/12 Q1020 R08/CLRD// NOSIGLUKK2019-10-17T08:30:00Z46.9328.9316.012.0026.2130.11811TRUEVFRMETAR122.02019-10-17 08:33:04 He#);5     3CYCY 170829Z AUTO 06012KT 2 1/2SM -SN OVC007 00/00 A2992 RMK VIS VRB 1 1/4-3 ICG SLP134CYCY2019-10-17T08:29:00Z70.47-68.520.00.060122.529.9202751013.4TRUE-SNIFRSPECI26.02019-10-17 08:33:04x")K5     3KLMT 170829Z AUTO 28015G22KT 4SM RA BR SCT016 BKN026 OVC030 07/04 A2984 RMK AO2 P0008 T00670044KLMT2019-10-17T08:29:00Z42.15-121.726.74.428015224.029.840551TRUETRUERA BRMVFR0.08SPECI1246.02019-10-17 08:33:046!(s5   3VQPR 170830Z 13014KT 9999 SCT030 SCT050 21/05 Q1022VQPR2019-10-17T08:30:00Z27.489.4321.05.0130146.2130.177166VFRMETAR2235.02019-10-17 08:33:042 (e5    3FAOR 170830Z VRB05KT CAVOK 25/08 Q1029 NOSIGFAOR2019-10-17T08:30:00Z-26.1228.2225.08.0056.2130.383858TRUEVFRMETAR1700.02019-10-17 08:33:04 @,IK@')c5     3KORH 170828Z AUTO 26014G21KT 6SM -RA BR SCT009 SCT018 OVC024 12/11 A2884 RMK AO2 WSHFT 0759 P0004 T01170111KORH2019-10-17T08:28:00Z42.27-71.8711.711.126014216.028.839567TRUETRUE-RA BRMVFR0.04SPECI304.02019-10-17 08:33:04x&)M5     3KORE 170828Z AUTO 27013G17KT 2SM +RA BR FEW014 BKN019 OVC026 13/11 A2887 RMK AO2 P0020 T01280106KORE2019-10-17T08:28:00Z42.57-72.2812.810.627013172.028.869095TRUETRUE+RA BRIFR0.2SPECI164.02019-10-17 08:33:04]%)5     3CYDN 170829Z AUTO 28003KT 1/4SM FZFG VV002 M02/M02 A2985 RMK ICG SLP125CYDN2019-10-17T08:29:00Z51.1-100.03-2.0-2.028030.2529.849411012.5TRUEFZFGLIFR200SPECI305.02019-10-17 08:33:04N$)5    3CYFS 170829Z 00000KT 2 1/2SM BR OVC004 M01/M01 A2948 RMK ST8 SLP995CYFS2019-10-17T08:29:00Z61.75-121.22-1.0-1.0002.529.480314999.5BRLIFRSPECI169.02019-10-17 08:33:04 ,YV+)!5    3CYHE 170827Z AUTO 26004KT 180V270 9SM SCT014 OVC037 10/09 A2965 RMK SLP043CYHE2019-10-17T08:27:00Z49.37-121.510.09.026049.029.6486231004.3TRUEVFRSPECI39.02019-10-17 08:33:04R*)5    3CYYB 170828Z AUTO 34015G25KT 5SM BR OVC006 03/02 A2952 RMK SLP009CYYB2019-10-17T08:28:00Z46.35-79.423.02.034015255.029.5187021000.9TRUEBRIFRSPECI371.02019-10-17 08:33:04M)) 5   3CYQG 170828Z AUTO 33022G29KT 9SM OVC034 08/02 A2978 RMK SLP090CYQG2019-10-17T08:28:00Z42.27-82.978.02.033022299.029.7785431009.0TRUEVFRSPECI190.02019-10-17 08:33:04N() 5   3CYZE 170828Z AUTO 35014G22KT 9SM OVC026 05/02 A2974 RMK SLP078CYZE2019-10-17T08:28:00Z45.87-82.575.02.035014229.029.7401581007.8TRUEMVFRSPECI193.02019-10-17 08:33:04 !2\V/)!5    3KSJC 170827Z AUTO 00000KT 10SM BKN029 OVC049 16/12 A2990 RMK AO2 T01560117KSJC2019-10-17T08:27:00Z37.37-121.9215.611.70010.029.899607TRUETRUEMVFRMETAR24.02019-10-17 08:33:04P.)5     3KSTJ 170827Z AUTO 00000KT 2 1/2SM BR CLR 03/02 A3005 RMK AO2 T00280017KSTJ2019-10-17T08:27:00Z39.77-94.922.81.7002.530.050198TRUETRUEBRIFRMETAR247.02019-10-17 08:33:04i-)Q5  3UMII 170827Z 20005G08MPS 7000 SCT006 BKN023 11/11 Q1012 R23/290050 TEMPO 2000 BR BKN005 RMK QBB200UMII2019-10-17T08:27:00Z55.1330.3511.011.020010164.3529.88189MVFRMETAR208.02019-10-17 08:33:04Y,)%5   3CYTZ 170827Z AUTO 31014G20KT 9SM BKN017 BKN047 OVC070 09/06 A2945 RMK SLP976CYTZ2019-10-17T08:27:00Z43.63-79.49.06.031014209.029.450787997.6TRUEMVFRSPECI77.02019-10-17 08:33:04 f,BfV3)5     3PAKI 170827Z AUTO 04010KT 10SM BKN011 BKN070 02/01 A2898 RMK AO2 FZRANOPAKI2019-10-17T08:27:00Z59.93-164.032.01.0401010.028.981298TRUETRUETRUEMVFRMETAR4.02019-10-17 08:33:04?2(y5    3KDUH 170827Z AUTO 29003KT 10SM CLR 06/02 A2985 RMK AO2KDUH2019-10-17T08:27:00Z41.73-83.656.02.0290310.029.84941TRUETRUEVFRSPECI204.02019-10-17 08:33:041)5      3PAPB 170827Z AUTO 28031G45KT 6SM -RA BR SCT023 OVC029 04/03 A2913 RMK AO2 PK WND 27045/0803 RAE15B17SNB0754E04 P0001 T00440028 TSNOPAPB2019-10-17T08:27:00Z56.58-169.674.42.828031456.029.128937TRUETRUETRUE-RA BRMVFR0.01METAR35.02019-10-17 08:33:04N0)5     3KESF 170827Z AUTO 00000KT 4SM BR FEW001 08/08 A3005 RMK AO2 T00830078KESF2019-10-17T08:27:00Z31.4-92.288.37.8004.030.050198TRUETRUEBRMVFRMETAR28.02019-10-17 08:33:04 $SL7)5    3CYKP 170826Z AUTO 33007KT 9SM BKN006 OVC220 M02/M02 A3000 RMK SLP170CYKP2019-10-17T08:26:00Z51.67-85.9-2.0-2.033079.030.01017.0TRUEIFRSPECI179.02019-10-17 08:33:04C6)5    3MMTJ 170826Z 00000KT 1/16SM FG VV001 17/17 A2985 RMK 8////MMTJ2019-10-17T08:26:00Z32.53-116.9717.017.0000.0629.84941FGLIFR100METAR152.02019-10-17 08:33:04K5)5   3KBAX 170826Z AUTO 33015G27KT 10SM OVC026 06/02 A2976 RMK AO2KBAX2019-10-17T08:26:00Z43.78-82.986.02.0330152710.029.760826TRUETRUEMVFRSPECI234.02019-10-17 08:33:04V4)'5   3CYGP 170827Z 23003KT 210V280 10SM SCT006 OVC010 01/00 A2992 RMK SF3SC5 SLP136CYGP2019-10-17T08:27:00Z48.77-64.471.00.0230310.029.9202751013.6MVFRSPECI33.02019-10-17 08:33:04 i9CiT;)5    3KVTA 170826Z AUTO 30008KT 10SM SCT026 07/03 A2986 RMK AO2 T00720028 $KVTA2019-10-17T08:26:00Z40.02-82.477.22.8300810.029.861221TRUETRUETRUEVFRMETAR268.02019-10-17 08:33:04p:)E5    3KCEF 170826Z AUTO 30020G34KT 10SM -RA SCT018 BKN036 OVC047 09/07 A2890 RMK AO2 PRESFR SLP792KCEF2019-10-17T08:26:00Z42.2-72.529.07.0300203410.028.898623979.2TRUETRUE-RAVFRMETAR75.02019-10-17 08:33:04@9)5   3CYJT 170826Z 06006KT 8SM FEW003 04/04 A3006 RMK SF1 SLP180CYJT2019-10-17T08:26:00Z48.55-58.574.04.06068.030.0590551018.0VFRSPECI26.02019-10-17 08:33:04{8)g5    3CYXC 170826Z 16008KT 20SM -SHRA SCT042 OVC082 09/03 A2964 RMK SC3AC5 CVCTV CLD EMBD SLP048 DENSITY ALT 3500FTCYXC2019-10-17T08:26:00Z49.6-115.779.03.0160820.029.6397631004.8-SHRAVFRSPECI939.02019-10-17 08:33:04 ""M?)5    3EHFD 170825Z AUTO 25021KT 9999 FEW024/// SCT033/// M90/M90 Q1005 W///H///EHFD2019-10-17T08:25:00Z54.854.70.00.0250216.2129.675198TRUEVFRMETAR50.02019-10-17 08:33:04x>)[5     3KACV 170825Z AUTO 00000KT 1/4SM R32/0800V2600FT FG SCT001 BKN021 OVC060 11/10 A2993 RMK AO2 T01060100 $KACV2019-10-17T08:25:00Z40.98-124.110.610.0000.2529.929134TRUETRUETRUEFGLIFRSPECI67.02019-10-17 08:33:04 =){5    3KEKN 170826Z AUTO 29016G25KT 10SM FEW017 SCT024 OVC042 06/02 A2978 RMK AO2 PK WND 27028/0814 RAB0753E20 P0000 T00560022KEKN2019-10-17T08:26:00Z38.88-79.855.62.2290162510.029.778543TRUETRUEVFR0.005METAR603.02019-10-17 08:33:04w<)W5    3KMGW 170826Z AUTO 25007G19KT 10SM FEW020 BKN036 OVC060 07/04 A2975 RMK AO2 RAB0754E17 P0000 T00720044KMGW2019-10-17T08:26:00Z39.65-79.927.24.425071910.029.749016TRUETRUEVFR0.005METAR378.02019-10-17 08:33:04 .cSC)5    3PALU 170825Z AUTO 14008KT 10SM BKN011 M03/M04 A2936 RMK AO2 SLP942PALU2019-10-17T08:25:00Z68.88-166.1-3.0-4.0140810.029.359253994.2TRUETRUEMVFRSPECI3.02019-10-17 08:33:04PB)5   3K2G4 170825Z AUTO 27014G24KT 242V312 7SM OVC006 02/02 A2964 RMK AO1K2G42019-10-17T08:25:00Z39.58-79.332.02.027014247.029.639763TRUETRUEIFRSPECI894.02019-10-17 08:33:04EA({5    3KMVH 170825Z AUTO 34005KT 10SM CLR 10/M05 A2972 RMK AO2KMVH2019-10-17T08:25:00Z46.83-108.9310.0-5.0340510.029.719488TRUETRUEVFRMETAR1355.02019-10-17 08:33:04L@) 5    3KMCC 170825Z AUTO 13008KT 10SM BKN070 BKN085 15/11 A2987 RMK AO2KMCC2019-10-17T08:25:00Z38.67-121.415.011.0130810.029.870079TRUETRUEVFRSPECI23.02019-10-17 08:33:04  ZG) 5    3EHVK 170825Z AUTO 23008KT 190V250 9000 BR SCT006 BKN007 BKN009 13/12 Q1010 YLO 25006KT 7000 BR SCT005 BKN008 BECMG SCT015 BKN040EHVK2019-10-17T08:25:00Z51.635.713.012.023085.5929.822834TRUEBR BRSCT500IFRSPECI21.02019-10-17 08:33:046F(q5    3EHVL 170825Z AUTO 25016KT 9999 NCD 14/07 Q1008 BLUEHVL2019-10-17T08:25:00Z53.234.9214.07.0250166.2129.763779TRUEVFRMETAR5.02019-10-17 08:33:04@E)5    3EHWO 170825Z AUTO 19006KT 150V220 9999 NCD 13/11 Q1009 BLUEHWO2019-10-17T08:25:00Z51.454.3213.011.019066.2129.793306TRUEVFRMETAR17.02019-10-17 08:33:04ZD)%5     3KNXF 170825Z AUTO 03005KT 3SM BR BKN004 OVC010 16/15 A2983 RMK AO2 T01610150KNXF2019-10-17T08:25:00Z33.28-117.4516.115.03053.029.828741TRUETRUEBRLIFRSPECI27.02019-10-17 08:33:04 m;CmPK)5   3CYTH 170825Z VRB02KT 15SM FEW006 SCT018 M01/M02 A2997 RMK SC1SC2 SLP165CYTH2019-10-17T08:25:00Z55.78-97.87-1.0-2.00215.029.9704721016.5VFRSPECI218.02019-10-17 08:33:04RJ)#5    3EHDL 170825Z AUTO 21003KT 160V270 9999 FEW004 BKN011 OVC013 13/12 Q1009 GRNEHDL2019-10-17T08:25:00Z52.075.8713.012.021036.2129.793306TRUEMVFRMETAR52.02019-10-17 08:33:04I)5   3EHGR 170825Z AUTO 21006G18KT 180V250 6000 BR FEW006 SCT008 BKN009 13/12 Q1010 GRN 23005KT 8000 BR FEW006 BKN008 BECMG NSW FEW009 BKN045EHGR2019-10-17T08:25:00Z51.574.9213.012.02106183.7329.822834TRUEBR BRFEW600IFRSPECI13.02019-10-17 08:33:04?H)5    3EHLW 170825Z AUTO 20008KT 160V230 9999 NCD 13/12 Q1008 BLUEHLW2019-10-17T08:25:00Z53.225.7513.012.020086.2129.763779TRUEVFRMETAR2.02019-10-17 08:33:04 d :dPO)5   3KFDK 170825Z AUTO 29007G18KT 10SM BKN041 OVC047 12/05 A2955 RMK AO2KFDK2019-10-17T08:25:00Z39.42-77.3712.05.029071810.029.551182TRUETRUEVFRSPECI92.02019-10-17 08:33:04`N)%5      3KFIT 170825Z AUTO 32005KT 8SM -RA OVC012 13/11 A2878 RMK AO2 P0002 T01280111KFIT2019-10-17T08:25:00Z42.55-71.7512.811.132058.028.780512TRUETRUE-RAMVFR0.02SPECI103.02019-10-17 08:33:04xM)O5      3KMEH 170825Z AUTO 00000KT 10SM -RA OVC009 08/05 A2977 RMK AO2 RAB23 CIG 005V012 P0000 T00780050 $KMEH2019-10-17T08:25:00Z45.52-118.427.85.00010.029.769686TRUETRUETRUE-RAIFR0.005SPECI1136.02019-10-17 08:33:04\L))5    3CYCB 170825Z 13016KT 2 1/2SM -SN FEW005 BKN020 M04/M05 A2987 RMK SF1SC6 SLP120CYCB2019-10-17T08:25:00Z69.08-105.12-4.0-5.0130162.529.8700791012.0-SNIFRSPECI27.02019-10-17 08:33:04 ;\IS) 5     3EHRD 170825Z AUTO 21007KT 160V250 9999 FEW008 14/12 Q1009 NOSIGEHRD2019-10-17T08:25:00Z51.954.4514.012.021076.2129.793306TRUETRUEVFRMETAR-5.02019-10-17 08:33:046R(q5    3EHAM 170825Z 19008KT 9999 FEW025 13/12 Q1009 NOSIGEHAM2019-10-17T08:25:00Z52.324.7813.012.019086.2129.793306TRUEVFRMETAR9.02019-10-17 08:33:04YQ)'5     3EHBK 170825Z AUTO 24007KT 200V280 9999 FEW007 SCT024 BKN029 13/12 Q1011 NOSIGEHBK2019-10-17T08:25:00Z50.925.7713.012.024076.2129.852362TRUETRUEMVFRMETAR116.02019-10-17 08:33:04?P({5     3EHGG 170825Z AUTO 21005KT 9999 FEW049 13/12 Q1008 NOSIGEHGG2019-10-17T08:25:00Z53.126.5713.012.021056.2129.763779TRUETRUEVFRMETAR4.02019-10-17 08:33:04 @UW)-5    3EHKD 170825Z AUTO 23007KT 9999 BKN068 14/08 Q1008 BLU 28005KT 9999 FEW020 SCT040EHKD2019-10-17T08:25:00Z52.924.7714.08.023076.2129.763779TRUEVFRMETAR14.02019-10-17 08:33:044V(k5    3SBRB 170825Z 00000KT 1500 BR SCT001 21/21 Q1013SBRB2019-10-17T08:25:00Z-10.0-67.7821.021.0000.9329.911417BRLIFRSPECI143.02019-10-17 08:33:04UU)!5    3KTVC 170825Z AUTO 34008KT 10SM SCT029 OVC037 08/03 A2988 RMK AO2 T00830033KTVC2019-10-17T08:25:00Z44.73-85.578.33.3340810.029.878937TRUETRUEVFRSPECI190.02019-10-17 08:33:04_T)-5     3KCLM 170825Z AUTO 00000KT 3/4SM BR FEW001 FEW031 06/06 A2964 RMK AO2 T00610061 $KCLM2019-10-17T08:25:00Z48.12-123.56.16.1000.7529.639763TRUETRUETRUEBRLIFRSPECI85.02019-10-17 08:33:04 [[=[)5   3EHSA 170825Z AUTO 18017KT 9999 ///////// 14/09 Q1008 W14/H5EHSA2019-10-17T08:25:00Z52.03.2814.09.0180176.2129.763779TRUEMETAR50.02019-10-17 08:33:04?Z)5   3EHSC 170825Z AUTO 21017KT 9999 ///////// 14/11 Q1008 W15/H5EHSC2019-10-17T08:25:00Z51.933.6714.011.0210176.2129.763779TRUEMETAR50.02019-10-17 08:33:04iY)Q5    3LTBI 170825Z 08006KT 050V120 9999 SCT035 BKN100 17/10 Q1021 RESHRA NOSIG RMK RWY08 09006KT 010V140LTBI2019-10-17T08:25:00Z39.7730.5717.010.08066.2130.147638TRUEVFRMETAR785.02019-10-17 08:33:04(X)?5    3EHEH 170825Z AUTO 23007KT 200V280 6000 BR FEW006 SCT019 OVC040 14/12 Q1010 WHT 23007KT 8000 SCT007 BKN016 BKN045 TEMPO 4000 -DZRA BR BKN005 BKN008 OVC016EHEH2019-10-17T08:25:00Z51.455.3814.012.023073.7329.822834TRUEBRSCT700MVFRMETAR22.02019-10-17 08:33:04 =@`)5    3EHKV 170825Z AUTO 15017KT 9999 FEW039 14/05 Q1008 W///H///EHKV2019-10-17T08:25:00Z53.273.6314.05.0150176.2129.763779TRUEVFRMETAR50.02019-10-17 08:33:04E_) 5    3EHMA 170825Z AUTO 21010KT 170V250 9999 NSC 13/12 Q1008 W///H///EHMA2019-10-17T08:25:00Z53.55.9513.012.0210106.2129.763779TRUEVFRMETAR50.02019-10-17 08:33:04N^)5    3EHMG 170825Z AUTO 23011KT 9999 FEW030 SCT038 BKN043 13/08 Q1008 W///H///EHMG2019-10-17T08:25:00Z53.624.9713.08.0230116.2129.763779TRUEVFRMETAR50.02019-10-17 08:33:047]({5    3EHPG 170825Z AUTO /////KT 9999 NSC 15/08 Q1008 W///H///EHPG2019-10-17T08:25:00Z52.373.3515.08.06.2129.763779TRUEVFRMETAR50.02019-10-17 08:33:04=\)5   3EHQE 170825Z AUTO 19016KT 9999 ////// 14/07 Q1008 W///H///EHQE2019-10-17T08:25:00Z52.924.1514.07.0190166.2129.763779TRUEMETAR50.02019-10-17 08:33:04 AwMd)5    3EHDV 170825Z AUTO 24012KT 9999 FEW025/// SCT035/// 13/07 Q1006 W///H///EHDV2019-10-17T08:25:00Z54.322.9313.07.0240126.2129.704725TRUEVFRMETAR50.02019-10-17 08:33:04Gc)5    3EHFZ 170825Z AUTO 25013KT 9999 FEW029 SCT043 13/06 Q1006 W///H///EHFZ2019-10-17T08:25:00Z54.124.0213.06.0250136.2129.704725TRUEVFRMETAR50.02019-10-17 08:33:04Db) 5    3EHHW 170825Z AUTO 25010KT 200V290 9999 NSC 14/05 Q1007 W///H///EHHW2019-10-17T08:25:00Z54.036.0314.05.0250106.2129.734253TRUEVFRMETAR0.02019-10-17 08:33:049a)5  3EHJR 170825Z AUTO 24015KT //// // ///////// 14/06 Q//// RE// W16/H9EHJR2019-10-17T08:25:00Z53.223.2214.06.024015TRUEMETAR50.02019-10-17 08:33:04 7fh)a5     3KPSF 170824Z AUTO 28020G25KT 1 3/4SM +RA BR OVC013 07/05 A2906 RMK AO2 PK WND 31027/0804 P0037 T00670050 $KPSF2019-10-17T08:24:00Z42.43-73.286.75.028020251.7529.061024TRUETRUETRUE+RA BRIFR0.37SPECI355.02019-10-17 08:33:049g(o5    3YGFN 170824Z AUTO 36008KT 9999 // NCD 26/16 Q1006YGFN2019-10-17T08:24:00Z-29.77153.0326.016.036086.2129.704725TRUEVFRSPECI34.02019-10-17 08:33:04Kf) 5    3K22N 170824Z AUTO 26008KT 10SM SCT022 OVC029 09/06 A2938 RMK AO2K22N2019-10-17T08:24:00Z40.8-75.779.06.0260810.029.379921TRUETRUEMVFRSPECI163.02019-10-17 08:33:04Ce)5    3EHAK 170825Z AUTO 25019KT 9999 FEW021/// 12/07 Q1005 W///H///EHAK2019-10-17T08:25:00Z55.423.8212.07.0250196.2129.675198TRUEVFRMETAR50.02019-10-17 08:33:04 Y 0QYrl)G5      3KMVL 170823Z AUTO 35007KT 4SM +RA BR SCT014 BKN028 OVC037 08/07 A2922 RMK AO2 P0019 T00830072KMVL2019-10-17T08:23:00Z44.53-72.628.37.235074.029.220472TRUETRUE+RA BRMVFR0.19SPECI234.02019-10-17 08:33:04Yk)5      3PAKN 170823Z 00000KT 7SM -RA OVC029 04/03 A2897 RMK AO2 P0002 T00390028 $PAKN2019-10-17T08:23:00Z58.68-156.653.92.8007.028.969488TRUETRUE-RAMVFR0.02SPECI17.02019-10-17 08:33:04Vj)+5    3LEAS 170823Z 28004KT 240V310 4000 -RA SCT003 BKN007 BKN014 15/15 Q1014 TEMPO RALEAS2019-10-17T08:23:00Z43.53-6.0215.015.028042.4929.940945-RAIFRSPECI134.02019-10-17 08:33:04ni)E5   3CYYU 170824Z 35006KT 6SM -SN SCT005 BKN006 BKN007 OVC014 03/02 A2987 RMK SC3SC2SC2SC1 SLP127CYYU2019-10-17T08:24:00Z49.42-82.473.02.035066.029.8700791012.7-SNOVC1400IFRSPECI227.02019-10-17 08:33:04 {/\V{Up)5    3KCOT 170823Z AUTO 00000KT 10SM OVC029 17/12 A3007 RMK AO2 T01720117 $KCOT2019-10-17T08:23:00Z28.45-99.2217.211.70010.030.070866TRUETRUETRUEMVFRSPECI140.02019-10-17 08:33:04o)]5     3KSFM 170823Z AUTO 07012G24KT 3SM +RA BR SCT007 BKN014 12/12 A2898 RMK AO2 PK WND 06034/0809 PRESFR P0027KSFM2019-10-17T08:23:00Z43.38-70.7212.012.07012243.028.981298TRUETRUE+RA BRMVFR0.27SPECI74.02019-10-17 08:33:04Mn)5    3CYQH 170823Z 00000KT 10SM -SN OVC010 M00/M01 A2920 RMK SC8 SLP919CYQH2019-10-17T08:23:00Z60.12-128.820.0-1.00010.029.199802991.9-SNMVFRSPECI690.02019-10-17 08:33:04Km) 5    3KDVP 170823Z AUTO 13004KT 7SM CLR 00/M01 A2998 RMK AO2 T10021007KDVP2019-10-17T08:23:00Z43.98-95.78-0.2-0.713047.029.97933TRUETRUEVFRSPECI495.02019-10-17 08:33:04 s0osvt)a5  !  3EGVP 170823Z 27001KT 5000 -SHRA VCFG FEW007 SCT090 08/08 Q1006 TEMPO 4000 SHRA BKN015TCU RMK WHT TEMPO GRNEGVP2019-10-17T08:23:00Z51.13-1.578.08.027013.1129.704725-SHRA VCFGMVFRMETAR91.02019-10-17 08:33:04;s(}5    3EGYM 170823Z 13004KT CAVOK 08/07 Q1007 NOSIG RMK BLU BLUEGYM2019-10-17T08:23:00Z52.630.578.07.013046.2129.734253TRUEVFRMETAR23.02019-10-17 08:33:04\r))5   3KCGS 170823Z AUTO 27011G21KT 240V300 10SM OVC060 12/02 A2955 RMK AO1 T01160015KCGS2019-10-17T08:23:00Z38.98-76.9211.61.5270112110.029.551182TRUETRUEVFRSPECI15.02019-10-17 08:33:04hq);5     3PAEN 170823Z AUTO 36003KT 10SM FEW014 BKN025 OVC065 01/M01 A2906 RMK AO2 T00061006 TSNOPAEN2019-10-17T08:23:00Z60.57-151.250.6-0.6360310.029.061024TRUETRUETRUEMVFRSPECI27.02019-10-17 08:33:04 4LFx) 5    3LEVS 170822Z 19003KT 170V240 7000 -RA SCT021 BKN055 11/10 Q1020LEVS2019-10-17T08:22:00Z40.37-3.7711.010.019034.3530.11811-RAMVFRSPECI687.02019-10-17 08:33:04bw)#5       3PASA 170822Z AUTO 02009KT 10SM -RA OVC016 01/M01 A2920 RMK AO2 P0000 FZRANOPASA2019-10-17T08:22:00Z63.68-170.51.0-1.020910.029.199802TRUETRUETRUE-RAMVFR0.005METAR16.02019-10-17 08:33:04Mv)5     3CYAT 170822Z AUTO 32004KT 1SM BR VV004 02/02 A2995 RMK SLP143CYAT2019-10-17T08:22:00Z52.93-82.432.02.032041.029.9498021014.3TRUEBRLIFR400SPECI9.02019-10-17 08:33:04su)c5    3EGDR 170822Z 21013KT 9999 VCSH FEW015 SCT040 12/10 Q1003 TEMPO 5000 SHRA SCT008 BKN016TCU RMK BLU TEMPO GRNEGDR2019-10-17T08:22:00Z50.08-5.2512.010.0210136.2129.616142VCSHVFRMETAR82.02019-10-17 08:33:04 y9hVyW|)!5    3KCCR 170822Z AUTO 22007KT 10SM BKN019 OVC041 17/12 A2988 RMK AO2 T01720122KCCR2019-10-17T08:22:00Z38.0-122.0517.212.2220710.029.878937TRUETRUEMVFRSPECI11.02019-10-17 08:33:04 {){5     3KIZG 170822Z AUTO 03013G22KT 2 1/2SM +RA BR BKN009 BKN014 OVC021 09/08 A2915 RMK AO2 CIG 006V010 PRESFR P0010 T00940078KIZG2019-10-17T08:22:00Z43.98-70.959.47.83013222.529.149607TRUETRUE+RA BRIFR0.1SPECI135.02019-10-17 08:33:04Kz)5     3KPOF 170822Z AUTO 00000KT 2SM BR CLR 04/03 A3011 RMK AO2 T00440028KPOF2019-10-17T08:22:00Z36.77-90.324.42.8002.030.109253TRUETRUEBRIFRSPECI99.02019-10-17 08:33:04Ay({5    3KCNB 170822Z AUTO 09005KT 10SM CLR 00/M02 A2997 RMK AO2KCNB2019-10-17T08:22:00Z44.73-96.270.0-2.090510.029.970472TRUETRUEVFRSPECI364.02019-10-17 08:33:04 7oL)5    3SARL 170822Z 09008KT 8000 -TSRA SCT008 FEW045CB OVC100 19/18 Q1013SARL2019-10-17T08:22:00Z-29.67-57.1319.018.09084.9729.911417-TSRAMVFRMETAR70.02019-10-17 08:33:04H)5   3KMTN 170822Z AUTO 24009G17KT 10SM OVC060 12/06 A2952 RMK AO2KMTN2019-10-17T08:22:00Z39.32-76.4212.06.024091710.029.518702TRUETRUEVFRSPECI7.02019-10-17 08:33:04B~) 5    3EGQS 170822Z 14004KT 9999 FEW020 03/02 Q1000 NOSIG RMK BLU BLUEGQS2019-10-17T08:22:00Z57.72-3.323.02.014046.2129.52756TRUEVFRMETAR13.02019-10-17 08:33:04C}) 5    3LXGB 170822Z 26008KT 9999 FEW020 18/14 Q1020 NOSIG RMK BLU BLULXGB2019-10-17T08:22:00Z36.13-5.3318.014.026086.2130.11811TRUEVFRSPECI5.02019-10-17 08:33:04 Z7FZf)O5    3EKKA 170821Z 18005KT 5000 -RA FEW004 SCT012 BKN070 13/12 Q1005 BECMG 22010KT TEMPO 2500 RA BKN004EKKA2019-10-17T08:21:00Z56.39.1213.012.018053.1129.675198-RAMVFRSPECI52.02019-10-17 08:33:04k)75       3PAII 170821Z AUTO 28003KT 9SM -RA FEW009 SCT014 OVC020 03/02 A2903 RMK AO2 P0002 TSNOPAII2019-10-17T08:21:00Z58.18-157.383.02.028039.029.028543TRUETRUETRUE-RAMVFR0.02METAR30.02019-10-17 08:33:04W)5     3PASX 170821Z AUTO 00000KT 10SM FEW009 OVC014 00/M01 A2908 RMK AO2 FZRANOPASX2019-10-17T08:21:00Z60.48-151.030.0-1.00010.029.078741TRUETRUETRUEMVFRMETAR32.02019-10-17 08:33:04f)/5      3KAFJ 170821Z AUTO 27013KT 10SM -RA FEW011 BKN020 OVC025 07/05 A2974 RMK AO2 P0000KAFJ2019-10-17T08:21:00Z40.12-80.277.05.02701310.029.740158TRUETRUE-RAMVFR0.005METAR361.02019-10-17 08:33:04 /[~c)75   3KHPN 170821Z 28015G29KT 10SM BKN031 11/05 A2921 RMK AO2 PK WND 26029/0816 T01060050 $KHPN2019-10-17T08:21:00Z41.07-73.710.65.0280152910.029.208662TRUETRUEVFRSPECI121.02019-10-17 08:33:04W)5     3KMYF 170821Z AUTO 17003KT 1/2SM FG OVC003 17/16 A2983 RMK AO2 T01720161KMYF2019-10-17T08:21:00Z32.82-117.1317.216.117030.529.828741TRUETRUEFGLIFRMETAR136.02019-10-17 08:33:04N)5    3KSAW 170821Z AUTO 32006KT 10SM OVC025 03/02 A2993 RMK AO2 T00260015KSAW2019-10-17T08:21:00Z46.35-87.42.61.5320610.029.929134TRUETRUEMVFRSPECI372.02019-10-17 08:33:04K) 5    3CYSM 170821Z VRB02KT 15SM -SN OVC028 01/01 A2949 RMK SC8 SLP000CYSM2019-10-17T08:21:00Z60.03-111.971.01.00215.029.4891741000.0-SNMVFRSPECI203.02019-10-17 08:33:04 TIT) (Y5   3FAUT 170821Z 35002KT CAVOK 35/07 Q1018FAUT2019-10-17T08:21:00Z-31.5228.6735.07.035026.2130.059055VFRSPECI732.02019-10-17 08:33:04J ) 5    3KFME 170821Z AUTO 26009KT 10SM BKN047 OVC060 10/05 A2956 RMK AO1KFME2019-10-17T08:21:00Z39.08-76.7710.05.0260910.029.56004TRUETRUEVFRSPECI46.02019-10-17 08:33:04< (}5    3EGXW 170821Z 15004KT CAVOK 07/06 Q1005 NOSIG RMK BLU BLUEGXW2019-10-17T08:21:00Z53.18-0.527.06.015046.2129.675198TRUEVFRMETAR70.02019-10-17 08:33:04. (i5   3EGXT 170821Z 18006KT CAVOK 07/07 Q1005 RMK BLUEGXT2019-10-17T08:21:00Z52.62-0.477.07.018066.2129.675198VFRMETAR84.02019-10-17 08:33:041 (i5   3FAGG 170821Z 24007KT 200V260 CAVOK 21/16 Q1014FAGG2019-10-17T08:21:00Z-34.022.3721.016.024076.2129.940945VFRSPECI193.02019-10-17 08:33:04 eS6eK)5   3LTCS 170820Z 15008KT 120V180 CAVOK 26/11 Q1023 RMK RWY22 17009KT 140V200LTCS2019-10-17T08:20:00Z37.4538.926.011.015086.2130.206694VFRMETAR825.02019-10-17 08:33:04-(g5     3LOWZ 170820Z AUTO 05002KT 0450 FG VV002 05/05LOWZ2019-10-17T08:20:00Z47.312.785.05.05020.28TRUEFGLIFR200SPECI754.02019-10-17 08:33:043(q5    3LCRA 170820Z 20007KT 9999 FEW030 28/20 Q1016 NOSIGLCRA2019-10-17T08:20:00Z34.5732.9728.020.020076.2130.0TRUEVFRMETAR23.02019-10-17 08:33:04+(e5   3LGPZ 170820Z VRB03KT 9999 FEW018 23/18 Q1018LGPZ2019-10-17T08:20:00Z38.9220.7723.018.0036.2130.059055VFRMETAR4.02019-10-17 08:33:04'(Y5   3ENAL 170820Z 13011KT CAVOK 10/04 Q1003ENAL2019-10-17T08:20:00Z62.576.1210.04.0130116.2129.616142VFRMETAR22.02019-10-17 08:33:04 {OW{V)/5    3LTFJ 170820Z 09004KT 040V190 8000 NSC 21/15 Q1018 NOSIG RMK RWY24 34003KT 290V070LTFJ2019-10-17T08:20:00Z40.929.321.015.09044.9730.059055TRUEMVFRSPECI98.02019-10-17 08:33:04r)a5    3LTFM 170820Z 05010KT 9999 FEW014 BKN020 19/16 Q1019 NOSIG RMK RWY17L 05010KT RWY34L 03008KT RWY16R 04008KTLTFM2019-10-17T08:20:00Z41.2728.7519.016.050106.2130.088583TRUEMVFRMETAR99.02019-10-17 08:33:04F) 5    3LTAG 170820Z 05010KT 9999 FEW045 SCT120 BKN200 25/15 Q1018 NOSIGLTAG2019-10-17T08:20:00Z37.035.4225.015.050106.2130.059055TRUEVFRMETAR66.02019-10-17 08:33:04_)E5   3EGVO 170820Z 14008KT 9999 FEW025 SCT100 10/09 Q1006 TEMPO 7000 SHRA SCT014 RMK BLU TEMPO GRNEGVO2019-10-17T08:20:00Z51.23-0.9510.09.014086.2129.704725VFRSPECI123.02019-10-17 08:33:04 2^H)5   3LTCJ 170820Z 34004KT 270V040 9999 FEW100 27/03 Q1020 RMK RWY20 VRB03KTLTCJ2019-10-17T08:20:00Z37.9341.1227.03.034046.2130.11811VFRSPECI540.02019-10-17 08:33:04G)5    3LCEN 170820Z 09004KT 9999 FEW025TCU 29/14 Q1016 NOSIG RMK RWY11 19004KTLCEN2019-10-17T08:20:00Z35.1333.529.014.09046.2130.0TRUEVFRSPECI91.02019-10-17 08:33:04N)'5   3LTFC 170820Z 00000KT 9999 FEW035 SCT080 20/11 Q1020 RMK RWY23 26003KT 190V320LTFC2019-10-17T08:20:00Z37.8730.3820.011.0006.2130.11811VFRSPECI864.02019-10-17 08:33:04H)5   3LTFE 170820Z VRB02KT 9999 FEW035 BKN100 24/18 Q1017 BECMG TL1000 26012KTLTFE2019-10-17T08:20:00Z37.2527.6724.018.0026.2130.029528VFRSPECI6.02019-10-17 08:33:04 Y6YW)35   3LTAU 170820Z 06008KT 9999 FEW030CB SCT035 BKN090 16/11 Q1022 TEMPO 15015G25KT -TSRALTAU2019-10-17T08:20:00Z38.7735.4716.011.06086.2130.177166VFRSPECI1054.02019-10-17 08:33:04S))5   3LTBU 170820Z 33006KT 290V360 9999 BKN023 19/14 Q1019 RMK RWY22 04006KT 360V080LTBU2019-10-17T08:20:00Z41.1227.9219.014.033066.2130.088583MVFRSPECI173.02019-10-17 08:33:04Y)35    3LTCC 170820Z 10004KT 030V170 9999 FEW040 SCT100 26/08 Q1021 NOSIG RMK RWY16 VRB04KTLTCC2019-10-17T08:20:00Z37.8740.226.08.010046.2130.147638TRUEVFRSPECI677.02019-10-17 08:33:04 )5    3LTCE 170820Z 11005KT 030V140 9999 FEW040 SCT080 18/M07 Q1027 NOSIG RMK RWY08R 06006KT 020V120 RWY26R /////KT RWY08L 08005KT 040V140LTCE2019-10-17T08:20:00Z39.9541.1718.0-7.011056.2130.324802TRUEVFRSPECI1758.02019-10-17 08:33:04 Z!KQZq")Y5   3PKWA 170820Z AUTO 09021G28KT 10SM SCT019 BKN036 OVC065 27/27 A2985 RMK AO2 LTG DSNT W AND NW T02720267PKWA2019-10-17T08:20:00Z8.72167.7227.226.790212810.029.84941TRUETRUEVFRMETAR8.02019-10-17 08:33:04t!)K5    3ETAD 170820Z AUTO 20011KT 9999 BKN009 OVC027 13/12 A2990 RMK AO2 CIG 009V027 BKN V FEW SLP114 $ETAD2019-10-17T08:20:00Z49.986.713.012.0200116.2129.8996071011.4TRUETRUETRUEIFRMETAR365.02019-10-17 08:33:04P )#5    3LTAP 170820Z VRB01KT 9999 FEW050 SCT180 24/04 Q1018 NOSIG RMK RWY23 VRB03KTLTAP2019-10-17T08:20:00Z40.8335.5224.04.0016.2130.059055TRUEVFRSPECI535.02019-10-17 08:33:04Y)35    3LTAT 170820Z 07004KT 350V110 9999 FEW040 SCT100 23/09 Q1023 NOSIG RMK RWY03 VRB02KTLTAT2019-10-17T08:20:00Z38.4238.0723.09.07046.2130.206694TRUEVFRSPECI849.02019-10-17 08:33:04 1[S&))5    3EYSA 170820Z 23009KT 200V260 8000 -RA OVC007 12/11 Q1007 GRN TEMPO OVC006 YLO1EYSA2019-10-17T08:20:00Z55.923.412.011.023094.9729.734253-RAIFRMETAR135.02019-10-17 08:33:04U%)!5    3KTTD 170820Z AUTO 00000KT 10SM SCT014 OVC060 12/11 A2978 RMK AO2 T01220106KTTD2019-10-17T08:20:00Z45.55-122.4212.210.60010.029.778543TRUETRUEVFRSPECI14.02019-10-17 08:33:04P$)5    3KAPC 170820Z AUTO 25007KT 10SM OVC013 15/13 A2988 RMK AO2 T01500133KAPC2019-10-17T08:20:00Z38.2-122.2815.013.3250710.029.878937TRUETRUEMVFRMETAR13.02019-10-17 08:33:04I#)5    3KJEF 170820Z AUTO 00000KT 7SM SCT001 03/02 A3011 RMK AO2 T00280022KJEF2019-10-17T08:20:00Z38.6-92.152.82.2007.030.109253TRUETRUEVFRMETAR168.02019-10-17 08:33:04 sM*s1+(e5    3LSZG 170820Z 10001KT CAVOK 11/09 Q1017 NOSIGLSZG2019-10-17T08:20:00Z47.177.4211.09.010016.2130.029528TRUEVFRMETAR430.02019-10-17 08:33:046*(q5    3LSZR 170820Z VRB03KT CAVOK 11/10 Q1017 NOSIG RMK ELSZR2019-10-17T08:20:00Z47.489.5711.010.0036.2130.029528TRUEVFRMETAR398.02019-10-17 08:33:04.)(c5    3LSZS 170820Z AUTO VRB02KT CAVOK 01/00 Q1021LSZS2019-10-17T08:20:00Z46.539.881.00.0026.2130.147638TRUEVFRMETAR1706.02019-10-17 08:33:04-((e5   3LSZC 170820Z 20003KT 9999 FEW100 12/08 Q1017LSZC2019-10-17T08:20:00Z46.978.3812.08.020036.2130.029528VFRMETAR450.02019-10-17 08:33:04-'(i5   3LSZL 170820Z 00000KT CAVOK 12/09 Q1021 RMK BLULSZL2019-10-17T08:20:00Z46.178.8812.09.0006.2130.147638VFRSPECI600.02019-10-17 08:33:04 fL(f<0(5    3LSGG 170820Z VRB02KT 9999 FEW080 BKN140 13/08 Q1017 NOSIGLSGG2019-10-17T08:20:00Z46.256.1213.08.0026.2130.029528TRUEVFRMETAR416.02019-10-17 08:33:046/(q5    3LSZB 170820Z 10004KT 9999 SCT100 12/09 Q1017 NOSIGLSZB2019-10-17T08:20:00Z46.927.512.09.010046.2130.029528TRUEVFRMETAR505.02019-10-17 08:33:045.(q5    3LSZA 170820Z VRB01KT 9999 FEW045 12/11 Q1021 NOSIGLSZA2019-10-17T08:20:00Z46.08.9212.011.0016.2130.147638TRUEVFRMETAR276.02019-10-17 08:33:04'-(Y5   3LSGC 170820Z 21005KT CAVOK 11/06 Q1017LSGC2019-10-17T08:20:00Z47.086.811.06.021056.2130.029528VFRMETAR1027.02019-10-17 08:33:04.,(i5   3LSGS 170820Z 07004KT 050V110 CAVOK 11/05 Q1018LSGS2019-10-17T08:20:00Z46.227.3211.05.07046.2130.059055VFRMETAR481.02019-10-17 08:33:04 TBgT$5(Y5   3EGNM 170820Z VRB02KT CAVOK 07/05 Q1004EGNM2019-10-17T08:20:00Z53.87-1.637.05.0026.2129.64567VFRMETAR208.02019-10-17 08:33:04.4(i5   3EGNX 170820Z 15005KT 120V210 CAVOK 08/06 Q1005EGNX2019-10-17T08:20:00Z52.82-1.328.06.015056.2129.675198VFRMETAR94.02019-10-17 08:33:04/3(i5    3EGPD 170820Z AUTO VRB03KT 9999 NCD 02/02 Q1001EGPD2019-10-17T08:20:00Z57.2-2.222.02.0036.2129.557087TRUEVFRMETAR65.02019-10-17 08:33:04U2)%5    3EKSP 170820Z 25006KT 5000 -DZ BR BKN004 BKN014 13/12 Q1006 TEMPO 3000 BKN005EKSP2019-10-17T08:20:00Z55.229.2713.012.025063.1129.704725-DZ BRLIFRSPECI40.02019-10-17 08:33:0481(u5    3LSZH 170820Z 04003KT 360V070 CAVOK 13/09 Q1017 NOSIGLSZH2019-10-17T08:20:00Z47.488.5313.09.04036.2130.029528TRUEVFRMETAR432.02019-10-17 08:33:04 T=|T':(Y5   3EGAA 170820Z 18011KT CAVOK 09/07 Q0997EGAA2019-10-17T08:20:00Z54.63-6.229.07.0180116.2129.438976VFRMETAR81.02019-10-17 08:33:0429(i5    3EGAC 170820Z AUTO 15004KT 9999 NCD 10/07 Q0997EGAC2019-10-17T08:20:00Z54.62-5.8710.07.015046.2129.438976TRUEVFRMETAR5.02019-10-17 08:33:04=8(5    3EGFF 170820Z AUTO 14005KT 110V180 9999 SCT015 12/09 Q1004EGFF2019-10-17T08:20:00Z51.38-3.3512.09.014056.2129.64567TRUEVFRMETAR67.02019-10-17 08:33:04;7(y5    3EGGW 170820Z AUTO 17005KT 140V210 9999 NCD 09/09 Q1007EGGW2019-10-17T08:20:00Z51.87-0.379.09.017056.2129.734253TRUEVFRMETAR160.02019-10-17 08:33:04=6(5   3EGLC 170820Z AUTO 17005G15KT 030V200 9999 NCD 12/08 Q1007EGLC2019-10-17T08:20:00Z51.50.0512.08.01705156.2129.734253TRUEVFRMETAR5.02019-10-17 08:33:04 ~C)~%?(Y5   3EGPC 170820Z 18002KT CAVOK 08/06 Q1000EGPC2019-10-17T08:20:00Z58.45-3.078.06.018026.2129.52756VFRMETAR39.02019-10-17 08:33:04->(e5   3EGPL 170820Z 15019KT 9999 SCT021 11/08 Q0995EGPL2019-10-17T08:20:00Z57.47-7.3711.08.0150196.2129.379921VFRMETAR6.02019-10-17 08:33:04.=(e5   3EGPO 170820Z 13014KT 9999 FEW042 11/06 Q0997EGPO2019-10-17T08:20:00Z58.22-6.3211.06.0130146.2129.438976VFRMETAR13.02019-10-17 08:33:04-<(e5   3EGPU 170820Z 16022KT 9999 SCT017 11/08 Q0995EGPU2019-10-17T08:20:00Z56.5-6.8711.08.0160226.2129.379921VFRMETAR12.02019-10-17 08:33:047;(q5    3EGPM 170820Z 27011KT 9999 FEW012 10/09 Q0998 NOSIGEGPM2019-10-17T08:20:00Z60.42-1.310.09.0270116.2129.468504TRUEVFRMETAR22.02019-10-17 08:33:04 FU(F\D)/5    3KERY 170820Z AUTO 32005KT 10SM SCT021 BKN027 OVC035 05/04 A2989 RMK AO2 T00500038KERY2019-10-17T08:20:00Z46.3-85.455.03.8320510.029.890747TRUETRUEMVFRSPECI265.02019-10-17 08:33:04JC) 5    3KOXD 170820Z AUTO 28007KT 10SM CLR 05/04 A2996 RMK AO2 T00510035KOXD2019-10-17T08:20:00Z39.5-84.785.13.5280710.029.958662TRUETRUEVFRSPECI317.02019-10-17 08:33:04*B(o5  3CWZQ 170820Z AUTO 08005KT 10/06 RMK AO1 T01010055CWZQ2019-10-17T08:20:00Z46.53-61.0510.15.5805TRUETRUEMETAR17.02019-10-17 08:33:04'A(Y5   3EGEC 170820Z 14009KT CAVOK 10/08 Q0997EGEC2019-10-17T08:20:00Z55.43-5.6810.08.014096.2129.438976VFRMETAR13.02019-10-17 08:33:04%@(Y5   3EGPA 170820Z 19003KT CAVOK 08/07 Q1000EGPA2019-10-17T08:20:00Z58.95-2.888.07.019036.2129.52756VFRMETAR21.02019-10-17 08:33:04 6x=H(5    3EFKE 170820Z AUTO 08004KT 050V110 9999 OVC027 01/00 Q1019EFKE2019-10-17T08:20:00Z65.7724.571.00.08046.2130.088583TRUEMVFRMETAR15.02019-10-17 08:33:04MG) 5     3EFKI 170820Z AUTO 10007KT 070V130 9999 -SHSN OVC013 00/M01 Q1017EFKI2019-10-17T08:20:00Z64.2727.670.0-1.010076.2130.029528TRUE-SHSNMVFRMETAR136.02019-10-17 08:33:048F(s5    3EFKS 170820Z AUTO VRB02KT 9999 OVC017 M01/M04 Q1018EFKS2019-10-17T08:20:00Z66.029.23-1.0-4.0026.2130.059055TRUEMVFRMETAR263.02019-10-17 08:33:04DE(5     3EFKT 170820Z AUTO 16007KT 9999 -SHSN OVC005 M04/M05 Q1018EFKT2019-10-17T08:20:00Z67.724.85-4.0-5.016076.2130.059055TRUE-SHSNIFRMETAR643.02019-10-17 08:33:04  fN(5    3EFLP 170820Z AUTO 06012KT 040V120 9999 OVC005 03/03 Q1011EFLP2019-10-17T08:20:00Z61.0728.133.03.060126.2129.852362TRUEIFRMETAR106.02019-10-17 08:33:044M(5   3EFMI 170820Z AUTO 07007KT 350V120 //// OVC006 03/03 Q1012EFMI2019-10-17T08:20:00Z61.6827.23.03.070729.88189TRUEMETAR138.02019-10-17 08:33:04 GIG3V(e5    3EDDP 170820Z 18011KT CAVOK 14/08 Q1013 NOSIGEDDP2019-10-17T08:20:00Z51.4312.2314.08.0180116.2129.911417TRUEVFRMETAR149.02019-10-17 08:33:047U(q5    3EDDR 170820Z 21009KT 9999 BKN006 12/12 Q1014 NOSIGEDDR2019-10-17T08:20:00Z49.227.112.012.021096.2129.940945TRUEIFRMETAR320.02019-10-17 08:33:04ET)5   3EDDW 170820Z 21009KT 180V240 7000 BKN007 14/13 Q1009 TEMPO 4000 -RADZEDDW2019-10-17T08:20:00Z53.038.814.013.021094.3529.793306IFRSPECI5.02019-10-17 08:33:04;S(w5     3EFJY 170820Z AUTO 07009KT 9999 -RA OVC006 01/00 Q1013EFJY2019-10-17T08:20:00Z62.425.681.00.07096.2129.911417TRUE-RAIFRMETAR145.02019-10-17 08:33:041R(w5   3EFKU 170820Z 08009KT 040V110 9999 BKN013 01/M02 Q1016EFKU2019-10-17T08:20:00Z63.0227.81.0-2.08096.2130.0MVFRMETAR102.02019-10-17 08:33:04 !bA[)5    3EDDV 170820Z 21008KT 170V240 9999 BKN020 15/12 Q1010 NOSIGEDDV2019-10-17T08:20:00Z52.479.6815.012.021086.2129.822834TRUEMVFRMETAR54.02019-10-17 08:33:047Z(q5    3EDDB 170820Z 20011KT 9999 FEW047 15/09 Q1012 NOSIGEDDB2019-10-17T08:20:00Z52.3813.5315.09.0200116.2129.88189TRUEVFRMETAR48.02019-10-17 08:33:04u({5     3EVLA 170820Z AUTO 26014KT 2100 BR OVC002/// 13/13 Q1006EVLA2019-10-17T08:20:00Z56.5221.113.013.0260141.329.704725TRUEBRLIFRMETAR4.02019-10-17 08:33:04Tt)5   3KCFS 170820Z AUTO 32008G16KT 10SM OVC030 07/01 A2980 RMK AO2 T00720012KCFS2019-10-17T08:20:00Z43.47-83.457.21.232081610.029.799213TRUETRUEMVFRSPECI214.02019-10-17 08:33:04Ms)5    3KMGN 170820Z AUTO 00000KT 10SM BKN026 05/01 A2988 RMK AO2 T00550015KMGN2019-10-17T08:20:00Z45.43-84.925.51.50010.029.878937TRUETRUEMVFRSPECI209.02019-10-17 08:33:04Pr)5     3EKRS 170820Z AUTO 19006KT 150V230 3300 -DZ BR OVC003/// 13/13 Q1007EKRS2019-10-17T08:20:00Z55.4211.813.013.019062.0529.734253TRUE-DZ BRLIFRMETAR34.02019-10-17 08:33:04 7>N7-z(e5   3EGNR 170820Z 16014KT 9999 FEW014 07/05 Q1003EGNR2019-10-17T08:20:00Z53.17-2.977.05.0160146.2129.616142VFRMETAR10.02019-10-17 08:33:047y(}5    3EGPE 170820Z VRB02KT 0300 R23/0600 FG SCT001 00/00 Q1000EGPE2019-10-17T08:20:00Z57.52-4.030.00.0020.1929.52756FGLIFRSPECI9.02019-10-17 08:33:04!x(Y5    3EGPI 170820Z 18013KT 9999 FEW020 Q0996EGPI2019-10-17T08:20:00Z55.68-6.25180136.2129.409449VFRMETAR18.02019-10-17 08:33:04jw)35     3RJTR 170820Z AUTO 34005KT 6SM -RA BR SCT008 OVC032 15/15 A3026 RMK AO2 RAB20 SLP249RJTR2019-10-17T08:20:00Z35.52139.415.015.034056.030.2598421024.9TRUETRUE-RA BRVFRMETAR109.02019-10-17 08:33:04()5   3ETSL 170820Z 20005KT 9999 SCT080 BKN130 13/06 Q1017 BLU BLUETSL2019-10-17T08:20:00Z48.1710.8713.06.020056.2130.029528VFRMETAR562.02019-10-17 08:33:04;')5   3ETSN 170820Z VRB01KT 9999 FEW080 BKN100 09/07 Q1018 BLU BLUETSN2019-10-17T08:20:00Z48.7211.229.07.0016.2130.059055VFRMETAR387.02019-10-17 08:33:040&(i5   3EGHQ 170820Z 19009KT 9999 FEW049CB 11/10 Q1003EGHQ2019-10-17T08:20:00Z50.43-5.011.010.019096.2129.616142VFRMETAR119.02019-10-17 08:33:04 :|I.)5   3ETHA 170820Z 27002KT 9999 BKN120 SCT230 10/06 Q1018 BLU BLU+ TEMPO BLUETHA2019-10-17T08:20:00Z47.8210.8710.06.027026.2130.059055VFRMETAR760.02019-10-17 08:33:04D-)5   3ETHL 170820Z 25001KT 9999 FEW060 SCT080 BKN100 11/07 Q1017 BLU BLUETHL2019-10-17T08:20:00Z48.229.9211.07.025016.2130.029528VFRMETAR549.02019-10-17 08:33:048,)5   3ETHN 170820Z 24005KT 9999 SCT026 BKN080 13/07 Q1016 BLU BLUETHN2019-10-17T08:20:00Z49.389.9713.07.024056.2130.0VFRMETAR473.02019-10-17 08:33:04@+)5   3ETNN 170820Z 22011KT 9999 BKN030 SCT090 16/11 Q1011 BLU BLUETNN2019-10-17T08:20:00Z50.826.6716.011.0220116.2129.852362MVFRMETAR135.02019-10-17 08:33:04 .T=2)5   3ETSH 170820Z 19008KT 9999 BKN070 BKN120 15/08 Q1013 BLU BLUETSH2019-10-17T08:20:00Z51.7713.1715.08.019086.2129.911417VFRMETAR79.02019-10-17 08:33:04E1)5   3ETWM 170820Z 29005KT 9999 FEW004 BKN008 BKN021 13/12 Q1009 RERA GRNETWM2019-10-17T08:20:00Z52.727.3313.012.029056.2129.793306IFRMETAR21.02019-10-17 08:33:04T0)%5    3ETNS 170820Z 21008KT 3600 -DZ BR SCT002 BKN008 14/13 Q1007 YLO GRN TEMPO YLOETNS2019-10-17T08:20:00Z54.479.5214.013.021082.2429.734253-DZ BRIFRMETAR25.02019-10-17 08:33:04L/)5    3ETNH 170820Z 21006KT 4000 BR FEW003 BKN010 14/13 Q1007 GRN GRN TEMPO YLOETNH2019-10-17T08:20:00Z54.329.5514.013.021062.4929.734253BRIFRMETAR17.02019-10-17 08:33:04 2dP6)5   3KDMW 170820Z AUTO 29012G23KT 10SM BKN041 OVC050 12/05 A2951 RMK AO2KDMW2019-10-17T08:20:00Z39.6-77.012.05.0290122310.029.509842TRUETRUEVFRSPECI241.02019-10-17 08:33:04H5)5   3KCGE 170820Z AUTO 25007G14KT 10SM OVC050 12/05 A2957 RMK A01KCGE2019-10-17T08:20:00Z38.53-76.0312.05.025071410.029.568897TRUETRUEVFRSPECI6.02019-10-17 08:33:04H4)5   3ETNT 170820Z 25005KT 9000 BKN004 BKN008 12/12 Q1008 YLO GRN TEMPO AMBETNT2019-10-17T08:20:00Z53.537.6712.012.025055.5929.763779LIFRMETAR12.02019-10-17 08:33:04H3)5    3ETNW 170820Z 22009KT 5000 -DZ BKN013 14/12 Q1010 GRN WHT TEMPO GRNETNW2019-10-17T08:20:00Z52.459.4214.012.022093.1129.822834-DZMVFRMETAR70.02019-10-17 08:33:04 =Fv=1;(i5   3ESNS 170820Z 36007KT 9999 BKN003 M01/M01 Q1017ESNS2019-10-17T08:20:00Z64.6221.07-1.0-1.036076.2130.029528LIFRMETAR49.02019-10-17 08:33:043:(k5    3ESGJ 170820Z 13002KT 1700 BR BKN002 09/09 Q1007ESGJ2019-10-17T08:20:00Z57.7714.079.09.013021.0629.734253BRLIFRMETAR232.02019-10-17 08:33:04C9(5    3KW29 170820Z AUTO 27015KT 10SM OVC055 12/05 A2954 RMK AO2KW292019-10-17T08:20:00Z38.98-76.3312.05.02701510.029.53937TRUETRUEVFRSPECI15.02019-10-17 08:33:04J8) 5    3KISO 170820Z AUTO 26003KT 10SM CLR 09/04 A2981 RMK AO2 T00900042KISO2019-10-17T08:20:00Z35.32-77.629.04.2260310.029.811024TRUETRUEVFRSPECI29.02019-10-17 08:33:0447(u5   3ESNU 170820Z 06009KT 040V100 9999 OVC018 04/02 Q1014ESNU2019-10-17T08:20:00Z63.7820.274.02.06096.2129.940945MVFRMETAR14.02019-10-17 08:33:04Y8q8@HPX`hpx (08@HPX`hpx (08@HPX`hpxjoty~ !"#joty~ !"#$#%'&+'/(3)7*;+?,C-G.K/O0S1W2[3`4d5h6l7p8t9x:|;<=> ?@ABC"D&E+F0G5H:I?JDKHLLMQNVO[P`QdRhSmTqUuVzWXY Z[\]^"_&`*a/b4c9d>eCfHgMhRiWj\kalfmknpoupzY88@HPX`hpx (08@HPX`hpx (08@HPX`hpxrs tuvwx!y%z*{.|2}6rs tuvwx!y%z*{.|2}6~;@EJOTY^bfjosw{  $(-26:>CHLPTX\`dhlptx| "&*.26:?CHLP·T÷Xķ\ŷ`ƷdǷhȷlɷpʷt˷x̷| 'T:@(w5   3ESNG 170820Z 10002KT 7000 SCT005 OVC008 M11/M13 Q1017ESNG2019-10-17T08:20:00Z67.1320.82-11.0-13.010024.3530.029528IFRMETAR310.02019-10-17 08:33:042?(k5    3ESNK 170820Z 36007KT 9999 DZ OVC013 04/03 Q1013ESNK2019-10-17T08:20:00Z63.0317.774.03.036076.2129.911417DZMVFRMETAR19.02019-10-17 08:33:04:>(}5    3ESNN 170820Z 01004KT 330V040 9999 -RA OVC011 04/03 Q1012ESNN2019-10-17T08:20:00Z62.5217.434.03.01046.2129.88189-RAMVFRMETAR10.02019-10-17 08:33:04M=)5     3ESNO 170820Z AUTO 04009KT 010V070 9999 -RA OVC008/// 02/01 Q1013 REDZESNO2019-10-17T08:20:00Z63.3818.972.01.04096.2129.911417TRUE-RAIFRSPECI103.02019-10-17 08:33:04S<)5    3ESNQ 170820Z 21003KT 0500 R03/1100N R21/P1500N FZFG OVC002 M11/M11 Q1015ESNQ2019-10-17T08:20:00Z67.8220.32-11.0-11.021030.3129.970472FZFGLIFRSPECI452.02019-10-17 08:33:04 O>*E(e5   3ESSL 170820Z VRB02KT 9999 BKN005 08/08 Q1008ESSL2019-10-17T08:20:00Z58.3815.678.08.0026.2129.763779IFRMETAR52.02019-10-17 08:33:04*D(e5   3ESIA 170820Z 06003KT 9999 OVC007 08/07 Q1008ESIA2019-10-17T08:20:00Z58.5214.58.07.06036.2129.763779IFRMETAR94.02019-10-17 08:33:04*C(e5   3ESCM 170820Z 01005KT 9999 OVC007 07/07 Q1008ESCM2019-10-17T08:20:00Z59.8717.67.07.01056.2129.763779IFRMETAR41.02019-10-17 08:33:04+B(e5   3ESKN 170820Z 32006KT 9999 BKN005 08/07 Q1008ESKN2019-10-17T08:20:00Z58.7816.98.07.032066.2129.763779IFRMETAR43.02019-10-17 08:33:04+A(e5   3ESOE 170820Z 02007KT 9999 OVC007 07/06 Q1009ESOE2019-10-17T08:20:00Z59.2215.057.06.02076.2129.793306IFRMETAR57.02019-10-17 08:33:04 9<g9F)5   3ESPE 170820Z VRB01KT 9999 FEW007 BKN009 BKN022 M08/M09 Q1018ESPE2019-10-17T08:20:00Z65.8820.15-8.0-9.0016.2130.059055IFRMETAR182.02019-10-17 08:33:04 EAE7O(m5    3ESMS 170820Z 16007KT 3600 -DZ OVC003 12/12 Q1009ESMS2019-10-17T08:20:00Z55.5313.3712.012.016072.2429.793306-DZLIFRMETAR106.02019-10-17 08:33:046N(s5   3ESMT 170820Z 15006KT 9999 FEW008 BKN012 11/10 Q1008ESMT2019-10-17T08:20:00Z56.6712.8211.010.015066.2129.763779MVFRMETAR30.02019-10-17 08:33:04^(}5    3EGWU 170820Z 14004KT CAVOK 11/10 Q1006 NOSIG RMK BLU BLUEGWU2019-10-17T08:20:00Z51.55-0.4211.010.014046.2129.704725TRUEVFRMETAR40.02019-10-17 08:33:04e])M5    3EGDM 170820Z 14004KT 9999 -RA FEW015 SCT030 09/09 Q1005 TEMPO 7000 SHRA SCT015 RMK BLU TEMPO WHTEGDM2019-10-17T08:20:00Z51.17-1.759.09.014046.2129.675198-RAVFRSPECI124.02019-10-17 08:33:04*\(e5   3EGMD 170820Z 00000KT 9999 FEW033 12/11 Q1008EGMD2019-10-17T08:20:00Z50.950.9212.011.0006.2129.763779VFRMETAR3.02019-10-17 08:33:04@[(y5    3KMDS 170820Z AUTO 13005KT 10SM CLR 02/02 A2992 RMK AO2KMDS2019-10-17T08:20:00Z44.02-97.082.02.0130510.029.920275TRUETRUEVFRSPECI524.02019-10-17 08:33:040Z(i5   3LIPQ 170820Z 10003KT 060V140 CAVOK 17/13 Q1019LIPQ2019-10-17T08:20:00Z45.8213.4717.013.010036.2130.088583VFRMETAR12.02019-10-17 08:33:04 ?xLb)5    3LTBR 170820Z VRB01KT 2200 BR SCT012 SCT035 19/15 Q1018 BECMG TL1000 8000LTBR2019-10-17T08:20:00Z40.2529.5719.015.0011.3730.059055BRIFRSPECI232.02019-10-17 08:33:04Ma)#5   3EGUB 170820Z 15005KT 9999 FEW010 11/09 Q1006 TEMPO SCT015 RMK BLU TEMPO WHTEGUB2019-10-17T08:20:00Z51.62-1.0711.09.015056.2129.704725VFRMETAR63.02019-10-17 08:33:04A`) 5    3EGOS 170820Z 15007KT 9999 FEW007 08/07 Q1004 NOSIG RMK BLU BLUEGOS2019-10-17T08:20:00Z52.8-2.678.07.015076.2129.64567TRUEVFRMETAR76.02019-10-17 08:33:04;_(}5    3EGUW 170820Z 17004KT CAVOK 09/08 Q1007 NOSIG RMK BLU BLUEGUW2019-10-17T08:20:00Z52.120.979.08.017046.2129.734253TRUEVFRMETAR87.02019-10-17 08:33:04 z)&TzTf)'5    3LTAJ 170820Z 36005KT 290V050 9999 -TSRA FEW025CB BKN040 20/06 Q1020 BECMG NSWLTAJ2019-10-17T08:20:00Z36.9537.4820.06.036056.2130.11811-TSRAVFRSPECI855.02019-10-17 08:33:04Le)5    3LTAZ 170820Z 10015KT 9999 SCT040 BKN100 21/09 Q1022 RMK RWY29 10015KTLTAZ2019-10-17T08:20:00Z38.7734.5521.09.0100156.2130.177166VFR1.5SPECI945.02019-10-17 08:33:04}d)o5     3LTBA 170820Z 11006KT 9999 BKN023 20/15 Q1019 NOSIG RMK RWY17L 11005KT 090V160 RWY05 09005KT RWY23 12005KT 080V150LTBA2019-10-17T08:20:00Z40.9728.8220.015.011066.2130.088583TRUEMVFR-0.5SPECI37.02019-10-17 08:33:04Qc)#5    3LTBJ 170820Z VRB03KT 9999 FEW020 SCT030 23/17 Q1018 NOSIG RMK RWY16 VRB03KTLTBJ2019-10-17T08:20:00Z38.2827.1523.017.0036.2130.059055TRUEVFRSPECI120.02019-10-17 08:33:04 e,4eIj)#5   3ENSD 170820Z 07003KT 9999 FEW055 BKN140 08/06 Q1004 RMK WIND 1138FT 09005KTENSD2019-10-17T08:20:00Z61.826.128.06.07036.2129.64567VFRSPECI60.02019-10-17 08:33:04ri)a5     3LTAC 170820Z 00000KT 9999 FEW040 BKN100 21/05 Q1021 NOSIG RMK RWY21L VRB02KT RWY03L 00000KT RWY21R 20001KTLTAC2019-10-17T08:20:00Z40.1232.9721.05.0006.2130.147638TRUEVFR0.1SPECI949.02019-10-17 08:33:04Sh)%5    3LTAF 170820Z 06010KT 9999 SCT035 26/16 Q1017 NOSIG RMK RWY23 09008KT 050V120LTAF2019-10-17T08:20:00Z36.9735.2826.016.060106.2130.029528TRUEVFRSPECI20.02019-10-17 08:33:04ug)q5    3LTAI 170820Z VRB02KT 9999 FEW030 SCT200 27/12 Q1017 NOSIG RMK RWY18C 13003KT 070V190 RWY36R VRB03KT RWY18L VRB03KTLTAI2019-10-17T08:20:00Z36.930.827.012.0026.2130.029528TRUEVFRSPECI54.02019-10-17 08:33:04 @0[@-o(i5   3LSMP 170820Z 00000KT CAVOK 12/09 Q1017 RMK BLULSMP2019-10-17T08:20:00Z46.826.9212.09.0006.2130.029528VFRMETAR491.02019-10-17 08:33:04/n(i5   3EGOW 170820Z 16010KT CAVOK 09/06 Q1003 RMK BLUEGOW2019-10-17T08:20:00Z53.58-3.059.06.0160106.2129.616142VFRMETAR12.02019-10-17 08:33:04-m(e5   3LGSM 170820Z 13005KT 9000 FEW018 23/19 Q1017LGSM2019-10-17T08:20:00Z37.6826.9223.019.013055.5930.029528VFRMETAR6.02019-10-17 08:33:04Ol))5   3ENMS 170820Z 18006KT 9999 FEW028 BKN036 03/M00 Q1011 RMK WIND 412FT VRB07G17KTENMS2019-10-17T08:20:00Z65.7813.223.00.018066.2129.852362VFRSPECI70.02019-10-17 08:33:04Jk)5    3ENGC 170820Z 14025KT 6000 -RA FEW005 SCT008 BKN012 10/09 Q1000 W09/S4ENGC2019-10-17T08:20:00Z61.022.0210.09.0140253.7329.52756-RAMVFRSPECI10.02019-10-17 08:33:04 YkMs)5    3KI19 170819Z AUTO 29005KT 10SM OVC050 08/02 A2994 RMK AO2 T00770020KI192019-10-17T08:19:00Z39.7-83.987.72.0290510.029.940945TRUETRUEVFRSPECI289.02019-10-17 08:33:04hr)K5    3RJFO 170819Z 33003KT 9999 -SHRA FEW015 SCT020 BKN030 18/17 Q1021 RMK 1CU015 3CU020 6CU030 A3015RJFO2019-10-17T08:19:00Z33.47131.7218.017.033036.2130.147638-SHRAMVFRMETAR8.02019-10-17 08:33:04@q(y5    3KOVL 170819Z AUTO 13004KT 10SM CLR 01/00 A2999 RMK AO2KOVL2019-10-17T08:19:00Z44.78-95.031.00.0130410.029.991142TRUETRUEVFRSPECI328.02019-10-17 08:33:04[p)?5   3EGOV 170820Z 17023KT 9999 FEW015CB 12/09 Q1000 TEMPO 7000 SHRA BKN015CB RMK BLU TEMPO WHTEGOV2019-10-17T08:20:00Z53.25-4.5312.09.0170236.2129.52756VFRMETAR11.02019-10-17 08:33:04 8t;w(w5    3KMEZ 170815Z AUTO 00000KT 7SM CLR 06/05 A3012 RMK AO2KMEZ2019-10-17T08:15:00Z34.55-94.26.05.0007.030.121063TRUETRUEVFRSPECI329.02019-10-17 08:33:04Tv)!5    3ETNG 170816Z 25009KT 9999 -DZRA FEW007 BKN016 BKN020 13/13 Q1011 BECMG NSWETNG2019-10-17T08:16:00Z50.976.0313.013.025096.2129.852362-DZ -RAMVFRSPECI98.02019-10-17 08:33:04>u(y5    3KTAZ 170818Z AUTO 00000KT 10SM CLR 02/01 A3008 RMK AO2KTAZ2019-10-17T08:18:00Z39.53-89.332.01.00010.030.079725TRUETRUEVFRSPECI190.02019-10-17 08:33:04Bt({5    3KACQ 170819Z AUTO 13003KT 10SM CLR 00/M01 A3004 RMK AO2KACQ2019-10-17T08:19:00Z44.07-93.550.0-1.0130310.030.041338TRUETRUEVFRMETAR343.02019-10-17 08:33:04 8iI{) 5    3KPPQ 170815Z AUTO 00000KT 10SM CLR 03/03 A3010 RMK AO2 T00260026KPPQ2019-10-17T08:15:00Z39.63-90.782.62.60010.030.100393TRUETRUEVFRSPECI216.02019-10-17 08:33:04`z)75     3KRLD 170815Z AUTO 00000KT 10SM -RA SCT060 SCT070 OVC090 14/09 A2969 RMK AO2 T01350091KRLD2019-10-17T08:15:00Z46.3-119.313.59.10010.029.68996TRUETRUE-RAVFRMETAR120.02019-10-17 08:33:04Iy) 5    3KRPH 170815Z AUTO 00000KT 10SM CLR 06/03 A3009 RMK AO2 T00640028KRPH2019-10-17T08:15:00Z33.12-98.556.42.80010.030.088583TRUETRUEVFRMETAR342.02019-10-17 08:33:04Bx(y5    3KSBO 170815Z AUTO 30005KT 10SM CLR 11/10 A2991 RMK AO2KSBO2019-10-17T08:15:00Z32.62-82.3711.010.0300510.029.911417TRUETRUEVFRMETAR100.02019-10-17 08:33:04 /SP)5    3KHSG 170815Z AUTO 26012KT 10SM CLR 09/M05 A2984 RMK AO2 T00901046KHSG2019-10-17T08:15:00Z43.72-108.389.0-4.62601210.029.840551TRUETRUEVFRMETAR1494.02019-10-17 08:33:04H~) 5    3KIYA 170815Z AUTO 01004KT 7SM CLR 13/11 A3003 RMK AO2 T01260110KIYA2019-10-17T08:15:00Z29.98-92.0812.611.01047.030.029528TRUETRUEVFRMETAR5.02019-10-17 08:33:04V})#5    3KJFZ 170815Z AUTO 30009KT 270V340 10SM OVC014 04/01 A2991 RMK AO2 T00350013KJFZ2019-10-17T08:15:00Z37.07-81.83.51.3300910.029.911417TRUETRUEMVFRMETAR809.02019-10-17 08:33:04K|) 5    3KPPA 170815Z AUTO 20009KT 10SM CLR 09/01 A3005 RMK AO2 T00890010KPPA2019-10-17T08:15:00Z35.62-101.08.91.0200910.030.050198TRUETRUEVFRMETAR989.02019-10-17 08:33:04 ,;wH) 5    3KGLE 170815Z AUTO 00000KT 10SM CLR 08/05 A3011 RMK AO2 T00750053KGLE2019-10-17T08:15:00Z33.65-97.27.55.30010.030.109253TRUETRUEVFRMETAR256.02019-10-17 08:33:04>(y5    3KGVT 170815Z AUTO 00000KT 10SM CLR 08/08 A3010 RMK AO2KGVT2019-10-17T08:15:00Z33.07-96.078.08.00010.030.100393TRUETRUEVFRMETAR163.02019-10-17 08:33:04k)95     3KHMZ 170815Z AUTO 30012G16KT 5SM -SN BKN023 OVC031 06/04 A2960 RMK AO2 P0001 T00590036KHMZ2019-10-17T08:15:00Z40.08-78.525.93.630012165.029.601377TRUETRUE-SNMVFR0.01SPECI354.02019-10-17 08:33:04N)5    3KHQG 170815Z AUTO 22005KT 10SM CLR 04/M01 A2996 RMK AO2 T00421008KHQG2019-10-17T08:15:00Z37.17-101.374.2-0.8220510.029.958662TRUETRUEVFRMETAR956.02019-10-17 08:33:04 0l>(5    3KETB 170815Z AUTO 30004KT 10SM SCT120 04/02 A3000 RMK AO2KETB2019-10-17T08:15:00Z43.42-88.134.02.0300410.030.0TRUETRUEVFRSPECI270.02019-10-17 08:33:048(u5    3LHKE 170815Z VRB02KT CAVOK 16/10 Q1020 NOSIG RMK BLULHKE2019-10-17T08:15:00Z46.9219.7516.010.0026.2130.11811TRUEVFRMETAR115.02019-10-17 08:33:04O)5   3KUXL 170815Z AUTO 07010G14KT 10SM CLR 15/09 A3003 RMK AO2 T01470094KUXL2019-10-17T08:15:00Z30.13-93.3814.79.470101410.030.029528TRUETRUEVFRMETAR4.02019-10-17 08:33:04>(y5    3KAQO 170815Z AUTO 00000KT 10SM CLR 09/06 A3014 RMK AO2KAQO2019-10-17T08:15:00Z30.78-98.679.06.00010.030.138779TRUETRUEVFRMETAR336.02019-10-17 08:33:04J) 5    3KCHK 170815Z AUTO 13003KT 10SM CLR 06/04 A3005 RMK AO2 T00590037KCHK2019-10-17T08:15:00Z35.1-97.975.93.7130310.030.050198TRUETRUEVFRMETAR351.02019-10-17 08:33:04 1XN )5     3LIRP 170815Z 11007KT 9999 VCSH FEW030 SCT045 BKN060 15/14 Q1020 NOSIGLIRP2019-10-17T08:15:00Z43.6710.3715.014.011076.2130.11811TRUEVCSHVFRMETAR2.02019-10-17 08:33:04= (y5    3KTVK 170815Z AUTO 00000KT 10SM CLR 01/01 A3008 RMK AO2KTVK2019-10-17T08:15:00Z40.68-92.91.01.00010.030.079725TRUETRUEVFRSPECI314.02019-10-17 08:33:04S )!5    3KARV 170815Z AUTO 00000KT 10SM BKN011 OVC017 04/02 A2998 RMK AO2 T00430024KARV2019-10-17T08:15:00Z45.92-89.724.32.40010.029.97933TRUETRUEMVFRSPECI496.02019-10-17 08:33:04I ) 5    3KCPC 170815Z AUTO 00000KT 10SM CLR 11/06 A2984 RMK AO2 T01140056KCPC2019-10-17T08:15:00Z34.28-78.7211.45.60010.029.840551TRUETRUEVFRSPECI29.02019-10-17 08:33:04 4wH) 5    3KCTZ 170815Z AUTO 00000KT 10SM CLR 09/06 A2984 RMK AO2 T00920062KCTZ2019-10-17T08:15:00Z34.98-78.379.26.20010.029.840551TRUETRUEVFRSPECI45.02019-10-17 08:33:04A(y5    3K28J 170815Z AUTO 33004KT 10SM CLR 18/17 A2989 RMK AO2K28J2019-10-17T08:15:00Z29.65-81.5818.017.0330410.029.890747TRUETRUEVFRSPECI15.02019-10-17 08:33:047(u5    3LHSN 170815Z 00000KT CAVOK 16/10 Q1020 NOSIG RMK BLULHSN2019-10-17T08:15:00Z47.1220.2316.010.0006.2130.11811TRUEVFRSPECI98.02019-10-17 08:33:04F ) 5     3KEDJ 170815Z AUTO 29009KT 10SM FEW018 OVC037 06/ A2991 RMK AO1KEDJ2019-10-17T08:15:00Z40.37-83.826.0290910.029.911417TRUETRUEVFRSPECI342.02019-10-17 08:33:04 eIReg)%5     3KBAB 170815Z AUTO 14013KT 10SM -DZ OVC065 16/10 A2981 RMK AO2 DZB15 SLP097 $KBAB2019-10-17T08:15:00Z39.12-121.4216.010.01401310.029.8110241009.7TRUETRUETRUE-DZVFRMETAR34.02019-10-17 08:33:04q)E5     3PAED 170815Z AUTO 01004KT 10SM -RA SCT045 01/00 A2905 RMK AO2 UPB00E04DZB04E10RAB10 SLP834 $PAED2019-10-17T08:15:00Z61.25-149.81.00.010410.029.049213983.4TRUETRUETRUE-RAVFRMETAR59.02019-10-17 08:33:04B(}5     3KGLY 170815Z AUTO 00000KT 5SM BR CLR 02/02 A3009 RMK AO2KGLY2019-10-17T08:15:00Z38.35-93.682.02.0005.030.088583TRUETRUEBRMVFRSPECI251.02019-10-17 08:33:04i)E5   3KCBE 170815Z AUTO 28019G29KT 230V300 10SM SCT027 SCT038 BKN047 09/03 A2967 RMK AO2 T00920035KCBE2019-10-17T08:15:00Z39.62-78.779.23.5280192910.029.66929TRUETRUEVFRSPECI236.02019-10-17 08:33:04 &6yM)5    3KRBO 170810Z AUTO 36007KT 10SM OVC060 18/10 A3002 RMK AO2 T01750097KRBO2019-10-17T08:10:00Z27.78-97.6817.59.7360710.030.02067TRUETRUEVFRSPECI24.02019-10-17 08:33:047(q5    3VCBI 170810Z 24010KT 9999 SCT018 30/25 Q1008 NOSIGVCBI2019-10-17T08:10:00Z7.1779.8730.025.0240106.2129.763779TRUEVFRMETAR8.02019-10-17 08:33:04j)M5    3RJTT 170813Z 36009KT 5000 -RA BR FEW005 SCT009 BKN050 17/16 Q1024 RMK 1ST005 4ST009 6SC050 A3026RJTT2019-10-17T08:13:00Z35.53139.7717.016.036093.1130.236221-RA BRMVFRSPECI8.02019-10-17 08:33:04T)5   3KLNQ 170814Z AUTO 03012G18KT 10SM OVC017 22/18 A2997 RMK AO2 T02150181KLNQ2019-10-17T08:14:00Z29.35-89.4321.518.130121810.029.970472TRUETRUEMVFRMETAR1.02019-10-17 08:33:04 0WM) 5    3KHRX 170810Z AUTO 21008KT 10SM CLR 07/02 A3009 RMK AO2 T00710019KHRX2019-10-17T08:10:00Z34.87-102.337.11.9210810.030.088583TRUETRUEVFRMETAR1154.02019-10-17 08:33:04K) 5    3KJCA 170810Z AUTO 29007KT 10SM CLR 08/05 A2992 RMK AO2 T00790046KJCA2019-10-17T08:10:00Z34.18-83.577.94.6290710.029.920275TRUETRUEVFRMETAR290.02019-10-17 08:33:04S)!5    3KNOW 170810Z AUTO 13003KT 10SM SCT016 SCT065 09/08 A2963 RMK AO2 T00860082KNOW2019-10-17T08:10:00Z48.13-123.48.68.2130310.029.630905TRUETRUEVFRMETAR4.02019-10-17 08:33:04J) 5    3KPEQ 170810Z AUTO 00000KT 10SM CLR 09/02 A3009 RMK AO2 T00850021KPEQ2019-10-17T08:10:00Z31.38-103.528.52.10010.030.088583TRUETRUEVFRMETAR797.02019-10-17 08:33:04 8dV )5   3KDWX 170810Z AUTO 13004G15KT 10SM CLR M02/M15 A3011 RMK AO2 T10181148KDWX2019-10-17T08:10:00Z41.03-107.5-1.8-14.813041510.030.109253TRUETRUEVFRMETAR1996.02019-10-17 08:33:04W) 5    3KEHY 170810Z AUTO 22014G19KT 10SM CLR 13/M38 A3004 RMK AO2 PWINOKEHY2019-10-17T08:10:00Z41.73-106.4713.0-38.0220141910.030.041338TRUETRUETRUEVFRMETAR2225.02019-10-17 08:33:04N)5    3KHBV 170810Z AUTO 00000KT 10SM OVC017 17/08 A3006 RMK AO2 T01700076KHBV2019-10-17T08:10:00Z27.35-98.7317.07.60010.030.059055TRUETRUEMVFRMETAR202.02019-10-17 08:33:04B({5    3KHCR 170810Z AUTO 00000KT 10SM CLR 03/M06 A2997 RMK AO2KHCR2019-10-17T08:10:00Z40.48-111.433.0-6.00010.029.970472TRUETRUEVFRMETAR1706.02019-10-17 08:33:04 :hK$) 5    3K2J3 170810Z AUTO 29006KT 10SM CLR 10/08 A2990 RMK AO2 T00990078K2J32019-10-17T08:10:00Z32.98-82.389.97.8290610.029.899607TRUETRUEVFRMETAR100.02019-10-17 08:33:04G#) 5    3K2J5 170810Z AUTO 00000KT 10SM CLR 09/08 A2989 RMK AO2 T00930078K2J52019-10-17T08:10:00Z32.9-81.979.37.80010.029.890747TRUETRUEVFRMETAR72.02019-10-17 08:33:04L") 5    3KBMC 170810Z AUTO 30005KT 10SM CLR 07/01 A2985 RMK AO1 T00690006KBMC2019-10-17T08:10:00Z41.55-112.076.90.6300510.029.84941TRUETRUEVFRMETAR1288.02019-10-17 08:33:04@!(y5    3KCNI 170810Z AUTO 29006KT 10SM CLR 07/05 A2995 RMK AO2KCNI2019-10-17T08:10:00Z34.32-84.427.05.0290610.029.949802TRUETRUEVFRMETAR372.02019-10-17 08:33:04 <jK() 5    3KSJS 170810Z AUTO 27004KT 10SM CLR 06/04 A2995 RMK AO2 T00580036KSJS2019-10-17T08:10:00Z37.75-82.635.83.6270410.029.949802TRUETRUEVFRMETAR372.02019-10-17 08:33:04T')5      3KX26 170810Z AUTO 10SM SCT014 23/23 A2987 RMK AO2 PWINO TSNO T02330227KX262019-10-17T08:10:00Z27.82-80.523.322.710.029.870079TRUETRUETRUETRUEVFRMETAR6.02019-10-17 08:33:04L&) 5    3K17J 170810Z AUTO 34003KT 10SM CLR 12/12 A2996 RMK AO2 T01200115K17J2019-10-17T08:10:00Z31.07-84.9212.011.5340310.029.958662TRUETRUEVFRMETAR45.02019-10-17 08:33:04>%(y5    3K1F0 170810Z AUTO 00000KT 10SM CLR 06/05 A3009 RMK AO2K1F02019-10-17T08:10:00Z34.15-97.126.05.00010.030.088583TRUETRUEVFRMETAR257.02019-10-17 08:33:04 4xE-) 5    3CXTV 170800Z AUTO 09008KT M07/M09 RMK AO1 SLP042 T10711087 55002CXTV2019-10-17T08:00:00Z68.75-133.5-7.1-8.79081004.2TRUETRUE-0.2METAR85.02019-10-17 08:33:046,(y5    3CWJO 170800Z AUTO 09/02 RMK AO1 SLP049 T00900022 58018CWJO2019-10-17T08:00:00Z48.43-71.159.02.21004.9TRUETRUE-1.8METAR133.02019-10-17 08:33:04S+)+5    3RJOF 170809Z VRB02KT 9999 -RA FEW030 BKN100 17/14 Q1021 RMK 1CU030 7AS100 A3017RJOF2019-10-17T08:09:00Z34.02131.5517.014.0026.2130.147638-RAVFRMETAR5.02019-10-17 08:33:046*(s5    3KDKR 170810Z AUTO 00000KT 08/07 A3011 RMK AO2 PWINOKDKR2019-10-17T08:10:00Z31.3-95.48.07.00030.109253TRUETRUETRUESPECI106.02019-10-17 08:33:04F))5    3VCRI 170810Z 19005KT 140V220 9999 SCT018 SCT080 31/26 Q1009 NOSIGVCRI2019-10-17T08:10:00Z6.2881.1331.026.019056.2129.793306TRUEVFRMETAR7.02019-10-17 08:33:04 IMI42(k5    3VAJB 170800Z 19004KT 3000 HZ SCT030 30/20 Q1015VAJB2019-10-17T08:00:00Z23.1880.0530.020.019041.8629.970472HZIFRMETAR494.02019-10-17 08:33:04F1)5     3VASD 170800Z 09008KT 5000 HZ FEW025 SCT080 29/16 Q1014 NOSIGVASD2019-10-17T08:00:00Z19.6874.3829.016.09083.1129.940945TRUEHZMVFRMETAR582.02019-10-17 08:33:0450(q5   3HKKI 170800 20006KT 9999 FEW025 SCT270 26/17 Q1018HKKI2019-10-17T08:00:00Z-0.134.7526.017.020066.2130.059055VFRMETAR1146.02019-10-17 08:33:04=/({5    3HKMO 170800Z 21008KT 9000 -RA BKN018 OVC080 24/24 Q1015HKMO2019-10-17T08:00:00Z-4.0239.6224.024.021085.5929.970472-RAMVFRMETAR55.02019-10-17 08:33:04-.(e5   3HCMH 170800Z 06002KT 9999 SCT025 22/17 Q1018HCMH2019-10-17T08:00:00Z9.544.0722.017.06026.2130.059055VFRMETAR1326.02019-10-17 08:33:04 Pf^6)=5    3CWWL 170800Z AUTO 16029G36KT 11/10 RMK AO1 5000 PK WND 15039/0705 SLP838 T01110096 50004CWWL2019-10-17T08:00:00Z53.5-130.6311.19.61602936983.8TRUETRUE0.4METAR17.02019-10-17 08:33:04J5)5    3CWME 170800Z AUTO 13003KT 08/07 RMK AO1 8PAST HR M P0003 T00810068 50036CWME2019-10-17T08:00:00Z52.18-127.478.16.81303TRUETRUE3.60.03METAR32.02019-10-17 08:33:04d4)C5   3VRMM 170800Z 13015KT 9999 SCT017 FEW018CB SCT110 OVC250 29/25 Q1009 CB N,NE TEMPO 4000 TSRAVRMM2019-10-17T08:00:00Z4.273.5229.025.0130156.2129.793306OVC25000VFRMETAR2.02019-10-17 08:33:04*3(Y5   3SAZM 170800Z 07011KT CAVOK 13/11 Q1022SAZM2019-10-17T08:00:00Z-37.92-57.5713.011.070116.2130.177166VFRMETAR21.02019-10-17 08:33:04 $D,:(o5  3CXDP 170800Z AUTO 11005KT 03/01 RMK AO1 T00260014CXDP2019-10-17T08:00:00Z54.32-113.952.61.41105TRUETRUEMETAR614.02019-10-17 08:33:04Z9)15    3CWND 170800Z AUTO 10015KT M05/M07 RMK AO1 PK WND 10021/0704 SLP024 T10461066 56003CWND2019-10-17T08:00:00Z69.63-135.43-4.6-6.6100151002.4TRUETRUE-0.3METAR12.02019-10-17 08:33:04l8)U5     3CWQS 170800Z AUTO 18016KT 10/08 RMK AO1 2PAST HR 3012 PK WND 19021/0740 SLP822 P0001 T00950077 50012CWQS2019-10-17T08:00:00Z53.32-132.779.57.718016982.2TRUETRUE1.20.01METAR14.02019-10-17 08:33:04d7)I5      3CWRU 170800Z AUTO 12028KT 12/ RMK AO1 0PAST HR 0008 PK WND 11034/0716 SLP921 P0004 T0118 50010CWRU2019-10-17T08:00:00Z50.12-127.9311.812028992.1TRUETRUE1.00.04METAR98.02019-10-17 08:33:04 %TY>)35    3CWWX 170800Z AUTO 03022G29KT 07/04 RMK AO1 PK WND 02030/0705 SLP046 T00690042 51014CWWX2019-10-17T08:00:00Z45.32-81.736.94.23022291004.6TRUETRUE1.4METAR181.02019-10-17 08:33:04@=) 5    3CWHP 170800Z AUTO 13008KT 07/06 RMK AO1 SLP162 T00740059 56010CWHP2019-10-17T08:00:00Z49.07-61.77.45.913081016.2TRUETRUE-1.0METAR4.02019-10-17 08:33:04K<)!5     3CWZL 170800Z AUTO 17019KT 11/ RMK AO1 PK WND 20023/0706 SLP838 T0106 51016CWZL2019-10-17T08:00:00Z53.03-131.610.617019983.8TRUETRUE1.6METAR17.02019-10-17 08:33:04U;)-5    3CWZV 170800Z AUTO 19022KT 11/10 RMK AO1 PK WND 19026/0752 SLP863 T01100097 51009CWZV2019-10-17T08:00:00Z51.93-131.0211.09.719022986.3TRUETRUE0.9METAR92.02019-10-17 08:33:04 K:}KIC)5    3WIPP 170800Z 18003KT 1200 RA FEW010CB BKN010 26/24 Q1007 RMKCB TO WWIPP2019-10-17T08:00:00Z-2.88104.726.024.018030.7529.734253RALIFRMETAR10.02019-10-17 08:33:04*B(Y5   3SBCY 170800Z 16002KT CAVOK 26/20 Q1012SBCY2019-10-17T08:00:00Z-15.65-56.1226.020.016026.2129.88189VFRMETAR182.02019-10-17 08:33:04-A(e5   3DGLE 170800Z 32002KT 9999 FEW014 26/23 Q1013DGLE2019-10-17T08:00:00Z9.5-0.8526.023.032026.2129.911417VFRMETAR173.02019-10-17 08:33:047@(q5    3DGSI 170800Z 32007KT 9999 BKN009 24/23 Q1015 NOSIGDGSI2019-10-17T08:00:00Z6.72-1.624.023.032076.2129.970472TRUEIFRMETAR293.02019-10-17 08:33:04@?)5    3DGTK 170800Z 32007KT 9999 FEW011 FEW029CB 27/25 Q1013 NOSIGDGTK2019-10-17T08:00:00Z4.87-1.7727.025.032076.2129.911417TRUEVFRMETAR9.02019-10-17 08:33:04 ???OH)5     3VTSH 170800Z 09010KT 9999 -RA FEW018CB SCT020 BKN1 00 24/24 Q1007 NOSIGVTSH2019-10-17T08:00:00Z7.2100.5824.024.090106.2129.734253TRUE-RAVFRMETAR5.02019-10-17 08:33:04:G(m5     3FLKK 170800Z 08013KT 9000 HZ NSC 24/04 Q1023 NSGFLKK2019-10-17T08:00:00Z-15.3228.4524.04.080135.5930.206694TRUEHZVFRMETAR1154.02019-10-17 08:33:04*F(Y5   3SARI 170800Z 05004KT CAVOK 22/19 Q1013SARI2019-10-17T08:00:00Z-25.72-54.4722.019.05046.2129.911417VFRMETAR270.02019-10-17 08:33:045E(s5   3FNLU 170800Z 18006KT 9999 SCT020 BKN070 25/23 Q1013FNLU2019-10-17T08:00:00Z-8.8313.2225.023.018066.2129.911417VFRMETAR70.02019-10-17 08:33:04;D(q5    3WADL 170800Z 13012KT 8000 BKN016 29/22 Q1009 NOSIGWADL2019-10-17T08:00:00Z-8.75116.2829.022.0130124.9729.793306TRUEMVFRMETAR97.02019-10-17 08:33:04 MzUL)5    3CYAH 170840Z AUTO 08003KT 9SM SCT020 BKN025 OVC070 02/02 A2982 RMK SLP116CYAH2019-10-17T08:40:00Z53.75-73.672.02.08039.029.8198811011.6TRUEMVFRSPECI306.02019-10-17 08:44:25MK) 5     3KHAF 170840Z AUTO 13003KT 1 1/4SM BR OVC005 13/13 A2992 RMK AO2KHAF2019-10-17T08:40:00Z37.52-122.513.013.013031.2529.920275TRUETRUEBRIFRMETAR21.02019-10-17 08:44:25IJ) 5    3KHQZ 170840Z AUTO 00000KT 10SM CLR 07/07 A3010 RMK AO1 T00730070KHQZ2019-10-17T08:40:00Z32.75-96.537.37.00010.030.100393TRUETRUEVFRMETAR136.02019-10-17 08:44:25^I)G5   3LIVM 170755Z 26003KT 160V340 CAVOK 12/10 Q1019 RMK SKC QUK 1 QUL 0 VIS MAR 15 KM VIS MIN 9999LIVM2019-10-17T07:55:00Z44.4512.312.010.026036.2130.088583VFRSPECI6.02019-10-17 08:33:04 -[SP)5    3KATP 170840Z AUTO 05017KT 10SM SCT021 BKN027 OVC085 27/23 A2989 RMK A01KATP2019-10-17T08:40:00Z27.2-90.0327.023.0501710.029.890747TRUETRUEMVFRSPECI62.02019-10-17 08:44:25TO)5     3PATE 170840Z AUTO 13006KT 10SM OVC029 M04/M09 A2920 RMK AO2 FZRANOPATE2019-10-17T08:40:00Z65.23-166.33-4.0-9.0130610.029.199802TRUETRUETRUEMVFRSPECI90.02019-10-17 08:44:25LN) 5    3KDRI 170840Z AUTO 35003KT 10SM CLR 11/10 A3006 RMK AO2 T01110104KDRI2019-10-17T08:40:00Z30.83-93.3311.110.4350310.030.059055TRUETRUEVFRMETAR63.02019-10-17 08:44:25MM) 5     3CYZY 170840Z AUTO 12002KT 2 1/2SM BR CLR 00/00 A2932 RMK SLP951CYZY2019-10-17T08:40:00Z55.28-123.120.00.012022.529.320866995.1TRUEBRIFRMETAR690.02019-10-17 08:44:25 &Un7T(q5   3KCVH 170840Z AUTO 00000KT 10SM 11/08 A2993 RMK A01KCVH2019-10-17T08:40:00Z36.9-121.4211.08.00010.029.929134TRUETRUEMETAR70.02019-10-17 08:44:25aS)75   3KACK 170840Z AUTO 23029G42KT OVC016 14/12 A2903 RMK AO2 PK WND 22045/0824 T01390117 $KACK2019-10-17T08:40:00Z41.25-70.0713.911.7230294229.028543TRUETRUETRUESPECI16.02019-10-17 08:44:25KR) 5    3KSBD 170840Z AUTO 00000KT 10SM CLR 18/05 A2984 RMK AO2 T01840049KSBD2019-10-17T08:40:00Z34.08-117.2518.44.90010.029.840551TRUETRUEVFRMETAR353.02019-10-17 08:44:25TQ)5   3KPZQ 170840Z AUTO 33013G20KT 10SM OVC025 06/01 A2984 RMK AO2 T00550011KPZQ2019-10-17T08:40:00Z45.4-83.825.51.1330132010.029.840551TRUETRUEMVFRMETAR204.02019-10-17 08:44:25 {,S{RX)5   3KESN 170840Z AUTO 25010G16KT 10SM SCT055 12/05 A2958 RMK AO2 T01200052KESN2019-10-17T08:40:00Z38.8-76.0712.05.2250101610.029.58071TRUETRUEVFRSPECI22.02019-10-17 08:44:25SW)5    3KMCC 170840Z AUTO 14009KT 10SM FEW055 BKN070 BKN085 15/11 A2987 RMK AO2KMCC2019-10-17T08:40:00Z38.67-121.415.011.0140910.029.870079TRUETRUEVFRMETAR23.02019-10-17 08:44:25TV)!5    3KIRS 170840Z AUTO 30003KT 10SM SCT033 BKN047 07/04 A2993 RMK AO2 T00710040KIRS2019-10-17T08:40:00Z41.8-85.437.14.0300310.029.929134TRUETRUEVFRMETAR282.02019-10-17 08:44:25tU)S5      3KMVL 170840Z AUTO 01007KT 5SM RA BR BKN009 BKN028 OVC037 08/07 A2919 RMK AO2 PRESFR P0030 T00830072KMVL2019-10-17T08:40:00Z44.53-72.628.37.21075.029.190945TRUETRUERA BRIFR0.3SPECI234.02019-10-17 08:44:25 4cR\)%5    3EBLB 170839Z AUTO 23009KT 9999 SCT012/// SCT028/// BKN060/// 11/10 Q1012 GRNEBLB2019-10-17T08:39:00Z50.476.1711.010.023096.2129.88189TRUEVFRSPECI570.02019-10-17 08:44:25>[(}5    3K21D 170839Z AUTO 00000KT 7SM BKN120 02/02 A3003 RMK AO2K21D2019-10-17T08:39:00Z45.0-92.852.02.0007.030.029528TRUETRUEVFRMETAR285.02019-10-17 08:44:25KZ) 5    3KI69 170839Z AUTO 28008KT 10SM CLR 06/03 A2996 RMK AO2 T00640026KI692019-10-17T08:39:00Z39.08-84.226.42.6280810.029.958662TRUETRUEVFRSPECI255.02019-10-17 08:44:25FY) 5    3KGYL 170839Z AUTO 13003KT 10SM CLR 01/01 A3000 RMK AO2 T00060007KGYL2019-10-17T08:39:00Z44.77-94.080.60.7130310.030.0TRUETRUEVFRSPECI302.02019-10-17 08:44:25 )U[`)'5    3CYVQ 170839Z 10005KT 2SM -SN BR BKN007 OVC015 M00/M01 A2949 RMK ST7SC1 SLP994CYVQ2019-10-17T08:39:00Z65.27-126.780.0-1.010052.029.489174999.4-SN BRIFRSPECI74.02019-10-17 08:44:25@_(y5    3KHCO 170839Z AUTO 14008KT 10SM CLR 02/01 A2994 RMK AO2KHCO2019-10-17T08:39:00Z48.75-96.932.01.0140810.029.940945TRUETRUEVFRMETAR250.02019-10-17 08:44:25N^)5    3KPSX 170839Z AUTO 36014KT 10SM SCT027 18/13 A2998 RMK AO2 T01780128KPSX2019-10-17T08:39:00Z28.72-96.2517.812.83601410.029.97933TRUETRUEVFRSPECI5.02019-10-17 08:44:25Q])5     3KTMB 170839Z AUTO 00000KT 1 3/4SM BR CLR 24/24 A2990 RMK AO2 T02390239KTMB2019-10-17T08:39:00Z25.65-80.4323.923.9001.7529.899607TRUETRUEBRIFRSPECI2.02019-10-17 08:44:25 ,[sd)?5   3CYBQ 170839Z AUTO 17011G20KT 9SM -SN SCT014 BKN028 BKN037 OVC048 M01/M03 A2987 RMK SLP136CYBQ2019-10-17T08:39:00Z58.7-98.5-1.0-3.017011209.029.8700791013.6TRUE-SNOVC4800MVFRSPECI262.02019-10-17 08:44:25@c(y5    3KDXX 170839Z AUTO 14004KT 10SM CLR 01/01 A2996 RMK AO2KDXX2019-10-17T08:39:00Z44.98-96.181.01.0140410.029.958662TRUETRUEVFRMETAR330.02019-10-17 08:44:25Kb) 5    3KISQ 170839Z AUTO 32004KT 10SM CLR 04/03 A2991 RMK AO2 T00360032KISQ2019-10-17T08:39:00Z45.97-86.173.63.2320410.029.911417TRUETRUEVFRMETAR209.02019-10-17 08:44:25Na)5    3KSAW 170839Z AUTO 32005KT 10SM OVC025 03/02 A2993 RMK AO2 T00280015KSAW2019-10-17T08:39:00Z46.35-87.42.81.5320510.029.929134TRUETRUEMVFRMETAR372.02019-10-17 08:44:25 %?nMh)5    3KMGN 170838Z AUTO 00000KT 10SM OVC026 05/01 A2988 RMK AO2 T00570017KMGN2019-10-17T08:38:00Z45.43-84.925.71.70010.029.878937TRUETRUEMVFRSPECI209.02019-10-17 08:44:25Kg) 5    3KFPK 170838Z AUTO 29007KT 10SM CLR 04/02 A2988 RMK AO2 T00420022KFPK2019-10-17T08:38:00Z42.57-84.824.22.2290710.029.878937TRUETRUEVFRSPECI272.02019-10-17 08:44:25`f)35     3KEFK 170838Z AUTO 35013KT 7SM RA SCT022 SCT026 OVC035 07/07 A2924 RMK AO2 T00670067KEFK2019-10-17T08:38:00Z44.88-72.236.76.7350137.029.241142TRUETRUERAVFRSPECI284.02019-10-17 08:44:25Ue)5   3KUNV 170839Z AUTO 27015G24KT 10SM OVC028 07/03 A2950 RMK AO2 T00730027KUNV2019-10-17T08:39:00Z40.85-77.837.32.7270152410.029.500984TRUETRUEMVFRSPECI378.02019-10-17 08:44:25 9sUl)5   3KCFS 170838Z AUTO 32010G18KT 10SM OVC030 07/01 A2980 RMK AO2 T00710010KCFS2019-10-17T08:38:00Z43.47-83.457.11.0320101810.029.799213TRUETRUEMVFRMETAR214.02019-10-17 08:44:25Ik) 5    3KFKA 170838Z AUTO 00000KT 10SM CLR 02/00 A3004 RMK AO2 T00190004KFKA2019-10-17T08:38:00Z43.68-92.171.90.40010.030.041338TRUETRUEVFRMETAR389.02019-10-17 08:44:25@j({5    3KFSE 170838Z AUTO 00000KT 10SM CLR 00/M01 A2997 RMK AO2KFSE2019-10-17T08:38:00Z47.58-95.770.0-1.00010.029.970472TRUETRUEVFRMETAR389.02019-10-17 08:44:25Ai(y5    3KOWX 170838Z AUTO 28010KT 10SM CLR 05/02 A2992 RMK AO1KOWX2019-10-17T08:38:00Z41.03-83.985.02.02801010.029.920275TRUETRUEVFRSPECI233.02019-10-17 08:44:25 aNp)5    3KTEW 170838Z AUTO 29008KT 10SM BKN040 05/02 A2988 RMK AO2 T00470023KTEW2019-10-17T08:38:00Z42.57-84.424.72.3290810.029.878937TRUETRUEVFRMETAR280.02019-10-17 08:44:25Vo)!5    3KCDI 170838Z AUTO 27005KT 10SM BKN030 OVC034 08/03 A2982 RMK AO2 T00760032KCDI2019-10-17T08:38:00Z39.97-81.587.63.2270510.029.819881TRUETRUEMVFRSPECI244.02019-10-17 08:44:25/n(e5    3FAPE 170838Z VRB02KT CAVOK 28/09 Q1011 NOSIGFAPE2019-10-17T08:38:00Z-33.9725.628.09.0026.2129.852362TRUEVFRSPECI60.02019-10-17 08:44:25dm)75     3KCAD 170838Z AUTO 32007KT 10SM -RA BKN010 BKN015 OVC026 05/04 A2986 RMK AO2 T00560042KCAD2019-10-17T08:38:00Z44.27-85.425.64.2320710.029.861221TRUETRUE-RAMVFRMETAR398.02019-10-17 08:44:25 &Q[t)'5   3KMCD 170838Z AUTO 34012G15KT 10SM SCT029 SCT110 06/02 A2986 RMK AO2 T00550016KMCD2019-10-17T08:38:00Z45.85-84.635.51.6340121510.029.861221TRUETRUEVFRMETAR226.02019-10-17 08:44:25Js) 5    3KOXD 170838Z AUTO 29006KT 10SM CLR 05/03 A2996 RMK AO2 T00510033KOXD2019-10-17T08:38:00Z39.5-84.785.13.3290610.029.958662TRUETRUEVFRMETAR317.02019-10-17 08:44:25Or)5    3KOSC 170838Z AUTO 33011KT 10SM OVC026 06/02 A2979 RMK AO2 T00560018KOSC2019-10-17T08:38:00Z44.45-83.45.61.83301110.029.790354TRUETRUEMVFRMETAR193.02019-10-17 08:44:25Tq)!5    3KRHI 170838Z AUTO 28003KT 10SM SCT022 OVC110 04/03 A2998 RMK AO2 T00390028KRHI2019-10-17T08:38:00Z45.63-89.483.92.8280310.029.97933TRUETRUEVFRSPECI485.02019-10-17 08:44:25 TTx)5    3CWLY 170838Z AUTO 22010G24KT 9SM -RA FEW032 09/07 A2951 RMK SLP998CWLY2019-10-17T08:38:00Z50.22-121.589.07.022010249.029.509842999.8TRUE-RAVFRSPECI229.02019-10-17 08:44:25Kw) 5    3KI23 170838Z AUTO 27006KT 10SM SCT029 BKN050 06/02 A2990 RMK AO1KI232019-10-17T08:38:00Z39.57-83.426.02.0270610.029.899607TRUETRUEVFRSPECI299.02019-10-17 08:44:25Dv) 5    3KELO 170838Z AUTO 00000KT 10SM SCT034 OVC090 02/02 A3000 RMK AO2KELO2019-10-17T08:38:00Z47.82-91.822.02.00010.030.0TRUETRUEVFRSPECI443.02019-10-17 08:44:25\u)/5    3KERY 170838Z AUTO 32005KT 10SM SCT021 BKN029 BKN035 05/04 A2989 RMK AO2 T00500037KERY2019-10-17T08:38:00Z46.3-85.455.03.7320510.029.890747TRUETRUEMVFRMETAR265.02019-10-17 08:44:25 PQBPl|)W5    3EKKA 170837Z 19006KT 160V230 5000 RA BR SCT006 BKN012 13/12 Q1005 BECMG 22010KT TEMPO 2500 -RA BKN006EKKA2019-10-17T08:37:00Z56.39.1213.012.019063.1129.675198RA BRMVFRSPECI52.02019-10-17 08:44:25 {)s5       3KSFZ 170838Z AUTO 25018G27KT 7SM -RA SCT004 BKN010 OVC014 A2886 RMK AO2 PK WND 25027/0836 UPE01RAB01 P0005 FZRANO $KSFZ2019-10-17T08:38:00Z41.92-71.525018277.028.860237TRUETRUETRUETRUE-RAMVFR0.05SPECI134.02019-10-17 08:44:25=z(y5    3KRGK 170838Z AUTO 00000KT 10SM CLR 02/02 A3002 RMK AO2KRGK2019-10-17T08:38:00Z44.58-92.482.02.00010.030.02067TRUETRUEVFRSPECI239.02019-10-17 08:44:25fy)15    3KBTP 170838Z AUTO 28012G19KT 10SM BKN015 OVC021 06/04 A2966 RMK AO2 RAB01E20 P0000KBTP2019-10-17T08:38:00Z40.77-79.956.04.0280121910.029.660433TRUETRUEMVFR0.005SPECI380.02019-10-17 08:44:25 9rF) 5    3KPEX 170837Z AUTO 13004KT 10SM CLR 01/01 A3000 RMK AO2 T00130014KPEX2019-10-17T08:37:00Z45.37-94.731.31.4130410.030.0TRUETRUEVFRSPECI360.02019-10-17 08:44:25@(y5    3KMVE 170837Z AUTO 18005KT 10SM CLR 01/00 A2997 RMK AO2KMVE2019-10-17T08:37:00Z44.97-95.721.00.0180510.029.970472TRUETRUEVFRSPECI315.02019-10-17 08:44:25?(y5    3KDZB 170837Z AUTO 00000KT 10SM CLR 11/07 A3008 RMK AO2KDZB2019-10-17T08:37:00Z30.53-98.3711.07.00010.030.079725TRUETRUEVFRMETAR334.02019-10-17 08:44:25A~(}5    3KCKC 170837Z AUTO 00000KT 10SM CLR M01/M03 A2998 RMK AO2KCKC2019-10-17T08:37:00Z47.83-90.37-1.0-3.00010.029.97933TRUETRUEVFRSPECI548.02019-10-17 08:44:25A}(5    3KFOZ 170837Z AUTO 00000KT 10SM OVC031 02/02 A3004 RMK AO2KFOZ2019-10-17T08:37:00Z47.77-93.652.02.00010.030.041338TRUETRUEVFRSPECI411.02019-10-17 08:44:25  L)5    3KRNP 170837Z AUTO 28009KT 10SM OVC036 07/04 A2985 RMK AO2 T00670035KRNP2019-10-17T08:37:00Z43.0-84.136.73.5280910.029.84941TRUETRUEVFRSPECI224.02019-10-17 08:44:25()?5    3EHEH 170837Z AUTO 22008KT 190V290 7000 BR FEW006 BKN038 OVC042 13/12 Q1010 WHT 23007KT 8000 SCT007 BKN016 BKN045 TEMPO 4000 -DZRA BR BKN005 BKN008 OVC016EHEH2019-10-17T08:37:00Z51.455.3813.012.022084.3529.822834TRUEBRSCT700MVFRSPECI22.02019-10-17 08:44:25 )y5     3EHGR 170837Z AUTO 21006KT 170V260 7000 BR FEW007 BKN049 OVC054 13/12 Q1010 WHT 21006KT 9999 SCT045 BECMG SCT020 BKN045EHGR2019-10-17T08:37:00Z51.574.9213.012.021066.2129.822834TRUEBRSCT4500VFR-0.6SPECI13.02019-10-17 08:44:25Z))5  !  3ETNT 170837Z 26007KT 4500 -DZRA BR BKN004 BKN007 12/12 Q1008 YLO GRN TEMPO AMBETNT2019-10-17T08:37:00Z53.537.6712.012.026072.829.763779-DZ -RA BRLIFRSPECI12.02019-10-17 08:44:25 =y> (y5    3KJMR 170837Z AUTO 00000KT 10SM CLR 02/01 A3003 RMK AO2KJMR2019-10-17T08:37:00Z45.88-93.272.01.00010.030.029528TRUETRUEVFRSPECI309.02019-10-17 08:44:25P)5   3K4I3 170837Z AUTO 28013G17KT 10SM SCT019 SCT027 05/02 A2985 RMK AO2K4I32019-10-17T08:37:00Z40.33-82.535.02.0280131710.029.84941TRUETRUEVFRSPECI363.02019-10-17 08:44:25>(w5    3KBDH 170837Z AUTO 12004KT 7SM CLR 01/00 A3001 RMK AO2KBDH2019-10-17T08:37:00Z45.12-95.131.00.012047.030.008858TRUETRUEVFRSPECI247.02019-10-17 08:44:25=(y5    3KDUA 170837Z AUTO 00000KT 10SM CLR 09/06 A3011 RMK AO2KDUA2019-10-17T08:37:00Z33.95-96.49.06.00010.030.109253TRUETRUEVFRMETAR213.02019-10-17 08:44:25 |-Sg|e );5     3PAEN 170837Z AUTO 00000KT 10SM FEW016 BKN065 OVC075 01/M01 A2906 RMK AO2 T00061006 TSNOPAEN2019-10-17T08:37:00Z60.57-151.250.6-0.60010.029.061024TRUETRUETRUEVFRSPECI27.02019-10-17 08:44:25f )35      3KFIT 170837Z AUTO 29005KT 9SM -RA BKN008 OVC014 12/11 A2878 RMK AO2 P0002 T01220111KFIT2019-10-17T08:37:00Z42.55-71.7512.211.129059.028.780512TRUETRUE-RAIFR0.02SPECI103.02019-10-17 08:44:25T )!5    3KLDM 170837Z AUTO 34006KT 10SM SCT028 OVC033 08/03 A2992 RMK AO2 T00780034KLDM2019-10-17T08:37:00Z43.97-86.47.83.4340610.029.920275TRUETRUEVFRSPECI197.02019-10-17 08:44:25M )!5    3KEVM 170837Z AUTO 00000KT 10SM SCT080 OVC120 03/02 A3000 RMK AO2 T00260020KEVM2019-10-17T08:37:00Z47.42-92.52.62.00010.030.0TRUETRUEVFRSPECI421.02019-10-17 08:44:25 /Y9(q5   3KPQN 170837Z AUTO 19006KT 10SM 02/01 A2994 RMK AO2KPQN2019-10-17T08:37:00Z43.97-96.322.01.0190610.029.940945TRUETRUESPECI529.02019-10-17 08:44:25P) 5   3CYYL 170837Z AUTO 16010G16KT 9SM OVC006 M00/M00 A2981 RMK SLP120CYYL2019-10-17T08:37:00Z56.87-101.070.00.016010169.029.8110241012.0TRUEIFRSPECI357.02019-10-17 08:44:25@(y5    3KLYV 170837Z AUTO 14003KT 10SM CLR 01/00 A2997 RMK AO2KLYV2019-10-17T08:37:00Z43.62-96.221.00.0140310.029.970472TRUETRUEVFRSPECI436.02019-10-17 08:44:25)o5     3KIZG 170837Z AUTO 03016G23KT 4SM RA BR BKN009 BKN015 OVC037 09/08 A2910 RMK AO2 LTG DSNT E PRESFR P0016 T00940078KIZG2019-10-17T08:37:00Z43.98-70.959.47.83016234.029.09941TRUETRUERA BRIFR0.16SPECI135.02019-10-17 08:44:25 %]T)5     3CYVO 170837Z AUTO 34011KT 2SM -RA BR OVC006 03/03 A2956 RMK SLP027CYVO2019-10-17T08:37:00Z48.07-77.773.03.0340112.029.560041002.7TRUE-RA BRIFRSPECI337.02019-10-17 08:44:25O)5     3CYAT 170837Z AUTO 33003KT 1 1/2SM BR OVC004 02/02 A2995 RMK SLP144CYAT2019-10-17T08:37:00Z52.93-82.432.02.033031.529.9498021014.4TRUEBRLIFRSPECI9.02019-10-17 08:44:25B(5    3KAXV 170837Z AUTO 28007KT 10SM OVC030 07/03 A2992 RMK AO2KAXV2019-10-17T08:37:00Z40.5-84.37.03.0280710.029.920275TRUETRUEMVFRSPECI279.02019-10-17 08:44:25U)!5    3KPMH 170837Z AUTO 27007KT 10SM SCT040 BKN048 07/04 A2994 RMK AO2 T00710036KPMH2019-10-17T08:37:00Z38.83-82.857.13.6270710.029.940945TRUETRUEVFRSPECI202.02019-10-17 08:44:25 #;u#?(y5    3KJES 170836Z AUTO 00000KT 10SM CLR 13/11 A2990 RMK AO2KJES2019-10-17T08:36:00Z31.55-81.8813.011.00010.029.899607TRUETRUEVFRSPECI33.02019-10-17 08:44:25C(5    3KMJQ 170836Z AUTO 16004KT 10SM SCT120 01/00 A2999 RMK AO2KMJQ2019-10-17T08:36:00Z43.63-94.971.00.0160410.029.991142TRUETRUEVFRSPECI441.02019-10-17 08:44:25>(y5    3KAEL 170836Z AUTO 00000KT 10SM CLR 02/02 A3003 RMK AO2KAEL2019-10-17T08:36:00Z43.68-93.372.02.00010.030.029528TRUETRUEVFRSPECI383.02019-10-17 08:44:25@(y5    3KFFM 170836Z AUTO 14005KT 10SM CLR 02/01 A2996 RMK AO2KFFM2019-10-17T08:36:00Z46.28-96.152.01.0140510.029.958662TRUETRUEVFRSPECI361.02019-10-17 08:44:25?(5    3K04W 170837Z AUTO 00000KT 10SM BKN060 03/03 A3002 RMK AO2K04W2019-10-17T08:37:00Z46.02-92.93.03.00010.030.02067TRUETRUEVFRSPECI311.02019-10-17 08:44:25 4Ns>(y5    3KTAZ 170836Z AUTO 00000KT 10SM CLR 02/02 A3008 RMK AO2KTAZ2019-10-17T08:36:00Z39.53-89.332.02.00010.030.079725TRUETRUEVFRMETAR190.02019-10-17 08:44:25U)5   3KVLL 170836Z AUTO 32015G23KT 10SM OVC030 08/03 A2981 RMK AO2 T00820026KVLL2019-10-17T08:36:00Z42.55-83.188.22.6320152310.029.811024TRUETRUEMVFRSPECI222.02019-10-17 08:44:25`))5     3KGTB 170836Z 32003KT 9SM RA BKN002 BKN007 OVC030 08/07 A2930 RMK AO2A SLP924 $KGTB2019-10-17T08:36:00Z44.07-75.728.07.032039.029.300198992.4TRUETRUERALIFRSPECI207.02019-10-17 08:44:25F) 5    3KGDB 170836Z AUTO 12005KT 10SM CLR 02/01 A3000 RMK AO2 T00200005KGDB2019-10-17T08:36:00Z44.75-95.552.00.5120510.030.0TRUETRUEVFRMETAR319.02019-10-17 08:44:25 ;ksD")5     3KPNM 170836Z AUTO 00000KT 3SM BR SCT120 00/00 A3002 RMK AO2KPNM2019-10-17T08:36:00Z45.57-93.60.00.0003.030.02067TRUETRUEBRMVFRSPECI298.02019-10-17 08:44:25r!)K5     3KPOV 170836Z AUTO 29009G15KT 7SM BKN009 BKN014 OVC019 06/04 A2971 RMK AO2 P0003 T00550040 PWINOKPOV2019-10-17T08:36:00Z41.22-81.255.54.02909157.029.71063TRUETRUETRUEIFR0.03SPECI365.02019-10-17 08:44:25J )5    3KROS 170836Z AUTO 00000KT 10SM BKN120 03/02 A3002 RMK AO2 T00300020KROS2019-10-17T08:36:00Z45.7-92.953.02.00010.030.02067TRUETRUEVFRSPECI281.02019-10-17 08:44:25?({5    3KTOB 170836Z AUTO 00000KT 10SM CLR 01/M01 A3002 RMK AO2KTOB2019-10-17T08:36:00Z44.02-92.821.0-1.00010.030.02067TRUETRUEVFRSPECI398.02019-10-17 08:44:25 %LT&)5   3KCVX 170836Z AUTO 35011G21KT 10SM OVC026 08/03 A2992 RMK AO2 T00840027KCVX2019-10-17T08:36:00Z45.3-85.278.42.7350112110.029.920275TRUETRUEMVFRSPECI204.02019-10-17 08:44:25@%(y5    3KDTL 170836Z AUTO 15004KT 10SM CLR 01/01 A2996 RMK AO2KDTL2019-10-17T08:36:00Z46.82-95.871.01.0150410.029.958662TRUETRUEVFRSPECI426.02019-10-17 08:44:25S$)5   3KDTW 170836Z 30011G22KT 10SM BKN025 OVC038 08/02 A2981 RMK AO2 T00780022KDTW2019-10-17T08:36:00Z42.23-83.337.82.2300112210.029.811024TRUEMVFRSPECI195.02019-10-17 08:44:25U#)5   3KTTF 170836Z AUTO 30011G16KT 10SM OVC028 07/03 A2983 RMK AO2 T00700027KTTF2019-10-17T08:36:00Z41.93-83.427.02.7300111610.029.828741TRUETRUEMVFRSPECI188.02019-10-17 08:44:25 $U{H*) 5    3KHCD 170836Z AUTO 00000KT 10SM CLR 00/00 A3002 RMK AO2 T00020002KHCD2019-10-17T08:36:00Z44.87-94.380.20.20010.030.02067TRUETRUEVFRSPECI323.02019-10-17 08:44:25T))5   3KY31 170836Z AUTO 34012G21KT 10SM OVC031 07/00 A2981 RMK AO2 T00650002KY312019-10-17T08:36:00Z44.25-84.186.50.2340122110.029.811024TRUETRUEVFRSPECI269.02019-10-17 08:44:25I() 5    3K9MN 170836Z AUTO 00000KT 10SM CLR 04/02 A3003 RMK AO1 T00390015K9MN2019-10-17T08:36:00Z44.02-92.483.91.50010.030.029528TRUETRUEVFRSPECI355.02019-10-17 08:44:25V')!5    3KCCR 170836Z AUTO 22009KT 10SM SCT019 BKN045 17/12 A2988 RMK AO2 T01670122KCCR2019-10-17T08:36:00Z38.0-122.0516.712.2220910.029.878937TRUETRUEVFRSPECI11.02019-10-17 08:44:25 6pb.)55   3KMRT 170836Z AUTO 31009G17KT 10SM BKN027 BKN038 OVC046 07/03 A2989 RMK AO2 T00740032KMRT2019-10-17T08:36:00Z40.22-83.357.43.231091710.029.890747TRUETRUEMVFRSPECI312.02019-10-17 08:44:25G-)5     3KLXL 170836Z AUTO 00000KT 1SM BR VV007 M01/M01 A3000 RMK AO2KLXL2019-10-17T08:36:00Z45.95-94.33-1.0-1.0001.030.0TRUETRUEBRLIFR700SPECI342.02019-10-17 08:44:25@,(y5    3KHYX 170836Z AUTO 30009KT 10SM CLR 05/02 A2983 RMK AO2KHYX2019-10-17T08:36:00Z43.43-83.875.02.0300910.029.828741TRUETRUEVFRSPECI183.02019-10-17 08:44:25D+) 5    3KHZX 170836Z AUTO 00000KT 10SM SCT050 SCT120 02/02 A3000 RMK AO2KHZX2019-10-17T08:36:00Z46.62-93.322.02.00010.030.0TRUETRUEVFRSPECI374.02019-10-17 08:44:25 /b:2(y5    3KMQJ 170836Z AUTO 29006KT 10SM CLR 03/03 A3000 RMK AO1KMQJ2019-10-17T08:36:00Z39.85-85.93.03.0290610.030.0TRUETRUEVFRSPECI263.02019-10-17 08:44:25C1({5    3KVTP 170836Z AUTO 25009KT 10SM CLR 05/M13 A3031 RMK AO2KVTP2019-10-17T08:36:00Z37.5-105.175.0-13.0250910.030.31004TRUETRUEVFRSPECI3114.02019-10-17 08:44:25G0) 5    3PASD 170836Z AUTO 27015KT 10SM BKN027 BKN050 06/02 A2925 RMK AO2PASD2019-10-17T08:36:00Z55.33-160.56.02.02701510.029.25TRUETRUEMVFRSPECI7.02019-10-17 08:44:25K/) 5    3KMOP 170836Z AUTO 28006KT 10SM CLR 05/03 A2986 RMK AO2 T00470025KMOP2019-10-17T08:36:00Z43.62-84.734.72.5280610.029.861221TRUETRUEVFRSPECI230.02019-10-17 08:44:25 4^sm6)E5      3KSLK 170836Z AUTO 04009KT 9SM -RA FEW014 SCT026 OVC041 06/05 A2923 RMK AO2 P0002 T00610050 $KSLK2019-10-17T08:36:00Z44.4-74.26.15.04099.029.22933TRUETRUETRUE-RAVFR0.02SPECI498.02019-10-17 08:44:25e5);5    3KFSO 170836Z AUTO 35012G20KT 5SM +RA BKN005 BKN010 OVC016 09/09 A2926 RMK AO2 T00910085KFSO2019-10-17T08:36:00Z44.93-73.19.18.535012205.029.258858TRUETRUE+RAIFRSPECI70.02019-10-17 08:44:25P4)5     3K14Y 170836Z AUTO 00000KT 1/4SM FZFG OVC001 M01/M01 A2999 RMK AO2K14Y2019-10-17T08:36:00Z45.9-94.87-1.0-1.0000.2529.991142TRUETRUEFZFGLIFRSPECI406.02019-10-17 08:44:25F3(5   3KDLZ 170836Z AUTO 29012G19KT 10SM CLR 06/03 A2988 RMK AO2KDLZ2019-10-17T08:36:00Z40.28-83.126.03.0290121910.029.878937TRUETRUEVFRSPECI289.02019-10-17 08:44:25 8dO:)5    3KOZW 170836Z AUTO 28010KT 10SM OVC031 06/03 A2984 RMK AO2 T00570025KOZW2019-10-17T08:36:00Z42.62-83.975.72.52801010.029.840551TRUETRUEVFRSPECI293.02019-10-17 08:44:25A9(}5    3KPWC 170836Z AUTO 00000KT 10SM CLR M01/M02 A3002 RMK AO2KPWC2019-10-17T08:36:00Z46.72-94.37-1.0-2.00010.030.02067TRUETRUEVFRSPECI395.02019-10-17 08:44:25N8)5    3KRQB 170836Z AUTO 31004KT 10SM OVC022 05/03 A2989 RMK AO2 T00500031KRQB2019-10-17T08:36:00Z43.72-85.55.03.1310410.029.890747TRUETRUEMVFRSPECI302.02019-10-17 08:44:25B7(}5    3KSAZ 170836Z AUTO 17003KT 10SM CLR M01/M01 A2998 RMK AO2KSAZ2019-10-17T08:36:00Z46.37-94.8-1.0-1.0170310.029.97933TRUETRUEVFRSPECI392.02019-10-17 08:44:25  9v J?) 5    3KY63 170836Z AUTO 13006KT 10SM CLR 01/01 A2997 RMK AO2 T00110010KY632019-10-17T08:36:00Z45.98-96.01.11.0130610.029.970472TRUETRUEVFRSPECI367.02019-10-17 08:44:25:>(5    3KCOQ 170836Z AUTO 00000KT 10SM SCT080 04/02 A3000 RMK AO2KCOQ2019-10-17T08:36:00Z46.7-92.54.02.00010.030.0TRUETRUEVFRSPECI390.02019-10-17 08:44:25@=(y5    3KOVL 170836Z AUTO 14004KT 10SM CLR 00/00 A2999 RMK AO2KOVL2019-10-17T08:36:00Z44.78-95.030.00.0140410.029.991142TRUETRUEVFRSPECI328.02019-10-17 08:44:25=<(y5    3KLJF 170836Z AUTO 00000KT 10SM CLR 03/03 A3001 RMK AO2KLJF2019-10-17T08:36:00Z45.1-94.523.03.00010.030.008858TRUETRUEVFRSPECI348.02019-10-17 08:44:25A;)5   3KMGG 170836Z AUTO 00000KT 10SM 02/02 A3002 RMK AO2 T00170016KMGG2019-10-17T08:36:00Z45.23-93.981.71.60010.030.02067TRUETRUESPECI313.02019-10-17 08:44:25 RZC)#5      3K6B0 170836Z AUTO 36009KT 5SM RA OVC006 08/07 A2914 RMK AO2 P0013 T00760070K6B02019-10-17T08:36:00Z43.98-73.17.67.036095.029.140747TRUETRUERAIFR0.13SPECI149.02019-10-17 08:44:25FB)5     3KANE 170836Z AUTO 00000KT 3SM BR SCT120 03/03 A3001 RMK AO2KANE2019-10-17T08:36:00Z45.15-93.223.03.0003.030.008858TRUETRUEBRMVFRSPECI278.02019-10-17 08:44:25=A(y5    3KCBG 170836Z AUTO 00000KT 7SM CLR 03/M02 A3002 RMK AO2KCBG2019-10-17T08:36:00Z45.57-93.273.0-2.0007.030.02067TRUETRUEVFRSPECI287.02019-10-17 08:44:25e@)=5     3KCDA 170836Z AUTO 35008KT 2 1/2SM -SN SCT015 BKN024 OVC033 09/07 A2924 RMK AO2 T00850067KCDA2019-10-17T08:36:00Z44.57-72.028.56.735082.529.241142TRUETRUE-SNIFRSPECI363.02019-10-17 08:44:25 'X?H(y5    3KBBB 170836Z AUTO 16005KT 10SM CLR 01/01 A2998 RMK AO2KBBB2019-10-17T08:36:00Z45.32-95.651.01.0160510.029.97933TRUETRUEVFRSPECI317.02019-10-17 08:44:258G(y5    3KBFW 170836Z AUTO 00000KT 10SM CLR 02/01 A3000 RMK AO2KBFW2019-10-17T08:36:00Z47.25-91.42.01.00010.030.0TRUETRUEVFRSPECI331.02019-10-17 08:44:25V(}5    3KAJG 170835Z AUTO 10SM CLR 01/01 A3006 RMK AO2 T00100005KAJG2019-10-17T08:35:00Z38.62-87.731.00.510.030.059055TRUETRUEVFRSPECI131.02019-10-17 08:44:25KU) 5     3KADH 170835Z AUTO 15003KT 2SM HZ CLR 08/03 A3009 RMK AO2 VIS 1V5KADH2019-10-17T08:35:00Z34.8-96.678.03.015032.030.088583TRUETRUEHZIFRSPECI308.02019-10-17 08:44:25 Am7\(y5    3KCFE 170835Z 10SM SCT110 01/00 A3002 RMK AO2 T00100001KCFE2019-10-17T08:35:00Z45.17-93.851.00.110.030.02067TRUEVFRSPECI295.02019-10-17 08:44:25H[) 5    3KBQP 170835Z AUTO 00000KT 10SM CLR 08/07 A3008 RMK AO2 T00750071KBQP2019-10-17T08:35:00Z32.75-91.887.57.10010.030.079725TRUETRUEVFRSPECI51.02019-10-17 08:44:25NZ)5    3KBPG 170835Z AUTO 14005KT 10SM CLR 08/M02 A3012 RMK AO2 T00811025KBPG2019-10-17T08:35:00Z32.22-101.528.1-2.5140510.030.121063TRUETRUEVFRSPECI784.02019-10-17 08:44:259Y(w5    3KBIJ 170835Z AUTO 00000KT 7SM CLR 09/08 A2997 RMK AO2KBIJ2019-10-17T08:35:00Z31.4-84.99.08.0007.029.970472TRUETRUEVFRSPECI65.02019-10-17 08:44:25 /gH`) 5    3KCOM 170835Z AUTO 00000KT 10SM CLR 09/03 A3009 RMK AO2 T00880027KCOM2019-10-17T08:35:00Z31.83-99.48.82.70010.030.088583TRUETRUEVFRSPECI517.02019-10-17 08:44:25U_)!5    3KCMY 170835Z AUTO 24003KT 10SM BKN036 OVC090 05/04 A3003 RMK AO2 T00520035KCMY2019-10-17T08:35:00Z43.97-90.735.23.5240310.030.029528TRUETRUEVFRSPECI256.02019-10-17 08:44:25B^(5    3KCLW 170835Z AUTO 00000KT 10SM SCT060 25/22 A2988 RMK AO2KCLW2019-10-17T08:35:00Z27.98-82.7525.022.00010.029.878937TRUETRUEVFRSPECI22.02019-10-17 08:44:25K]) 5    3KCKF 170835Z AUTO 34005KT 10SM CLR 12/07 A2995 RMK AO2 T01160072KCKF2019-10-17T08:35:00Z31.98-83.7711.67.2340510.029.949802TRUETRUEVFRSPECI91.02019-10-17 08:44:25 :yOd)5    3KE11 170835Z AUTO 22006KT 10SM CLR 10/M02 A3010 RMK AO2 T01021025KE112019-10-17T08:35:00Z32.33-102.5310.2-2.5220610.030.100393TRUETRUEVFRSPECI967.02019-10-17 08:44:25Fc({5    3KDUB 170835Z AUTO 28014KT 10SM CLR 03/M11 A2997 RMK AO2KDUB2019-10-17T08:35:00Z43.55-109.683.0-11.02801410.029.970472TRUETRUEVFRSPECI2224.02019-10-17 08:44:25;b(y5    3KDNN 170835Z AUTO 33008KT 10SM CLR 08/04 A3000 RMK AO2KDNN2019-10-17T08:35:00Z34.72-84.878.04.0330810.030.0TRUETRUEVFRSPECI216.02019-10-17 08:44:25@a(y5    3KDBN 170835Z AUTO 29004KT 10SM CLR 10/07 A2994 RMK AO2KDBN2019-10-17T08:35:00Z32.57-82.9810.07.0290410.029.940945TRUETRUEVFRSPECI94.02019-10-17 08:44:25 *[Jh) 5    3KEZF 170835Z AUTO 23006KT 10SM CLR 08/05 A2962 RMK AO2 T00820050KEZF2019-10-17T08:35:00Z38.27-77.458.25.0230610.029.619095TRUETRUEVFRSPECI26.02019-10-17 08:44:25Ng)5    3KELA 170835Z AUTO 35006KT 10SM SCT045 14/12 A3005 RMK AO2 T01400115KELA2019-10-17T08:35:00Z29.6-96.3214.011.5350610.030.050198TRUETRUEVFRMETAR56.02019-10-17 08:44:25If) 5    3KEYF 170835Z AUTO 32008KT 10SM CLR 11/04 A2985 RMK AO2 T01060042KEYF2019-10-17T08:35:00Z34.6-78.5810.64.2320810.029.84941TRUETRUEVFRSPECI41.02019-10-17 08:44:25Pe)5    3KEBG 170835Z AUTO 32011KT 10SM OVC017 16/12 A3002 RMK AO2 T01620118KEBG2019-10-17T08:35:00Z26.45-98.1316.211.83201110.030.02067TRUETRUEMVFRMETAR24.02019-10-17 08:44:25 1b?l(y5    3KHZR 170835Z AUTO 00000KT 10SM CLR 11/10 A3005 RMK AO2KHZR2019-10-17T08:35:00Z30.72-91.4811.010.00010.030.050198TRUETRUEVFRSPECI12.02019-10-17 08:44:25@k(y5    3KGGP 170835Z AUTO 26005KT 10SM CLR 01/00 A3001 RMK AO2KGGP2019-10-17T08:35:00Z40.72-86.371.00.0260510.030.008858TRUETRUEVFRSPECI225.02019-10-17 08:44:25Ij) 5    3KFWC 170835Z AUTO 00000KT 10SM CLR 04/03 A3007 RMK AO1 T00400025KFWC2019-10-17T08:35:00Z38.38-88.424.02.50010.030.070866TRUETRUEVFRSPECI133.02019-10-17 08:44:25Ii) 5    3KFVX 170835Z AUTO 00000KT 10SM CLR 09/03 A2968 RMK AO2 T00860025KFVX2019-10-17T08:35:00Z37.35-78.428.62.50010.029.681103TRUETRUEVFRSPECI125.02019-10-17 08:44:25 /_Jp) 5    3KLGC 170835Z AUTO 35003KT 10SM CLR 06/06 A2997 RMK AO2 T00640059KLGC2019-10-17T08:35:00Z33.0-85.076.45.9350310.029.970472TRUETRUEVFRSPECI211.02019-10-17 08:44:25Ro)5   3KJYO 170835Z AUTO 29016G25KT 10SM BKN045 OVC050 11/05 A2960 RMK AO2KJYO2019-10-17T08:35:00Z39.07-77.5711.05.0290162510.029.601377TRUETRUEVFRSPECI119.02019-10-17 08:44:25Jn) 5    3KJSO 170835Z AUTO 00000KT 10SM CLR 10/08 A3009 RMK AO2 T01070082KJSO2019-10-17T08:35:00Z31.87-95.2210.78.20010.030.088583TRUETRUEVFRMETAR206.02019-10-17 08:44:25Km)5    3KJOT 170835Z AUTO 00000KT 10SM SCT110 05/04 A3002 RMK AO2 T00500040KJOT2019-10-17T08:35:00Z41.52-88.185.04.00010.030.02067TRUETRUEVFRSPECI177.02019-10-17 08:44:25 ,PKt) 5    3KK88 170835Z AUTO 15005KT 10SM CLR 05/04 A3008 RMK AO1 T00500036KK882019-10-17T08:35:00Z37.87-95.385.03.6150510.030.079725TRUETRUEVFRSPECI309.02019-10-17 08:44:25Bs(y5    3KL18 170835Z AUTO 26003KT 10SM CLR 15/12 A2985 RMK AO2KL182019-10-17T08:35:00Z33.35-117.2515.012.0260310.029.84941TRUETRUEVFRSPECI216.02019-10-17 08:44:25Vr)!5    3KLCK 170835Z AUTO 28010KT 10SM SCT033 OVC050 08/03 A2989 RMK AO2 T00750030KLCK2019-10-17T08:35:00Z39.82-82.927.53.02801010.029.890747TRUETRUEVFRSPECI227.02019-10-17 08:44:25Nq) 5    3KLHM 170835Z AUTO 15010KT 10SM BKN060 BKN120 16/10 A2984 RMK AO1KLHM2019-10-17T08:35:00Z38.92-121.3516.010.01501010.029.840551TRUETRUEVFRSPECI37.02019-10-17 08:44:25 /`@x(y5    3KJQF 170835Z AUTO 29003KT 10SM CLR 08/02 A2988 RMK AO2KJQF2019-10-17T08:35:00Z35.38-80.728.02.0290310.029.878937TRUETRUEVFRSPECI210.02019-10-17 08:44:25;w(w5    3KJSV 170835Z AUTO 00000KT 7SM CLR 05/05 A3012 RMK AO2KJSV2019-10-17T08:35:00Z35.43-94.85.05.0007.030.121063TRUETRUEVFRSPECI161.02019-10-17 08:44:25Iv) 5    3KJWY 170835Z AUTO 00000KT 10SM CLR 08/07 A3011 RMK AO2 T00770065KJWY2019-10-17T08:35:00Z32.45-96.927.76.50010.030.109253TRUETRUEVFRSPECI217.02019-10-17 08:44:25Ku) 5    3KJYM 170835Z AUTO 30009KT 10SM CLR 04/02 A2988 RMK AO2 T00400019KJYM2019-10-17T08:35:00Z41.92-84.584.01.9300910.029.878937TRUETRUEVFRSPECI360.02019-10-17 08:44:25 2cI|)5   3KI74 170835Z AUTO 29008G14KT 10SM OVC046 06/03 A2991 RMK AO2KI742019-10-17T08:35:00Z40.35-83.756.03.029081410.029.911417TRUETRUEVFRSPECI325.02019-10-17 08:44:25I{) 5    3KIGQ 170835Z AUTO 00000KT 10SM CLR 05/03 A3001 RMK AO2 T00480029KIGQ2019-10-17T08:35:00Z41.53-87.534.82.90010.030.008858TRUETRUEVFRSPECI188.02019-10-17 08:44:25Iz) 5    3KINJ 170835Z AUTO 00000KT 10SM CLR 10/07 A3010 RMK AO2 T01040065KINJ2019-10-17T08:35:00Z32.08-97.110.46.50010.030.100393TRUETRUEVFRSPECI209.02019-10-17 08:44:25Hy)5     3KIZA 170835Z AUTO 00000KT 4SM BR SCT001 10/10 A2987 RMK AO2KIZA2019-10-17T08:35:00Z34.6-120.0710.010.0004.029.870079TRUETRUEBRMVFRSPECI205.02019-10-17 08:44:25 .fJ) 5    3KHUM 170835Z AUTO 02008KT 10SM CLR 16/14 A2999 RMK AO2 T01610142KHUM2019-10-17T08:35:00Z29.57-90.6716.114.220810.029.991142TRUETRUEVFRSPECI3.02019-10-17 08:44:25B({5    3KHVE 170835Z AUTO 00000KT 10SM CLR 05/M16 A3001 RMK AO2KHVE2019-10-17T08:35:00Z38.42-110.75.0-16.00010.030.008858TRUETRUEVFRSPECI1350.02019-10-17 08:44:25B~)5    3KI16 170835Z AUTO 10SM OVC026 08/04 A2994 RMK AO2 T00800035KI162019-10-17T08:35:00Z37.6-81.578.03.510.029.940945TRUETRUEMVFRSPECI544.02019-10-17 08:44:25L})5    3KI35 170835Z AUTO 00000KT 10SM SCT001 02/02 A2999 RMK AO2 T00240019KI352019-10-17T08:35:00Z36.87-83.372.41.90010.029.991142TRUETRUEVFRSPECI473.02019-10-17 08:44:25 1b:(s5     3KMAW 170835Z AUTO 10SM CLR 07/05 A3013 RMK AO2 TSNOKMAW2019-10-17T08:35:00Z36.6-90.07.05.010.030.129921TRUETRUETRUEVFRSPECI90.02019-10-17 08:44:25?(y5    3KHFJ 170835Z AUTO 12006KT 10SM CLR 05/04 A3009 RMK AO2KHFJ2019-10-17T08:35:00Z36.9-94.025.04.0120610.030.088583TRUETRUEVFRSPECI401.02019-10-17 08:44:25I) 5    3KHHF 170835Z AUTO 23005KT 10SM CLR 08/02 A3002 RMK AO2 T00830016KHHF2019-10-17T08:35:00Z35.9-100.48.31.6230510.030.02067TRUETRUEVFRSPECI712.02019-10-17 08:44:25I) 5    3KHSB 170835Z AUTO 00000KT 10SM CLR 03/01 A3009 RMK AO2 T00250009KHSB2019-10-17T08:35:00Z37.82-88.552.50.90010.030.088583TRUETRUEVFRSPECI121.02019-10-17 08:44:25 0lW)5   3KGEV 170835Z AUTO 31014G25KT 10SM OVC023 03/M01 A2982 RMK AO2 T00301010KGEV2019-10-17T08:35:00Z36.43-81.423.0-1.0310142510.029.819881TRUETRUEMVFRSPECI969.02019-10-17 08:44:25?(y5    3KGAF 170835Z AUTO 14007KT 10SM CLR 01/01 A2995 RMK AO2KGAF2019-10-17T08:35:00Z48.4-97.371.01.0140710.029.949802TRUETRUEVFRSPECI252.02019-10-17 08:44:25>(y5    3KFQD 170835Z AUTO 00000KT 10SM CLR 04/02 A2989 RMK AO2KFQD2019-10-17T08:35:00Z35.42-81.934.02.00010.029.890747TRUETRUEVFRSPECI329.02019-10-17 08:44:25J) 5    3KEHO 170835Z AUTO 32004KT 10SM CLR 07/01 A2987 RMK AO2 T00680014KEHO2019-10-17T08:35:00Z35.25-81.66.81.4320410.029.870079TRUETRUEVFRSPECI258.02019-10-17 08:44:25 'XO )5   3KJZP 170835Z AUTO 01008G17KT 10SM CLR 07/03 A2996 RMK AO2 T00700033KJZP2019-10-17T08:35:00Z34.45-84.477.03.31081710.029.958662TRUETRUEVFRSPECI468.02019-10-17 08:44:25P )5   3KLDJ 170835Z AUTO 29015G24KT 10SM CLR 11/05 A2931 RMK AO2 T01050047KLDJ2019-10-17T08:35:00Z40.62-74.2510.54.7290152410.029.309055TRUETRUEVFRSPECI7.02019-10-17 08:44:25I ) 5    3KIPJ 170835Z AUTO 00000KT 10SM CLR 07/01 A2987 RMK AO2 T00650007KIPJ2019-10-17T08:35:00Z35.48-81.176.50.70010.029.870079TRUETRUEVFRSPECI267.02019-10-17 08:44:25S )5     3KHNZ 170835Z AUTO 00000KT 10SM CLR 07/01 A2975 RMK AO2 P0001 T00710010KHNZ2019-10-17T08:35:00Z36.37-78.537.11.00010.029.749016TRUETRUEVFR0.01SPECI161.02019-10-17 08:44:25 ;uF(5   3KLUA 170835Z AUTO 27014G26KT 10SM CLR 10/01 A2964 RMK AO2KLUA2019-10-17T08:35:00Z38.67-78.510.01.0270142610.029.639763TRUETRUEVFRSPECI275.02019-10-17 08:44:25H) 5    3KLVL 170835Z AUTO 00000KT 10SM CLR 07/03 A2972 RMK AO1 T00690025KLVL2019-10-17T08:35:00Z36.78-77.86.92.50010.029.719488TRUETRUEVFRSPECI100.02019-10-17 08:44:25@(y5    3KLHZ 170835Z AUTO 24005KT 10SM CLR 08/02 A2980 RMK AO2KLHZ2019-10-17T08:35:00Z36.02-78.338.02.0240510.029.799213TRUETRUEVFRSPECI113.02019-10-17 08:44:25? (y5    3KJYR 170835Z AUTO 17006KT 10SM CLR 05/02 A2994 RMK AO2KJYR2019-10-17T08:35:00Z40.9-97.625.02.0170610.029.940945TRUETRUEVFRSPECI509.02019-10-17 08:44:25 0U<(5    3KOLG 170835Z AUTO 00000KT 10SM OVC029 03/03 A3000 RMK AO1KOLG2019-10-17T08:35:00Z46.3-91.823.03.00010.030.0TRUETRUEMVFRSPECI336.02019-10-17 08:44:25G) 5    3KOSA 170835Z AUTO 00000KT 4SM CLR 08/07 A3012 RMK AO1 T00760067KOSA2019-10-17T08:35:00Z33.1-94.977.66.7004.030.121063TRUETRUEMVFRMETAR111.02019-10-17 08:44:25U)5   3KMKJ 170835Z AUTO 27011G28KT 10SM OVC025 06/02 A2987 RMK AO2 T00620020KMKJ2019-10-17T08:35:00Z36.88-81.336.22.0270112810.029.870079TRUETRUEMVFRSPECI780.02019-10-17 08:44:25J) 5    3KMGC 170835Z AUTO 33005KT 10SM SCT019 SCT047 07/07 A2999 RMK AO2KMGC2019-10-17T08:35:00Z41.7-86.827.07.0330510.029.991142TRUETRUEVFRSPECI200.02019-10-17 08:44:25 /iJ) 5    3KPRG 170835Z AUTO 29004KT 10SM CLR 03/02 A3005 RMK AO2 T00310021KPRG2019-10-17T08:35:00Z39.7-87.673.12.1290410.030.050198TRUETRUEVFRSPECI199.02019-10-17 08:44:25J) 5    3KPTT 170835Z AUTO 18012KT 10SM CLR 09/01 A2998 RMK AO2 T00850013KPTT2019-10-17T08:35:00Z37.7-98.758.51.31801210.029.97933TRUETRUEVFRSPECI595.02019-10-17 08:44:25@(y5    3KOZS 170835Z AUTO 14003KT 10SM CLR 02/02 A3010 RMK AO2KOZS2019-10-17T08:35:00Z37.97-92.682.02.0140310.030.100393TRUETRUEVFRSPECI324.02019-10-17 08:44:25K) 5    3KPNT 170835Z AUTO 27003KT 10SM CLR 03/03 A3005 RMK AO2 T00320028KPNT2019-10-17T08:35:00Z40.92-88.623.22.8270310.030.050198TRUETRUEVFRSPECI201.02019-10-17 08:44:25 0bC({5    3KSAA 170835Z AUTO 00000KT 10SM CLR 01/M10 A3008 RMK AO2KSAA2019-10-17T08:35:00Z41.45-106.831.0-10.00010.030.079725TRUETRUEVFRMETAR2138.02019-10-17 08:44:25V)5     3KRMN 170835Z AUTO 25003KT 10SM SCT065 06/05 A2966 RMK AO2 P0001 T00610046KRMN2019-10-17T08:35:00Z38.4-77.456.14.6250310.029.660433TRUETRUEVFR0.01SPECI65.02019-10-17 08:44:25H) 5    3KRNV 170835Z AUTO 00000KT 10SM CLR 07/07 A3007 RMK AO2 T00720072KRNV2019-10-17T08:35:00Z33.77-90.757.27.20010.030.070866TRUETRUEVFRSPECI41.02019-10-17 08:44:25J) 5    3KRHP 170835Z AUTO 05003KT 10SM CLR 05/02 A2996 RMK AO2 T00500020KRHP2019-10-17T08:35:00Z35.18-83.855.02.050310.029.958662TRUETRUEVFRSPECI518.02019-10-17 08:44:25 3dN )5    3KIKK 170835Z AUTO 28005KT 10SM SCT120 03/02 A3003 RMK AO2 T00270021KIKK2019-10-17T08:35:00Z41.07-87.852.72.1280510.030.029528TRUETRUEVFRSPECI192.02019-10-17 08:44:25=(y5    3KIMS 170835Z AUTO 00000KT 10SM CLR 02/02 A3002 RMK AO1KIMS2019-10-17T08:35:00Z38.75-85.472.02.00010.030.02067TRUETRUEVFRSPECI250.02019-10-17 08:44:25I) 5    3KJKA 170835Z AUTO 02007KT 10SM CLR 14/10 A2998 RMK AO2 T01380100KJKA2019-10-17T08:35:00Z30.28-87.6713.810.020710.029.97933TRUETRUEVFRSPECI5.02019-10-17 08:44:25G) 5    3KSFQ 170835Z AUTO 00000KT 10SM CLR 10/04 A2970 RMK AO2 T00970042KSFQ2019-10-17T08:35:00Z36.68-76.69.74.20010.029.698818TRUETRUEVFRSPECI22.02019-10-17 08:44:25 #RxA$(5    3K8A0 170835Z AUTO 02004KT 10SM SCT110 08/03 A3002 RMK AO2K8A02019-10-17T08:35:00Z34.23-86.258.03.020410.030.02067TRUETRUEVFRMETAR315.02019-10-17 08:44:25T#)5    3CYDL 170835Z AUTO VRB04KT 9SM FEW007 BKN012 OVC024 01/00 A2911 RMK SLP877CYDL2019-10-17T08:35:00Z58.42-130.021.00.0049.029.111221987.7TRUEMVFRSPECI816.02019-10-17 08:44:25K") 5    3KIDP 170835Z AUTO 17003KT 10SM CLR 04/04 A3009 RMK AO2 T00440039KIDP2019-10-17T08:35:00Z37.17-95.784.43.9170310.030.088583TRUETRUEVFRSPECI251.02019-10-17 08:44:25W!)!5    3KIKG 170835Z AUTO 32005KT 10SM BKN021 OVC065 19/11 A3003 RMK AO2 T01850105KIKG2019-10-17T08:35:00Z27.55-98.0318.510.5320510.030.029528TRUETRUEMVFRMETAR40.02019-10-17 08:44:25 HW()5   3KVQT 170835Z AUTO 05015G20KT 8SM BKN016 BKN028 BKN050 24/21 A2993 RMK A01KVQT2019-10-17T08:35:00Z28.27-92.2724.021.05015208.029.929134TRUETRUEMVFRMETAR25.02019-10-17 08:44:25J') 5    3K9V9 170835Z AUTO 11003KT 10SM CLR 04/04 A2985 RMK AO2 T00360036K9V92019-10-17T08:35:00Z43.77-99.323.63.6110310.029.84941TRUETRUEVFRMETAR519.02019-10-17 08:44:25A&(y5    3KACJ 170835Z AUTO 33005KT 10SM CLR 13/08 A2997 RMK AO2KACJ2019-10-17T08:35:00Z32.12-84.1813.08.0330510.029.970472TRUETRUEVFRMETAR143.02019-10-17 08:44:252%(k5    3LBIA 170835Z 00000KT 3500 BR OVC004 14/13 Q1020LBIA2019-10-17T08:35:00Z42.4526.3514.013.0002.1730.11811BRLIFRSPECI155.02019-10-17 08:44:25 9nD,(5    3KSCF 170835Z AUTO 03015KT 10SM OVC015 19/16 A2997 RMK A01KSCF2019-10-17T08:35:00Z29.12-91.8719.016.0301510.029.970472TRUETRUEMVFRSPECI8.02019-10-17 08:44:25X+)!5   3KVAF 170835Z AUTO 05018G24KT 10SM FEW021 BKN031 OVC060 26/21 A2991 RMK A01KVAF2019-10-17T08:35:00Z27.35-94.6326.021.050182410.029.911417TRUETRUEVFRMETAR46.02019-10-17 08:44:25E*(5    3KVKY 170835Z AUTO 06018KT 10SM OVC025 22/15 A2997 RMK A01KVKY2019-10-17T08:35:00Z29.25-88.4322.015.0601810.029.970472TRUETRUEMVFRSPECI32.02019-10-17 08:44:25A)(y5    3KVOA 170835Z AUTO 04017KT 10SM CLR 22/17 A2994 RMK A01KVOA2019-10-17T08:35:00Z29.23-87.7822.017.0401710.029.940945TRUETRUEVFRSPECI53.02019-10-17 08:44:25 8jE0({5    3KDTA 170835Z AUTO 18008KT 10SM CLR 10/M10 A2992 RMK AO1KDTA2019-10-17T08:35:00Z39.38-112.510.0-10.0180810.029.920275TRUETRUEVFRMETAR1402.02019-10-17 08:44:25@/(y5    3KCUL 170835Z AUTO 29003KT 10SM CLR 02/02 A3007 RMK AO2KCUL2019-10-17T08:35:00Z38.08-88.122.02.0290310.030.070866TRUETRUEVFRMETAR118.02019-10-17 08:44:25H.) 5    3KCIR 170835Z AUTO 00000KT 10SM CLR 03/03 A3009 RMK AO2 T00340033KCIR2019-10-17T08:35:00Z37.07-89.223.43.30010.030.088583TRUETRUEVFRMETAR98.02019-10-17 08:44:25B-({5    3KAFO 170835Z AUTO 00000KT 10SM CLR 00/M06 A2995 RMK AO2KAFO2019-10-17T08:35:00Z42.72-110.950.0-6.00010.029.949802TRUETRUEVFRMETAR1897.02019-10-17 08:44:25 )cD4({5    3KW43 170835Z AUTO 16005KT 10SM CLR 09/M01 A2984 RMK AO2KW432019-10-17T08:35:00Z44.67-104.579.0-1.0160510.029.840551TRUETRUEVFRMETAR1300.02019-10-17 08:44:25M3) 5    3KEHA 170835Z AUTO 23013KT 10SM CLR 14/01 A2995 RMK AO2 T01350005KEHA2019-10-17T08:35:00Z37.0-101.913.50.52301310.029.949802TRUETRUEVFRMETAR1099.02019-10-17 08:44:25@2(y5    3KDVK 170835Z AUTO 29005KT 10SM CLR 05/02 A3003 RMK AO2KDVK2019-10-17T08:35:00Z37.58-84.775.02.0290510.030.029528TRUETRUEVFRMETAR312.02019-10-17 08:44:25Q1)5    3KEAN 170835Z AUTO 21006KT 10SM CLR 11/M10 A2990 RMK AO2 T01061102KEAN2019-10-17T08:35:00Z42.05-104.9310.6-10.2210610.029.899607TRUETRUEVFRMETAR1456.02019-10-17 08:44:25 ;nH8) 5    3KI63 170835Z AUTO 00000KT 10SM CLR 02/01 A3008 RMK AO2 T00180011KI632019-10-17T08:35:00Z39.98-90.81.81.10010.030.079725TRUETRUEVFRMETAR223.02019-10-17 08:44:25S7)5   3KLWB 170835Z AUTO 32009G18KT 10SM OVC025 06/02 A2981 RMK AO2 T00570016KLWB2019-10-17T08:35:00Z37.87-80.45.71.632091810.029.811024TRUETRUEMVFRMETAR702.02019-10-17 08:44:25G6) 5    3KM30 170835Z AUTO 00000KT 7SM CLR 03/03 A3009 RMK AO2 T00310026KM302019-10-17T08:35:00Z37.18-88.753.12.6007.030.088583TRUETRUEVFRMETAR117.02019-10-17 08:44:25?5(y5    3KMYZ 170835Z AUTO 15005KT 10SM CLR 05/03 A2998 RMK AO2KMYZ2019-10-17T08:35:00Z39.85-96.635.03.0150510.029.97933TRUETRUEVFRMETAR319.02019-10-17 08:44:25 ,[L<) 5    3KELK 170835Z AUTO 21010KT 10SM CLR 10/00 A3005 RMK AO2 T00951002KELK2019-10-17T08:35:00Z35.43-99.49.5-0.22101010.030.050198TRUETRUEVFRMETAR610.02019-10-17 08:44:25C;({5    3KEMM 170835Z AUTO 35006KT 10SM CLR 01/M08 A3002 RMK AO2KEMM2019-10-17T08:35:00Z41.82-110.551.0-8.0350610.030.02067TRUETRUEVFRMETAR2220.02019-10-17 08:44:25K:) 5    3KEZM 170835Z AUTO 31003KT 10SM CLR 11/08 A2995 RMK AO2 T01070084KEZM2019-10-17T08:35:00Z32.22-83.1310.78.4310310.029.949802TRUETRUEVFRMETAR93.02019-10-17 08:44:25N9)5    3KGNC 170835Z AUTO 26005KT 10SM CLR 06/M01 A3015 RMK AO2 T00591013KGNC2019-10-17T08:35:00Z32.68-102.655.9-1.3260510.030.15059TRUETRUEVFRMETAR1010.02019-10-17 08:44:25 CM@)5    3KSNK 170835Z AUTO 19007KT 10SM CLR 07/M01 A3009 RMK AO2 T00731009KSNK2019-10-17T08:35:00Z32.7-100.957.3-0.9190710.030.088583TRUETRUEVFRSPECI741.02019-10-17 08:44:259?(k5    3KTBX 170835Z AUTO 10SM CLR 09/M12 A3003 RMK AO2KTBX2019-10-17T08:35:00Z43.47-108.239.0-12.010.030.029528TRUETRUEVFRSPECI2225.02019-10-17 08:44:25L>) 5    3KTMA 170835Z AUTO 30004KT 10SM CLR 13/10 A2992 RMK AO2 T01300098KTMA2019-10-17T08:35:00Z31.43-83.4813.09.8300410.029.920275TRUETRUEVFRSPECI109.02019-10-17 08:44:25e=)95   3KTNB 170835Z AUTO 32013G30KT 290V360 10SM BKN025 OVC030 04/M02 A2983 RMK AO2 T00351017KTNB2019-10-17T08:35:00Z36.2-81.653.5-1.7320133010.029.828741TRUETRUEMVFRSPECI911.02019-10-17 08:44:25 1bND) 5    3KSEZ 170835Z AUTO 10008KT 070V130 10SM CLR 18/M01 A3003 RMK AO2KSEZ2019-10-17T08:35:00Z34.85-111.7818.0-1.0100810.030.029528TRUETRUEVFRSPECI1473.02019-10-17 08:44:25IC) 5    3KSGS 170835Z AUTO 00000KT 10SM CLR 03/03 A3003 RMK AO2 T00300026KSGS2019-10-17T08:35:00Z44.87-93.033.02.60010.030.029528TRUETRUEVFRSPECI250.02019-10-17 08:44:25IB) 5    3KSLO 170835Z AUTO 00000KT 10SM CLR 02/02 A3008 RMK AO2 T00200015KSLO2019-10-17T08:35:00Z38.65-88.972.01.50010.030.079725TRUETRUEVFRSPECI175.02019-10-17 08:44:25IA) 5    3KSLR 170835Z AUTO 00000KT 10SM CLR 08/05 A3012 RMK AO2 T00770052KSLR2019-10-17T08:35:00Z33.17-95.627.75.20010.030.121063TRUETRUEVFRSPECI149.02019-10-17 08:44:25 1hKH) 5    3KRSV 170835Z AUTO 29004KT 10SM CLR 01/01 A3007 RMK AO2 T00140011KRSV2019-10-17T08:35:00Z39.02-87.651.41.1290410.030.070866TRUETRUEVFRSPECI141.02019-10-17 08:44:25MG)5    3KSAR 170835Z AUTO 28003KT 10SM OVC038 05/04 A3011 RMK AO2 T00460042KSAR2019-10-17T08:35:00Z38.15-89.74.64.2280310.030.109253TRUETRUEVFRSPECI164.02019-10-17 08:44:25CF) 5    3KSCD 170835Z AUTO 00000KT 10SM CLR 09/06 A3000 RMK AO2 T00920060KSCD2019-10-17T08:35:00Z33.17-86.39.26.00010.030.0TRUETRUEVFRSPECI173.02019-10-17 08:44:25IE) 5    3KSEP 170835Z AUTO 00000KT 10SM CLR 07/05 A3012 RMK AO2 T00650045KSEP2019-10-17T08:35:00Z32.22-98.176.54.50010.030.121063TRUETRUEVFRSPECI402.02019-10-17 08:44:25 2k;M(y5    3KRGA 170835Z AUTO 26004KT 10SM CLR 04/03 A3000 RMK AO2KRGA2019-10-17T08:35:00Z37.63-84.334.03.0260410.030.0TRUETRUEVFRMETAR305.02019-10-17 08:44:25>L(y5    3KRKR 170835Z AUTO 00000KT 10SM CLR 06/05 A3012 RMK AO2KRKR2019-10-17T08:35:00Z35.02-94.626.05.00010.030.121063TRUETRUEVFRSPECI138.02019-10-17 08:44:25KK) 5    3KRMY 170835Z AUTO 30004KT 10SM CLR 06/03 A2990 RMK AO2 T00560025KRMY2019-10-17T08:35:00Z42.23-84.955.62.5300410.029.899607TRUETRUEVFRSPECI287.02019-10-17 08:44:25AJ({5    3KRRT 170835Z AUTO 14003KT 10SM CLR 01/M01 A2998 RMK AO2KRRT2019-10-17T08:35:00Z48.93-95.331.0-1.0140310.029.97933TRUETRUEVFRSPECI327.02019-10-17 08:44:25HI) 5    3KRSN 170835Z AUTO 00000KT 10SM CLR 07/06 A3010 RMK AO2 T00650058KRSN2019-10-17T08:35:00Z32.52-92.586.55.80010.030.100393TRUETRUEVFRSPECI95.02019-10-17 08:44:25 u3aDuIQ) 5    3KPVJ 170835Z AUTO 00000KT 10SM CLR 05/05 A3008 RMK AO2 T00510051KPVJ2019-10-17T08:35:00Z34.72-97.225.15.10010.030.079725TRUETRUEVFRSPECI295.02019-10-17 08:44:25P) 5     3KPWM 170835Z AUTO 08029G45KT 3SM RA BR OVC008 13/11 A2899 RMK AO2 PK WND 09048/0819 LTG DSNT NW RAB00 PRESFR P0006 T01330111 $KPWM2019-10-17T08:35:00Z43.65-70.313.311.18029453.028.990158TRUETRUETRUERA BRIFR0.06SPECI15.02019-10-17 08:44:25LO) 5    3KPXE 170835Z AUTO 31008KT 10SM CLR 11/07 A2994 RMK AO2 T01050068KPXE2019-10-17T08:35:00Z32.52-83.7710.56.8310810.029.940945TRUETRUEVFRSPECI127.02019-10-17 08:44:25GN) 5    3KPYX 170835Z AUTO 21005KT 10SM CLR 07/00 A3000 RMK AO2 T00670002KPYX2019-10-17T08:35:00Z36.42-100.756.70.2210510.030.0TRUETRUEVFRSPECI889.02019-10-17 08:44:25 9fPU)5    3KPKV 170835Z AUTO 36013KT 10SM OVC023 18/14 A3001 RMK AO2 T01840137KPKV2019-10-17T08:35:00Z28.65-96.6818.413.73601310.030.008858TRUETRUEMVFRSPECI9.02019-10-17 08:44:25FT) 5    3KPMV 170835Z AUTO 14007KT 10SM CLR 06/06 A3000 RMK AO2 T00580055KPMV2019-10-17T08:35:00Z40.95-95.925.85.5140710.030.0TRUETRUEVFRSPECI367.02019-10-17 08:44:25MS) 5    3KPRS 170835Z AUTO 35004KT 10SM CLR 15/08 A3011 RMK AO2 T01500081KPRS2019-10-17T08:35:00Z29.63-104.3515.08.1350410.030.109253TRUETRUEVFRSPECI896.02019-10-17 08:44:25AR(y5    3KPUJ 170835Z AUTO 32010KT 10SM CLR 07/03 A2997 RMK AO2KPUJ2019-10-17T08:35:00Z33.92-84.937.03.03201010.029.970472TRUETRUEVFRSPECI393.02019-10-17 08:44:25 HxJY) 5    3KBBF 170835Z AUTO 05022KT 10SM SCT019 OVC060 60/57 A2993 RMK A01KBBF2019-10-17T08:35:00Z27.83-96.020.00.0502210.029.929134TRUETRUEVFRMETAR36.02019-10-17 08:44:25JX)5   3KBQX 170835Z AUTO 05013G22KT 10SM OVC018 22/19 A2997 RMK A01KBQX2019-10-17T08:35:00Z28.5-95.7222.019.050132210.029.970472TRUETRUEMVFRMETAR34.02019-10-17 08:44:25KW)5   3KDLP 170835Z AUTO 06011G18KT 10SM OVC017 24/19 A2993 RMK A01KDLP2019-10-17T08:35:00Z29.12-89.5524.019.060111810.029.929134TRUETRUEMVFRSPECI36.02019-10-17 08:44:25aV)15   3KDSF 170835Z AUTO 02017G23KT 330V030 10SM FEW022 SCT031 SCT039 26/22 A2991 RMK A01KDSF2019-10-17T08:35:00Z28.35-88.2726.022.020172310.029.911417TRUETRUEVFRMETAR130.02019-10-17 08:44:25 )PS])5    3KXIH 170835Z AUTO 06016KT 10SM SCT022 SCT037 BKN046 20/15 A2997 RMK A01KXIH2019-10-17T08:35:00Z29.18-94.5220.015.0601610.029.970472TRUETRUEVFRSPECI75.02019-10-17 08:44:25G\)5   3KXPY 170835Z AUTO 04014G20KT 9SM OVC017 21/19 A2997 RMK A01KXPY2019-10-17T08:35:00Z29.12-90.221.019.04014209.029.970472TRUETRUEMVFRSPECI2.02019-10-17 08:44:25S[)5    3K18H 170835Z AUTO 07014KT 10SM FEW023 SCT028 OVC080 28/24 A2986 RMK A01K18H2019-10-17T08:35:00Z26.13-92.0328.024.0701410.029.861221TRUETRUEVFRMETAR10.02019-10-17 08:44:25QZ)5   3KAMN 170835Z AUTO 28012G18KT 10SM CLR 05/02 A2987 RMK AO2 T00480022KAMN2019-10-17T08:35:00Z43.32-84.684.82.2280121810.029.870079TRUETRUEVFRSPECI230.02019-10-17 08:44:25 *YTa)!5    3KRLD 170835Z AUTO 19003KT 10SM SCT070 OVC100 14/09 A2969 RMK AO2 T01400094KRLD2019-10-17T08:35:00Z46.3-119.314.09.4190310.029.68996TRUETRUEVFRMETAR120.02019-10-17 08:44:25I`) 5    3KPPQ 170835Z AUTO 00000KT 10SM CLR 03/03 A3009 RMK AO2 T00250025KPPQ2019-10-17T08:35:00Z39.63-90.782.52.50010.030.088583TRUETRUEVFRMETAR216.02019-10-17 08:44:25K_) 5    3KPPA 170835Z AUTO 20008KT 10SM CLR 08/01 A3005 RMK AO2 T00790013KPPA2019-10-17T08:35:00Z35.62-101.07.91.3200810.030.050198TRUETRUEVFRMETAR989.02019-10-17 08:44:25P^)5    3KWBF 170835Z AUTO 00000KT 10SM FEW023 SCT055 OVC065 28/23 A2990 RMK A01KWBF2019-10-17T08:35:00Z26.93-90.528.023.00010.029.899607TRUETRUEVFRMETAR10.02019-10-17 08:44:25 1j9f(q5   3KANQ 170835Z AUTO 30006KT 10SM 07/04 A2992 RMK AO2KANQ2019-10-17T08:35:00Z41.63-85.087.04.0300610.029.920275TRUETRUESPECI303.02019-10-17 08:44:25>e(y5    3KAQO 170835Z AUTO 00000KT 10SM CLR 09/06 A3013 RMK AO2KAQO2019-10-17T08:35:00Z30.78-98.679.06.00010.030.129921TRUETRUEVFRMETAR336.02019-10-17 08:44:25Hd) 5    3KUXL 170835Z AUTO 07006KT 10SM CLR 15/10 A3002 RMK AO2 T01450095KUXL2019-10-17T08:35:00Z30.13-93.3814.59.570610.030.02067TRUETRUEVFRMETAR4.02019-10-17 08:44:25Ac(y5    3KSBO 170835Z AUTO 30004KT 10SM CLR 11/09 A2991 RMK AO2KSBO2019-10-17T08:35:00Z32.62-82.3711.09.0300410.029.911417TRUETRUEVFRMETAR100.02019-10-17 08:44:25Ib) 5    3KRPH 170835Z AUTO 00000KT 10SM CLR 06/03 A3009 RMK AO2 T00600028KRPH2019-10-17T08:35:00Z33.12-98.556.02.80010.030.088583TRUETRUEVFRMETAR342.02019-10-17 08:44:25Y8(8@HPX`hpx (08@HPX`hpx (08@HPX`hpxηϷз ѷҷӷԷշ ַ$׷(ط,ٷ0ηϷз ѷҷӷԷշ ַ$׷(ط,ٷ0ڷ4۷8ܷ<ݷ@޷D߷HMQUY]afjnrvz~ "&+/48<AEIMQUY]bfjo s x |    $(,15:>BFJN R!V"Z#^$b%f&j'n =nKj) 5    3KHQU 170835Z AUTO 36006KT 10SM CLR 09/06 A2990 RMK AO2 T00920062KHQU2019-10-17T08:35:00Z33.53-82.529.26.2360610.029.899607TRUETRUEVFRSPECI152.02019-10-17 08:44:25Hi) 5    3KFWS 170835Z AUTO 00000KT 10SM CLR 07/06 A3012 RMK AO2 T00670057KFWS2019-10-17T08:35:00Z32.57-97.36.75.70010.030.121063TRUETRUEVFRSPECI208.02019-10-17 08:44:25Ih) 5    3KTTA 170835Z AUTO 23003KT 10SM CLR 06/04 A2982 RMK AO2 T00560036KTTA2019-10-17T08:35:00Z35.58-79.15.63.6230310.029.819881TRUETRUEVFRSPECI75.02019-10-17 08:44:25=g(y5    3KPGV 170835Z AUTO 23003KT 10SM CLR 07/05 A2981 RMK AO2KPGV2019-10-17T08:35:00Z35.62-77.47.05.0230310.029.811024TRUETRUEVFRSPECI8.02019-10-17 08:44:25 'WJn) 5    3KJAS 170835Z AUTO 00000KT 10SM CLR 12/11 A3007 RMK AO2 T01170111KJAS2019-10-17T08:35:00Z30.88-94.0311.711.10010.030.070866TRUETRUEVFRSPECI65.02019-10-17 08:44:25=m(y5    3KGCM 170835Z AUTO 00000KT 10SM CLR 04/03 A3012 RMK AO2KGCM2019-10-17T08:35:00Z36.3-95.484.03.00010.030.121063TRUETRUEVFRSPECI221.02019-10-17 08:44:25Jl) 5    3KGRN 170835Z AUTO 00000KT 10SM CLR 02/00 A2985 RMK AO2 T00211005KGRN2019-10-17T08:35:00Z42.8-102.172.1-0.50010.029.84941TRUETRUEVFRSPECI1086.02019-10-17 08:44:25Sk)5      3KHDC 170835Z AUTO 00000KT 10SM CLR 11/10 A3002 RMK AO2 P0001 PWINOKHDC2019-10-17T08:35:00Z30.52-90.4211.010.00010.030.02067TRUETRUETRUEVFR0.01SPECI13.02019-10-17 08:44:25 .S=r(y5    3KJDD 170835Z AUTO 00000KT 10SM CLR 07/06 A3010 RMK AO2KJDD2019-10-17T08:35:00Z32.75-95.57.06.00010.030.100393TRUETRUEVFRSPECI132.02019-10-17 08:44:25Gq) 5    3KIER 170835Z AUTO 00000KT 10SM CLR 09/09 A3006 RMK AO2 T00870087KIER2019-10-17T08:35:00Z31.73-93.18.78.70010.030.059055TRUETRUEVFRSPECI37.02019-10-17 08:44:25Up)!5    3KIKW 170835Z AUTO 30004KT 10SM SCT024 OVC037 07/02 A2984 RMK AO2 T00700022KIKW2019-10-17T08:35:00Z43.67-84.277.02.2300410.029.840551TRUETRUEVFRSPECI194.02019-10-17 08:44:25Lo) 5    3KIWA 170835Z AUTO 13009KT 10SM CLR 23/03 A2979 RMK AO2 T02300027KIWA2019-10-17T08:35:00Z33.3-111.6523.02.7130910.029.790354TRUETRUEVFRSPECI412.02019-10-17 08:44:25 1aHv) 5    3KIYA 170835Z AUTO 36005KT 7SM CLR 13/11 A3002 RMK AO2 T01260107KIYA2019-10-17T08:35:00Z29.98-92.0812.610.736057.030.02067TRUETRUEVFRMETAR5.02019-10-17 08:44:25Su)5   3KJFZ 170835Z AUTO 32009G15KT 10SM OVC014 04/01 A2991 RMK AO2 T00350013KJFZ2019-10-17T08:35:00Z37.07-81.83.51.332091510.029.911417TRUETRUEMVFRMETAR809.02019-10-17 08:44:25Jt) 5    3KCHK 170835Z AUTO 17003KT 10SM CLR 06/04 A3005 RMK AO2 T00580038KCHK2019-10-17T08:35:00Z35.1-97.975.83.8170310.030.050198TRUETRUEVFRMETAR351.02019-10-17 08:44:25Is) 5    3K6R3 170835Z AUTO 34003KT 7SM CLR 12/12 A3007 RMK AO2 T01230123K6R32019-10-17T08:35:00Z30.35-95.012.312.334037.030.070866TRUETRUEVFRMETAR46.02019-10-17 08:44:25 *V]>z(y5    3KGVT 170835Z AUTO 00000KT 10SM CLR 08/08 A3010 RMK AO2KGVT2019-10-17T08:35:00Z33.07-96.078.08.00010.030.100393TRUETRUEVFRMETAR163.02019-10-17 08:44:25sy)I5     3KHMZ 170835Z AUTO 28019G31KT 10SM -SN SCT023 BKN032 OVC080 06/03 A2960 RMK AO2 P0003 T00570027KHMZ2019-10-17T08:35:00Z40.08-78.525.72.7280193110.029.601377TRUETRUE-SNVFR0.03METAR354.02019-10-17 08:44:25Nx)5    3KHQG 170835Z AUTO 18004KT 10SM CLR 04/M01 A2995 RMK AO2 T00381011KHQG2019-10-17T08:35:00Z37.17-101.373.8-1.1180410.029.949802TRUETRUEVFRMETAR956.02019-10-17 08:44:25Pw)5    3KHSG 170835Z AUTO 23005KT 10SM CLR 12/M07 A2983 RMK AO2 T01221067KHSG2019-10-17T08:35:00Z43.72-108.3812.2-6.7230510.029.828741TRUETRUEVFRMETAR1494.02019-10-17 08:44:25 2lL~) 5    3KEMK 170835Z AUTO 04023KT 10SM SCT022 OVC031 26/21 A2994 RMK A01KEMK2019-10-17T08:35:00Z27.82-94.3226.021.0402310.029.940945TRUETRUEVFRMETAR26.02019-10-17 08:44:25N})5    3KEIR 170835Z AUTO 05016KT 030V100 10SM OVC015 23/20 A2995 RMK A01KEIR2019-10-17T08:35:00Z28.63-91.4823.020.0501610.029.949802TRUETRUEMVFRSPECI28.02019-10-17 08:44:25@|(y5    3KEQA 170835Z AUTO 17007KT 10SM CLR 07/04 A3003 RMK AO2KEQA2019-10-17T08:35:00Z37.78-96.827.04.0170710.030.029528TRUETRUEVFRMETAR420.02019-10-17 08:44:25H{) 5    3KGLE 170835Z AUTO 00000KT 10SM CLR 08/06 A3011 RMK AO2 T00760056KGLE2019-10-17T08:35:00Z33.65-97.27.65.60010.030.109253TRUETRUEVFRMETAR256.02019-10-17 08:44:25 "OJ)5    3KGUL 170835Z AUTO 05019G25KT 10SM SCT021 BKN025 OVC049 A2992 RMK A01KGUL2019-10-17T08:35:00Z27.3-93.5350192510.029.920275TRUETRUEMVFRMETAR30.02019-10-17 08:44:25D(5    3KHHV 170835Z AUTO 06021KT 10SM SCT022 27/22 A2991 RMK A01KHHV2019-10-17T08:35:00Z26.93-94.6827.022.0602110.029.911417TRUETRUEVFRMETAR25.02019-10-17 08:44:25M) 5    3KHQI 170835Z AUTO 04020KT 10SM SCT022 OVC030 24/20 A2994 RMK A01KHQI2019-10-17T08:35:00Z27.93-93.6724.020.0402010.029.940945TRUETRUEMVFRMETAR26.02019-10-17 08:44:25X)!5   3KIKT 170835Z AUTO 04018G24KT 10SM FEW016 SCT022 BKN043 25/21 A2992 RMK A01KIKT2019-10-17T08:35:00Z28.52-88.2825.021.040182410.029.920275TRUETRUEVFRMETAR25.02019-10-17 08:44:25 &\R)5    3KVNW 170835Z AUTO 29007KT 10SM SCT034 BKN039 OVC047 07/04 A2993 RMK AO2KVNW2019-10-17T08:35:00Z40.87-84.627.04.0290710.029.929134TRUETRUEVFRSPECI239.02019-10-17 08:44:25=(y5    3KLVN 170835Z AUTO 00000KT 10SM CLR 02/02 A3002 RMK AO2KLVN2019-10-17T08:35:00Z44.63-93.232.02.00010.030.02067TRUETRUEVFRSPECI293.02019-10-17 08:44:25D(5   3KGBK 170835Z AUTO 04019G24KT 10SM CLR 27/23 A2990 RMK A01KGBK2019-10-17T08:35:00Z27.2-92.227.023.040192410.029.899607TRUETRUEVFRSPECI59.02019-10-17 08:44:25T)5    3KGHB 170835Z AUTO 06019KT 10SM FEW018 SCT023 BKN028 26/22 A2992 RMK A01KGHB2019-10-17T08:35:00Z27.83-91.9826.022.0601910.029.920275TRUETRUEMVFRSPECI30.02019-10-17 08:44:25 +aa )%5    3ETAD 170835Z AUTO 21012KT 9999 OVC009 13/12 A2990 RMK AO2 OVC V BKN SLP114 $ETAD2019-10-17T08:35:00Z49.986.713.012.0210126.2129.8996071011.4TRUETRUETRUEIFRSPECI365.02019-10-17 08:44:25? (y5    3KJNX 170835Z AUTO 21004KT 10SM CLR 07/06 A2980 RMK AO2KJNX2019-10-17T08:35:00Z35.53-78.387.06.0210410.029.799213TRUETRUEVFRSPECI50.02019-10-17 08:44:25D(5    3KMIS 170835Z AUTO 07020KT 10SM OVC021 22/18 A2995 RMK A01KMIS2019-10-17T08:35:00Z29.3-88.8522.018.0702010.029.949802TRUETRUEMVFRSPECI32.02019-10-17 08:44:25O)5    3KLNA 170835Z AUTO 26005KT 10SM CLR 25/24 A2989 RMK AO2 T02510240 PNOKLNA2019-10-17T08:35:00Z26.6-80.0225.124.0260510.029.890747TRUETRUEVFRMETAR11.02019-10-17 08:44:25 -@hK) 5    3KAID 170835Z AUTO 30008KT 10SM CLR 05/02 A2999 RMK AO2 T00500016KAID2019-10-17T08:35:00Z40.12-85.625.01.6300810.029.991142TRUETRUEVFRMETAR280.02019-10-17 08:44:25R )!5    3KSUW 170835Z AUTO 00000KT 10SM BKN034 OVC090 05/03 A3001 RMK AO2 T00450032KSUW2019-10-17T08:35:00Z46.68-92.14.53.20010.030.008858TRUETRUEVFRMETAR206.02019-10-17 08:44:25g );5   3KHVN 170835Z AUTO 28009G21KT 240V310 10SM SCT025 OVC033 12/08 A2914 RMK AO2 T01220078 $KHVN2019-10-17T08:35:00Z41.27-72.8712.27.828092110.029.140747TRUETRUETRUEVFRSPECI4.02019-10-17 08:44:25M )5    3KPLN 170835Z AUTO 33009KT 10SM SCT027 04/01 A2988 RMK AO2 T00440006KPLN2019-10-17T08:35:00Z45.57-84.84.40.6330910.029.878937TRUETRUEVFRSPECI217.02019-10-17 08:44:25 Qo?(y5    3KULM 170835Z AUTO 14004KT 10SM CLR 01/00 A3001 RMK AO2KULM2019-10-17T08:35:00Z44.32-94.51.00.0140410.030.008858TRUETRUEVFRSPECI308.02019-10-17 08:44:25\)/5    3KSJX 170835Z AUTO 35006KT 10SM SCT017 BKN026 OVC034 06/03 A2990 RMK AO2 T00610026KSJX2019-10-17T08:35:00Z45.7-85.576.12.6350610.029.899607TRUETRUEMVFRSPECI204.02019-10-17 08:44:25C(5    3KRZT 170835Z AUTO 29006KT 10SM OVC060 07/02 A2991 RMK AO2KRZT2019-10-17T08:35:00Z39.43-83.027.02.0290610.029.911417TRUETRUEVFRSPECI221.02019-10-17 08:44:25`))5      3KTZR 170835Z AUTO 29008KT 10SM OVC046 08/04 A2990 RMK AO2 T00750037 PWINO TSNOKTZR2019-10-17T08:35:00Z39.9-83.137.53.7290810.029.899607TRUETRUETRUETRUEVFRSPECI276.02019-10-17 08:44:25 9aK)5   3KPHN 170835Z AUTO 32013G21KT 10SM OVC028 07/01 A2975 RMK AO2KPHN2019-10-17T08:35:00Z42.92-82.527.01.0320132110.029.749016TRUETRUEMVFRSPECI198.02019-10-17 08:44:25>(y5    3KINF 170835Z AUTO 00000KT 10SM CLR 21/21 A2990 RMK AO2KINF2019-10-17T08:35:00Z28.8-82.3221.021.00010.029.899607TRUETRUEVFRMETAR15.02019-10-17 08:44:25R)5   3K22N 170835Z AUTO 26010G15KT 10SM BKN028 OVC034 10/06 A2938 RMK AO2K22N2019-10-17T08:35:00Z40.8-75.7710.06.0260101510.029.379921TRUETRUEMVFRSPECI163.02019-10-17 08:44:25A({5    3KVVV 170835Z AUTO 14006KT 10SM CLR 01/M01 A2994 RMK AO2KVVV2019-10-17T08:35:00Z45.3-96.421.0-1.0140610.029.940945TRUETRUEVFRSPECI335.02019-10-17 08:44:25 :iU)!5    3K1S5 170835Z AUTO 01004KT 10SM SCT070 OVC095 11/10 A2967 RMK AO2 T01130097K1S52019-10-17T08:35:00Z46.33-119.9711.39.710410.029.66929TRUETRUEVFRSPECI234.02019-10-17 08:44:25[))5   3KW13 170835Z AUTO 28007G16KT 230V330 10SM BKN048 09/01 A2968 RMK AO1 T00860006KW132019-10-17T08:35:00Z38.08-78.958.60.628071610.029.681103TRUETRUEVFRSPECI443.02019-10-17 08:44:25K) 5    3KW31 170835Z AUTO 27004KT 10SM CLR 08/03 A2970 RMK AO1 T00760027KW312019-10-17T08:35:00Z36.95-78.187.62.7270410.029.698818TRUETRUEVFRSPECI162.02019-10-17 08:44:25@(5    3KONA 170835Z AUTO 00000KT 10SM SCT080 05/02 A3004 RMK AO2KONA2019-10-17T08:35:00Z44.07-91.75.02.00010.030.041338TRUETRUEVFRSPECI200.02019-10-17 08:44:25 :fI) 5    3KGLW 170835Z AUTO 00000KT 10SM CLR 03/02 A3005 RMK AO2 T00250022KGLW2019-10-17T08:35:00Z37.03-85.952.52.20010.030.050198TRUETRUEVFRSPECI218.02019-10-17 08:44:25I) 5    3KSIF 170835Z AUTO 00000KT 10SM CLR 08/01 A2981 RMK AO2 T00800012KSIF2019-10-17T08:35:00Z36.43-79.858.01.20010.029.811024TRUETRUEVFRSPECI211.02019-10-17 08:44:25N)5    3KC62 170835Z AUTO 28004KT 10SM OVC048 06/03 A2993 RMK AO2 T00670040KC622019-10-17T08:35:00Z41.47-85.256.74.0280410.029.929134TRUETRUEVFRSPECI306.02019-10-17 08:44:25@(y5    3KLBO 170835Z AUTO 15003KT 10SM CLR 03/02 A3010 RMK AO2KLBO2019-10-17T08:35:00Z37.65-92.653.02.0150310.030.100393TRUETRUEVFRSPECI403.02019-10-17 08:44:25 Aze")55   3KGCD 170835Z AUTO 28015G19KT 10SM BKN075 BKN090 OVC110 12/04 A2975 RMK AO2 T01200042KGCD2019-10-17T08:35:00Z44.38-118.9712.04.2280151910.029.749016TRUETRUEVFRMETAR1127.02019-10-17 08:44:26?!(y5    3KGCY 170835Z AUTO 21003KT 10SM CLR 04/02 A2997 RMK A01KGCY2019-10-17T08:35:00Z36.2-82.824.02.0210310.029.970472TRUETRUEVFRSPECI490.02019-10-17 08:44:26A (y5    3KGIC 170835Z AUTO 12005KT 10SM CLR 08/01 A2969 RMK AO1KGIC2019-10-17T08:35:00Z45.95-116.128.01.0120510.029.68996TRUETRUEVFRMETAR1009.02019-10-17 08:44:259(y5    3KGKT 170835Z AUTO 00000KT 10SM CLR 05/04 A3000 RMK A01KGKT2019-10-17T08:35:00Z35.85-83.535.04.00010.030.0TRUETRUEVFRSPECI309.02019-10-17 08:44:25 .VzC&(5    3KFYM 170835Z AUTO 35004KT 10SM SCT027 06/04 A3003 RMK A01KFYM2019-10-17T08:35:00Z35.07-86.576.04.0350410.030.029528TRUETRUEVFRSPECI300.02019-10-17 08:44:26V%)5     3KFZG 170835Z AUTO 33006KT 10SM CLR 14/09 A2994 RMK AO2 T01350090 PWINOKFZG2019-10-17T08:35:00Z31.68-83.2713.59.0330610.029.940945TRUETRUETRUEVFRSPECI111.02019-10-17 08:44:26R$)5   3KGAO 170835Z AUTO 02008G14KT 10SM OVC016 18/15 A2998 RMK AO2 T01830145KGAO2019-10-17T08:35:00Z29.45-90.2718.314.52081410.029.97933TRUETRUEMVFRSPECI1.02019-10-17 08:44:26L#)5    3KGBG 170835Z AUTO 00000KT 10SM BKN110 02/01 A3007 RMK AO2 T00170011KGBG2019-10-17T08:35:00Z40.93-90.431.71.10010.030.070866TRUETRUEVFRSPECI233.02019-10-17 08:44:26 =sG+) 5    3KFKN 170835Z AUTO 26007KT 10SM CLR 08/03 A2971 RMK AO2 T00840033KFKN2019-10-17T08:35:00Z36.7-76.98.43.3260710.029.71063TRUETRUEVFRSPECI12.02019-10-17 08:44:26H*)5    3KFOT 170835Z AUTO 00000KT M1/4SM OVC002 11/11 A2994 RMK AO1KFOT2019-10-17T08:35:00Z40.55-124.1311.011.0000.2529.940945TRUETRUELIFRMETAR120.02019-10-17 08:44:26?)(y5    3KFRH 170835Z AUTO 25003KT 10SM CLR 02/01 A3004 RMK AO1KFRH2019-10-17T08:35:00Z38.5-86.632.01.0250310.030.041338TRUETRUEVFRSPECI241.02019-10-17 08:44:26D((5    3KFTN 170835Z AUTO 00000KT 10SM BKN100 17/15 A3006 RMK A01KFTN2019-10-17T08:35:00Z28.22-100.0217.015.00010.030.059055TRUETRUEVFRMETAR236.02019-10-17 08:44:26='(y5    3KFXY 170835Z AUTO 00000KT 10SM CLR 00/00 A3002 RMK AO2KFXY2019-10-17T08:35:00Z43.23-93.620.00.00010.030.02067TRUETRUEVFRSPECI375.02019-10-17 08:44:26 /R@/(y5    3KFCH 170835Z AUTO 30008KT 10SM CLR 16/08 A2985 RMK A01KFCH2019-10-17T08:35:00Z36.72-119.8216.08.0300810.029.84941TRUETRUEVFRMETAR85.02019-10-17 08:44:26K.) 5    3KFEP 170835Z AUTO 26004KT 10SM CLR 04/03 A3005 RMK AO2 T00350027KFEP2019-10-17T08:35:00Z42.25-89.583.52.7260410.030.050198TRUETRUEVFRSPECI262.02019-10-17 08:44:26W-)#5   3KFFA 170835Z AUTO 30012G22KT 260V330 10SM CLR 13/05 A2969 RMK AO2 T01250047KFFA2019-10-17T08:35:00Z36.02-75.6712.54.7300122210.029.68996TRUETRUEVFRSPECI4.02019-10-17 08:44:26K,) 5    3KFIN 170835Z AUTO 32005KT 10SM CLR 21/19 A2987 RMK AO2 T02060193KFIN2019-10-17T08:35:00Z29.47-81.220.619.3320510.029.870079TRUETRUEVFRSPECI10.02019-10-17 08:44:26 ;k>4(y5    3KEOK 170835Z AUTO 00000KT 10SM CLR 02/02 A3008 RMK AO2KEOK2019-10-17T08:35:00Z40.47-91.422.02.00010.030.079725TRUETRUEVFRSPECI205.02019-10-17 08:44:26K3) 5    3KEZZ 170835Z AUTO 13005KT 10SM CLR 04/03 A3006 RMK AO2 T00380026KEZZ2019-10-17T08:35:00Z39.72-94.283.82.6130510.030.059055TRUETRUEVFRSPECI317.02019-10-17 08:44:26>2(y5    3KF44 170835Z AUTO 00000KT 10SM CLR 09/08 A3007 RMK AO2KF442019-10-17T08:35:00Z32.17-95.839.08.00010.030.070866TRUETRUEVFRMETAR135.02019-10-17 08:44:26J1)5     3KF45 170835Z AUTO 23003KT 10SM CLR 23/23 A2989 RMK AO2 TSNOKF452019-10-17T08:35:00Z26.85-80.2223.023.0230310.029.890747TRUETRUETRUEVFRSPECI7.02019-10-17 08:44:26?0(y5    3KF70 170835Z AUTO 00000KT 10SM CLR 15/04 A2985 RMK AO1KF702019-10-17T08:35:00Z33.57-117.1315.04.00010.029.84941TRUETRUEVFRMETAR412.02019-10-17 08:44:26 3XA8(5    3KE16 170835Z AUTO 00000KT 10SM BKN042 12/09 A2993 RMK AO2KE162019-10-17T08:35:00Z37.08-121.612.09.00010.029.929134TRUETRUEVFRMETAR86.02019-10-17 08:44:26M7) 5    3KE38 170835Z AUTO 21006KT 10SM CLR 08/06 A3019 RMK AO2 T00760055KE382019-10-17T08:35:00Z30.38-103.687.65.5210610.030.188976TRUETRUEVFRMETAR1376.02019-10-17 08:44:26U6)!5    3KEGV 170835Z AUTO 30003KT 10SM SCT030 OVC110 03/03 A2996 RMK AO2 T00330033KEGV2019-10-17T08:35:00Z45.93-89.273.33.3300310.029.958662TRUETRUEVFRSPECI500.02019-10-17 08:44:26G5({5    3KEKS 170835Z AUTO 18017KT 10SM CLR 14/M10 A2981 RMK AO2KEKS2019-10-17T08:35:00Z45.27-111.6514.0-10.01801710.029.811024TRUETRUEVFRMETAR1641.02019-10-17 08:44:26 0jJ<) 5    3KDCY 170835Z AUTO 27005KT 10SM CLR 04/02 A3005 RMK AO2 T00360019KDCY2019-10-17T08:35:00Z38.7-87.133.61.9270510.030.050198TRUETRUEVFRSPECI144.02019-10-17 08:44:26I;) 5    3KDKB 170835Z AUTO 29006KT 10SM CLR 04/03 A3002 RMK AO2 T00410025KDKB2019-10-17T08:35:00Z41.93-88.74.12.5290610.030.02067TRUETRUEVFRMETAR279.02019-10-17 08:44:26@:(y5    3KDKX 170835Z AUTO 13003KT 10SM CLR 05/05 A3001 RMK A01KDKX2019-10-17T08:35:00Z35.97-83.875.05.0130310.030.008858TRUETRUEVFRSPECI254.02019-10-17 08:44:26J9) 5    3KDVO 170835Z AUTO 00000KT 10SM FEW018 FEW034 15/14 A2988 RMK AO2KDVO2019-10-17T08:35:00Z38.15-122.5515.014.00010.029.878937TRUETRUEVFRMETAR1.02019-10-17 08:44:26 4m=A(y5    3KGOP 170835Z AUTO 00000KT 10SM CLR 08/06 A3011 RMK AO2KGOP2019-10-17T08:35:00Z31.42-97.88.06.00010.030.109253TRUETRUEVFRMETAR276.02019-10-17 08:44:26F@) 5    3KGYY 170835Z AUTO 27005KT 10SM CLR 06/03 A3000 RMK AO2 T00620025KGYY2019-10-17T08:35:00Z41.62-87.426.22.5270510.030.0TRUETRUEVFRSPECI180.02019-10-17 08:44:26A?(}5     3KGZL 170835Z AUTO 00000KT 5SM BR CLR 04/04 A3011 RMK AO2KGZL2019-10-17T08:35:00Z35.28-95.14.04.0005.030.109253TRUETRUEBRMVFRSPECI183.02019-10-17 08:44:26A>(5    3KGZS 170835Z AUTO 00000KT 10SM BKN031 05/04 A3005 RMK A01KGZS2019-10-17T08:35:00Z35.15-87.055.04.00010.030.050198TRUETRUEVFRSPECI209.02019-10-17 08:44:26F=)5     3KCXW 170835Z AUTO 00000KT 1 3/4SM BR CLR 07/07 A3011 RMK A01KCXW2019-10-17T08:35:00Z35.02-92.557.07.0001.7530.109253TRUETRUEBRIFRSPECI84.02019-10-17 08:44:26 <nBE({5    3KAZC 170835Z AUTO 00000KT 10SM CLR 07/M05 A3003 RMK AO2KAZC2019-10-17T08:35:00Z36.97-113.027.0-5.00010.030.029528TRUETRUEVFRMETAR1486.02019-10-17 08:44:26?D(y5    3KBBD 170835Z AUTO 00000KT 10SM CLR 10/03 A3009 RMK AO2KBBD2019-10-17T08:35:00Z31.18-99.3210.03.00010.030.088583TRUETRUEVFRMETAR557.02019-10-17 08:44:26HC)5   3KBDG 170835Z AUTO 01006KT 10SM 10/M13 A3016 RMK AO1 T00971130KBDG2019-10-17T08:35:00Z37.58-109.479.7-13.010610.030.159449TRUETRUEMETAR1788.02019-10-17 08:44:26>B(y5    3KBGF 170835Z AUTO 00000KT 10SM CLR 05/03 A3003 RMK A01KBGF2019-10-17T08:35:00Z35.18-86.075.03.00010.030.029528TRUETRUEVFRSPECI299.02019-10-17 08:44:26 'cRI)5   3KAUN 170835Z AUTO 14007G13KT 10SM BKN046 BKN055 14/08 A2987 RMK A01KAUN2019-10-17T08:35:00Z38.95-121.0814.08.014071310.029.870079TRUETRUEVFRMETAR467.02019-10-17 08:44:26CH(5    3KAVK 170835Z AUTO 18007KT 10SM FEW050 07/03 A3001 RMK AO2KAVK2019-10-17T08:35:00Z36.77-98.677.03.0180710.030.008858TRUETRUEVFRSPECI449.02019-10-17 08:44:26>G(w5    3KAWG 170835Z AUTO 25003KT 9SM CLR 01/01 A3005 RMK AO2KAWG2019-10-17T08:35:00Z41.27-91.671.01.025039.030.050198TRUETRUEVFRSPECI230.02019-10-17 08:44:26SF)5     3KAYS 170835Z AUTO 33004KT 10SM CLR 13/10 A2992 RMK AO2 T01310099 TSNOKAYS2019-10-17T08:35:00Z31.25-82.413.19.9330410.029.920275TRUETRUETRUEVFRSPECI46.02019-10-17 08:44:26 0|IM) 5    3KANW 170835Z AUTO 00000KT 10SM CLR 04/00 A2987 RMK AO2 T00380000KANW2019-10-17T08:35:00Z42.57-100.03.80.00010.029.870079TRUETRUEVFRSPECI789.02019-10-17 08:44:26KL) 5    3KAPS 170835Z AUTO 08010KT 10SM CLR 16/11 A3001 RMK AO2 T01600107KAPS2019-10-17T08:35:00Z30.08-90.5816.010.7801010.030.008858TRUETRUEVFRSPECI2.02019-10-17 08:44:26.K(m5    3KAQR 170835Z AUTO 00000KT 10SM CLR 05/05 RMK AO2KAQR2019-10-17T08:35:00Z34.4-96.155.05.00010.0TRUETRUEVFRSPECI189.02019-10-17 08:44:26JJ) 5    3KAUH 170835Z AUTO 17006KT 10SM CLR 06/03 A2992 RMK AO2 T00560026KAUH2019-10-17T08:35:00Z40.88-98.05.62.6170610.029.920275TRUETRUEVFRSPECI550.02019-10-17 08:44:26 &Q|KQ)5    3KFFX 170835Z AUTO 00000KT 10SM OVC031 04/04 A2991 RMK AO2 T00390035KFFX2019-10-17T08:35:00Z43.43-86.03.93.50010.029.911417TRUETRUEVFRSPECI236.02019-10-17 08:44:26OP)5    3KEIK 170835Z AUTO 21004KT 10SM CLR 03/M04 A3003 RMK AO2 T00321045KEIK2019-10-17T08:35:00Z40.02-105.053.2-4.5210410.030.029528TRUETRUEVFRSPECI1564.02019-10-17 08:44:26OO)5    3KDYT 170835Z AUTO 00000KT 10SM BKN034 BKN055 OVC095 06/03 A3002 RMK AO2KDYT2019-10-17T08:35:00Z46.72-92.036.03.00010.030.02067TRUETRUEVFRSPECI186.02019-10-17 08:44:26TN)5   3PAAD 170835Z AUTO 10025G29KT 10SM CLR M02/M04 A2945 RMK AO2 T10221040PAAD2019-10-17T08:35:00Z70.13-146.28-2.2-4.0100252910.029.450787TRUETRUEVFRSPECI8.02019-10-17 08:44:26 &`MU)5    3KAIG 170835Z AUTO 31004KT 10SM OVC120 04/03 A2998 RMK AO2 T00350026KAIG2019-10-17T08:35:00Z45.15-89.123.52.6310410.029.97933TRUETRUEVFRSPECI464.02019-10-17 08:44:26Y(y5    3KAAS 170835Z AUTO 00000KT 10SM CLR 03/02 A3008 RMK AO1KAAS2019-10-17T08:35:00Z37.35-85.323.02.00010.030.079725TRUETRUEVFRSPECI281.02019-10-17 08:44:26JX) 5    3KADS 170835Z AUTO 00000KT 10SM CLR 11/05 A3012 RMK AO2 T01140052KADS2019-10-17T08:35:00Z32.97-96.8211.45.20010.030.121063TRUETRUEVFRMETAR196.02019-10-17 08:44:26NW)5    3KAEJ 170835Z AUTO 00000KT 10SM CLR 01/M14 A3022 RMK AO2 T00131143KAEJ2019-10-17T08:35:00Z38.82-106.121.3-14.30010.030.221457TRUETRUEVFRMETAR2422.02019-10-17 08:44:26MV)5    3KAHQ 170835Z AUTO 14004KT 10SM SCT110 03/02 A2997 RMK AO2 T00250016KAHQ2019-10-17T08:35:00Z41.23-96.62.51.6140410.029.970472TRUETRUEVFRSPECI374.02019-10-17 08:44:26 3`B]({5    3K6S5 170835Z AUTO 00000KT 10SM CLR 09/M04 A2963 RMK AO2K6S52019-10-17T08:35:00Z46.25-114.139.0-4.00010.029.630905TRUETRUEVFRMETAR1110.02019-10-17 08:44:26=\(y5    3K8A3 170835Z AUTO 00000KT 10SM CLR 05/02 A3002 RMK A01K8A32019-10-17T08:35:00Z36.42-85.325.02.00010.030.02067TRUETRUEVFRSPECI419.02019-10-17 08:44:26M[)5    3K8W2 170835Z AUTO 27005KT 10SM OVC046 10/01 A2967 RMK AO1 T01010010K8W22019-10-17T08:35:00Z38.65-78.710.11.0270510.029.66929TRUETRUEVFRSPECI297.02019-10-17 08:44:26GZ) 5    3KA08 170835Z AUTO 00000KT 10SM CLR 07/07 A3002 RMK AO2 T00700066KA082019-10-17T08:35:00Z32.52-87.387.06.60010.030.02067TRUETRUEVFRSPECI69.02019-10-17 08:44:26 6eLb) 5    3K5T9 170835Z AUTO 00000KT 10SM SCT043 OVC085 17/14 A3008 RMK A01K5T92019-10-17T08:35:00Z28.85-100.5217.014.00010.030.079725TRUETRUEVFRMETAR270.02019-10-17 08:44:26Aa(5    3K65S 170835Z AUTO 00000KT 10SM OVC060 06/05 A2966 RMK AO2K65S2019-10-17T08:35:00Z48.73-116.36.05.00010.029.660433TRUETRUEVFRMETAR713.02019-10-17 08:44:26.`(g5   3K6I2 170835Z AUTO 00000KT 04/04 A3003 RMK AO2K6I22019-10-17T08:35:00Z37.63-85.254.04.00030.029528TRUETRUESPECI264.02019-10-17 08:44:26K_) 5    3K6P9 170835Z AUTO 19004KT 10SM CLR 11/03 A3010 RMK AO2 T01110027K6P92019-10-17T08:35:00Z32.43-98.611.12.7190410.030.100393TRUETRUEVFRMETAR449.02019-10-17 08:44:26D^({5    3K6S0 170835Z AUTO 18005KT 10SM CLR 10/M07 A2975 RMK A01K6S02019-10-17T08:35:00Z45.8-109.9710.0-7.0180510.029.749016TRUETRUEVFRMETAR1363.02019-10-17 08:44:26 9gIf) 5    3K4A9 170835Z AUTO 00000KT 10SM CLR 05/04 A3001 RMK AO2 T00500041K4A92019-10-17T08:35:00Z34.47-85.725.04.10010.030.008858TRUETRUEVFRSPECI267.02019-10-17 08:44:26Le) 5    3K54A 170835Z AUTO 01004KT 10SM SCT020 BKN030 25/24 A2988 RMK AO2K54A2019-10-17T08:35:00Z26.85-82.2525.024.010410.029.878937TRUETRUEMVFRMETAR14.02019-10-17 08:44:26Ld) 5    3K54J 170835Z AUTO 32003KT 10SM CLR 13/12 A2999 RMK AO2 T01270115K54J2019-10-17T08:35:00Z30.73-86.1512.711.5320310.029.991142TRUETRUEVFRSPECI88.02019-10-17 08:44:26Ac(5    3K5C1 170835Z AUTO 00000KT 10SM SCT095 11/06 A3008 RMK AO1K5C12019-10-17T08:35:00Z29.72-98.711.06.00010.030.079725TRUETRUEVFRMETAR423.02019-10-17 08:44:26 /_Jj) 5    3K3S8 170835Z AUTO 00000KT 10SM BKN041 BKN050 11/10 A2990 RMK AO2K3S82019-10-17T08:35:00Z42.5-123.411.010.00010.029.899607TRUETRUEVFRMETAR343.02019-10-17 08:44:26Ki) 5    3K40J 170835Z AUTO 01005KT 10SM CLR 18/15 A2994 RMK AO2 T01760147K40J2019-10-17T08:35:00Z30.07-83.5717.614.710510.029.940945TRUETRUEVFRSPECI13.02019-10-17 08:44:26Jh)5   3K46U 170835Z AUTO 13004G11KT 10SM CLR 03/M05 A2997 RMK A01K46U2019-10-17T08:35:00Z43.18-111.053.0-5.013041110.029.970472TRUETRUEVFRMETAR1717.02019-10-17 08:44:26Kg) 5    3K48A 170835Z AUTO 30008KT 10SM CLR 11/08 A2992 RMK AO2 T01080078K48A2019-10-17T08:35:00Z32.4-83.2710.87.8300810.029.920275TRUETRUEVFRSPECI115.02019-10-17 08:44:26 2xCo(5    3K33N 170835Z AUTO 25011KT 10SM BKN060 11/06 A2949 RMK A01K33N2019-10-17T08:35:00Z39.22-75.611.06.02501110.029.489174TRUETRUEVFRSPECI17.02019-10-17 08:44:26@n(y5    3K3AU 170835Z AUTO 17008KT 10SM CLR 06/03 A3003 RMK AO2K3AU2019-10-17T08:35:00Z37.67-97.086.03.0170810.030.029528TRUETRUEVFRSPECI405.02019-10-17 08:44:26Hm) 5    3K3F3 170835Z AUTO 00000KT 10SM CLR 08/07 A3011 RMK AO2 T00770073K3F32019-10-17T08:35:00Z32.07-93.777.77.30010.030.109253TRUETRUEVFRSPECI96.02019-10-17 08:44:264l(q5   3K3K8 170835Z AUTO 15007KT 10SM 06/00 A3000 RMK AO2K3K82019-10-17T08:35:00Z37.22-99.336.00.0150710.030.0TRUETRUESPECI636.02019-10-17 08:44:26Hk) 5    3K3R7 170835Z AUTO 06006KT 10SM CLR 13/10 A3002 RMK AO2 T01250098K3R72019-10-17T08:35:00Z30.25-92.6712.59.860610.030.02067TRUETRUEVFRSPECI7.02019-10-17 08:44:26 /`>s(y5    3K2A0 170835Z AUTO 00000KT 10SM CLR 05/03 A3001 RMK A01K2A02019-10-17T08:35:00Z35.48-84.935.03.00010.030.008858TRUETRUEVFRSPECI219.02019-10-17 08:44:26Ar(}5     3K2G9 170835Z AUTO 28021G32KT 7SM DZ OVC012 A2962 RMK AO2K2G92019-10-17T08:35:00Z40.03-79.0228021327.029.619095TRUETRUEDZMVFRSPECI693.02019-10-17 08:44:26Iq)5   3K2LS 170835Z AUTO 03005G10KT 10SM OVC015 18/15 A2999 RMK AO2K2LS2019-10-17T08:35:00Z29.42-90.318.015.03051010.029.991142TRUETRUEMVFRMETAR-2.02019-10-17 08:44:26Kp) 5    3K2M2 170835Z AUTO 35003KT 10SM FEW029 FEW035 05/03 A3005 RMK A01K2M22019-10-17T08:35:00Z35.23-87.255.03.0350310.030.050198TRUETRUEVFRSPECI286.02019-10-17 08:44:26 8Ix) 5    3K1A6 170835Z AUTO 00000KT 10SM CLR 05/02 A3001 RMK AO2 T00450024K1A62019-10-17T08:35:00Z36.62-83.734.52.40010.030.008858TRUETRUEVFRSPECI352.02019-10-17 08:44:26Jw) 5    3K1H2 170835Z AUTO 00000KT 10SM CLR 02/00 A3008 RMK AO2 T00221005K1H22019-10-17T08:35:00Z39.07-88.532.2-0.50010.030.079725TRUETRUEVFRSPECI179.02019-10-17 08:44:26@v(5    3K1M5 170835Z AUTO 00000KT 10SM FEW036 04/04 A3005 RMK A01K1M52019-10-17T08:35:00Z36.6-86.484.04.00010.030.050198TRUETRUEVFRSPECI250.02019-10-17 08:44:261u(g5    3K1R7 170835Z AUTO 7SM CLR 08/08 A3004 RMK AO2K1R72019-10-17T08:35:00Z31.6-90.428.08.07.030.041338TRUETRUEVFRSPECI149.02019-10-17 08:44:26Bt({5    3K1U7 170835Z AUTO 00000KT 10SM CLR 01/M04 A2993 RMK A01K1U72019-10-17T08:35:00Z42.25-111.331.0-4.00010.029.929134TRUETRUEVFRMETAR1807.02019-10-17 08:44:26 >wE|({5    3K05U 170835Z AUTO 16010KT 10SM CLR 13/M10 A2992 RMK A01K05U2019-10-17T08:35:00Z39.6-116.013.0-10.01601010.029.920275TRUETRUEVFRMETAR1816.02019-10-17 08:44:26F{)5    3K06C 170835Z AUTO 00000KT 10SM SCT120 05/03 A3000 RMK AO2 T00460026K06C2019-10-17T08:35:00Z41.98-88.14.62.60010.030.0TRUETRUEVFRSPECI244.02019-10-17 08:44:26Az(5    3K0A9 170835Z AUTO 00000KT 10SM BKN040 05/02 A2995 RMK AO2K0A92019-10-17T08:35:00Z36.37-82.175.02.00010.029.949802TRUETRUEVFRSPECI486.02019-10-17 08:44:26(u5    3KCLS 170835Z AUTO 19004KT 4SM BR 11/10 A2973 RMK AO2KCLS2019-10-17T08:35:00Z46.68-122.9811.010.019044.029.731298TRUETRUEBRMETAR54.02019-10-17 08:44:26F) 5    3KCPK 170835Z AUTO 00000KT 10SM CLR 07/05 A2969 RMK AO2 T00720045KCPK2019-10-17T08:35:00Z36.67-76.327.24.50010.029.68996TRUETRUEVFRSPECI6.02019-10-17 08:44:26 ,Q= (y5    3KC65 170835Z AUTO VRB06KT 10SM CLR 05/03 A2996 RMK A01KC652019-10-17T08:35:00Z41.37-86.35.03.00610.029.958662TRUETRUEVFRSPECI244.02019-10-17 08:44:26I ) 5    3KC75 170835Z AUTO 00000KT 10SM CLR 05/02 A3005 RMK AO2 T00450023KC752019-10-17T08:35:00Z41.02-89.384.52.30010.030.050198TRUETRUEVFRSPECI173.02019-10-17 08:44:26U )5    3KC83 170835Z AUTO 24014KT 10SM SCT026 SCT032 SCT038 17/12 A2988 RMK AO2KC832019-10-17T08:35:00Z37.83-121.6217.012.02401410.029.878937TRUETRUEVFRMETAR24.02019-10-17 08:44:26N )5     3KCBK 170835Z AUTO 25006KT 10SM CLR 05/M03 A2991 RMK AO2 PWINOKCBK2019-10-17T08:35:00Z39.43-101.055.0-3.0250610.029.911417TRUETRUETRUEVFRSPECI971.02019-10-17 08:44:26 0WA(y5    3KBOW 170835Z AUTO 32003KT 10SM CLR 24/23 A2988 RMK AO2KBOW2019-10-17T08:35:00Z27.93-81.7724.023.0320310.029.878937TRUETRUEVFRSPECI39.02019-10-17 08:44:26K) 5    3KBVN 170835Z AUTO 12004KT 10SM CLR 03/01 A2992 RMK AO2 T00340013KBVN2019-10-17T08:35:00Z41.73-98.053.41.3120410.029.920275TRUETRUEVFRSPECI551.02019-10-17 08:44:26S)5    3KBVS 170835Z AUTO 00000KT 10SM BKN019 BKN023 OVC060 11/10 A2966 RMK A01KBVS2019-10-17T08:35:00Z48.47-122.4211.010.00010.029.660433TRUETRUEMVFRMETAR43.02019-10-17 08:44:26J ) 5    3KC09 170835Z AUTO 29006KT 10SM CLR 04/03 A3002 RMK AO2 T00400030KC092019-10-17T08:35:00Z41.43-88.424.03.0290610.030.02067TRUETRUEVFRSPECI178.02019-10-17 08:44:26 'SK) 5    3KBIE 170835Z AUTO 14007KT 10SM CLR 08/03 A2997 RMK AO2 T00750031KBIE2019-10-17T08:35:00Z40.28-96.757.53.1140710.029.970472TRUETRUEVFRSPECI403.02019-10-17 08:44:26=({5    3KBKD 170835Z AUTO 7SM CLR 10/03 A3009 RMK AO2 T01000030KBKD2019-10-17T08:35:00Z32.72-98.8810.03.07.030.088583TRUETRUEVFRMETAR392.02019-10-17 08:44:26N)5    3KBKS 170835Z AUTO 33006KT 10SM OVC018 20/10 A3003 RMK AO1 T01950098KBKS2019-10-17T08:35:00Z27.2-98.1219.59.8330610.030.029528TRUETRUEMVFRMETAR34.02019-10-17 08:44:26S)5     3KBMT 170835Z AUTO 03005KT 10SM CLR 14/11 A3002 RMK AO2 T01410111 TSNOKBMT2019-10-17T08:35:00Z30.07-94.2214.111.130510.030.02067TRUETRUETRUEVFRMETAR10.02019-10-17 08:44:26 ;jI) 5    3KHJH 170835Z AUTO 00000KT 10SM CLR 05/02 A2995 RMK AO2 T00450020KHJH2019-10-17T08:35:00Z40.15-97.584.52.00010.029.949802TRUETRUEVFRSPECI447.02019-10-17 08:44:26K) 5    3KHMP 170835Z AUTO 32005KT 10SM CLR 08/05 A2997 RMK AO2 T00850050KHMP2019-10-17T08:35:00Z33.38-84.338.55.0320510.029.970472TRUETRUEVFRSPECI269.02019-10-17 08:44:26K) 5    3KHDE 170835Z AUTO 17004KT 10SM CLR 04/01 A2990 RMK AO2 T00400010KHDE2019-10-17T08:35:00Z40.45-99.324.01.0170410.029.899607TRUETRUEVFRSPECI705.02019-10-17 08:44:26?(y5    3KBHC 170835Z AUTO 33004KT 10SM CLR 12/08 A2991 RMK AO2KBHC2019-10-17T08:35:00Z31.72-82.412.08.0330410.029.911417TRUETRUEVFRSPECI61.02019-10-17 08:44:26 /}O)5    3KIBM 170835Z AUTO 26004KT 10SM CLR 03/M04 A2994 RMK AO2 T00301042KIBM2019-10-17T08:35:00Z41.18-103.683.0-4.2260410.029.940945TRUETRUEVFRSPECI1501.02019-10-17 08:44:26L) 5    3KIFA 170835Z AUTO 11003KT 10SM CLR 02/00 A3005 RMK AO2 T00201001KIFA2019-10-17T08:35:00Z42.47-93.272.0-0.1110310.030.050198TRUETRUEVFRSPECI347.02019-10-17 08:44:26,(e5   3KHOE 170835Z 33006KT CLR 13/10 A2991 RMK AO2KHOE2019-10-17T08:35:00Z31.05-82.7813.010.0330629.911417TRUESPECI57.02019-10-17 08:44:26K) 5    3KHHG 170835Z AUTO 28006KT 10SM CLR 05/02 A2996 RMK AO2 T00500021KHHG2019-10-17T08:35:00Z40.85-85.455.02.1280610.029.958662TRUETRUEVFRSPECI246.02019-10-17 08:44:26 +Pv@ (y5    3KHSD 170835Z AUTO 17006KT 10SM CLR 10/03 A3006 RMK A01KHSD2019-10-17T08:35:00Z35.6-97.7210.03.0170610.030.059055TRUETRUEVFRSPECI364.02019-10-17 08:44:26T)5   3KHSP 170835Z AUTO 29025G36KT 10SM OVC007 02/02 A2969 RMK AO2 T00170017KHSP2019-10-17T08:35:00Z37.95-79.821.71.7290253610.029.68996TRUETRUEIFRSPECI1156.02019-10-17 08:44:26U)5   3KHTO 170835Z AUTO 28014G30KT 10SM OVC026 12/07 A2912 RMK AO2 T01150070KHTO2019-10-17T08:35:00Z40.95-72.2511.57.0280143010.029.120079TRUETRUEMVFRSPECI17.02019-10-17 08:44:26O)5    3KHWY 170835Z AUTO 20006KT 10SM OVC065 12/01 A2961 RMK AO2 T01200006KHWY2019-10-17T08:35:00Z38.58-77.7212.00.6200610.029.610237TRUETRUEVFRSPECI103.02019-10-17 08:44:26 1b=$(y5    3KBBP 170835Z AUTO 00000KT 10SM CLR 07/06 A2986 RMK AO2KBBP2019-10-17T08:35:00Z34.62-79.737.06.00010.029.861221TRUETRUEVFRSPECI45.02019-10-17 08:44:26@#(y5    3KIFP 170835Z AUTO 00000KT 10SM CLR 21/05 A2974 RMK AO2KIFP2019-10-17T08:35:00Z35.15-114.5721.05.00010.029.740158TRUETRUEVFRMETAR212.02019-10-17 08:44:26I") 5    3KIIB 170835Z AUTO 00000KT 10SM CLR 01/01 A3005 RMK AO2 T00140010KIIB2019-10-17T08:35:00Z42.45-91.951.41.00010.030.050198TRUETRUEVFRSPECI298.02019-10-17 08:44:26I!) 5    3KIJX 170835Z AUTO 00000KT 10SM CLR 02/01 A3008 RMK AO2 T00170014KIJX2019-10-17T08:35:00Z39.77-90.251.71.40010.030.079725TRUETRUEVFRSPECI190.02019-10-17 08:44:26 6f_()15   3KHZL 170835Z AUTO 27007G18KT 230V350 10SM BKN012 BKN019 OVC039 07/03 A2939 RMK AO2KHZL2019-10-17T08:35:00Z40.98-76.07.03.027071810.029.388779TRUETRUEMVFRSPECI489.02019-10-17 08:44:26M')5    3KHAI 170835Z AUTO 30004KT 10SM BKN048 07/04 A2993 RMK AO2 T00660040KHAI2019-10-17T08:35:00Z41.97-85.66.64.0300410.029.929134TRUETRUEVFRSPECI251.02019-10-17 08:44:26J&) 5    3KHBI 170835Z AUTO 22006KT 10SM CLR 08/02 A2986 RMK AO2 T00800020KHBI2019-10-17T08:35:00Z35.65-79.98.02.0220610.029.861221TRUETRUEVFRSPECI205.02019-10-17 08:44:26D%) 5    3KMCX 170835Z AUTO 00000KT 10SM CLR 02/01 A3000 RMK AO2 T00230007KMCX2019-10-17T08:35:00Z40.72-86.772.30.70010.030.0TRUETRUEVFRSPECI206.02019-10-17 08:44:26 ?xO,)5    3KLAM 170835Z AUTO 00000KT 10SM CLR 11/M12 A3021 RMK AO2 T01101117KLAM2019-10-17T08:35:00Z35.87-106.2711.0-11.70010.030.209646TRUETRUEVFRMETAR2179.02019-10-17 08:44:26K+) 5    3KLCG 170835Z AUTO 17004KT 10SM CLR 03/01 A2994 RMK AO2 T00250006KLCG2019-10-17T08:35:00Z42.25-96.982.50.6170410.029.940945TRUETRUEVFRSPECI436.02019-10-17 08:44:26A*(y5    3KLCQ 170835Z AUTO 36007KT 10SM CLR 16/12 A2992 RMK AO2KLCQ2019-10-17T08:35:00Z30.18-82.5816.012.0360710.029.920275TRUETRUEVFRSPECI61.02019-10-17 08:44:26;)(s5   3KJKJ 170835Z AUTO 14004KT 10SM 02/M01 A2996 RMK AO2KJKJ2019-10-17T08:35:00Z46.83-96.672.0-1.0140410.029.958662TRUETRUESPECI280.02019-10-17 08:44:26  8q ;1(y5    3KIOB 170835Z AUTO 28004KT 10SM CLR 03/02 A3000 RMK AO2KIOB2019-10-17T08:35:00Z38.05-83.983.02.0280410.030.0TRUETRUEVFRSPECI311.02019-10-17 08:44:26>0(y5    3KJAU 170835Z AUTO 00000KT 10SM CLR 06/02 A3004 RMK A01KJAU2019-10-17T08:35:00Z36.33-84.176.02.00010.030.041338TRUETRUEVFRSPECI360.02019-10-17 08:44:26F/({5    3KJTC 170835Z AUTO 20010KT 10SM CLR 11/M03 A3019 RMK AO2KJTC2019-10-17T08:35:00Z34.13-109.3211.0-3.02001010.030.188976TRUETRUEVFRMETAR2150.02019-10-17 08:44:26A.(}5     3KJWN 170835Z AUTO 00000KT 6SM BR CLR 05/04 A3005 RMK A01KJWN2019-10-17T08:35:00Z36.18-86.885.04.0006.030.050198TRUETRUEBRVFRSPECI151.02019-10-17 08:44:26B-({5    3KKNB 170835Z AUTO 00000KT 10SM CLR 08/M08 A3005 RMK A01KKNB2019-10-17T08:35:00Z37.02-112.538.0-8.00010.030.050198TRUETRUEVFRMETAR1484.02019-10-17 08:44:26 8j\5)'5   3KLNN 170835Z AUTO 33018G27KT 10SM BKN028 OVC035 09/02 A2972 RMK AO1 T00870016KLNN2019-10-17T08:35:00Z41.67-81.378.71.6330182710.029.719488TRUETRUEMVFRSPECI191.02019-10-17 08:44:26a4)75   3KLOM 170835Z AUTO 26009G15KT 230V290 10SM BKN041 OVC050 11/05 A2940 RMK AO2 T01080052KLOM2019-10-17T08:35:00Z40.13-75.2710.85.226091510.029.40059TRUETRUEVFRSPECI92.02019-10-17 08:44:26H3) 5    3KLOT 170835Z AUTO 30007KT 10SM CLR 04/03 A3002 RMK AO2 T00410025KLOT2019-10-17T08:35:00Z41.6-88.14.12.5300710.030.02067TRUETRUEVFRSPECI205.02019-10-17 08:44:26B2(}5     3KIMM 170835Z AUTO 00000KT 4SM BR CLR 23/22 A2989 RMK AO2KIMM2019-10-17T08:35:00Z26.43-81.423.022.0004.029.890747TRUETRUEBRMVFRSPECI12.02019-10-17 08:44:26 /i>:(y5    3KM02 170835Z AUTO 00000KT 10SM CLR 04/03 A3006 RMK A01KM022019-10-17T08:35:00Z36.13-87.434.03.00010.030.059055TRUETRUEVFRSPECI272.02019-10-17 08:44:26>9(y5    3KM08 170835Z AUTO 00000KT 10SM CLR 04/03 A3007 RMK A01KM082019-10-17T08:35:00Z35.22-89.054.03.00010.030.070866TRUETRUEVFRSPECI152.02019-10-17 08:44:26A8(5    3KM54 170835Z AUTO 00000KT 10SM BKN034 04/03 A3004 RMK A01KM542019-10-17T08:35:00Z36.18-86.324.03.00010.030.041338TRUETRUEVFRSPECI180.02019-10-17 08:44:26@7(5    3KLUG 170835Z AUTO 00000KT 10SM BKN031 03/02 A3005 RMK A01KLUG2019-10-17T08:35:00Z35.52-86.83.02.00010.030.050198TRUETRUEVFRSPECI219.02019-10-17 08:44:26K6)5    3KLUM 170835Z AUTO 00000KT 10SM OVC037 04/02 A3003 RMK AO2 T00360018KLUM2019-10-17T08:35:00Z44.9-91.873.61.80010.030.029528TRUETRUEVFRSPECI273.02019-10-17 08:44:26 'MN>)5    3KOEB 170835Z AUTO 29005KT 10SM BKN042 06/03 A2991 RMK AO2 T00550026KOEB2019-10-17T08:35:00Z41.92-85.035.52.6290510.029.911417TRUETRUEVFRSPECI292.02019-10-17 08:44:26@=(y5    3KOJA 170835Z AUTO 20004KT 10SM CLR 09/01 A3006 RMK AO2KOJA2019-10-17T08:35:00Z35.55-98.679.01.0200410.030.059055TRUETRUEVFRSPECI490.02019-10-17 08:44:26T<)5   3KONZ 170835Z AUTO 32013G22KT 10SM OVC029 08/03 A2980 RMK AO2 T00780025KONZ2019-10-17T08:35:00Z42.1-83.157.82.5320132210.029.799213TRUETRUEMVFRSPECI180.02019-10-17 08:44:26S;)5     3KOWP 170835Z AUTO 16003KT 2SM CLR 08/06 A3010 RMK AO2 T00800058 PWINOKOWP2019-10-17T08:35:00Z36.18-96.158.05.816032.030.100393TRUETRUETRUEIFRSPECI272.02019-10-17 08:44:26 6pHB) 5     3KMNE 170835Z AUTO M1/4SM FG OVC002 09/08 A3009 RMK AO2 T00850081KMNE2019-10-17T08:35:00Z32.65-93.38.58.10.2530.088583TRUETRUEFGLIFRSPECI85.02019-10-17 08:44:26KA) 5    3KMNZ 170835Z AUTO 20004KT 10SM CLR 10/03 A3011 RMK AO2 T00980030KMNZ2019-10-17T08:35:00Z31.67-98.159.83.0200410.030.109253TRUETRUEVFRSPECI396.02019-10-17 08:44:26@@(y5    3KMOX 170835Z AUTO 13007KT 10SM CLR 01/01 A2992 RMK AO2KMOX2019-10-17T08:35:00Z45.57-95.971.01.0130710.029.920275TRUETRUEVFRSPECI344.02019-10-17 08:44:26D?(5    3KOBE 170835Z AUTO 28003KT 10SM SCT095 23/22 A2988 RMK AO2KOBE2019-10-17T08:35:00Z27.27-80.8523.022.0280310.029.878937TRUETRUEVFRSPECI11.02019-10-17 08:44:26 0_IF) 5    3KLXY 170835Z AUTO 00000KT 10SM CLR 09/06 A3009 RMK AO2 T00900062KLXY2019-10-17T08:35:00Z31.63-96.529.06.20010.030.088583TRUETRUEVFRSPECI166.02019-10-17 08:44:26KE) 5    3KLYO 170835Z AUTO 15009KT 10SM CLR 06/02 A2997 RMK AO2 T00620024KLYO2019-10-17T08:35:00Z38.35-98.236.22.4150910.029.970472TRUETRUEVFRSPECI515.02019-10-17 08:44:26KD) 5    3KMKN 170835Z AUTO 20005KT 10SM CLR 10/03 A3010 RMK AO2 T01020027KMKN2019-10-17T08:35:00Z31.92-98.610.22.7200510.030.100393TRUETRUEVFRSPECI423.02019-10-17 08:44:26JC)5    3KMMH 170835Z AUTO 13005KT 10SM CLR 09/M06 A3000 RMK AO2 T00901060KMMH2019-10-17T08:35:00Z37.62-118.829.0-6.0130510.030.0TRUETRUEVFRSPECI2173.02019-10-17 08:44:26 5b;J(y5    3KMNV 170835Z AUTO 35006KT 10SM CLR 07/04 A3000 RMK A01KMNV2019-10-17T08:35:00Z35.55-84.387.04.0350610.030.0TRUETRUEVFRSPECI314.02019-10-17 08:44:26MI)5    3KLRU 170835Z AUTO 00000KT 10SM CLR 08/M01 A3012 RMK AO2 T00801012KLRU2019-10-17T08:35:00Z32.27-106.928.0-1.20010.030.121063TRUETRUEVFRSPECI1358.02019-10-17 08:44:26bH)-5     3KLUD 170835Z AUTO 17003KT 1 3/4SM HZ VV007 13/04 A3011 RMK AO2 VIS 1V4 T01250041KLUD2019-10-17T08:35:00Z33.25-97.5812.54.117031.7530.109253TRUETRUEHZLIFR700SPECI319.02019-10-17 08:44:26]G)15    3KLWA 170835Z AUTO 32009KT 290V360 10SM SCT028 BKN039 09/04 A2994 RMK AO2 T00920035KLWA2019-10-17T08:35:00Z42.35-86.259.23.5320910.029.940945TRUETRUEVFRSPECI203.02019-10-17 08:44:26 *h>N(y5    3KMGR 170835Z AUTO 00000KT 10SM CLR 12/10 A2995 RMK AO2KMGR2019-10-17T08:35:00Z31.08-83.812.010.00010.029.949802TRUETRUEVFRSPECI90.02019-10-17 08:44:26AM(y5    3KMLJ 170835Z AUTO 32006KT 10SM CLR 11/07 A2992 RMK AO2KMLJ2019-10-17T08:35:00Z33.15-83.2311.07.0320610.029.920275TRUETRUEVFRSPECI117.02019-10-17 08:44:26e(y5    3K4O4 170835Z AUTO 00000KT 10SM CLR 06/05 A3008 RMK AO2K4O42019-10-17T08:35:00Z33.92-94.876.05.00010.030.079725TRUETRUEVFRMETAR144.02019-10-17 08:44:26@d(5    3KMOR 170835Z AUTO 00000KT 10SM FEW036 06/02 A2998 RMK A01KMOR2019-10-17T08:35:00Z36.18-83.376.02.00010.029.97933TRUETRUEVFRSPECI400.02019-10-17 08:44:26Mc)5    3KPEZ 170835Z AUTO 00000KT 10SM SCT030 16/07 A3006 RMK AO2 T01600068KPEZ2019-10-17T08:35:00Z28.95-98.5216.06.80010.030.059055TRUETRUEVFRSPECI132.02019-10-17 08:44:26 /^Rj)5     3K18A 170835Z AUTO 00000KT 10SM CLR 07/04 A2990 RMK AO2 T00660040 TSNOK18A2019-10-17T08:35:00Z34.35-83.136.64.00010.029.899607TRUETRUETRUEVFRSPECI271.02019-10-17 08:44:26Ci) 5    3K1A9 170835Z AUTO 00000KT 10SM CLR 09/08 A3000 RMK AO2 T00850082K1A92019-10-17T08:35:00Z32.43-86.528.58.20010.030.0TRUETRUEVFRSPECI69.02019-10-17 08:44:26Kh) 5    3K1K1 170835Z AUTO 18006KT 10SM CLR 07/03 A3003 RMK AO2 T00650030K1K12019-10-17T08:35:00Z37.77-97.126.53.0180610.030.029528TRUETRUEVFRSPECI416.02019-10-17 08:44:26Kg) 5    3K3LF 170835Z AUTO 27003KT 10SM CLR 02/01 A3009 RMK AO2 T00170013K3LF2019-10-17T08:35:00Z39.17-89.671.71.3270310.030.088583TRUETRUEVFRSPECI210.02019-10-17 08:44:26 2\Jn) 5    3KFKR 170835Z AUTO 28003KT 10SM CLR 03/02 A3002 RMK AO2 T00300015KFKR2019-10-17T08:35:00Z40.27-86.573.01.5280310.030.02067TRUETRUEVFRSPECI262.02019-10-17 08:44:26Im) 5    3KGDJ 170835Z AUTO 00000KT 10SM CLR 09/06 A3012 RMK AO2 T00880058KGDJ2019-10-17T08:35:00Z32.45-97.828.85.80010.030.121063TRUETRUEVFRSPECI237.02019-10-17 08:44:26Pl)5    3K0E0 170835Z AUTO 35003KT 10SM CLR M01/M07 A3019 RMK AO2 T10091072K0E02019-10-17T08:35:00Z34.98-106.0-0.9-7.2350310.030.188976TRUETRUEVFRSPECI1890.02019-10-17 08:44:26Hk) 5    3K0F2 170835Z AUTO 00000KT 10SM CLR 06/04 A3010 RMK AO2 T00580036K0F22019-10-17T08:35:00Z33.6-97.785.83.60010.030.100393TRUETRUEVFRSPECI336.02019-10-17 08:44:26 1aIr) 5    3KGPM 170835Z AUTO 00000KT 10SM CLR 11/06 A3011 RMK AO2 T01130060KGPM2019-10-17T08:35:00Z32.7-97.0511.36.00010.030.109253TRUETRUEVFRSPECI180.02019-10-17 08:44:26Bq(5    3KGWB 170835Z AUTO 28005KT 10SM SCT050 06/05 A2993 RMK AO2KGWB2019-10-17T08:35:00Z41.3-85.076.05.0280510.029.929134TRUETRUEVFRSPECI269.02019-10-17 08:44:26Jp) 5    3KGYB 170835Z AUTO 00000KT 10SM CLR 15/09 A3006 RMK AO2 T01480091KGYB2019-10-17T08:35:00Z30.17-96.9814.89.10010.030.059055TRUETRUEVFRSPECI148.02019-10-17 08:44:26Io) 5    3KGYI 170835Z AUTO 00000KT 10SM CLR 09/07 A3011 RMK AO2 T00860072KGYI2019-10-17T08:35:00Z33.72-96.678.67.20010.030.109253TRUETRUEVFRSPECI228.02019-10-17 08:44:26 ?rJv) 5    3KT20 170835Z AUTO 00000KT 10SM CLR 15/08 A3005 RMK AO2 T01520082KT202019-10-17T08:35:00Z29.52-97.4715.28.20010.030.050198TRUETRUEVFRSPECI108.02019-10-17 08:44:26Ku) 5    3KT35 170835Z AUTO 30006KT 10SM CLR 10/08 A3008 RMK AO2 T00960075KT352019-10-17T08:35:00Z30.88-96.979.67.5300610.030.079725TRUETRUEVFRSPECI123.02019-10-17 08:44:26Gt) 5    3KTOC 170835Z AUTO 00000KT 10SM CLR 08/04 A2989 RMK AO2 T00770040KTOC2019-10-17T08:35:00Z34.6-83.37.74.00010.029.890747TRUETRUEVFRSPECI304.02019-10-17 08:44:26;s(w5    3KGMJ 170835Z AUTO 00000KT 7SM CLR 04/03 A3011 RMK AO2KGMJ2019-10-17T08:35:00Z36.6-94.734.03.0007.030.109253TRUETRUEVFRSPECI254.02019-10-17 08:44:26 2T\z)-5     3KS52 170835Z AUTO 00000KT 3 1/2SM BR SCT028 OVC060 06/05 A2962 RMK AO2 T00560053KS522019-10-17T08:35:00Z48.38-120.155.65.3003.529.619095TRUETRUEBRMVFRMETAR520.02019-10-17 08:44:26Cy({5    3KSUN 170835Z AUTO 33006KT 10SM CLR 08/M07 A2984 RMK AO2KSUN2019-10-17T08:35:00Z43.5-114.288.0-7.0330610.029.840551TRUETRUEVFRSPECI1620.02019-10-17 08:44:26Xx)5     3KSYF 170835Z AUTO 22009KT 10SM CLR 06/M04 A2991 RMK AO2 T00591044 PWINOKSYF2019-10-17T08:35:00Z39.77-101.85.9-4.4220910.029.911417TRUETRUETRUEVFRSPECI1025.02019-10-17 08:44:26Hw)5     3KSZT 170835Z AUTO 00000KT 10SM -DZ OVC050 07/06 A2967 RMK AO2KSZT2019-10-17T08:35:00Z48.3-116.577.06.00010.029.66929TRUETRUE-DZVFRSPECI648.02019-10-17 08:44:26 0_H~) 5    3KPSN 170835Z AUTO 00000KT 10SM CLR 08/08 A3009 RMK AO2 T00850083KPSN2019-10-17T08:35:00Z31.78-95.78.58.30010.030.088583TRUETRUEVFRSPECI129.02019-10-17 08:44:26L}) 5    3KRAS 170835Z AUTO 36010KT 10SM CLR 19/14 A3001 RMK AO2 T01880138KRAS2019-10-17T08:35:00Z27.82-97.0818.813.83601010.030.008858TRUETRUEVFRSPECI2.02019-10-17 08:44:26K|) 5    3KRPJ 170835Z AUTO 28003KT 10SM CLR 04/03 A3004 RMK AO2 T00400032KRPJ2019-10-17T08:35:00Z41.88-89.084.03.2280310.030.041338TRUETRUEVFRSPECI238.02019-10-17 08:44:26J{) 5    3KRYW 170835Z AUTO 04003KT 10SM CLR 11/04 A3008 RMK AO2 T01120041KRYW2019-10-17T08:35:00Z30.5-97.9711.24.140310.030.079725TRUETRUEVFRSPECI376.02019-10-17 08:44:26 0gJ) 5    3KOKZ 170835Z AUTO 00000KT 10SM CLR 11/08 A2991 RMK AO2 T01080081KOKZ2019-10-17T08:35:00Z32.97-82.8310.88.10010.029.911417TRUETRUEVFRSPECI134.02019-10-17 08:44:26X)5     3KONP 170835Z AUTO 18009KT 5SM BR SCT006 SCT019 BKN024 11/11 A2983 RMK AO2KONP2019-10-17T08:35:00Z44.57-124.0311.011.018095.029.828741TRUETRUEBRMVFRMETAR48.02019-10-17 08:44:26C({5    3KPOY 170835Z AUTO 09005KT 10SM CLR 10/M05 A2981 RMK AO2KPOY2019-10-17T08:35:00Z44.87-108.810.0-5.090510.029.811024TRUETRUEVFRSPECI1552.02019-10-17 08:44:26J) 5    3KPPO 170835Z AUTO 32006KT 10SM CLR 06/04 A2998 RMK AO2 T00600036KPPO2019-10-17T08:35:00Z41.57-86.736.03.6320610.029.97933TRUETRUEVFRSPECI248.02019-10-17 08:44:26 ,\J) 5    3KLUL 170835Z AUTO 35006KT 10SM CLR 10/09 A3003 RMK A02 T00950087KLUL2019-10-17T08:35:00Z31.67-89.179.58.7350610.030.029528TRUETRUEVFRSPECI73.02019-10-17 08:44:26U)5    3KLUV 170835Z AUTO 21006KT 10SM SCT075 BKN100 BKN120 07/M01 A3010 RMK AO2KLUV2019-10-17T08:35:00Z32.75-101.927.0-1.0210610.030.100393TRUETRUEVFRSPECI912.02019-10-17 08:44:26J) 5    3KLXN 170835Z AUTO 09005KT 10SM CLR 02/00 A2989 RMK AO2 T00160000KLXN2019-10-17T08:35:00Z40.78-99.771.60.090510.029.890747TRUETRUEVFRSPECI734.02019-10-17 08:44:26N)5    3KMDD 170835Z AUTO 24003KT 10SM CLR 11/M02 A3009 RMK AO2 T01061019KMDD2019-10-17T08:35:00Z32.03-102.110.6-1.9240310.030.088583TRUETRUEVFRSPECI854.02019-10-17 08:44:26 /gK ) 5    3KJWG 170835Z AUTO 19004KT 10SM CLR 08/02 A3006 RMK AO2 T00840015KJWG2019-10-17T08:35:00Z35.87-98.428.41.5190410.030.059055TRUETRUEVFRSPECI472.02019-10-17 08:44:26H ) 5    3KJYL 170835Z AUTO 00000KT 10SM CLR 11/09 A2989 RMK AO2 T01060085KJYL2019-10-17T08:35:00Z32.65-81.610.68.50010.029.890747TRUETRUEVFRSPECI57.02019-10-17 08:44:26B({5    3KL35 170835Z AUTO 00000KT 10SM CLR 01/M03 A3006 RMK AO2KL352019-10-17T08:35:00Z34.27-116.851.0-3.00010.030.059055TRUETRUEVFRSPECI2059.02019-10-17 08:44:26K) 5    3KLHB 170835Z AUTO 33003KT 10SM CLR 10/08 A3007 RMK AO2 T01000083KLHB2019-10-17T08:35:00Z30.87-96.6210.08.3330310.030.070866TRUETRUEVFRSPECI87.02019-10-17 08:44:26 3Q@(y5    3KWDR 170835Z AUTO 29006KT 10SM CLR 08/05 A2994 RMK AO2KWDR2019-10-17T08:35:00Z33.98-83.678.05.0290610.029.940945TRUETRUEVFRSPECI287.02019-10-17 08:44:26\ )5    3KXLL 170835Z AUTO 26012G20KT 10SM BKN033 OVC039 10/05 A2939 RMK AO2 P0008KXLL2019-10-17T08:35:00Z40.57-75.4810.05.0260122010.029.388779TRUETRUEVFR0.08SPECI122.02019-10-17 08:44:26a )55   3PAUT 170835Z AUTO 26017G30KT 10SM SCT041 BKN047 OVC055 06/01 A2941 RMK AO2 T00580009PAUT2019-10-17T08:35:00Z54.15-165.65.80.9260173010.029.409449TRUETRUEVFRSPECI25.02019-10-17 08:44:26` )55     3LTBQ 170835Z 14004KT 080V190 6000 BKN021 21/16 Q1019 NOSIG RMK RWY09 11004KT 080V150LTBQ2019-10-17T08:35:00Z40.7230.0721.016.014043.7330.088583TRUEMVFR-0.4SPECI50.02019-10-17 08:44:26 /Hr=(y5    3KTQH 170835Z AUTO 00000KT 10SM CLR 03/03 A3011 RMK AO2KTQH2019-10-17T08:35:00Z35.93-95.03.03.00010.030.109253TRUETRUEVFRSPECI266.02019-10-17 08:44:26P)5   3KTXW 170835Z AUTO 35009G16KT 10SM OVC017 17/11 A3000 RMK AO2 T01700109KTXW2019-10-17T08:35:00Z26.18-97.9717.010.935091610.030.0TRUETRUEMVFRSPECI21.02019-10-17 08:44:26a)55   3KUNI 170835Z AUTO 27008G17KT 10SM SCT028 SCT033 OVC050 08/03 A2989 RMK AO2 T00770033KUNI2019-10-17T08:35:00Z39.22-82.237.73.327081710.029.890747TRUETRUEVFRSPECI193.02019-10-17 08:44:26K) 5    3KVYS 170835Z AUTO 29004KT 10SM CLR 05/02 A3005 RMK AO2 T00450018KVYS2019-10-17T08:35:00Z41.35-89.154.51.8290410.030.050198TRUETRUEVFRSPECI199.02019-10-17 08:44:26 #IB(y5    3KMQS 170835Z AUTO 28015KT 10SM CLR 10/05 A2944 RMK AO2KMQS2019-10-17T08:35:00Z39.98-75.8710.05.02801510.029.438976TRUETRUEVFRSPECI201.02019-10-17 08:44:26>(y5    3KMRC 170835Z AUTO 00000KT 10SM CLR 04/04 A3005 RMK A01KMRC2019-10-17T08:35:00Z35.55-87.184.04.00010.030.050198TRUETRUEVFRSPECI208.02019-10-17 08:44:26T)5   3KMTV 170835Z AUTO 32010G16KT 10SM BKN046 09/02 A2983 RMK AO2 T00900015KMTV2019-10-17T08:35:00Z36.63-80.029.01.5320101610.029.828741TRUETRUEVFRSPECI287.02019-10-17 08:44:26W)5   3KMZG 170835Z AUTO 12020G26KT 9SM SCT016 BKN032 OVC065 23/20 A2995 RMK A01KMZG2019-10-17T08:35:00Z27.73-96.1823.020.012020269.029.949802TRUETRUEVFRMETAR29.02019-10-17 08:44:26 /jK) 5    3KY70 170835Z AUTO 28008KT 10SM CLR 05/03 A2989 RMK AO2 T00500026KY702019-10-17T08:35:00Z42.93-85.075.02.6280810.029.890747TRUETRUEVFRSPECI250.02019-10-17 08:44:26O)5    3KCPU 170835Z AUTO 00000KT 10SM BKN015 13/09 A2991 RMK AO2 T01310086KCPU2019-10-17T08:35:00Z38.15-120.6513.18.60010.029.911417TRUETRUEMVFRMETAR404.02019-10-17 08:44:26?(y5    3KCQF 170835Z AUTO 01004KT 10SM CLR 12/08 A2999 RMK AO2KCQF2019-10-17T08:35:00Z30.47-87.8812.08.010410.029.991142TRUETRUEVFRSPECI28.02019-10-17 08:44:26K) 5    3KMQB 170835Z AUTO 27003KT 10SM CLR 00/00 A3009 RMK AO2 T00030001KMQB2019-10-17T08:35:00Z40.52-90.650.30.1270310.030.088583TRUETRUEVFRSPECI215.02019-10-17 08:44:26 3mX)!5   3KUKT 170835Z AUTO 25009G17KT 10SM SCT038 BKN044 BKN070 10/05 A2938 RMK A01KUKT2019-10-17T08:35:00Z40.43-75.3810.05.025091710.029.379921TRUETRUEVFRSPECI160.02019-10-17 08:44:26T)!5    3KUVA 170835Z AUTO 00000KT 10SM SCT042 OVC065 16/09 A3010 RMK AO2 T01580093KUVA2019-10-17T08:35:00Z29.22-99.7515.89.30010.030.100393TRUETRUEVFRSPECI287.02019-10-17 08:44:26@(y5    3KWDG 170835Z AUTO 20003KT 10SM CLR 05/02 A3004 RMK AO2KWDG2019-10-17T08:35:00Z36.37-97.775.02.0200310.030.041338TRUETRUEVFRSPECI356.02019-10-17 08:44:26G(5   3KWWR 170835Z AUTO 21013G20KT 10SM CLR 11/00 A3003 RMK AO2KWWR2019-10-17T08:35:00Z36.45-99.5211.00.0210132010.030.029528TRUETRUEVFRSPECI667.02019-10-17 08:44:26 7h;"(w5    3KCDH 170835Z AUTO 00000KT 9SM CLR 06/05 A3010 RMK AO2KCDH2019-10-17T08:35:00Z33.62-92.776.05.0009.030.100393TRUETRUEVFRSPECI35.02019-10-17 08:44:26@!(y5    3KCKN 170835Z AUTO 14005KT 10SM CLR 01/01 A2995 RMK AO2KCKN2019-10-17T08:35:00Z47.85-96.621.01.0140510.029.949802TRUETRUEVFRSPECI273.02019-10-17 08:44:26I ) 5    3KCMD 170835Z AUTO 00000KT 10SM CLR 07/04 A3005 RMK AO2 T00670036KCMD2019-10-17T08:35:00Z34.27-86.856.73.60010.030.050198TRUETRUEVFRSPECI294.02019-10-17 08:44:26C({5    3KU68 170835Z AUTO 00000KT 10SM CLR 07/M39 A2980 RMK AO2KU682019-10-17T08:35:00Z44.92-108.457.0-39.00010.029.799213TRUETRUEVFRSPECI1247.02019-10-17 08:44:26 +Zp@&(y5    3KBPC 170835Z AUTO 21005KT 10SM CLR 09/00 A3002 RMK AO2KBPC2019-10-17T08:35:00Z35.88-101.039.00.0210510.030.02067TRUETRUEVFRSPECI845.02019-10-17 08:44:26d%)95    3KBVI 170835Z AUTO 29010G17KT 7SM RA BKN013 BKN018 OVC025 06/05 A2969 RMK AO2 T00610046KBVI2019-10-17T08:35:00Z40.77-80.46.14.629010177.029.68996TRUETRUERAMVFRSPECI382.02019-10-17 08:44:26K$) 5    3KBXA 170835Z AUTO 02003KT 10SM CLR 12/10 A3003 RMK AO2 T01170100KBXA2019-10-17T08:35:00Z30.82-89.8711.710.020310.030.029528TRUETRUEVFRSPECI36.02019-10-17 08:44:26O#)5    3KBYY 170835Z AUTO 36007KT 10SM OVC032 18/15 A3001 RMK AO2 T01840157KBYY2019-10-17T08:35:00Z28.97-95.8718.415.7360710.030.008858TRUETRUEVFRSPECI14.02019-10-17 08:44:26 1\U*)!5    3KAXH 170835Z AUTO 01004KT 10SM SCT050 SCT120 15/12 A3003 RMK AO2 T01520122KAXH2019-10-17T08:35:00Z29.52-95.4815.212.210410.030.029528TRUETRUEVFRSPECI21.02019-10-17 08:44:26L))5     3KAXS 170835Z AUTO 00000KT 4SM HZ CLR 09/01 A3009 RMK AO2 T00870005KAXS2019-10-17T08:35:00Z34.7-99.338.70.5004.030.088583TRUETRUEHZMVFRSPECI437.02019-10-17 08:44:26O()5    3KAXX 170835Z AUTO 00000KT 10SM CLR M08/M12 A3029 RMK AO2 T10761124KAXX2019-10-17T08:35:00Z36.42-105.28-7.6-12.40010.030.28937TRUETRUEVFRSPECI2548.02019-10-17 08:44:26I') 5    3KBEC 170835Z AUTO 17006KT 10SM CLR 07/03 A3002 RMK AO2 T00670032KBEC2019-10-17T08:35:00Z37.7-97.226.73.2170610.030.02067TRUETRUEVFRSPECI429.02019-10-17 08:44:26 2fI.) 5    3KALX 170835Z AUTO 00000KT 10SM CLR 09/07 A2999 RMK AO2 T00850070KALX2019-10-17T08:35:00Z32.92-85.978.57.00010.029.991142TRUETRUEVFRSPECI209.02019-10-17 08:44:26Q-)5    3KAPY 170835Z AUTO 34005KT 10SM OVC026 19/15 A3006 RMK AO2 T01860151KAPY2019-10-17T08:35:00Z26.97-99.2518.615.1340510.030.059055TRUETRUEMVFRSPECI129.02019-10-17 08:44:26F,) 5    3KASL 170835Z AUTO 00000KT 7SM CLR 08/07 A3011 RMK AO1 T00800071KASL2019-10-17T08:35:00Z32.52-94.38.07.1007.030.109253TRUETRUEVFRSPECI109.02019-10-17 08:44:26H+) 5    3KASN 170835Z AUTO 00000KT 10SM CLR 06/05 A3002 RMK AO2 T00590054KASN2019-10-17T08:35:00Z33.57-86.055.95.40010.030.02067TRUETRUEVFRSPECI162.02019-10-17 08:44:26 6f@2(y5    3KADC 170835Z AUTO 16004KT 10SM CLR 00/00 A2997 RMK AO2KADC2019-10-17T08:35:00Z46.45-95.220.00.0160410.029.970472TRUETRUEVFRSPECI418.02019-10-17 08:44:26M1)5    3KAEG 170835Z AUTO 18004KT 10SM CLR 06/M05 A3015 RMK AO2 T00581048KAEG2019-10-17T08:35:00Z35.13-106.85.8-4.8180410.030.15059TRUETRUEVFRSPECI1779.02019-10-17 08:44:26J0) 5    3KAFK 170835Z AUTO 16004KT 10SM CLR 04/04 A3001 RMK AO2 T00420040KAFK2019-10-17T08:35:00Z40.6-95.854.24.0160410.030.008858TRUETRUEVFRSPECI354.02019-10-17 08:44:26D/(5     3KAIT 170835Z AUTO 00000KT 5SM BR CLR 00/M01 A2999 RMK AO2KAIT2019-10-17T08:35:00Z46.53-93.670.0-1.0005.029.991142TRUETRUEBRMVFRSPECI367.02019-10-17 08:44:26 :fK6) 5    3KONL 170835Z AUTO 18006KT 10SM CLR 05/01 A2989 RMK AO2 T00520014KONL2019-10-17T08:35:00Z42.47-98.675.21.4180610.029.890747TRUETRUEVFRSPECI619.02019-10-17 08:44:26O5)5    3KONM 170835Z AUTO 19006KT 10SM CLR 10/M02 A3011 RMK AO2 T01001017KONM2019-10-17T08:35:00Z34.02-106.910.0-1.7190610.030.109253TRUETRUEVFRMETAR1410.02019-10-17 08:44:26N4)5    3K4V0 170835Z AUTO 08003KT 10SM CLR 01/M13 A3004 RMK AO2 T00131128K4V02019-10-17T08:35:00Z40.1-108.771.3-12.880310.030.041338TRUETRUEVFRSPECI1608.02019-10-17 08:44:26@3(y5    3K6A2 170835Z AUTO 31004KT 10SM CLR 07/05 A2995 RMK AO2K6A22019-10-17T08:35:00Z33.23-84.277.05.0310410.029.949802TRUETRUEVFRSPECI292.02019-10-17 08:44:26 1VK:)5    3KOEO 170835Z AUTO 00000KT 10SM OVC120 03/03 A3005 RMK AO2 T00320032KOEO2019-10-17T08:35:00Z45.32-92.73.23.20010.030.050198TRUETRUEVFRSPECI275.02019-10-17 08:44:26N9)5    3KOGA 170835Z AUTO 28003KT 10SM CLR 01/M02 A2989 RMK AO2 T00131016KOGA2019-10-17T08:35:00Z41.12-101.771.3-1.6280310.029.890747TRUETRUEVFRSPECI999.02019-10-17 08:44:26U8)!5     3KOGS 170835Z AUTO 06006KT 6SM -RA BKN007 BKN010 OVC042 09/08 A2929 RMK AO2KOGS2019-10-17T08:35:00Z44.67-75.479.08.06066.029.291338TRUETRUE-RAIFRSPECI91.02019-10-17 08:44:26I7) 5    3KOKM 170835Z AUTO 00000KT 10SM CLR 05/05 A3010 RMK AO2 T00470047KOKM2019-10-17T08:35:00Z35.67-95.954.74.70010.030.100393TRUETRUEVFRSPECI220.02019-10-17 08:44:26 8pD?(5    3KN38 170835Z AUTO 26014KT 10SM OVC015 05/03 A2939 RMK AO2KN382019-10-17T08:35:00Z41.73-77.45.03.02601410.029.388779TRUETRUEMVFRSPECI577.02019-10-17 08:44:26=>(y5    3KNQA 170835Z AUTO 00000KT 10SM CLR 06/05 A3008 RMK A01KNQA2019-10-17T08:35:00Z35.35-89.876.05.00010.030.079725TRUETRUEVFRSPECI86.02019-10-17 08:44:26@=(y5    3KO22 170835Z AUTO 00000KT 10SM CLR 11/04 A2991 RMK A01KO222019-10-17T08:35:00Z38.03-120.4211.04.00010.029.911417TRUETRUEVFRMETAR646.02019-10-17 08:44:26B<(y5    3KO32 170835Z AUTO 35006KT 10SM CLR 13/09 A2984 RMK AO2KO322019-10-17T08:35:00Z36.67-119.4513.09.0350610.029.840551TRUETRUEVFRMETAR117.02019-10-17 08:44:26B;(5    3KO69 170835Z AUTO VRB04KT 10SM OVC006 14/14 A2990 RMK A01KO692019-10-17T08:35:00Z38.25-122.614.014.00410.029.899607TRUETRUEIFRMETAR28.02019-10-17 08:44:26 1afC);5     3CYER 170835Z AUTO 30005KT 280V340 5SM -SN FEW014 BKN034 OVC043 M00/M00 A3007 RMK SLP187CYER2019-10-17T08:35:00Z56.02-87.680.00.030055.030.0708661018.7TRUE-SNMVFRSPECI16.02019-10-17 08:44:26IB) 5    3KMWA 170835Z AUTO 00000KT 10SM CLR 03/03 A3010 RMK AO2 T00300028KMWA2019-10-17T08:35:00Z37.77-89.023.02.80010.030.100393TRUETRUEVFRSPECI144.02019-10-17 08:44:26JA) 5    3KMWO 170835Z AUTO 30006KT 10SM CLR 05/03 A2997 RMK AO2 T00540025KMWO2019-10-17T08:35:00Z39.53-84.45.42.5300610.029.970472TRUETRUEVFRSPECI198.02019-10-17 08:44:26I@) 5    3KMZZ 170835Z AUTO 00000KT 10SM CLR 04/03 A2999 RMK AO2 T00360025KMZZ2019-10-17T08:35:00Z40.48-85.683.62.50010.029.991142TRUETRUEVFRSPECI262.02019-10-17 08:44:26 /^IG) 5    3KXBP 170835Z AUTO 00000KT 10SM CLR 07/04 A3012 RMK AO2 T00660035KXBP2019-10-17T08:35:00Z33.18-97.836.63.50010.030.121063TRUETRUEVFRMETAR260.02019-10-17 08:44:26AF(5    3KXNX 170835Z AUTO 00000KT 10SM SCT033 04/04 A3008 RMK A01KXNX2019-10-17T08:35:00Z36.38-86.424.04.00010.030.079725TRUETRUEVFRSPECI178.02019-10-17 08:44:26KE)5     3KGHW 170835Z AUTO 11005KT 1SM BR BKN001 M01/M01 A2998 RMK AO2KGHW2019-10-17T08:35:00Z45.63-95.32-1.0-1.011051.029.97933TRUETRUEBRLIFRSPECI425.02019-10-17 08:44:26KD) 5    3KCWC 170835Z AUTO 13006KT 10SM CLR 08/02 A3010 RMK AO2 T00750020KCWC2019-10-17T08:35:00Z33.85-98.487.52.0130610.030.100393TRUETRUEVFRSPECI305.02019-10-17 08:44:26 !CtEK(5   3KUSE 170835Z AUTO 31008G14KT 10SM CLR 05/05 A2988 RMK AO2KUSE2019-10-17T08:35:00Z41.62-84.135.05.031081410.029.878937TRUETRUEVFRSPECI238.02019-10-17 08:44:26IJ) 5    3KVTI 170835Z AUTO 00000KT 10SM CLR 03/03 A3006 RMK AO2 T00330033KVTI2019-10-17T08:35:00Z42.22-92.023.33.30010.030.059055TRUETRUEVFRSPECI255.02019-10-17 08:44:26XI)!5   3KW22 170835Z AUTO 25011G19KT 10SM SCT015 BKN023 OVC043 06/04 A2980 RMK AO2KW222019-10-17T08:35:00Z39.0-80.276.04.0250111910.029.799213TRUETRUEMVFRSPECI499.02019-10-17 08:44:26YH)'5   3KW99 170835Z AUTO 29012G30KT 10SM SCT042 SCT047 09/02 A2967 RMK AO2 T00870016KW992019-10-17T08:35:00Z39.0-79.158.71.6290123010.029.66929TRUETRUEVFRSPECI293.02019-10-17 08:44:26 /ZKO) 5    3KTIP 170835Z AUTO 30006KT 10SM CLR 03/02 A3004 RMK AO2 T00320020KTIP2019-10-17T08:35:00Z40.28-88.153.22.0300610.030.041338TRUETRUEVFRSPECI225.02019-10-17 08:44:26:N(q5   3KTMK 170835Z AUTO 17004KT 10SM 10/09 A2978 RMK AO2KTMK2019-10-17T08:35:00Z45.42-123.8210.09.0170410.029.778543TRUETRUEMETAR11.02019-10-17 08:44:26OM)5    3KTMT 170835Z AUTO 24006KT 10SM CLR 13/M09 A2987 RMK AO2 T01321089KTMT2019-10-17T08:35:00Z39.47-117.213.2-8.9240610.029.870079TRUETRUEVFRMETAR1748.02019-10-17 08:44:26KL)5     3KUCY 170835Z AUTO 00000KT 1/4SM FG VV002 04/04 A3008 RMK A01KUCY2019-10-17T08:35:00Z36.38-88.984.04.0000.2530.079725TRUETRUEFGLIFR200SPECI104.02019-10-17 08:44:26 0X|NS)5    3KY23 170835Z AUTO 10SM BKN033 BKN085 OVC120 05/04 A3002 RMK AO2 T00450036KY232019-10-17T08:35:00Z45.3-91.634.53.610.030.02067TRUETRUEVFRSPECI322.02019-10-17 08:44:26VR)!5    3KZPH 170835Z AUTO 35005KT 10SM SCT020 SCT030 22/22 A2990 RMK A02 T02230218KZPH2019-10-17T08:35:00Z28.23-82.1522.321.8350510.029.899607TRUETRUEVFRSPECI26.02019-10-17 08:44:26RQ)5    3KPLU 170835Z AUTO 00000KT 10SM SCT033 BKN042 OVC055 10/10 A2972 RMK AO2KPLU2019-10-17T08:35:00Z47.1-122.2810.010.00010.029.719488TRUETRUEVFRMETAR164.02019-10-17 08:44:26JP) 5    3KTIF 170835Z AUTO 00000KT 10SM CLR 04/00 A2987 RMK AO2 T00400000KTIF2019-10-17T08:35:00Z41.97-100.574.00.00010.029.870079TRUETRUEVFRSPECI892.02019-10-17 08:44:26 -S,W(g5   3KPMU 170835Z AUTO 00000KT 05/05 A3007 RMK AO2KPMU2019-10-17T08:35:00Z34.37-89.95.05.00030.070866TRUETRUESPECI67.02019-10-17 08:44:26KV) 5    3KPRO 170835Z AUTO 13004KT 10SM CLR 01/00 A3003 RMK AO2 T00050000KPRO2019-10-17T08:35:00Z41.83-94.170.50.0130410.030.029528TRUETRUEVFRSPECI308.02019-10-17 08:44:26TU)5   3KPSK 170835Z AUTO 33012G21KT 10SM OVC032 07/02 A2982 RMK AO2 T00720018KPSK2019-10-17T08:35:00Z37.12-80.677.21.8330122110.029.819881TRUETRUEVFRSPECI642.02019-10-17 08:44:26MT)5     3KPTD 170835Z AUTO 03008KT 7SM RA BKN005 OVC008 08/08 A2930 RMK AO2KPTD2019-10-17T08:35:00Z44.68-74.958.08.03087.029.300198TRUETRUERAIFRSPECI144.02019-10-17 08:44:26 3qK[) 5    3KPCD 170835Z AUTO 23003KT 10SM CLR 03/02 A3010 RMK AO2 T00300022KPCD2019-10-17T08:35:00Z37.87-89.873.02.2230310.030.100393TRUETRUEVFRSPECI113.02019-10-17 08:44:26RZ)5   3KPCW 170835Z AUTO 31017G24KT 10SM BKN025 OVC031 09/04 A2980 RMK AO2KPCW2019-10-17T08:35:00Z41.52-82.879.04.0310172410.029.799213TRUETRUEMVFRSPECI178.02019-10-17 08:44:26t)5   3KEMV 170835Z AUTO 19003KT CLR 07/03 A2973 RMK AO2 T00660033KEMV2019-10-17T08:35:00Z36.68-77.486.63.3190329.731298TRUETRUEMETAR39.02019-10-17 08:44:26@s(y5    3KFDW 170835Z AUTO 33005KT 10SM CLR 08/03 A2987 RMK AO1KFDW2019-10-17T08:35:00Z34.32-81.128.03.0330510.029.870079TRUETRUEVFRMETAR176.02019-10-17 08:44:26@r(y5    3KGGE 170835Z AUTO 33004KT 10SM CLR 11/06 A2986 RMK AO2KGGE2019-10-17T08:35:00Z33.32-79.3211.06.0330410.029.861221TRUETRUEVFRMETAR12.02019-10-17 08:44:26Jq)5    3KPBH 170835Z AUTO 00000KT 10SM OVC031 04/03 A2999 RMK AO2 T00380033KPBH2019-10-17T08:35:00Z45.7-90.43.83.30010.029.991142TRUETRUEVFRSPECI449.02019-10-17 08:44:26 1[Cx({5    3KTEX 170835Z AUTO 14006KT 10SM CLR 06/M15 A3029 RMK AO2KTEX2019-10-17T08:35:00Z37.95-107.96.0-15.0140610.030.28937TRUETRUEVFRMETAR2769.02019-10-17 08:44:26Cw(5    3KTHA 170835Z AUTO 35003KT 10SM FEW029 05/03 A3003 RMK A01KTHA2019-10-17T08:35:00Z35.38-86.255.03.0350310.030.029528TRUETRUEVFRSPECI331.02019-10-17 08:44:26Pv)5    3KSWW 170835Z AUTO 17012KT 10SM CLR 12/M01 A3010 RMK AO2 T01151011KSWW2019-10-17T08:35:00Z32.47-100.4711.5-1.11701210.030.100393TRUETRUEVFRSPECI727.02019-10-17 08:44:26Iu) 5    3K1A5 170835Z AUTO 00000KT 10SM CLR 03/02 A2996 RMK AO2 T00310017K1A52019-10-17T08:35:00Z35.22-83.423.11.70010.029.958662TRUETRUEVFRMETAR616.02019-10-17 08:44:26 ,h>|(y5    3KSRE 170835Z AUTO 00000KT 10SM CLR 06/03 A3009 RMK AO2KSRE2019-10-17T08:35:00Z35.27-96.686.03.00010.030.088583TRUETRUEVFRSPECI312.02019-10-17 08:44:26J{) 5    3KSUT 170835Z AUTO 33005KT 10SM CLR 12/06 A2983 RMK AO2 T01200060KSUT2019-10-17T08:35:00Z33.93-78.0812.06.0330510.029.828741TRUETRUEVFRSPECI8.02019-10-17 08:44:26>z(y5    3KSYI 170835Z AUTO 00000KT 10SM CLR 04/03 A3005 RMK A01KSYI2019-10-17T08:35:00Z35.57-86.454.03.00010.030.050198TRUETRUEVFRSPECI245.02019-10-17 08:44:26Ny)5    3KT82 170835Z AUTO 32003KT 10SM BKN110 09/05 A3010 RMK AO2 T00880052KT822019-10-17T08:35:00Z30.25-98.928.85.2320310.030.100393TRUETRUEVFRMETAR517.02019-10-17 08:44:26 =wT)5     3KSNL 170835Z AUTO 19004KT 10SM CLR 06/04 A3008 RMK AO2 T00610035 TSNOKSNL2019-10-17T08:35:00Z35.35-96.956.13.5190410.030.079725TRUETRUETRUEVFRSPECI327.02019-10-17 08:44:26J) 5    3KSOA 170835Z AUTO 00000KT 10SM BKN070 BKN080 13/04 A3015 RMK AO2KSOA2019-10-17T08:35:00Z30.58-100.6513.04.00010.030.15059TRUETRUEVFRMETAR652.02019-10-17 08:44:26@~(y5    3KSPA 170835Z AUTO 30008KT 10SM CLR 09/00 A2988 RMK AO2KSPA2019-10-17T08:35:00Z34.92-81.939.00.0300810.029.878937TRUETRUEVFRSPECI303.02019-10-17 08:44:26=}(y5    3KSRB 170835Z AUTO 00000KT 10SM CLR 01/01 A3002 RMK A01KSRB2019-10-17T08:35:00Z36.05-85.531.01.00010.030.02067TRUETRUEVFRSPECI313.02019-10-17 08:44:26 <xL) 5    3KSEF 170835Z AUTO 28003KT 10SM CLR 23/23 A2989 RMK AO2 T02350230KSEF2019-10-17T08:35:00Z27.45-81.3523.523.0280310.029.890747TRUETRUEVFRSPECI19.02019-10-17 08:44:26@(y5    3KSFY 170835Z AUTO 30006KT 10SM CLR 06/02 A3004 RMK AO2KSFY2019-10-17T08:35:00Z42.05-90.126.02.0300610.030.041338TRUETRUEVFRSPECI188.02019-10-17 08:44:26D)5   3KSJS 170835Z AUTO 28004KT 10SM 06/04 A2995 RMK AO2 T00550037KSJS2019-10-17T08:35:00Z37.75-82.635.53.7280410.029.949802TRUETRUESPECI372.02019-10-17 08:44:26>(y5    3KSME 170835Z AUTO 00000KT 10SM CLR 02/01 A3004 RMK AO2KSME2019-10-17T08:35:00Z37.05-84.622.01.00010.030.041338TRUETRUEVFRSPECI283.02019-10-17 08:44:26>(y5    3KSNH 170835Z AUTO 00000KT 10SM CLR 05/04 A3007 RMK A01KSNH2019-10-17T08:35:00Z35.17-88.225.04.00010.030.070866TRUETRUEVFRSPECI144.02019-10-17 08:44:26 7oC (5    3KS39 170835Z AUTO 18004KT 10SM OVC060 07/05 A2977 RMK AO2KS392019-10-17T08:35:00Z44.28-120.97.05.0180410.029.769686TRUETRUEVFRMETAR991.02019-10-17 08:44:26M)5    3KSBS 170835Z AUTO 00000KT 10SM CLR 01/M10 A3013 RMK AO1 T00051097KSBS2019-10-17T08:35:00Z40.52-106.870.5-9.70010.030.129921TRUETRUEVFRMETAR2096.02019-10-17 08:44:26B(}5     3KSCX 170835Z AUTO 00000KT 4SM BR CLR 00/00 A3001 RMK A01KSCX2019-10-17T08:35:00Z36.45-84.580.00.0004.030.008858TRUETRUEBRMVFRSPECI471.02019-10-17 08:44:26C(y5    3KSEE 170835Z AUTO 32003KT 10SM CLR 16/11 A2982 RMK AO2KSEE2019-10-17T08:35:00Z32.82-116.9716.011.0320310.029.819881TRUETRUEVFRMETAR117.02019-10-17 08:44:26Y88@HPX`hpx (08@HPX`hpx (08@HPX`hpx)v*z+~,-. /01234")v*z+~,-. /01234"5&6*7.8296::;?K?O@SAWB[C_DcEgFlGpHtIxJ|KLM O PQRST!U%V)W.X2Y6Z:[>\B]F^J_N`RaVbZc_ddeifngshwi{jklm nopqr s%t*u.v2w6x:y>zB{G|L}Q~VZ_ch =lK ) 5    3KRQO 170835Z AUTO 17011KT 10SM CLR 08/02 A3007 RMK AO2 T00770024KRQO2019-10-17T08:35:00Z35.47-98.07.72.41701110.030.070866TRUETRUEVFRSPECI432.02019-10-17 08:44:26K )5   3KRTS 170835Z AUTO 24020G31KT 10SM CLR 13/M04 A2985 RMK AO2KRTS2019-10-17T08:35:00Z39.67-119.8813.0-4.0240203110.029.84941TRUETRUEVFRMETAR1540.02019-10-17 08:44:26K ) 5    3KRWV 170835Z AUTO 36005KT 10SM CLR 12/08 A3005 RMK AO2 T01210081KRWV2019-10-17T08:35:00Z30.52-96.712.18.1360510.030.050198TRUETRUEVFRMETAR119.02019-10-17 08:44:26= (y5    3KRZR 170835Z AUTO 00000KT 10SM CLR 06/05 A3001 RMK A01KRZR2019-10-17T08:35:00Z35.22-84.86.05.00010.030.008858TRUETRUEVFRSPECI263.02019-10-17 08:44:26 -^A(y5    3KDED 170835Z AUTO 33005KT 10SM CLR 22/20 A2987 RMK AO2KDED2019-10-17T08:35:00Z29.07-81.2822.020.0330510.029.870079TRUETRUEVFRSPECI24.02019-10-17 08:44:26I) 5    3KDNV 170835Z AUTO 29006KT 10SM CLR 04/03 A3001 RMK AO2 T00390025KDNV2019-10-17T08:35:00Z40.2-87.63.92.5290610.030.008858TRUETRUEVFRSPECI212.02019-10-17 08:44:26I) 5    3KDUC 170835Z AUTO 00000KT 10SM CLR 07/03 A3009 RMK AO2 T00690031KDUC2019-10-17T08:35:00Z34.47-97.976.93.10010.030.088583TRUETRUEVFRSPECI339.02019-10-17 08:44:26M) 5    3KDUX 170835Z AUTO 21009KT 10SM CLR 08/00 A3002 RMK AO2 T00771002KDUX2019-10-17T08:35:00Z35.85-102.027.7-0.2210910.030.02067TRUETRUEVFRSPECI1129.02019-10-17 08:44:26 0_L) 5    3KCFD 170835Z AUTO 01004KT 10SM CLR 12/10 A3007 RMK AO2 T01220101KCFD2019-10-17T08:35:00Z30.72-96.3312.210.110410.030.070866TRUETRUEVFRSPECI112.02019-10-17 08:44:26U)5   3KCGF 170835Z AUTO 29017G25KT 10SM OVC026 08/04 A2974 RMK AO2 T00820038KCGF2019-10-17T08:35:00Z41.57-81.478.23.8290172510.029.740158TRUETRUEMVFRSPECI268.02019-10-17 08:44:26K) 5    3KCQB 170835Z AUTO 13003KT 10SM CLR 06/04 A3009 RMK AO2 T00590037KCQB2019-10-17T08:35:00Z35.72-96.825.93.7130310.030.088583TRUETRUEVFRSPECI300.02019-10-17 08:44:26J) 5    3KD73 170835Z AUTO 29006KT 10SM CLR 08/05 A2992 RMK AO2 T00830050KD732019-10-17T08:35:00Z33.78-83.78.35.0290610.029.920275TRUETRUEVFRSPECI267.02019-10-17 08:44:26 /^L) 5    3KBGE 170835Z AUTO 31004KT 10SM CLR 13/11 A2996 RMK AO2 T01300114KBGE2019-10-17T08:35:00Z30.97-84.6313.011.4310410.029.958662TRUETRUEVFRSPECI43.02019-10-17 08:44:26J) 5    3KBJI 170835Z AUTO 16003KT 10SM CLR 00/00 A2997 RMK AO2 T00010001KBJI2019-10-17T08:35:00Z47.5-94.920.10.1160310.029.970472TRUETRUEVFRSPECI420.02019-10-17 08:44:26K) 5    3KBQK 170835Z AUTO 28005KT 10SM CLR 14/12 A2989 RMK AO2 T01390118KBQK2019-10-17T08:35:00Z31.25-81.4713.911.8280510.029.890747TRUETRUEVFRSPECI8.02019-10-17 08:44:26K) 5    3KBTA 170835Z AUTO 15005KT 10SM CLR 06/04 A2997 RMK AO2 T00550036KBTA2019-10-17T08:35:00Z41.42-96.125.53.6150510.029.970472TRUETRUEVFRSPECI396.02019-10-17 08:44:26 +\@(y5    3KASW 170835Z AUTO 28008KT 10SM CLR 05/03 A2996 RMK AO2KASW2019-10-17T08:35:00Z41.27-85.835.03.0280810.029.958662TRUETRUEVFRSPECI259.02019-10-17 08:44:26L) 5    3KAVQ 170835Z AUTO 12009KT 10SM CLR 26/02 A2982 RMK AO2 T02600016KAVQ2019-10-17T08:35:00Z32.4-111.2226.01.6120910.029.819881TRUETRUEVFRSPECI619.02019-10-17 08:44:26I) 5    3KAZE 170835Z AUTO 00000KT 10SM CLR 14/09 A2991 RMK AO2 T01350091KAZE2019-10-17T08:35:00Z31.88-82.6513.59.10010.029.911417TRUETRUEVFRSPECI78.02019-10-17 08:44:26O)5    3KBEA 170835Z AUTO 36007KT 10SM OVC020 19/09 A3001 RMK AO2 T01900090KBEA2019-10-17T08:35:00Z28.37-97.7819.09.0360710.030.008858TRUETRUEMVFRSPECI82.02019-10-17 08:44:26 ,aJ!) 5    3K66R 170835Z AUTO 01003KT 10SM CLR 11/08 A3006 RMK AO2 T01100075K66R2019-10-17T08:35:00Z29.65-96.5211.07.510310.030.059055TRUETRUEVFRSPECI74.02019-10-17 08:44:26J ) 5    3K9A5 170835Z AUTO 01005KT 10SM CLR 08/03 A3001 RMK AO2 T00780030K9A52019-10-17T08:35:00Z34.68-85.287.83.010510.030.008858TRUETRUEVFRSPECI237.02019-10-17 08:44:26E(5    3KA39 170835Z AUTO 26008KT 10SM SCT120 20/04 A2982 RMK AO2KA392019-10-17T08:35:00Z32.98-111.9220.04.0260810.029.819881TRUETRUEVFRSPECI396.02019-10-17 08:44:26N)5    3KARM 170835Z AUTO 01005KT 10SM OVC047 16/11 A3003 RMK AO2 T01600111KARM2019-10-17T08:35:00Z29.25-96.1516.011.110510.030.029528TRUETRUEVFRSPECI31.02019-10-17 08:44:26 'VJ%) 5    3K13K 170835Z AUTO 15007KT 10SM CLR 04/03 A3005 RMK AO2 T00430035K13K2019-10-17T08:35:00Z37.85-96.34.33.5150710.030.050198TRUETRUEVFRSPECI369.02019-10-17 08:44:26M$) 5    3K19S 170835Z AUTO 21010KT 10SM CLR 08/00 A2996 RMK AO2 T00840005K19S2019-10-17T08:35:00Z37.48-100.838.40.52101010.029.958662TRUETRUEVFRSPECI886.02019-10-17 08:44:26K#) 5    3K3N8 170835Z AUTO 14004KT 10SM CLR 01/00 A2996 RMK AO2 T00080003K3N82019-10-17T08:35:00Z47.25-95.880.80.3140410.029.958662TRUETRUEVFRSPECI383.02019-10-17 08:44:26S")5     3K4S1 170835Z AUTO 18007KT 1 1/2SM BR SCT003 OVC015 11/11 A2989 RMK AO2K4S12019-10-17T08:35:00Z42.42-124.4211.011.018071.529.890747TRUETRUEBRIFRMETAR5.02019-10-17 08:44:26 %WO))5    3KVJI 170835Z AUTO 31008KT 10SM OVC023 06/01 A2994 RMK AO2 T00550011KVJI2019-10-17T08:35:00Z36.67-82.025.51.1310810.029.940945TRUETRUEMVFRSPECI631.02019-10-17 08:44:26H() 5    3KY49 170835Z AUTO 00000KT 10SM CLR 02/01 A2998 RMK AO2 T00150010KY492019-10-17T08:35:00Z47.13-94.651.51.00010.029.97933TRUETRUEVFRSPECI416.02019-10-17 08:44:26H') 5    3K0R4 170835Z AUTO 00000KT 10SM CLR 10/09 A3004 RMK AO2 T01040087K0R42019-10-17T08:35:00Z31.57-91.510.48.70010.030.041338TRUETRUEVFRSPECI17.02019-10-17 08:44:26U&)%5    3K11R 170835Z AUTO 00000KT 10SM CLR 13/10 A3006 RMK AO2 LTG DSNT SE T01270099K11R2019-10-17T08:35:00Z30.22-96.3712.79.90010.030.059055TRUETRUEVFRMETAR94.02019-10-17 08:44:26 8sK.) 5    3KTYQ 170835Z AUTO 30006KT 10SM CLR 03/03 A3001 RMK AO2 T00260026KTYQ2019-10-17T08:35:00Z40.03-86.252.62.6300610.030.008858TRUETRUEVFRSPECI281.02019-10-17 08:44:26@-(5    3KUBE 170835Z AUTO 00000KT 10SM OVC120 03/02 A3001 RMK AO2KUBE2019-10-17T08:35:00Z45.5-91.983.02.00010.030.008858TRUETRUEVFRSPECI379.02019-10-17 08:44:26@,(y5    3KUES 170835Z AUTO 30004KT 10SM CLR 03/01 A3001 RMK AO2KUES2019-10-17T08:35:00Z43.05-88.253.01.0300410.030.008858TRUETRUEVFRSPECI278.02019-10-17 08:44:26?+(y5    3KVDI 170835Z AUTO 31005KT 10SM CLR 13/08 A2991 RMK AO2KVDI2019-10-17T08:35:00Z32.2-82.3713.08.0310510.029.911417TRUETRUEVFRSPECI84.02019-10-17 08:44:26B*(5    3KVES 170835Z AUTO 28006KT 10SM BKN050 05/00 A2994 RMK AO2KVES2019-10-17T08:35:00Z40.2-84.535.00.0280610.029.940945TRUETRUEVFRSPECI307.02019-10-17 08:44:26 +gH2) 5    3KTBR 170835Z AUTO 00000KT 10SM CLR 09/08 A2990 RMK AO2 T00910078KTBR2019-10-17T08:35:00Z32.48-81.739.17.80010.029.899607TRUETRUEVFRSPECI57.02019-10-17 08:44:26L1)5   3KTRK 170835Z AUTO 17013G25KT 10SM CLR 10/M04 A2990 RMK AO2KTRK2019-10-17T08:35:00Z39.32-120.1210.0-4.0170132510.029.899607TRUETRUEVFRSPECI1798.02019-10-17 08:44:26>0(y5    3KTVI 170835Z AUTO 00000KT 10SM CLR 13/11 A2995 RMK AO2KTVI2019-10-17T08:35:00Z30.9-83.8813.011.00010.029.949802TRUETRUEVFRSPECI80.02019-10-17 08:44:26O/)5   3KTYL 170835Z AUTO 21012G18KT 10SM OVC046 13/M02 A3011 RMK AO2KTYL2019-10-17T08:35:00Z34.45-110.1213.0-2.0210121810.030.109253TRUETRUEVFRSPECI1745.02019-10-17 08:44:26 5cY6)!5     3CYCY 170834Z AUTO 06013KT 3SM -SN SCT005 OVC011 00/00 A2991 RMK ICG SLP133CYCY2019-10-17T08:34:00Z70.47-68.520.00.060133.029.9114171013.3TRUE-SNMVFRSPECI26.02019-10-17 08:44:26A5({5    3K3K3 170835Z AUTO 00000KT 10SM CLR 06/M03 A2994 RMK AO2K3K32019-10-17T08:35:00Z38.0-101.756.0-3.00010.029.940945TRUETRUEVFRSPECI1013.02019-10-17 08:44:26L4)5    3K41U 170835Z AUTO 30005KT 10SM CLR M01/M09 A3000 RMK AO1 T10141095K41U2019-10-17T08:35:00Z39.33-111.72-1.4-9.5300510.030.0TRUETRUEVFRMETAR1676.02019-10-17 08:44:26E3)5   3K6A1 170835Z AUTO 31005KT 10SM 10/05 A2996 RMK AO2 T01010054K6A12019-10-17T08:35:00Z32.57-84.2510.15.4310510.029.958662TRUETRUESPECI203.02019-10-17 08:44:26 9/,%9f:)%5       3PAMB 170834Z AUTO 04010KT 10SM -RA OVC032 02/01 A2903 RMK AO2 P0001 FZRANO $PAMB2019-10-17T08:34:00Z58.98-159.052.01.0401010.029.028543TRUETRUETRUETRUE-RAVFR0.01SPECI16.02019-10-17 08:44:269)W5     3PAPN 170834Z AUTO 28013G21KT 6SM BR FEW007 BKN013 OVC028 04/03 A2901 RMK AO2 WSHFT 0814 P0007 PWINO $PAPN2019-10-17T08:34:00Z57.58-157.574.03.028013216.029.010826TRUETRUETRUETRUEBRMVFR0.07SPECI18.02019-10-17 08:44:26}8)[5     3KSFM 170834Z AUTO 07022G31KT 3SM RA BR FEW007 SCT014 13/12 A2896 RMK AO2 PK WND 06034/0809 PRESFR P0033KSFM2019-10-17T08:34:00Z43.38-70.7213.012.07022313.028.96063TRUETRUERA BRMVFR0.33SPECI74.02019-10-17 08:44:26K7)5    3CYPH 170834Z AUTO 01009KT 9SM SCT008 OVC047 02/02 A2981 RMK SLP098CYPH2019-10-17T08:34:00Z58.45-78.082.02.01099.029.8110241009.8TRUEVFRSPECI3.02019-10-17 08:44:26 4Z}C>({5    3K2V6 170834Z AUTO 26007KT 10SM CLR 07/M07 A2992 RMK AO2K2V62019-10-17T08:34:00Z40.1-102.727.0-7.0260710.029.920275TRUETRUEVFRSPECI1261.02019-10-17 08:44:26W=)!5    3KPIL 170834Z AUTO 33015KT 10SM BKN013 OVC080 19/13 A2996 RMK AO2 T01890133KPIL2019-10-17T08:34:00Z26.17-97.3318.913.33301510.029.958662TRUETRUEMVFRSPECI5.02019-10-17 08:44:26T<)5   3KLNQ 170834Z AUTO 03011G15KT 10SM OVC019 22/18 A2997 RMK AO2 T02150178KLNQ2019-10-17T08:34:00Z29.35-89.4321.517.830111510.029.970472TRUETRUEMVFRMETAR1.02019-10-17 08:44:26F;) 5    3YCFS 170834Z AUTO 04003KT 6000 // NCD 21/18 Q1006 RF00.0/000.6YCFS2019-10-17T08:34:00Z-30.32153.1221.018.04033.7329.704725TRUEMVFRSPECI5.02019-10-17 08:44:26 @ (@OB)5    3KANJ 170833Z AUTO 33010KT 10SM SCT026 04/00 A2984 RMK AO2 T00440000KANJ2019-10-17T08:33:00Z46.47-84.374.40.03301010.029.840551TRUETRUEVFRSPECI218.02019-10-17 08:44:26 A)m5      3RJTY 170834Z AUTO 07003KT 9SM -DZ FEW016 OVC030 15/15 A3032 RMK AO2 RAE0757DZB00E14DZB16E32DZB34 SLP271 FZRANO $RJTY2019-10-17T08:34:00Z35.75139.3315.015.07039.030.3188971027.1TRUETRUETRUETRUE-DZMVFRSPECI139.02019-10-17 08:44:26]@)!5     3PAEG 170834Z AUTO 25003KT 10SM OVC030 M03/M08 A2929 RMK AO2 T10331078 TSNOPAEG2019-10-17T08:34:00Z64.78-141.15-3.3-7.8250310.029.291338TRUETRUETRUEMVFRSPECI268.02019-10-17 08:44:26o?)G5      3KAFN 170834Z AUTO 35007KT 310V040 3SM RA BR BKN006 OVC011 11/09 A2880 RMK AO2 P0017 T01110094KAFN2019-10-17T08:34:00Z42.8-72.011.19.435073.028.801182TRUETRUERA BRIFR0.17SPECI313.02019-10-17 08:44:26  N@F(y5    3KOWA 170833Z AUTO 14004KT 10SM CLR 01/01 A3003 RMK AO2KOWA2019-10-17T08:33:00Z44.12-93.251.01.0140410.030.029528TRUETRUEVFRSPECI350.02019-10-17 08:44:26=E(y5    3KXVG 170833Z AUTO 00000KT 10SM CLR 01/01 A2999 RMK AO2KXVG2019-10-17T08:33:00Z46.98-94.21.01.00010.029.991142TRUETRUEVFRSPECI407.02019-10-17 08:44:26LD)5     3KPOF 170833Z AUTO 00000KT 5SM BR CLR 04/03 A3011 RMK AO2 T00440028KPOF2019-10-17T08:33:00Z36.77-90.324.42.8005.030.109253TRUETRUEBRMVFRSPECI99.02019-10-17 08:44:26ZC)/5    3KPGD 170833Z AUTO 00000KT 10SM FEW022 BKN029 BKN036 26/24 A2990 RMK AO2 T02560239KPGD2019-10-17T08:33:00Z26.92-82.025.623.90010.029.899607TRUETRUEMVFRSPECI7.02019-10-17 08:44:26 %hhJ)95     3KHRL 170832Z AUTO 32013KT 10SM BKN016 BKN027 OVC032 17/13 A2999 RMK AO2 T01720128 TSNOKHRL2019-10-17T08:32:00Z26.23-97.6517.212.83201310.029.991142TRUETRUETRUEMVFRSPECI10.02019-10-17 08:44:26EI)5    3KORB 170833Z AUTO 00000KT 10SM SCT018 120 02/01 A2998 RMK AO2KORB2019-10-17T08:33:00Z48.02-92.872.01.00010.029.97933TRUETRUEVFRSPECI397.02019-10-17 08:44:267H(w5   3EFJO 170833Z 07009KT 040V100 9999 OVC014 01/M02 Q1015EFJO2019-10-17T08:33:00Z62.6729.621.0-2.07096.2129.970472MVFRMETAR117.02019-10-17 08:44:26UG)5     3CYBU 170833Z AUTO 02006KT 1 3/4SM BR BKN002 M03/M03 A2973 RMK SLP088CYBU2019-10-17T08:33:00Z53.32-104.0-3.0-3.02061.7529.7312981008.8TRUEBRLIFRSPECI374.02019-10-17 08:44:26 -1SDN({5    3K7BM 170832Z AUTO 31003KT 10SM CLR 09/M21 A3029 RMK AO2K7BM2019-10-17T08:32:00Z38.78-106.229.0-21.0310310.030.28937TRUETRUEVFRSPECI2995.02019-10-17 08:44:26XM)%5    3KPWT 170832Z AUTO 18008KT 10SM BKN006 OVC012 11/10 A2969 RMK AO2 CIG 003V009KPWT2019-10-17T08:32:00Z47.5-122.7511.010.0180810.029.68996TRUETRUEIFRMETAR147.02019-10-17 08:44:26vL)W5     3KBGR 170832Z 07018G27KT 4SM RA BR BKN015 OVC021 10/09 A2941 RMK AO2 PK WND 08027/0802 P0008 T01000089KBGR2019-10-17T08:32:00Z44.8-68.8210.08.97018274.029.409449TRUERA BRMVFR0.08SPECI57.02019-10-17 08:44:26MK)5   3CYQB 170832Z 06019G24KT 10SM RA OVC046 08/05 A2955 RMK SC8 SLP011CYQB2019-10-17T08:32:00Z46.78-71.378.05.060192410.029.5511821001.1RAVFRSPECI73.02019-10-17 08:44:26 G\R))5     3KSAN 170831Z 27004KT 5SM BR OVC005 19/18 A2984 RMK AO2 CIG 004V006 T01890183 $KSAN2019-10-17T08:31:00Z32.73-117.1818.918.327045.029.840551TRUETRUEBRIFRSPECI12.02019-10-17 08:44:26YQ)5    3CYZF 170831Z 35003KT 3SM -FZDZ BR BKN003 M02/M02 A2949 RMK ST5 SLP000CYZF2019-10-17T08:31:00Z62.47-114.45-2.0-2.035033.029.4891741000.0-FZDZ BRLIFRSPECI206.02019-10-17 08:44:26=P(y5    3KAQP 170831Z AUTO 00000KT 10SM CLR 02/00 A2996 RMK AO2KAQP2019-10-17T08:31:00Z45.22-96.02.00.00010.029.958662TRUETRUEVFRSPECI311.02019-10-17 08:44:263O(k5    3LEBZ 170831Z 10004KT 4000 FU OVC014 16/14 Q1020LEBZ2019-10-17T08:31:00Z38.87-6.8216.014.010042.4930.11811FUIFRSPECI192.02019-10-17 08:44:26 q*P`qiV)O5     3LFOJ 170830Z AUTO VRB02KT 8000 -RA BKN009/// OVC016/// ///TCU 12/11 Q1011 TEMPO 4000 -RADZ BKN004LFOJ2019-10-17T08:30:00Z47.971.7512.011.0024.9729.852362TRUE-RAIFRMETAR125.02019-10-17 08:44:26jU)Q5    3LFRJ 170830Z AUTO 18007KT 9999 SCT019 SCT029 BKN042 13/11 Q1007 TEMPO 4000 SHRA SCT015CB SCT021TCULFRJ2019-10-17T08:30:00Z48.52-4.1513.011.018076.2129.734253TRUEVFRMETAR115.02019-10-17 08:44:26TT)%5    3ETNH 170831Z 21006KT 2500 -DZ BR FEW003 BKN010 14/13 Q1007 YLO GRN TEMPO YLOETNH2019-10-17T08:31:00Z54.329.5514.013.021061.5529.734253-DZ BRIFRSPECI17.02019-10-17 08:44:26PS) 5     3KXMR 170831Z AUTO 32008KT 10SM OVC009 24/ A2985 RMK AO2 SLP111 $KXMR2019-10-17T08:31:00Z28.47-80.5724.0320810.029.849411011.1TRUETRUETRUEIFRSPECI3.02019-10-17 08:44:26 $_.Z(i5   3LEBA 170830Z 08004KT 030V120 CAVOK 13/03 Q1022LEBA2019-10-17T08:30:00Z37.85-4.8213.03.08046.2130.177166VFRMETAR92.02019-10-17 08:44:26?Y({5     3LFMY 170830Z AUTO 12009KT 9999 FEW027 20/14 Q1018 NOSIGLFMY2019-10-17T08:30:00Z43.65.0820.014.012096.2130.059055TRUETRUEVFRMETAR60.02019-10-17 08:44:26sX)Q5   !  3LFOC 170830Z AUTO 15003KT 4500 -RADZ BR BKN004/// OVC015/// ///TCU 12/12 Q1011 TEMPO BKN008 BKN016LFOC2019-10-17T08:30:00Z48.031.3712.012.015032.829.852362TRUE-RA -DZ BRLIFRMETAR127.02019-10-17 08:44:26]W)35     3LFOE 170830Z AUTO 20007KT 1400 R22/1500U BR VV/// 10/10 Q1010 BECMG 9999 NSW SCT020LFOE2019-10-17T08:30:00Z49.021.2210.010.020070.8729.822834TRUEBRLIFRSPECI146.02019-10-17 08:44:26 Y5Y4_(i5    3LEBR 170830Z AUTO 11011KT 9999 NSC 14/07 Q1017LEBR2019-10-17T08:30:00Z42.2-1.4314.07.0110116.2130.029528TRUEVFRMETAR295.02019-10-17 08:44:26,^(e5   3LELO 170830Z VRB02KT 9999 BKN045 13/09 Q1017LELO2019-10-17T08:30:00Z42.45-2.3213.09.0026.2130.029528VFRMETAR363.02019-10-17 08:44:26;](y5    3LEBT 170830Z AUTO 31007KT 250V350 9999 NCD 19/04 Q1017LEBT2019-10-17T08:30:00Z39.58-0.4519.04.031076.2130.029528TRUEVFRMETAR50.02019-10-17 08:44:26)\(e5   3LESU 170830Z VRB02KT 9999 FEW070 09/07 Q1019LESU2019-10-17T08:30:00Z42.331.49.07.0026.2130.088583VFRMETAR800.02019-10-17 08:44:26E[) 5    3LEHC 170830Z 27003KT 220V330 9999 -RA SCT050 BKN068 11/09 Q1018LEHC2019-10-17T08:30:00Z42.08-0.3211.09.027036.2130.059055-RAVFRMETAR539.02019-10-17 08:44:26 [V[0d(e5    3GMFO 170830Z VRB02KT CAVOK 18/09 Q1021 NOSIGGMFO2019-10-17T08:30:00Z34.77-1.9218.09.0026.2130.147638TRUEVFRMETAR470.02019-10-17 08:44:269c(q5    3GCTS 170830Z 06013KT 9999 FEW035 22/13 Q1021 NOSIGGCTS2019-10-17T08:30:00Z28.05-16.5722.013.060136.2130.147638TRUEVFRMETAR72.02019-10-17 08:44:265b(u5    3LESB 170830Z AUTO VRB02KT 9999 FEW033/// 22/15 Q1019LESB2019-10-17T08:30:00Z39.62.722.015.0026.2130.088583TRUEVFRMETAR48.02019-10-17 08:44:26Ea) 5    3LEVS 170830Z 19003KT 170V240 8000 -RA SCT024 BKN055 11/09 Q1020LEVS2019-10-17T08:30:00Z40.37-3.7711.09.019034.9730.11811-RAMVFRMETAR687.02019-10-17 08:44:26$`(Y5   3LELL 170830Z VRB01KT CAVOK 17/09 Q1017LELL2019-10-17T08:30:00Z41.522.117.09.0016.2130.029528VFRMETAR250.02019-10-17 08:44:26 :l6i(s5    3UKLL 170830Z VRB01MPS CAVOK 17/07 Q1020 R31/D NOSIGUKLL2019-10-17T08:30:00Z49.8223.9317.07.0026.2130.11811TRUEVFRMETAR325.02019-10-17 08:44:26Gh) 5    3UKDD 170830Z 11002MPS 070V140 CAVOK 18/11 Q1022 R08/090070 NOSIGUKDD2019-10-17T08:30:00Z48.3735.118.011.011046.2130.177166TRUEVFRMETAR149.02019-10-17 08:44:26Gg) 5    3UKOO 170830Z 10002MPS 070V130 CAVOK 17/14 Q1019 R16/090060 NOSIGUKOO2019-10-17T08:30:00Z46.4230.6817.014.010046.2130.088583TRUEVFRMETAR35.02019-10-17 08:44:26Hf) 5    3UKHH 170830Z 16003MPS 100V200 CAVOK 17/12 Q1023 R07/0///81 NOSIGUKHH2019-10-17T08:30:00Z49.9236.2817.012.016066.2130.206694TRUEVFRMETAR155.02019-10-17 08:44:26@e)5    3UKBB 170830Z 21003MPS 170V250 CAVOK 18/08 Q1020 R88/D NOSIGUKBB2019-10-17T08:30:00Z50.3330.918.08.021066.2130.11811TRUEVFRMETAR119.02019-10-17 08:44:26 b2xb&n(Y5   3DABB 170830Z 18004KT CAVOK 22/15 Q1018DABB2019-10-17T08:30:00Z36.827.8222.015.018046.2130.059055VFRMETAR4.02019-10-17 08:44:260m(i5   3DAAT 170830Z 11008KT 080V140 CAVOK 30/01 Q1021DAAT2019-10-17T08:30:00Z22.825.4730.01.011086.2130.147638VFRMETAR1377.02019-10-17 08:44:26.l(i5   3DAAG 170830Z 26004KT 200V310 CAVOK 21/14 Q1020DAAG2019-10-17T08:30:00Z36.723.2221.014.026046.2130.11811VFRMETAR25.02019-10-17 08:44:264k(k5    3VAAH 170830Z 04005KT 6000 NSC 36/17 Q1012 NOSIGVAAH2019-10-17T08:30:00Z23.0772.6236.017.04053.7329.88189TRUEMVFRMETAR55.02019-10-17 08:44:26Hj) 5    3UKDR 170830Z 14002MPS 100V220 CAVOK 18/11 Q1021 R36/09//70 NOSIGUKDR2019-10-17T08:30:00Z48.0533.2218.011.014046.2130.147638TRUEVFRMETAR124.02019-10-17 08:44:26 tKFtLs)5    3UAAA 170830Z VRB01MPS 9999 SCT050CB BKN100 18/02 Q1020 R05R/CLRD65 NOSIGUAAA2019-10-17T08:30:00Z43.3577.0318.02.0026.2130.11811TRUEVFRMETAR681.02019-10-17 08:44:26&r(Y5   3DAOO 170830Z 18005KT CAVOK 19/13 Q1020DAOO2019-10-17T08:30:00Z35.62-0.619.013.018056.2130.11811VFRMETAR90.02019-10-17 08:44:26'q(Y5   3DAUH 170830Z 07007KT CAVOK 25/14 Q1019DAUH2019-10-17T08:30:00Z31.676.1525.014.07076.2130.088583VFRMETAR142.02019-10-17 08:44:26&p(Y5   3DAON 170830Z 00000KT CAVOK 20/11 Q1020DAON2019-10-17T08:30:00Z35.02-1.4720.011.0006.2130.11811VFRMETAR247.02019-10-17 08:44:26/o(i5   3DABC 170830Z 09003KT 050V130 CAVOK 16/12 Q1022DABC2019-10-17T08:30:00Z36.276.6216.012.09036.2130.177166VFRMETAR694.02019-10-17 08:44:26 u5Uluqw)e5   3UACC 170830Z 29007MPS 270V330 9999 SCT023CB BKN029 05/M01 Q1019 R22/1///65 TEMPO 30009G14MPS RMK QFE733/0977UACC2019-10-17T08:30:00Z51.0271.475.0-1.0290146.2130.088583MVFRMETAR355.02019-10-17 08:44:26cv)G5    3UADD 170830Z 36004MPS 320V040 9999 FEW046 BKN100 21/04 Q1021 R31/0///65 NOSIG RMK QFE707/0943UADD2019-10-17T08:30:00Z42.8571.321.04.036086.2130.147638TRUEVFRSPECI665.02019-10-17 08:44:26Zu);5    3UAAT 170830Z 23010MPS 9999 BKN050CB OVC100 18/04 Q1016 R20/CLRD65 NOSIG RMK QFE710/0947UAAT2019-10-17T08:30:00Z45.1278.4518.04.0230196.2130.0TRUEVFRMETAR591.02019-10-17 08:44:26Et) 5    3UAAH 170830Z 32009MPS CAVOK 10/M05 Q1019 NOSIG RMK QFE725/0967UAAH2019-10-17T08:30:00Z46.975.010.0-5.0320176.2130.088583TRUEVFRSPECI441.02019-10-17 08:44:26 k@kO{)5    3UAOO 170830Z 02005MPS CAVOK 15/M01 Q1027 R05/CLRD70 NOSIG RMK QFE758/1011UAOO2019-10-17T08:30:00Z44.765.615.0-1.020106.2130.324802TRUEVFRMETAR129.02019-10-17 08:44:26Xz)-5    3UAII 170830Z 27005MPS 210V310 CAVOK 23/07 Q1023 R10/0///70 NOSIG RMK QFE731/0975UAII2019-10-17T08:30:00Z42.3769.4823.07.0270106.2130.206694TRUEVFRSPECI422.02019-10-17 08:44:26ry)K5   #  3UACP 170830Z 29006MPS 9999 -SHSNRA SCT016CB BKN026 04/00 Q1018 R23/2/0256 NOSIG RMK QFE751/1001UACP2019-10-17T08:30:00Z54.7869.184.00.0290126.2130.059055TRUE-SHSN -SHRAMVFRSPECI142.02019-10-17 08:44:26dx)95     3UACK 170830Z 31006MPS 9999 -SHRA OVC016CB 03/02 Q1018 R02/290255 NOSIG RMK QFE740/0986UACK2019-10-17T08:30:00Z53.3269.583.02.0310126.2130.059055TRUE-SHRAMVFRMETAR2547.02019-10-17 08:44:26 d.Ldb)95     3UASS 170830Z 27005MPS 8000 -SHRA BKN021CB 07/04 Q1012 R26/1///60 NOSIG RMK QFE741/0988UASS2019-10-17T08:30:00Z50.3580.237.04.0270104.9729.88189TRUE-SHRAMVFRSPECI232.02019-10-17 08:44:26\~);5    3UASP 170830Z 28009MPS 9999 SCT018CB BKN149 06/02 Q1012 R21/0///70 NOSIG RMK QFE747/0997UASP2019-10-17T08:30:00Z52.277.076.02.0280176.2129.88189TRUEVFRSPECI125.02019-10-17 08:44:26g})G5     3UASK 170830Z 32003MPS 9999 -SHRA SCT012 OVC037CB 06/04 Q1011 R30/290350 NOSIG RMK QFE733/0978UASK2019-10-17T08:30:00Z50.0382.56.04.032066.2129.852362TRUE-SHRAVFRMETAR286.02019-10-17 08:44:26_|);5    3UAKK 170830Z 29010MPS 9999 BKN010 BKN033CB 03/00 Q1018 R23/2///60 NOSIG RMK QFE717/0956UAKK2019-10-17T08:30:00Z49.6773.333.00.0290196.2130.059055TRUEMVFRSPECI538.02019-10-17 08:44:26 %R|U))5    3UATT 170830Z 31005MPS 280V360 CAVOK 07/M02 Q1031 R31/70D NOSIG RMK QFE753/1004UATT2019-10-17T08:30:00Z50.2557.27.0-2.0310106.2130.442913TRUEVFRMETAR227.02019-10-17 08:44:26P)5    3UATG 170830Z 09007MPS CAVOK 13/M00 Q1030 R14/CLRD70 NOSIG RMK QFE774/1033UATG2019-10-17T08:30:00Z47.1251.8313.00.090146.2130.413385TRUEVFRMETAR-22.02019-10-17 08:44:26M)5    3UATE 170830Z 09007MPS CAVOK 23/07 Q1024 R12/0///70 NOSIG RMK QFE766/1022UATE2019-10-17T08:30:00Z43.8751.123.07.090146.2130.236221TRUEVFRMETAR22.02019-10-17 08:44:26U)-5    3UARR 170830Z 20004MPS 150V240 CAVOK 10/00 Q1032 R22/CLRD70 NOSIG RMK QFE770/1027UARR2019-10-17T08:30:00Z51.1551.5310.00.020086.2130.47244TRUEVFRMETAR38.02019-10-17 08:44:26 &%l&4(q5   3VOND 170830Z 16002KT 6000 FEWO20 33/21 Q1012 NOSIGVOND2019-10-17T08:30:00Z19.1877.3233.021.016023.7329.88189TRUEMETAR86.02019-10-17 08:44:26M)#5   3VOVZ 170830Z 09004KT 6000 FEW014 FEW025CB BKN090 30/25 Q1011 TEMPO 5000 -DZVOVZ2019-10-17T08:30:00Z17.7583.2230.025.09043.7329.852362MVFRMETAR5.02019-10-17 08:44:263(k5    3VIDN 170830Z 18004KT 4000 HZ SCT040 30/18 Q1015VIDN2019-10-17T08:30:00Z30.278.1830.018.018042.4929.970472HZIFRMETAR558.02019-10-17 08:44:263(s5   3LPPR 170830Z VRB01KT 9999 SCT015 BKN040 17/17 Q1017LPPR2019-10-17T08:30:00Z41.22-8.6717.017.0016.2130.029528VFRMETAR73.02019-10-17 08:44:26U)-5    3WBSB 170830Z 33006KT 9999 TS FEW015 FEW016CB BKN300 31/26 Q1007 TEMPO TSRA -SHRAWBSB2019-10-17T08:30:00Z4.92114.9231.026.033066.2129.734253TSVFRMETAR15.02019-10-17 08:44:26 0?sH ) 5    3YSTW 170830Z AUTO 24013KT 9999 // NCD 21/00 Q1013 RF00.0/000.0YSTW2019-10-17T08:30:00Z-31.07150.8521.00.0240136.2129.911417TRUEVFRMETAR410.02019-10-17 08:44:26F ) 5    3YGEL 170830Z AUTO 18023KT 9999 // NCD 22/10 Q1015 RF00.0/000.0YGEL2019-10-17T08:30:00Z-28.8114.722.010.0180236.2129.970472TRUEVFRMETAR37.02019-10-17 08:44:26k )Y5   3YAMB 170830Z 08010KT CAVOK 22/19 Q1010 FM0900 30010KT 9999 FEW040 RMK USE TAF FOR ARRIVALS AFTER 1030ZYAMB2019-10-17T08:30:00Z-27.63152.7222.019.080106.2129.822834VFRMETAR28.02019-10-17 08:44:26J )5    3YGLA 170830Z AUTO 01009KT 9999 // BKN024 24/18 Q1015 RF00.0/000.0YGLA2019-10-17T08:30:00Z-23.87151.2224.018.01096.2129.970472TRUEMVFRMETAR52.02019-10-17 08:44:26 >qI) 5    3YPWR 170830Z AUTO 21004KT 9999 // NCD 21/M05 Q1018 RF00.0/000.0YPWR2019-10-17T08:30:00Z-31.12136.8221.0-5.021046.2130.059055TRUEVFRMETAR167.02019-10-17 08:44:26Z)/5    3YPEA 170830Z 21014KT CAVOK 21/09 Q1019 NOSIG RMK USE TAF FOR ARRIVALS AFTER 0900ZYPEA2019-10-17T08:30:00Z-31.67116.0221.09.0210146.2130.088583TRUEVFRMETAR49.02019-10-17 08:44:26G) 5    3YPJT 170830Z AUTO 22015KT 9999 // NCD 20/10 Q1019 RF00.0/000.0YPJT2019-10-17T08:30:00Z-32.1115.8820.010.0220156.2130.088583TRUEVFRMETAR30.02019-10-17 08:44:26< (u5    3YHID 170830Z AUTO 11015KT 9999 // SCT020 26/21 Q1011YHID2019-10-17T08:30:00Z-10.58142.326.021.0110156.2129.852362TRUEVFRMETAR13.02019-10-17 08:44:26 5fI) 5    3YFRT 170830Z AUTO 36005KT 9999 // NCD 25/M01 Q1017 RF00.0/000.0YFRT2019-10-17T08:30:00Z-30.83128.1225.0-1.036056.2130.029528TRUEVFRMETAR156.02019-10-17 08:44:26F) 5    3YPKU 170830Z AUTO 36009KT 9999 // NCD 40/02 Q1007 RF00.0/000.0YPKU2019-10-17T08:30:00Z-15.77128.6840.02.036096.2129.734253TRUEVFRMETAR45.02019-10-17 08:44:26I)5    3YPGV 170830Z AUTO 06007KT 9999 // BKN018 27/21 Q1012 RF00.0/000.0YPGV2019-10-17T08:30:00Z-12.27136.8227.021.06076.2129.88189TRUEMVFRMETAR55.02019-10-17 08:44:26E) 5    3YSDU 170830Z AUTO 23014KT 9999 // NCD 17/M07 Q1016 RF00.0/000.0YSDU2019-10-17T08:30:00Z-32.22148.5717.0-7.0230146.2130.0TRUEVFRMETAR275.02019-10-17 08:44:26 2w)(Y5   3YPDN 170830Z 05010KT CAVOK 33/14 Q1010YPDN2019-10-17T08:30:00Z-12.42130.933.014.050106.2129.822834VFRMETAR30.02019-10-17 08:44:26[)75   3YMML 170830Z 24018KT 9999 FEW035 BKN060 12/05 Q1014 FM0900 26010KT 9999 FEW030 FEW045YMML2019-10-17T08:30:00Z-37.67144.8212.05.0240186.2129.940945VFRMETAR141.02019-10-17 08:44:265(e5    3YPPH 170830Z 23015KT CAVOK 21/10 Q1019 NOSIGYPPH2019-10-17T08:30:00Z-31.93115.9821.010.0230156.2130.088583TRUEVFRMETAR13.02019-10-17 08:44:26H) 5    3YCIN 170830Z AUTO 33012KT 9999 // NCD 39/12 Q1006 RF00.0/000.0YCIN2019-10-17T08:30:00Z-17.58123.8339.012.0330126.2129.704725TRUEVFRMETAR91.02019-10-17 08:44:26 FzL)5    3YBHM 170830Z AUTO 36010KT 9999 // BKN025 BKN029 OVC034 25/20 Q1015YBHM2019-10-17T08:30:00Z-20.35148.9525.020.0360106.2129.970472TRUEMVFRMETAR5.02019-10-17 08:44:26F) 5    3YBMA 170830Z AUTO 19006KT 9999 // NCD 36/03 Q1012 RF00.0/000.0YBMA2019-10-17T08:30:00Z-20.67139.4736.03.019066.2129.88189TRUEVFRMETAR344.02019-10-17 08:44:268(q5    3YPAD 170830Z 24004KT 9999 FEW045 14/06 Q1019 NOSIGYPAD2019-10-17T08:30:00Z-34.95138.5214.06.024046.2130.088583TRUEVFRMETAR4.02019-10-17 08:44:26v)q5   3YBBN 170830Z 03016KT 9999 FEW030 BKN220 FEW040CB 23/20 Q1011 FM1000 35014KT 9999 FEW035 FM0830 MOD TURB BLW 5000FTYBBN2019-10-17T08:30:00Z-27.38153.1323.020.030166.2129.852362VFRMETAR5.02019-10-17 08:44:26 @MG ) 5    3YPPD 170830Z AUTO 30017KT 9999 // NCD 35/10 Q1009 RF00.0/000.0YPPD2019-10-17T08:30:00Z-20.37118.6235.010.0300176.2129.793306TRUEVFRMETAR6.02019-10-17 08:44:26H) 5    3YBRK 170830Z AUTO 36011KT 9999 // NCD 27/18 Q1013 RF00.0/000.0YBRK2019-10-17T08:30:00Z-23.37150.4727.018.0360116.2129.911417TRUEVFRMETAR14.02019-10-17 08:44:26m)[5    3YWLM 170830Z 27010KT CAVOK 23/M01 Q1009 USE TAF FOR ARRIVALS AFTER 0900Z FM0830 MOD/SEV TURB BLW 5000FTYWLM2019-10-17T08:30:00Z-32.8151.8323.0-1.0270106.2129.793306VAVFRMETAR9.02019-10-17 08:44:26:(u5    3YLHI 170830Z AUTO 04008KT 9999 // SCT014 20/18 Q1011YLHI2019-10-17T08:30:00Z-31.53159.0720.018.04086.2129.852362TRUEVFRMETAR2.02019-10-17 08:44:26 13f1F%)5    3YPXM 170830Z AUTO 12012KT 9999 // SCT017 BKN021 25/20 Q1012YPXM2019-10-17T08:30:00Z-10.45105.6725.020.0120126.2129.88189TRUEMVFRMETAR259.02019-10-17 08:44:26.$(e5   3YPCC 170830Z 13013KT 9999 FEW022 28/21 Q1012YPCC2019-10-17T08:30:00Z-12.1796.8228.021.0130136.2129.88189VFRMETAR3.02019-10-17 08:44:26/#(e5   3YMHB 170830Z 10004KT 9999 FEW024 12/07 Q1007YMHB2019-10-17T08:30:00Z-42.82147.5212.07.010046.2129.734253VFRMETAR27.02019-10-17 08:44:26G") 5    3YMLT 170830Z AUTO 16007KT 9999 // NCD 11/04 Q1006 RF00.0////./YMLT2019-10-17T08:30:00Z-41.52147.1811.04.016076.2129.704725TRUEVFRMETAR178.02019-10-17 08:44:26G!)5    3YSNF 170830Z AUTO 00000KT 9999 // SCT035 15/09 Q1020 RF00.0/000.0YSNF2019-10-17T08:30:00Z-29.02167.9215.09.0006.2130.11811TRUEVFRMETAR109.02019-10-17 08:44:26 3mD*) 5    3YPKG 170830Z AUTO 18004KT 9999 // NCD 26/M04 Q1016 RF00.0/000.0YPKG2019-10-17T08:30:00Z-30.77121.4526.0-4.018046.2130.0TRUEVFRMETAR360.02019-10-17 08:44:26H)) 5    3YPLM 170830Z AUTO 27013KT 9999 // NCD 33/M03 Q1010 RF00.0/000.0YPLM2019-10-17T08:30:00Z-22.22114.0733.0-3.0270136.2129.822834TRUEVFRMETAR6.02019-10-17 08:44:266((g5    3YPTN 170830Z 06010KT CAVOK 39/M01 Q1008 NOSIGYPTN2019-10-17T08:30:00Z-14.52132.3839.0-1.060106.2129.763779TRUEVFRMETAR109.02019-10-17 08:44:26@'(5    3YBTL 170830Z 01010KT 9999 FEW028 SCT180 25/20 Q1014 NOSIGYBTL2019-10-17T08:30:00Z-19.25146.7525.020.010106.2129.940945TRUEVFRMETAR6.02019-10-17 08:44:26G&) 5    3YBRM 170830Z AUTO 27010KT 9999 // NCD 31/23 Q1007 RF00.0/000.0YBRM2019-10-17T08:30:00Z-17.93122.2231.023.0270106.2129.734253TRUEVFRMETAR9.02019-10-17 08:44:26 4'NI.)5    3YMAV 170830Z AUTO 26013KT 9999 // SCT052 13/07 Q1014 RF00.0/000.0YMAV2019-10-17T08:30:00Z-38.03144.4813.07.0260136.2129.940945TRUEVFRMETAR8.02019-10-17 08:44:26S-)5     3YBCS 170830Z AUTO 02003KT 9999 // BKN025 25/20 Q1014 RF00.0/000.0 NOSIGYBCS2019-10-17T08:30:00Z-16.87145.7525.020.02036.2129.940945TRUETRUEMVFRMETAR7.02019-10-17 08:44:26,) 5    3YSCB 170830Z AUTO 29010KT 9999 // NCD 09/02 Q1013 RF00.0/000.0 FM0830 SEV TURB BLW 5000FT RMK USE TAF FOR ARRIVALS AFTER 0900ZYSCB2019-10-17T08:30:00Z-35.28149.179.02.0290106.2129.911417TRUEVFRMETAR577.02019-10-17 08:44:26F+) 5    3YBCG 170830Z AUTO 34010KT 9999 // NCD 22/19 Q1011 RF00.0/001.8YBCG2019-10-17T08:30:00Z-28.17153.522.019.0340106.2129.852362TRUEVFRMETAR6.02019-10-17 08:44:26 3Jl42(s5    3LFHP 170830Z AUTO 18011KT 150V220 CAVOK 14/09 Q1016LFHP2019-10-17T08:30:00Z45.073.7714.09.0180116.2130.0TRUEVFRMETAR833.02019-10-17 08:44:26X1)=5    3LFLW 170830Z AUTO 09003KT 020V180 9999 OVC047/// ///TCU 13/08 Q1016 TEMPO 2000 RA BKN050LFLW2019-10-17T08:30:00Z44.882.4213.08.09036.2130.0TRUEVFRMETAR639.02019-10-17 08:44:26c0)C5     3LFQG 170830Z AUTO 14005KT 110V170 9999 -RA FEW043/// BKN056/// OVC070/// ///TCU 14/12 Q1014LFQG2019-10-17T08:30:00Z47.03.114.012.014056.2129.940945TRUE-RAVFRMETAR181.02019-10-17 08:44:26G/) 5    3YBAS 170830Z AUTO 12008KT 9999 // NCD 23/M01 Q1018 RF00.0/000.0YBAS2019-10-17T08:30:00Z-23.8133.923.0-1.012086.2130.059055TRUEVFRMETAR541.02019-10-17 08:44:26 BZz6)]5     3PAED 170830Z 01004KT 10SM -DZ BKN041 OVC050 01/M01 A2904 RMK AO2A UPB00E04DZB04E10RAB10E24DZB24 SLP831 $PAED2019-10-17T08:30:00Z61.25-149.81.0-1.010410.029.040354983.1TRUETRUE-DZVFRSPECI59.02019-10-17 08:44:2605(e5    3LWSK 170830Z 00000KT CAVOK 18/10 Q1020 NOSIGLWSK2019-10-17T08:30:00Z41.9721.6318.010.0006.2130.11811TRUEVFRMETAR239.02019-10-17 08:44:26b4)75   3OAKB 170830Z 02013G23KT 9000 4000SE HZ VCTS FEW035CB SCT050 21/03 Q1022 RMK A3019 BLUOAKB2019-10-17T08:30:00Z34.5569.2221.03.02013235.5930.177166VCTS HZVFRSPECI1791.02019-10-17 08:44:2683(q5    3WAPP 170830Z 19005KT 9999 SCT018 28/24 Q1008 NOSIGWAPP2019-10-17T08:30:00Z-3.7128.0728.024.019056.2129.763779TRUEVFRMETAR12.02019-10-17 08:44:26 /\B:)5    3UDYZ 170830Z 15002KT 9999 NSC 22/M01 Q1023 R09/010070 NOSIGUDYZ2019-10-17T08:30:00Z40.1544.422.0-1.015026.2130.206694TRUEVFRMETAR865.02019-10-17 08:44:26B9)5    3UDSG 170830Z VRB02KT 9000 NSC 19/M06 Q1026 R02/CLRD70 NOSIGUDSG2019-10-17T08:30:00Z40.7543.8719.0-6.0025.5930.295275TRUEVFRMETAR1524.02019-10-17 08:44:26M8) 5    3KBMC 170830Z AUTO 03003KT 10SM CLR 07/00 A2986 RMK AO1 T00651002KBMC2019-10-17T08:30:00Z41.55-112.076.5-0.230310.029.861221TRUETRUEVFRMETAR1288.02019-10-17 08:44:26K7) 5    3K2J3 170830Z AUTO 30006KT 10SM CLR 09/08 A2991 RMK AO2 T00940076K2J32019-10-17T08:30:00Z32.98-82.389.47.6300610.029.911417TRUETRUEVFRMETAR100.02019-10-17 08:44:26 :>U>))5    3UTDD 170830Z 25003MPS 200V300 9999 NSC 23/05 Q1022 R09/D NOSIG RMK QFE698/0930UTDD2019-10-17T08:30:00Z38.5368.8223.05.025066.2130.177166TRUEVFRMETAR803.02019-10-17 08:44:26,=(e5   3EPBY 170830Z 20006KT 9999 BKN045 13/10 Q1014EPBY2019-10-17T08:30:00Z53.118.013.010.020066.2129.940945VFRMETAR71.02019-10-17 08:44:26v<)S5      3KMPV 170830Z AUTO 35008KT 5SM RA BR FEW006 BKN024 OVC032 08/08 A2916 RMK AO2 PRESFR P0022 T00780078KMPV2019-10-17T08:30:00Z44.2-72.577.87.835085.029.161417TRUETRUERA BRMVFR0.22SPECI343.02019-10-17 08:44:26@;(}5    3VOMY 170830Z 12007KT 8000 VCSH SCT015 SCT020 28/21 Q1013VOMY2019-10-17T08:30:00Z12.2376.6528.021.012074.9729.911417VCSHMVFRMETAR722.02019-10-17 08:44:26 >~B)g5     3KPSF 170830Z AUTO 28019G28KT 2SM +RA BR SCT010 OVC019 07/05 A2906 RMK AO2 PK WND 31028/0825 P0044 T00720050 $KPSF2019-10-17T08:30:00Z42.43-73.287.25.028019282.029.061024TRUETRUETRUE+RA BRIFR0.44METAR355.02019-10-17 08:44:26`A)+5   3KWST 170830Z AUTO 24011G22KT 10SM SCT026 BKN060 14/09 A2902 RMK AO2 T01390089 $KWST2019-10-17T08:30:00Z41.35-71.813.98.9240112210.029.019686TRUETRUETRUEVFRMETAR21.02019-10-17 08:44:26:@(q5    3NTAA 170830Z 35004KT 9999 FEW020 26/23 Q1015 NOSIGNTAA2019-10-17T08:30:00Z-17.55-149.6226.023.035046.2129.970472TRUEVFRMETAR2.02019-10-17 08:44:26 (y5    3K1F0 170830Z AUTO 00000KT 10SM CLR 05/04 A3009 RMK AO2K1F02019-10-17T08:30:00Z34.15-97.125.04.00010.030.088583TRUETRUEVFRMETAR257.02019-10-17 08:44:26J) 5    3K17J 170830Z AUTO 00000KT 10SM CLR 12/11 A2997 RMK AO2 T01190114K17J2019-10-17T08:30:00Z31.07-84.9211.911.40010.029.970472TRUETRUEVFRMETAR45.02019-10-17 08:44:26 I 4VI)m5     3KERI 170830Z AUTO 30022G33KT 10SM -RA SCT021 BKN028 OVC036 09/04 A2959 RMK AO2 PK WND 29034/0812 P0000 T00940044KERI2019-10-17T08:30:00Z42.08-80.189.44.4300223310.029.589567TRUETRUE-RAMVFR0.005SPECI222.02019-10-17 08:44:26X)5     3KMYF 170830Z AUTO 00000KT 1/4SM FG VV002 18/17 A2983 RMK AO2 T01780167KMYF2019-10-17T08:30:00Z32.82-117.1317.816.7000.2529.828741TRUETRUEFGLIFR200METAR136.02019-10-17 08:44:26Q )!5    3KRKP 170830Z AUTO 36007KT 10SM BKN023 OVC100 19/12 A3000 RMK AO2 T01940122KRKP2019-10-17T08:30:00Z28.08-97.0519.412.2360710.030.0TRUETRUEMVFRMETAR6.02019-10-17 08:44:26o )K5     3KYNG 170830Z 28013KT 10SM FEW021 BKN040 OVC055 07/03 A2967 RMK AO2 RAB0755E29 P0000 T00670033 $KYNG2019-10-17T08:30:00Z41.25-80.676.73.32801310.029.66929TRUETRUEVFR0.005METAR360.02019-10-17 08:44:26 ?1?5(u5   3LZSL 170830Z 23003KT 200V290 9999 SCT006 09/06 Q1021LZSL2019-10-17T08:30:00Z48.6319.139.06.023036.2130.147638VFRMETAR313.02019-10-17 08:44:267(q5    3HECA 170830Z 02005KT 9999 FEW025 26/18 Q1018 NOSIGHECA2019-10-17T08:30:00Z30.1231.3826.018.02056.2130.059055TRUEVFRMETAR74.02019-10-17 08:44:26E)5    3LCLK 170830Z 11004KT 080V140 9999 FEW025 FEW030TCU 29/22 Q1016 NOSIGLCLK2019-10-17T08:30:00Z34.8733.6229.022.011046.2130.0TRUEVFRMETAR2.02019-10-17 08:44:26)(e5   3LCPH 170830Z 29014KT 9999 FEW030 28/19 Q1016LCPH2019-10-17T08:30:00Z34.7232.4728.019.0290146.2130.0VFRMETAR8.02019-10-17 08:44:26I)5    3KDLH 170830Z 00000KT 10SM FEW025 OVC080 06/02 A2999 RMK AO2 T00560017KDLH2019-10-17T08:30:00Z46.85-92.25.61.70010.029.991142TRUEVFRMETAR435.02019-10-17 08:44:26 V3}V*(i5   3LKKV 170830Z 22004KT 160V290 CAVOK 11/06 Q1016LKKV2019-10-17T08:30:00Z50.212.9211.06.022046.2130.0VFRMETAR604.02019-10-17 08:44:26:(u5    3LKMT 170830Z 24003KT 210V270 CAVOK 12/09 Q1019 NOSIGLKMT2019-10-17T08:30:00Z49.6718.1212.09.024036.2130.088583TRUEVFRMETAR256.02019-10-17 08:44:261(e5    3LKPR 170830Z 17003KT CAVOK 12/07 Q1017 NOSIGLKPR2019-10-17T08:30:00Z50.114.2712.07.017036.2130.029528TRUEVFRMETAR365.02019-10-17 08:44:260(e5    3LKTB 170830Z VRB02KT CAVOK 13/09 Q1019 NOSIGLKTB2019-10-17T08:30:00Z49.1316.6813.09.0026.2130.088583TRUEVFRMETAR246.02019-10-17 08:44:26G) 5    3KADM 170830Z AUTO 00000KT 7SM CLR 05/05 A3009 RMK AO2 T00470046KADM2019-10-17T08:30:00Z34.28-97.024.74.6007.030.088583TRUETRUEVFRMETAR232.02019-10-17 08:44:26 K4$(Y5   3LYUZ 170830Z VRB01KT CAVOK 18/09 Q1022LYUZ2019-10-17T08:30:00Z43.919.718.09.0016.2130.177166VFRMETAR904.02019-10-17 08:44:261(s5   3LZZI 170830Z VRB02KT 9999 SCT004 BKN005 09/07 Q1020LZZI2019-10-17T08:30:00Z49.2318.629.07.0026.2130.11811IFRMETAR311.02019-10-17 08:44:26%(Y5   3BIKF 170830Z 03006KT CAVOK 04/01 Q1006BIKF2019-10-17T08:30:00Z63.98-22.64.01.03066.2129.704725VFRMETAR54.02019-10-17 08:44:26/(e5    3LYBE 170830Z VRB02KT CAVOK 17/12 Q1020 NOSIGLYBE2019-10-17T08:30:00Z44.8220.2817.012.0026.2130.11811TRUEVFRMETAR99.02019-10-17 08:44:26/(e5    3LYBT 170830Z 00000KT CAVOK 16/15 Q1020 NOSIGLYBT2019-10-17T08:30:00Z44.9320.2516.015.0006.2130.11811TRUEVFRMETAR80.02019-10-17 08:44:26 HJHO#)5    3ETNW 170830Z 22009KT 9999 -DZ FEW013 BKN015 14/12 Q1010 WHT WHT TEMPO GRNETNW2019-10-17T08:30:00Z52.459.4214.012.022096.2129.822834-DZMVFRSPECI70.02019-10-17 08:44:26<"({5    3LYVR 170830Z 19005KT 160V220 9000 NSC 18/10 Q1020 NOSIGLYVR2019-10-17T08:30:00Z45.1321.3218.010.019055.5930.11811TRUEVFRMETAR85.02019-10-17 08:44:260!(e5    3LYKV 170830Z 00000KT CAVOK 17/11 Q1020 NOSIGLYKV2019-10-17T08:30:00Z43.8220.5817.011.0006.2130.11811TRUEVFRMETAR209.02019-10-17 08:44:26/ (e5    3LYNI 170830Z VRB02KT CAVOK 17/08 Q1020 NOSIGLYNI2019-10-17T08:30:00Z43.3221.8817.08.0026.2130.11811TRUEVFRMETAR202.02019-10-17 08:44:260(e5    3LYPG 170830Z VRB01KT CAVOK 21/12 Q1019 NOSIGLYPG2019-10-17T08:30:00Z42.3719.2521.012.0016.2130.088583TRUEVFRMETAR43.02019-10-17 08:44:26 6>6B() 5    3CWPF 170830Z AUTO 14001KT 10/09 RMK AO1 SLP034 T00980086 51006CWPF2019-10-17T08:30:00Z48.43-123.439.88.614011003.4TRUETRUE0.6METAR12.02019-10-17 08:44:26>') 5     3CMGB 170830Z AUTO 03007KT 08/ RMK AO1 PRESFR SLP928 T0079 58050CMGB2019-10-17T08:30:00Z45.37-72.777.9307992.8TRUETRUE-5.0METAR86.02019-10-17 08:44:26>&)5    3LQSA 170830Z VRB02KT 3000 BR SCT003 11/11 Q1021 BECMG 5000LQSA2019-10-17T08:30:00Z43.8218.3211.011.0021.8630.147638BRIFRSPECI511.02019-10-17 08:44:262%(k5    3LQTZ 170830Z VRB02KT 1500 BR BKN002 12/12 Q1020LQTZ2019-10-17T08:30:00Z44.4718.7312.012.0020.9330.11811BRLIFRMETAR306.02019-10-17 08:44:26<$(5    3LQBK 170830Z VRB02KT 6000 SCT005 OVC007 14/14 Q1020 NOSIGLQBK2019-10-17T08:30:00Z44.9317.314.014.0023.7330.11811TRUEIFRMETAR122.02019-10-17 08:44:26 A}J,)5    3EIDW 170830Z 16010KT 120V190 9999 FEW020CB SCT120 11/07 Q0997 NOSIGEIDW2019-10-17T08:30:00Z53.42-6.2511.07.0160106.2129.438976TRUEVFRMETAR85.02019-10-17 08:44:26>+(5    3EINN 170830Z 15011KT 9999 FEW018 BKN060 11/08 Q0994 NOSIGEINN2019-10-17T08:30:00Z52.7-8.9211.08.0150116.2129.350393TRUEVFRMETAR20.02019-10-17 08:44:26X*)5    3EICK 170830Z 19010KT 9999 FEW013 FEW019CB SCT047 BKN250 09/08 Q0996 NOSIGEICK2019-10-17T08:30:00Z51.85-8.479.08.0190106.2129.409449TRUEBKN25000VFRMETAR162.02019-10-17 08:44:26[))-5     3EIKN 170830Z 16012KT 110V190 9999 -SHRA FEW014 SCT018CB BKN037 07/07 Q0993 NOSIGEIKN2019-10-17T08:30:00Z53.92-8.827.07.0160126.2129.320866TRUE-SHRAVFRMETAR64.02019-10-17 08:44:26 '"'u0)k5    3LFPV 170830Z AUTO 20004KT 170V250 9999 BKN007/// BKN023/// OVC034/// ///TCU 12/11 Q1011 TEMPO 3500 -DZRA BKN004LFPV2019-10-17T08:30:00Z48.772.212.011.020046.2129.852362TRUEIFRSPECI179.02019-10-17 08:44:26U/)'5    3LFBC 170830Z AUTO 17009KT 9999 FEW007 BKN017 17/15 Q1013 TEMPO 4000 RA BKN007LFBC2019-10-17T08:30:00Z44.52-1.1217.015.017096.2129.911417TRUEMVFRSPECI33.02019-10-17 08:44:26{.)u5    3LFBG 170830Z AUTO 18012KT 9999 FEW005/// SCT026/// BKN056/// ///CB 15/14 Q1012 TEMPO 4000 RA BKN008 BKN014 BKN025TCULFBG2019-10-17T08:30:00Z45.67-0.3215.014.0180126.2129.88189TRUEVFRMETAR31.02019-10-17 08:44:26|-)q5     3LFOA 170830Z AUTO 15007KT 9999 -RA FEW034/// BKN043/// OVC050/// ///TCU 14/12 Q1013 TEMPO 4000 -RADZ BKN008 SCT020LFOA2019-10-17T08:30:00Z47.032.6314.012.015076.2129.911417TRUE-RAVFRMETAR179.02019-10-17 08:44:26 7@7J5)5    3VTSP 170830Z 29007KT 250V330 9999 FEW018TCU SCT100 31/24 Q1009 NOSIGVTSP2019-10-17T08:30:00Z8.1298.3231.024.029076.2129.793306TRUEVFRMETAR10.02019-10-17 08:44:2674(u5    3LFMC 170830Z AUTO VRB02KT 9999 // BKN025 15/12 Q1020LFMC2019-10-17T08:30:00Z43.376.3715.012.0026.2130.11811TRUEMVFRMETAR78.02019-10-17 08:44:26D3) 5    3LFMO 170830Z AUTO VRB01KT 9999 BKN029 17/13 Q1018 BECMG 17015KTLFMO2019-10-17T08:30:00Z44.124.8717.013.0016.2130.059055TRUEMVFRMETAR55.02019-10-17 08:44:26,2(c5    3LFKS 170830Z AUTO VRB02KT CAVOK 21/14 Q1020LFKS2019-10-17T08:30:00Z41.929.421.014.0026.2130.11811TRUEVFRMETAR22.02019-10-17 08:44:26:1(o5     3LFBM 170830Z AUTO 10003KT CAVOK 14/13 Q1014 NOSIGLFBM2019-10-17T08:30:00Z43.92-0.514.013.010036.2129.940945TRUETRUEVFRMETAR63.02019-10-17 08:44:26 +QG9) 5    3LFRV 170830Z AUTO 18003KT 9999 FEW016 BKN043 BKN058 13/13 Q1009LFRV2019-10-17T08:30:00Z47.72-2.7213.013.018036.2129.793306TRUEVFRMETAR133.02019-10-17 08:44:26T8)'5    3LFMI 170830Z AUTO 09010KT 9999 BKN023 BKN034 BKN043 20/15 Q1017 BECMG 15010KTLFMI2019-10-17T08:30:00Z43.524.9220.015.090106.2130.029528TRUEMVFRMETAR24.02019-10-17 08:44:26m7)U5    3LFRL 170830Z AUTO 20011KT 9999 BKN012 BKN042 BKN049 14/12 Q1007 TEMPO 22015G27KT 4000 SHRA BKN014TCULFRL2019-10-17T08:30:00Z48.27-4.4214.012.0200116.2129.734253TRUEMVFRMETAR82.02019-10-17 08:44:26\6)/5      3LFBA 170830Z AUTO 09005KT 060V120 9999 -RA FEW046 SCT062 BKN072 14/12 Q1015 NOSIGLFBA2019-10-17T08:30:00Z44.170.614.012.09056.2129.970472TRUETRUE-RAVFRMETAR60.02019-10-17 08:44:26 glg%>(Y5   3LRSM 170830Z 00000KT CAVOK 18/11 Q1020LRSM2019-10-17T08:30:00Z47.722.8818.011.0006.2130.11811VFRMETAR124.02019-10-17 08:44:26'=(Y5   3LRCL 170830Z 09004KT CAVOK 15/07 Q1021LRCL2019-10-17T08:30:00Z46.7823.6815.07.09046.2130.147638VFRMETAR413.02019-10-17 08:44:26'<(Y5   3LRAR 170830Z VRB01KT CAVOK 19/11 Q1019LRAR2019-10-17T08:30:00Z46.1821.2719.011.0016.2130.088583VFRMETAR118.02019-10-17 08:44:26&;(Y5   3LRBM 170830Z VRB03KT CAVOK 17/12 Q1020LRBM2019-10-17T08:30:00Z47.6723.4717.012.0036.2130.11811VFRMETAR185.02019-10-17 08:44:26b:)E5    3LFRZ 170830Z AUTO 18009KT 9999 SCT005 15/14 Q1010 TEMPO 23018G30KT 3000 SHRA BKN012 SCT020CBLFRZ2019-10-17T08:30:00Z47.32-2.1715.014.018096.2129.822834TRUEVFRMETAR4.02019-10-17 08:44:26 vK0v4C(u5   3DTTA 170830Z 10003KT 040V160 9999 FEW026 23/16 Q1020DTTA2019-10-17T08:30:00Z36.8510.2223.016.010036.2130.11811VFRMETAR4.02019-10-17 08:44:26,B(e5   3DTMB 170830Z 17007KT 9999 FEW026 24/20 Q1020DTMB2019-10-17T08:30:00Z35.7710.7524.020.017076.2130.11811VFRMETAR2.02019-10-17 08:44:264A(u5   3DTNH 170830Z 21005KT 180V240 9999 FEW021 23/18 Q1020DTNH2019-10-17T08:30:00Z36.0710.4323.018.021056.2130.11811VFRMETAR2.02019-10-17 08:44:26)@(_5   3LRTM 170830Z 00000KT 9000 NSC 14/09 Q1021LRTM2019-10-17T08:30:00Z46.4724.4214.09.0005.5930.147638VFRMETAR309.02019-10-17 08:44:26/?(i5   3LROD 170830Z 03002KT 330V090 CAVOK 19/11 Q1020LROD2019-10-17T08:30:00Z47.0321.9219.011.03026.2130.11811VFRMETAR140.02019-10-17 08:44:26 9rmDp) 5    3LFRO 170830Z AUTO VRB03KT 9999 FEW025 SCT034 BKN050 12/11 Q1007LFRO2019-10-17T08:30:00Z48.75-3.4712.011.0036.2129.734253TRUEVFRMETAR89.02019-10-17 08:44:26Lo)5    3KNOW 170830Z AUTO 15004KT 10SM SCT016 08/08 A2963 RMK AO2 T00830080KNOW2019-10-17T08:30:00Z48.13-123.48.38.0150410.029.630905TRUETRUEVFRMETAR4.02019-10-17 08:44:26Kn) 5    3KOLY 170830Z AUTO 30005KT 10SM CLR 03/03 A3007 RMK AO2 T00340034KOLY2019-10-17T08:30:00Z38.72-88.183.43.4300510.030.070866TRUETRUEVFRMETAR147.02019-10-17 08:44:26(5    3LFLS 170830Z AUTO 08008KT CAVOK 14/10 Q1017 BECMG 24010KTLFLS2019-10-17T08:30:00Z45.375.3214.010.08086.2130.029528TRUEVFRSPECI386.02019-10-17 08:44:26 >}; (o5     3LFMH 170830Z AUTO 21006KT CAVOK 17/11 Q1015 NOSIGLFMH2019-10-17T08:30:00Z45.524.2817.011.021066.2129.970472TRUETRUEVFRMETAR402.02019-10-17 08:44:26; (u5    3LFGJ 170830Z AUTO 20014KT CAVOK 18/11 Q1014 TEMPO RALFGJ2019-10-17T08:30:00Z47.055.4318.011.0200146.2129.940945TRUEVFRSPECI196.02019-10-17 08:44:266 (o5     3LFMD 170830Z AUTO VRB03KT CAVOK 19/15 Q1020 NOSIGLFMD2019-10-17T08:30:00Z43.536.9519.015.0036.2130.11811TRUETRUEVFRMETAR9.02019-10-17 08:44:26 )}5     3LFBE 170830Z AUTO 09003KT 060V140 9999 -RA FEW022/// BKN040/// BKN048/// ///TCU 14/13 Q1015 TEMPO 4000 -RA SCT010 BKN015LFBE2019-10-17T08:30:00Z44.820.5214.013.09036.2129.970472TRUE-RAVFRMETAR52.02019-10-17 08:44:26Y88@HPX`hpx (08@HPX`hpx (08@HPX`hpxrw{ #rw{ #(,059>CGKOSW[`dhlptx|  !&+05:>BGLPTY^chmrw{·÷ķŷ ƷǷȷɷʷ!˷%̷*ͷ.η2Ϸ6з:ѷ>ҷBӷFԷJշNַS׷Wط[ٷ_ڷc۷gܷkݷo ,R|_);5    3LFRG 170830Z AUTO 17010KT 9999 BKN006 BKN066 OVC076 10/10 Q1010 TEMPO SHRA BECMG SCT020LFRG2019-10-17T08:30:00Z49.370.1510.010.0170106.2129.822834TRUEIFRSPECI146.02019-10-17 08:44:26P)5     3LFST 170830Z AUTO 19006KT 9999 BKN049 BKN094 BKN180 15/11 Q1015 NOSIGLFST2019-10-17T08:30:00Z48.537.6215.011.019066.2129.970472TRUETRUEVFRMETAR154.02019-10-17 08:44:26T)'5     3LFTH 170830Z AUTO 02003KT 310V060 9999 FEW041 BKN058 OVC068 19/16 Q1019 NOSIGLFTH2019-10-17T08:30:00Z43.16.1519.016.02036.2130.088583TRUETRUEVFRMETAR4.02019-10-17 08:44:26N)5     3LFOT 170830Z AUTO 08003KT 4000 BR OVC004 12/12 Q1011 TEMPO 2500 -RADZLFOT2019-10-17T08:30:00Z47.430.7212.012.08032.4929.852362TRUEBRLIFRSPECI108.02019-10-17 08:44:26 <K?(5     3LFKF 170830Z AUTO 08005KT 040V150 CAVOK 22/13 Q1020 NOSIGLFKF2019-10-17T08:30:00Z41.59.0822.013.08056.2130.11811TRUETRUEVFRMETAR23.02019-10-17 08:44:26>(5     3LFKJ 170830Z AUTO 03004KT 350V060 CAVOK 21/10 Q1020 NOSIGLFKJ2019-10-17T08:30:00Z41.928.821.010.03046.2130.11811TRUETRUEVFRMETAR9.02019-10-17 08:44:26k)M5     3LFLC 170830Z AUTO 18016KT 9999 -RA BKN062/// BKN072/// OVC084/// ///TCU 14/10 Q1014 TEMPO BKN050LFLC2019-10-17T08:30:00Z45.773.1714.010.0180166.2129.940945TRUE-RAVFRSPECI330.02019-10-17 08:44:26>(}5    3ZBAA 170830Z 19002MPS 150V250 9000 NSC 15/07 Q1024 NOSIGZBAA2019-10-17T08:30:00Z40.07116.5815.07.019045.5930.236221TRUEVFRMETAR30.02019-10-17 08:44:26 .^/(e5   3GCHI 170830Z 03014KT 9999 FEW030 23/16 Q1021GCHI2019-10-17T08:30:00Z27.82-17.8723.016.030146.2130.147638VFRMETAR30.02019-10-17 08:44:26E) 5    3LJLJ 170830Z VRB01KT 9999 FEW003 BKN007 BKN020 13/11 Q1020 NOSIGLJLJ2019-10-17T08:30:00Z46.2214.4713.011.0016.2130.11811TRUEIFRMETAR385.02019-10-17 08:44:26J) 5    3LJMB 170830Z 14003KT 100V160 0200 R32/0500N FG VV002 11/11 Q1019LJMB2019-10-17T08:30:00Z46.4715.6711.011.014030.1230.088583FGLIFR200METAR265.02019-10-17 08:44:26L)%5    3LFMP 170830Z AUTO VRB01KT 9999 FEW013 BKN022 BKN150 16/14 Q1016 BECMG BKN010LFMP2019-10-17T08:30:00Z42.722.8716.014.0016.2130.0TRUEMVFRSPECI48.02019-10-17 08:44:26 /rk)[5   3LFRQ 170830Z AUTO 21004KT 170V230 9999 ///TCU 12/11 Q1008 TEMPO 22015G25KT 4000 SHRA FEW012CB BKN014TCULFRQ2019-10-17T08:30:00Z47.97-4.1712.011.021046.2129.763779TRUESPECI94.02019-10-17 08:44:26:(s5    3LFRT 170830Z AUTO 21007KT 180V240 CAVOK 12/11 Q1008LFRT2019-10-17T08:30:00Z48.52-2.8512.011.021076.2129.763779TRUEVFRMETAR136.02019-10-17 08:44:267(o5    3LFSD 170830Z AUTO 16005KT 9999 OVC044 14/12 Q1014LFSD2019-10-17T08:30:00Z47.275.0714.012.016056.2129.940945TRUEVFRMETAR227.02019-10-17 08:44:26K)5   3GCGM 170830Z VRB02KT 9999 FEW030 22/15 Q1021 RMK R09/VRB02KT ARP/VRB02KTGCGM2019-10-17T08:30:00Z28.03-17.2222.015.0026.2130.147638VFRMETAR219.02019-10-17 08:44:26 SL!)5     3LFOZ 170830Z AUTO 16006KT 8000 -RA SCT011 BKN023 OVC032 14/13 Q1012LFOZ2019-10-17T08:30:00Z47.92.1714.013.016064.9729.88189TRUE-RAMVFRMETAR121.02019-10-17 08:44:26D )5     3LFPM 170830Z AUTO 16006KT 9999 3900 -RA OVC021 13/12 Q1011LFPM2019-10-17T08:30:00Z48.622.6713.012.016066.2129.852362TRUE-RAMVFRMETAR92.02019-10-17 08:44:265(o5    3LFPT 170830Z AUTO 20003KT 9999 OVC007 12/11 Q1011LFPT2019-10-17T08:30:00Z49.12.0312.011.020036.2129.852362TRUEIFRMETAR99.02019-10-17 08:44:26l)S5    3LFRH 170830Z AUTO 22011KT 9999 BKN021/// BKN027/// BKN033/// ///TCU 14/11 Q1008 BECMG SCT020 SCT040LFRH2019-10-17T08:30:00Z47.77-3.4514.011.0220116.2129.763779TRUEMVFRSPECI44.02019-10-17 08:44:26 51g57&(u5   3GCLA 170830Z 36006KT 330V030 9999 BKN040 23/15 Q1022GCLA2019-10-17T08:30:00Z28.62-17.7523.015.036066.2130.177166VFRMETAR31.02019-10-17 08:44:269%(q5    3GCLP 170830Z 01017KT 9999 FEW028 22/15 Q1021 NOSIGGCLP2019-10-17T08:30:00Z27.92-15.3722.015.010176.2130.147638TRUEVFRMETAR25.02019-10-17 08:44:260$(e5   3GCRR 170830Z 36012KT 9999 FEW035 22/15 Q1021GCRR2019-10-17T08:30:00Z28.93-13.5822.015.0360126.2130.147638VFRMETAR40.02019-10-17 08:44:26D#)5    3GCXO 170830Z 31010KT 280V340 9999 FEW015 17/13 Q1023 NOSIGGCXO2019-10-17T08:30:00Z28.48-16.3517.013.0310106.2130.206694TRUEVFRMETAR632.02019-10-17 08:44:26I")5    3LFLN 170830Z AUTO 19005KT 9999 -RA ///TCU 15/11 Q1014 BECMG BKN050LFLN2019-10-17T08:30:00Z46.424.0215.011.019056.2129.940945TRUE-RAMETAR244.02019-10-17 08:44:26 `C`8+(u5   3LEVD 170830Z 23011KT 200V260 9999 OVC007 13/12 Q1018LEVD2019-10-17T08:30:00Z41.72-4.8313.012.0230116.2130.059055IFRMETAR854.02019-10-17 08:44:26+*(e5   3LEDA 170830Z VRB02KT 9999 FEW030 15/08 Q1018LEDA2019-10-17T08:30:00Z41.730.5315.08.0026.2130.059055VFRMETAR350.02019-10-17 08:44:264)(u5   3LEVT 170830Z 22010KT 200V260 9999 BKN026 15/11 Q1016LEVT2019-10-17T08:30:00Z42.87-2.7215.011.0220106.2130.0MVFRMETAR509.02019-10-17 08:44:264((s5   3LEZG 170830Z 09007KT 9999 FEW040 BKN080 12/08 Q1017LEZG2019-10-17T08:30:00Z41.67-1.0212.08.09076.2130.029528VFRMETAR258.02019-10-17 08:44:267'(u5   3GCFV 170830Z 35008KT 300V020 9999 FEW030 22/16 Q1021GCFV2019-10-17T08:30:00Z28.43-13.8722.016.035086.2130.147638VFRMETAR23.02019-10-17 08:44:26 )Dw)F0)5     3VEPY 170830Z 22004KT 5000 HZ FEW010 SCT025 24/16 Q1020 NOSIGVEPY2019-10-17T08:30:00Z19.6874.3824.016.022043.1130.11811TRUEHZMVFRMETAR582.02019-10-17 08:44:26./(e5   3VELR 170830Z 11002KT 6000 FEW020 33/24 Q1011VELR2019-10-17T08:30:00Z27.394.133.024.011023.7329.852362MVFRMETAR101.02019-10-17 08:44:26H.)5    3VOTV 170830Z 21007KT 8000 FEW015 SCT090 FEW025CB 30/24 Q1007 NOSIGVOTV2019-10-17T08:30:00Z8.4776.9530.024.021074.9729.734253TRUEMVFRMETAR8.02019-10-17 08:44:26G-)5     3VIJP 170830Z 24005KT 5000 HZ FEW035 BKN100 33/15 Q1013 NOSIGVIJP2019-10-17T08:30:00Z26.8275.7833.015.024053.1129.911417TRUEHZMVFRMETAR390.02019-10-17 08:44:266,(s5   3LESA 170830Z 22008KT 9999 SCT017 BKN028 14/11 Q1018LESA2019-10-17T08:30:00Z40.95-5.514.011.022086.2130.059055MVFRMETAR795.02019-10-17 08:44:26 &5x&Q5)'5    3VOMM 170830Z 35003KT 4000 BR SCT015 FEW025CB OVC080 26/26 Q1010 BECMG 5000 BRVOMM2019-10-17T08:30:00Z13.080.1726.026.035032.4929.822834BRIFRMETAR16.02019-10-17 08:44:2654(}5    3VOTR 170830Z 06006KT 6000 FEW015 SCT100 30/24 Q109 NOSIGVOTR2019-10-17T08:30:00Z10.7778.7230.024.06063.73TRUEMVFRSPECI88.02019-10-17 08:44:26:3(q5     3VIDD 170830Z 03003KT 2200 FU NSC 33/20 Q1013 NOSIGVIDD2019-10-17T08:30:00Z28.5877.2233.020.03031.3729.911417TRUEFUIFRMETAR216.02019-10-17 08:44:2672(q5     3VIAR 170830Z VRB02KT 1800 HZ NSC 31/20 Q1014 NOSIGVIAR2019-10-17T08:30:00Z31.774.831.020.0021.1229.940945TRUEHZIFRMETAR234.02019-10-17 08:44:26E1) 5    3VOTP 170830Z 07002KT 5000 -DZ SCT015 SCT020 BKN080 26/24 Q1010VOTP2019-10-17T08:30:00Z13.6379.5526.024.07023.1129.822834-DZMVFRMETAR107.02019-10-17 08:44:26 ,7z,E:)5     3VANP 170830Z 01002KT 2500 HZ FEW020 SCT025 30/18 Q1013 NOSIGVANP2019-10-17T08:30:00Z21.0879.0530.018.01021.5529.911417TRUEHZIFRMETAR310.02019-10-17 08:44:26=9(w5     3VEGT 170830Z 36005KT 5000 HZ FEW020 33/24 Q1010 NOSIGVEGT2019-10-17T08:30:00Z26.191.5833.024.036053.1129.822834TRUEHZMVFRMETAR54.02019-10-17 08:44:26:8(q5    3VEMN 170830Z 36005KT 6000 FEW025 32/21 Q1011 NOSIGVEMN2019-10-17T08:30:00Z27.4795.0232.021.036053.7329.852362TRUEMVFRMETAR111.02019-10-17 08:44:2677(q5    3VEAT 170830Z 00000KT 6000 SCT020 33/25 Q1011 NOSIGVEAT2019-10-17T08:30:00Z23.8791.2533.025.0003.7329.852362TRUEMVFRMETAR16.02019-10-17 08:44:26C6)5    3VEBS 170830Z 17010KT 9000 SCT018 FEW030CB 30/25 Q1011 NOSIGVEBS2019-10-17T08:30:00Z20.2585.8230.025.0170105.5929.852362TRUEVFRMETAR46.02019-10-17 08:44:26 <rq>)]5     3LFYR 170830Z AUTO 17007KT 140V200 9999 -RA BKN006/// OVC010/// ///TCU 14/13 Q1011 TEMPO 4000 RADZ BKN006LFYR2019-10-17T08:30:00Z47.321.6714.013.017076.2129.852362TRUE-RAIFRMETAR86.02019-10-17 08:44:26<=(w5     3VEBN 170830Z 10003KT 3500 HZ SCT025 32/23 Q1012 NOSIGVEBN2019-10-17T08:30:00Z25.4582.8532.023.010032.1729.88189TRUEHZIFRMETAR83.02019-10-17 08:44:26D<)5     3VOCI 170830Z 23006KT 5000 HZ SCT015 SCT080 32/24 Q1006 NOSIGVOCI2019-10-17T08:30:00Z10.1576.432.024.023063.1129.704725TRUEHZMVFRMETAR8.02019-10-17 08:44:26>;(w5     3VAJJ 170830Z 29012KT 5000 FU FEW020 34/21 Q1009 NOSIGVAJJ2019-10-17T08:30:00Z19.1272.8234.021.0290123.1129.793306TRUEFUMVFRMETAR4.02019-10-17 08:44:26 C\JB) 5     3LFTW 170830Z AUTO 12010KT 9999 BKN015 BKN021 18/15 Q1017 NOSIGLFTW2019-10-17T08:30:00Z43.754.4218.015.0120106.2130.029528TRUETRUEMVFRMETAR96.02019-10-17 08:44:26MA)5    3LFSI 170830Z AUTO 18011KT 9999 BKN013/// OVC033/// ///TCU 14/12 Q1013LFSI2019-10-17T08:30:00Z48.624.914.012.0180116.2129.911417TRUEMVFRSPECI140.02019-10-17 08:44:26a@)35     3LFSO 170830Z AUTO 20013KT 4800 -RA BR BKN009 BKN015 OVC045 13/12 Q1014 BECMG OVC030LFSO2019-10-17T08:30:00Z48.575.9713.012.0200132.9829.940945TRUE-RA BRIFRSPECI350.02019-10-17 08:44:267?(o5    3LFSX 170830Z AUTO 12006KT 9999 OVC047 14/11 Q1015LFSX2019-10-17T08:30:00Z47.776.3314.011.012066.2129.970472TRUEVFRMETAR273.02019-10-17 08:44:26 T9&G(Y5   3LESO 170830Z 22005KT CAVOK 17/14 Q1014LESO2019-10-17T08:30:00Z43.35-1.817.014.022056.2129.940945VFRMETAR8.02019-10-17 08:44:266F(u5   3LEMH 170830Z 20010KT 170V250 9999 FEW030 22/14 Q1019LEMH2019-10-17T08:30:00Z39.874.2222.014.0200106.2130.088583VFRMETAR82.02019-10-17 08:44:26(E(i5   3LERS 170830Z 02006KT 340V060 CAVOK 20/08 Q1016LERS2019-10-17T08:30:00Z41.131.1720.08.02066.2130.0VFRMETAR76.02019-10-17 08:44:26+D(i5   3LEGE 170830Z 23003KT 170V300 CAVOK 16/10 Q1016LEGE2019-10-17T08:30:00Z41.882.7716.010.023036.2130.0VFRMETAR129.02019-10-17 08:44:26&C(Y5   3LEGR 170830Z VRB02KT CAVOK 10/03 Q1022LEGR2019-10-17T08:30:00Z37.17-3.7710.03.0026.2130.177166VFRMETAR559.02019-10-17 08:44:26 3K3ZL)/5   3UWKE 170830Z 19008G13MPS 9999 BKN009 02/01 Q1023 R21/210355 NOSIG RMK QFE750/1000UWKE2019-10-17T08:30:00Z55.5752.082.01.019016256.2130.206694TRUEIFRMETAR196.02019-10-17 08:44:26RK)#5    3UWKS 170830Z 22009MPS 9999 BKN036CB 09/03 Q1018 R24/220160 NOSIG RMK QFE749UWKS2019-10-17T08:30:00Z56.0847.359.03.0220176.2130.059055TRUEVFRMETAR170.02019-10-17 08:44:26/J(i5   3GEML 170830Z 26008KT 210V300 CAVOK 21/14 Q1020GEML2019-10-17T08:30:00Z35.27-2.9521.014.026086.2130.11811VFRMETAR55.02019-10-17 08:44:26%I(Y5   3LEMI 170830Z 00000KT CAVOK 20/09 Q1019LEMI2019-10-17T08:30:00Z37.8-1.1220.09.0006.2130.088583VFRMETAR193.02019-10-17 08:44:26/H(e5    3LYTV 170830Z VRB02KT CAVOK 22/15 Q1018 NOSIGLYTV2019-10-17T08:30:00Z42.3818.7222.015.0026.2130.059055TRUEVFRMETAR5.02019-10-17 08:44:26 '5[SP)%5    3UIUU 170830Z VRB01MPS 9999 NSC 11/M10 Q1011 R26/CLRD60 NOSIG RMK QFE714/0953UIUU2019-10-17T08:30:00Z51.8107.4511.0-10.0026.2129.852362TRUEVFRMETAR515.02019-10-17 08:44:26TO)'5    3UEEE 170830Z 09002MPS 9999 FEW050CB 01/M02 Q1010 R23L/09//50 NOSIG RMK QFE749UEEE2019-10-17T08:30:00Z62.08129.771.0-2.09046.2129.822834TRUEVFRMETAR103.02019-10-17 08:44:26lN)]5    3USPP 170830Z 22004MPS 4500 -SN BKN014 01/00 Q1024 R21/090060 TEMPO 16004G11MPS 0500 +SN VV002 RMK QFE757USPP2019-10-17T08:30:00Z57.9256.021.00.022082.830.236221-SNIFRMETAR123.02019-10-17 08:44:26SM)#5   3UWKD 170830Z 21006G11MPS CAVOK 09/03 Q1020 R11/2/0060 NOSIG RMK QFE755/1007UWKD2019-10-17T08:30:00Z55.6249.289.03.021012216.2130.11811TRUEVFRMETAR126.02019-10-17 08:44:26 )KpAT)5   3LECO 170830Z 23006KT 9999 BKN025 BKN036 14/12 Q1015 TEMPO RALECO2019-10-17T08:30:00Z43.28-8.3714.012.023066.2129.970472MVFRMETAR103.02019-10-17 08:44:26US)%5    3UIAA 170830Z 07002MPS 9999 NSC 11/M11 Q1014 R29/CLRD70 NOSIG RMK QFE702/0936UIAA2019-10-17T08:30:00Z52.02113.3211.0-11.07046.2129.940945TRUEVFRMETAR685.02019-10-17 08:44:26XR)35    3UIBB 170830Z 17004MPS 130V210 9999 NSC 08/02 Q1004 R30/CLRD60 NOSIG RMK QFE711/0948UIBB2019-10-17T08:30:00Z56.37101.78.02.017086.2129.64567TRUEVFRMETAR490.02019-10-17 08:44:26QQ)5    3UIII 170830Z 15005MPS CAVOK 13/M00 Q1007 R12/CLRD60 NOSIG RMK QFE713/0951UIII2019-10-17T08:30:00Z52.27104.413.00.0150106.2129.734253TRUEVFRMETAR513.02019-10-17 08:44:26 9D]90Y(e5    3LELC 170830Z 26004KT CAVOK 19/11 Q1018 NOSIGLELC2019-10-17T08:30:00Z37.77-0.819.011.026046.2130.059055TRUEVFRMETAR3.02019-10-17 08:44:263X(u5   3LELN 170830Z 24006KT 200V280 9999 OVC003 11/11 Q1016LELN2019-10-17T08:30:00Z42.57-5.6511.011.024066.2130.0LIFRMETAR914.02019-10-17 08:44:26/W(i5   3LEAM 170830Z 30004KT 260V330 CAVOK 20/05 Q1019LEAM2019-10-17T08:30:00Z36.85-2.3720.05.030046.2130.088583VFRMETAR21.02019-10-17 08:44:26aV)=5   3LEAS 170830Z 29008G18KT 240V320 3000 -RA FEW002 SCT003 BKN006 15/15 Q1014 TEMPO 6000 NSWLEAS2019-10-17T08:30:00Z43.53-6.0215.015.02908181.8629.940945-RAIFRMETAR134.02019-10-17 08:44:266U(q5    3LEBB 170830Z VRB01KT 9999 FEW030 20/13 Q1014 NOSIGLEBB2019-10-17T08:30:00Z43.28-2.9220.013.0016.2129.940945TRUEVFRMETAR34.02019-10-17 08:44:26 D=DR^)!5    3LRIA 170830Z 06003KT 350V080 0100 R14/0550N R32/0400N FG VV001 12/12 Q1020LRIA2019-10-17T08:30:00Z47.1727.6212.012.06030.0630.11811FGLIFR100METAR104.02019-10-17 08:44:260](i5   3LRSV 170830Z 36004KT 320V030 CAVOK 18/10 Q1020LRSV2019-10-17T08:30:00Z47.6826.3518.010.036046.2130.11811VFRMETAR351.02019-10-17 08:44:26+\(e5   3LRTC 170830Z VRB02KT 9999 SCT018 17/12 Q1019LRTC2019-10-17T08:30:00Z45.0728.7217.012.0026.2130.088583VFRMETAR6.02019-10-17 08:44:264[(s5   3LEPP 170830Z VRB02KT 9999 BKN045 BKN051 13/11 Q1017LEPP2019-10-17T08:30:00Z42.77-1.6513.011.0026.2130.029528VFRMETAR459.02019-10-17 08:44:26=Z)5   3LEXJ 170830Z 21003KT 170V240 9999 FEW010 SCT080 18/16 Q1014LEXJ2019-10-17T08:30:00Z43.42-3.8218.016.021036.2129.940945VFRMETAR6.02019-10-17 08:44:26 LTL0c(e5    3LEVC 170830Z 22005KT CAVOK 21/06 Q1017 NOSIGLEVC2019-10-17T08:30:00Z39.5-0.4721.06.022056.2130.029528TRUEVFRMETAR62.02019-10-17 08:44:26Db)5    3LEVX 170830Z 20003KT 160V240 9999 SCT030 BKN037 15/13 Q1016 NOSIGLEVX2019-10-17T08:30:00Z42.22-8.6215.013.020036.2130.0TRUEVFRMETAR256.02019-10-17 08:44:26/a(e5    3LEZL 170830Z 00000KT CAVOK 16/10 Q1021 NOSIGLEZL2019-10-17T08:30:00Z37.42-5.916.010.0006.2130.147638TRUEVFRMETAR31.02019-10-17 08:44:26M`)5    3LRBC 170830Z VRB01KT 2000 1000S R34/1000N PRFG BR BKN002 10/10 Q1020LRBC2019-10-17T08:30:00Z46.5226.9210.010.0011.2430.11811PRFG BRLIFRMETAR185.02019-10-17 08:44:26&_(Y5   3LRCV 170830Z VRB04KT CAVOK 17/11 Q1020LRCV2019-10-17T08:30:00Z44.3223.8817.011.0046.2130.11811VFRMETAR191.02019-10-17 08:44:26 7F7>h)5    3LEBL 170830Z 34006KT 300V020 9999 FEW020 17/08 Q1017 NOSIGLEBL2019-10-17T08:30:00Z41.272.0717.08.034066.2130.029528TRUEVFRMETAR6.02019-10-17 08:44:262g(e5    3LEIB 170830Z 23010KT CAVOK 23/16 Q1017 NOSIGLEIB2019-10-17T08:30:00Z38.871.3723.016.0230106.2130.029528TRUEVFRMETAR12.02019-10-17 08:44:26Yf)-5     3LEMD 170830Z 18003KT 120V230 9999 -RA FEW055 SCT070 10/08 Q1020 R88/19//95 NOSIGLEMD2019-10-17T08:30:00Z40.48-3.5710.08.018036.2130.11811TRUE-RAVFRMETAR582.02019-10-17 08:44:26.e(e5    3LEMG 170830Z 30008KT CAVOK 18/07 Q1020 NOSIGLEMG2019-10-17T08:30:00Z36.67-4.518.07.030086.2130.11811TRUEVFRMETAR7.02019-10-17 08:44:264d(q5    3LEPA 170830Z VRB01KT 9999 FEW025 21/16 Q1018 NOSIGLEPA2019-10-17T08:30:00Z39.532.7221.016.0016.2130.059055TRUEVFRMETAR8.02019-10-17 08:44:26 \I\/m(c5    3LEAG 170830Z AUTO VRB02KT CAVOK 19/11 Q1021LEAG2019-10-17T08:30:00Z36.12-5.4519.011.0026.2130.147638TRUEVFRMETAR32.02019-10-17 08:44:26>l({5    3LEBG 170830Z 19010KT 4000 -RA SCT005 SCT010 10/10 Q1017LEBG2019-10-17T08:30:00Z42.37-3.6210.010.0190102.4930.029528-RAIFRMETAR891.02019-10-17 08:44:260k(i5    3LECH 170830Z AUTO 00000KT 9999 NCD 16/06 Q1017LECH2019-10-17T08:30:00Z40.20.0716.06.0006.2130.029528TRUEVFRMETAR337.02019-10-17 08:44:268j(s5    3LETL 170830Z AUTO 15006KT 080V170 CAVOK 08/00 Q1020LETL2019-10-17T08:30:00Z40.42-1.228.00.015066.2130.11811TRUEVFRMETAR1013.02019-10-17 08:44:261i(e5    3LEAL 170830Z 23007KT CAVOK 20/06 Q1018 NOSIGLEAL2019-10-17T08:30:00Z38.27-0.5520.06.023076.2130.059055TRUEVFRMETAR31.02019-10-17 08:44:26 >Fr)5   3VDSR 170830Z VRB03KT 9000 SCT015 FEW017CB SCT040 28/26 Q1007 CB:N/SWVDSR2019-10-17T08:30:00Z13.42103.8328.026.0035.5929.734253VFRSPECI15.02019-10-17 08:44:26]q)35     3UAUU 170830Z 31006MPS 9999 -RA OVC040 05/M02 Q1025 R33/CLRD70 NOSIG RMK QFE753/1004UAUU2019-10-17T08:30:00Z53.263.555.0-2.0310126.2130.265747TRUE-RAVFRSPECI182.02019-10-17 08:44:26@p(}5    3LPAZ 170830Z 03010KT 9000 VCSH SCT005 BKN012 18/17 Q1020LPAZ2019-10-17T08:30:00Z36.97-25.1718.017.030105.5930.11811VCSHMVFRMETAR100.02019-10-17 08:44:26.o(e5   3LPPD 170830Z 03004KT 9999 FEW015 16/13 Q1021LPPD2019-10-17T08:30:00Z37.72-25.6816.013.03046.2130.147638VFRMETAR72.02019-10-17 08:44:26(}5    3UUWW 170830Z 21005MPS CAVOK 15/09 Q1015 R24/190060 NOSIGUUWW2019-10-17T08:30:00Z55.637.2715.09.0210106.2129.970472TRUEVFRMETAR203.02019-10-17 08:44:26 *f`%)G5   3USHH 170830Z 35003MPS 300V030 9999 SCT030CB M02/M07 Q1017 R24/010060 TEMPO 2000 SHSN BKN010CBUSHH2019-10-17T08:30:00Z61.0369.08-2.0-7.035066.2130.029528VFRMETAR23.02019-10-17 08:44:269$(}5    3UUBW 170830Z 18003MPS CAVOK 16/09 Q1016 R30/010060 NOSIGUUBW2019-10-17T08:30:00Z55.5538.1516.09.018066.2130.0TRUEVFRMETAR115.02019-10-17 08:44:26>#(}5    3UUOL 170830Z 19009MPS CAVOK 14/09 Q1023 R15/090060 NOSIGUUOL2019-10-17T08:30:00Z52.739.5314.09.0190176.2130.206694TRUEVFRMETAR176.02019-10-17 08:44:26P")#5     3ULLI 170830Z 06004MPS 030V090 9999 -RA BKN008 05/03 Q1010 R10L/090060 NOSIGULLI2019-10-17T08:30:00Z59.830.275.03.06086.2129.822834TRUE-RAIFRMETAR4.02019-10-17 08:44:26 ,L2*(g5    3ZSPD 170830Z 03006MPS CAVOK 21/15 Q1021 NOSIGZSPD2019-10-17T08:30:00Z31.15121.821.015.030126.2130.147638TRUEVFRMETAR4.02019-10-17 08:44:266)(m5    3ZBYN 170830Z VRB01MPS 8000 NSC 16/06 Q1022 NOSIGZBYN2019-10-17T08:30:00Z37.77112.6316.06.0024.9730.177166TRUEMVFRMETAR779.02019-10-17 08:44:267((s5     3ZBTJ 170830Z VRB01MPS 4500 HZ NSC 14/09 Q1024 NOSIGZBTJ2019-10-17T08:30:00Z39.12117.3514.09.0022.830.236221TRUEHZIFRMETAR3.02019-10-17 08:44:26Z')95   3URKA 170830Z 23005MPS 200V260 9999 SCT/// 21/18 Q1019 R04/010070 NOSIG RMK QFE760/1014URKA2019-10-17T08:30:00Z45.037.3521.018.0230106.2130.088583TRUEMETAR53.02019-10-17 08:44:26N&)5    3UUMO 170830Z 21004MPS CAVOK 15/09 Q1015 R26/290050 NOSIG RMK QFE746/0995UUMO2019-10-17T08:30:00Z55.5237.515.09.021086.2129.970472TRUEVFRMETAR174.02019-10-17 08:44:26 7J.)5    3URKK 170830Z 07002MPS CAVOK 18/12 Q1019 R05R/CLRD70 NOSIG RMK QFE761URKK2019-10-17T08:30:00Z45.0339.1518.012.07046.2130.088583TRUEVFRMETAR34.02019-10-17 08:44:26l-)[5    3URMG 170830Z VRB01MPS 6000 BKN007 OVC/// 15/13 Q1023 R26/090070 NOSIG RMK MT OBSC OBST OBSC QFE752/1003URMG2019-10-17T08:30:00Z43.3745.715.013.0023.7330.206694TRUEIFRMETAR263.02019-10-17 08:44:261,(g5    3ZGGG 170830Z 04004MPS CAVOK 30/13 Q1015 NOSIGZGGG2019-10-17T08:30:00Z23.4113.330.013.04086.2129.970472TRUEVFRMETAR15.02019-10-17 08:44:26C+)5    3ZSHC 170830Z 36004MPS 340V040 9999 FEW046 21/10 Q1021 NOSIGZSHC2019-10-17T08:30:00Z30.22120.4321.010.036086.2130.147638TRUEVFRMETAR43.02019-10-17 08:44:26 Dh2)O5    3URSS 170830Z 27003MPS 9999 NSC 22/12 Q1019 R06/010070 R02/010070 NOSIG RMK R02/27003G07MPS QFE763URSS2019-10-17T08:30:00Z43.4539.9522.012.027066.2130.088583TRUEVFRMETAR16.02019-10-17 08:44:26P1)5    3URWA 170830Z 10007MPS CAVOK 18/06 Q1027 R09/010070 NOSIG RMK QFE772/1030URWA2019-10-17T08:30:00Z46.2848.0218.06.0100146.2130.324802TRUEVFRMETAR-20.02019-10-17 08:44:26/0(e5   3LPPS 170830Z 29006KT 9999 FEW015 22/17 Q1022LPPS2019-10-17T08:30:00Z33.07-16.3522.017.029066.2130.177166VFRMETAR82.02019-10-17 08:44:266/(s5   3LPPT 170830Z 23008KT 9999 SCT004 BKN008 19/19 Q1018LPPT2019-10-17T08:30:00Z38.77-9.1219.019.023086.2130.059055IFRMETAR123.02019-10-17 08:44:26 +SrL6)5   3URMN 170830Z 07004MPS 9999 FEW/// 16/09 Q1022 R24/010070 NOSIG RMK QFE730URMN2019-10-17T08:30:00Z43.5243.6316.09.07086.2130.177166TRUEMETAR445.02019-10-17 08:44:26[5)95    3URMO 170830Z 04003MPS 340V090 9999 SCT017 16/12 Q1023 R09/010070 NOSIG RMK QFE723/0964URMO2019-10-17T08:30:00Z43.244.616.012.04066.2130.206694TRUEVFRMETAR510.02019-10-17 08:44:26R4)5    3URMT 170830Z 11009MPS 9999 FEW020 17/10 Q1022 R07/010070 NOSIG RMK QFE726URMT2019-10-17T08:30:00Z45.1242.1217.010.0110176.2130.177166TRUEVFRMETAR453.02019-10-17 08:44:26O3)5    3URRP 170830Z 10007MPS CAVOK 17/10 Q1024 R05/CLRD70 NOSIG RMK QFE763/1017URRP2019-10-17T08:30:00Z47.539.9217.010.0100146.2130.236221TRUEVFRMETAR65.02019-10-17 08:44:26 @hG:) 5    3URWW 170830Z 14006MPS 110V170 CAVOK 13/04 Q1028 R06/010070 NOSIGURWW2019-10-17T08:30:00Z48.7844.3313.04.0140126.2130.35433TRUEVFRMETAR147.02019-10-17 08:44:26R9)+5    3ULAA 170830Z VRB01MPS 9999 SCT020 02/M01 Q1019 R08/CLRD68 NOSIG RMK QFE763/1018ULAA2019-10-17T08:30:00Z64.640.722.0-1.0026.2130.088583TRUEVFRMETAR19.02019-10-17 08:44:26U8))5    3URML 170830Z 11005MPS 9999 SCT018 20/14 Q1023 R14/01//70 NOSIG RMK QFE767/1023URML2019-10-17T08:30:00Z42.8247.6520.014.0110106.2130.206694TRUEVFRMETAR4.02019-10-17 08:44:26_7)95    3URMM 170830Z 11009MPS 9999 BKN012 15/12 Q1022 R12/090070 NOSIG RMK MT OBSC QFE739/0985URMM2019-10-17T08:30:00Z44.2243.115.012.0110176.2130.177166TRUEMVFRMETAR314.02019-10-17 08:44:26 0W{P>)!5    3USCC 170830Z 28007MPS 9999 SCT033 05/M05 Q1024 R27/000060 NOSIG RMK QFE748USCC2019-10-17T08:30:00Z55.361.55.0-5.0280146.2130.236221TRUEVFRMETAR234.02019-10-17 08:44:26V=)'5    3USNN 170830Z 33006MPS 9999 BKN018CB M03/M07 Q1008 R03/35//48 NOSIG RMK QFE752USNN2019-10-17T08:30:00Z60.9576.48-3.0-7.0330126.2129.763779TRUEMVFRMETAR54.02019-10-17 08:44:26S<)#5    3ULMM 170830Z 16001MPS 9999 BKN027 M01/M02 Q1019 R13/220056 NOSIG RMK QFE758ULMM2019-10-17T08:30:00Z68.7832.75-1.0-2.016026.2130.088583TRUEMVFRMETAR51.02019-10-17 08:44:26J;)5   3URWI 170830Z 11006MPS 9999 OVC006 12/10 Q1026 R09/010065 TEMPO BKN004URWI2019-10-17T08:30:00Z46.3744.3312.010.0110126.2130.295275IFRMETAR150.02019-10-17 08:44:26 X"(RXtB)a5     3UMKK 170830Z 23006MPS 3400 -RA BKN005 OVC015 13/12 Q1011 R24/290195 NOSIG RMK QBB150 OBST OBSC QFE757/1010UMKK2019-10-17T08:30:00Z54.8820.613.012.0230122.1129.852362TRUE-RAIFRMETAR21.02019-10-17 08:44:26PA)5    3UUOO 170830Z 15004MPS 9999 BKN035 14/08 Q1024 R12/090070 NOSIG RMK QFE754UUOO2019-10-17T08:30:00Z51.8239.2314.08.015086.2130.236221TRUEVFRMETAR157.02019-10-17 08:44:26t@)e5    3UUYY 170830Z 13003MPS 9999 -SHSN FEW009 BKN020CB OVC046 02/00 Q1019 R18/61D TEMPO 2100 -SHSN RMK QFE756/1008UUYY2019-10-17T08:30:00Z61.6550.822.00.013066.2130.088583-SHSNMVFRMETAR119.02019-10-17 08:44:26X?)%5     3UWUU 170830Z 24005MPS 200V260 9999 -RA OVC015 05/M02 Q1029 R14R/0///60 NOSIGUWUU2019-10-17T08:30:00Z54.5755.875.0-2.0240106.2130.383858TRUE-RAMVFRMETAR137.02019-10-17 08:44:26 .NDF(5    3KEDU 170830Z AUTO 21008KT 10SM FEW090 16/12 A2985 RMK AO1KEDU2019-10-17T08:30:00Z38.53-121.7816.012.0210810.029.84941TRUETRUEVFRMETAR21.02019-10-17 08:44:26ZE)15    3USSS 170830Z 29006MPS 9999 BKN038CB 03/M03 Q1023 R26R/010060 NOSIG RMK QFE746/0995USSS2019-10-17T08:30:00Z56.7560.823.0-3.0290126.2130.206694TRUEVFRMETAR233.02019-10-17 08:44:26\D)55    3USRR 170830Z 34007MPS 9999 SCT021CB BKN026 M04/M08 Q1012 R25/32//45 NOSIG RMK QFE754USRR2019-10-17T08:30:00Z61.3373.42-4.0-8.0340146.2129.88189TRUEMVFRMETAR44.02019-10-17 08:44:26jC)Q5    3ULOO 170830Z 21005MPS 180V240 P5000 FEW012 BKN032CB BKN041 15/11 Q1007 R19/190060 NOSIG RMK QFE751ULOO2019-10-17T08:30:00Z57.7828.415.011.0210103.1129.734253TRUEMVFRMETAR47.02019-10-17 08:44:26 AKJ)5   3KCCU 170830Z AUTO 21007G15KT 10SM CLR 07/M22 A3041 RMK AO2KCCU2019-10-17T08:30:00Z39.48-106.157.0-22.021071510.030.410433TRUETRUEVFRSPECI3680.02019-10-17 08:44:26eI)?5   3DIAP 170830Z VRB02KT 7000 -TSRA FEW005 SCT012 FEW020CB BKN030 26/25 Q1014 TEMPO 4000 TSRADIAP2019-10-17T08:30:00Z5.25-3.9226.025.0024.3529.940945-TSRABKN3000MVFRSPECI8.02019-10-17 08:44:262H(q5    3GABS 170830Z VRB03KT 9999 FEW020 28/24 Q1016 NOSIGGABS2019-10-17T08:30:00Z12.52-7.9528.024.0036.2130.0TRUEVFRMETAR381.02019-10-17 08:44:269G(q5     3GQNO 170830Z 03011KT 4000 DU NSC 28/16 Q1011 NOSIGGQNO2019-10-17T08:30:00Z18.3-15.9728.016.030112.4929.852362TRUEDUIFRMETAR4.02019-10-17 08:44:26 6mDN({5    3KHEQ 170830Z AUTO 26005KT 10SM CLR 05/M03 A2991 RMK AO2KHEQ2019-10-17T08:30:00Z40.57-102.285.0-3.0260510.029.911417TRUETRUEVFRSPECI1137.02019-10-17 08:44:26PM)5    3KFTG 170830Z AUTO 20009KT 10SM CLR 12/M07 A2999 RMK AO2 T01231066KFTG2019-10-17T08:30:00Z39.78-104.5512.3-6.6200910.029.991142TRUETRUEVFRSPECI1675.02019-10-17 08:44:26CL({5    3KC07 170830Z AUTO 25004KT 10SM CLR 04/M15 A3031 RMK AO2KC072019-10-17T08:30:00Z40.35-106.74.0-15.0250410.030.31004TRUETRUEVFRSPECI3224.02019-10-17 08:44:26DK({5    3KC99 170830Z AUTO 28007KT 10SM CLR 04/M17 A3031 RMK AO2KC992019-10-17T08:30:00Z29.87-105.554.0-17.0280710.030.31004TRUETRUEVFRSPECI3320.02019-10-17 08:44:26 +6+GS)5     3NZWN 170830Z AUTO 36009KT 310V030 9999 NCD 16/10 Q1011 NOSIGNZWN2019-10-17T08:30:00Z-41.32174.816.010.036096.2129.852362TRUETRUEVFRMETAR7.02019-10-17 08:44:26[R)+5     3NZCH 170830Z AUTO 11006KT 9999 -RA BKN070/// OVC090/// 11/10 Q1011 TEMPO BKN012NZCH2019-10-17T08:30:00Z-43.47172.5511.010.011066.2129.852362TRUE-RAVFRSPECI34.02019-10-17 08:44:26%Q(Y5   3LPFR 170830Z VRB02KT CAVOK 18/15 Q1021LPFR2019-10-17T08:30:00Z37.02-7.9718.015.0026.2130.147638VFRMETAR4.02019-10-17 08:44:26,P(e5   3LPMA 170830Z VRB01KT 9999 FEW016 21/13 Q1022LPMA2019-10-17T08:30:00Z32.7-16.7721.013.0016.2130.177166VFRMETAR55.02019-10-17 08:44:26DO({5    3KMNH 170830Z AUTO 19009KT 10SM CLR 08/M08 A3011 RMK AO2KMNH2019-10-17T08:30:00Z39.22-104.658.0-8.0190910.030.109253TRUETRUEVFRSPECI2152.02019-10-17 08:44:26 ;|mW)S5     3RJTT 170830Z 01009KT 6000 -RA FEW005 SCT009 BKN050 17/16 Q1025 NOSIG RMK 1ST005 3ST009 6SC050 A3027RJTT2019-10-17T08:30:00Z35.53139.7717.016.01093.7330.265747TRUE-RAMVFRMETAR8.02019-10-17 08:44:26VV)-5    3ROAH 170830Z 21008KT 9999 VCSH FEW022 SCT035 27/24 Q1012 RMK 1CU022 3CU035 A2990ROAH2019-10-17T08:30:00Z26.17127.6527.024.021086.2129.88189VCSHVFRMETAR8.02019-10-17 08:44:269U(w5   3OIKB 170830Z 16010KT 7000 FEW020TCU 35/22 Q1013 A2992OIKB2019-10-17T08:30:00Z27.2256.3735.022.0160104.3529.911417MVFRMETAR10.02019-10-17 08:44:26?T(u5     3NZAA 170830Z AUTO 25010KT 9999 NCD 14/12 Q1018 NOSIGNZAA2019-10-17T08:30:00Z-37.02174.814.012.0250106.2130.059055TRUETRUEVFRMETAR6.02019-10-17 08:44:26 7EtN[)5     3RJBB 170830Z 03013KT 9999 -RA FEW030 SCT040 BKN050 22/16 Q1021 NOSIGRJBB2019-10-17T08:30:00Z34.42135.2522.016.030136.2130.147638TRUE-RAVFRMETAR8.02019-10-17 08:44:26KZ)#5   3RJCC 170830Z VRB01KT 9999 FEW020 SCT060 07/03 Q1025 RMK 1SC020 3CU060 A3029RJCC2019-10-17T08:30:00Z42.77141.677.03.0016.2130.265747VFRMETAR30.02019-10-17 08:44:26lY)S5     3RJFF 170830Z VRB03KT 9999 -RA FEW010 BKN100 OVC120 18/14 Q1021 NOSIG RMK 1ST010 6AC100 8AS120 A3016RJFF2019-10-17T08:30:00Z33.57130.4318.014.0036.2130.147638TRUE-RAVFRMETAR12.02019-10-17 08:44:26CX)5   3RJGG 170830Z 23002KT 9999 FEW030 BKN050 22/15 Q1022 BECMG 30005KTRJGG2019-10-17T08:30:00Z34.87136.822.015.023026.2130.177166VFRMETAR5.02019-10-17 08:44:26 c/Fc]_)'5    3WBKK 170830Z 09008KT 9999 -RA FEW014 FEW016CB SCT035 BKN260 28/26 Q1007 NOSIGWBKK2019-10-17T08:30:00Z5.92116.0328.026.09086.2129.734253TRUE-RABKN26000VFRMETAR3.02019-10-17 08:44:26c^);5     3WMKK 170830Z 28005KT 230V330 4000 TS BR FEW008 FEW016CB SCT018 28/26 Q1006 RETSRA NOSIGWMKK2019-10-17T08:30:00Z2.75101.7228.026.028052.4929.704725TRUETS BRIFRMETAR22.02019-10-17 08:44:26P])!5    3WMKP 170830Z 27005KT 210V350 9999 FEW017CB SCT140 BKN270 31/24 Q1006 NOSIGWMKP2019-10-17T08:30:00Z5.28100.2731.024.027056.2129.704725TRUEVFRMETAR4.02019-10-17 08:44:26u\)c5     3RJAA 170830Z 01007KT 350V060 9999 -RA FEW020 SCT030 BKN050 18/14 Q1025 NOSIG RMK 1CU020 3SC030 7SC050 A3027RJAA2019-10-17T08:30:00Z35.77140.3718.014.01076.2130.265747TRUE-RAVFRMETAR44.02019-10-17 08:44:26 UHc) 5   3RCMQ 170830Z 02019G29KT 9999 FEW012 26/15 Q1014 NOSIG RMK A2995RCMQ2019-10-17T08:30:00Z24.27120.6226.015.02019296.2129.940945TRUEVFRSPECI5.02019-10-17 08:44:26Ib) 5    3KO86 170830Z AUTO 00000KT 10SM BKN009 OVC065 10/09 A2985 RMK AO1KO862019-10-17T08:30:00Z40.98-122.710.09.00010.029.84941TRUETRUEIFRMETAR729.02019-10-17 08:44:26;a(5   3OICI 170830Z 29006KT 9999 FEW040 SCT100 27/03 Q1025 A3029OICI2019-10-17T08:30:00Z33.5846.427.03.029066.2130.265747VFRMETAR1343.02019-10-17 08:44:26d`)A5    3WBGG 170830Z 11012KT 080V140 6000 -TSRA FEW015CB SCT020 BKN150 27/25 Q1006 TEMPO 3000 TSRAWBGG2019-10-17T08:30:00Z1.47110.3527.025.0110123.7329.704725-TSRAMVFRMETAR27.02019-10-17 08:44:26 'OHg)5    3VTSS 170830Z 32004KT 270V080 9999 FEW020 SCT100 29/26 Q1007 NOSIGVTSS2019-10-17T08:30:00Z6.92100.3829.026.032046.2129.734253TRUEVFRMETAR35.02019-10-17 08:44:26?f)5    3RCTP 170830Z 05018KT 9999 FEW020 25/17 Q1016 NOSIG RMK A3003RCTP2019-10-17T08:30:00Z25.07121.2225.017.050186.2130.0TRUEVFRMETAR33.02019-10-17 08:44:26Re)#5    3RCKH 170830Z 24007KT 210V280 9999 FEW014 SCT070 28/20 Q1013 NOSIG RMK A2992RCKH2019-10-17T08:30:00Z22.57120.3328.020.024076.2129.911417TRUEVFRMETAR9.02019-10-17 08:44:26Sd)15    3RCSS 170830Z 07009KT 330V100 9999 FEW025 SCT040 BKN060 25/18 Q1016 NOSIG RMK A3003RCSS2019-10-17T08:30:00Z25.07121.5325.018.07096.2130.0TRUEVFRSPECI6.02019-10-17 08:44:26 0o7k(q5    3VMMC 170830Z 01008KT 9999 FEW030 28/18 Q1015 NOSIGVMMC2019-10-17T08:30:00Z22.15113.5828.018.01086.2129.970472TRUEVFRMETAR6.02019-10-17 08:44:26?j)5   3VOBM 170830Z 09008KT 9999 SCT012 SCT018 FEW025CB 27/20 Q1014VOBM2019-10-17T08:30:00Z15.8574.6227.020.09086.2129.940945VFRMETAR758.02019-10-17 08:44:26;i(q5     3VIDP 170830Z 10004KT 2200 FU NSC 32/17 Q1013 NOSIGVIDP2019-10-17T08:30:00Z28.5777.1232.017.010041.3729.911417TRUEFUIFRMETAR233.02019-10-17 08:44:26Jh)5    3RCNN 170830Z 36010KT 9999 FEW012 SCT050 28/17 Q1012 NOSIG RMK A2991RCNN2019-10-17T08:30:00Z22.93120.228.017.0360106.2129.88189TRUEVFRSPECI19.02019-10-17 08:44:26 HeGo)5    3VTBS 170830Z 04008KT 020V090 9999 FEW020 SCT035 32/23 Q1008 NOSIGVTBS2019-10-17T08:30:00Z13.68100.7532.023.04086.2129.763779TRUEVFRMETAR2.02019-10-17 08:44:26]n)=5    3VTBU 170830Z 04004KT 4000 SHRA FEW018CB SCT035 BKN100 31/24 Q1008 TEMPO TL0930 3000 SHRAVTBU2019-10-17T08:30:00Z12.68101.031.024.04042.4929.763779SHRAIFRSPECI5.02019-10-17 08:44:26Jm)5    3VTCC 170830Z 01006KT 320V060 9999 FEW025CB BKN035 29/23 Q1013 NOSIGVTCC2019-10-17T08:30:00Z18.7798.9729.023.01066.2129.911417TRUEVFRMETAR314.02019-10-17 08:44:26bl);5     3RCFN 170830Z 01007KT 330V060 9999 VCSH FEW020 SCT032 BKN045 25/19 Q1015 NOSIG RMK A2999RCFN2019-10-17T08:30:00Z22.77121.0725.019.01076.2129.970472TRUEVCSHVFRSPECI42.02019-10-17 08:44:26 3ch7s(q5    3VVPQ 170830Z 08006KT 9999 FEW017 31/24 Q1007 NOSIGVVPQ2019-10-17T08:30:00Z10.23103.9731.024.08066.2129.734253TRUEVFRMETAR4.02019-10-17 08:44:26ur)e5    3VVTS 170830Z 14007KT 9999 VCSH BKN017 FEW020CB 33/22 Q1006 TEMPO FM0845 TL0920 08015G26KT 3000 TSRA RMK CB/EVVTS2019-10-17T08:30:00Z10.82106.6733.022.014076.2129.704725VCSHMVFRSPECI19.02019-10-17 08:44:26Jq)5    3VVDN 170830Z 06007KT 030V100 8000 SCT012 FEW015TCU 29/23 Q1013 NOSIGVVDN2019-10-17T08:30:00Z16.02108.229.023.06074.9729.911417TRUEMVFRMETAR7.02019-10-17 08:44:26Gp)5    3VTBD 170830Z 09010KT 050V120 9999 FEW020 SCT035 33/23 Q1009 NOSIGVTBD2019-10-17T08:30:00Z13.92100.633.023.090106.2129.793306TRUEVFRMETAR3.02019-10-17 08:44:26 ;lGw)5     3VVCR 170830Z 05011KT 9999 -RA SCT015 SCT050 27/27 Q1010 NOSIGVVCR2019-10-17T08:30:00Z12.0109.2227.027.050116.2129.822834TRUE-RAVFRMETAR12.02019-10-17 08:44:26Rv)%5    3VVCT 170830Z 02006KT 9999 SCT015 FEW017TCU 32/26 Q1007 NOSIG TCU/SW/OVER RWYVVCT2019-10-17T08:30:00Z10.08105.7232.026.02066.2129.734253TRUEVFRMETAR3.02019-10-17 08:44:26Iu)5   3VVNB 170830Z 16010KT 7000 FEW030TCU BKN045 27/23 Q1014 TEMPO 4000 RAVVNB2019-10-17T08:30:00Z21.22105.827.023.0160104.3529.940945MVFRSPECI12.02019-10-17 08:44:26?t(5    3VVPB 170830Z 05013KT 9999 SCT015 SCT050 31/24 Q1013 NOSIGVVPB2019-10-17T08:30:00Z16.38107.731.024.050136.2129.911417TRUEVFRMETAR17.02019-10-17 08:44:26 @>u@;|(}5    3UKOH 170830Z 06004MPS CAVOK 18/13 Q1020 R03/CLRD// NOSIGUKOH2019-10-17T08:30:00Z46.6732.518.013.06086.2130.11811TRUEVFRMETAR45.02019-10-17 08:44:26/{(g5    3UKWW 170830Z VRB01MPS CAVOK 16/09 Q1020 NOSIGUKWW2019-10-17T08:30:00Z49.2528.616.09.0026.2130.11811TRUEVFRMETAR293.02019-10-17 08:44:269z(y5    3OPPS 170830Z 09006KT 2100 HZ SCT090 SCT200 30/20 Q1014OPPS2019-10-17T08:30:00Z34.0271.5230.020.09061.329.940945HZIFRMETAR360.02019-10-17 08:44:26Cy)5    3VYYY 170830Z 12010KT 8000 BKN015 FEW020CB 34/27 Q1008 NOSIGVYYY2019-10-17T08:30:00Z16.996.1334.027.0120104.9729.763779TRUEMVFRMETAR33.02019-10-17 08:44:26")5   3UTFA 170830Z 25004KT 170V300 9999 NSC 23/03 Q1022 R88/09//70UTFA2019-10-17T08:30:00Z40.7372.323.03.025046.2130.177166VFRMETAR477.02019-10-17 08:44:26?!)5   3UTFF 170830Z 35004KT 300V360 9999 NSC 21/02 Q1022 R18/CLRD70UTFF2019-10-17T08:30:00Z40.3771.7721.02.035046.2130.177166VFRMETAR577.02019-10-17 08:44:26G ) 5    3UTTT 170830Z 30008KT 260V020 CAVOK 23/05 Q1023 R08L/CLRD70 NOSIGUTTT2019-10-17T08:30:00Z41.2769.2723.05.030086.2130.206694TRUEVFRMETAR489.02019-10-17 08:44:26K)5    3VOGO 170830Z 16005KT 6000 FEW020 FEW022TCU SCT100 33/23 Q1008 NOSIGVOGO2019-10-17T08:30:00Z15.3873.8333.023.016053.7329.763779TRUEMVFRMETAR52.02019-10-17 08:44:26 $2p$<(({5    3UTNU 170830Z 32006KT CAVOK 24/03 Q1025 R31/CLRD70 NOSIGUTNU2019-10-17T08:30:00Z41.5860.6324.03.032066.2130.265747TRUEVFRMETAR98.02019-10-17 08:44:26@')5    3UTSA 170830Z 01006KT 9999 NSC 25/02 Q1023 R07/CLRD70 NOSIGUTSA2019-10-17T08:30:00Z40.1265.1725.02.01066.2130.206694TRUEVFRMETAR346.02019-10-17 08:44:26>&({5    3UTSB 170830Z 36010KT CAVOK 25/07 Q1023 R01/CLRD70 NOSIGUTSB2019-10-17T08:30:00Z39.7764.4825.07.0360106.2130.206694TRUEVFRMETAR226.02019-10-17 08:44:26<%(5   3UTSK 170830Z 31006KT 260V350 CAVOK 24/05 Q1022 R16/CLRD70UTSK2019-10-17T08:30:00Z38.8365.7724.05.031066.2130.177166VFRMETAR1365.02019-10-17 08:44:26H$)5    3UTSS 170830Z 27004KT 210V320 9999 NSC 24/01 Q1022 R09/CLRD70 NOSIGUTSS2019-10-17T08:30:00Z39.766.9824.01.027046.2130.177166TRUEVFRMETAR724.02019-10-17 08:44:26 >oO,)5    3KGNB 170829Z AUTO 00000KT 10SM CLR M02/M09 A3025 RMK AO2 T10191091KGNB2019-10-17T08:29:00Z40.08-105.92-1.9-9.10010.030.250984TRUETRUEVFRSPECI2500.02019-10-17 08:44:26E+({5    3KCPW 170829Z AUTO 22010KT 10SM CLR 02/M13 A3047 RMK AO2KCPW2019-10-17T08:29:00Z37.45-106.82.0-13.02201010.030.469488TRUETRUEVFRSPECI3584.02019-10-17 08:44:26I*)5    3UTFN 170830Z 12006KT 090V160 9999 NSC 21/04 Q1021 R28/CLRD70 NOSIGUTFN2019-10-17T08:30:00Z40.9871.5721.04.012066.2130.147638TRUEVFRMETAR490.02019-10-17 08:44:26<)({5    3UTNN 170830Z 36008KT CAVOK 20/05 Q1026 R33/CLRD60 NOSIGUTNN2019-10-17T08:30:00Z42.4859.6320.05.036086.2130.295275TRUEVFRMETAR67.02019-10-17 08:44:26 Y0N7YX0)75   3LTAV 170827Z 28004KT 9999 FEW025CB SCT035 BKN100 16/13 Q1021 RESHRA RMK RWY11 30006KTLTAV2019-10-17T08:27:00Z39.4531.3516.013.028046.2130.147638VFRSPECI96.02019-10-17 08:44:26/) 5    3EHVK 170828Z AUTO 23008KT 200V260 9000 BR FEW006 SCT007 BKN010 13/12 Q1010 GRN 25006KT 7000 BR SCT005 BKN008 BECMG SCT015 BKN040EHVK2019-10-17T08:28:00Z51.635.713.012.023085.5929.822834TRUEBR BRSCT500MVFRSPECI21.02019-10-17 08:44:26\.)'5    3CYYE 170828Z 35004KT 4SM -SN BR BKN004 OVC010 M00/M00 A2932 RMK ST7SC1 SLP948CYYE2019-10-17T08:28:00Z58.82-122.570.00.035044.029.320866994.8-SN BRLIFRSPECI382.02019-10-17 08:44:26J-)5    3OPLA 170829Z 15005KT 3500 FU FEW040 30/19 Q1014 RMK QFE988 RMK A29.95OPLA2019-10-17T08:29:00Z31.5274.430.019.015052.1729.940945FUIFRMETAR217.02019-10-17 08:44:26 <eH4)5    3EBCV 170825Z AUTO 20009KT 9999 SCT010/// SCT073/// 13/11 Q1011 GRNEBCV2019-10-17T08:25:00Z50.573.8213.011.020096.2129.852362TRUEVFRMETAR63.02019-10-17 08:44:26U3)-5    3EBBL 170825Z 24008KT 9999 -DZ SCT007 SCT018 BKN040 13/12 Q1011 GRN GRN BECMG BLUEBBL2019-10-17T08:25:00Z51.175.4713.012.024086.2129.852362-DZVFRSPECI64.02019-10-17 08:44:26Q2)#5   3RJAW 170826Z 09013KT 9999 FEW008 BKN012 27/24 Q1015 RMK 2ST008 5CU012 A2998RJAW2019-10-17T08:26:00Z24.77141.3227.024.090136.2129.970472MVFRMETAR116.02019-10-17 08:44:26>1(y5    3KACP 170826Z AUTO 00000KT 10SM CLR 11/09 A3003 RMK AO2KACP2019-10-17T08:26:00Z30.75-92.6811.09.00010.030.029528TRUETRUEVFRMETAR33.02019-10-17 08:44:26 2fd8)I5    3EHFS 170825Z AUTO 21011KT 170V230 9999 FEW013/// SCT028/// OVC032/// 12/11 Q1009 REDZ W///H///EHFS2019-10-17T08:25:00Z51.453.612.011.0210116.2129.793306TRUEVFRMETAR32.02019-10-17 08:44:26P7)%5   3EBFS 170825Z 19008KT 9999 FEW006 SCT009 BKN012 11/11 Q1011 GRN GRN BECMG WHTEBFS2019-10-17T08:25:00Z50.224.6511.011.019086.2129.852362MVFRSPECI299.02019-10-17 08:44:26F6)5   3EBFN 170825Z 20009KT 9999 FEW012 BKN050 13/11 Q1010 BLU BLU TEMPO WHTEBFN2019-10-17T08:25:00Z51.072.6313.011.020096.2129.822834VFRSPECI9.02019-10-17 08:44:26H5)5    3EBDT 170825Z AUTO 21004KT 9999 FEW009/// OVC043/// 13/12 Q1011 BLUEBDT2019-10-17T08:25:00Z51.025.0713.012.021046.2129.852362TRUEVFRMETAR54.02019-10-17 08:44:26 9q2<(e5    3OPGD 170825Z 18010KT 5000 HZ NSC 32/24 Q1013OPGD2019-10-17T08:25:00Z25.2362.3332.024.0180103.1129.911417HZMVFRMETAR29.02019-10-17 08:44:26[;)15    3OPIS 170825Z 18005KT 1800 -TSRA FEW030CB SCT040 BKN100 27/20 Q1014 RH64 TEMPO 2000OPIS2019-10-17T08:25:00Z33.5572.8327.020.018051.1229.940945-TSRAIFRMETAR537.02019-10-17 08:44:26B:({5    3KWYS 170825Z AUTO 00000KT 9SM CLR M03/M06 A2992 RMK AO2KWYS2019-10-17T08:25:00Z44.67-111.12-3.0-6.0009.029.920275TRUETRUEVFRSPECI2025.02019-10-17 08:44:26A9) 5   3EBBE 170825Z 20007KT 9999 FEW009 12/11 Q1011 BLU BLU TEMPO GRNEBBE2019-10-17T08:25:00Z50.754.7712.011.020076.2129.852362VFRSPECI127.02019-10-17 08:44:26 =5m=>A({5     3KEDJ 170820Z AUTO 29007KT 10SM OVC037 06/ A2991 RMK AO1KEDJ2019-10-17T08:20:00Z40.37-83.826.0290710.029.911417TRUETRUEVFRSPECI342.02019-10-17 08:44:26%@(]5   3ENBS 170820Z 21008KT CAVOK M04/M07 Q1016ENBS2019-10-17T08:20:00Z70.6229.72-4.0-7.021086.2130.0VFRMETAR10.02019-10-17 08:44:26;?)5   3ENSO 170820Z 10009KT 9999 FEW030 SCT027 BKN040 10/08 Q1001ENSO2019-10-17T08:20:00Z59.785.3310.08.010096.2129.557087VFRMETAR49.02019-10-17 08:44:26B>(5    3KCDD 170821Z AUTO 00000KT 10SM BKN028 02/02 A3003 RMK AO2KCDD2019-10-17T08:21:00Z48.27-92.482.02.00010.030.029528TRUETRUEMVFRSPECI341.02019-10-17 08:44:26E=({5    3K5SM 170823Z AUTO 22008KT 10SM CLR 02/M17 A3037 RMK AO2K5SM2019-10-17T08:23:00Z39.43-107.382.0-17.0220810.030.369095TRUETRUEVFRSPECI3232.02019-10-17 08:44:26 <9i<=F(u5     3LHDC 170815Z AUTO 00000KT 7000 NCD 17/12 Q1020 NOSIGLHDC2019-10-17T08:15:00Z47.4721.6217.012.0004.3530.11811TRUETRUEMVFRMETAR112.02019-10-17 08:44:269E(u5    3LHPA 170815Z 19004KT CAVOK 16/09 Q1019 NOSIG RMK BLULHPA2019-10-17T08:15:00Z47.3517.516.09.019046.2130.088583TRUEVFRMETAR148.02019-10-17 08:44:26%D(Y5   3EGCN 170820Z 17005KT CAVOK 07/06 Q1006EGCN2019-10-17T08:20:00Z53.48-1.07.06.017056.2129.704725VFRMETAR17.02019-10-17 08:44:26JC)5   3KMHV 170820Z AUTO 26008G13KT 10SM CLR 20/M01 A2986 RMK A01KMHV2019-10-17T08:20:00Z35.07-118.1520.0-1.026081310.029.861221TRUETRUEVFRMETAR849.02019-10-17 08:44:26AB(y5    3KGZN 170820Z AUTO 19004KT 10SM CLR 10/01 A3009 RMK AO2KGZN2019-10-17T08:20:00Z32.37-99.0210.01.0190410.030.088583TRUETRUEVFRMETAR522.02019-10-17 08:44:26 5; 5OK)5   3KMQI 170815Z AUTO 31015G21KT 10SM CLR 13/05 A2972 RMK AO2 T01250047KMQI2019-10-17T08:15:00Z35.92-75.712.54.7310152110.029.719488TRUETRUEVFRSPECI4.02019-10-17 08:44:26GJ(}5    3K33V 170815Z AUTO 14008KT 10SM CLR M03/M11 A3020 RMK AO1K33V2019-10-17T08:15:00Z40.75-106.28-3.0-11.0140810.030.200787TRUETRUEVFRSPECI2484.02019-10-17 08:44:26(I(Y5   3LHPP 170815Z 17002KT CAVOK 17/13 Q1020LHPP2019-10-17T08:15:00Z45.9818.2317.013.017026.2130.11811VFRMETAR305.02019-10-17 08:44:260H(i5   3LHPR 170815Z 13003KT 050V210 CAVOK 15/10 Q1020LHPR2019-10-17T08:15:00Z47.6317.8215.010.013036.2130.11811VFRMETAR129.02019-10-17 08:44:26?G({5     3LHSM 170815Z AUTO VRB02KT 9999 SCT049 12/11 Q1020 NOSIGLHSM2019-10-17T08:15:00Z46.6817.1712.011.0026.2130.11811TRUETRUEVFRMETAR125.02019-10-17 08:44:26 OG-P(_5   3OIHR 170800Z 36008KT 7000 NSC 20/02 Q1027OIHR2019-10-17T08:00:00Z34.1349.8520.02.036084.3530.324802MVFRMETAR1658.02019-10-17 08:44:26&O(Y5   3OIBQ 170800Z 06004KT CAVOK 33/25 Q1014OIBQ2019-10-17T08:00:00Z29.2750.3233.025.06046.2129.940945VFRMETAR6.02019-10-17 08:44:26)N(Y5   3OIIK 170800Z 13006KT CAVOK 24/01 Q1024OIIK2019-10-17T08:00:00Z36.2550.0524.01.013066.2130.236221VFRMETAR1278.02019-10-17 08:44:26'M(Y5   3OIMC 170800Z 24004KT CAVOK 26/04 Q1024OIMC2019-10-17T08:00:00Z36.561.0726.04.024046.2130.236221VFRMETAR288.02019-10-17 08:44:26+L([5   3OIMD 170800Z 36004KT CAVOK 24/M03 Q1021OIMD2019-10-17T08:00:00Z34.3858.6324.0-3.036046.2130.147638VFRMETAR1100.02019-10-17 08:44:26 RJ-U(e5   3PLCH 170800Z 12004KT 9999 FEW020 26/23 Q1012PLCH2019-10-17T08:00:00Z1.98-157.3526.023.012046.2129.88189VFRMETAR3.02019-10-17 08:44:26(T(Y5   3SBMK 170800Z 00000KT CAVOK 20/12 Q1018SBMK2019-10-17T08:00:00Z-16.7-43.8220.012.0006.2130.059055VFRMETAR646.02019-10-17 08:44:26%S(Y5   3OITP 170800Z 00000KT CAVOK 21/15 Q1023OITP2019-10-17T08:00:00Z39.647.8821.015.0006.2130.206694VFRMETAR77.02019-10-17 08:44:26)R([5   3OITZ 170800Z 00000KT CAVOK 21/M02 Q1026OITZ2019-10-17T08:00:00Z36.7748.3721.0-2.0006.2130.295275VFRMETAR1663.02019-10-17 08:44:26(Q(Y5   3OIBJ 170800Z 08006KT CAVOK 33/10 Q1019OIBJ2019-10-17T08:00:00Z27.8252.3533.010.08066.2130.088583VFRMETAR663.02019-10-17 08:44:26 R>7Z(s5   3FNMA 170800Z 27008KT 9999 SCT016 OVC090 21/18 Q1018FNMA2019-10-17T08:00:00Z-9.5516.3221.018.027086.2130.059055VFRMETAR1173.02019-10-17 08:44:26-Y(q5  3CZPS 170800Z AUTO 21002KT 07/M00 RMK AO1 T00711004CZPS2019-10-17T08:00:00Z52.43-113.67.1-0.42102TRUETRUEMETAR965.02019-10-17 08:44:26,X(o5  3CXAG 170800Z AUTO 12007KT 05/02 RMK AO1 T00530024CXAG2019-10-17T08:00:00Z53.92-112.285.32.41207TRUETRUEMETAR625.02019-10-17 08:44:26)W([5   3OIMQ 170800Z 00000KT CAVOK 22/M03 Q1024OIMQ2019-10-17T08:00:00Z35.2358.4722.0-3.0006.2130.236221VFRMETAR1140.02019-10-17 08:44:26(V(Y5   3OINE 170800Z 21004KT CAVOK 25/07 Q1022OINE2019-10-17T08:00:00Z37.3855.4525.07.021046.2130.177166VFRMETAR130.02019-10-17 08:44:26 jPj+_([5   3OIFS 170800Z 11004KT CAVOK 21/M03 Q1029OIFS2019-10-17T08:00:00Z32.3250.8521.0-3.011046.2130.383858VFRMETAR2078.02019-10-17 08:44:265^(w5   3OIMT 170800Z AUTO 23002KT //// // ////// 27/M04 Q1021OIMT2019-10-17T08:00:00Z33.6756.9227.0-4.0230230.147638TRUEMETAR711.02019-10-17 08:44:26G]) 5    3CXWB 170800Z AUTO 05004KT M11/M13 RMK AO1 SLP232 T11051126 58003CXWB2019-10-17T08:00:00Z65.88-89.45-10.5-12.65041023.2TRUETRUE-0.3METAR18.02019-10-17 08:44:26'\(Y5   3SAME 170800Z 00000KT CAVOK 05/03 Q1018SAME2019-10-17T08:00:00Z-32.82-68.775.03.0006.2130.059055VFRMETAR704.02019-10-17 08:44:26*[([5   3OIYY 170800Z 32002KT CAVOK 27/M02 Q1025OIYY2019-10-17T08:00:00Z31.954.2827.0-2.032026.2130.265747VFRMETAR1236.02019-10-17 08:44:26 bJ'b?d)5   3SLLP 170800Z 25006KT 9999 FEW004 SCT070 BKN200 05/04 Q1036SLLP2019-10-17T08:00:00Z-16.52-68.175.04.025066.2130.590551VFRMETAR4014.02019-10-17 08:44:26-c(_5   3SLVR 170800Z 33004KT 9999 NSC 18/16 Q1012SLVR2019-10-17T08:00:00Z-17.63-63.1218.016.033046.2129.88189VFRMETAR373.02019-10-17 08:44:268b(s5   3SLCB 170800Z 17003KT 9999 SCT027 BKN200 14/08 Q1022SLCB2019-10-17T08:00:00Z-17.42-66.1814.08.017036.2130.177166VFRMETAR2548.02019-10-17 08:44:26,a(e5   3OISR 170800Z 07004KT CAVOK 35/09 Q1017 A3004OISR2019-10-17T08:00:00Z27.3753.235.09.07046.2130.029528VFRMETAR408.02019-10-17 08:44:260`(e5    3OIBV 170800Z 33006KT 4000 HZ NSC 33/25 Q1013OIBV2019-10-17T08:00:00Z26.8253.3533.025.033062.4929.911417HZIFRMETAR24.02019-10-17 08:44:26 Oeh)=5     3MMMX 170851Z 36005KT 4SM -RA FEW008 BKN015 OVC080 14/13 A3024 NOSIG RMK 8/57/ RAE45 B-RAMMMX2019-10-17T08:51:00Z19.42-99.0814.013.036054.030.239174TRUE-RAMVFRSPECI2238.02019-10-17 08:52:55Qg)%5    3EKKA 170851Z 19006KT 8000 -RA SCT008 BKN070 13/12 Q1005 TEMPO 3000 RA BKN006EKKA2019-10-17T08:51:00Z56.39.1213.012.019064.9729.675198-RAMVFRMETAR52.02019-10-17 08:52:557f(q5   3KVWU 170755Z AUTO 00000KT 10SM 02/01 A2999 RMK AO2KVWU2019-10-17T07:55:00Z48.15-94.522.01.00010.029.991142TRUETRUESPECI360.02019-10-17 08:44:26+e([5   3OITM 170800Z 25004KT CAVOK 22/M01 Q1025OITM2019-10-17T08:00:00Z37.3546.1522.0-1.025046.2130.265747VFRMETAR1340.02019-10-17 08:44:26 _v1l(i5   3ESNL 170850Z 33004KT 9999 OVC005 M01/M02 Q1015ESNL2019-10-17T08:50:00Z64.5518.72-1.0-2.033046.2129.970472IFRMETAR214.02019-10-17 08:52:55ck)75    3OAKB 170850Z 01012G22KT 9000 VCTS FEW035CB SCT050 21/02 Q1022 NOSIG RMK A3019 BLU BLUOAKB2019-10-17T08:50:00Z34.5569.2221.02.01012225.5930.177166TRUEVCTSVFRSPECI1791.02019-10-17 08:52:552j(e5    3LATI 170850Z 22001KT CAVOK 22/14 Q1019 NOSIGLATI2019-10-17T08:50:00Z41.4219.7222.014.022016.2130.088583TRUEVFRMETAR90.02019-10-17 08:52:55ci)C5   3PTKK 170851Z VRB03KT 15SM FEW014 SCT120 OVC280 28/26 A2985 RMK SLP110 8/171 T02750260 52020PTKK2019-10-17T08:51:00Z7.47151.8527.526.00315.029.849411011.0VFR2.0METAR2.02019-10-17 08:52:55 PGP/q(e5    3LSZH 170850Z VRB01KT CAVOK 14/09 Q1017 NOSIGLSZH2019-10-17T08:50:00Z47.488.5314.09.0016.2130.029528TRUEVFRMETAR432.02019-10-17 08:52:55) 5     3PAKI 170846Z AUTO 04010KT 10SM SCT011 02/01 A2899 RMK AO2 FZRANOPAKI2019-10-17T08:46:00Z59.93-164.032.01.0401010.028.990158TRUETRUETRUEVFRSPECI4.02019-10-17 08:52:55 =)w5    3KEWB 170846Z AUTO 24019G34KT 10SM SCT005 OVC013 13/11 A2889 RMK AO2 PK WND 22034/0839 RAB27E37 PRESRR P0000 T01330111KEWB2019-10-17T08:46:00Z41.68-70.9513.311.1240193410.028.889763TRUETRUEMVFR0.005SPECI23.02019-10-17 08:52:55n<)E5      3KMVL 170846Z AUTO 01008KT 6SM RA BR SCT011 OVC035 08/07 A2918 RMK AO2 PRESFR P0034 T00830072KMVL2019-10-17T08:46:00Z44.53-72.628.37.21086.029.179134TRUETRUERA BRVFR0.34SPECI234.02019-10-17 08:52:55 7iFC)5   3CYSM 170845Z 15004KT 15SM BKN027 01/01 A2950 RMK SC7 SLP002CYSM2019-10-17T08:45:00Z60.03-111.971.01.0150415.029.5009841000.2MVFRSPECI203.02019-10-17 08:52:55;B)5   3LZZI 170845Z 07003KT 030V120 9999 SCT004 SCT005 09/08 Q1020LZZI2019-10-17T08:45:00Z49.2318.629.08.07036.2130.11811VFRSPECI311.02019-10-17 08:52:55HA) 5    3YBMA 170845Z AUTO 18019KT 9999 // NCD 34/04 Q1013 RF00.0/000.0YBMA2019-10-17T08:45:00Z-20.67139.4734.04.0180196.2129.911417TRUEVFRSPECI344.02019-10-17 08:52:55C@({5    3CYBN 170845Z AUTO 33013G20KT 9SM -RA OVC010 06/05 A2951CYBN2019-10-17T08:45:00Z44.27-79.926.05.033013209.029.509842TRUE-RAMVFRSPECI223.02019-10-17 08:52:55 E)lE+H(_5   3KLWC 170845Z 10004KT 10SM CLR 04/03 A3006KLWC2019-10-17T08:45:00Z39.02-95.224.03.0100410.030.059055VFRMETAR253.02019-10-17 08:52:552G(e5    3LMML 170845Z 36010KT CAVOK 23/16 Q1020 NOSIGLMML2019-10-17T08:45:00Z35.8514.4723.016.0360106.2130.11811TRUEVFRMETAR91.02019-10-17 08:52:558F(u5    3LHKE 170845Z VRB02KT CAVOK 18/10 Q1020 NOSIG RMK BLULHKE2019-10-17T08:45:00Z46.9219.7518.010.0026.2130.11811TRUEVFRSPECI115.02019-10-17 08:52:557E(u5    3LHSN 170845Z 00000KT CAVOK 18/10 Q1020 NOSIG RMK BLULHSN2019-10-17T08:45:00Z47.1220.2318.010.0006.2130.11811TRUEVFRSPECI98.02019-10-17 08:52:55QD)5   3K2G4 170845Z AUTO 27016G27KT 232V312 5SM OVC004 02/02 A2964 RMK AO1K2G42019-10-17T08:45:00Z39.58-79.332.02.027016275.029.639763TRUETRUELIFRSPECI894.02019-10-17 08:52:55 F(K)?5    3EHEH 170845Z AUTO 22008KT 190V260 6000 BR FEW007 SCT011 BKN013 14/12 Q1010 GRN 23007KT 8000 SCT007 BKN016 BKN045 TEMPO 4000 -DZRA BR BKN005 BKN008 OVC016EHEH2019-10-17T08:45:00Z51.455.3814.012.022083.7329.822834TRUEBRSCT700MVFRMETAR22.02019-10-17 08:52:55CJ)5     3CMGB 170845Z AUTO 03007G15KT 08/ RMK AO1 PRESFR SLP928 T0079 58050CMGB2019-10-17T08:45:00Z45.37-72.777.930715992.8TRUETRUE-5.0SPECI86.02019-10-17 08:52:55kI)E5   3KSMP 170845Z AUTO 27009G16KT 240V300 10SM SCT009 BKN012 OVC019 04/03 A2967 RMK AO2 T00440028KSMP2019-10-17T08:45:00Z47.28-121.334.42.827091610.029.66929TRUETRUEMVFRSPECI1208.02019-10-17 08:52:55 /fXO)#5   3KFDK 170845Z AUTO 31011G17KT 250V330 10SM SCT043 SCT050 11/03 A2956 RMK AO2KFDK2019-10-17T08:45:00Z39.42-77.3711.03.0310111710.029.56004TRUETRUEVFRSPECI92.02019-10-17 08:52:55CN({5    3KMVH 170845Z AUTO VRB06KT 10SM CLR 11/M05 A2972 RMK AO2KMVH2019-10-17T08:45:00Z46.83-108.9311.0-5.00610.029.719488TRUETRUEVFRSPECI1355.02019-10-17 08:52:55BM) 5    3CWPF 170845Z AUTO 35002KT 09/08 RMK AO1 SLP034 T00930083 51006CWPF2019-10-17T08:45:00Z48.43-123.439.38.335021003.4TRUETRUE0.6METAR12.02019-10-17 08:52:55L)W5      3BGTL 170845Z AUTO 00000KT 5000 -SN BR BKN014 BKN030 M05/M05 A3003 RMK AO2 UPB05E07SNB07 SLP156 TSNO $BGTL2019-10-17T08:45:00Z76.53-68.7-5.0-5.0003.1130.0295281015.6TRUETRUETRUETRUE-SN BRMVFRMETAR77.02019-10-17 08:52:55 A.<5AnS)E5      3KRME 170844Z AUTO 29008KT 6SM RA BR FEW005 SCT025 OVC033 08/08 A2929 RMK AO2 P0005 T00830083KRME2019-10-17T08:44:00Z43.22-75.48.38.329086.029.291338TRUETRUERA BRVFR0.05SPECI154.02019-10-17 08:52:55R)e5     3PADK 170844Z AUTO 25023G27KT 10SM -RA FEW020 BKN026 BKN036 06/04 A2967 RMK AO2 PK WND 25029/0811 RAB38 P0000PADK2019-10-17T08:44:00Z51.88-176.656.04.0250232710.029.66929TRUETRUE-RAMVFR0.005SPECI4.02019-10-17 08:52:55lQ)=5    3CYHE 170844Z AUTO 20004KT 180V270 9SM SCT015 BKN021 BKN033 OVC043 10/08 A2965 RMK SLP043CYHE2019-10-17T08:44:00Z49.37-121.510.08.020049.029.6486231004.3TRUEOVC4300MVFRSPECI39.02019-10-17 08:52:55LP) 5    3KDVP 170845Z AUTO 14004KT 7SM CLR 00/M01 A2997 RMK AO2 T10021006KDVP2019-10-17T08:45:00Z43.98-95.78-0.2-0.614047.029.970472TRUETRUEVFRSPECI495.02019-10-17 08:52:55 M&LVMW)_5     3RJTY 170844Z AUTO 00000KT 10SM OVC030 15/15 A3032 RMK AO2 RAE0757DZB00E14DZB16E32DZB34E44 SLP271 FZRANO $RJTY2019-10-17T08:44:00Z35.75139.3315.015.00010.030.3188971027.1TRUETRUETRUETRUEMVFRMETAR139.02019-10-17 08:52:55pV)Q5      3PADQ 170844Z 32004KT 10SM -RA BKN010 BKN014 OVC021 06/04 A2897 RMK AO2 CIG 008V012 P0002 T00560039PADQ2019-10-17T08:44:00Z57.75-152.55.63.9320410.028.969488TRUE-RAMVFR0.02SPECI34.02019-10-17 08:52:55TU)5     3KAMW 170844Z AUTO 00000KT 1 1/2SM BR CLR M01/M01 A3004 RMK AO2 T10111011KAMW2019-10-17T08:44:00Z41.98-93.62-1.1-1.1001.530.041338TRUETRUEBRIFRSPECI279.02019-10-17 08:52:55TT)5    3CYQA 170844Z AUTO 32019G27KT 9SM -RA OVC010 05/03 A2947 RMK SLP987CYQA2019-10-17T08:44:00Z44.97-79.285.03.032019279.029.471457998.7TRUE-RAMVFRSPECI282.02019-10-17 08:52:55 F8[(y5   3MMCL 170843Z 00000KT 10SM BKN040 27/26 A2974 RMK 8/500MMCL2019-10-17T08:43:00Z24.77-107.4727.026.00010.029.740158VFRMETAR39.02019-10-17 08:52:55PZ)5     3PASX 170843Z AUTO 00000KT 10SM OVC016 00/M01 A2908 RMK AO2 FZRANOPASX2019-10-17T08:43:00Z60.48-151.030.0-1.00010.029.078741TRUETRUETRUEMVFRSPECI32.02019-10-17 08:52:55cY)55   3KBRO 170843Z AUTO 33011G17KT 10SM BKN015 BKN050 OVC070 19/12 A2997 RMK AO2 T01890122KBRO2019-10-17T08:43:00Z25.92-97.4218.912.2330111710.029.970472TRUETRUEMVFRSPECI7.02019-10-17 08:52:55uX)C5      3PAPN 170843Z AUTO 29015KT 5SM BR SCT013 OVC028 04/03 A2901 RMK AO2 WSHFT 0814 P0008 PWINO $PAPN2019-10-17T08:43:00Z57.58-157.574.03.0290155.029.010826TRUETRUETRUETRUEBRMVFR0.08SPECI18.02019-10-17 08:52:55 i_)95      3KART 170843Z AUTO 00000KT 5SM -RA BR FEW005 OVC049 08/08 A2931 RMK AO2 P0003 T00830078KART2019-10-17T08:43:00Z43.98-76.038.37.8005.029.309055TRUETRUE-RA BRMVFR0.03SPECI100.02019-10-17 08:52:55o^)C5      3KFZY 170843Z AUTO 29007KT 10SM -RA FEW014 BKN020 OVC025 09/07 A2932 RMK AO2 P0000 T00940067KFZY2019-10-17T08:43:00Z43.35-76.389.46.7290710.029.320866TRUETRUE-RAMVFR0.005SPECI138.02019-10-17 08:52:55w])]5     3KACV 170843Z AUTO 00000KT 1/2SM R32/3000VP6000FT FG FEW001 BKN005 BKN060 10/09 A2994 RMK AO2 T01000094 $KACV2019-10-17T08:43:00Z40.98-124.110.09.4000.529.940945TRUETRUETRUEFGLIFRSPECI67.02019-10-17 08:52:55z\)Q5     3RJTR 170843Z AUTO 34004KT 5SM -RA BR SCT007 SCT012 OVC035 15/14 A3026 RMK AO2 RAB20E41RAB43 SLP249RJTR2019-10-17T08:43:00Z35.52139.415.014.034045.030.2598421024.9TRUETRUE-RA BRMVFRSPECI109.02019-10-17 08:52:55 * *[c)'5   3KCGS 170843Z AUTO 26010G19KT 10SM BKN060 BKN070 12/01 A2955 RMK AO1 T01160013KCGS2019-10-17T08:43:00Z38.98-76.9211.61.3260101910.029.551182TRUETRUEVFRSPECI15.02019-10-17 08:52:55Ub)5     3KSMX 170843Z AUTO 14004KT 9SM BKN008 12/09 A2988 RMK AO2 T01220094 TSNOKSMX2019-10-17T08:43:00Z34.9-120.4512.29.414049.029.878937TRUETRUETRUEIFRSPECI74.02019-10-17 08:52:55 a)o5     3KPSF 170843Z AUTO 29016G26KT 1 3/4SM +RA BR FEW010 OVC027 07/05 A2905 RMK AO2 PK WND 30029/0831 P0063 T00670050 $KPSF2019-10-17T08:43:00Z42.43-73.286.75.029016261.7529.049213TRUETRUETRUE+RA BRIFR0.63SPECI355.02019-10-17 08:52:55`)a5     3KORH 170843Z AUTO 26017G24KT 6SM RA BR FEW007 SCT021 OVC035 12/11 A2883 RMK AO2 WSHFT 0759 P0007 T01170111KORH2019-10-17T08:43:00Z42.27-71.8711.711.126017246.028.83071TRUETRUERA BRVFR0.07SPECI304.02019-10-17 08:52:55 .3.g)_5     3KTAN 170842Z AUTO 21013G25KT 180V240 7SM -RA OVC010 16/14 A2884 RMK AO2 RAB34 CIG 007V014 P0000 T01610139KTAN2019-10-17T08:42:00Z41.88-71.0216.113.921013257.028.839567TRUETRUE-RAMVFR0.005METAR7.02019-10-17 08:52:55Af({5    3KCNB 170842Z AUTO 09003KT 10SM CLR 00/M02 A2997 RMK AO2KCNB2019-10-17T08:42:00Z44.73-96.270.0-2.090310.029.970472TRUETRUEVFRSPECI364.02019-10-17 08:52:55ie)35    3KGOV 170843Z AUTO 32005KT 10SM SCT020 OVC029 04/02 A2984 RMK AO2 OVC V BKN SLP119 $KGOV2019-10-17T08:43:00Z44.68-84.734.02.0320510.029.8405511011.9TRUETRUETRUEMVFRSPECI353.02019-10-17 08:52:55d)}5    3KSUU 170843Z AUTO 23012KT 10SM SCT023 BKN029 BKN044 15/13 A2986 RMK AO2 CIG 029V044 BKN029 V SCT CIG 010 RWY03L SLP118 $KSUU2019-10-17T08:43:00Z38.27-121.9215.013.02301210.029.8612211011.8TRUETRUETRUEMVFRSPECI19.02019-10-17 08:52:55 j$HjXk)!5   3KFME 170842Z AUTO 27011G15KT 10SM SCT044 BKN050 OVC060 10/06 A2957 RMK AO1KFME2019-10-17T08:42:00Z39.08-76.7710.06.0270111510.029.568897TRUETRUEVFRMETAR46.02019-10-17 08:52:55Vj)5    3KMTN 170842Z AUTO 25009G19KT 10SM -DZ BKN060 OVC070 12/06 A2953 RMK AO2KMTN2019-10-17T08:42:00Z39.32-76.4212.06.025091910.029.530512TRUETRUE-DZVFRSPECI7.02019-10-17 08:52:55Ei(5    3KLPC 170842Z AUTO 30004KT 10SM SCT007 12/11 A2989 RMK AO2KLPC2019-10-17T08:42:00Z34.67-120.4712.011.0300410.029.890747TRUETRUEVFRMETAR27.02019-10-17 08:52:55 h)w5     3KAUG 170842Z AUTO 06019G26KT 10SM -RA OVC010 11/10 A2919 RMK AO2 PK WND 06030/0823 CIG 006V013 PRESFR P0004 T01060100KAUG2019-10-17T08:42:00Z44.32-69.810.610.060192610.029.190945TRUETRUE-RAMVFR0.04METAR109.02019-10-17 08:52:55 Z45ZUo)5     3KSTC 170841Z AUTO 00000KT 1 3/4SM BR CLR M01/M01 A3001 RMK AO2 T10061011KSTC2019-10-17T08:41:00Z45.55-94.05-0.6-1.1001.7530.008858TRUETRUEBRIFRSPECI314.02019-10-17 08:52:55yn)U5      3KVSF 170841Z AUTO 01012G22KT 2 1/2SM +RA FEW016 BKN025 OVC037 10/ A2893 RMK AO2 PRESFR P0003 T0100 $KVSF2019-10-17T08:41:00Z43.35-72.5210.01012222.528.931103TRUETRUETRUE+RAIFR0.03METAR175.02019-10-17 08:52:55Tm)5    3CYKF 170841Z AUTO 31013G21KT 7SM -RA OVC011 05/04 A2954 RMK SLP010CYKF2019-10-17T08:41:00Z43.47-80.385.04.031013217.029.539371001.0TRUE-RAMVFRSPECI317.02019-10-17 08:52:55ll)75   3CYBQ 170841Z AUTO 16012G20KT 9SM SCT014 BKN028 BKN037 OVC048 M01/M03 A2987 RMK SLP136CYBQ2019-10-17T08:41:00Z58.7-98.5-1.0-3.016012209.029.8700791013.6TRUEOVC4800MVFRSPECI262.02019-10-17 08:52:55 6 6Rs)!5    3KINL 170841Z AUTO 00000KT 10SM SCT022 OVC120 03/02 A2999 RMK AO2 T00280022KINL2019-10-17T08:41:00Z48.57-93.42.82.20010.029.991142TRUETRUEVFRSPECI360.02019-10-17 08:52:55xr)U5     3KLEB 170841Z AUTO 01013G21KT 4SM -RA FEW008 BKN019 OVC035 11/08 A2893 RMK AO2 PRESFR P0011 T01060078KLEB2019-10-17T08:41:00Z43.63-72.310.67.81013214.028.931103TRUETRUE-RAMVFR0.11METAR171.02019-10-17 08:52:55tq)I5     3KLMT 170841Z AUTO 30015G24KT 10SM -RA FEW016 SCT024 OVC032 06/03 A2985 RMK AO2 P0009 T00610033KLMT2019-10-17T08:41:00Z42.15-121.726.13.3300152410.029.84941TRUETRUE-RAVFR0.09SPECI1246.02019-10-17 08:52:55tp)K5     3KPBG 170841Z AUTO 36016G24KT 5SM RA BR BKN009 BKN014 OVC039 09/08 A2924 RMK AO2 P0011 T00890078KPBG2019-10-17T08:41:00Z44.65-73.478.97.836016245.029.241142TRUETRUERA BRIFR0.11METAR72.02019-10-17 08:52:55 /P4w(u5   3FAEO 170841Z AUTO 18004KT //// // ////// 28/06 Q1029FAEO2019-10-17T08:41:00Z-26.529.9728.06.0180430.383858TRUESPECI1737.02019-10-17 08:52:55Yv)%5    3CYXY 170841Z 00000KT 3SM -SN BR BKN004 OVC012 00/M00 A2909 RMK SF5ST3 SLP883CYXY2019-10-17T08:41:00Z60.72-135.070.00.0003.029.090551988.3-SN BRLIFRSPECI703.02019-10-17 08:52:55du)75     3KCLM 170841Z AUTO 18004KT 1 1/2SM BR FEW065 05/05 A2965 RMK AO2 VIS 3/4V3 T00500050 $KCLM2019-10-17T08:41:00Z48.12-123.55.05.018041.529.648623TRUETRUETRUEBRIFRSPECI85.02019-10-17 08:52:55at)=5    3KHUL 170841Z AUTO 07009KT 10SM FEW026 BKN031 OVC110 08/03 A2962 RMK AO2 PRESFR T00780028KHUL2019-10-17T08:41:00Z46.12-67.87.82.870910.029.619095TRUETRUEVFRMETAR150.02019-10-17 08:52:55 |7\t|r{)Y5   3PKWA 170840Z AUTO 09020G26KT 10SM SCT021 SCT036 SCT065 27/27 A2986 RMK AO2 LTG DSNT N AND NW T02740265PKWA2019-10-17T08:40:00Z8.72167.7227.426.590202610.029.861221TRUETRUEVFRSPECI8.02019-10-17 08:52:55bz)35    3KAPF 170840Z AUTO 29006KT 10SM SCT018 SCT024 BKN120 28/24 A2988 RMK AO2 T02780244 $KAPF2019-10-17T08:40:00Z26.15-81.7727.824.4290610.029.878937TRUETRUETRUEVFRMETAR3.02019-10-17 08:52:55Uy)!5    3KIKW 170840Z AUTO 29003KT 10SM SCT024 OVC037 07/02 A2984 RMK AO2 T00700023KIKW2019-10-17T08:40:00Z43.67-84.277.02.3290310.029.840551TRUETRUEVFRSPECI194.02019-10-17 08:52:55Cx)5   3CWFD 170840Z AUTO 18008KT ////SM //// BKN005 OVC015 M03/M03 A2968CWFD2019-10-17T08:40:00Z66.57-61.58-3.0-3.0180829.681103TRUESPECI393.02019-10-17 08:52:55 z)tz )5    3RJFT 170840Z 36006KT 4500 R07/1400V1800D -RA BR FEW060 SCT100 BKN130 18/18 Q1020 RMK 1SC060 3AC100 7AC130 A3013 VOLCANIC ASH CLOUD ERJFT2019-10-17T08:40:00Z32.82130.8318.018.036062.830.11811-RA BRIFRSPECI196.02019-10-17 08:52:55a~)15   3KUKT 170840Z AUTO 24011G17KT 200V270 10SM SCT038 SCT044 BKN070 10/05 A2938 RMK A01KUKT2019-10-17T08:40:00Z40.43-75.3810.05.0240111710.029.379921TRUETRUEVFRSPECI160.02019-10-17 08:52:55/}(u5  3CWZQ 170840Z AUTO 10007G16KT 09/05 RMK AO1 T00940051CWZQ2019-10-17T08:40:00Z46.53-61.059.45.1100716TRUETRUEMETAR17.02019-10-17 08:52:55Q|)5   3KAMN 170840Z AUTO 29011G18KT 10SM CLR 05/02 A2987 RMK AO2 T00490022KAMN2019-10-17T08:40:00Z43.32-84.684.92.2290111810.029.870079TRUETRUEVFRSPECI230.02019-10-17 08:52:55 .aF) 5     3KEDJ 170840Z AUTO 29006KT 10SM FEW021 OVC039 06/ A2991 RMK AO1KEDJ2019-10-17T08:40:00Z40.37-83.826.0290610.029.911417TRUETRUEVFRSPECI342.02019-10-17 08:52:55\)'5    3KDMW 170840Z AUTO 29013G31KT 7SM -RA SCT043 BKN055 BKN080 11/06 A2951 RMK AO2KDMW2019-10-17T08:40:00Z39.6-77.011.06.029013317.029.509842TRUETRUE-RAVFRSPECI241.02019-10-17 08:52:55G)5   3KCGE 170840Z AUTO 24008G13KT 10SM OVC055 11/04 A2958 RMK A01KCGE2019-10-17T08:40:00Z38.53-76.0311.04.024081310.029.58071TRUETRUEVFRSPECI6.02019-10-17 08:52:55L)5    3K24A 170840Z AUTO 32005KT 10SM CLR 04/M01 A2991 RMK AO2 T00451008K24A2019-10-17T08:40:00Z35.32-83.24.5-0.8320510.029.911417TRUETRUEVFRSPECI871.02019-10-17 08:52:55 :c{)k5      3EHGR 170839Z AUTO 21006KT 160V260 8000 BR FEW007 BKN052 14/12 Q1010 BLU 21006KT 9999 SCT045 BECMG SCT020 BKN045EHGR2019-10-17T08:39:00Z51.574.9214.012.021066.2129.822834TRUEBRVFR-0.6SPECI13.02019-10-17 08:52:55J) 5    3KISO 170840Z AUTO 24003KT 10SM CLR 09/04 A2981 RMK AO2 T00850041KISO2019-10-17T08:40:00Z35.32-77.628.54.1240310.029.811024TRUETRUEVFRSPECI29.02019-10-17 08:52:55Q)5   3KW29 170840Z AUTO 26013G18KT 10SM BKN046 OVC055 12/06 A2955 RMK AO2KW292019-10-17T08:40:00Z38.98-76.3312.06.0260131810.029.551182TRUETRUEVFRSPECI15.02019-10-17 08:52:55@(y5    3KMDS 170840Z AUTO 15006KT 10SM CLR 02/02 A2991 RMK AO2KMDS2019-10-17T08:40:00Z44.02-97.082.02.0150610.029.911417TRUETRUEVFRSPECI524.02019-10-17 08:52:55 )aS )5     3KNXF 170837Z AUTO 05005KT 5SM BR OVC010 17/15 A2983 RMK AO2 T01670150KNXF2019-10-17T08:37:00Z33.28-117.4516.715.05055.029.828741TRUETRUEBRMVFRSPECI27.02019-10-17 08:52:55@ (5    3KMZH 170837Z AUTO 00000KT 10SM SCT070 02/01 A2999 RMK AO2KMZH2019-10-17T08:37:00Z46.42-92.82.01.00010.029.991142TRUETRUEVFRSPECI328.02019-10-17 08:52:55B ({5    3KACQ 170839Z AUTO 14003KT 10SM CLR 00/M01 A3004 RMK AO2KACQ2019-10-17T08:39:00Z44.07-93.550.0-1.0140310.030.041338TRUETRUEVFRSPECI343.02019-10-17 08:52:55Q)5     3KNKX 170839Z 25005KT 1 3/4SM HZ OVC002 17/14 A2984 RMK AO2 T01670139KNKX2019-10-17T08:39:00Z32.87-117.1316.713.925051.7529.840551TRUEHZLIFRSPECI146.02019-10-17 08:52:55 -c=(y5    3KTVK 170835Z AUTO 00000KT 10SM CLR 00/00 A3008 RMK AO2KTVK2019-10-17T08:35:00Z40.68-92.90.00.00010.030.079725TRUETRUEVFRSPECI314.02019-10-17 08:52:55?(y5    3KUKF 170835Z AUTO 32006KT 10SM CLR 06/00 A2990 RMK AO2KUKF2019-10-17T08:35:00Z36.22-81.16.00.0320610.029.899607TRUETRUEVFRMETAR396.02019-10-17 08:52:55@(y5    3KY19 170835Z AUTO 15006KT 10SM CLR 02/02 A2981 RMK AO2KY192019-10-17T08:35:00Z46.77-100.92.02.0150610.029.811024TRUETRUEVFRSPECI593.02019-10-17 08:52:55D (}5    3KPNA 170835Z AUTO 30003KT 10SM CLR M02/M07 A3004 RMK AO2KPNA2019-10-17T08:35:00Z42.8-109.8-2.0-7.0300310.030.041338TRUETRUEVFRSPECI2160.02019-10-17 08:52:55M )5    3KI19 170836Z AUTO 31004KT 10SM OVC048 08/02 A2995 RMK AO2 T00760019KI192019-10-17T08:36:00Z39.7-83.987.61.9310410.029.949802TRUETRUEVFRSPECI289.02019-10-17 08:52:55 :lB(}5    3KS25 170835Z AUTO 00000KT 10SM CLR M01/M01 A2976 RMK AO2KS252019-10-17T08:35:00Z47.8-103.25-1.0-1.00010.029.760826TRUETRUEVFRSPECI644.02019-10-17 08:52:55I) 5    3KSCR 170835Z AUTO 22004KT 10SM CLR 07/03 A2983 RMK AO2 T00650026KSCR2019-10-17T08:35:00Z35.7-79.56.52.6220410.029.828741TRUETRUEVFRMETAR188.02019-10-17 08:52:55H) 5    3KSVH 170835Z AUTO 00000KT 10SM CLR 07/02 A2985 RMK AO2 T00700016KSVH2019-10-17T08:35:00Z35.75-80.957.01.60010.029.84941TRUETRUEVFRMETAR294.02019-10-17 08:52:55@(y5    3KTDF 170835Z AUTO 28004KT 10SM CLR 08/01 A2979 RMK AO2KTDF2019-10-17T08:35:00Z36.28-78.988.01.0280410.029.790354TRUETRUEVFRMETAR186.02019-10-17 08:52:55 0hH) 5    3KONX 170835Z AUTO 25008KT 10SM CLR 09/06 A2970 RMK AO2 T00920056KONX2019-10-17T08:35:00Z36.4-76.029.25.6250810.029.698818TRUETRUEVFRMETAR5.02019-10-17 08:52:55H) 5    3KRCZ 170835Z AUTO 00000KT 10SM CLR 09/02 A2985 RMK AO2 T00870022KRCZ2019-10-17T08:35:00Z34.88-79.778.72.20010.029.84941TRUETRUEVFRMETAR109.02019-10-17 08:52:55B({5    3KRUG 170835Z AUTO 12006KT 10SM CLR M00/00 A2982 RMK AO2KRUG2019-10-17T08:35:00Z48.38-100.020.00.0120610.029.819881TRUETRUEVFRSPECI472.02019-10-17 08:52:55J) 5    3KRUQ 170835Z AUTO 26004KT 10SM CLR 06/02 A2985 RMK AO2 T00550020KRUQ2019-10-17T08:35:00Z35.65-80.525.52.0260410.029.84941TRUETRUEVFRMETAR236.02019-10-17 08:52:55 0lU)5   3KHLX 170835Z AUTO 31018G26KT 10SM OVC026 05/00 A2979 RMK AO2 T00530001KHLX2019-10-17T08:35:00Z36.77-80.825.30.1310182610.029.790354TRUETRUEMVFRMETAR834.02019-10-17 08:52:55C(}5    3KHZE 170835Z AUTO 00000KT 10SM CLR M03/M03 A2981 RMK AO2KHZE2019-10-17T08:35:00Z47.28-101.58-3.0-3.00010.029.811024TRUETRUEVFRSPECI553.02019-10-17 08:52:55>(y5    3KMCJ 170835Z AUTO 02008KT 10SM CLR 16/11 A3002 RMK A01KMCJ2019-10-17T08:35:00Z29.72-95.416.011.020810.030.02067TRUETRUEVFRSPECI69.02019-10-17 08:52:55J) 5    3KOCW 170835Z AUTO 24004KT 10SM CLR 09/05 A2978 RMK AO2 T00910045KOCW2019-10-17T08:35:00Z35.57-77.059.14.5240410.029.778543TRUETRUEVFRMETAR12.02019-10-17 08:52:55 !1m! (y5    3KCEY 170835Z AUTO 00000KT 10SM CLR 03/03 A3007 RMK AO1KCEY2019-10-17T08:35:00Z36.67-88.373.03.00010.030.070866TRUETRUEVFRMETAR176.02019-10-17 08:52:55@(y5    3KD55 170835Z AUTO 15012KT 10SM CLR 01/00 A2987 RMK AO2KD552019-10-17T08:35:00Z48.75-98.41.00.01501210.029.870079TRUETRUEVFRSPECI491.02019-10-17 08:52:55>(y5    3KDPL 170835Z AUTO 27003KT 10SM CLR 09/05 A2983 RMK AO2KDPL2019-10-17T08:35:00Z35.0-77.979.05.0270310.029.828741TRUETRUEVFRMETAR42.02019-10-17 08:52:55I) 5    3KEXX 170835Z AUTO 23003KT 10SM CLR 06/02 A2985 RMK AO2 T00630022KEXX2019-10-17T08:35:00Z35.78-80.36.32.2230310.029.84941TRUETRUEVFRMETAR223.02019-10-17 08:52:55 34x3A&(y5    3K28J 170835Z AUTO 32004KT 10SM CLR 18/17 A2989 RMK AO2K28J2019-10-17T08:35:00Z29.65-81.5818.017.0320410.029.890747TRUETRUEVFRSPECI15.02019-10-17 08:52:55>%({5    3K08D 170835Z AUTO 00000KT 10SM CLR M00/00 A2977 RMK AO2K08D2019-10-17T08:35:00Z48.3-102.40.00.00010.029.769686TRUETRUEVFRSPECI684.02019-10-17 08:52:554$(i5    3K0VG 170835Z AUTO 10SM CLR 04/03 A3001 RMK AO2K0VG2019-10-17T08:35:00Z36.65-83.224.03.010.030.008858TRUETRUEVFRMETAR430.02019-10-17 08:52:556#(u5   3KAFP 170835Z AUTO 10SM 07/04 A2986 RMK AO2 T00670040KAFP2019-10-17T08:35:00Z35.02-80.086.74.010.029.861221TRUETRUEMETAR92.02019-10-17 08:52:55F"(5   3KBAC 170835Z AUTO 16010G15KT 10SM CLR 01/01 A2991 RMK AO2KBAC2019-10-17T08:35:00Z46.93-98.021.01.0160101510.029.911417TRUETRUEVFRSPECI427.02019-10-17 08:52:55 01b;*(w5    3KBBG 170835Z AUTO 00000KT 9SM CLR 03/03 A3012 RMK AO2KBBG2019-10-17T08:35:00Z36.53-93.23.03.0009.030.121063TRUETRUEVFRSPECI397.02019-10-17 08:52:55I)) 5    3KCTZ 170835Z AUTO 23003KT 10SM CLR 09/06 A2985 RMK AO2 T00850064KCTZ2019-10-17T08:35:00Z34.98-78.378.56.4230310.029.84941TRUETRUEVFRSPECI45.02019-10-17 08:52:55y()W5     3KCBE 170835Z AUTO 28012G30KT 260V320 7SM -RA SCT027 BKN032 OVC045 08/05 A2968 RMK AO2 P0001 T00810046KCBE2019-10-17T08:35:00Z39.62-78.778.14.628012307.029.681103TRUETRUE-RAVFR0.01METAR236.02019-10-17 08:52:55J') 5    3KLKU 170835Z AUTO 18005KT 10SM CLR 07/03 A2969 RMK AO2 T00670028KLKU2019-10-17T08:35:00Z38.02-77.976.72.8180510.029.68996TRUETRUEVFRSPECI150.02019-10-17 08:52:55 KHKKz.)Q5    3KBAB 170831Z AUTO 15013KT 10SM SCT047 OVC060 15/11 A2982 RMK AO2 DZB15E16RAB16E30DZB30E31 SLP101 $KBAB2019-10-17T08:31:00Z39.12-121.4215.011.01501310.029.8198811010.1TRUETRUETRUEVFRSPECI34.02019-10-17 08:52:55w-)e5    3RJOA 170831Z 04009KT 8000 -RA PRFG FEW000 SCT050 BKN070 15/11 Q1023 RMK 1ST000 3SC050 5AC070 A3021 FG BANK SRJOA2019-10-17T08:31:00Z34.42132.9215.011.04094.9730.206694-RA PRFGMVFRSPECI6.02019-10-17 08:52:55:,(q5    3FAPP 170834Z 24002KT 9999 FEW030 23/07 Q1026 NOSIGFAPP2019-10-17T08:34:00Z-23.8329.4523.07.024026.2130.295275TRUEVFRMETAR1242.02019-10-17 08:52:55r+)C5     3KSKA 170835Z AUTO 20008KT 10SM BR SCT070 08/08 A2967 RMK AO2 VIS 1 1/4 RWY05 RAE35 SLP050 $KSKA2019-10-17T08:35:00Z47.62-117.658.08.0200810.029.669291005.0TRUETRUETRUEBRVFRSPECI750.02019-10-17 08:52:55 *M*G3)5     3VILK 170830Z 12005KT 5000 HZ FEW020 SCT025 31/18 Q1013 NOSIGVILK2019-10-17T08:30:00Z26.7580.8731.018.012053.1129.911417TRUEHZMVFRMETAR128.02019-10-17 08:52:55D2)5    3WADL 170830Z 14011KT 110V180 8000 BKN016 29/22 Q1009 NOSIGWADL2019-10-17T08:30:00Z-8.75116.2829.022.0140114.9729.793306TRUEMVFRMETAR97.02019-10-17 08:52:55G1)5     3KDKR 170830Z AUTO 00000KT 10SM CLR 09/08 A3010 RMK AO2 PWINOKDKR2019-10-17T08:30:00Z31.3-95.49.08.00010.030.100393TRUETRUETRUEVFRSPECI106.02019-10-17 08:52:5590(q5    3WAJJ 170830Z 12004KT 9999 FEW013 30/21 Q1007 NOSIGWAJJ2019-10-17T08:30:00Z-2.58140.5230.021.012046.2129.734253TRUEVFRMETAR88.02019-10-17 08:52:55-/(g5     3LOWZ 170830Z AUTO 06002KT 0900 FG VV002 06/05LOWZ2019-10-17T08:30:00Z47.312.786.05.06020.56TRUEFGLIFR200SPECI754.02019-10-17 08:52:55 &F|&Z8)35    3CWNL 170800Z AUTO 35010G16KT 05/02 RMK AO1 PK WND 34020/0736 SLP079 T00500015 51005CWNL2019-10-17T08:00:00Z45.62-82.975.01.535010161007.9TRUETRUE0.5METAR183.02019-10-17 08:52:56"7(c5   3CZMU 170800Z AUTO 15004KT 05/ RMK AO1 T0052CZMU2019-10-17T08:00:00Z53.57-112.35.21504TRUETRUEMETAR683.02019-10-17 08:52:56H6)5     3VASD 170830Z 10010KT 5000 HZ SCT025 SCT080 29/16 Q1014 NOSIGVASD2019-10-17T08:30:00Z19.6874.3829.016.0100103.1129.940945TRUEHZMVFRMETAR582.02019-10-17 08:52:55D5)5    3WATT 170830Z 34005KT 310V020 9999 FEW018 29/22 Q1010 NOSIGWATT2019-10-17T08:30:00Z-10.17123.6729.022.034056.2129.822834TRUEVFRMETAR102.02019-10-17 08:52:5544(k5    3VAJB 170830Z 17004KT 3000 HZ SCT030 29/19 Q1014VAJB2019-10-17T08:30:00Z23.1880.0529.019.017041.8629.940945HZIFRMETAR494.02019-10-17 08:52:55 % e%:=(y5    3VAAU 170800Z 11004KT 3000 HZ FEW020 SCT025 30/17 Q1014VAAU2019-10-17T08:00:00Z19.8575.430.017.011041.8629.940945HZIFRMETAR579.02019-10-17 08:52:565<(y5    3CWCI 170800Z AUTO 05/03 RMK AO1 SLP135 T00500028 53003CWCI2019-10-17T08:00:00Z47.32-85.825.02.81013.5TRUETRUE0.3METAR187.02019-10-17 08:52:56?;) 5    3CWDA 170800Z AUTO 00009KT 04/03 RMK AO1 SLP173 T00400032 51009CWDA2019-10-17T08:00:00Z50.72-56.124.03.2091017.3TRUETRUE0.9METAR29.02019-10-17 08:52:565:(y5    3CWEF 170800Z AUTO 10/08 RMK AO1 SLP159 T00970075 56017CWEF2019-10-17T08:00:00Z47.22-60.129.77.51015.9TRUETRUE-1.7METAR26.02019-10-17 08:52:56Z9)35    3CWMZ 170800Z AUTO 36034G39KT 07/04 RMK AO1 PK WND 01039/0756 SLP003 T00660041 51016CWMZ2019-10-17T08:00:00Z45.02-80.376.64.136034391000.3TRUETRUE1.6METAR191.02019-10-17 08:52:56 CLCFB)5     3LBPD 170900Z AUTO 31005KT 280V350 9999 NCD 19/07 Q1019 NOSIGLBPD2019-10-17T09:00:00Z42.1324.819.07.031056.2130.088583TRUETRUEVFRMETAR185.02019-10-17 09:04:03GA)5     3KHAF 170900Z AUTO 00000KT 1SM BR OVC004 13/13 A2992 RMK AO2KHAF2019-10-17T09:00:00Z37.52-122.513.013.0001.029.920275TRUETRUEBRLIFRMETAR21.02019-10-17 09:04:033@(s5   3KEFD 170750Z 02006KT 10SM FEW120 BKN250 17/11 A3002KEFD2019-10-17T07:50:00Z29.6-95.1717.011.020610.030.02067VFRMETAR10.02019-10-17 08:52:561?(e5    3HETR 170800Z 31017KT 4000 SA NSC 28/22 Q1014HETR2019-10-17T08:00:00Z28.2233.6528.022.0310172.4929.940945SAIFRMETAR35.02019-10-17 08:52:56.>(e5   3HEIS 170800Z 26004KT 6000 SCT025 26/18 Q1017HEIS2019-10-17T08:00:00Z30.5832.2526.018.026043.7330.029528MVFRMETAR3.02019-10-17 08:52:56 2E29G(5   3LDZA 170900Z VRB01KT 9999 OVC009 14/13 Q1020 BECMG SCT010LDZA2019-10-17T09:00:00Z45.7216.0714.013.0016.2130.11811IFRMETAR107.02019-10-17 09:04:03=F)5   3LDZD 170900Z 33003KT 250V020 CAVOK 20/12 Q1020 BECMG 31007KTLDZD2019-10-17T09:00:00Z44.115.3720.012.033036.2130.11811VFRMETAR84.02019-10-17 09:04:03UE)15    3LZIB 170900Z 05006KT 4500 2200E BR FEW002 BKN003 10/09 Q1020 BECMG 5000 NSW BKN005LZIB2019-10-17T09:00:00Z48.1717.2210.09.05062.830.11811BRLIFRMETAR134.02019-10-17 09:04:030D(e5    3LZKZ 170900Z VRB02KT CAVOK 16/10 Q1020 NOSIGLZKZ2019-10-17T09:00:00Z48.6721.2316.010.0026.2130.11811TRUEVFRMETAR232.02019-10-17 09:04:035C(q5    3LZTT 170900Z VRB03KT 9999 FEW003 12/08 Q1020 NOSIGLZTT2019-10-17T09:00:00Z49.0720.2512.08.0036.2130.11811TRUEVFRMETAR707.02019-10-17 09:04:03 dCd0L(e5   3LBWB 170900Z 18004KT 9999 BKN013 18/13 Q1019LBWB2019-10-17T09:00:00Z43.4228.1818.013.018046.2130.088583MVFRMETAR201.02019-10-17 09:04:038K(s5   3SASA 170900Z 36002KT 9999 SCT015 OVC100 11/09 Q1017SASA2019-10-17T09:00:00Z-24.85-65.4711.09.036026.2130.029528VFRMETAR1216.02019-10-17 09:04:03/J(c5    3TFFR 170900Z AUTO 00000KT CAVOK 24/23 Q1012TFFR2019-10-17T09:00:00Z16.27-61.5324.023.0006.2129.88189TRUEVFRMETAR11.02019-10-17 09:04:030I(e5    3LHBP 170900Z VRB01KT CAVOK 17/11 Q1020 NOSIGLHBP2019-10-17T09:00:00Z47.4219.2717.011.0016.2130.11811TRUEVFRMETAR185.02019-10-17 09:04:037H(s5   3SADF 170900Z 05012KT 9999 BKN012 OVC100 15/13 Q1015SADF2019-10-17T09:00:00Z-34.45-58.5815.013.050126.2129.970472MVFRMETAR4.02019-10-17 09:04:03 VI"VFQ) 5     3SOCA 170900Z AUTO 00000KT 9999 SCT002 BKN250 24/24 Q1011 NOSIGSOCA2019-10-17T09:00:00Z4.82-52.3724.024.0006.2129.852362TRUETRUEVFRMETAR9.02019-10-17 09:04:037P(s5   3SARF 170900Z 23003KT 9999 FEW020 OVC100 18/17 Q1014SARF2019-10-17T09:00:00Z-26.22-58.2218.017.023036.2129.940945VFRMETAR60.02019-10-17 09:04:03.O(e5   3LBPG 170900Z 27002KT 9999 FEW200 19/10 Q1019LBPG2019-10-17T09:00:00Z42.2824.7219.010.027026.2130.088583VFRMETAR58.02019-10-17 09:04:030N(k5    3LBIA 170900Z 00000KT 4500 BR OVC006 15/14 Q1020LBIA2019-10-17T09:00:00Z42.4526.3515.014.0002.830.11811BRIFRMETAR155.02019-10-17 09:04:031M(k5    3LBPL 170900Z 00000KT 8000 HZ FEW200 18/11 Q1020LBPL2019-10-17T09:00:00Z43.4524.518.011.0004.9730.11811HZMVFRMETAR101.02019-10-17 09:04:03 jI%j5V(k5    3SLRI 170900Z 00000KT 0500 FG BKN004 22/22 Q1013SLRI2019-10-17T09:00:00Z-11.02-66.0822.022.0000.3129.911417FGLIFRMETAR135.02019-10-17 09:04:037U(s5   3SLTJ 170900Z 00000KT 9999 FEW025 BKN200 16/11 Q1017SLTJ2019-10-17T09:00:00Z-21.55-64.7216.011.0006.2130.029528VFRMETAR1858.02019-10-17 09:04:03,T(e5   3FIMR 170900Z 11017KT 9999 BKN017 26/20 Q1016FIMR2019-10-17T09:00:00Z-19.7563.3726.020.0110176.2130.0MVFRMETAR31.02019-10-17 09:04:03/S(e5   3HAAB 170900Z 09010KT 9999 FEW025 21/10 Q1026HAAB2019-10-17T09:00:00Z8.9738.7821.010.090106.2130.295275VFRMETAR2355.02019-10-17 09:04:031R(k5    3GQPP 170900Z 02016KT 6000 NSC 24/19 Q1016 NOSIGGQPP2019-10-17T09:00:00Z20.92-17.0224.019.020163.7330.0TRUEMVFRMETAR3.02019-10-17 09:04:03 ;=;E[)5    3FMMI 170900Z 11012KT 090V160 9999 BKN020 22/13 Q1022 NOSIGFMMI2019-10-17T09:00:00Z-18.847.4722.013.0110126.2130.177166TRUEMVFRMETAR1276.02019-10-17 09:04:03CZ)5    3UBEE 170900Z VRB02KT 8000 OVC030 12/15 Q1023 R30/CLRD// NOSIGUBEE2019-10-17T09:00:00Z40.6347.1512.015.0024.9730.206694TRUEMVFRMETAR15.02019-10-17 09:04:038Y(q5    3VHHH 170900Z 23009KT 9999 FEW035 28/18 Q1015 NOSIGVHHH2019-10-17T09:00:00Z22.32113.9228.018.023096.2129.970472TRUEVFRMETAR9.02019-10-17 09:04:03*X(Y5   3SARI 170900Z 05005KT CAVOK 22/18 Q1013SARI2019-10-17T09:00:00Z-25.72-54.4722.018.05056.2129.911417VFRMETAR270.02019-10-17 09:04:03=W(o5     3NWWW 170900Z AUTO 14006KT CAVOK 20/13 Q1018 NOSIGNWWW2019-10-17T09:00:00Z-22.02166.2220.013.014066.2130.059055TRUETRUEVFRMETAR16.02019-10-17 09:04:03 3gR_)#5    3WSSS 170900Z 17005KT 130V230 9999 FEW018 FEW020TCU BKN270 29/23 Q1007 NOSIGWSSS2019-10-17T09:00:00Z1.37103.9729.023.017056.2129.734253TRUEVFRMETAR16.02019-10-17 09:04:03B^)5    3WSAP 170900Z 14002KT 9999 VCSH FEW018TCU SCT180 30/25 Q1007WSAP2019-10-17T09:00:00Z1.37103.9230.025.014026.2129.734253VCSHVFRMETAR32.02019-10-17 09:04:03F])5     3TBPB 170900Z 06005KT 9999 VCSH BKN018TCU 26/23 Q1011 NOSIGTBPB2019-10-17T09:00:00Z13.07-59.4826.023.06056.2129.852362TRUEVCSHMVFRMETAR52.02019-10-17 09:04:03G\)5    3FMCZ 170900Z AUTO 17006KT 130V210 CAVOK 31/25 Q1013 BECMG 04010KTFMCZ2019-10-17T09:00:00Z-12.845.2731.025.017066.2129.911417TRUEVFRMETAR7.02019-10-17 09:04:03 IuLc)5    3RPLB 170900Z 33008KT 290V360 9999 BKN020 30/24 Q1010 NOSIG RMK A2983RPLB2019-10-17T09:00:00Z14.8120.2730.024.033086.2129.822834TRUEMVFRMETAR17.02019-10-17 09:04:03Cb)5    3RPLI 170900Z 02014KT 9999 FEW018 29/25 Q1009 NOSIG RMK A2980RPLI2019-10-17T09:00:00Z18.17120.5229.025.020146.2129.793306TRUEVFRMETAR5.02019-10-17 09:04:03Na)%5   3RPMZ 170900Z 10006KT 070V130 9999 FEW017 SCT090 BKN300 29/24 Q1009 RMK A2980RPMZ2019-10-17T09:00:00Z6.92122.0729.024.010066.2129.793306VFRMETAR6.02019-10-17 09:04:031`(e5   3SARC 170900Z 14001KT 9999 OVC024 17/16 Q1014SARC2019-10-17T09:00:00Z-27.43-58.7717.016.014016.2129.940945MVFRMETAR62.02019-10-17 09:04:03 )c8g(q5    3WIII 170900Z 02010KT 9999 FEW020 31/23 Q1006 NOSIGWIII2019-10-17T09:00:00Z-6.13106.6731.023.020106.2129.704725TRUEVFRMETAR8.02019-10-17 09:04:03Rf)#5    3RPLL 170900Z 32004KT 270V060 9999 FEW025 SCT100 32/23 Q1009 NOSIG RMK A2980RPLL2019-10-17T09:00:00Z14.52121.032.023.032046.2129.793306TRUEVFRMETAR21.02019-10-17 09:04:03@e)5   3RPVM 170900Z 05005KT 9999 FEW020 OVC100 28/22 Q1010 RMK A2983RPVM2019-10-17T09:00:00Z10.32123.9828.022.05056.2129.822834VFRMETAR10.02019-10-17 09:04:03Qd))5   3RPMD 170900Z 19008KT 9999 SCT015CB 29/25 Q1009 RMK A2980 CB NE, SW, WNW-W, NNWRPMD2019-10-17T09:00:00Z7.12125.6529.025.019086.2129.793306VFRMETAR18.02019-10-17 09:04:03 -\7k(q5   3KCVH 170900Z AUTO 00000KT 10SM 11/08 A2992 RMK A01KCVH2019-10-17T09:00:00Z36.9-121.4211.08.00010.029.920275TRUETRUEMETAR70.02019-10-17 09:04:03Oj)5    3KD95 170900Z AUTO 31008KT 10SM OVC029 06/03 A2980 RMK AO2 T00620026KD952019-10-17T09:00:00Z43.07-83.276.22.6310810.029.799213TRUETRUEMVFRMETAR255.02019-10-17 09:04:03Ki) 5    3KSBD 170900Z AUTO 00000KT 10SM CLR 18/04 A2982 RMK AO2 T01760042KSBD2019-10-17T09:00:00Z34.08-117.2517.64.20010.029.819881TRUETRUEVFRMETAR353.02019-10-17 09:04:03Mh) 5    3KUKT 170900Z AUTO 25010KT 10SM FEW038 FEW070 10/05 A2938 RMK A01KUKT2019-10-17T09:00:00Z40.43-75.3810.05.02501010.029.379921TRUETRUEVFRMETAR160.02019-10-17 09:04:03 S,iS,p(e5   3SCAR 170900Z 26002KT 9999 OVC025 17/13 Q1016SCAR2019-10-17T09:00:00Z-18.35-70.3217.013.026026.2130.0MVFRMETAR59.02019-10-17 09:04:03,o(e5   3SCDA 170900Z 22009KT 9999 OVC027 16/13 Q1016SCDA2019-10-17T09:00:00Z-20.52-70.1716.013.022096.2130.0MVFRMETAR52.02019-10-17 09:04:03,n([5   3SCCF 170900Z 11014KT CAVOK 06/M10 Q1027SCCF2019-10-17T09:00:00Z-22.5-68.96.0-10.0110146.2130.324802VFRMETAR2312.02019-10-17 09:04:03=m(q5    3SCFA 170900Z 20011KT 9999 BKN026 14/11 Q1018 NOSIGSCFA2019-10-17T09:00:00Z-23.42-70.4214.011.0200116.2130.059055TRUEMVFRMETAR120.02019-10-17 09:04:03Nl)5    3KACB 170900Z AUTO 33004KT 10SM OVC027 08/04 A2989 RMK AO2 T00800038KACB2019-10-17T09:00:00Z44.98-85.28.03.8330410.029.890747TRUETRUEMVFRMETAR190.02019-10-17 09:04:03 R3vR+u(e5   3SBEG 170900Z 00000KT 9999 FEW007 22/22 Q1012SBEG2019-10-17T09:00:00Z-3.02-60.0322.022.0006.2129.88189VFRMETAR2.02019-10-17 09:04:03At(5    3GVAC 170900Z 09010KT 9999 SCT012 BKN016 27/26 Q1015 NOSIGGVAC2019-10-17T09:00:00Z16.72-22.9327.026.090106.2129.970472TRUEMVFRMETAR55.02019-10-17 09:04:03&s(Y5   3LEJR 170900Z VRB01KT CAVOK 16/11 Q1021LEJR2019-10-17T09:00:00Z36.75-6.0716.011.0016.2130.147638VFRMETAR30.02019-10-17 09:04:037r(o5    3SCAT 170900Z AUTO 04005KT 9999 // NCD 10/07 Q1020SCAT2019-10-17T09:00:00Z-27.27-70.7710.07.04056.2130.11811TRUEVFRMETAR204.02019-10-17 09:04:03Gq)5     3VERC 170900Z 18003KT 5000 HZ FEW020 SCT025 29/19 Q1015 NOSIGVERC2019-10-17T09:00:00Z23.3285.3229.019.018033.1129.970472TRUEHZMVFRMETAR652.02019-10-17 09:04:03 i:i,z(Y5   3SBBR 170900Z 28003KT CAVOK 18/12 Q1019SBBR2019-10-17T09:00:00Z-15.87-47.9218.012.028036.2130.088583VFRMETAR1061.02019-10-17 09:04:03.y(e5   3SBMQ 170900Z 33003KT 9999 BKN017 26/26 Q1012SBMQ2019-10-17T09:00:00Z0.05-51.0726.026.033036.2129.88189MVFRMETAR15.02019-10-17 09:04:030x(e5    3LWSK 170900Z 00000KT CAVOK 19/10 Q1020 NOSIGLWSK2019-10-17T09:00:00Z41.9721.6319.010.0006.2130.11811TRUEVFRMETAR239.02019-10-17 09:04:03/w(e5    3LEMO 170900Z VRB02KT CAVOK 17/07 Q1021 NOSIGLEMO2019-10-17T09:00:00Z37.17-5.6217.07.0026.2130.147638TRUEVFRMETAR88.02019-10-17 09:04:03@v(5    3SCEL 170900Z 14005KT 9999 SCT020 BKN040 10/06 Q1020 NOSIGSCEL2019-10-17T09:00:00Z-33.37-70.7710.06.014056.2130.11811TRUEVFRMETAR476.02019-10-17 09:04:03 _:~$_?)5   3SCCH 170900Z AUTO 20003KT //// R/////// ///////// 10/08 Q1022SCCH2019-10-17T09:00:00Z-36.57-72.0210.08.0200330.177166TRUEMETAR148.02019-10-17 09:04:03(~(Y5   3SCIE 170900Z 15004KT CAVOK 06/05 Q1022SCIE2019-10-17T09:00:00Z-36.77-73.076.05.015046.2130.177166VFRMETAR16.02019-10-17 09:04:03&}(Y5   3SCQP 170900Z 00000KT CAVOK 08/07 Q1022SCQP2019-10-17T09:00:00Z-38.92-72.658.07.0006.2130.177166VFRMETAR97.02019-10-17 09:04:036|(q5    3SCTE 170900Z VRB01KT 9999 BKN051 07/06 Q1022 NOSIGSCTE2019-10-17T09:00:00Z-41.42-73.077.06.0016.2130.177166TRUEVFRMETAR86.02019-10-17 09:04:03@{({5     3SCPQ 170900Z AUTO 01007KT 9999 -SHRA OVC034 07/06 Q1021SCPQ2019-10-17T09:00:00Z-42.33-73.727.06.01076.2130.147638TRUE-SHRAVFRMETAR5.02019-10-17 09:04:03 WAW:(m5     3FLKK 170900Z 09012KT 9000 HZ SKC 25/04 Q1023 NSGFLKK2019-10-17T09:00:00Z-15.3228.4525.04.090125.5930.206694TRUEHZVFRMETAR1154.02019-10-17 09:04:03/(e5   3FQTT 170900Z 15008KT 9999 SCT020 30/15 Q1019FQTT2019-10-17T09:00:00Z-16.133.6230.015.015086.2130.088583VFRMETAR160.02019-10-17 09:04:03;(q5    3SCIP 170900Z 10007KT 9999 FEW025 15/12 Q1027 NOSIGSCIP2019-10-17T09:00:00Z-27.17-109.4315.012.010076.2130.324802TRUEVFRMETAR69.02019-10-17 09:04:03.(e5   3SCSE 170900Z 18003KT 9999 FEW030 09/06 Q1019SCSE2019-10-17T09:00:00Z-29.92-71.29.06.018036.2130.088583VFRMETAR146.02019-10-17 09:04:039(o5    3SCIC 170900Z AUTO 20007KT 9999 OVC040 11/06 Q1021SCIC2019-10-17T09:00:00Z-34.97-71.2211.06.020076.2130.147638TRUEVFRMETAR242.02019-10-17 09:04:03 ]@]% (Y5   3LDOS 170900Z VRB03KT CAVOK 19/13 Q1020LDOS2019-10-17T09:00:00Z45.4718.8219.013.0036.2130.11811VFRMETAR89.02019-10-17 09:04:03@)5    3LDPL 170900Z 16003KT 080V250 9999 FEW012 20/13 Q1020 NOSIGLDPL2019-10-17T09:00:00Z44.8813.9220.013.016036.2130.11811TRUEVFRMETAR63.02019-10-17 09:04:03+(e5   3LDRI 170900Z VRB02KT 9999 FEW050 19/12 Q1020LDRI2019-10-17T09:00:00Z45.2214.5719.012.0026.2130.11811VFRMETAR85.02019-10-17 09:04:03;)5   3LDSP 170900Z VRB02KT CAVOK 22/14 Q1019 BECMG FM1000 23008KTLDSP2019-10-17T09:00:00Z43.5216.322.014.0026.2130.088583VFRMETAR21.02019-10-17 09:04:03:)5   3NFTF 170900Z VRB01KT 9999 FEW009 BKN016 BKN110 24/23 Q1016NFTF2019-10-17T09:00:00Z-21.23-175.1524.023.0016.2130.0MVFRMETAR38.02019-10-17 09:04:03 _A_.(e5   3MDSD 170900Z 05004KT 9999 FEW016 23/23 Q1013MDSD2019-10-17T09:00:00Z18.42-69.6723.023.05046.2129.911417VFRMETAR18.02019-10-17 09:04:03* (e5   3SBAR 170900Z 14008KT 9999 SCT019 27/20 Q1016SBAR2019-10-17T09:00:00Z-10.97-37.0727.020.014086.2130.0VFRMETAR9.02019-10-17 09:04:037 (q5     3OPSK 170900Z 00000KT 4000 HZ NSC 35/20 Q1011 NOSIGOPSK2019-10-17T09:00:00Z27.7268.835.020.0002.4929.852362TRUEHZIFRMETAR58.02019-10-17 09:04:03; (u5     3LBGO 170900Z AUTO VRB01KT 9999 NCD 18/10 Q1020 NOSIGLBGO2019-10-17T09:00:00Z43.1525.7218.010.0016.2130.11811TRUETRUEVFRMETAR86.02019-10-17 09:04:039 (q5    3LDDU 170900Z 17006KT 9999 FEW030 22/15 Q1019 NOSIGLDDU2019-10-17T09:00:00Z42.5718.2722.015.017066.2130.088583TRUEVFRMETAR165.02019-10-17 09:04:03 OCO&(Y5   3SBRP 170900Z 11006KT CAVOK 21/17 Q1016SBRP2019-10-17T09:00:00Z-21.12-47.7721.017.011066.2130.0VFRMETAR549.02019-10-17 09:04:03V)+5    3UBBL 170900Z 13009KT 9999 SCT025 SCT100 23/16 Q1023 R33/CLRD// NOSIG RMK MT OP UBBL2019-10-17T09:00:00Z38.7548.8223.016.013096.2130.206694TRUEVFRMETAR10.02019-10-17 09:04:03+(e5   3MDPP 170900Z 00000KT 9999 FEW018 23/22 Q1012MDPP2019-10-17T09:00:00Z19.75-70.5723.022.0006.2129.88189VFRMETAR5.02019-10-17 09:04:035(q5    3MDST 170900Z 00000KT 9999 SCT016 24/24 Q1012 NOSIGMDST2019-10-17T09:00:00Z19.4-70.624.024.0006.2129.88189TRUEVFRMETAR184.02019-10-17 09:04:037(q5    3MDPC 170900Z 00000KT 9999 FEW018 25/23 Q1013 NOSIGMDPC2019-10-17T09:00:00Z18.57-68.3725.023.0006.2129.911417TRUEVFRMETAR12.02019-10-17 09:04:03 CKC;({5   3SPHI 170900Z 18010KT CAVOK 17/15 Q1014 RMK OVC120 PP000SPHI2019-10-17T09:00:00Z-6.77-79.8217.015.0180106.2129.940945VFRMETAR34.02019-10-17 09:04:030(e5   3SBFZ 170900Z 15008KT 9999 BKN023 25/20 Q1014SBFZ2019-10-17T09:00:00Z-3.77-38.5225.020.015086.2129.940945MVFRMETAR25.02019-10-17 09:04:03O)5     3SCON 170900Z AUTO 35009KT 9999 -SHRA FEW019/// OVC022/// 09/08 Q1020SCON2019-10-17T09:00:00Z-43.12-73.629.08.035096.2130.11811TRUE-SHRAMVFRMETAR3.02019-10-17 09:04:036(s5   3SBGL 170900Z 25002KT 9999 FEW020 BKN100 22/20 Q1017SBGL2019-10-17T09:00:00Z-22.82-43.2522.020.025026.2130.029528VFRMETAR6.02019-10-17 09:04:03/(e5   3SBSN 170900Z 20004KT 9999 SCT015 24/23 Q1011SBSN2019-10-17T09:00:00Z-2.42-54.7824.023.020046.2129.852362VFRMETAR72.02019-10-17 09:04:03 _A)_D) 5    3LRBO 170900Z 14004KT 2500 BR BKN002 OVC004 12/12 Q1020 AMB YLOLRBO2019-10-17T09:00:00Z45.2226.9712.012.014041.5530.11811BRLIFRMETAR103.02019-10-17 09:04:030(e5   3SBCT 170900Z 06004KT 7000 OVC007 17/15 Q1021SBCT2019-10-17T09:00:00Z-25.52-49.1717.015.06044.3530.147638IFRMETAR908.02019-10-17 09:04:03*(Y5   3SBCY 170900Z 15004KT CAVOK 26/20 Q1012SBCY2019-10-17T09:00:00Z-15.65-56.1226.020.015046.2129.88189VFRMETAR182.02019-10-17 09:04:03,(e5   3FQCH 170900Z /////KT 9999 FEW020 24/13 Q1024FQCH2019-10-17T09:00:00Z-19.1533.4324.013.06.2130.236221VFRMETAR732.02019-10-17 09:04:039(q5    3GVNP 170900Z 11004KT 9999 SCT014 28/25 Q1014 NOSIGGVNP2019-10-17T09:00:00Z14.95-23.4828.025.011046.2129.940945TRUEVFRMETAR70.02019-10-17 09:04:03 $$g$7"(s5   3SELT 170900Z 14003KT 9999 SCT010 BKN030 09/08 Q1030SELT2019-10-17T09:00:00Z-0.92-78.629.08.014036.2130.413385MVFRMETAR2785.02019-10-17 09:04:03I!)5    3SEGU 170900Z 22007KT 9999 SCT013 SCT040 23/20 Q1012 NOSIG RMK A2990SEGU2019-10-17T09:00:00Z-2.13-79.8723.020.022076.2129.88189TRUEVFRMETAR9.02019-10-17 09:04:031 (o5   3SECU 170900Z AUTO VRB02KT ////NDV NCD 10/10 Q1026SECU2019-10-17T09:00:00Z-2.87-78.9710.010.00230.295275TRUEMETAR2531.02019-10-17 09:04:037(q5    3SYCJ 170900Z 19004KT 9000 SCT018 22/22 Q1008 NOSIGSYCJ2019-10-17T09:00:00Z6.5-58.2522.022.019045.5929.763779TRUEVFRMETAR30.02019-10-17 09:04:03V)+5    3UBBN 170900Z 23006KT 9999 SCT100 21/00 Q1022 R14R/CLRD// NOSIG RMK MT OP QFE691UBBN2019-10-17T09:00:00Z39.1845.4521.00.023066.2130.177166TRUEVFRMETAR873.02019-10-17 09:04:03 @n@'(5    3SPSO 170900Z 12003KT 5000 FU BKN010 16/14 Q1014 RMK PP000SPSO2019-10-17T09:00:00Z-13.73-76.2216.014.012033.1129.940945FUMVFRMETAR10.02019-10-17 09:04:03<&(y5   3SPTN 170900Z 26003KT 9999 OVC022 14/12 Q1017 RMK PP000SPTN2019-10-17T09:00:00Z-18.07-70.2814.012.026036.2130.029528MVFRMETAR458.02019-10-17 09:04:03F%)5   3SPZO 170900Z 00000KT 9999 FEW020 SCT030 BKN080 08/05 Q1032 RMK PP000SPZO2019-10-17T09:00:00Z-13.55-71.978.05.0006.2130.47244VFRMETAR3249.02019-10-17 09:04:03L$)5    3SEQM 170900Z 15001KT 9999 FEW020 BKN100 10/09 Q1027 NOSIG RMK A3032SEQM2019-10-17T09:00:00Z-0.12-78.3510.09.015016.2130.324802TRUEVFRMETAR2400.02019-10-17 09:04:03:#(y5   3SEMT 170900Z 20005KT 9999 OVC013 22/20 Q1013 RMK A2993SEMT2019-10-17T09:00:00Z-0.95-80.6722.020.020056.2129.911417MVFRMETAR14.02019-10-17 09:04:03 :=:7,(u5   3LRTZ 170900Z 12008KT 9999 BKN020 17/11 Q1019 WHT WHTLRTZ2019-10-17T09:00:00Z43.9828.6217.011.012086.2130.088583MVFRMETAR49.02019-10-17 09:04:034+(u5   3LRCT 170900Z 08003KT 9000 FEW200 16/09 Q1021 BLU BLULRCT2019-10-17T09:00:00Z46.523.8816.09.08035.5930.147638VFRMETAR331.02019-10-17 09:04:03J*) 5     3SPQT 170900Z VRB01KT 0500 FG VV003 22/22 Q1012 NOSIG RMK PP000SPQT2019-10-17T09:00:00Z-3.78-73.3222.022.0010.3129.88189TRUEFGLIFR300METAR126.02019-10-17 09:04:036)(o5   3SPQU 170900Z 04004KT CAVOK 11/M02 Q1026 RMK PP000SPQU2019-10-17T09:00:00Z-16.33-71.5711.0-2.04046.2130.295275VFRMETAR2554.02019-10-17 09:04:03=((5   3SPRU 170900Z 14006KT 7000 OVC015 17/15 Q1014 RMK BR PP000SPRU2019-10-17T09:00:00Z-8.08-79.1217.015.014064.3529.940945MVFRMETAR30.02019-10-17 09:04:03 kR%k41(q5    3ORNI 170900Z 00000KT 9999 FEW040 35/06 Q1017 NOSIGORNI2019-10-17T09:00:00Z31.9844.435.06.0006.2130.029528TRUEVFRMETAR53.02019-10-17 09:04:0370(m5    3ORER 170900Z 01007KT 8000 NSC 31/M02 Q1021 NOSIGORER2019-10-17T09:00:00Z36.2343.9731.0-2.01074.9730.147638TRUEMVFRMETAR409.02019-10-17 09:04:03-/(e5   3SBTE 170900Z 03004KT 9999 FEW025 26/22 Q1012SBTE2019-10-17T09:00:00Z-5.03-42.8226.022.03046.2129.88189VFRMETAR69.02019-10-17 09:04:037.(k5    3GOBD 170900Z 34011KT 8000 NSC 28/25 Q1012 NOSIGGOBD2019-10-17T09:00:00Z14.67-17.0728.025.0340114.9729.88189TRUEMVFRMETAR88.02019-10-17 09:04:03(-(Y5   3SBBV 170900Z 33003KT CAVOK 24/22 Q1013SBBV2019-10-17T09:00:00Z2.85-60.724.022.033036.2129.911417VFRMETAR140.02019-10-17 09:04:03 J W(6(o5    3NCMR 170900Z AUTO 06008KT //// ////// ///// Q1015NCMR2019-10-17T09:00:00Z-19.85-157.760829.970472TRUEMETAR8.02019-10-17 09:04:03/5(o5   3NCPY 170900Z AUTO 09006KT //// ////// 29/23 Q1012NCPY2019-10-17T09:00:00Z-9.02-158.0729.023.090629.88189TRUEMETAR2.02019-10-17 09:04:0314(o5   3NCRK 170900Z AUTO 10003KT //// ////// 28/24 Q1012NCRK2019-10-17T09:00:00Z-10.05-161.0828.024.0100329.88189TRUEMETAR5.02019-10-17 09:04:033(75  3NCPK 170900Z AUTO NILNCPK2019-10-17T09:00:00Z-10.88-165.82TRUEMETAR3.02019-10-17 09:04:0302(e5    3ORMM 170900Z 30008KT CAVOK 37/05 Q1015 NOSIGORMM2019-10-17T09:00:00Z30.5747.6737.05.030086.2129.970472TRUEVFRMETAR2.02019-10-17 09:04:03 H+;(75  3NCAI 170900Z AUTO NILNCAI2019-10-17T09:00:00Z-18.82-159.77TRUEMETAR6.02019-10-17 09:04:03*:(o5    3NCAT 170900Z AUTO 08004KT //// ////// ///// Q1010NCAT2019-10-17T09:00:00Z-19.97-158.1280429.822834TRUEMETAR11.02019-10-17 09:04:0319(o5   3NCMG 170900Z AUTO 09005KT //// ////// 22/19 Q1012NCMG2019-10-17T09:00:00Z-21.92-157.9522.019.090529.88189TRUEMETAR41.02019-10-17 09:04:0308(o5   3NCMH 170900Z AUTO 20004KT //// ////// 28/24 Q1012NCMH2019-10-17T09:00:00Z-10.38-161.028.024.0200429.88189TRUEMETAR0.02019-10-17 09:04:0327(o5   3NCMK 170900Z AUTO 10006KT //// ////// 24/20 Q1014NCMK2019-10-17T09:00:00Z-20.15-157.3824.020.0100629.940945TRUEMETAR9.02019-10-17 09:04:03 ]G]4@(m5    3ORTL 170900Z VRB05KT 5000 HZ SCT200 36/M02 A3001ORTL2019-10-17T09:00:00Z30.6743.5336.0-2.0053.1130.008858HZMVFRMETAR138.02019-10-17 09:04:03=?({5     3SKBO 170900Z VRB02KT 9999 MIFG FEW020 05/04 A3033 NOSIGSKBO2019-10-17T09:00:00Z4.7-74.125.04.0026.2130.33071TRUEMIFGVFRMETAR2548.02019-10-17 09:04:03;>(w5     3SKCL 170900Z 00000KT 4000 BR BKN033 19/19 A3002 NOSIGSKCL2019-10-17T09:00:00Z3.53-76.3719.019.0002.4930.02067TRUEBRIFRMETAR969.02019-10-17 09:04:03&=(Y5   3SKCG 170900Z 00000KT CAVOK 26/25 A2982SKCG2019-10-17T09:00:00Z10.43-75.5226.025.0006.2129.819881VFRMETAR1.02019-10-17 09:04:033<(s5   3SKLT 170900Z 00000KT 9999 FEW012 BKN080 23/23 A2988SKLT2019-10-17T09:00:00Z-4.2-69.9323.023.0006.2129.878937VFRMETAR84.02019-10-17 09:04:03 `K`+E(Y5   3SBLO 170900Z 15004KT CAVOK 20/17 Q1017SBLO2019-10-17T09:00:00Z-23.32-51.1220.017.015046.2130.029528VFRMETAR570.02019-10-17 09:04:03?D(5    3GVSV 170900Z 06004KT 9999 FEW016 BKN200 27/23 Q1015 NOSIGGVSV2019-10-17T09:00:00Z16.83-25.0727.023.06046.2129.970472TRUEVFRMETAR20.02019-10-17 09:04:03/C(e5   3SBJP 170900Z 22006KT 9999 FEW020 22/22 Q1015SBJP2019-10-17T09:00:00Z-7.15-34.9522.022.022066.2129.970472VFRMETAR66.02019-10-17 09:04:03:B(s5   3SGAS 170900Z 18014KT 9999 BKN004 OVC007 18/16 Q1014SGAS2019-10-17T09:00:00Z-25.25-57.5218.016.0180146.2129.940945LIFRMETAR101.02019-10-17 09:04:03/A(_5   3SGES 170900Z 15005KT 8000 NSC 23/19 Q1013SGES2019-10-17T09:00:00Z-25.45-54.8523.019.015054.9729.911417MVFRMETAR849.02019-10-17 09:04:03 iI*i;J(q5    3WADL 170900Z 14011KT 8000 BKN016 29/22 Q1009 NOSIGWADL2019-10-17T09:00:00Z-8.75116.2829.022.0140114.9729.793306TRUEMVFRMETAR97.02019-10-17 09:04:034I(s5   3AGGH 170900Z 14003KT 9999 FEW017 SCT300 25/20 Q1012AGGH2019-10-17T09:00:00Z-9.42160.0525.020.014036.2129.88189VFRMETAR9.02019-10-17 09:04:03*H(e5   3NGTA 170900Z VRB02KT 9999 FEW018 28/24 Q1012NGTA2019-10-17T09:00:00Z1.37173.1328.024.0026.2129.88189VFRMETAR2.02019-10-17 09:04:03/G(e5   3SBVT 170900Z 33003KT 9999 FEW025 19/18 Q1019SBVT2019-10-17T09:00:00Z-20.27-40.2719.018.033036.2130.088583VFRMETAR4.02019-10-17 09:04:031F(e5   3SBKP 170900Z 12012KT 9999 FEW015 20/16 Q1018SBKP2019-10-17T09:00:00Z-23.0-47.1220.016.0120126.2130.059055VFRMETAR661.02019-10-17 09:04:03 ]N]7O(m5    3SBRF 170900Z 23004KT 9999 -RA BKN018 23/21 Q1015SBRF2019-10-17T09:00:00Z-8.13-34.9223.021.023046.2129.970472-RAMVFRMETAR19.02019-10-17 09:04:031N(m5    3ORQW 170900Z 04010KT5 7000 HZ SCT090 33/05 A3005ORQW2019-10-17T09:00:00Z35.7743.3333.05.04.3530.050198HZMVFRMETAR228.02019-10-17 09:04:032M(k5    3ORSH 170900Z 00000KT 6000 HZ FEW120 34/03 A2990ORSH2019-10-17T09:00:00Z34.6743.5334.03.0003.7329.899607HZMVFRMETAR188.02019-10-17 09:04:03?L(5    3NFFN 170900Z VRB02KT 9999 SCT030 SCT050 25/24 Q1015 NOSIGNFFN2019-10-17T09:00:00Z-17.75177.4525.024.0026.2129.970472TRUEVFRMETAR18.02019-10-17 09:04:03,K(e5   3SBGO 170900Z 14002KT 9999 FEW045 23/15 Q1016SBGO2019-10-17T09:00:00Z-16.62-49.2223.015.014026.2130.0VFRMETAR747.02019-10-17 09:04:03 :E:(5    3SCCI 170900Z 25002KT 9999 SCT033 OVC070 06/05 Q1006 NOSIGSCCI2019-10-17T09:00:00Z-53.0-70.836.05.025026.2129.704725TRUEVFRMETAR37.02019-10-17 09:04:03S)%5    3UBBG 170900Z 03004KT 320V080 9999 FEW020 SCT083 19/13 Q1023 R30/CLRD// NOSIGUBBG2019-10-17T09:00:00Z40.7346.3219.013.03046.2130.206694TRUEVFRMETAR330.02019-10-17 09:04:03 8= 8K#)5   3YGEL 170900Z AUTO 18020G31KT 9999 // NCD 21/11 Q1015 RF00.0/000.0YGEL2019-10-17T09:00:00Z-28.8114.721.011.018020316.2129.970472TRUEVFRSPECI37.02019-10-17 09:04:030"(o5    3SCCY 170900Z AUTO 00000KT 9999 OVC039 07/05 Q1016SCCY2019-10-17T09:00:00Z-45.57-72.17.05.0006.2130.0TRUEVFRMETAR311.02019-10-17 09:04:03=!)5   3OMAD 170900Z 02006KT 350V050 CAVOK 36/10 Q1013 BECMG 32010KTOMAD2019-10-17T09:00:00Z24.4254.4736.010.02066.2129.911417VFRMETAR3.02019-10-17 09:04:035 (q5   3SCFT 170900Z AUTO 28003KT 210V320 9999 09/01 Q1020SCFT2019-10-17T09:00:00Z-43.17-71.859.01.028036.2130.11811TRUEMETAR318.02019-10-17 09:04:03=(5   3SCAP 170900Z AUTO 22008KT 190V300 9999 ////// 09/02 Q1022SCAP2019-10-17T09:00:00Z-43.62-71.789.02.022086.2130.177166TRUEMETAR277.02019-10-17 09:04:03 R1rR,((_5   3SBBE 170900Z 11002KT 8000 NSC 24/23 Q1012SBBE2019-10-17T09:00:00Z-1.37-48.4724.023.011024.9729.88189MVFRMETAR16.02019-10-17 09:04:03/'(e5   3SCVM 170900Z 00000KT 9999 OVC030 12/06 Q1021SCVM2019-10-17T09:00:00Z-32.95-71.4812.06.0006.2130.147638MVFRMETAR141.02019-10-17 09:04:033&(u5   3BIHN 170900Z 04013KT 9999 FEW025 SCT048 06/M00 Q1006BIHN2019-10-17T09:00:00Z64.3-15.236.00.040136.2129.704725VFRMETAR7.02019-10-17 09:04:039%(y5  3BIIS 170900Z 02017G30KT 9999 SCT025 BKN030 06/00 Q1013BIIS2019-10-17T09:00:00Z66.05-23.136.00.02017306.2129.911417MVFRMETAR3.02019-10-17 09:04:03I$)5    3YABA 170900Z AUTO 23009KT 3900 // BKN005 BKN011 OVC015 13/13 Q1020YABA2019-10-17T09:00:00Z-34.93117.813.013.023092.4230.11811TRUEIFRSPECI69.02019-10-17 09:04:03 (D(*-([5   3ORSU 170900Z 16006KT CAVOK 31/M01 Q1022ORSU2019-10-17T09:00:00Z35.5745.3231.0-1.016066.2130.177166VFRMETAR761.02019-10-17 09:04:03R,)5    3KATP 170900Z AUTO 06018KT 10SM SCT021 BKN032 OVC080 27/23 A2990 RMK A01KATP2019-10-17T09:00:00Z27.2-90.0327.023.0601810.029.899607TRUETRUEVFRSPECI62.02019-10-17 09:04:03S+)5   3KESN 170900Z AUTO 26013G19KT 10SM BKN055 12/05 A2959 RMK AO2 T01240052KESN2019-10-17T09:00:00Z38.8-76.0712.45.2260131910.029.589567TRUETRUEVFRSPECI22.02019-10-17 09:04:035*(k5    3OKBK 170900Z 36007KT 7000 NSC 35/07 Q1015 NOSIGOKBK2019-10-17T09:00:00Z29.2247.9735.07.036074.3529.970472TRUEMVFRMETAR55.02019-10-17 09:04:036)(k5    3OPNH 170900Z 31504KT 6000 NSC 38/17 Q1011 NOSIGOPNH2019-10-17T09:00:00Z26.2268.3738.017.031543.7329.852362TRUEMVFRMETAR38.02019-10-17 09:04:03 ;@s;62(o5    3SCSN 170900Z AUTO 00000KT 9999 OVC043 11/07 Q1021SCSN2019-10-17T09:00:00Z-33.63-71.6211.07.0006.2130.147638TRUEVFRMETAR75.02019-10-17 09:04:03/1(e5    3LBSF 170900Z 00000KT CAVOK 17/07 Q1021 NOSIGLBSF2019-10-17T09:00:00Z42.723.4217.07.0006.2130.147638TRUEVFRMETAR530.02019-10-17 09:04:03A0)5    3LBWN 170900Z 24005KT 210V270 9000 SCT007 16/13 Q1019 NOSIGLBWN2019-10-17T09:00:00Z43.2227.8216.013.024055.5930.088583TRUEVFRMETAR43.02019-10-17 09:04:03G/)5    3LBBG 170900Z 22005KT 190V280 9999 FEW014 SCT017 18/14 Q1020 NOSIGLBBG2019-10-17T09:00:00Z42.5727.5218.014.022056.2130.11811TRUEVFRMETAR28.02019-10-17 09:04:03:.(u5    3ORBI 170900Z 28005KT 230V330 CAVOK 35/12 Q1017 NOSIGORBI2019-10-17T09:00:00Z33.2744.2335.012.028056.2130.029528TRUEVFRMETAR35.02019-10-17 09:04:03 /6r/<7(w5     3VGHS 170900Z 12007KT 4000 HZ FEW015 34/22 Q1010 NOSIGVGHS2019-10-17T09:00:00Z23.8590.434.022.012072.4929.822834TRUEHZIFRMETAR10.02019-10-17 09:04:0356(q5    3SMJP 170900Z 00000KT 9999 FEW015 23/23 Q1012 NOSIGSMJP2019-10-17T09:00:00Z5.45-55.1723.023.0006.2129.88189TRUEVFRMETAR16.02019-10-17 09:04:03@5)5    3SMZO 170900Z 00000KT 9999 FEW015 FEW018CB 25/23 Q1011 NOSIGSMZO2019-10-17T09:00:00Z5.82-55.1825.023.0006.2129.852362TRUEVFRMETAR10.02019-10-17 09:04:03>4)5    3TFFF 170900Z AUTO 08003KT 9999 FEW024/// ///TCU 26/24 Q1012TFFF2019-10-17T09:00:00Z14.6-61.026.024.08036.2129.88189TRUEVFRMETAR5.02019-10-17 09:04:03D3)5    3VOML 170900Z 25012KT 9999 SCT015 FEW025CB 31/25 Q1007 NOSIGVOML2019-10-17T09:00:00Z12.9774.8831.025.0250126.2129.734253TRUEVFRMETAR103.02019-10-17 09:04:03 *K&*v<)M5     3KHIE 170859Z AUTO 08009G22KT 5SM -RA BR SCT025 OVC033 09/07 A2908 RMK AO2 PRESFR P0001 T00890067KHIE2019-10-17T08:59:00Z44.37-71.558.96.7809225.029.078741TRUETRUE-RA BRMVFR0.01METAR318.02019-10-17 09:04:03.;(e5   3FQVL 170900Z 12011KT 9999 SCT020 27/19 Q1020FQVL2019-10-17T09:00:00Z-22.035.3227.019.0120116.2130.11811VFRMETAR21.02019-10-17 09:04:03;:(q5     3OPMT 170900Z 31006KT 4000 HZ NSC 34/16 Q1011 NOSIGOPMT2019-10-17T09:00:00Z30.1871.4234.016.031062.4929.852362TRUEHZIFRMETAR123.02019-10-17 09:04:03*9(Y5   3SBCF 170900Z 09011KT CAVOK 19/13 Q1020SBCF2019-10-17T09:00:00Z-19.63-43.9719.013.090116.2130.11811VFRMETAR828.02019-10-17 09:04:03/8(e5   3GBYD 170900Z 18006KT 9999 BKN012 29/26 Q1012GBYD2019-10-17T09:00:00Z13.33-16.6529.026.018066.2129.88189MVFRMETAR36.02019-10-17 09:04:03Y88@HPX`hpx (08@HPX`hpx (08@HPX`hpx: ;<=>?"@'A,B1C6D;E@: ;<=>?"@'A,B1C6D;E@FEGJHOITJYK^LcMhNmOrPwQ|RST UVWXY#Z([-\2]7^<`@aDbHcLdPeTfXg\h`idjhkllpmtnxo|pqrs tuvwx y$z({,|0}4~8<@DHKORVZ^beimqux{ 2^J@)5   3EKSP 170859Z 23006KT 200V260 9999 BKN007 BKN022 13/13 Q1006 BECMG BKN012EKSP2019-10-17T08:59:00Z55.229.2713.013.023066.2129.704725IFRSPECI40.02019-10-17 09:04:03C?(5    3KHYX 170859Z AUTO 32009KT 10SM SCT035 05/02 A2983 RMK AO2KHYX2019-10-17T08:59:00Z43.43-83.875.02.0320910.029.828741TRUETRUEVFRMETAR183.02019-10-17 09:04:03N>)5    3KSAW 170859Z AUTO 31004KT 10SM OVC023 03/02 A2993 RMK AO2 T00270015KSAW2019-10-17T08:59:00Z46.35-87.42.71.5310410.029.929134TRUETRUEMVFRMETAR372.02019-10-17 09:04:03H=)5     3KGHW 170859Z AUTO 12004KT 4SM BR CLR M01/M01 A2998 RMK AO2KGHW2019-10-17T08:59:00Z45.63-95.32-1.0-1.012044.029.97933TRUETRUEBRMVFRMETAR425.02019-10-17 09:04:03 JoMD)5    3KHAI 170859Z AUTO 30004KT 10SM SCT046 06/04 A2993 RMK AO2 T00590037KHAI2019-10-17T08:59:00Z41.97-85.65.93.7300410.029.929134TRUETRUEVFRMETAR251.02019-10-17 09:04:03dC)?5    3KSJX 170859Z AUTO 36007KT 330V030 10SM BKN019 BKN024 OVC032 06/03 A2990 RMK AO2 T00620027KSJX2019-10-17T08:59:00Z45.7-85.576.22.7360710.029.899607TRUETRUEMVFRMETAR204.02019-10-17 09:04:03UB)5   3KUNV 170859Z AUTO 26011G19KT 10SM OVC028 07/03 A2950 RMK AO2 T00720030KUNV2019-10-17T08:59:00Z40.85-77.837.23.0260111910.029.500984TRUETRUEMVFRMETAR378.02019-10-17 09:04:030A(e5    3FAPE 170859Z VRB03KT CAVOK 30/12 Q1010 NOSIGFAPE2019-10-17T08:59:00Z-33.9725.630.012.0036.2129.822834TRUEVFRSPECI60.02019-10-17 09:04:03 4LAH({5    3KRRT 170859Z AUTO 13003KT 10SM CLR 01/M01 A2998 RMK AO2KRRT2019-10-17T08:59:00Z48.93-95.331.0-1.0130310.029.97933TRUETRUEVFRMETAR327.02019-10-17 09:04:03FKUp|)35    3K1CM 170858Z AUTO 21018KT 10SM BKN190 15/M07 A2966 RMK AO2 SLP021 T01461073 57017 $K1CM2019-10-17T08:58:00Z47.1-110.1714.6-7.32101810.029.6604331002.1TRUETRUETRUEVFR-1.7METAR1337.02019-10-17 09:04:03u{)G5    3PWAK 170858Z AUTO 11005KT 9999 FEW020 28/25 A2999 RMK AO2 LTG DSNT E SLP162 T02820251 52024 $PWAK2019-10-17T08:58:00Z19.28166.6528.225.111056.2129.9911421016.2TRUETRUETRUEVFR2.4METAR4.02019-10-17 09:04:03rz)75     3KSLI 170858Z AUTO M 10SM CLR 16/15 A2981 RMK AO2 SLP098 P0080 60080 T01570151 57008 $KSLI2019-10-17T08:58:00Z33.77-118.0315.715.110.029.8110241009.8TRUETRUETRUEVFR-0.80.80.8METAR11.02019-10-17 09:04:03)5    3KNCA 170856Z 31008KT CLR 10/05 A2982 RMK AO2 SLP099 T01000050 53009 $ KNCA2019-10-17T08:56:00Z34.72-77.4510.05.0310829.8198811009.9TRUETRUE0.9METAR8.02019-10-17 09:04:03~=)U5   3KNBT 170856Z AUTO 30019G25KT 10SM CLR 13/04 A2977 RMK AO2 PK WND 29030/0811 SLP084 T01280044 53005 $KNBT2019-10-17T08:56:00Z35.02-76.4712.84.4300192510.029.7696861008.4TRUETRUETRUEVFR0.5METAR5.02019-10-17 09:04:03 s>ispD)75   3KADW 170856Z AUTO 25014G19KT 10SM BKN050 11/03 A2957 RMK AO2 SLP020 T01050033 53000 $KADW2019-10-17T08:56:00Z38.82-76.8710.53.3250141910.029.5688971002.0TRUETRUETRUEVFR0.0METAR86.02019-10-17 09:04:03OC)5    3KGNA 170856Z AUTO VRB03KT 04/00 A3001 RMK AO1 SLP168 T00440000 51005KGNA2019-10-17T08:56:00Z47.75-90.354.40.00330.0088581016.8TRUETRUE0.5SPECI185.02019-10-17 09:04:03TB)5    3K2WX 170856Z AUTO 09005KT 06/M01 A2977 RMK AO1 SLP076 T00611006 56012 K2WX2019-10-17T08:56:00Z45.6-103.556.1-0.690529.7696861007.6TRUETRUE-1.2METAR915.02019-10-17 09:04:03bA))5    3KNBC 170856Z AUTO 30006KT 10SM CLR 14/09 A2988 RMK AO2 SLP117 T01390089 56000 KNBC2019-10-17T08:56:00Z32.47-80.7213.98.9300610.029.8789371011.7TRUETRUEVFR0.0METAR12.02019-10-17 09:04:03 #cH))5    3RKJK 170856Z AUTO 00000KT 9SM CLR 16/11 A3018 RMK AO2 SLP224 T01630108 55006 $RKJK2019-10-17T08:56:00Z35.9126.6216.310.8009.030.1801191022.4TRUETRUETRUEVFR-0.6METAR9.02019-10-17 09:04:03G)q5     3PHHI 170856Z AUTO 10004KT 10SM FEW025 FEW039 SCT049 SCT060 SCT130 23/21 A3005 RMK AO2 SLP165 60000 T02340207 50010PHHI2019-10-17T08:56:00Z21.48-158.0523.420.7100410.030.0501981016.5TRUETRUESCT6000VFR1.00.005METAR255.02019-10-17 09:04:03fF)+5    3KGSB 170856Z AUTO 26006KT 10SM CLR 09/04 A2980 RMK AO2 SLP094 T00900044 53003 $KGSB2019-10-17T08:56:00Z35.32-77.979.04.4260610.029.7992131009.4TRUETRUETRUEVFR0.3METAR33.02019-10-17 09:04:03kE)15    3ETOU 170856Z AUTO 22008KT 9999 OVC017 14/12 A2995 RMK AO2 SLP144 T01440115 52011 $ETOU2019-10-17T08:56:00Z50.038.3214.411.522086.2129.9498021014.4TRUETRUETRUEMVFR1.1METAR141.02019-10-17 09:04:03 jK)15    3ETEB 170856Z AUTO 17005KT 9999 SCT060 12/08 A3001 RMK AO2 SLP176 T01180077 52009 $ETEB2019-10-17T08:56:00Z49.3210.6211.87.717056.2130.0088581017.6TRUETRUETRUEVFR0.9METAR467.02019-10-17 09:04:031J)%5      3RJTY 170856Z AUTO 06003KT 10SM FEW012 OVC030 15/15 A3033 RMK AO2 RAE0757DZB00E14DZB16E32DZB34E44 SLP275 P0001 60011 T01540149 52013 FZRANO $RJTY2019-10-17T08:56:00Z35.75139.3315.414.960310.030.330711027.5TRUETRUETRUETRUEMVFR1.30.010.11METAR139.02019-10-17 09:04:03kI)15    3RODN 170856Z AUTO 16005KT 10SM FEW046 27/23 A2992 RMK AO2 SLP137 T02670229 53005 $RODN2019-10-17T08:56:00Z26.35127.7726.722.9160510.029.9202751013.7TRUETRUETRUEVFR0.5METAR45.02019-10-17 09:04:03 $$iO)15    3KGUS 170856Z AUTO 28006KT 10SM BKN190 03/03 A2998 RMK AO2 SLP159 T00290028 52003 $KGUS2019-10-17T08:56:00Z40.63-86.152.92.8280610.029.979331015.9TRUETRUETRUEVFR0.3SPECI247.02019-10-17 09:04:03^N)'5    3KHEZ 170856Z AUTO 00000KT 10SM CLR 09/08 A3005 RMK AO2 SLP174 T00890083 55013KHEZ2019-10-17T08:56:00Z31.62-91.38.98.30010.030.0501981017.4TRUETRUEVFR-1.3SPECI83.02019-10-17 09:04:03 M)_5     3ETIK 170856Z AUTO 20005KT 9999 BKN075 14/09 A3001 RMK AO2 RAB0756E08 SLP163 P0000 60000 T01400090 51010 $ETIK2019-10-17T08:56:00Z49.4710.3714.09.020056.2130.0088581016.3TRUETRUETRUEVFR1.00.0050.005METAR325.02019-10-17 09:04:03rL)=5     3ETIC 170856Z AUTO 00000KT 9999 SCT120 11/08 A3001 RMK AO2 SLP166 60000 T01130082 50008 $ETIC2019-10-17T08:56:00Z49.711.9311.38.2006.2130.0088581016.6TRUETRUETRUEVFR0.80.005METAR415.02019-10-17 09:04:03 yR)O5     3KBLV 170856Z AUTO 00000KT 10SM BR CLR 04/03 A3008 RMK AO2 VIS 7/8 RWY32L SLP191 T00350025 50002 $KBLV2019-10-17T08:56:00Z38.53-89.833.52.50010.030.0797251019.1TRUETRUETRUEBRVFR0.2SPECI138.02019-10-17 09:04:03Q)5     3KCEF 170856Z AUTO 29018G27KT 10SM -RA FEW021 OVC040 09/06 A2891 RMK AO2 PK WND 29036/41 SLP795 P0005 60068 T00910064 55017KCEF2019-10-17T08:56:00Z42.2-72.529.16.4290182710.028.910433979.5TRUETRUE-RAVFR-1.70.050.68METAR75.02019-10-17 09:04:03gP)+5    3KFTK 170856Z AUTO 27005KT 10SM CLR 02/02 A3003 RMK AO2 SLP175 T00240023 50002 $KFTK2019-10-17T08:56:00Z37.88-85.972.42.3270510.030.0295281017.5TRUETRUETRUEVFR0.2SPECI230.02019-10-17 09:04:03 C*:CqV)?5    3KFFO 170856Z AUTO 28009KT 10SM FEW033 OVC046 08/02 A2993 RMK AO2 SLP141 T00790019 50002 $KFFO2019-10-17T08:56:00Z39.82-84.037.91.9280910.029.9291341014.1TRUETRUETRUEVFR0.2SPECI251.02019-10-17 09:04:03jU)15    3KDAA 170856Z AUTO 24005KT 10SM OVC055 11/03 A2960 RMK AO2 SLP026 T01090027 53003 $KDAA2019-10-17T08:56:00Z38.72-77.1710.92.7240510.029.6013771002.6TRUETRUETRUEVFR0.3SPECI21.02019-10-17 09:04:03kT)15   3KFAF 170856Z AUTO 26008G15KT 10SM CLR 10/03 A2965 RMK AO2 SLP044 T00990034 58001 $KFAF2019-10-17T08:56:00Z37.12-76.629.93.426081510.029.6486231004.4TRUETRUETRUEVFR-0.1METAR4.02019-10-17 09:04:03_S)'5    3KHOP 170856Z AUTO 00000KT 10SM CLR 05/03 A3006 RMK AO2 SLP182 T00530030 58002KHOP2019-10-17T08:56:00Z36.67-87.55.33.00010.030.0590551018.2TRUETRUEVFR-0.2METAR174.02019-10-17 09:04:03 . ,.xZ)Q5    3KMTC 170856Z AUTO 32015KT 10SM OVC028 07/03 A2976 RMK AO2 PK WND 28028/0756 SLP085 T00700031 52009KMTC2019-10-17T08:56:00Z42.62-82.827.03.13201510.029.7608261008.5TRUETRUEMVFR0.9SPECI177.02019-10-17 09:04:03lY);5    3KVOK 170856Z AUTO 28004KT 10SM BKN038 OVC090 05/05 A3001 RMK AO2 SLP170 T00530052 58007KVOK2019-10-17T08:56:00Z43.92-90.275.35.2280410.030.0088581017.0TRUETRUEVFR-0.7SPECI277.02019-10-17 09:04:03iX)+5    3KRCA 170856Z AUTO 25003KT 10SM CLR 06/03 A2981 RMK AO2 SLP094 T00590025 57016 $KRCA2019-10-17T08:56:00Z44.13-103.085.92.5250310.029.8110241009.4TRUETRUETRUEVFR-1.6SPECI999.02019-10-17 09:04:03mW)/5    3KMIB 170856Z AUTO 11003KT 10SM CLR M01/M01 A2976 RMK AO2 SLP095 T10061015 55002 $KMIB2019-10-17T08:56:00Z48.42-101.33-0.6-1.5110310.029.7608261009.5TRUETRUETRUEVFR-0.2METAR508.02019-10-17 09:04:03 R.BRj^)35   3KCIU 170856Z AUTO 35011G17KT 10SM FEW029 04/00 A2986 RMK AO2 SLP116 T00390000 53004KCIU2019-10-17T08:56:00Z46.25-84.473.90.0350111710.029.8612211011.6TRUETRUEVFR0.4METAR244.02019-10-17 09:04:03f]))5    3KCOD 170856Z AUTO 16005KT 10SM CLR 09/M06 A2982 RMK AO2 SLP069 T00891061 58022KCOD2019-10-17T08:56:00Z44.52-109.028.9-6.1160510.029.8198811006.9TRUETRUEVFR-2.2METAR1553.02019-10-17 09:04:03d\)'5    3KCVN 170856Z AUTO 25009KT 10SM CLR 07/01 A3010 RMK AO2 SLP172 T00720006 56010KCVN2019-10-17T08:56:00Z34.42-103.077.20.6250910.030.1003931017.2TRUETRUEVFR-1.0METAR1284.02019-10-17 09:04:03b[)'5    3KCWI 170856Z AUTO 29005KT 10SM CLR 04/03 A3006 RMK AO2 SLP185 T00390028 58004KCWI2019-10-17T08:56:00Z41.82-90.323.92.8290510.030.0590551018.5TRUETRUEVFR-0.4METAR216.02019-10-17 09:04:03 l+hTlbb)'5    3KBMI 170856Z AUTO 28003KT 10SM CLR 03/02 A3005 RMK AO2 SLP178 T00330017 58003KBMI2019-10-17T08:56:00Z40.47-88.923.31.7280310.030.0501981017.8TRUETRUEVFR-0.3METAR267.02019-10-17 09:04:03a)m5    3KBTP 170856Z AUTO 27010G18KT 240V310 10SM OVC015 06/04 A2966 RMK AO2 RAB01E20 SLP055 P0000 60001 T00610044 55001KBTP2019-10-17T08:56:00Z40.77-79.956.14.4270101810.029.6604331005.5TRUETRUEMVFR-0.10.005SPECI380.02019-10-17 09:04:03=`(y5    3KCBG 170856Z AUTO 00000KT 7SM CLR 03/M02 A3002 RMK AO2KCBG2019-10-17T08:56:00Z45.57-93.273.0-2.0007.030.02067TRUETRUEVFRMETAR287.02019-10-17 09:04:03O_)5    3KCDI 170856Z AUTO 26005KT 10SM OVC028 08/03 A2983 RMK AO2 T00750030KCDI2019-10-17T08:56:00Z39.97-81.587.53.0260510.029.828741TRUETRUEMVFRMETAR244.02019-10-17 09:04:03 je)+5    3KNJK 170856Z AUTO 29003KT 10SM CLR 21/02 A2972 RMK AO2 SLP078 T02110022 58008 $KNJK2019-10-17T08:56:00Z32.82-115.6721.12.2290310.029.7194881007.8TRUETRUETRUEVFR-0.8SPECI-13.02019-10-17 09:04:03 d)5     3KBHB 170856Z AUTO 07018G35KT 5SM RA BR OVC009 11/10 A2932 RMK AO2 PK WND 07035/0854 PRESFR SLP931 P0024 60027 T01060100 56073KBHB2019-10-17T08:56:00Z44.45-68.3710.610.07018355.029.320866993.1TRUETRUERA BRIFR-7.30.240.27METAR26.02019-10-17 09:04:03c)c5   3KBID 170856Z AUTO 27028G40KT 10SM BKN024 12/07 A2905 RMK AO2 PK WND 27045/0812 SLP838 60000 T01170072 53031KBID2019-10-17T08:56:00Z41.17-71.5811.77.2270284010.029.049213983.8TRUETRUEMVFR3.1SPECI33.02019-10-17 09:04:03 ))oi)?5    3KEKQ 170856Z AUTO VRB06KT 10SM CLR 00/00 A3006 RMK AO2 SLP178 6//// T00000000 51001 PNO $KEKQ2019-10-17T08:56:00Z36.85-84.850.00.00610.030.0590551017.8TRUETRUETRUEVFR0.1METAR294.02019-10-17 09:04:03jh)55     3KEHR 170856Z AUTO 00000KT 10SM CLR 02/01 A3008 RMK AO2 SLP186 T00170011 51001 FZRANOKEHR2019-10-17T08:56:00Z37.82-87.671.71.10010.030.0797251018.6TRUETRUETRUEVFR0.1METAR117.02019-10-17 09:04:03`g)35     3KEFK 170856Z AUTO 35015KT 7SM RA SCT026 BKN033 OVC040 07/07 A2922 RMK AO2 T00670067KEFK2019-10-17T08:56:00Z44.88-72.236.76.7350157.029.220472TRUETRUERAVFRMETAR284.02019-10-17 09:04:03f)U5      3KEEN 170856Z AUTO 31009KT 5SM -RA BR OVC014 11/10 A2881 RMK AO2 SLP761 P0010 60064 T01110100 55077 $KEEN2019-10-17T08:56:00Z42.88-72.2711.110.031095.028.81004976.1TRUETRUETRUE-RA BRMVFR-7.70.1SPECI149.02019-10-17 09:04:03 3%3lm)55     3KEAR 170856Z AUTO 14004KT 10SM CLR 02/00 A2990 RMK AO2 SLP127 T00170000 56018 FZRANOKEAR2019-10-17T08:56:00Z40.72-99.01.70.0140410.029.8996071012.7TRUETRUETRUEVFR-1.8SPECI649.02019-10-17 09:04:03kl)55     3KFAM 170856Z AUTO 00000KT 10SM CLR 02/02 A3010 RMK AO2 SLP206 T00220017 58001 FZRANOKFAM2019-10-17T08:56:00Z37.77-90.422.21.70010.030.1003931020.6TRUETRUETRUEVFR-0.1METAR288.02019-10-17 09:04:03lk)55     3KESC 170856Z AUTO 29003KT 10SM CLR 02/01 A2995 RMK AO2 SLP151 T00170006 50000 FZRANOKESC2019-10-17T08:56:00Z45.75-87.081.70.6290310.029.9498021015.1TRUETRUETRUEVFR0.0METAR187.02019-10-17 09:04:03rj)95     3KEGE 170856Z AUTO 00000KT 10SM CLR M01/M11 A3020 RMK AO2 SLP204 T10111106 56001 FZRANOKEGE2019-10-17T08:56:00Z39.63-106.92-1.1-10.60010.030.2007871020.4TRUETRUETRUEVFR-0.1METAR1993.02019-10-17 09:04:03 PX@q(y5    3KFFM 170856Z AUTO 13006KT 10SM CLR 02/01 A2996 RMK AO2KFFM2019-10-17T08:56:00Z46.28-96.152.01.0130610.029.958662TRUETRUEVFRMETAR361.02019-10-17 09:04:03rp)?5    3ETAR 170856Z AUTO 20006KT 9999 SCT011 OVC021 14/13 A2995 RMK AO2 SLP144 T01370127 50009 $ETAR2019-10-17T08:56:00Z49.427.5813.712.720066.2129.9498021014.4TRUETRUETRUEMVFR0.9METAR238.02019-10-17 09:04:03Do(5    3KDLZ 170856Z AUTO 29010KT 10SM SCT045 06/03 A2989 RMK AO2KDLZ2019-10-17T08:56:00Z40.28-83.126.03.02901010.029.890747TRUETRUEVFRSPECI289.02019-10-17 09:04:03`n)'5    3KDWU 170856Z AUTO VRB04KT 10SM CLR 08/05 A2994 RMK AO2 SLP141 T00780050 58002KDWU2019-10-17T08:56:00Z38.55-82.737.85.00410.029.9409451014.1TRUETRUEVFR-0.2SPECI166.02019-10-17 09:04:03 _5_Pu)5   3K22N 170856Z AUTO 26009G14KT 10SM SCT028 OVC034 10/06 A2938 RMK AO2K22N2019-10-17T08:56:00Z40.8-75.7710.06.026091410.029.379921TRUETRUEVFRSPECI163.02019-10-17 09:04:03Lt) 5     3K14Y 170856Z AUTO 00000KT 3/4SM BR BKN001 M01/M01 A2999 RMK AO2K14Y2019-10-17T08:56:00Z45.9-94.87-1.0-1.0000.7529.991142TRUETRUEBRLIFRSPECI406.02019-10-17 09:04:03es))5    3KFNL 170856Z AUTO 03003KT 10SM CLR 07/M02 A2997 RMK AO2 SLP107 T00671017 56010KFNL2019-10-17T08:56:00Z40.45-105.026.7-1.730310.029.9704721010.7TRUETRUEVFR-1.0METAR1529.02019-10-17 09:04:03r)S5     3KFKL 170856Z AUTO 29011G17KT 10SM -RA OVC011 05/04 A2961 RMK AO2 SLP032 P0000 60000 T00500039 55000KFKL2019-10-17T08:56:00Z41.37-79.875.03.9290111710.029.6102371003.2TRUETRUE-RAMVFR0.00.0050.005METAR469.02019-10-17 09:04:03  jx)55     3KAIZ 170856Z AUTO 00000KT 10SM CLR 02/02 A3011 RMK AO2 SLP201 T00170017 58004 FZRANOKAIZ2019-10-17T08:56:00Z38.1-92.531.71.70010.030.1092531020.1TRUETRUETRUEVFR-0.4SPECI265.02019-10-17 09:04:03w)W5    3KAFJ 170856Z AUTO 26009G16KT 10SM OVC020 07/05 A2975 RMK AO2 RAE40 SLP078 P0000 60005 T00670050 53004KAFJ2019-10-17T08:56:00Z40.12-80.276.75.026091610.029.7490161007.8TRUETRUEMVFR0.40.005SPECI361.02019-10-17 09:04:03gv)75     3K6B0 170856Z AUTO 36010G18KT 7SM -RA OVC006 08/07 A2910 RMK AO2 P0018 60057 T00750070K6B02019-10-17T08:56:00Z43.98-73.17.57.036010187.029.09941TRUETRUE-RAIFR0.18SPECI149.02019-10-17 09:04:03 {){5     3KLCI 170856Z AUTO 07018G27KT 6SM -RA BR OVC010 11/09 A2894 RMK AO2 PK WND 08032/0841 SLP800 P0015 60057 T01060094 58072KLCI2019-10-17T08:56:00Z43.57-71.4210.69.47018276.028.93996980.0TRUETRUE-RA BRMVFR-7.20.15SPECI166.02019-10-17 09:04:03z)5     3KLEW 170856Z AUTO 05019G33KT 10SM -RA OVC008 12/11 A2903 RMK AO2 PK WND 07033/0852 PRESFR SLP835 P0014 60066 T01170106 58149KLEW2019-10-17T08:56:00Z44.03-70.2711.710.650193310.029.028543983.5TRUETRUE-RAIFR0.00.14SPECI88.02019-10-17 09:04:03%y)!5   3KASH 170856Z AUTO 13013G17KT 10SM BKN009 OVC013 16/16 A2878 RMK AO2 PK WND 07028/0804 RAE45 CIG 007V013 SLP749 6//// T01610161 56122 PNO $KASH2019-10-17T08:56:00Z42.78-71.5216.116.1130131710.028.780512974.9TRUETRUETRUEIFR0.0SPECI61.02019-10-17 09:04:03 tS[ta)-5    3KIWD 170856Z AUTO 27004KT 10SM OVC027 04/04 A3000 RMK AO2 SLP168 T00390039 56003KIWD2019-10-17T08:56:00Z46.52-90.123.93.9270410.030.01016.8TRUETRUEMVFR-0.3SPECI375.02019-10-17 09:04:03r~)95     3KJAC 170856Z AUTO 01008KT 10SM CLR M04/M08 A2996 RMK AO2 SLP132 T10391083 58016 FZRANOKJAC2019-10-17T08:56:00Z43.62-110.73-3.9-8.310810.029.9586621013.2TRUETRUETRUEVFR-1.6SPECI1961.02019-10-17 09:04:03>}(y5    3KJMR 170856Z AUTO 00000KT 10SM CLR 02/01 A3003 RMK AO2KJMR2019-10-17T08:56:00Z45.88-93.272.01.00010.030.029528TRUETRUEVFRSPECI309.02019-10-17 09:04:03c|)'5    3KLBL 170856Z AUTO 20009KT 10SM CLR 06/01 A2997 RMK AO2 SLP132 T00560011 58013KLBL2019-10-17T08:56:00Z37.03-100.975.61.1200910.029.9704721013.2TRUETRUEVFR-1.3METAR879.02019-10-17 09:04:03 2=uL2)y5     3KRKD 170856Z AUTO 07024G35KT 4SM RA BR OVC007 12/11 A2916 RMK AO2 PK WND 08040/0807 SLP875 P0013 60029 T01220111 58122KRKD2019-10-17T08:56:00Z44.07-69.0812.211.17024354.029.161417987.5TRUETRUERA BRIFR0.00.13SPECI17.02019-10-17 09:04:03#)5     3KRUT 170856Z AUTO 33008G16KT 9SM RA FEW010 BKN020 OVC029 09/09 A2900 RMK AO2 PK WND 35031/0802 SLP816 P0024 60062 T00940089 58029 $KRUT2019-10-17T08:56:00Z43.52-72.959.48.93308169.028.999016981.6TRUETRUETRUERAMVFR-2.90.24SPECI240.02019-10-17 09:04:03B(5    3KAXV 170856Z AUTO 28009KT 10SM OVC030 07/03 A2993 RMK AO2KAXV2019-10-17T08:56:00Z40.5-84.37.03.0280910.029.929134TRUETRUEMVFRSPECI279.02019-10-17 09:04:03=(w5    3KBDH 170856Z AUTO 12003KT 7SM CLR 01/00 A3002 RMK AO2KBDH2019-10-17T08:56:00Z45.12-95.131.00.012037.030.02067TRUETRUEVFRSPECI247.02019-10-17 09:04:03 b= (b@(y5    3KLYV 170856Z AUTO 12003KT 10SM CLR 01/00 A2996 RMK AO2KLYV2019-10-17T08:56:00Z43.62-96.221.00.0120310.029.958662TRUETRUEVFRSPECI436.02019-10-17 09:04:03r)G5    3KMBL 170856Z AUTO 32007KT 10SM BKN026 OVC033 08/04 A2991 RMK AO2 SLP133 60001 T00780039 50000KMBL2019-10-17T08:56:00Z44.27-86.257.83.9320710.029.9114171013.3TRUETRUEMVFR0.0SPECI189.02019-10-17 09:04:03)5   3KPVC 170856Z AUTO 19019G25KT 9SM OVC010 14/13 A2888 RMK AO2 PK WND 18026/0813 CIG 007V014 SLP779 6//// T01440133 58023 PNO $KPVC2019-10-17T08:56:00Z42.07-70.2214.413.319019259.028.880905977.9TRUETRUETRUEMVFR-2.3SPECI2.02019-10-17 09:04:03=(y5    3KRGK 170856Z AUTO 00000KT 10SM CLR 03/02 A3002 RMK AO2KRGK2019-10-17T08:56:00Z44.58-92.483.02.00010.030.02067TRUETRUEVFRSPECI239.02019-10-17 09:04:03  a ))5    3KSGJ 170856Z AUTO 34007KT 10SM CLR 20/17 A2989 RMK AO2 SLPNO T02000172 58002 $KSGJ2019-10-17T08:56:00Z29.97-81.3220.017.2340710.029.890747TRUETRUETRUEVFR-0.2SPECI3.02019-10-17 09:04:03 )s5     3PAFE 170856Z AUTO 05008KT 10SM BKN047 OVC080 07/06 A2903 RMK AO2 RAE23 SLP843 P0000 60001 T00720061 401000067 58017PAFE2019-10-17T08:56:00Z56.97-133.927.26.150810.029.028543984.3TRUETRUEVFR-1.710.06.70.0050.01METAR9.02019-10-17 09:04:03o )95     3PAFM 170856Z AUTO 36007KT 10SM CLR M08/M13 A2939 RMK AO2 SLP967 T10781133 50004 FZRANOPAFM2019-10-17T08:56:00Z67.1-157.85-7.8-13.3360710.029.388779996.7TRUETRUETRUEVFR0.4METAR88.02019-10-17 09:04:03n)95     3KSDY 170856Z AUTO 00000KT 10SM CLR M01/M02 A2974 RMK AO2 SLP469 T10061017 58009 FZRANOKSDY2019-10-17T08:56:00Z47.7-104.2-0.6-1.70010.029.7401581046.9TRUETRUETRUEVFR-0.9SPECI605.02019-10-17 09:04:03  ) 5     3KSFM 170856Z AUTO 06017G27KT 6SM -RA BR SCT007 13/13 A2892 RMK AO2 PK WND 06034/0809 PRESFR SLP796 P0037 60130 T01330128 56135KSFM2019-10-17T08:56:00Z43.38-70.7213.312.86017276.028.91929979.6TRUETRUE-RA BRVFR0.00.37SPECI74.02019-10-17 09:04:03 )5      3KSFZ 170856Z AUTO 26017G27KT 10SM OVC010 A2887 RMK AO2 PK WND 26027/0848 UPE01RAB01E45 CIG 009V013 SLPNO P0005 60044 55050 FZRANO $KSFZ2019-10-17T08:56:00Z41.92-71.5260172710.028.869095TRUETRUETRUETRUEMVFR-5.00.05SPECI134.02019-10-17 09:04:03q )G5    3KSGH 170856Z AUTO 29009KT 10SM FEW027 OVC046 07/04 A2992 RMK AO2 SLP138 60000 T00720039 51001KSGH2019-10-17T08:56:00Z39.83-83.837.23.9290910.029.9202751013.8TRUETRUEVFR0.1SPECI321.02019-10-17 09:04:03 ~)M5      3PAHP 170856Z AUTO 04007KT 10SM CLR M02/M03 A2911 RMK AO2 SLP857 T10221028 400281022 53013 FZRANOPAHP2019-10-17T08:56:00Z61.52-166.15-2.2-2.840710.029.111221985.7TRUETRUETRUEVFR1.32.8-2.2METAR5.02019-10-17 09:04:03w)E5     3PAHX 170856Z AUTO 02008KT 10SM CLR M06/M08 A2916 RMK AO2 SLP877 T10561078 53004 PWINO FZRANOPAHX2019-10-17T08:56:00Z62.7-159.57-5.6-7.820810.029.161417987.7TRUETRUETRUETRUEVFR0.4SPECI24.02019-10-17 09:04:03')5        3PAII 170856Z AUTO 36003KT 10SM -RA FEW011 OVC027 02/02 A2904 RMK AO2 SLP832 P0004 60013 T00220017 400610000 53015 FZRANO TSNOPAII2019-10-17T08:56:00Z58.18-157.382.21.7360310.029.040354983.2TRUETRUETRUETRUE-RAMVFR1.56.10.040.13METAR30.02019-10-17 09:04:03 )M5      3PAKP 170856Z AUTO 00000KT 10SM CLR M18/M21 A2932 RMK AO2 SLP994 T11831211 410831189 51010 FZRANOPAKP2019-10-17T08:56:00Z68.13-151.73-18.3-21.10010.029.320866999.4TRUETRUETRUEVFR1.0-8.3-18.9METAR642.02019-10-17 09:04:03)e5      3PAKK 170856Z AUTO 36007KT 10SM CLR M05/M09 A2918 RMK AO2 SLP896 6//// T10501089 400111067 53007 FZRANO PNO $PAKK2019-10-17T08:56:00Z64.93-161.15-5.0-8.9360710.029.179134989.6TRUETRUETRUETRUEVFR0.71.1-6.7METAR47.02019-10-17 09:04:03){5      3PAGN 170856Z AUTO 08004KT 10SM -RA FEW047 OVC060 07/06 A2906 RMK AO2 RAB16 SLP831 P0000 60000 T00720061 400890067 56012PAGN2019-10-17T08:56:00Z57.5-134.587.26.180410.029.061024983.1TRUETRUE-RAVFR-1.28.96.70.0050.005METAR2.02019-10-17 09:04:03   )W5      3PANV 170856Z AUTO 04010KT 10SM CLR M05/M07 A2912 RMK AO2 SLP943 T10501072 410171050 53004 FZRANO TSNOPANV2019-10-17T08:56:00Z62.65-160.18-5.0-7.2401010.029.120079994.3TRUETRUETRUETRUEVFR0.4-1.7-5.0SPECI99.02019-10-17 09:04:03~)M5      3PANI 170856Z AUTO 00000KT 10SM CLR M03/M06 A2909 RMK AO2 SLP853 T10331061 400331033 53007 FZRANOPANI2019-10-17T08:56:00Z61.58-159.53-3.3-6.10010.029.090551985.3TRUETRUETRUEVFR0.73.3-3.3SPECI26.02019-10-17 09:04:03p)C5      3PANA 170856Z AUTO 05005KT 10SM CLR M02/M02 RMK AO2 SLPNO T10171022 400501017 PWINO FZRANO $PANA2019-10-17T08:56:00Z60.68-161.98-1.7-2.250510.0TRUETRUETRUETRUETRUEVFR5.0-1.7SPECI5.02019-10-17 09:04:03 )5        3PAQH 170856Z AUTO 08010KT 10SM -RA OVC026 02/02 A2902 RMK AO2 UPE07RAB07 SLP826 P0000 60000 T00220017 400670000 53007 FZRANOPAQH2019-10-17T08:56:00Z59.75-161.852.21.7801010.029.019686982.6TRUETRUETRUE-RAMVFR0.76.70.005SPECI13.02019-10-17 09:04:03)}5      3PAPN 170856Z AUTO 30016KT 6SM BR SCT013 OVC028 05/03 A2902 RMK AO2 WSHFT 0814 SLP828 P0008 60019 T00500033 53009 PWINO $PAPN2019-10-17T08:56:00Z57.58-157.575.03.3300166.029.019686982.8TRUETRUETRUETRUEBRMVFR0.90.080.19METAR18.02019-10-17 09:04:03h)95    3PAOH 170856Z AUTO 07004KT 10SM OVC025 07/06 A2907 RMK AO2 SLP843 60000 T00670061 58015PAOH2019-10-17T08:56:00Z58.1-135.456.76.170410.029.069881984.3TRUETRUEMVFR-1.5SPECI9.02019-10-17 09:04:03 t)?5     3PAZK 170856Z AUTO 00000KT 10SM OVC016 M08/M09 A2904 RMK AO2 SLP890 T10831094 56001 FZRANOPAZK2019-10-17T08:56:00Z61.93-147.17-8.3-9.40010.029.040354989.0TRUETRUETRUEMVFR-0.1SPECI1003.02019-10-17 09:04:03)5      3PATQ 170856Z AUTO 08017KT 10SM OVC018 00/M02 A2947 RMK AO2 PK WND 09029/0846 SLP987 T00001022 400001022 55000 FZRANO TSNOPATQ2019-10-17T08:56:00Z70.47-157.430.0-2.2801710.029.471457998.7TRUETRUETRUETRUEMVFR0.0-2.2SPECI29.02019-10-17 09:04:03~)M5      3PASL 170856Z AUTO 00000KT 10SM CLR M07/M08 A2914 RMK AO2 SLP860 T10671083 400281067 53008 FZRANOPASL2019-10-17T08:56:00Z61.72-157.15-6.7-8.30010.029.140747986.0TRUETRUETRUEVFR0.82.8-6.7SPECI55.02019-10-17 09:04:03  )M5      3PFNO 170856Z AUTO 07012KT 10SM CLR M07/M11 A2928 RMK AO2 SLP914 T10671111 410331083 58014 FZRANOPFNO2019-10-17T08:56:00Z66.82-161.02-6.7-11.1701210.029.279528991.4TRUETRUETRUEVFR-1.4-3.3-8.3SPECI17.02019-10-17 09:04:03})M5      3PFKW 170856Z AUTO 06005KT 10SM CLR M02/M03 A2904 RMK AO2 SLP833 T10171028 400561022 53011 FZRANOPFKW2019-10-17T08:56:00Z60.8-161.43-1.7-2.860510.029.040354983.3TRUETRUETRUEVFR1.15.6-2.2SPECI8.02019-10-17 09:04:03)S5      3PFEL 170856Z AUTO 36006KT 10SM OVC033 M03/M08 A2921 RMK AO2 SLP893 T10281078 410221061 53005 FZRANOPFEL2019-10-17T08:56:00Z64.62-162.27-2.8-7.8360610.029.208662989.3TRUETRUETRUEVFR0.5-2.2-6.1METAR49.02019-10-17 09:04:03 r#);5     3KFOD 170856Z AUTO 00000KT 10SM CLR 00/M01 A3002 RMK AO2 SLP204 T00001006 58008 FZRANO $KFOD2019-10-17T08:56:00Z42.53-94.170.0-0.60010.030.020671020.4TRUETRUETRUETRUEVFR-0.8SPECI355.02019-10-17 09:04:03")W5      3PPIT 170856Z AUTO 06015KT 10SM CLR M01/M02 A2904 RMK AO2 SLP837 T10111017 400281011 53009 FZRANO TSNOPPIT2019-10-17T08:56:00Z60.9-162.43-1.1-1.7601510.029.040354983.7TRUETRUETRUETRUEVFR0.92.8-1.1SPECI4.02019-10-17 09:04:03 !)a5      3PFWS 170856Z AUTO 33006KT 10SM -RA OVC024 03/03 A2903 RMK AO2 SLP835 P0001 60001 T00330033 400671011 53015PFWS2019-10-17T08:56:00Z58.7-157.03.33.3330610.029.028543983.5TRUETRUE-RAMVFR1.56.7-1.10.01SPECI49.02019-10-17 09:04:03 6.6r')95     3KGUC 170856Z AUTO 00000KT 10SM CLR M04/M13 A3027 RMK AO2 SLP217 T10391128 56002 FZRANOKGUC2019-10-17T08:56:00Z38.52-106.92-3.9-12.80010.030.2687021021.7TRUETRUETRUEVFR-0.2SPECI2339.02019-10-17 09:04:03c&)'5    3KGDV 170856Z AUTO 23004KT 10SM CLR 03/00 A2974 RMK AO2 SLP074 T00280000 58012KGDV2019-10-17T08:56:00Z47.12-104.782.80.0230410.029.7401581007.4TRUETRUEVFR-1.2SPECI749.02019-10-17 09:04:03h%)+5    3KGBD 170856Z AUTO 18008KT 10SM CLR 07/02 A2994 RMK AO2 SLP136 T00720022 58012 $KGBD2019-10-17T08:56:00Z38.35-98.877.22.2180810.029.9409451013.6TRUETRUETRUEVFR-1.2METAR575.02019-10-17 09:04:03u$)E5     3KGAI 170856Z AUTO 28009KT 10SM OVC043 11/04 A2957 RMK AO2 SLP026 P0001 60003 T01060039 53005KGAI2019-10-17T08:56:00Z39.17-77.1710.63.9280910.029.5688971002.6TRUETRUEVFR0.50.01SPECI165.02019-10-17 09:04:03 H -H_+)'5    3KHNB 170856Z AUTO 00000KT 10SM CLR 03/02 A3006 RMK AO2 SLP183 T00280017 51003KHNB2019-10-17T08:56:00Z38.25-86.952.81.70010.030.0590551018.3TRUETRUEVFR0.3SPECI161.02019-10-17 09:04:03j*)35   3KHEF 170856Z AUTO 30015G22KT 10SM OVC055 12/03 A2961 RMK AO2 SLP032 T01170033 53002KHEF2019-10-17T08:56:00Z38.72-77.5211.73.3300152210.029.6102371003.2TRUETRUEVFR0.2METAR59.02019-10-17 09:04:03h)))5    3KHDN 170856Z AUTO 10011KT 10SM CLR 03/M11 A3012 RMK AO2 SLP153 T00331106 58008KHDN2019-10-17T08:56:00Z40.47-107.223.3-10.61001110.030.1210631015.3TRUETRUEVFR-0.8SPECI2012.02019-10-17 09:04:03o()75     3KGXY 170856Z AUTO 00000KT 10SM CLR 01/M05 A2997 RMK AO2 SLP142 T00061050 58006 FZRANOKGXY2019-10-17T08:56:00Z40.42-104.620.6-5.00010.029.9704721014.2TRUETRUETRUEVFR-0.6SPECI1420.02019-10-17 09:04:03 o/Qiot/);5     3PAEI 170856Z 01008KT 10SM CLR M06/M10 A2919 RMK AO2A SLP895 T10611105 400061093 57004 $PAEI2019-10-17T08:56:00Z64.67-147.1-6.1-10.510810.029.190945989.5TRUETRUEVFR-0.40.6-9.3SPECI167.02019-10-17 09:04:03b.)'5    3KHYS 170856Z AUTO 16006KT 10SM CLR 04/02 A2992 RMK AO2 SLP130 T00440017 58016KHYS2019-10-17T08:56:00Z38.85-99.274.41.7160610.029.9202751013.0TRUETRUEVFR-1.6METAR609.02019-10-17 09:04:03X-)#5   3KHZL 170856Z AUTO 28007G18KT 230V300 10SM BKN014 OVC019 07/03 A2939 RMK AO2KHZL2019-10-17T08:56:00Z40.98-76.07.03.028071810.029.388779TRUETRUEMVFRSPECI489.02019-10-17 09:04:03K,) 5    3KI23 170856Z AUTO 28008KT 10SM SCT029 BKN048 06/02 A2991 RMK AO1KI232019-10-17T08:56:00Z39.57-83.426.02.0280810.029.911417TRUETRUEVFRSPECI299.02019-10-17 09:04:03 cJca3)'5    3KMTW 170856Z AUTO 30006KT 10SM CLR 05/02 A2998 RMK AO2 SLP156 T00500022 58004KMTW2019-10-17T08:56:00Z44.12-87.675.02.2300610.029.979331015.6TRUETRUEVFR-0.4SPECI198.02019-10-17 09:04:03?2(y5    3KMQJ 170856Z AUTO 30006KT 10SM CLR 03/03 A2999 RMK AO1KMQJ2019-10-17T08:56:00Z39.85-85.93.03.0300610.029.991142TRUETRUEVFRSPECI263.02019-10-17 09:04:031)M5      3PAGL 170856Z AUTO 33007KT 10SM CLR M05/M07 A2922 RMK AO2 SLP891 T10501072 410061050 53006 FZRANOPAGL2019-10-17T08:56:00Z64.55-163.03-5.0-7.2330710.029.220472989.1TRUETRUETRUEVFR0.6-0.6-5.0METAR8.02019-10-17 09:04:03e0)+5    3KMNM 170856Z AUTO VRB03KT 10SM CLR 03/02 A2998 RMK AO2 SLP155 T00280022 57003 $KMNM2019-10-17T08:56:00Z45.12-87.622.82.20310.029.979331015.5TRUETRUETRUEVFR-0.3SPECI191.02019-10-17 09:04:03 p?Xpb7)'5    3KOLU 170856Z AUTO 12004KT 10SM CLR 03/01 A2995 RMK AO2 SLP149 T00330011 56013KOLU2019-10-17T08:56:00Z41.45-97.323.31.1120410.029.9498021014.9TRUETRUEVFR-1.3SPECI440.02019-10-17 09:04:03a6)'5    3KOWB 170856Z AUTO 30003KT 10SM CLR 03/03 A3007 RMK AO2 SLP185 T00330028 51003KOWB2019-10-17T08:56:00Z37.72-87.173.32.8300310.030.0708661018.5TRUETRUEVFR0.3METAR124.02019-10-17 09:04:03K5)5   3KPHN 170856Z AUTO 33021G29KT 10SM OVC026 07/01 A2976 RMK AO2KPHN2019-10-17T08:56:00Z42.92-82.527.01.0330212910.029.760826TRUETRUEMVFRSPECI198.02019-10-17 09:04:03j4)55     3KMVN 170856Z AUTO 00000KT 10SM CLR 02/01 A3009 RMK AO2 SLP196 T00170011 50000 FZRANOKMVN2019-10-17T08:56:00Z38.32-88.871.71.10010.030.0885831019.6TRUETRUETRUEVFR0.0SPECI146.02019-10-17 09:04:03 8\O;)5    3KMGN 170856Z AUTO 30003KT 10SM OVC028 06/01 A2988 RMK AO2 T00600013KMGN2019-10-17T08:56:00Z45.43-84.926.01.3300310.029.878937TRUETRUEMVFRSPECI209.02019-10-17 09:04:03V:)5    3KMYR 170856Z 32006KT 10SM CLR 11/08 A2985 RMK AO2 SLP108 T01110078 51004KMYR2019-10-17T08:56:00Z33.67-78.9211.17.8320610.029.849411010.8TRUEVFR0.4METAR8.02019-10-17 09:04:03`9)'5    3KOAJ 170856Z AUTO 25004KT 10SM CLR 09/05 A2983 RMK AO2 SLP105 T00890050 53010KOAJ2019-10-17T08:56:00Z34.82-77.628.95.0250410.029.8287411010.5TRUETRUEVFR1.0METAR29.02019-10-17 09:04:03\8)'5    3KOKK 170856Z AUTO 28005KT 10SM CLR 03/02 A3000 RMK AO2 SLP162 T00280017 50003KOKK2019-10-17T08:56:00Z40.53-86.072.81.7280510.030.01016.2TRUETRUEVFR0.3SPECI253.02019-10-17 09:04:03 :fl_?)#5    3KLTS 170856Z 00000KT 10SM CLR 05/00 A3007 RMK AO2A SLP180 T00491003 55003 $KLTS2019-10-17T08:56:00Z34.67-99.274.9-0.30010.030.0708661018.0TRUETRUEVFR-0.3SPECI420.02019-10-17 09:04:03t>)?5     3KFCI 170856Z AUTO 26005KT 10SM CLR 08/03 A2968 RMK AO2 SLP060 P0001 60001 T00830028 58002KFCI2019-10-17T08:56:00Z37.4-77.528.32.8260510.029.6811031006.0TRUETRUEVFR-0.20.010.01METAR72.02019-10-17 09:04:03N=)5    3KOEB 170856Z AUTO 29006KT 10SM SCT042 05/03 A2992 RMK AO2 T00500028KOEB2019-10-17T08:56:00Z41.92-85.035.02.8290610.029.920275TRUETRUEVFRSPECI292.02019-10-17 09:04:03@<(y5    3KMVE 170856Z AUTO 18005KT 10SM CLR 02/00 A2997 RMK AO2KMVE2019-10-17T08:56:00Z44.97-95.722.00.0180510.029.970472TRUETRUEVFRSPECI315.02019-10-17 09:04:03 <j9C(q5   3KPQN 170856Z AUTO 19005KT 10SM 03/01 A2993 RMK AO2KPQN2019-10-17T08:56:00Z43.97-96.323.01.0190510.029.929134TRUETRUESPECI529.02019-10-17 09:04:03LB)5    3KRNP 170856Z AUTO 28009KT 10SM OVC034 07/04 A2985 RMK AO2 T00650035KRNP2019-10-17T08:56:00Z43.0-84.136.53.5280910.029.84941TRUETRUEVFRSPECI224.02019-10-17 09:04:03[A)/5    3KRQB 170856Z AUTO 32005KT 10SM SCT016 SCT023 OVC039 05/03 A2989 RMK AO2 T00520033KRQB2019-10-17T08:56:00Z43.72-85.55.23.3320510.029.890747TRUETRUEVFRSPECI302.02019-10-17 09:04:03]@)!5    3KSDF 170856Z 29006KT 10SM CLR 06/02 A3002 RMK AO2 SLP168 T00610022 50002 $KSDF2019-10-17T08:56:00Z38.18-85.736.12.2290610.030.020671016.8TRUETRUEVFR0.2METAR146.02019-10-17 09:04:03 '`bG)'5    3KOFK 170856Z AUTO 12003KT 10SM CLR 03/00 A2992 RMK AO2 SLP139 T00280000 58013KOFK2019-10-17T08:56:00Z41.98-97.432.80.0120310.029.9202751013.9TRUETRUEVFR-1.3SPECI470.02019-10-17 09:04:03TF)5   3KOSC 170856Z AUTO 32012G18KT 10SM OVC024 06/02 A2979 RMK AO2 T00560018KOSC2019-10-17T08:56:00Z44.45-83.45.61.8320121810.029.790354TRUETRUEMVFRSPECI193.02019-10-17 09:04:03AE(y5    3KOWX 170856Z AUTO 28011KT 10SM CLR 05/02 A2992 RMK AO1KOWX2019-10-17T08:56:00Z41.03-83.985.02.02801110.029.920275TRUETRUEVFRSPECI233.02019-10-17 09:04:03SD)5   3KOZW 170856Z AUTO 28011G15KT 10SM OVC031 06/03 A2985 RMK AO2 T00560025KOZW2019-10-17T08:56:00Z42.62-83.975.62.5280111510.029.84941TRUETRUEVFRSPECI293.02019-10-17 09:04:03 h"?zh K)m5      3KART 170856Z AUTO 00000KT 5SM -RA BR FEW005 FEW036 OVC047 08/08 A2931 RMK AO2 SLP924 P0004 60007 T00830078 58014KART2019-10-17T08:56:00Z43.98-76.038.37.8005.029.309055992.4TRUETRUE-RA BRMVFR-1.40.04SPECI100.02019-10-17 09:04:03?J(y5    3KBBB 170856Z AUTO 15004KT 10SM CLR 01/01 A2998 RMK AO2KBBB2019-10-17T08:56:00Z45.32-95.651.01.0150410.029.97933TRUETRUEVFRSPECI317.02019-10-17 09:04:03]I)/5    3KCAD 170856Z AUTO 32005KT 10SM BKN010 BKN015 OVC037 05/04 A2986 RMK AO2 T00560042KCAD2019-10-17T08:56:00Z44.27-85.425.64.2320510.029.861221TRUETRUEMVFRSPECI398.02019-10-17 09:04:03XH)5    3KCAE 170856Z 32004KT 10SM CLR 12/03 A2987 RMK AO2 SLP113 T01170033 51005KCAE2019-10-17T08:56:00Z33.93-81.1211.73.3320410.029.8700791011.3TRUEVFR0.5METAR70.02019-10-17 09:04:03 o'AXocO)+5    3KHFF 170856Z AUTO 00000KT 10SM CLR 07/04 A2985 RMK AO2 SLP123 T00700040 50005 $KHFF2019-10-17T08:56:00Z35.02-79.57.04.00010.029.849411012.3TRUETRUETRUEVFR0.5METAR115.02019-10-17 09:04:03cN))5    3KHRT 170856Z 01008KT 10SM BKN200 13/11 A2996 RMK AO2A SLP147 T01310110 55003 $KHRT2019-10-17T08:56:00Z30.42-86.6713.111.010810.029.9586621014.7TRUETRUEVFR-0.3METAR12.02019-10-17 09:04:03`M)'5    3KVPZ 170856Z AUTO 27004KT 10SM CLR 05/02 A2999 RMK AO2 SLP158 T00500017 50000KVPZ2019-10-17T08:56:00Z41.45-87.05.01.7270410.029.9911421015.8TRUETRUEVFR0.0SPECI231.02019-10-17 09:04:03SL)5   3KY31 170856Z AUTO 33006G16KT 10SM BKN031 06/01 A2981 RMK AO2 T00600006KY312019-10-17T08:56:00Z44.25-84.186.00.633061610.029.811024TRUETRUEVFRSPECI269.02019-10-17 09:04:03  L|FS)5    3KORB 170856Z AUTO 00000KT 10SM SCT016 120 02/01 A2999 RMK AO2KORB2019-10-17T08:56:00Z48.02-92.872.01.00010.029.991142TRUETRUEVFRMETAR397.02019-10-17 09:04:03JR) 5    3KOXD 170856Z AUTO 30006KT 10SM CLR 05/03 A2996 RMK AO2 T00480032KOXD2019-10-17T08:56:00Z39.5-84.784.83.2300610.029.958662TRUETRUEVFRMETAR317.02019-10-17 09:04:03NQ)5    3KSLH 170856Z AUTO 32012KT 10SM SCT030 05/01 A2985 RMK AO2 T00480005KSLH2019-10-17T08:56:00Z45.65-84.524.80.53201210.029.84941TRUETRUEVFRMETAR195.02019-10-17 09:04:03ZP))5   3MUGM 170856Z 34006KT 9999 FEW025 FEW250 24/24 A2993 RMK SLP133 T02440239 56008MUGM2019-10-17T08:56:00Z19.9-75.224.423.934066.2129.9291341013.3VFR-0.8METAR17.02019-10-17 09:04:03 7{TW)!5    3KERY 170856Z AUTO 33004KT 10SM SCT029 BKN037 05/04 A2989 RMK AO2 T00470035KERY2019-10-17T08:56:00Z46.3-85.454.73.5330410.029.890747TRUETRUEVFRMETAR265.02019-10-17 09:04:03=V(y5    3KIMS 170856Z AUTO 00000KT 10SM CLR 01/01 A3002 RMK AO1KIMS2019-10-17T08:56:00Z38.75-85.471.01.00010.030.02067TRUETRUEVFRMETAR250.02019-10-17 09:04:036U(s5     3KLVN 170856Z AUTO 00000KT 7SM CLR 01/ A3002 RMK AO2KLVN2019-10-17T08:56:00Z44.63-93.231.0007.030.02067TRUETRUEVFRMETAR293.02019-10-17 09:04:03CT(5    3KMJQ 170856Z AUTO 17005KT 10SM SCT120 01/00 A2999 RMK AO2KMJQ2019-10-17T08:56:00Z43.63-94.971.00.0170510.029.991142TRUETRUEVFRMETAR441.02019-10-17 09:04:03 uJluq[)?5     3KIZG 170856Z AUTO 01012G22KT 3SM +RA BR SCT009 OVC017 09/08 A2907 RMK AO2 P0000 T00940078KIZG2019-10-17T08:56:00Z43.98-70.959.47.81012223.029.069881TRUETRUE+RA BRMVFR0.005METAR135.02019-10-17 09:04:03XZ)5    3KJAX 170856Z 32005KT 10SM CLR 17/12 A2989 RMK AO2 SLP122 T01670122 50001KJAX2019-10-17T08:56:00Z30.5-81.6816.712.2320510.029.8907471012.2TRUEVFR0.1METAR10.02019-10-17 09:04:03?Y(y5    3KLJF 170856Z AUTO 12003KT 10SM CLR 02/02 A3001 RMK AO2KLJF2019-10-17T08:56:00Z45.1-94.522.02.0120310.030.008858TRUETRUEVFRSPECI348.02019-10-17 09:04:03kX);5    3KLNR 170856Z AUTO 24003KT 10SM BKN040 OVC090 06/04 A3002 RMK AO2 SLP165 T00610039 58007KLNR2019-10-17T08:56:00Z43.22-90.186.13.9240310.030.020671016.5TRUETRUEVFR-0.7SPECI217.02019-10-17 09:04:03 / ;/_)g5   3KGON 170856Z AUTO 26019G28KT 10SM FEW031 11/08 A2905 RMK AO2 PK WND 27031/0819 SLP835 60001 T01060078 53038 $KGON2019-10-17T08:56:00Z41.33-72.0510.67.8260192810.029.049213983.5TRUETRUETRUEVFR3.8SPECI3.02019-10-17 09:04:03K^) 5    3KHCD 170856Z AUTO 11003KT 10SM CLR 01/01 A3001 RMK AO2 T00050005KHCD2019-10-17T08:56:00Z44.87-94.380.50.5110310.030.008858TRUETRUEVFRSPECI323.02019-10-17 09:04:03])c5   3KHYA 170856Z AUTO 22031G39KT 10SM OVC013 15/12 A2892 RMK AO2 PK WND 22039/0855 SLP793 60021 T01500117 58010KHYA2019-10-17T08:56:00Z41.67-70.2715.011.7220313910.028.91929979.3TRUETRUEMVFR-1.0SPECI22.02019-10-17 09:04:03e\))5    3KINW 170856Z AUTO VRB04KT 10SM CLR 12/M02 A3005 RMK AO2 SLP117 T01221022 58006KINW2019-10-17T08:56:00Z35.03-110.7212.2-2.20410.030.0501981011.7TRUETRUEVFR-0.6SPECI1490.02019-10-17 09:04:03 /[kc)15     3KDUG 170856Z AUTO 00000KT 10SM CLR 16/03 A3002 RMK AO2 SLP102 T01560033 56008 TSNOKDUG2019-10-17T08:56:00Z31.47-109.5815.63.30010.030.020671010.2TRUETRUETRUEVFR-0.8SPECI1265.02019-10-17 09:04:03Fb)5    3KEVM 170856Z AUTO 00000KT 10SM OVC120 03/02 A3000 RMK AO2 T00260021KEVM2019-10-17T08:56:00Z47.42-92.52.62.10010.030.0TRUETRUEVFRSPECI421.02019-10-17 09:04:03Na)5    3KFFX 170856Z AUTO 23003KT 10SM OVC029 04/04 A2992 RMK AO2 T00420040KFFX2019-10-17T08:56:00Z43.43-86.04.24.0230310.029.920275TRUETRUEMVFRSPECI236.02019-10-17 09:04:03K`) 5    3KFPK 170856Z AUTO 29005KT 10SM CLR 04/02 A2988 RMK AO2 T00420021KFPK2019-10-17T08:56:00Z42.57-84.824.22.1290510.029.878937TRUETRUEVFRSPECI272.02019-10-17 09:04:03 ?yAg(}5    3KCKC 170856Z AUTO 00000KT 10SM CLR M01/M03 A2998 RMK AO2KCKC2019-10-17T08:56:00Z47.83-90.37-1.0-3.00010.029.97933TRUETRUEVFRSPECI548.02019-10-17 09:04:03@f(y5    3KCKN 170856Z AUTO 14006KT 10SM CLR 01/01 A2996 RMK AO2KCKN2019-10-17T08:56:00Z47.85-96.621.01.0140610.029.958662TRUETRUEVFRSPECI273.02019-10-17 09:04:03Se)5   3KCVX 170856Z AUTO 35009G20KT 10SM OVC024 08/03 A2992 RMK AO2 T00830030KCVX2019-10-17T08:56:00Z45.3-85.278.33.035092010.029.920275TRUETRUEMVFRSPECI204.02019-10-17 09:04:03bd)15    3KDAY 170856Z 29011KT 10SM BKN048 BKN220 07/02 A2995 RMK AO2 SLP143 T00720017 53002KDAY2019-10-17T08:56:00Z39.9-84.227.21.72901110.029.9498021014.3TRUEVFR0.2SPECI305.02019-10-17 09:04:03 G"(2Gek))5    3KNFL 170856Z AUTO 00000KT 10SM CLR 11/M10 A2975 RMK AO2 SLP055 T01111100 56020KNFL2019-10-17T08:56:00Z39.42-118.711.1-10.00010.029.7490161005.5TRUETRUEVFR-2.0METAR1199.02019-10-17 09:04:03pj)C5    3KNUW 170856Z 12009KT 10SM FEW020 FEW030 SCT045 11/08 A2968 RMK AO2 SLP051 T01110078 50000 $KNUW2019-10-17T08:56:00Z48.35-122.6511.17.8120910.029.6811031005.1TRUETRUEVFR0.0METAR14.02019-10-17 09:04:03ti)M5    3PHBK 170856Z AUTO 06003KT 10SM SCT060 23/21 A3004 RMK AO2 RAE00 SLP173 6//// T02280206 50012 PNOPHBK2019-10-17T08:56:00Z22.03-159.7822.820.660310.030.0413381017.3TRUETRUEVFR1.2METAR8.02019-10-17 09:04:03Xh)5    3KCHS 170856Z 26005KT 10SM CLR 12/10 A2986 RMK AO2 SLP111 T01170100 53002KCHS2019-10-17T08:56:00Z32.9-80.0311.710.0260510.029.8612211011.1TRUEVFR0.2METAR13.02019-10-17 09:04:03 ^F^bo)'5    3KPRN 170856Z AUTO 35005KT 10SM CLR 11/07 A2999 RMK AO2 SLP153 T01110072 55000KPRN2019-10-17T08:56:00Z31.85-86.6211.17.2350510.029.9911421015.3TRUETRUEVFR0.0SPECI138.02019-10-17 09:04:03Mn) 5     3KNSI 170856Z AUTO 29016KT 10SM CLR A2981 RMK AO2 SLPNO 56010 $KNSI2019-10-17T08:56:00Z33.22-119.452901610.029.811024TRUETRUETRUEVFR-1.0METAR154.02019-10-17 09:04:03hm)+5    3KNPA 170856Z AUTO 36008KT 10SM CLR 14/11 A2997 RMK AO2 SLP150 T01390106 58005 $KNPA2019-10-17T08:56:00Z30.35-87.3213.910.6360810.029.9704721015.0TRUETRUETRUEVFR-0.5METAR9.02019-10-17 09:04:03sl)K5     3KMQE 170856Z AUTO 20015G21KT 13/13 A2881 RMK AO1 PK WND 17027/0832 SLP764 60080 T01330133 55063KMQE2019-10-17T08:56:00Z42.22-71.1213.313.3200152128.81004976.4TRUETRUE-6.30.8METAR199.02019-10-17 09:04:03  GiNs)5     3KNUC 170856Z AUTO 24009KT CLR 16/ A2983 RMK AO2 SLP099 T0156 56012KNUC2019-10-17T08:56:00Z33.02-118.5715.6240929.8287411009.9TRUETRUE-1.2SPECI55.02019-10-17 09:04:03Xr)!5    3KP53 170856Z AUTO 35011KT 07/03 A2992 RMK AO1 SLP137 60001 T00720033 52001KP532019-10-17T08:56:00Z46.42-86.657.23.33501129.9202751013.7TRUETRUE0.1SPECI187.02019-10-17 09:04:03Sq)5    3KP60 170856Z AUTO 31003KT M03/M07 A3000 RMK AO1 SLP120 T10331067 56020KP602019-10-17T08:56:00Z44.55-110.42-3.3-6.7310330.01012.0TRUETRUE-2.0SPECI2388.02019-10-17 09:04:03Zp)5    3K79J 170856Z AUTO 10SM CLR 12/09 A2998 RMK AO2 SLP150 T01220094 56006 $K79J2019-10-17T08:56:00Z31.32-86.412.29.410.029.979331015.0TRUETRUETRUEVFR-0.6METAR94.02019-10-17 09:04:03 88Yw)+5     3KNOG 170856Z AUTO 01010KT 10SM SCT018 BKN070 OVC095 A3002 RMK AO2 SLPNO 56020 $KNOG2019-10-17T08:56:00Z27.9-98.05101010.030.02067TRUETRUETRUEVFR-2.0SPECI78.02019-10-17 09:04:03]v)%5    3KNMM 170856Z AUTO 00000KT 9SM CLR 06/06 A3005 RMK AO2 SLP184 T00610056 56004KNMM2019-10-17T08:56:00Z32.53-88.576.15.6009.030.0501981018.4TRUETRUEVFR-0.4METAR97.02019-10-17 09:04:03u)k5      3KMHS 170856Z AUTO 00000KT 7SM -RA SCT019 BKN026 OVC042 07/06 A2986 RMK AO2 SLP113 P0004 60004 T00720056 53005 $KMHS2019-10-17T08:56:00Z41.32-122.327.25.6007.029.8612211011.3TRUETRUETRUE-RAMVFR0.50.04SPECI1078.02019-10-17 09:04:03lt)-5    3KNID 170856Z AUTO 30004KT 10SM CLR 15/M05 A2981 RMK AO2 SLP078 T01501050 56011 $KNID2019-10-17T08:56:00Z35.67-117.6715.0-5.0300410.029.8110241007.8TRUETRUETRUEVFR-1.1SPECI696.02019-10-17 09:04:03 K(UK{)Y5      3PASK 170856Z AUTO 07013KT 10SM CLR M05/M08 A2934 RMK AO2 SLP932 6//// T10501083 410221061 51006 FZRANOPASK2019-10-17T08:56:00Z66.6-160.0-5.0-8.3701310.029.338583993.2TRUETRUETRUEVFR0.6-2.2-6.1SPECI8.02019-10-17 09:04:03Mz)5    3KP28 170856Z AUTO 15005KT 08/02 A3000 RMK AO1 SLP157 T00830022 58006KP282019-10-17T08:56:00Z37.28-98.558.32.2150530.01015.7TRUETRUE-0.6METAR469.02019-10-17 09:04:03ey)-5    3KNGP 170856Z AUTO 01013KT 10SM FEW100 18/13 A2999 RMK AO2 SLP154 T01830133 56018KNGP2019-10-17T08:56:00Z27.68-97.2718.313.3101310.029.9911421015.4TRUETRUEVFR-1.8METAR6.02019-10-17 09:04:03gx)+5    3KNSE 170856Z AUTO VRB04KT 10SM CLR 12/10 A2999 RMK AO2 SLP140 T01170100 55003 $KNSE2019-10-17T08:56:00Z30.73-87.0211.710.00410.029.9911421014.0TRUETRUETRUEVFR-0.3METAR61.02019-10-17 09:04:03 p~)95     3PARY 170856Z AUTO 07007KT 10SM CLR M08/M13 A2922 RMK AO2 SLP912 T10831128 53002 FZRANOPARY2019-10-17T08:56:00Z64.73-155.47-8.3-12.870710.029.220472991.2TRUETRUETRUEVFR0.2SPECI199.02019-10-17 09:04:03 })5       3PASA 170856Z AUTO 02009KT 9SM -SN OVC018 01/M02 A2920 RMK AO2 RAE48SNB48 SLP889 P0000 60000 T00111017 400500011 53009 FZRANOPASA2019-10-17T08:56:00Z63.68-170.51.1-1.72099.029.199802988.9TRUETRUETRUE-SNMVFR0.95.01.10.005SPECI16.02019-10-17 09:04:03|)[5     3PASD 170856Z AUTO 27014KT 10SM SCT019 BKN027 06/02 A2926 RMK AO2 SLP910 60000 T00560022 400940044 53010PASD2019-10-17T08:56:00Z55.33-160.55.62.22701410.029.258858991.0TRUETRUEMVFR1.09.44.4SPECI7.02019-10-17 09:04:03 )o5      3PAPM 170856Z AUTO 12011KT 10SM -RA BKN021 OVC029 03/02 A2902 RMK AO2 SLP829 P0002 60005 T00280017 400560011 53009PAPM2019-10-17T08:56:00Z59.02-161.822.81.71201110.029.019686982.9TRUETRUE-RAMVFR0.95.61.10.02SPECI5.02019-10-17 09:04:03|)K5      3PAPO 170856Z AUTO 11006KT 9SM CLR M04/M06 A2935 RMK AO2 SLP939 T10441056 400331050 53004 FZRANOPAPO2019-10-17T08:56:00Z68.35-166.8-4.4-5.611069.029.350393993.9TRUETRUETRUEVFR0.43.3-5.0SPECI6.02019-10-17 09:04:03s)=5     3PARS 170856Z AUTO 04009KT 10SM CLR M03/M06 A2910 RMK AO2 SLP857 T10331056 53007 FZRANO $PARS2019-10-17T08:56:00Z61.77-161.32-3.3-5.640910.029.09941985.7TRUETRUETRUETRUEVFR0.7SPECI16.02019-10-17 09:04:03 d)A5     3PAOU 170856Z AUTO 10SM SCT030 BKN036 A2920 RMK AO2 UPB06E17 SLPNO 6//// 53007 FZRANO PNO $PAOU2019-10-17T08:56:00Z56.0-161.1710.029.199802TRUETRUETRUETRUEVFR0.7SPECI4.02019-10-17 09:04:03)]5     3PAPG 170856Z AUTO 09003KT 10SM SCT065 BKN075 BKN110 06/06 A2904 RMK AO2 SLP837 T00610056 401060056 58017PAPG2019-10-17T08:56:00Z56.82-132.976.15.690310.029.040354983.7TRUETRUEVFR-1.710.65.6SPECI15.02019-10-17 09:04:03)5     3PAPH 170856Z AUTO 27020G31KT 9SM -RA SCT034 BKN043 06/01 A2910 RMK AO2 PK WND 29032/0840 RAB54 SLP856 P0000 60000 T00610011 53021PAPH2019-10-17T08:56:00Z56.95-158.626.11.127020319.029.09941985.6TRUETRUE-RAVFR2.10.005SPECI29.02019-10-17 09:04:03 )Q5      3PAMK 170856Z AUTO 11009KT 10SM OVC065 00/M03 A2917 RMK AO2 SLP878 T00001033 400221011 53008 FZRANOPAMK2019-10-17T08:56:00Z63.48-162.120.0-3.3110910.029.170275987.8TRUETRUETRUEVFR0.82.2-1.1SPECI28.02019-10-17 09:04:03u)A5     3PAMY 170856Z AUTO 05013KT 10SM OVC011 03/01 A2904 RMK AO2 SLP835 T00280011 400501006 53014PAMY2019-10-17T08:56:00Z60.37-166.272.81.1501310.029.040354983.5TRUETRUEMVFR1.45.0-0.6SPECI13.02019-10-17 09:04:03)Q5      3PANW 170856Z AUTO 35008KT 10SM OVC018 00/M03 A2903 RMK AO2 SLP847 T00001033 400611006 53007 FZRANOPANW2019-10-17T08:56:00Z59.45-157.370.0-3.3350810.029.028543984.7TRUETRUETRUEMVFR0.76.1-0.6SPECI92.02019-10-17 09:04:03 ~ )M5      3PALG 170856Z AUTO VRB06KT 10SM CLR M01/M06 A2906 RMK AO2 SLP845 T10111056 400391011 53004 FZRANOPALG2019-10-17T08:56:00Z61.53-160.33-1.1-5.60610.029.061024984.5TRUETRUETRUEVFR0.43.9-1.1METAR17.02019-10-17 09:04:03 )s5       3PAMB 170856Z AUTO 04011KT 10SM -RA OVC034 02/01 A2903 RMK AO2 SLP833 P0001 60005 T00170006 400391011 51007 FZRANO $PAMB2019-10-17T08:56:00Z58.98-159.051.70.6401110.029.028543983.3TRUETRUETRUETRUE-RAVFR0.73.9-1.10.010.05METAR16.02019-10-17 09:04:03)S5      3PAMH 170856Z AUTO 00000KT 10SM OVC023 M04/M08 A2916 RMK AO2 SLP879 T10441083 410061128 57002 FZRANOPAMH2019-10-17T08:56:00Z63.9-152.32-4.4-8.30010.029.161417987.9TRUETRUETRUEMVFR-0.2-0.6-12.8METAR214.02019-10-17 09:04:03 4,G4 )m5    3KUCP 170856Z AUTO 28009G15KT 10SM -RA BKN015 OVC022 06/05 A2969 RMK AO2 RAB19 SLP073 6//// T00610050 53002 PNO $KUCP2019-10-17T08:56:00Z41.03-80.426.15.028091510.029.689961007.3TRUETRUETRUE-RAMVFR0.2SPECI327.02019-10-17 09:04:03_ )%5    3KVBT 170856Z AUTO 17003KT 8SM CLR 06/05 A3013 RMK AO2 SLP206 T00560050 51002KVBT2019-10-17T08:56:00Z36.35-94.225.65.017038.030.1299211020.6TRUETRUEVFR0.2METAR395.02019-10-17 09:04:03` )%5    3KVIS 170856Z AUTO 31006KT 9SM CLR 14/09 A2984 RMK AO2 SLP111 T01440089 55005KVIS2019-10-17T08:56:00Z36.32-119.414.48.931069.029.8405511011.1TRUETRUEVFR-0.5SPECI89.02019-10-17 09:04:03h )35    3KYKN 170856Z AUTO 10006KT 10SM CLR 03/01 A2991 RMK AO2 SLP147 60000 T00280011 56018KYKN2019-10-17T08:56:00Z42.92-97.372.81.1100610.029.9114171014.7TRUETRUEVFR-1.8SPECI398.02019-10-17 09:04:03 I '0Ia)+5     3KSLG 170856Z AUTO 00000KT 6SM BR CLR 04/03 A3011 RMK AO2 SLP198 T00390033 50001KSLG2019-10-17T08:56:00Z36.2-94.473.93.3006.030.1092531019.8TRUETRUEBRVFR0.1METAR300.02019-10-17 09:04:03q)75     3KSMN 170856Z AUTO 13003KT 10SM CLR 02/M02 A2973 RMK AO2 SLP066 T00221017 56016 FZRANOKSMN2019-10-17T08:56:00Z45.12-113.872.2-1.7130310.029.7312981006.6TRUETRUETRUEVFR-1.6SPECI1233.02019-10-17 09:04:03`)'5    3KSRC 170856Z AUTO 34006KT 10SM CLR 08/06 A3012 RMK AO2 SLP204 T00780061 51005KSRC2019-10-17T08:56:00Z35.22-91.737.86.1340610.030.1210631020.4TRUETRUEVFR0.5METAR80.02019-10-17 09:04:03m)55     3KTVF 170856Z AUTO 14007KT 10SM CLR 01/01 A2996 RMK AO2 SLP160 T00110006 56009 FZRANOKTVF2019-10-17T08:56:00Z48.07-96.171.10.6140710.029.9586621016.0TRUETRUETRUEVFR-0.9SPECI340.02019-10-17 09:04:03Y88@HPX`hpx (08@HPX`hpx (08@HPX`hpx #'+/3 #'+/37;?CGKOSW[_cgkosw{~ "&*.·2÷5ķ8ŷ;Ʒ>ǷAȷDɷGʷJ˷N̷RͷVηZϷ^зaѷdҷhӷlԷpշtַx׷|طٷڷ۷ ܷݷ޷߷#'+/37;>AEIMQU L0&LT)5      3KPWG 170856Z AUTO 00000KT 10SM CLR A3008 RMK AO2 SLPNO 58013 FZRANO $KPWG2019-10-17T08:56:00Z31.47-97.320010.030.079725TRUETRUETRUETRUEVFR-1.3SPECI180.02019-10-17 09:04:03)Y5      3KPWT 170856Z AUTO 23007KT 10SM -RA OVC004 11/10 A2969 RMK AO2 RAB42 SLP072 P0000 60000 T01060100 51002KPWT2019-10-17T08:56:00Z47.5-122.7510.610.0230710.029.689961007.2TRUETRUE-RALIFR0.20.005SPECI147.02019-10-17 09:04:03_)'5    3KSGT 170856Z AUTO 36005KT 10SM CLR 07/06 A3010 RMK AO2 SLP192 T00720061 53000KSGT2019-10-17T08:56:00Z34.6-91.577.26.1360510.030.1003931019.2TRUETRUEVFR0.0METAR68.02019-10-17 09:04:03e))5    3KSGU 170856Z AUTO 09005KT 10SM CLR 17/M07 A2989 RMK AO2 SLP093 T01721072 58006KSGU2019-10-17T08:56:00Z37.07-113.5217.2-7.290510.029.8907471009.3TRUETRUEVFR-0.6SPECI896.02019-10-17 09:04:03 ],D]a)'5    3KPRX 170856Z AUTO 02005KT 10SM CLR 08/06 A3009 RMK AO2 SLP206 T00780061 58006KPRX2019-10-17T08:56:00Z33.62-95.457.86.120510.030.0885831020.6TRUETRUEVFR-0.6SPECI167.02019-10-17 09:04:03b)'5    3KPTN 170856Z AUTO 04011KT 10SM CLR 15/12 A2999 RMK AO2 SLP157 T01500117 58012KPTN2019-10-17T08:56:00Z29.72-91.3215.011.7401110.029.9911421015.7TRUETRUEVFR-1.2METAR3.02019-10-17 09:04:03a)'5    3KPTV 170856Z AUTO 00000KT 10SM CLR 13/06 A2985 RMK AO2 SLP106 T01330061 55005KPTV2019-10-17T08:56:00Z36.02-119.0713.36.10010.029.849411010.6TRUETRUEVFR-0.5SPECI135.02019-10-17 09:04:03g))5    3KPVU 170856Z AUTO 12006KT 10SM CLR 11/M06 A2991 RMK AO2 SLP091 T01111056 56012KPVU2019-10-17T08:56:00Z40.22-111.7211.1-5.6120610.029.9114171009.1TRUETRUEVFR-1.2SPECI1369.02019-10-17 09:04:03 W1=W`)'5    3KOCH 170856Z AUTO 00000KT 10SM CLR 08/08 A3007 RMK AO2 SLP184 T00830083 58007KOCH2019-10-17T08:56:00Z31.57-94.728.38.30010.030.0708661018.4TRUETRUEVFR-0.7SPECI108.02019-10-17 09:04:03n)75     3KOTG 170856Z AUTO 15003KT 10SM CLR 00/M01 A2998 RMK AO2 SLP167 T00001006 58010 FZRANOKOTG2019-10-17T08:56:00Z43.63-95.570.0-0.6150310.029.979331016.7TRUETRUETRUEVFR-1.0SPECI480.02019-10-17 09:04:03b)'5    3KOTH 170856Z AUTO 16007KT 10SM CLR 11/10 A2987 RMK AO2 SLP115 T01110100 51007KOTH2019-10-17T08:56:00Z43.42-124.2511.110.0160710.029.8700791011.5TRUETRUEVFR0.7SPECI4.02019-10-17 09:04:03a)'5    3KPIB 170856Z AUTO 36006KT 10SM CLR 09/09 A3003 RMK AO2 SLP169 T00940089 58009KPIB2019-10-17T08:56:00Z31.47-89.329.48.9360610.030.0295281016.9TRUETRUEVFR-0.9METAR91.02019-10-17 09:04:03 <!<_")'5      3KMKY 170856Z AUTO 28003KT 10SM FEW019 A2990 RMK AO2 SLPNO 56010 FZRANO TSNO $KMKY2019-10-17T08:56:00Z26.0-81.67280310.029.899607TRUETRUETRUETRUETRUEVFR-1.0SPECI2.02019-10-17 09:04:03m!)55     3KMML 170856Z AUTO 16007KT 10SM CLR 02/00 A2997 RMK AO2 SLP159 T00170000 58014 FZRANOKMML2019-10-17T08:56:00Z44.45-95.821.70.0160710.029.9704721015.9TRUETRUETRUEVFR-1.4METAR359.02019-10-17 09:04:03b )'5    3KMQY 170856Z AUTO 26003KT 10SM CLR 05/03 A3007 RMK AO2 SLP191 T00500033 58002KMQY2019-10-17T08:56:00Z36.02-86.525.03.3260310.030.0708661019.1TRUETRUEVFR-0.2METAR166.02019-10-17 09:04:03~)c5   3KMSV 170856Z AUTO 29015G21KT 10SM OVC020 07/04 A2925 RMK AO2 PK WND 30027/0807 SLP908 60000 T00670039 56013KMSV2019-10-17T08:56:00Z41.7-74.786.73.9290152110.029.25990.8TRUETRUEMVFR-1.3SPECI428.02019-10-17 09:04:03 K6Ke&)-5    3KLRD 170856Z AUTO 02006KT 10SM FEW070 17/09 A3005 RMK AO2 SLP173 T01720094 58014KLRD2019-10-17T08:56:00Z27.55-99.4717.29.420610.030.0501981017.3TRUETRUEVFR-1.4SPECI155.02019-10-17 09:04:03a%)'5    3KLZU 170856Z AUTO 28006KT 10SM CLR 08/05 A2993 RMK AO2 SLP143 T00780050 51002KLZU2019-10-17T08:56:00Z33.98-83.977.85.0280610.029.9291341014.3TRUETRUEVFR0.2SPECI323.02019-10-17 09:04:03`$)'5    3KM19 170856Z AUTO 32005KT 10SM CLR 06/05 A3013 RMK AO2 SLP202 T00560050 53005KM192019-10-17T08:56:00Z35.65-91.175.65.0320510.030.1299211020.2TRUETRUEVFR0.5SPECI73.02019-10-17 09:04:03w#)A5      3KMKT 170856Z AUTO 13005KT 10SM CLR 02/02 A3002 RMK AO2 SLP176 60000 T00170017 56013 FZRANOKMKT2019-10-17T08:56:00Z44.22-93.921.71.7130510.030.020671017.6TRUETRUETRUEVFR-1.30.005METAR311.02019-10-17 09:04:03 G#2Ge*)55     3KJRB 170856Z AUTO 27014G22KT FEW041 12/06 A2929 RMK AO2 SLP918 T01170061 53005 PWINOKJRB2019-10-17T08:56:00Z40.7-74.0211.76.1270142229.291338991.8TRUETRUETRUE0.5SPECI7.02019-10-17 09:04:03k));5    3KKLS 170856Z AUTO 15005KT 10SM FEW005 OVC070 11/11 A2976 RMK AO2 SLP082 T01110106 50004KKLS2019-10-17T08:56:00Z46.12-122.911.110.6150510.029.7608261008.2TRUETRUEVFR0.4SPECI5.02019-10-17 09:04:03m();5    3KLGD 170856Z AUTO 30012KT 10SM FEW029 SCT110 12/05 A2974 RMK AO2 SLP056 T01170050 53017KLGD2019-10-17T08:56:00Z45.27-118.011.75.03001210.029.7401581005.6TRUETRUEVFR1.7SPECI827.02019-10-17 09:04:03d')'5    3KLPC 170856Z AUTO 28007KT 10SM CLR 12/11 A2989 RMK AO2 SLP123 T01220111 55001KLPC2019-10-17T08:56:00Z34.67-120.4712.211.1280710.029.8907471012.3TRUETRUEVFR-0.1SPECI27.02019-10-17 09:04:03 W)=W`.)'5    3KGTU 170856Z AUTO 00000KT 10SM CLR 09/06 A3007 RMK AO2 SLP183 T00940056 58020KGTU2019-10-17T08:56:00Z30.68-97.689.45.60010.030.0708661018.3TRUETRUEVFR-2.0METAR240.02019-10-17 09:04:03f-))5    3KHND 170856Z AUTO 19007KT 10SM CLR 18/M02 A2984 RMK AO2 SLP098 T01831017 56012KHND2019-10-17T08:56:00Z35.98-115.1318.3-1.7190710.029.8405511009.8TRUETRUEVFR-1.2SPECI749.02019-10-17 09:04:03e,)-5    3KHYI 170856Z AUTO 01005KT 10SM BKN120 14/07 A3005 RMK AO2 SLP171 T01440072 58022KHYI2019-10-17T08:56:00Z29.88-97.8714.47.210510.030.0501981017.1TRUETRUEVFR-2.2SPECI182.02019-10-17 09:04:03f+)/5    3KILE 170856Z AUTO 10SM CLR 09/06 A3008 RMK AO2 SLP177 6//// T00890061 58015 PNO $KILE2019-10-17T08:56:00Z31.07-97.678.96.110.030.0797251017.7TRUETRUETRUEVFR-1.5METAR258.02019-10-17 09:04:03 G%>Gq2)95     3KFRM 170856Z AUTO 17005KT 10SM CLR M01/M02 A3001 RMK AO2 SLP177 T10061017 58008 FZRANOKFRM2019-10-17T08:56:00Z43.63-94.42-0.6-1.7170510.030.0088581017.7TRUETRUETRUEVFR-0.8SPECI354.02019-10-17 09:04:03a1)'5    3KGAD 170856Z AUTO 34006KT 10SM CLR 07/05 A3002 RMK AO2 SLP169 T00670050 58002KGAD2019-10-17T08:56:00Z33.97-86.076.75.0340610.030.020671016.9TRUETRUEVFR-0.2SPECI173.02019-10-17 09:04:03n0);5     3KGPZ 170856Z AUTO 00000KT 10SM BKN120 02/02 A3001 RMK AO2 SLP177 T00170017 56007 FZRANOKGPZ2019-10-17T08:56:00Z47.22-93.521.71.70010.030.0088581017.7TRUETRUETRUEVFR-0.7SPECI413.02019-10-17 09:04:03a/)'5    3KGTR 170856Z AUTO 26003KT 10SM CLR 07/07 A3005 RMK AO2 SLP183 T00720067 58004KGTR2019-10-17T08:56:00Z33.45-88.577.26.7260310.030.0501981018.3TRUETRUEVFR-0.4SPECI80.02019-10-17 09:04:03 5)Q5      3PAWS 170856Z AUTO 00000KT 10SM OVC075 02/M04 A2906 RMK AO2 SLP847 T00171044 400441011 53002 FZRANOPAWS2019-10-17T08:56:00Z61.57-149.531.7-4.40010.029.061024984.7TRUETRUETRUEVFR0.24.4-1.1SPECI107.02019-10-17 09:04:034)S5      3PFKT 170856Z AUTO 09006KT 10SM OVC032 M03/M08 A2924 RMK AO2 SLP904 T10281078 410111050 53008 FZRANOPFKT2019-10-17T08:56:00Z65.33-166.47-2.8-7.890610.029.241142990.4TRUETRUETRUEVFR0.8-1.1-5.0METAR9.02019-10-17 09:04:033)S5      3PFYU 170856Z AUTO 04005KT 10SM SCT055 M07/M08 A2938 RMK AO2 SLP971 T10671083 410391117 57006 FZRANOPFYU2019-10-17T08:56:00Z66.57-145.27-6.7-8.340510.029.379921997.1TRUETRUETRUEVFR-0.6-3.9-11.7SPECI131.02019-10-17 09:04:03 ! !^8)55     3PAVD 170856Z AUTO 06003KT 10SM BKN090 OVC100 01/M02 RMK AO2 SLPNO T00111017 FZRANO $PAVD2019-10-17T08:56:00Z61.13-146.251.1-1.760310.0TRUETRUETRUETRUEVFRSPECI37.02019-10-17 09:04:037)M5      3PAWM 170856Z AUTO 36007KT 10SM CLR M06/M10 A2921 RMK AO2 SLP896 T10561100 410111072 53005 FZRANOPAWM2019-10-17T08:56:00Z64.68-163.42-5.6-10.0360710.029.208662989.6TRUETRUETRUEVFR0.5-1.1-7.2METAR82.02019-10-17 09:04:03m6)75     3PAWN 170856Z AUTO 01006KT 9SM CLR M07/M11 A2935 RMK AO2 SLP953 T10721111 53004 FZRANOPAWN2019-10-17T08:56:00Z67.57-162.98-7.2-11.11069.029.350393995.3TRUETRUETRUEVFR0.4SPECI30.02019-10-17 09:04:03 ;){5       3PATG 170856Z AUTO 36004KT 9SM -RA BKN014 OVC023 02/02 A2904 RMK AO2 SLP928 P0002 60010 T00220017 400561011 53015 FZRANOPATG2019-10-17T08:56:00Z59.05-160.382.21.736049.029.040354992.8TRUETRUETRUE-RAMVFR1.55.6-1.10.02SPECI4.02019-10-17 09:04:03~:)Q5     3PAVA 170856Z AUTO 05010KT 10SM CLR M02/M03 A2911 RMK AO2 SLP941 6//// T10221033 53009 FZRANO PNO $PAVA2019-10-17T08:56:00Z61.53-165.6-2.2-3.3501010.029.111221994.1TRUETRUETRUETRUEVFR0.9METAR23.02019-10-17 09:04:03;9)75    3PAVC 170856Z AUTO 25015G28KT 10SM BKN030 BKN040 BKN055 04/01 A2929 RMK AO2 PK WND 27028/0853 RAE03B23E37 SLP923 P0000 60005 T00440006 400890017 50005PAVC2019-10-17T08:56:00Z55.12-162.274.40.6250152810.029.291338992.3TRUETRUEMVFR0.58.91.70.0050.05METAR47.02019-10-17 09:04:03 >)[5       3PAKI 170856Z AUTO 05010KT 10SM SCT011 02/01 A2899 RMK AO2 SLP820 60000 T00170011 400440011 53009 FZRANOPAKI2019-10-17T08:56:00Z59.93-164.031.71.1501010.028.990158982.0TRUETRUETRUEVFR0.94.41.10.005METAR4.02019-10-17 09:04:03=){5       3PASX 170856Z AUTO 00000KT 10SM UP OVC014 00/M01 A2908 RMK AO2 UPB50 SLP857 P0000 60000 T00001011 400061006 56001 FZRANOPASX2019-10-17T08:56:00Z60.48-151.030.0-1.10010.029.078741985.7TRUETRUETRUEUPMVFR-0.10.6-0.60.005SPECI32.02019-10-17 09:04:03<)S5      3PATE 170856Z AUTO 13007KT 10SM OVC029 M04/M09 A2921 RMK AO2 SLP898 T10441089 410221067 53008 FZRANOPATE2019-10-17T08:56:00Z65.23-166.33-4.4-8.9130710.029.208662989.8TRUETRUETRUEMVFR0.8-2.2-6.7SPECI90.02019-10-17 09:04:03 A)M5      3PAIN 170856Z AUTO 00000KT 10SM CLR M12/M14 A2907 RMK AO2 SLP885 T11221139 410061167 58004 FZRANOPAIN2019-10-17T08:56:00Z63.73-148.92-12.2-13.90010.029.069881988.5TRUETRUETRUEVFR-0.4-0.6-16.7METAR524.02019-10-17 09:04:03}@)S5      3PAIW 170856Z AUTO 05006KT 10SM OVC029 M03/M06 A2923 RMK AO2 SLP898 T10281056 400001061 53004 FZRANOPAIW2019-10-17T08:56:00Z65.62-168.1-2.8-5.650610.029.22933989.8TRUETRUETRUEMVFR0.4-6.1METAR7.02019-10-17 09:04:03?)a5       3PAKH 170856Z AUTO 02003KT BKN015 OVC022 04/04 A2898 RMK AO2 SLP814 60005 T00440044 400780028 53004 PWINO $PAKH2019-10-17T08:56:00Z56.93-154.184.44.420328.981298981.4TRUETRUETRUETRUE0.47.82.80.05METAR14.02019-10-17 09:04:03 D)]5     3PAHY 170856Z AUTO 09010KT 7SM RA BKN022 BKN028 OVC033 09/06 A2895 RMK AO2 SLP802 6//// T00890061 56009 $PAHY2019-10-17T08:56:00Z55.2-132.838.96.190107.028.948818980.2TRUETRUETRUERAMVFR-0.9METAR1.02019-10-17 09:04:03C)S5     3PAIG 170856Z AUTO 08005KT 10SM BKN080 OVC095 04/03 A2899 RMK AO2 SLP829 T00390028 400831011 53007 $PAIG2019-10-17T08:56:00Z59.32-155.93.92.880510.028.990158982.9TRUETRUETRUEVFR0.78.3-1.1METAR28.02019-10-17 09:04:03B)M5      3PAIK 170856Z AUTO 06007KT 10SM CLR M06/M11 A2936 RMK AO2 SLP946 T10561111 410221083 51007 FZRANOPAIK2019-10-17T08:56:00Z66.98-160.43-5.6-11.160710.029.359253994.6TRUETRUETRUEVFR0.7-2.2-8.3METAR51.02019-10-17 09:04:03 G)S5     3PAGH 170856Z AUTO 10014G19KT 10SM CLR M04/M11 A2936 RMK AO2 SLP948 T10441106 410171056 50002 FZRANOPAGH2019-10-17T08:56:00Z66.88-157.17-4.4-10.6100141910.029.359253994.8TRUETRUETRUEVFR0.2-1.7-5.6METAR60.02019-10-17 09:04:03F)Q5      3PAGM 170856Z AUTO 02015KT 10SM OVC048 01/M03 A2921 RMK AO2 SLP897 T00111033 400440006 53008 FZRANOPAGM2019-10-17T08:56:00Z63.77-171.731.1-3.3201510.029.208662989.7TRUETRUETRUEVFR0.84.40.6METAR8.02019-10-17 09:04:03}E)Q5      3PAGS 170856Z AUTO 33005KT 1SM BR OVC003 06/06 A2908 RMK AO2 SLP846 T00560056 400720044 58015 RVRNOPAGS2019-10-17T08:56:00Z58.42-135.735.65.633051.029.078741984.6TRUETRUEBRLIFR-1.57.24.4METAR9.02019-10-17 09:04:03 J)o5       3PADL 170856Z AUTO 36009KT 10SM -RA OVC037 01/01 A2903 RMK AO2 SLP835 P0001 60003 T00110006 400501022 53008 FZRANOPADL2019-10-17T08:56:00Z59.05-158.51.10.6360910.029.028543983.5TRUETRUETRUE-RAVFR0.85.0-2.20.010.03METAR26.02019-10-17 09:04:036I)35    3PADU 170856Z AUTO 25014G26KT 10SM FEW035 SCT050 BKN065 07/M01 A2946 RMK AO2 PK WND 27031/0836 RAB37E48 SLP982 P0001 60001 T00671011 400830044 51006PADU2019-10-17T08:56:00Z53.9-166.536.7-1.1250142610.029.459646998.2TRUETRUEVFR0.68.34.40.010.01METAR4.02019-10-17 09:04:03H)M5      3PAGA 170856Z AUTO 01006KT 10SM CLR M09/M12 A2927 RMK AO2 SLP916 T10941117 410111117 51005 FZRANOPAGA2019-10-17T08:56:00Z64.73-156.93-9.4-11.710610.029.27067991.6TRUETRUETRUEVFR0.5-1.1-11.7SPECI46.02019-10-17 09:04:03 R &:RbN)'5    3KENV 170856Z AUTO 00000KT 10SM CLR 08/01 A2983 RMK AO2 SLP092 T00780006 56018KENV2019-10-17T08:56:00Z40.72-114.027.80.60010.029.8287411009.2TRUETRUEVFR-1.8SPECI1292.02019-10-17 09:04:03fM))5    3KEUL 170856Z AUTO 10009KT 10SM CLR 14/M04 A2965 RMK AO2 SLP026 T01391039 56013KEUL2019-10-17T08:56:00Z43.62-116.6213.9-3.9100910.029.6486231002.6TRUETRUEVFR-1.3SPECI740.02019-10-17 09:04:03_L)'5    3KFLP 170856Z AUTO 00000KT 10SM CLR 04/04 A3014 RMK AO2 SLP207 T00390039 51005KFLP2019-10-17T08:56:00Z36.28-92.583.93.90010.030.1387791020.7TRUETRUEVFR0.5METAR219.02019-10-17 09:04:03oK)95     3PABL 170856Z AUTO 17007KT 10SM CLR M08/M11 A2929 RMK AO2 SLP921 T10831106 53005 FZRANOPABL2019-10-17T08:56:00Z65.98-161.15-8.3-10.6170710.029.291338992.1TRUETRUETRUEVFR0.5METAR7.02019-10-17 09:04:03 Y7EYfR))5    3KDIJ 170856Z AUTO 16005KT 10SM CLR 04/M10 A2991 RMK AO2 SLP091 T00441100 58025KDIJ2019-10-17T08:56:00Z43.75-111.14.4-10.0160510.029.9114171009.1TRUETRUEVFR-2.5SPECI1899.02019-10-17 09:04:03lQ)55     3KDVL 170856Z AUTO 15009KT 10SM CLR 02/01 A2986 RMK AO2 SLP697 T00170006 55008 FZRANOKDVL2019-10-17T08:56:00Z48.12-98.921.70.6150910.029.861221969.7TRUETRUETRUEVFR-0.8SPECI443.02019-10-17 09:04:03]P)'5    3KDYR 170856Z AUTO 00000KT 10SM CLR 05/04 A3011 RMK AO2 SLP203 T00500044 58000KDYR2019-10-17T08:56:00Z36.0-89.45.04.40010.030.1092531020.3TRUETRUEVFR0.0METAR103.02019-10-17 09:04:03`O)'5    3KEKY 170856Z AUTO 03005KT 10SM CLR 09/06 A3002 RMK AO2 SLP012 T00890061 58004KEKY2019-10-17T08:56:00Z33.32-86.938.96.130510.030.020671001.2TRUETRUEVFR-0.4METAR213.02019-10-17 09:04:03 #$?#V)y5      3KBOK 170856Z AUTO 00000KT 1/4SM -RA FG OVC003 11/11 A2993 RMK AO2 RAB10 CIG 002V007 SLP134 P0001 60003 T01110106 53009KBOK2019-10-17T08:56:00Z42.07-124.2811.110.6000.2529.9291341013.4TRUETRUE-RA FGLIFR0.90.01SPECI140.02019-10-17 09:04:03_U)%5    3KBVX 170856Z AUTO 32003KT 9SM CLR 06/05 A3013 RMK AO2 SLP205 T00560050 51004KBVX2019-10-17T08:56:00Z35.73-91.655.65.032039.030.1299211020.5TRUETRUEVFR0.4METAR141.02019-10-17 09:04:03dT)'5    3KCGZ 170856Z AUTO 07010KT 10SM CLR 25/03 A2979 RMK AO2 SLP072 T02500028 56007KCGZ2019-10-17T08:56:00Z32.95-111.7725.02.8701010.029.7903541007.2TRUETRUEVFR-0.7SPECI446.02019-10-17 09:04:03lS);5    3KCOE 170856Z AUTO 20003KT 10SM BKN048 OVC065 08/06 A2969 RMK AO2 SLP068 T00780056 55002KCOE2019-10-17T08:56:00Z47.77-116.827.85.6200310.029.689961006.8TRUETRUEVFR-0.2SPECI707.02019-10-17 09:04:03 ?  &?aZ)'5    3KARG 170856Z AUTO 33004KT 10SM CLR 06/04 A3012 RMK AO2 SLP200 T00560044 58002KARG2019-10-17T08:56:00Z36.12-90.925.64.4330410.030.1210631020.0TRUETRUEVFR-0.2METAR83.02019-10-17 09:04:03]Y)'5    3KAUO 170856Z AUTO 35006KT 10SM CLR 09/06 A3000 RMK AO2 SLP177 T00890061 57002KAUO2019-10-17T08:56:00Z32.62-85.428.96.1350610.030.01017.7TRUETRUEVFR-0.2METAR236.02019-10-17 09:04:03~X)S5    3KAWO 170856Z AUTO 15013KT 10SM BKN018 OVC025 12/09 A2968 RMK AO2 SLP054 6//// T01170094 50004 PNO $KAWO2019-10-17T08:56:00Z48.17-122.1711.79.41501310.029.6811031005.4TRUETRUETRUEMVFR0.4SPECI42.02019-10-17 09:04:03mW)55     3KBKX 170856Z AUTO 14009KT 10SM CLR 02/01 A2991 RMK AO2 SLP154 T00220011 58018 FZRANOKBKX2019-10-17T08:56:00Z44.28-96.822.21.1140910.029.9114171015.4TRUETRUETRUEVFR-1.8METAR502.02019-10-17 09:04:03 _,E_`^)'5    3K1M4 170856Z AUTO 36003KT 10SM CLR 06/04 A3007 RMK AO2 SLP667 T00560044 58002K1M42019-10-17T08:56:00Z34.28-87.65.64.4360310.030.070866966.7TRUETRUEVFR-0.2METAR284.02019-10-17 09:04:03a])'5    3K7N0 170856Z AUTO 04006KT 10SM CLR 17/11 A3001 RMK AO2 SLP161 T01670111 58008K7N02019-10-17T08:56:00Z29.95-90.0716.711.140610.030.0088581016.1TRUETRUEVFR-0.8METAR0.02019-10-17 09:04:03a\)+5     3KADF 170856Z AUTO 00000KT 5SM BR CLR 07/07 A3012 RMK AO2 SLP204 T00720072 51005KADF2019-10-17T08:56:00Z34.1-93.077.27.2005.030.1210631020.4TRUETRUEBRMVFR0.5METAR56.02019-10-17 09:04:03g[)35    3KAJO 170856Z AUTO 00000KT 10SM CLR 17/14 A2982 RMK AO2 SLP089 6//// T01670144 58007KAJO2019-10-17T08:56:00Z33.9-117.616.714.40010.029.8198811008.9TRUETRUEVFR-0.7SPECI163.02019-10-17 09:04:03 ),a)5     3PADK 170856Z AUTO 25023G29KT 10SM -RA FEW021 BKN026 OVC047 06/04 A2967 RMK AO2 PK WND 26029/0849 RAB38 SLP047 P0000 60003 T00610039 58004PADK2019-10-17T08:56:00Z51.88-176.656.13.9250232910.029.669291004.7TRUETRUE-RAMVFR-0.40.0050.03METAR4.02019-10-17 09:04:03i`)35    3PHNY 170856Z AUTO 03006KT 10SM CLR 22/22 A3010 RMK AO2 SLP171 6//// T02220222 51010PHNY2019-10-17T08:56:00Z20.77-156.9322.222.230610.030.1003931017.1TRUETRUEVFR1.0METAR399.02019-10-17 09:04:03b_)'5    3PMDY 170856Z AUTO 08012KT 10SM CLR 26/24 A3020 RMK AO2 SLP227 T02610244 51004PMDY2019-10-17T08:56:00Z28.22-177.3726.124.4801210.030.2007871022.7TRUETRUEVFR0.4SPECI4.02019-10-17 09:04:03 d)s5     3PAAK 170856Z AUTO 26010KT 10SM FEW025 BKN050 07/02 A2967 RMK AO2 RAE19 SLP049 P0000 60000 T00670022 400830039 51000PAAK2019-10-17T08:56:00Z52.22-174.26.72.22601010.029.669291004.9TRUETRUEVFR0.08.33.90.0050.005METAR17.02019-10-17 09:04:03c)_5      3PABV 170856Z AUTO 00000KT 10SM BKN070 OVC085 00/M02 A2906 RMK AO2 SLP848 T00001017 400281011 53001 FZRANOPABV2019-10-17T08:56:00Z61.42-149.520.0-1.70010.029.061024984.8TRUETRUETRUEVFR0.12.8-1.1METAR29.02019-10-17 09:04:03b)M5      3PACM 170856Z AUTO 11007KT 10SM CLR M01/M02 A2914 RMK AO2 SLP864 T10111022 400331017 53009 FZRANOPACM2019-10-17T08:56:00Z61.85-165.57-1.1-2.2110710.029.140747986.4TRUETRUETRUEVFR0.93.3-1.7METAR4.02019-10-17 09:04:03 +0:+_h)'5    3KUDG 170856Z AUTO 03005KT 10SM CLR 08/06 A2986 RMK AO2 SLP114 T00830056 50003KUDG2019-10-17T08:56:00Z34.45-79.888.35.630510.029.8612211011.4TRUETRUEVFR0.3SPECI59.02019-10-17 09:04:03$g)5     3KWVL 170856Z AUTO 04013G24KT 10SM -RA OVC006 09/08 A2918 RMK AO2 PK WND 05026/0820 CIG 004V008 PRESFR SLP908 P0006 60013 T00890083 58123KWVL2019-10-17T08:56:00Z44.52-69.678.98.340132410.029.179134990.8TRUETRUE-RAIFR0.00.06SPECI101.02019-10-17 09:04:03pf)=5    3KY50 170856Z AUTO 28003KT 10SM OVC037 06/03 A3001 RMK AO2 SLP164 6//// T00560033 58005 $KY502019-10-17T08:56:00Z44.03-89.35.63.3280310.030.0088581016.4TRUETRUETRUEVFR-0.5SPECI262.02019-10-17 09:04:03Je) 5    3KY63 170856Z AUTO 12006KT 10SM CLR 01/01 A2996 RMK AO2 T00100009KY632019-10-17T08:56:00Z45.98-96.01.00.9120610.029.958662TRUETRUEVFRSPECI367.02019-10-17 09:04:03 i;FNi_l)'5    3KSOP 170856Z AUTO 23005KT 10SM CLR 07/04 A2985 RMK AO2 SLP111 T00720039 50005KSOP2019-10-17T08:56:00Z35.22-79.47.23.9230510.029.849411011.1TRUETRUEVFR0.5SPECI141.02019-10-17 09:04:03rk)?5    3KSQI 170856Z AUTO 26004KT 10SM CLR 05/03 A3005 RMK AO2 SLP040 6//// T00500033 58005 PNO $KSQI2019-10-17T08:56:00Z41.75-89.675.03.3260410.030.0501981004.0TRUETRUETRUEVFR-0.5SPECI197.02019-10-17 09:04:03oj)75    3KSUE 170856Z AUTO 32010KT 10SM CLR 06/03 A2997 RMK AO2 SLP149 6//// T00560033 58003 $KSUE2019-10-17T08:56:00Z44.85-87.425.63.33201010.029.9704721014.9TRUETRUETRUEVFR-0.3SPECI221.02019-10-17 09:04:03?i({5    3KTOB 170856Z AUTO 00000KT 10SM CLR 01/M01 A3002 RMK AO2KTOB2019-10-17T08:56:00Z44.02-92.821.0-1.00010.030.02067TRUETRUEVFRSPECI398.02019-10-17 09:04:03 J;Jkp)15    3KPAM 170856Z AUTO 02010KT 10SM FEW200 17/13 A2993 RMK AO2 SLP138 T01690126 58005 $KPAM2019-10-17T08:56:00Z30.07-85.5716.912.6201010.029.9291341013.8TRUETRUETRUEVFR-0.5SPECI5.02019-10-17 09:04:03Uo)!5     3KPNM 170856Z AUTO 00000KT 1 1/2SM BR BKN001 00/M01 A3001 RMK AO2 VIS 3/4V2KPNM2019-10-17T08:56:00Z45.57-93.60.0-1.0001.530.008858TRUETRUEBRLIFRSPECI298.02019-10-17 09:04:03kn);5    3KPQI 170856Z AUTO 06006KT 10SM SCT024 OVC100 07/02 A2966 RMK AO2 SLP071 T00720022 58041KPQI2019-10-17T08:56:00Z46.67-68.037.22.260610.029.6604331007.1TRUETRUEVFR-4.1SPECI146.02019-10-17 09:04:03sm)95     3KSKX 170856Z AUTO 03009KT 10SM CLR M02/M12 A3022 RMK AO2 SLP204 T10171122 56009 FZRANOKSKX2019-10-17T08:56:00Z36.45-105.67-1.7-12.230910.030.2214571020.4TRUETRUETRUEVFR-0.9SPECI2161.02019-10-17 09:04:03 b-Cb[t)'5    3KMXF 170856Z AUTO 21003KT 10SM CLR 10/08 A3000 RMK AO2 SLP161 T00990082 50002KMXF2019-10-17T08:56:00Z32.37-86.379.98.2210310.030.01016.1TRUETRUEVFR0.2SPECI51.02019-10-17 09:04:03ds)+5    3KXNO 170856Z AUTO 00000KT 10SM CLR 09/08 A2988 RMK AO2 SLP120 T00930076 50001 $KXNO2019-10-17T08:56:00Z33.62-81.079.37.60010.029.8789371012.0TRUETRUETRUEVFR0.1METAR98.02019-10-17 09:04:03gr)+5    3KEGI 170856Z AUTO 35005KT 10SM CLR 12/12 A2998 RMK AO2 SLP152 T01240124 55000 $KEGI2019-10-17T08:56:00Z30.63-86.5212.412.4350510.029.979331015.2TRUETRUETRUEVFR0.0METAR59.02019-10-17 09:04:03`q)'5    3KOZR 170856Z AUTO 00000KT 10SM CLR 11/10 A2998 RMK AO2 SLP153 T01120103 55004KOZR2019-10-17T08:56:00Z31.28-85.7211.210.30010.029.979331015.3TRUETRUEVFR-0.4SPECI93.02019-10-17 09:04:03 H,H^x)#5    3KSZL 170856Z 00000KT 10SM CLR 03/03 A3003 RMK AO2A SLP175 T00300030 57008 $KSZL2019-10-17T08:56:00Z38.72-93.533.03.00010.030.0295281017.5TRUETRUEVFR-0.8SPECI265.02019-10-17 09:04:03iw)+5    3KSKF 170856Z AUTO 31005KT 10SM CLR 15/08 A3004 RMK AO2 SLP169 T01460081 57017 $KSKF2019-10-17T08:56:00Z29.37-98.5714.68.1310510.030.0413381016.9TRUETRUETRUEVFR-1.7SPECI210.02019-10-17 09:04:03fv)+5    3KPOB 170856Z AUTO 28006KT 10SM CLR 09/04 A2984 RMK AO2 SLP107 T00880038 52007 $KPOB2019-10-17T08:56:00Z35.17-79.028.83.8280610.029.8405511010.7TRUETRUETRUEVFR0.7SPECI66.02019-10-17 09:04:03su)95     3KMCF 170856Z AUTO 33003KT 10SM CLR 25/22 A2988 RMK AO2 SLP121 T02470224 57009 FZRANO $KMCF2019-10-17T08:56:00Z27.85-82.5224.722.4330310.029.8789371012.1TRUETRUETRUETRUEVFR-0.9SPECI4.02019-10-17 09:04:03 f*Kf_|)'5    3KBAD 170856Z AUTO 01003KT 10SM CLR 09/09 A3007 RMK AO2 SLP185 T00870087 55005KBAD2019-10-17T08:56:00Z32.5-93.678.78.710310.030.0708661018.5TRUETRUEVFR-0.5SPECI51.02019-10-17 09:04:03Y{)5    3KWRB 170856Z 33007KT 10SM CLR 10/07 A2992 RMK AO2A SLP133 T00970066 55005KWRB2019-10-17T08:56:00Z32.62-83.589.76.6330710.029.9202751013.3TRUEVFR-0.5SPECI90.02019-10-17 09:04:03hz)+5    3KVPS 170856Z AUTO 01006KT 10SM CLR 14/12 A2997 RMK AO2 SLP155 T01380117 55002 $KVPS2019-10-17T08:56:00Z30.47-86.5213.811.710610.029.9704721015.5TRUETRUETRUEVFR-0.2SPECI26.02019-10-17 09:04:03by)'5    3KTBN 170856Z AUTO 18003KT 10SM CLR 02/01 A3009 RMK AO2 SLP196 T00160010 58003KTBN2019-10-17T08:56:00Z37.72-92.121.61.0180310.030.0885831019.6TRUETRUEVFR-0.3SPECI353.02019-10-17 09:04:03 P+=Pg)+5    3KLHW 170856Z AUTO 29004KT 10SM CLR 14/10 A2987 RMK AO2 SLP118 T01350097 55000 $KLHW2019-10-17T08:56:00Z31.87-81.5713.59.7290410.029.8700791011.8TRUETRUETRUEVFR0.0SPECI14.02019-10-17 09:04:03h)+5    3KCOF 170856Z AUTO 30010KT 10SM CLR 24/24 A2986 RMK AO2 SLP116 T02390239 56007 $KCOF2019-10-17T08:56:00Z28.23-80.623.923.93001010.029.8612211011.6TRUETRUETRUEVFR-0.7SPECI3.02019-10-17 09:04:03g~)+5    3KEND 170856Z AUTO 17008KT 10SM CLR 07/03 A3002 RMK AO2 SLP166 T00740031 56005 $KEND2019-10-17T08:56:00Z36.32-97.927.43.1170810.030.020671016.6TRUETRUETRUEVFR-0.5SPECI398.02019-10-17 09:04:03b})'5    3KBIX 170856Z AUTO 03008KT 10SM CLR 14/11 A2999 RMK AO2 SLP159 T01390107 58007KBIX2019-10-17T08:56:00Z30.42-88.9213.910.730810.029.9911421015.9TRUETRUEVFR-0.7SPECI10.02019-10-17 09:04:03 Z8KZk)15    3KTDR 170856Z AUTO 02014KT 10SM BKN210 17/14 A2994 RMK AO2 SLP142 T01650136 58005 $KTDR2019-10-17T08:56:00Z30.05-85.5216.513.6201410.029.9409451014.2TRUETRUETRUEVFR-0.5SPECI5.02019-10-17 09:04:03g)+5    3KMGE 170856Z AUTO 30006KT 10SM CLR 07/04 A2994 RMK AO2 SLP138 T00690040 58000 $KMGE2019-10-17T08:56:00Z33.92-84.526.94.0300610.029.9409451013.8TRUETRUETRUEVFR0.0SPECI326.02019-10-17 09:04:03^)'5    3KLSF 170856Z AUTO 00000KT 10SM CLR 08/08 A2997 RMK AO2 SLP153 T00810081 58000KLSF2019-10-17T08:56:00Z32.32-84.978.18.10010.029.9704721015.3TRUETRUEVFR0.0SPECI71.02019-10-17 09:04:03^)%5    3KHST 170856Z AUTO 00000KT 8SM CLR 24/23 A2989 RMK AO2 SLP125 T02390234 58002KHST2019-10-17T08:56:00Z25.47-80.3723.923.4008.029.8907471012.5TRUETRUEVFR-0.2SPECI2.02019-10-17 09:04:03 ,,a)-5    3KNYG 170856Z AUTO 27004KT 10SM OVC065 09/04 A2963 RMK AO2 SLP036 T00940039 53005KNYG2019-10-17T08:56:00Z38.5-77.289.43.9270410.029.6309051003.6TRUETRUEVFR0.5SPECI4.02019-10-17 09:04:03)Y5    3KDLF 170856Z AUTO 00000KT 10SM BKN043 BKN065 OVC090 17/11 A3008 RMK AO2 SLP179 T01720112 57015 RVRNO $KDLF2019-10-17T08:56:00Z29.37-100.7717.211.20010.030.0797251017.9TRUETRUETRUEVFR-1.5SPECI330.02019-10-17 09:04:03u)M5     3KXMR 170856Z AUTO 32007KT 10SM FEW010 SCT022 BKN028 24/ A2985 RMK AO2 CIG 023V028 SLP111 55005 $KXMR2019-10-17T08:56:00Z28.47-80.5724.0320710.029.849411011.1TRUETRUETRUEMVFR-0.5METAR3.02019-10-17 09:04:03f)+5    3KMMT 170856Z AUTO 29003KT 10SM CLR 09/06 A2987 RMK AO2 SLP117 T00860057 50002 $KMMT2019-10-17T08:56:00Z33.92-80.788.65.7290310.029.8700791011.7TRUETRUETRUEVFR0.2SPECI77.02019-10-17 09:04:03 =4=q )?5    3ETAD 170856Z AUTO 20013KT 9999 BKN009 OVC017 14/12 A2991 RMK AO2 SLP116 T01360116 51010 $ETAD2019-10-17T08:56:00Z49.986.713.611.6200136.2129.9114171011.6TRUETRUETRUEIFR1.0METAR365.02019-10-17 09:04:03a )'5    3KFRI 170856Z AUTO 04003KT 10SM CLR 05/02 A2999 RMK AO2 SLP156 T00480023 57012KFRI2019-10-17T08:56:00Z39.03-96.774.82.340310.029.9911421015.6TRUETRUEVFR-1.2METAR325.02019-10-17 09:04:03r )?5     3KFSI 170856Z AUTO 00000KT 1/4SM HZ CLR 06/04 A3005 RMK AO2 SLP173 T00610036 57007 RVRNO $KFSI2019-10-17T08:56:00Z34.65-98.46.13.6000.2530.0501981017.3TRUETRUETRUEHZLIFR-0.7SPECI362.02019-10-17 09:04:03g )+5    3KSSC 170856Z AUTO 30007KT 10SM CLR 10/05 A2986 RMK AO2 SLP112 T01010047 58000 $KSSC2019-10-17T08:56:00Z33.97-80.4710.14.7300710.029.8612211011.2TRUETRUETRUEVFR0.0METAR74.02019-10-17 09:04:03 [)#5    3TJSJ 170856Z 00000KT 10SM SCT028 26/23 A2994 RMK AO2 SLP137 T02610233 55006TJSJ2019-10-17T08:56:00Z18.43-66.0226.123.30010.029.9409451013.7TRUEVFR-0.6SPECI21.02019-10-17 09:04:03()5      3KMEH 170856Z AUTO VRB04KT 3SM RA BR BKN010 BKN014 OVC025 07/05 A2976 RMK AO2 RAB23 CIG 008V012 SLP067 P0003 60003 T00670050 51003 $KMEH2019-10-17T08:56:00Z45.52-118.426.75.0043.029.7608261006.7TRUETRUETRUERA BRMVFR0.30.030.03METAR1136.02019-10-17 09:04:03w )A5     3KDYS 170856Z AUTO 20007KT 9SM CLR 09/M03 A3006 RMK AO2 SLP160 T00901029 58016 PNO FZRANO $KDYS2019-10-17T08:56:00Z32.42-99.839.0-2.920079.030.0590551016.0TRUETRUETRUETRUEVFR-1.6SPECI545.02019-10-17 09:04:03 _4Y_t)I5    3KUKI 170856Z AUTO 32008KT 10SM FEW021 FEW030 BKN060 15/10 A2989 RMK AO2 SLP115 T01500100 53002KUKI2019-10-17T08:56:00Z39.12-123.215.010.0320810.029.8907471011.5TRUETRUEVFR0.2SPECI187.02019-10-17 09:04:03U)5   3KVLL 170856Z AUTO 31015G25KT 10SM OVC028 08/02 A2982 RMK AO2 T00800022KVLL2019-10-17T08:56:00Z42.55-83.188.02.2310152510.029.819881TRUETRUEMVFRSPECI222.02019-10-17 09:04:03[)!5    3KWJF 170856Z AUTO 00000KT CLR 18/01 A2985 RMK AO2 SLP092 T01830011 56009 $KWJF2019-10-17T08:56:00Z34.72-118.2218.31.10029.849411009.2TRUETRUETRUE-0.9SPECI715.02019-10-17 09:04:03e)/5    3KWMC 170856Z AUTO VRB03KT 10SM OVC110 09/M09 A2976 RMK AO2 SLP043 T00941094 56017KWMC2019-10-17T08:56:00Z40.9-117.89.4-9.40310.029.7608261004.3TRUETRUEVFR-1.7SPECI1310.02019-10-17 09:04:03 d5Vdl)?5    3KSFO 170856Z 25008KT 10SM FEW010 BKN011 OVC021 16/13 A2990 RMK AO2 SLP123 T01610133 55003KSFO2019-10-17T08:56:00Z37.62-122.3716.113.3250810.029.8996071012.3TRUEMVFR-0.3SPECI3.02019-10-17 09:04:03Y)#5    3KSHV 170856Z 00000KT 10SM BKN280 09/08 A3007 RMK AO2 SLP181 T00940083 58005KSHV2019-10-17T08:56:00Z32.45-93.839.48.30010.030.0708661018.1TRUEVFR-0.5SPECI83.02019-10-17 09:04:03`)'5    3KSLE 170856Z AUTO 17007KT 10SM CLR 11/09 A2979 RMK AO2 SLP087 T01060094 53006KSLE2019-10-17T08:56:00Z44.9-123.010.69.4170710.029.7903541008.7TRUETRUEVFR0.6SPECI59.02019-10-17 09:04:03_)'5    3KTPH 170856Z AUTO 35005KT 10SM CLR 09/M07 A2992 RMK AO2 SLPNO T00941067 56016KTPH2019-10-17T08:56:00Z38.05-117.089.4-6.7350510.029.920275TRUETRUEVFR-1.6SPECI1652.02019-10-17 09:04:03 {#i{h)+5    3KMOB 170856Z AUTO 01007KT 10SM CLR 12/10 A3001 RMK AO2 SLP160 T01220100 58002 $KMOB2019-10-17T08:56:00Z30.68-88.2512.210.010710.030.0088581016.0TRUETRUETRUEVFR-0.2SPECI63.02019-10-17 09:04:034(k5     3KNUQ 170856Z A2991 RMK AO2 SLP132 55000 PWINO $KNUQ2019-10-17T08:56:00Z37.4-122.0529.9114171013.2TRUETRUETRUE0.0SPECI12.02019-10-17 09:04:03k)95    3KRDM 170856Z AUTO 04004KT 10SM OVC100 08/05 A2976 RMK AO2 SLP065 60000 T00780050 55006KRDM2019-10-17T08:56:00Z44.25-121.157.85.040410.029.7608261006.5TRUETRUEVFR-0.6SPECI938.02019-10-17 09:04:03f)+5    3KSBP 170856Z AUTO 00000KT 10SM CLR 11/09 A2988 RMK AO2 SLP117 T01060089 53001 $KSBP2019-10-17T08:56:00Z35.23-120.6310.68.90010.029.8789371011.7TRUETRUETRUEVFR0.1SPECI59.02019-10-17 09:04:03 I/I`)%5    3KLAS 170856Z 21003KT 10SM BKN220 21/M01 A2979 RMK AO2 SLP065 T02061006 56012KLAS2019-10-17T08:56:00Z36.07-115.1720.6-0.6210310.029.7903541006.5TRUEVFR-1.2SPECI636.02019-10-17 09:04:03h)-5   3KLWS 170856Z AUTO 30011G20KT 10SM CLR 16/03 A2967 RMK AO2 SLP043 T01560028 53001KLWS2019-10-17T08:56:00Z46.37-117.0215.62.8300112010.029.669291004.3TRUETRUEVFR0.1SPECI438.02019-10-17 09:04:03Q)5   3KMCD 170856Z AUTO 34011G16KT 10SM CLR 06/02 A2986 RMK AO2 T00550015KMCD2019-10-17T08:56:00Z45.85-84.635.51.5340111610.029.861221TRUETRUEVFRSPECI226.02019-10-17 09:04:03)m5   3KMDT 170856Z 30024G29KT 10SM SCT049 BKN070 BKN090 11/03 A2947 RMK AO2 PK WND 29029/0831 SLP978 T01110033 55002 $KMDT2019-10-17T08:56:00Z40.2-76.7711.13.3300242910.029.471457997.8TRUETRUEVFR-0.2SPECI95.02019-10-17 09:04:03 1121{#)W5   3KHWV 170856Z AUTO 28016G29KT 10SM OVC037 12/05 A2920 RMK AO2 PK WND 29031/0816 SLP887 T01170050 51030KHWV2019-10-17T08:56:00Z40.82-72.8711.75.0280162910.029.199802988.7TRUETRUEVFR3.0SPECI21.02019-10-17 09:04:03y")W5   3KISP 170856Z AUTO 28018G27KT 10SM OVC037 12/06 A2921 RMK AO2 PK WND 28033/0758 SLP890 T01170056 51025KISP2019-10-17T08:56:00Z40.8-73.111.75.6280182710.029.208662989.0TRUETRUEVFR2.5SPECI43.02019-10-17 09:04:03b!)'5    3KJMS 170856Z AUTO 14007KT 10SM CLR 01/00 A2986 RMK AO2 SLP125 T00060000 57012KJMS2019-10-17T08:56:00Z46.93-98.670.60.0140710.029.8612211012.5TRUETRUEVFR-1.2SPECI455.02019-10-17 09:04:03a )'5    3KJXN 170856Z AUTO 28006KT 10SM CLR 04/02 A2988 RMK AO2 SLP125 T00440017 53009KJXN2019-10-17T08:56:00Z42.27-84.474.41.7280610.029.8789371012.5TRUETRUEVFR0.9SPECI305.02019-10-17 09:04:03 D.Dd'))5    3KEKO 170856Z AUTO 00000KT 10SM CLR 09/M04 A2981 RMK AO2 SLP054 T00941039 56017KEKO2019-10-17T08:56:00Z40.82-115.789.4-3.90010.029.8110241005.4TRUETRUEVFR-1.7SPECI1547.02019-10-17 09:04:03h&)+5    3KFSD 170856Z AUTO 12004KT 10SM CLR 03/00 A2992 RMK AO2 SLP141 T00280000 58014 $KFSD2019-10-17T08:56:00Z43.58-96.752.80.0120410.029.9202751014.1TRUETRUETRUEVFR-1.4SPECI436.02019-10-17 09:04:03`%)'5    3KGRD 170856Z AUTO 00000KT 10SM CLR 05/05 A2990 RMK AO2 SLP123 T00500050 58001KGRD2019-10-17T08:56:00Z34.25-82.155.05.00010.029.8996071012.3TRUETRUEVFR-0.1SPECI185.02019-10-17 09:04:03x$)Q5   3KHPN 170856Z 28012G30KT 10SM BKN031 10/04 A2921 RMK AO2 PK WND 29030/0849 SLP892 T01000044 51010 $KHPN2019-10-17T08:56:00Z41.07-73.710.04.4280123010.029.208662989.2TRUETRUEVFR1.0SPECI121.02019-10-17 09:04:03 K*CKr+)A5   3KCXY 170856Z AUTO 30017G25KT 10SM BKN049 OVC090 12/02 A2948 RMK AO2 SLP984 T01220022 55001KCXY2019-10-17T08:56:00Z40.22-76.8512.22.2300172510.029.480314998.4TRUETRUEVFR-0.1SPECI106.02019-10-17 09:04:03a*)'5    3KDIK 170856Z AUTO 18009KT 10SM CLR 04/00 A2977 RMK AO2 SLP086 T00390000 55009KDIK2019-10-17T08:56:00Z46.8-102.83.90.0180910.029.7696861008.6TRUETRUEVFR-0.9SPECI788.02019-10-17 09:04:03d))-5    3KEAU 170856Z AUTO 26004KT 10SM OVC033 06/03 A3002 RMK AO2 SLP170 T00610028 58004KEAU2019-10-17T08:56:00Z44.87-91.476.12.8260410.030.020671017.0TRUETRUEVFR-0.4SPECI276.02019-10-17 09:04:03f())5    3KEED 170856Z AUTO 27007KT 10SM CLR 22/M02 A2975 RMK AO2 SLP045 T02221022 56009KEED2019-10-17T08:56:00Z34.77-114.6222.2-2.2270710.029.7490161004.5TRUETRUEVFR-0.9SPECI302.02019-10-17 09:04:03 `;I`c/))5    3KBZN 170856Z AUTO 00000KT 10SM CLR 06/M03 A2971 RMK AO2 SLP036 T00561028 58026KBZN2019-10-17T08:56:00Z45.78-111.175.6-2.80010.029.710631003.6TRUETRUEVFR-2.6SPECI1361.02019-10-17 09:04:03l.)95    3KCEC 170856Z AUTO 17007KT 7SM SCT008 OVC014 12/11 A2993 RMK AO2 SLP136 T01170111 53011KCEC2019-10-17T08:56:00Z41.77-124.2211.711.117077.029.9291341013.6TRUETRUEMVFR1.1SPECI17.02019-10-17 09:04:03U-)5   3KCFS 170856Z AUTO 32010G19KT 10SM OVC028 07/01 A2980 RMK AO2 T00710010KCFS2019-10-17T08:56:00Z43.47-83.457.11.0320101910.029.799213TRUETRUEMVFRSPECI214.02019-10-17 09:04:03d,))5    3KCTB 170856Z AUTO 26004KT 10SM CLR 10/M06 A2956 RMK AO2 SLP991 T01001056 56017KCTB2019-10-17T08:56:00Z48.6-112.3710.0-5.6260410.029.56004999.1TRUETRUEVFR-1.7SPECI1175.02019-10-17 09:04:03 d3dI3) 5    3K9MN 170856Z AUTO 00000KT 10SM CLR 04/02 A3003 RMK AO1 T00360015K9MN2019-10-17T08:56:00Z44.02-92.483.61.50010.030.029528TRUETRUEVFRSPECI355.02019-10-17 09:04:03^2)'5    3KAND 170856Z AUTO 00000KT 10SM CLR 07/05 A2988 RMK AO2 SLP115 T00670050 50002KAND2019-10-17T08:56:00Z34.5-82.726.75.00010.029.8789371011.5TRUETRUEVFR0.2SPECI239.02019-10-17 09:04:03f1))5    3KBIH 170856Z AUTO 30005KT 10SM CLR 07/M05 A2984 RMK AO2 SLP073 T00671050 58014KBIH2019-10-17T08:56:00Z37.37-118.356.7-5.0300510.029.8405511007.3TRUETRUEVFR-1.4SPECI1253.02019-10-17 09:04:03w0)C5   3KBJJ 170856Z AUTO 29016G22KT 10SM OVC028 06/03 A2977 RMK AO2 SLP087 60000 T00610028 51004 $KBJJ2019-10-17T08:56:00Z40.87-81.886.12.8290162210.029.7696861008.7TRUETRUETRUEMVFR0.4SPECI343.02019-10-17 09:04:03 s47JsQ7)5    3KOFF 170856Z 12004KT 10SM CLR 06/03 A3002 RMK AO2A SLP169 RVRNO $KOFF2019-10-17T08:56:00Z41.12-95.926.03.0120410.030.020671016.9TRUETRUEVFRMETAR319.02019-10-17 09:04:03g6)-5     3RKSG 170856Z 11003KT 5SM HZ SCT130 18/09 A3021 RMK AO2A SLP233 T01750104 55001 $RKSG2019-10-17T08:56:00Z36.97127.0217.59.011035.030.2096461023.3TRUETRUEHZMVFR-0.1METAR16.02019-10-17 09:04:03w5)I5     3KTTS 170856Z 33004KT 10SM CLR 23/23 A2986 RMK AO2A SLP116 T02320230 57004 FZRANO VISNO RWY15 $KTTS2019-10-17T08:56:00Z28.62-80.7223.223.0330410.029.8612211011.6TRUETRUETRUEVFR-0.4METAR3.02019-10-17 09:04:03F4) 5     3PACV 170856Z 00000KT 3SM BR OVC110 02/01 A2903 RMK AO2 T00220011PACV2019-10-17T08:56:00Z60.5-145.472.21.1003.029.028543TRUEBRMVFRSPECI12.02019-10-17 09:04:03 Z;Z[;))5     3KLRF 170856Z 00000KT 5SM HZ CLR 07/05 A3011 RMK AO2A SLPNO ALSTG ESTMD 53003 $KLRF2019-10-17T08:56:00Z34.92-92.157.05.0005.030.109253TRUETRUEHZMVFR0.3METAR95.02019-10-17 09:04:03N:)5    3KTEW 170856Z AUTO 28007KT 10SM SCT040 04/02 A2988 RMK AO2 T00420020KTEW2019-10-17T08:56:00Z42.57-84.424.22.0280710.029.878937TRUETRUEVFRMETAR280.02019-10-17 09:04:03b9))5    3KDOV 170856Z 23013KT 10SM BKN060 11/05 A2949 RMK AO2A SLP989 T01080045 55001 $KDOV2019-10-17T08:56:00Z39.12-75.4710.84.52301310.029.489174998.9TRUETRUEVFR-0.1METAR9.02019-10-17 09:04:038)U5      3KGTB 170856Z 32003KT 9SM -RA BKN002 OVC029 07/07 A2929 RMK AO2A SLP921 P0006 60017 T00740067 57027 $KGTB2019-10-17T08:56:00Z44.07-75.727.46.732039.029.291338992.1TRUETRUE-RALIFR-2.70.060.17METAR207.02019-10-17 09:04:03 "%*>)!5     3KPSM 170856Z 09023G40KT 1 1/4SM -RA BR FEW002 BKN006 OVC011 15/15 A2885 RMK AO2A PK WND 08040/46 PRESFR SLP772 P0009 60121 T01530147 57119KPSM2019-10-17T08:56:00Z43.07-70.8215.314.79023401.2528.851377977.2TRUE-RA BRIFR0.00.091.21METAR31.02019-10-17 09:04:03w=)G5     3KSXT 170856Z AUTO VRB06KT 3/4SM BR BKN003 OVC010 05/03 A2986 RMK AO2 SLP108 T00500033 53004 $KSXT2019-10-17T08:56:00Z42.6-123.375.03.3060.7529.8612211010.8TRUETRUETRUEBRLIFR0.4METAR1170.02019-10-17 09:04:03X<)5    3KLFI 170856Z 28011KT 10SM CLR 10/05 A2967 RMK AO2A SLP054 T01000046 50001KLFI2019-10-17T08:56:00Z37.07-76.3710.04.62801110.029.669291005.4TRUEVFR0.1METAR3.02019-10-17 09:04:03 rA)?5    3ETIH 170856Z AUTO 11004KT 9999 SCT100 SCT140 12/11 A3004 RMK AO2 SLP180 T01160114 50006 $ETIH2019-10-17T08:56:00Z49.2211.8211.611.411046.2130.0413381018.0TRUETRUETRUEVFR0.6METAR442.02019-10-17 09:04:03@)y5       3PFCL 170856Z AUTO 03008KT 10SM -RA OVC015 02/02 A2903 RMK AO2 SLP825 P0001 60005 T00220022 400441017 53009 FZRANO TSNOPFCL2019-10-17T08:56:00Z58.83-158.532.22.230810.029.028543982.5TRUETRUETRUETRUE-RAMVFR0.94.4-1.70.01SPECI24.02019-10-17 09:04:03h?)+5    3KVAD 170856Z AUTO 29005KT 10SM CLR 14/12 A2992 RMK AO2 SLP133 T01350117 55005 $KVAD2019-10-17T08:56:00Z30.97-83.213.511.7290510.029.9202751013.3TRUETRUETRUEVFR-0.5METAR71.02019-10-17 09:04:03 x0GxIE) 5    3KM30 170855Z AUTO 00000KT 10SM CLR 03/03 A3009 RMK AO2 T00300025KM302019-10-17T08:55:00Z37.18-88.753.02.50010.030.088583TRUETRUEVFRMETAR117.02019-10-17 09:04:03cD)'5    3KEWK 170856Z AUTO 17011KT 10SM CLR 07/03 A3001 RMK AO2 SLP158 T00720028 56008KEWK2019-10-17T08:56:00Z38.03-97.277.22.81701110.030.0088581015.8TRUETRUEVFR-0.8METAR467.02019-10-17 09:04:03HC) 5    3KY49 170856Z AUTO 00000KT 10SM CLR 01/00 A2998 RMK AO2 T00050001KY492019-10-17T08:56:00Z47.13-94.650.50.10010.029.97933TRUETRUEVFRMETAR416.02019-10-17 09:04:03|B)U5     3KSMP 170856Z AUTO VRB06KT 10SM SCT009 BKN012 OVC018 04/03 A2967 RMK AO2 SLP052 60007 T00440028 50000KSMP2019-10-17T08:56:00Z47.28-121.334.42.80610.029.669291005.2TRUETRUEMVFR0.00.07METAR1208.02019-10-17 09:04:03 &XII) 5    3KEZM 170855Z AUTO 00000KT 10SM CLR 10/08 A2994 RMK AO2 T01020080KEZM2019-10-17T08:55:00Z32.22-83.1310.28.00010.029.940945TRUETRUEVFRMETAR93.02019-10-17 09:04:03OH)5    3KGNC 170855Z AUTO 25005KT 10SM CLR 06/M01 A3014 RMK AO2 T00591013KGNC2019-10-17T08:55:00Z32.68-102.655.9-1.3250510.030.138779TRUETRUEVFRMETAR1010.02019-10-17 09:04:03HG) 5    3KI63 170855Z AUTO 00000KT 10SM CLR 01/01 A3007 RMK AO2 T00100005KI632019-10-17T08:55:00Z39.98-90.81.00.50010.030.070866TRUETRUEVFRMETAR223.02019-10-17 09:04:03TF)5   3KLWB 170855Z AUTO 31011G22KT 10SM OVC025 06/01 A2981 RMK AO2 T00570013KLWB2019-10-17T08:55:00Z37.87-80.45.71.3310112210.029.811024TRUETRUEMVFRMETAR702.02019-10-17 09:04:03 6^EM(5    3KPCW 170855Z AUTO 33018KT 10SM OVC027 08/04 A2980 RMK AO2KPCW2019-10-17T08:55:00Z41.52-82.878.04.03301810.029.799213TRUETRUEMVFRMETAR178.02019-10-17 09:04:03>L(y5    3KPHT 170855Z AUTO 00000KT 10SM CLR 03/03 A3007 RMK A01KPHT2019-10-17T08:55:00Z36.33-88.383.03.00010.030.070866TRUETRUEVFRSPECI177.02019-10-17 09:04:03RK)5    3KPLU 170855Z AUTO 00000KT 10SM BKN043 BKN055 OVC065 11/10 A2972 RMK AO2KPLU2019-10-17T08:55:00Z47.1-122.2811.010.00010.029.719488TRUETRUEVFRSPECI164.02019-10-17 09:04:03DJ({5    3KEMM 170855Z AUTO 35007KT 10SM CLR 01/M08 A3001 RMK AO2KEMM2019-10-17T08:55:00Z41.82-110.551.0-8.0350710.030.008858TRUETRUEVFRMETAR2220.02019-10-17 09:04:03 /cIQ) 5    3KORG 170855Z AUTO 03004KT 10SM CLR 14/13 A3004 RMK AO2 T01430130KORG2019-10-17T08:55:00Z30.07-93.814.313.030410.030.041338TRUETRUEVFRSPECI4.02019-10-17 09:04:03@P(y5    3KOWI 170855Z AUTO 15003KT 10SM CLR 03/03 A3005 RMK AO2KOWI2019-10-17T08:55:00Z38.53-95.253.03.0150310.030.050198TRUETRUEVFRSPECI292.02019-10-17 09:04:03FO(5   3KP08 170855Z AUTO 09009G15KT 10SM CLR 25/01 A2980 RMK AO2KP082019-10-17T08:55:00Z32.93-111.4325.01.09091510.029.799213TRUETRUEVFRSPECI481.02019-10-17 09:04:03KN) 5    3KPBX 170855Z AUTO 25003KT 10SM CLR 05/03 A2995 RMK AO2 T00450031KPBX2019-10-17T08:55:00Z37.57-82.574.53.1250310.029.949802TRUETRUEVFRSPECI449.02019-10-17 09:04:03 9kKU) 5    3KONL 170855Z AUTO 17006KT 10SM CLR 05/01 A2988 RMK AO2 T00480014KONL2019-10-17T08:55:00Z42.47-98.674.81.4170610.029.878937TRUETRUEVFRSPECI619.02019-10-17 09:04:03OT)5    3KONM 170855Z AUTO 19006KT 10SM CLR 10/M02 A3011 RMK AO2 T01001017KONM2019-10-17T08:55:00Z34.02-106.910.0-1.7190610.030.109253TRUETRUEVFRSPECI1410.02019-10-17 09:04:03HS) 5    3KOPL 170855Z AUTO 04003KT 10SM CLR 11/09 A3002 RMK AO2 T01090094KOPL2019-10-17T08:55:00Z30.55-92.110.99.440310.030.02067TRUETRUEVFRSPECI23.02019-10-17 09:04:03AR(y5    3KOPN 170855Z AUTO 32007KT 10SM CLR 10/03 A2996 RMK AO2KOPN2019-10-17T08:55:00Z32.95-84.2710.03.0320710.029.958662TRUETRUEVFRSPECI243.02019-10-17 09:04:03 1KwKY)5    3KOEO 170855Z AUTO 00000KT 10SM OVC120 03/03 A3005 RMK AO2 T00310031KOEO2019-10-17T08:55:00Z45.32-92.73.13.10010.030.050198TRUETRUEVFRSPECI275.02019-10-17 09:04:03NX)5    3KOGA 170855Z AUTO 26004KT 10SM CLR 02/M01 A2989 RMK AO2 T00191012KOGA2019-10-17T08:55:00Z41.12-101.771.9-1.2260410.029.890747TRUETRUEVFRMETAR999.02019-10-17 09:04:03`W)-5      3KOGS 170855Z AUTO 05008KT 7SM -RA FEW008 BKN013 OVC041 09/08 A2928 RMK AO2 P0002KOGS2019-10-17T08:55:00Z44.67-75.479.08.05087.029.279528TRUETRUE-RAMVFR0.02METAR91.02019-10-17 09:04:03IV) 5    3KOLY 170855Z AUTO 00000KT 10SM CLR 03/03 A3007 RMK AO2 T00300030KOLY2019-10-17T08:55:00Z38.72-88.183.03.00010.030.070866TRUETRUEVFRSPECI147.02019-10-17 09:04:03 ,TB](y5    3KO32 170855Z AUTO 32004KT 10SM CLR 14/09 A2984 RMK AO2KO322019-10-17T08:55:00Z36.67-119.4514.09.0320410.029.840551TRUETRUEVFRSPECI117.02019-10-17 09:04:03D\(5    3KO69 170855Z AUTO 29004KT 10SM OVC006 14/14 A2990 RMK A01KO692019-10-17T08:55:00Z38.25-122.614.014.0290410.029.899607TRUETRUEIFRSPECI28.02019-10-17 09:04:03R[)5    3KO86 170855Z AUTO 14004KT 10SM FEW009 SCT047 BKN055 10/07 A2985 RMK AO1KO862019-10-17T08:55:00Z40.98-122.710.07.0140410.029.84941TRUETRUEVFRSPECI729.02019-10-17 09:04:03NZ)5    3KOEL 170855Z AUTO 28008KT 10SM CLR 07/M03 A2990 RMK AO1 T00651026KOEL2019-10-17T08:55:00Z39.12-100.826.5-2.6280810.029.899607TRUETRUEVFRSPECI929.02019-10-17 09:04:03 =eIa) 5    3KMZZ 170855Z AUTO 00000KT 10SM CLR 04/03 A2999 RMK AO2 T00350025KMZZ2019-10-17T08:55:00Z40.48-85.683.52.50010.029.991142TRUETRUEVFRSPECI262.02019-10-17 09:04:03C`(5    3KN03 170855Z AUTO 27006KT 10SM OVC011 06/06 A2933 RMK AO2KN032019-10-17T08:55:00Z42.6-76.226.06.0270610.029.329725TRUETRUEMVFRSPECI366.02019-10-17 09:04:03R_)5   3KN38 170855Z AUTO 26011G18KT 230V290 10SM OVC014 05/03 A2939 RMK AO2KN382019-10-17T08:55:00Z41.73-77.45.03.0260111810.029.388779TRUETRUEMVFRSPECI577.02019-10-17 09:04:03=^(y5    3KNQA 170855Z AUTO 00000KT 10SM CLR 06/05 A3008 RMK A01KNQA2019-10-17T08:55:00Z35.35-89.876.05.00010.030.079725TRUETRUEVFRSPECI86.02019-10-17 09:04:03 -]>e(y5    3KMRC 170855Z AUTO 00000KT 10SM CLR 05/05 A3005 RMK A01KMRC2019-10-17T08:55:00Z35.55-87.185.05.00010.030.050198TRUETRUEVFRSPECI208.02019-10-17 09:04:03Id) 5    3KMWA 170855Z AUTO 00000KT 10SM CLR 03/03 A3010 RMK AO2 T00270025KMWA2019-10-17T08:55:00Z37.77-89.022.72.50010.030.100393TRUETRUEVFRSPECI144.02019-10-17 09:04:03Jc) 5    3KMWO 170855Z AUTO 30007KT 10SM CLR 05/02 A2997 RMK AO2 T00540025KMWO2019-10-17T08:55:00Z39.53-84.45.42.5300710.029.970472TRUETRUEVFRSPECI198.02019-10-17 09:04:03Mb) 5    3KMZG 170855Z AUTO 11020KT 10SM SCT017 OVC060 24/20 A2995 RMK A01KMZG2019-10-17T08:55:00Z27.73-96.1824.020.01102010.029.949802TRUETRUEVFRSPECI29.02019-10-17 09:04:03 3b@j(y5    3KMNV 170855Z AUTO 35005KT 10SM CLR 06/04 A3001 RMK A01KMNV2019-10-17T08:55:00Z35.55-84.386.04.0350510.030.008858TRUETRUEVFRSPECI314.02019-10-17 09:04:03@i(5    3KMOR 170855Z AUTO 00000KT 10SM FEW038 05/02 A2998 RMK A01KMOR2019-10-17T08:55:00Z36.18-83.375.02.00010.029.97933TRUETRUEVFRSPECI400.02019-10-17 09:04:03>h(y5    3KMPZ 170855Z AUTO 00000KT 10SM CLR 01/01 A3007 RMK AO2KMPZ2019-10-17T08:55:00Z40.95-91.521.01.00010.030.070866TRUETRUEVFRSPECI224.02019-10-17 09:04:03Kg) 5    3KMQB 170855Z AUTO 26004KT 10SM CLR 01/01 A3009 RMK AO2 T00070005KMQB2019-10-17T08:55:00Z40.52-90.650.70.5260410.030.088583TRUETRUEVFRSPECI215.02019-10-17 09:04:03Gf(5   3KMQS 170855Z AUTO 28015G21KT 10SM CLR 10/04 A2944 RMK AO2KMQS2019-10-17T08:55:00Z39.98-75.8710.04.0280152110.029.438976TRUETRUEVFRSPECI201.02019-10-17 09:04:03 0mDo(5    3KMIS 170855Z AUTO 07021KT 10SM OVC023 22/17 A2995 RMK A01KMIS2019-10-17T08:55:00Z29.3-88.8522.017.0702110.029.949802TRUETRUEMVFRSPECI32.02019-10-17 09:04:03=n(y5    3KMKS 170855Z AUTO 00000KT 10SM CLR 12/08 A2985 RMK AO2KMKS2019-10-17T08:55:00Z33.18-80.0312.08.00010.029.84941TRUETRUEVFRSPECI23.02019-10-17 09:04:03Am(y5    3KMLJ 170855Z AUTO 32005KT 10SM CLR 10/07 A2992 RMK AO2KMLJ2019-10-17T08:55:00Z33.15-83.2310.07.0320510.029.920275TRUETRUEVFRSPECI117.02019-10-17 09:04:03=l(y5    3KMMI 170855Z AUTO 00000KT 10SM CLR 06/03 A3003 RMK A01KMMI2019-10-17T08:55:00Z35.4-84.576.03.00010.030.029528TRUETRUEVFRSPECI266.02019-10-17 09:04:03Jk)5   3KMMU 170855Z AUTO 24010G22KT 10SM OVC041 10/05 A2930 RMK AO2KMMU2019-10-17T08:55:00Z40.78-74.4210.05.0240102210.029.300198TRUETRUEVFRSPECI57.02019-10-17 09:04:03 <{?t(y5    3KM75 170855Z AUTO 00000KT 10SM CLR 12/01 A2958 RMK A01KM752019-10-17T08:55:00Z48.37-107.9212.01.00010.029.58071TRUETRUEVFRSPECI687.02019-10-17 09:04:03Is) 5    3KMBT 170855Z AUTO 00000KT 10SM SCT034 BKN095 06/04 A3004 RMK A01KMBT2019-10-17T08:55:00Z35.88-86.386.04.00010.030.041338TRUETRUEVFRSPECI188.02019-10-17 09:04:03Kr) 5    3KMDQ 170855Z AUTO 33004KT 10SM CLR 06/04 A3004 RMK A02 T00560040KMDQ2019-10-17T08:55:00Z34.87-86.555.64.0330410.030.041338TRUETRUEVFRSPECI230.02019-10-17 09:04:03;q(w5    3KMEZ 170855Z AUTO 00000KT 7SM CLR 05/05 A3011 RMK AO2KMEZ2019-10-17T08:55:00Z34.55-94.25.05.0007.030.109253TRUETRUEVFRSPECI329.02019-10-17 09:04:03>p(y5    3KMGR 170855Z AUTO 00000KT 10SM CLR 12/10 A2995 RMK AO2KMGR2019-10-17T08:55:00Z31.08-83.812.010.00010.029.949802TRUETRUEVFRSPECI90.02019-10-17 09:04:03 9jIy) 5    3KLZZ 170855Z AUTO 34003KT 10SM CLR 07/05 A3007 RMK AO2 T00690046KLZZ2019-10-17T08:55:00Z31.1-98.26.94.6340310.030.070866TRUETRUEVFRSPECI371.02019-10-17 09:04:03>x(y5    3KM02 170855Z AUTO 00000KT 10SM CLR 04/03 A3005 RMK A01KM022019-10-17T08:55:00Z36.13-87.434.03.00010.030.050198TRUETRUEVFRSPECI272.02019-10-17 09:04:03(y5    3KJAU 170855Z AUTO 00000KT 10SM CLR 06/02 A3004 RMK A01KJAU2019-10-17T08:55:00Z36.33-84.176.02.00010.030.041338TRUETRUEVFRSPECI360.02019-10-17 09:04:03D({5    3KJTC 170855Z AUTO 20007KT 10SM CLR 09/M03 A3018 RMK AO2KJTC2019-10-17T08:55:00Z34.13-109.329.0-3.0200710.030.180119TRUETRUEVFRSPECI2150.02019-10-17 09:04:03>(y5    3KJWN 170855Z AUTO 00000KT 10SM CLR 05/03 A3005 RMK A01KJWN2019-10-17T08:55:00Z36.18-86.885.03.00010.030.050198TRUETRUEVFRSPECI151.02019-10-17 09:04:03 /iI ) 5    3KI75 170855Z AUTO 14003KT 7SM CLR 02/01 A3004 RMK AO2 T00170011KI752019-10-17T08:55:00Z41.05-93.681.71.114037.030.041338TRUETRUEVFRSPECI339.02019-10-17 09:04:03O )5    3KIBM 170855Z AUTO 27005KT 10SM CLR 04/M04 A2994 RMK AO2 T00381041KIBM2019-10-17T08:55:00Z41.18-103.683.8-4.1270510.029.940945TRUETRUEVFRMETAR1501.02019-10-17 09:04:03@(y5    3KIFP 170855Z AUTO 00000KT 10SM CLR 21/01 A2974 RMK AO2KIFP2019-10-17T08:55:00Z35.15-114.5721.01.00010.029.740158TRUETRUEVFRSPECI212.02019-10-17 09:04:03K) 5    3KIJX 170855Z AUTO 23003KT 10SM CLR 01/01 A3008 RMK AO2 T00100006KIJX2019-10-17T08:55:00Z39.77-90.251.00.6230310.030.079725TRUETRUEVFRSPECI190.02019-10-17 09:04:03 /TS)5    3KHQI 170855Z AUTO 04018KT 10SM SCT020 SCT025 OVC032 24/19 A2994 RMK A01KHQI2019-10-17T08:55:00Z27.93-93.6724.019.0401810.029.940945TRUETRUEVFRSPECI26.02019-10-17 09:04:03@ (y5    3KHSD 170855Z AUTO 15005KT 10SM CLR 10/03 A3006 RMK A01KHSD2019-10-17T08:55:00Z35.6-97.7210.03.0150510.030.059055TRUETRUEVFRSPECI364.02019-10-17 09:04:03U )5   3KHTO 170855Z AUTO 28013G27KT 10SM OVC026 11/06 A2913 RMK AO2 T01120063KHTO2019-10-17T08:55:00Z40.95-72.2511.26.3280132710.029.128937TRUETRUEMVFRSPECI17.02019-10-17 09:04:03K ) 5    3KI68 170855Z AUTO 30008KT 10SM CLR 06/05 A2995 RMK AO1 T00570050KI682019-10-17T08:55:00Z39.47-84.255.75.0300810.029.949802TRUETRUEVFRSPECI274.02019-10-17 09:04:03 NL=(w5    3KBNW 170855Z AUTO 16004KT 9SM CLR 01/01 A3002 RMK AO2KBNW2019-10-17T08:55:00Z42.03-93.831.01.016049.030.02067TRUETRUEVFRSPECI354.02019-10-17 09:04:03D(5    3KBOW 170855Z AUTO 33004KT 10SM FEW020 24/23 A2988 RMK AO2KBOW2019-10-17T08:55:00Z27.93-81.7724.023.0330410.029.878937TRUETRUEVFRMETAR39.02019-10-17 09:04:03|)_5     3EHGR 170855Z AUTO 22006KT 190V270 9000 BR FEW009 SCT011 BKN052 14/12 Q1010 GRN 21006KT 9999 SCT015 SCT045EHGR2019-10-17T08:55:00Z51.574.9214.012.022066.2129.822834TRUEBRSCT1500VFR-0.6METAR13.02019-10-17 09:04:03,(e5   3KHOE 170855Z 31004KT CLR 12/10 A2992 RMK AO2KHOE2019-10-17T08:55:00Z31.05-82.7812.010.0310429.920275TRUESPECI57.02019-10-17 09:04:03 /hA(y5    3KBAC 170855Z AUTO 15010KT 10SM CLR 01/01 A2991 RMK AO2KBAC2019-10-17T08:55:00Z46.93-98.021.01.01501010.029.911417TRUETRUEVFRSPECI427.02019-10-17 09:04:03K)5    3KBCK 170855Z AUTO 00000KT 10SM OVC037 06/04 A3002 RMK AO2 T00580035KBCK2019-10-17T08:55:00Z44.25-90.855.83.50010.030.02067TRUETRUEVFRSPECI255.02019-10-17 09:04:03A(}5     3KBKN 170855Z AUTO 00000KT 6SM BR CLR 06/05 A3008 RMK AO2KBKN2019-10-17T08:55:00Z36.75-97.356.05.0006.030.079725TRUETRUEBRVFRMETAR314.02019-10-17 09:04:03K) 5    3KBKT 170855Z AUTO 25007KT 10SM CLR 07/03 A2970 RMK AO1 T00720030KBKT2019-10-17T08:55:00Z37.07-77.957.23.0250710.029.698818TRUETRUEVFRMETAR134.02019-10-17 09:04:03 <vP)5   3K6B9 170855Z AUTO 27007G16KT 240V300 7SM OVC004 07/07 A2934 RMK AO2K6B92019-10-17T08:55:00Z42.92-76.437.07.02707167.029.338583TRUETRUELIFRSPECI316.02019-10-17 09:04:03R)5    3KBVU 170855Z AUTO 00000KT 10SM FEW039 SCT046 BKN055 18/01 A2981 RMK AO2KBVU2019-10-17T08:55:00Z35.95-114.8718.01.00010.029.811024TRUETRUEVFRSPECI671.02019-10-17 09:04:03@(y5    3KAWG 170855Z AUTO 25004KT 10SM CLR 00/00 A3005 RMK AO2KAWG2019-10-17T08:55:00Z41.27-91.670.00.0250410.030.050198TRUETRUEVFRSPECI230.02019-10-17 09:04:03>(}5     3KAXA 170855Z AUTO 16005KT 1SM BR CLR 01/01 A3000 RMK A01KAXA2019-10-17T08:55:00Z43.07-94.271.01.016051.030.0TRUETRUEBRIFRSPECI372.02019-10-17 09:04:03 8`=(y5    3K4A6 170855Z AUTO 00000KT 10SM CLR 07/06 A3004 RMK AO2K4A62019-10-17T08:55:00Z34.68-86.07.06.00010.030.041338TRUETRUEVFRMETAR198.02019-10-17 09:04:03I)5     3K4M9 170855Z AUTO 29004KT 10SM CLR 04/04 A3012 RMK AO2 PWINOK4M92019-10-17T08:55:00Z36.4-90.654.04.0290410.030.121063TRUETRUETRUEVFRMETAR90.02019-10-17 09:04:03R)5     3K4S2 170855Z AUTO 00000KT 10SM -RA BKN065 OVC075 10/08 A2974 RMK AO2K4S22019-10-17T08:55:00Z45.68-121.5510.08.00010.029.740158TRUETRUE-RAVFRSPECI192.02019-10-17 09:04:03B({5    3K5H4 170855Z AUTO 13006KT 9SM CLR M01/M01 A2983 RMK AO2K5H42019-10-17T08:55:00Z47.78-99.93-1.0-1.013069.029.828741TRUETRUEVFRSPECI490.02019-10-17 09:04:03 <n@#(y5    3KCAV 170855Z AUTO 17005KT 10SM CLR 01/00 A3003 RMK A01KCAV2019-10-17T08:55:00Z42.75-93.771.00.0170510.030.029528TRUETRUEVFRSPECI354.02019-10-17 09:04:03@"(y5    3KCBF 170855Z AUTO 14008KT 10SM CLR 04/04 A2997 RMK AO2KCBF2019-10-17T08:55:00Z41.27-95.774.04.0140810.029.970472TRUETRUEVFRSPECI382.02019-10-17 09:04:03B!({5    3KAFO 170855Z AUTO 00000KT 10SM CLR 00/M06 A2995 RMK AO2KAFO2019-10-17T08:55:00Z42.72-110.950.0-6.00010.029.949802TRUETRUEVFRMETAR1897.02019-10-17 09:04:03H ) 5    3KCIR 170855Z AUTO 00000KT 10SM CLR 03/03 A3010 RMK AO2 T00320031KCIR2019-10-17T08:55:00Z37.07-89.223.23.10010.030.100393TRUETRUEVFRMETAR98.02019-10-17 09:04:03>(y5    3KCUL 170855Z AUTO 00000KT 10SM CLR 02/02 A3007 RMK AO2KCUL2019-10-17T08:55:00Z38.08-88.122.02.00010.030.070866TRUETRUEVFRMETAR118.02019-10-17 09:04:03 0cS')5   3KLDJ 170855Z AUTO 29012G18KT 10SM SCT043 11/05 A2931 RMK AO2 T01050050KLDJ2019-10-17T08:55:00Z40.62-74.2510.55.0290121810.029.309055TRUETRUEVFRMETAR7.02019-10-17 09:04:03J&) 5    3KJSO 170855Z AUTO 00000KT 10SM CLR 10/08 A3008 RMK AO2 T01010082KJSO2019-10-17T08:55:00Z31.87-95.2210.18.20010.030.079725TRUETRUEVFRMETAR206.02019-10-17 09:04:03G%(5   3KFRR 170855Z AUTO 29019G33KT 10SM CLR 10/02 A2959 RMK AO1KFRR2019-10-17T08:55:00Z38.92-78.2510.02.0290193310.029.589567TRUETRUEVFRMETAR216.02019-10-17 09:04:03J$) 5    3K6L4 170855Z AUTO 00000KT 10SM BKN020 OVC030 06/03 A2992 RMK AO2K6L42019-10-17T08:55:00Z37.85-81.926.03.00010.029.920275TRUETRUEMVFRMETAR508.02019-10-17 09:04:03 2i9,(y5    3KAIO 170855Z AUTO 00000KT 10SM CLR 02/02 A3000 RMK AO2KAIO2019-10-17T08:55:00Z41.38-95.032.02.00010.030.0TRUETRUEVFRSPECI360.02019-10-17 09:04:03>+(y5    3KAQX 170855Z AUTO 00000KT 10SM CLR 11/09 A2988 RMK AO2KAQX2019-10-17T08:55:00Z32.98-81.2711.09.00010.029.878937TRUETRUEVFRMETAR49.02019-10-17 09:04:03J*)5    3KY51 170855Z AUTO 00000KT 10SM OVC032 05/04 A3002 RMK AO1 T00450040KY512019-10-17T08:55:00Z43.58-90.94.54.00010.030.02067TRUETRUEVFRMETAR394.02019-10-17 09:04:03C)(5     3KLRY 170855Z AUTO 00000KT 7SM -SN CLR 03/03 A3010 RMK AO2KLRY2019-10-17T08:55:00Z38.62-94.353.03.0007.030.100393TRUETRUE-SNVFRMETAR279.02019-10-17 09:04:03H() 5    3KLQK 170855Z AUTO 00000KT 10SM CLR 04/04 A2987 RMK AO2 T00350035KLQK2019-10-17T08:55:00Z34.82-82.73.53.50010.029.870079TRUETRUEVFRMETAR309.02019-10-17 09:04:03 :gM0)5    3KAEG 170855Z AUTO 15004KT 10SM CLR 05/M05 A3015 RMK AO2 T00471047KAEG2019-10-17T08:55:00Z35.13-106.84.7-4.7150410.030.15059TRUETRUEVFRSPECI1779.02019-10-17 09:04:03C/({5    3KAIB 170855Z AUTO 00000KT 10SM CLR 06/M15 A3013 RMK AO2KAIB2019-10-17T08:55:00Z38.23-108.576.0-15.00010.030.129921TRUETRUEVFRSPECI1811.02019-10-17 09:04:03M.)5    3KAIG 170855Z AUTO 30005KT 10SM OVC120 04/03 A2998 RMK AO2 T00350027KAIG2019-10-17T08:55:00Z45.15-89.123.52.7300510.029.97933TRUETRUEVFRSPECI464.02019-10-17 09:04:03@-(y5    3KAIK 170855Z AUTO 29003KT 10SM CLR 07/07 A2991 RMK AO2KAIK2019-10-17T08:55:00Z33.65-81.687.07.0290310.029.911417TRUETRUEVFRMETAR161.02019-10-17 09:04:03 9tB4(y5    3KATS 170855Z AUTO 16005KT 10SM CLR 08/03 A3008 RMK AO2KATS2019-10-17T08:55:00Z32.85-104.478.03.0160510.030.079725TRUETRUEVFRSPECI1081.02019-10-17 09:04:03k3)15     3KGPI 170855Z AUTO 01003KT 10SM CLR 06/03 A2961 RMK AO2 SLP026 T00560028 56012 TSNOKGPI2019-10-17T08:55:00Z48.32-114.255.62.810310.029.6102371002.6TRUETRUETRUEVFR-1.2SPECI908.02019-10-17 09:04:03?2({5    3K7L2 170855Z AUTO VRB05KT 10SM CLR 01/M00 A2985 RMK AO2K7L22019-10-17T08:55:00Z46.22-100.251.00.00510.029.84941TRUETRUEVFRSPECI543.02019-10-17 09:04:03A1(}5    3KADU 170855Z AUTO 00000KT 10SM CLR M01/M02 A3001 RMK AO2KADU2019-10-17T08:55:00Z41.7-94.92-1.0-2.00010.030.008858TRUETRUEVFRSPECI392.02019-10-17 09:04:03 ;nC8(}5     3KVNC 170855Z AUTO 03003KT 5SM BR CLR 26/24 A2989 RMK AO2KVNC2019-10-17T08:55:00Z27.07-82.4326.024.03035.029.890747TRUETRUEBRMVFRMETAR6.02019-10-17 09:04:03G7) 5    3KVTI 170855Z AUTO 00000KT 7SM CLR 02/02 A3005 RMK AO2 T00240024KVTI2019-10-17T08:55:00Z42.22-92.022.42.4007.030.050198TRUETRUEVFRMETAR255.02019-10-17 09:04:03G6)5    3KPCZ 170855Z AUTO 00000KT 10SM SCT120 05/04 A3000 RMK AO2 T00510035KPCZ2019-10-17T08:55:00Z44.33-89.025.13.50010.030.0TRUETRUEVFRMETAR252.02019-10-17 09:04:03?5(}5    3KCCA 170855Z AUTO 00000KT 7SM BKN002 04/04 A3014 RMK AO2KCCA2019-10-17T08:55:00Z35.6-92.454.04.0007.030.138779TRUETRUELIFRMETAR157.02019-10-17 09:04:03 3gK<) 5    3KPTS 170855Z AUTO 18003KT 10SM CLR 05/04 A3009 RMK AO2 T00490042KPTS2019-10-17T08:55:00Z37.45-94.734.94.2180310.030.088583TRUETRUEVFRMETAR290.02019-10-17 09:04:03?;(y5    3KS32 170855Z AUTO 15007KT 10SM CLR 01/01 A2989 RMK AO2KS322019-10-17T08:55:00Z47.42-98.11.01.0150710.029.890747TRUETRUEVFRMETAR684.02019-10-17 09:04:03F:(5   3KSPA 170855Z AUTO 31010G16KT 10SM CLR 09/00 A2988 RMK AO2KSPA2019-10-17T08:55:00Z34.92-81.939.00.0310101610.029.878937TRUETRUEVFRMETAR303.02019-10-17 09:04:03G9) 5    3KTTA 170855Z AUTO 00000KT 10SM CLR 07/03 A2982 RMK AO2 T00690029KTTA2019-10-17T08:55:00Z35.58-79.16.92.90010.029.819881TRUETRUEVFRMETAR75.02019-10-17 09:04:03 TU@)5     3KCLS 170855Z AUTO 00000KT 6SM BR FEW040 SCT046 BKN060 10/10 A2972 RMK AO2KCLS2019-10-17T08:55:00Z46.68-122.9810.010.0006.029.719488TRUETRUEBRVFRSPECI54.02019-10-17 09:04:03L?)5    3KCMY 170855Z AUTO 00000KT 10SM OVC036 05/04 A3003 RMK AO2 T00520035KCMY2019-10-17T08:55:00Z43.97-90.735.23.50010.030.029528TRUETRUEVFRSPECI256.02019-10-17 09:04:03.>(m5    3KAQR 170855Z AUTO 00000KT 10SM CLR 05/05 RMK AO2KAQR2019-10-17T08:55:00Z34.4-96.155.05.00010.0TRUETRUEVFRSPECI189.02019-10-17 09:04:03r=)=5     3PACZ 170855Z AUTO 06003KT 10SM CLR 02/M02 A2907 RMK AO2 SLP849 T00171017 400420006 52013PACZ2019-10-17T08:55:00Z61.78-166.031.7-1.760310.029.069881984.9TRUETRUEVFR1.34.20.6METAR146.02019-10-17 09:04:03 :iXD)!5   3KCIC 170855Z AUTO 15009G16KT 10SM SCT060 SCT085 BKN120 16/09 A2983 RMK AO1KCIC2019-10-17T08:55:00Z39.78-121.8316.09.015091610.029.828741TRUETRUEVFRSPECI73.02019-10-17 09:04:03;C(y5    3KCIN 170855Z AUTO 13003KT 10SM CLR 01/00 A3000 RMK AO2KCIN2019-10-17T08:55:00Z42.03-94.771.00.0130310.030.0TRUETRUEVFRSPECI375.02019-10-17 09:04:03KB) 5    3KCJR 170855Z AUTO 29008KT 10SM CLR 13/01 A2963 RMK AO2 T01250008KCJR2019-10-17T08:55:00Z38.53-77.8712.50.8290810.029.630905TRUETRUEVFRMETAR97.02019-10-17 09:04:03@A(y5    3KCLK 170855Z AUTO 18005KT 10SM CLR 05/00 A3006 RMK AO2KCLK2019-10-17T08:55:00Z35.53-98.935.00.0180510.030.059055TRUETRUEVFRMETAR492.02019-10-17 09:04:03 /ltH)E5     3PALU 170855Z AUTO 14007KT 10SM BKN011 M02/M04 A2936 RMK AO2 SLP943 T10241041 400351053 54001PALU2019-10-17T08:55:00Z68.88-166.1-2.4-4.1140710.029.359253994.3TRUETRUEMVFR3.5-5.3METAR3.02019-10-17 09:04:03>G(y5    3KCCY 170855Z AUTO 00000KT 10SM CLR 01/00 A3004 RMK AO2KCCY2019-10-17T08:55:00Z43.07-92.621.00.00010.030.041338TRUETRUEVFRSPECI343.02019-10-17 09:04:03=F(y5    3KCDN 170855Z AUTO 00000KT 10SM CLR 09/05 A2987 RMK AO2KCDN2019-10-17T08:55:00Z34.28-80.579.05.00010.029.870079TRUETRUEVFRMETAR92.02019-10-17 09:04:03KE) 5    3KCFJ 170855Z AUTO 29004KT 10SM CLR 01/01 A3001 RMK AO2 T00140014KCFJ2019-10-17T08:55:00Z39.98-86.921.41.4290410.030.008858TRUETRUEVFRSPECI244.02019-10-17 09:04:03 )_LL)5    3K82C 170855Z AUTO 00000KT 7SM BKN039 OVC100 06/04 A3000 RMK AO2 T00550040K82C2019-10-17T08:55:00Z43.83-90.135.54.0007.030.0TRUETRUEVFRMETAR276.02019-10-17 09:04:03IK) 5    3K7W6 170855Z AUTO 28008KT 10SM CLR 09/05 A2973 RMK AO2 T00900051K7W62019-10-17T08:55:00Z35.55-75.959.05.1280810.029.731298TRUETRUEVFRMETAR2.02019-10-17 09:04:03DJ({5    3K74V 170855Z AUTO 25007KT 10SM CLR 01/M07 A3003 RMK AO2K74V2019-10-17T08:55:00Z40.28-110.051.0-7.0250710.030.029528TRUETRUEVFRMETAR1576.02019-10-17 09:04:03QI)#5    3EHDL 170855Z AUTO 22004KT 160V250 9999 FEW004 BKN007 BKN008 13/13 Q1010 GRNEHDL2019-10-17T08:55:00Z52.075.8713.013.022046.2129.822834TRUEIFRMETAR52.02019-10-17 09:04:03 9*nQP)#5    3EHWO 170855Z AUTO 20004KT 190V260 9999 FEW017 BKN039 BKN044 14/11 Q1010 BLUEHWO2019-10-17T08:55:00Z51.454.3214.011.020046.2129.822834TRUEVFRMETAR17.02019-10-17 09:04:036O(q5    3EHVL 170855Z AUTO 24015KT 9999 NCD 15/07 Q1008 BLUEHVL2019-10-17T08:55:00Z53.234.9215.07.0240156.2129.763779TRUEVFRMETAR5.02019-10-17 09:04:03 N)}5    3EHVK 170855Z AUTO 24007KT 9000 BR FEW007 SCT009 BKN010 13/12 Q1010 GRN 25006KT 7000 BR SCT005 BKN008 BECMG SCT015 BKN040EHVK2019-10-17T08:55:00Z51.635.713.012.024075.5929.822834TRUEBR BRSCT500MVFRMETAR21.02019-10-17 09:04:03AM(y5    3KALM 170855Z AUTO 02005KT 10SM CLR 09/00 A3014 RMK AO2KALM2019-10-17T08:55:00Z32.82-105.979.00.020510.030.138779TRUETRUEVFRMETAR1279.02019-10-17 09:04:03 oHoST)5   3KMTV 170855Z AUTO 32009G20KT 10SM BKN046 09/01 A2983 RMK AO2 T00900013KMTV2019-10-17T08:55:00Z36.63-80.029.01.332092010.029.828741TRUETRUEVFRMETAR287.02019-10-17 09:04:03AS(y5    3KBDN 170855Z AUTO 22012KT 10SM CLR 08/03 A2975 RMK AO2KBDN2019-10-17T08:55:00Z44.1-121.28.03.02201210.029.749016TRUETRUEVFRMETAR1055.02019-10-17 09:04:03KR) 5    3KAVC 170855Z AUTO 22004KT 10SM CLR 08/02 A2979 RMK AO2 T00750020KAVC2019-10-17T08:55:00Z36.68-78.037.52.0220410.029.790354TRUETRUEVFRMETAR135.02019-10-17 09:04:03Q)5     3PAEH 170855Z AUTO 22012G19KT 150V340 10SM SCT016 SCT033 BKN170 05/00 A2902 RMK AO2 SLP829 60005 T00480003 400640036 52008PAEH2019-10-17T08:55:00Z58.65-162.074.80.3220121910.029.019686982.9TRUETRUEVFR0.86.43.60.05METAR161.02019-10-17 09:04:03 DhVX)5     3KRRL 170855Z AUTO 29003KT 10SM BKN120 04/03 A2999 RMK AO2 T00430026 TSNOKRRL2019-10-17T08:55:00Z45.2-89.724.32.6290310.029.991142TRUETRUETRUEVFRMETAR401.02019-10-17 09:04:03IW) 5    3KCKP 170855Z AUTO 00000KT 10SM CLR 01/01 A2999 RMK AO2 T00050005KCKP2019-10-17T08:55:00Z42.73-95.550.50.50010.029.991142TRUETRUEVFRMETAR374.02019-10-17 09:04:03VV)5     3KC35 170855Z AUTO 00000KT 10SM OVC038 05/04 A3001 RMK AO2 T00520037 PWINOKC352019-10-17T08:55:00Z43.53-89.985.23.70010.030.008858TRUETRUETRUEVFRMETAR276.02019-10-17 09:04:036U(q5    3EHLW 170855Z AUTO 21008KT 9999 NCD 14/12 Q1008 BLUEHLW2019-10-17T08:55:00Z53.225.7514.012.021086.2129.763779TRUEVFRMETAR2.02019-10-17 09:04:03 D~J\) 5    3KCXU 170855Z AUTO 00000KT 10SM CLR 12/11 A2995 RMK AO1 T01170107KCXU2019-10-17T08:55:00Z31.22-84.2311.710.70010.029.949802TRUETRUEVFRSPECI53.02019-10-17 09:04:03@[(y5    3KCZL 170855Z AUTO 34004KT 10SM CLR 08/04 A3001 RMK AO2KCZL2019-10-17T08:55:00Z34.47-84.938.04.0340410.030.008858TRUETRUEVFRSPECI195.02019-10-17 09:04:03EZ(5    3KCZT 170855Z AUTO 34003KT 10SM BKN110 16/14 A3007 RMK AO2KCZT2019-10-17T08:55:00Z28.52-99.8216.014.0340310.030.070866TRUETRUEVFRMETAR183.02019-10-17 09:04:03kY)95    3KNFG 170855Z AUTO 04003KT 9SM BKN005 OVC009 14/12 A2983 RMK AO2 SLP099 T01390117 55003KNFG2019-10-17T08:55:00Z33.28-117.3313.911.74039.029.8287411009.9TRUETRUEIFR-0.3METAR24.02019-10-17 09:04:03 3bN`)5    3KCPU 170855Z AUTO 00000KT 10SM SCT015 13/09 A2991 RMK AO2 T01290093KCPU2019-10-17T08:55:00Z38.15-120.6512.99.30010.029.911417TRUETRUEVFRMETAR404.02019-10-17 09:04:03>_(y5    3KCQF 170855Z AUTO 01007KT 10SM CLR 12/08 A2998 RMK AO2KCQF2019-10-17T08:55:00Z30.47-87.8812.08.010710.029.97933TRUETRUEVFRSPECI28.02019-10-17 09:04:03K^) 5    3KCWC 170855Z AUTO 12007KT 10SM CLR 08/02 A3010 RMK AO2 T00760020KCWC2019-10-17T08:55:00Z33.85-98.487.62.0120710.030.100393TRUETRUEVFRMETAR305.02019-10-17 09:04:03G]) 5    3KCWV 170855Z AUTO 00000KT 7SM CLR 12/11 A2991 RMK AO2 T01200105KCWV2019-10-17T08:55:00Z32.2-81.8712.010.5007.029.911417TRUETRUEVFRSPECI33.02019-10-17 09:04:03 JwLd)5    3KCLI 170855Z AUTO 00000KT 10SM BKN120 04/02 A2999 RMK AO2 T00420022KCLI2019-10-17T08:55:00Z44.62-88.734.22.20010.029.991142TRUETRUEVFRSPECI250.02019-10-17 09:04:03Mc) 5    3KCLW 170855Z AUTO 34003KT 10SM BKN021 BKN060 25/22 A2988 RMK AO2KCLW2019-10-17T08:55:00Z27.98-82.7525.022.0340310.029.878937TRUETRUEMVFRSPECI22.02019-10-17 09:04:03Ib) 5    3KCMD 170855Z AUTO 00000KT 10SM CLR 06/04 A3005 RMK AO2 T00620035KCMD2019-10-17T08:55:00Z34.27-86.856.23.50010.030.050198TRUETRUEVFRSPECI294.02019-10-17 09:04:03aa)'5    3KCNK 170855Z AUTO 06003KT 10SM CLR 04/02 A2994 RMK AO2 SLP138 T00440017 58017KCNK2019-10-17T08:55:00Z39.55-97.654.41.760310.029.9409451013.8TRUETRUEVFR-1.7SPECI447.02019-10-17 09:04:03 :yOh)5    3KBYY 170855Z AUTO 36005KT 10SM OVC032 18/15 A3001 RMK AO2 T01820155KBYY2019-10-17T08:55:00Z28.97-95.8718.215.5360510.030.008858TRUETRUEVFRMETAR14.02019-10-17 09:04:03[g)5    3KCAO 170855Z AUTO 26011KT CLR 09/M03 A3001 RMK AO2 SLP114 T00941033 58015KCAO2019-10-17T08:55:00Z36.45-103.159.4-3.32601130.0088581011.4TRUETRUE-1.5SPECI1514.02019-10-17 09:04:03;f(w5    3KCDH 170855Z AUTO 00000KT 9SM CLR 06/05 A3010 RMK AO2KCDH2019-10-17T08:55:00Z33.62-92.776.05.0009.030.100393TRUETRUEVFRSPECI35.02019-10-17 09:04:03@e(y5    3KCGC 170855Z AUTO 33003KT 10SM CLR 21/20 A2989 RMK AO2KCGC2019-10-17T08:55:00Z28.87-82.5721.020.0330310.029.890747TRUETRUEVFRSPECI3.02019-10-17 09:04:03 0iVl)%5     3KBVI 170855Z AUTO 31008KT 5SM RA BKN008 OVC015 06/05 A2969 RMK AO2 T00610047KBVI2019-10-17T08:55:00Z40.77-80.46.14.731085.029.68996TRUETRUERAIFRSPECI382.02019-10-17 09:04:03;k(w5    3KBWD 170855Z AUTO 00000KT 8SM CLR 07/04 A3009 RMK AO1KBWD2019-10-17T08:55:00Z31.8-98.957.04.0008.030.088583TRUETRUEVFRMETAR423.02019-10-17 09:04:03Aj({5    3KBWW 170855Z AUTO 18004KT 10SM CLR 06/M00 A2980 RMK AO2KBWW2019-10-17T08:55:00Z46.17-103.36.00.0180410.029.799213TRUETRUEVFRSPECI910.02019-10-17 09:04:03Ji) 5    3KBXA 170855Z AUTO 01003KT 10SM CLR 12/10 A3003 RMK AO2 T01160099KBXA2019-10-17T08:55:00Z30.82-89.8711.69.910310.030.029528TRUETRUEVFRSPECI36.02019-10-17 09:04:03 -eCq({5    3KECS 170855Z AUTO 01005KT 10SM CLR 03/M01 A2986 RMK AO2KECS2019-10-17T08:55:00Z43.88-104.323.0-1.010510.029.861221TRUETRUEVFRMETAR1273.02019-10-17 09:04:03Cp)5   3KDLO 170855Z AUTO 00000KT 10SM 12/07 A2983 RMK AO2 T01230066KDLO2019-10-17T08:55:00Z35.75-119.2312.36.60010.029.828741TRUETRUEMETAR96.02019-10-17 09:04:03;o(5    3KBFW 170855Z AUTO 00000KT 10SM SCT100 02/01 A3000 RMK AO2KBFW2019-10-17T08:55:00Z47.25-91.42.01.00010.030.0TRUETRUEVFRSPECI331.02019-10-17 09:04:03Bn(y5    3KBPC 170855Z AUTO 23008KT 10SM CLR 12/00 A3001 RMK AO2KBPC2019-10-17T08:55:00Z35.88-101.0312.00.0230810.030.008858TRUETRUEVFRMETAR845.02019-10-17 09:04:03Mm)5    3KBUU 170855Z AUTO 30004KT 10SM SCT120 03/02 A3001 RMK AO2 T00330021KBUU2019-10-17T08:55:00Z42.68-88.33.32.1300410.030.008858TRUETRUEVFRSPECI237.02019-10-17 09:04:03 8UIu) 5    3KCPK 170855Z AUTO 24004KT 10SM CLR 07/04 A2970 RMK AO2 T00730042KCPK2019-10-17T08:55:00Z36.67-76.327.34.2240410.029.698818TRUETRUEVFRMETAR6.02019-10-17 09:04:037t(q5   3KSEM 170855Z AUTO 31004KT 10SM 09/08 A3002 RMK AO2KSEM2019-10-17T08:55:00Z32.35-86.989.08.0310410.030.02067TRUETRUEMETAR51.02019-10-17 09:04:03]s)'5     3KSDC 170855Z AUTO 25004KT 10SM SCT011 BKN020 OVC070 07/07 A2936 RMK AO2 P0002KSDC2019-10-17T08:55:00Z43.23-77.127.07.0250410.029.359253TRUETRUEMVFR0.02METAR129.02019-10-17 09:04:03Br(5    3KECU 170855Z AUTO 00000KT 10SM OVC031 14/02 A3015 RMK AO2KECU2019-10-17T08:55:00Z29.95-100.1714.02.00010.030.15059TRUETRUEVFRMETAR725.02019-10-17 09:04:03Y8J8@HPX`hpx (08@HPX`hpx (08@HPX`hpx]aejoty} ]aejoty} #',048<@D H L P T X\`dhlquy~   $!(",#0$4%8&<'@(D)I*M+R,W-\.`/d0h1l2p3t4x5|6789 :;<=>"?&@*A.B2C6D:E>FBGFHJIN 5qDy(5    3KOMH 170855Z AUTO 20004KT 10SM BKN065 10/01 A2964 RMK AO2KOMH2019-10-17T08:55:00Z38.25-78.0510.01.0200410.029.639763TRUETRUEVFRMETAR142.02019-10-17 09:04:03[x)'5   3KVBW 170855Z AUTO 30029G37KT 10SM SCT035 SCT043 09/01 A2965 RMK AO1 T00940009KVBW2019-10-17T08:55:00Z38.37-78.979.40.9300293710.029.648623TRUETRUEVFRMETAR355.02019-10-17 09:04:03>w(y5    3KSTF 170855Z AUTO 00000KT 10SM CLR 06/06 A3005 RMK AO2KSTF2019-10-17T08:55:00Z33.43-88.856.06.00010.030.050198TRUETRUEVFRMETAR102.02019-10-17 09:04:03Ev({5    3KSVE 170855Z AUTO 32008KT 10SM CLR 12/M06 A2983 RMK AO2KSVE2019-10-17T08:55:00Z40.37-120.5712.0-6.0320810.029.828741TRUETRUEVFRMETAR1263.02019-10-17 09:04:03 #<w#C~(}5     3KEOK 170855Z AUTO 22003KT 6SM BR CLR 02/02 A3007 RMK AO2KEOK2019-10-17T08:55:00Z40.47-91.422.02.022036.030.070866TRUETRUEBRVFRSPECI205.02019-10-17 09:04:03B}) 5    3KELO 170855Z AUTO 00000KT 7SM BKN032 OVC090 02/02 A3000 RMK AO2KELO2019-10-17T08:55:00Z47.82-91.822.02.0007.030.0TRUETRUEVFRSPECI443.02019-10-17 09:04:03=|(y5    3KONA 170855Z AUTO 00000KT 10SM CLR 05/02 A3004 RMK AO2KONA2019-10-17T08:55:00Z44.07-91.75.02.00010.030.041338TRUETRUEVFRSPECI200.02019-10-17 09:04:03?{(y5    3KOLV 170855Z AUTO 04004KT 10SM CLR 07/05 A3008 RMK A01KOLV2019-10-17T08:55:00Z34.98-89.787.05.040410.030.079725TRUETRUEVFRMETAR122.02019-10-17 09:04:03>z(y5    3KOLZ 170855Z AUTO 00000KT 10SM CLR 02/02 A3004 RMK A01KOLZ2019-10-17T08:55:00Z42.67-91.972.02.00010.030.041338TRUETRUEVFRSPECI328.02019-10-17 09:04:03 !-j!>(y5    3K08D 170855Z AUTO 05004KT 10SM CLR 00/00 A2976 RMK AO2K08D2019-10-17T08:55:00Z48.3-102.40.00.050410.029.760826TRUETRUEVFRSPECI684.02019-10-17 09:04:03J)5     3K0S9 170855Z AUTO 13004KT 1/2SM FG OVC013 07/07 A2964 RMK AO2K0S92019-10-17T08:55:00Z48.05-122.827.07.013040.529.639763TRUETRUEFGLIFRSPECI33.02019-10-17 09:04:03/(i5    3K0VG 170855Z AUTO 10SM CLR 04/03 A3000 RMK AO2K0VG2019-10-17T08:55:00Z36.65-83.224.03.010.030.0TRUETRUEVFRMETAR430.02019-10-17 09:04:03=(y5    3K1R7 170855Z AUTO 00000KT 10SM CLR 08/08 A3004 RMK AO2K1R72019-10-17T08:55:00Z31.6-90.428.08.00010.030.041338TRUETRUEVFRMETAR149.02019-10-17 09:04:03M)5    3KERV 170855Z AUTO 00000KT 10SM BKN110 12/06 A3008 RMK AO2 T01200058KERV2019-10-17T08:55:00Z29.98-99.0812.05.80010.030.079725TRUETRUEVFRMETAR510.02019-10-17 09:04:03 /6{/@(y5    3KCNC 170855Z AUTO 16005KT 10SM CLR 02/02 A3004 RMK AO2KCNC2019-10-17T08:55:00Z41.02-93.372.02.0160510.030.041338TRUETRUEVFRSPECI320.02019-10-17 09:04:037(y5    3KCOQ 170855Z AUTO 00000KT 10SM CLR 04/02 A3000 RMK AO2KCOQ2019-10-17T08:55:00Z46.7-92.54.02.00010.030.0TRUETRUEVFRSPECI390.02019-10-17 09:04:03C(}5     3KCPT 170855Z AUTO 00000KT 5SM HZ CLR 10/06 A3010 RMK AO2KCPT2019-10-17T08:55:00Z32.35-97.4310.06.0005.030.100393TRUETRUEHZMVFRSPECI260.02019-10-17 09:04:035(q5   3KCQW 170855Z AUTO 00000KT 10SM 07/05 A2985 RMK AO2KCQW2019-10-17T08:55:00Z34.72-79.957.05.00010.029.84941TRUETRUEMETAR73.02019-10-17 09:04:03D(}5    3K06D 170855Z AUTO 19005KT 10SM CLR M01/M01 A2983 RMK AO2K06D2019-10-17T08:55:00Z48.88-99.62-1.0-1.0190510.029.828741TRUETRUEVFRSPECI556.02019-10-17 09:04:03 -iA (y5    3K20U 170855Z AUTO 15008KT 10SM CLR 03/01 A2978 RMK AO2K20U2019-10-17T08:55:00Z46.93-103.983.01.0150810.029.778543TRUETRUEVFRSPECI840.02019-10-17 09:04:03> (y5    3K24J 170855Z AUTO 00000KT 10SM CLR 16/13 A2993 RMK A01K24J2019-10-17T08:55:00Z30.3-83.0316.013.00010.029.929134TRUETRUEVFRMETAR32.02019-10-17 09:04:03> (y5    3K27K 170855Z AUTO 00000KT 10SM CLR 02/01 A2999 RMK AO1K27K2019-10-17T08:55:00Z38.23-84.432.01.00010.029.991142TRUETRUEVFRMETAR289.02019-10-17 09:04:03M )5    3KMRN 170855Z AUTO 32004KT 10SM CLR 08/M02 A2989 RMK AO2 T00811016KMRN2019-10-17T08:55:00Z35.82-81.628.1-1.6320410.029.890747TRUETRUEVFRMETAR387.02019-10-17 09:04:03 1wK)5    3KDLL 170855Z AUTO 00000KT 10SM OVC035 05/03 A3002 RMK AO2 T00460028KDLL2019-10-17T08:55:00Z43.52-89.774.62.80010.030.02067TRUETRUEVFRMETAR299.02019-10-17 09:04:03N)5    3KD25 170855Z AUTO 28004KT 10SM OVC026 03/03 A2998 RMK AO2 T00330033KD252019-10-17T08:55:00Z46.12-89.883.33.3280410.029.97933TRUETRUEMVFRMETAR491.02019-10-17 09:04:034(q5   3K3K8 170855Z AUTO 15006KT 10SM 06/00 A3000 RMK AO2K3K82019-10-17T08:55:00Z37.22-99.336.00.0150610.030.0TRUETRUESPECI636.02019-10-17 09:04:03I ) 5    3KEYF 170855Z AUTO 33009KT 10SM CLR 10/04 A2985 RMK AO2 T01020042KEYF2019-10-17T08:55:00Z34.6-78.5810.24.2330910.029.84941TRUETRUEVFRMETAR41.02019-10-17 09:04:03 ;w_)+5   3KGEV 170855Z AUTO 32014G29KT 290V350 10SM OVC021 03/M01 A2983 RMK AO2 T00301009KGEV2019-10-17T08:55:00Z36.43-81.423.0-0.9320142910.029.828741TRUETRUEMVFRMETAR969.02019-10-17 09:04:03K) 5    3KEZS 170855Z AUTO 28003KT 10SM CLR 05/03 A2999 RMK AO2 T00510033KEZS2019-10-17T08:55:00Z44.78-88.575.13.3280310.029.991142TRUETRUEVFRMETAR248.02019-10-17 09:04:03>(y5    3KFQD 170855Z AUTO 00000KT 10SM CLR 05/02 A2989 RMK AO2KFQD2019-10-17T08:55:00Z35.42-81.935.02.00010.029.890747TRUETRUEVFRMETAR329.02019-10-17 09:04:03?(y5    3KGAF 170855Z AUTO 15007KT 10SM CLR 01/01 A2994 RMK AO2KGAF2019-10-17T08:55:00Z48.4-97.371.01.0150710.029.940945TRUETRUEVFRMETAR252.02019-10-17 09:04:03 1VK) 5    3KF05 170855Z AUTO 23007KT 10SM CLR 06/02 A3008 RMK AO1 T00630019KF052019-10-17T08:55:00Z34.23-99.286.31.9230710.030.079725TRUETRUEVFRMETAR386.02019-10-17 09:04:03J) 5    3KDRI 170855Z AUTO 00000KT 10SM CLR 11/10 A3006 RMK AO2 T01100103KDRI2019-10-17T08:55:00Z30.83-93.3311.010.30010.030.059055TRUETRUEVFRSPECI63.02019-10-17 09:04:03U)#5    3KDRM 170855Z AUTO 32007KT 290V350 10SM SCT025 06/03 A2982 RMK AO2 T00560025KDRM2019-10-17T08:55:00Z46.0-83.755.62.5320710.029.819881TRUETRUEVFRMETAR204.02019-10-17 09:04:03I) 5    3KF46 170855Z AUTO 00000KT 10SM CLR 09/06 A3010 RMK AO2 T00880063KF462019-10-17T08:55:00Z32.93-96.438.86.30010.030.100393TRUETRUEVFRMETAR176.02019-10-17 09:04:03 /L}C({5    3KPAN 170855Z AUTO 00000KT 10SM CLR 15/M02 A3008 RMK AO2KPAN2019-10-17T08:55:00Z34.25-111.3315.0-2.00010.030.079725TRUETRUEVFRSPECI1572.02019-10-17 09:04:03I) 5    3KPDC 170855Z AUTO 00000KT 10SM CLR 05/01 A3004 RMK AO2 T00450014KPDC2019-10-17T08:55:00Z43.02-91.124.51.40010.030.041338TRUETRUEVFRSPECI201.02019-10-17 09:04:03])%5     3KHNZ 170855Z AUTO 00000KT 10SM CLR 07/01 A2975 RMK AO2 P0002 60006 T00710011KHNZ2019-10-17T08:55:00Z36.37-78.537.11.10010.029.749016TRUETRUEVFR0.020.06METAR161.02019-10-17 09:04:03K) 5    3KIPJ 170855Z AUTO 25003KT 10SM CLR 05/01 A2987 RMK AO2 T00520010KIPJ2019-10-17T08:55:00Z35.48-81.175.21.0250310.029.870079TRUETRUEVFRMETAR267.02019-10-17 09:04:03 :vJ ) 5    3KEHO 170855Z AUTO 31004KT 10SM CLR 07/01 A2988 RMK AO2 T00670011KEHO2019-10-17T08:55:00Z35.25-81.66.71.1310410.029.878937TRUETRUEVFRMETAR258.02019-10-17 09:04:03J) 5    3KJAS 170855Z AUTO 00000KT 10SM CLR 12/11 A3007 RMK AO2 T01160111KJAS2019-10-17T08:55:00Z30.88-94.0311.611.10010.030.070866TRUETRUEVFRSPECI65.02019-10-17 09:04:03>(y5    3KORS 170855Z AUTO 13004KT 10SM CLR 09/09 A2964 RMK AO2KORS2019-10-17T08:55:00Z48.7-122.929.09.0130410.029.639763TRUETRUEVFRSPECI9.02019-10-17 09:04:03@(y5    3KOXV 170855Z AUTO 16007KT 10SM CLR 02/02 A3004 RMK AO2KOXV2019-10-17T08:55:00Z41.28-93.122.02.0160710.030.041338TRUETRUEVFRSPECI283.02019-10-17 09:04:03 1aM$)5    3KMWK 170855Z AUTO 28005KT 10SM OVC046 10/02 A2985 RMK AO2 T00950017KMWK2019-10-17T08:55:00Z36.47-80.559.51.7280510.029.84941TRUETRUEVFRMETAR380.02019-10-17 09:04:03>#(y5    3KMXO 170855Z AUTO 00000KT 10SM CLR 04/04 A3005 RMK AO2KMXO2019-10-17T08:55:00Z42.22-91.174.04.00010.030.050198TRUETRUEVFRSPECI259.02019-10-17 09:04:03J") 5    3KOCW 170855Z AUTO 24006KT 10SM CLR 09/05 A2978 RMK AO2 T00900046KOCW2019-10-17T08:55:00Z35.57-77.059.04.6240610.029.778543TRUETRUEVFRMETAR12.02019-10-17 09:04:03I!)5   3KOKV 170855Z AUTO 28022G28KT 10SM SCT036 08/02 A2958 RMK AO2KOKV2019-10-17T08:55:00Z39.13-78.158.02.0280222810.029.58071TRUETRUEVFRMETAR222.02019-10-17 09:04:03 8j>((y5    3KGYH 170855Z AUTO 00000KT 10SM CLR 09/02 A2988 RMK AO2KGYH2019-10-17T08:55:00Z34.75-82.389.02.00010.029.878937TRUETRUEVFRMETAR292.02019-10-17 09:04:03>'(y5    3KHAE 170855Z AUTO 00000KT 10SM CLR 02/01 A3009 RMK AO2KHAE2019-10-17T08:55:00Z39.73-91.452.01.00010.030.088583TRUETRUEVFRMETAR234.02019-10-17 09:04:03H&) 5    3KF17 170855Z AUTO 00000KT 10SM CLR 08/07 A3008 RMK AO2 T00770070KF172019-10-17T08:55:00Z31.83-94.157.77.00010.030.079725TRUETRUEVFRMETAR97.02019-10-17 09:04:03B%(5    3KATW 170855Z AUTO 28006KT 10SM SCT120 02/01 A2998 RMK AO2KATW2019-10-17T08:55:00Z44.27-88.522.01.0280610.029.97933TRUETRUEVFRSPECI280.02019-10-17 09:04:03 (VF,) 5    3KPEA 170855Z AUTO 00000KT 7SM CLR 01/00 A3006 RMK AO2 T00090004KPEA2019-10-17T08:55:00Z41.4-92.950.90.4007.030.059055TRUETRUEVFRMETAR270.02019-10-17 09:04:03L+)5    3KOIN 170855Z AUTO 00000KT 10SM CLR 04/M01 A2993 RMK AO1 T00421006KOIN2019-10-17T08:55:00Z39.83-100.534.2-0.60010.029.929134TRUETRUEVFRMETAR824.02019-10-17 09:04:03L*) 5    3KLNP 170855Z AUTO 29005KT 10SM BKN014 OVC019 03/01 A2995 RMK AO2KLNP2019-10-17T08:55:00Z36.97-82.523.01.0290510.029.949802TRUETRUEMVFRMETAR817.02019-10-17 09:04:03R))!5    3KLNL 170855Z AUTO 00000KT 10SM SCT006 OVC110 04/03 A2998 RMK AO2 T00360032KLNL2019-10-17T08:55:00Z46.15-89.223.63.20010.029.97933TRUETRUEVFRMETAR520.02019-10-17 09:04:03 /ZK0) 5    3KFIN 170855Z AUTO 32004KT 10SM CLR 21/19 A2987 RMK AO2 T02050192KFIN2019-10-17T08:55:00Z29.47-81.220.519.2320410.029.870079TRUETRUEVFRMETAR10.02019-10-17 09:04:03K/) 5    3KFGX 170855Z AUTO 29007KT 10SM CLR 04/02 A2997 RMK AO2 T00360024KFGX2019-10-17T08:55:00Z38.55-83.753.62.4290710.029.970472TRUETRUEVFRMETAR278.02019-10-17 09:04:03O.) 5     3K2D5 170855Z AUTO 11005KT 10SM CLR M01/M01 A2989 RMK AO2 PWINOK2D52019-10-17T08:55:00Z46.17-98.08-1.0-1.0110510.029.890747TRUETRUETRUEVFRSPECI407.02019-10-17 09:04:03K-) 5    3K2P2 170855Z AUTO 34009KT 10SM CLR 05/03 A2994 RMK AO2 T00520027K2P22019-10-17T08:55:00Z45.38-86.925.22.7340910.029.940945TRUETRUEVFRSPECI199.02019-10-17 09:04:03 1aH4) 5    3K0F2 170855Z AUTO 00000KT 10SM CLR 06/04 A3010 RMK AO2 T00610037K0F22019-10-17T08:55:00Z33.6-97.786.13.70010.030.100393TRUETRUEVFRSPECI336.02019-10-17 09:04:03P3)5    3K0E0 170855Z AUTO 33005KT 10SM CLR M01/M07 A3019 RMK AO2 T10111070K0E02019-10-17T08:55:00Z34.98-106.0-1.1-7.0330510.030.188976TRUETRUEVFRSPECI1890.02019-10-17 09:04:03J2) 5    3KFKR 170855Z AUTO 27003KT 10SM CLR 03/02 A3002 RMK AO2 T00300015KFKR2019-10-17T08:55:00Z40.27-86.573.01.5270310.030.02067TRUETRUEVFRSPECI262.02019-10-17 09:04:03I1) 5    3KFKA 170855Z AUTO 00000KT 10SM CLR 02/00 A3003 RMK AO2 T00160001KFKA2019-10-17T08:55:00Z43.68-92.171.60.10010.030.029528TRUETRUEVFRMETAR389.02019-10-17 09:04:03 +SK8) 5    3K1K1 170855Z AUTO 17006KT 10SM CLR 07/03 A3003 RMK AO2 T00650030K1K12019-10-17T08:55:00Z37.77-97.126.53.0170610.030.029528TRUETRUEVFRSPECI416.02019-10-17 09:04:03H7) 5    3K1A9 170855Z AUTO 00000KT 10SM CLR 09/08 A3001 RMK AO2 T00860081K1A92019-10-17T08:55:00Z32.43-86.528.68.10010.030.008858TRUETRUEVFRSPECI69.02019-10-17 09:04:03R6)5     3K18A 170855Z AUTO 00000KT 10SM CLR 06/04 A2989 RMK AO2 T00640039 TSNOK18A2019-10-17T08:55:00Z34.35-83.136.43.90010.029.890747TRUETRUETRUEVFRSPECI271.02019-10-17 09:04:03O5)5    3K0V4 170855Z AUTO 24010KT 10SM BKN050 10/02 A2974 RMK AO1 T00980021K0V42019-10-17T08:55:00Z37.15-79.029.82.12401010.029.740158TRUETRUEVFRSPECI182.02019-10-17 09:04:03 1a><(y5    3K4O4 170855Z AUTO 00000KT 10SM CLR 06/05 A3007 RMK AO2K4O42019-10-17T08:55:00Z33.92-94.876.05.00010.030.070866TRUETRUEVFRSPECI144.02019-10-17 09:04:03C;(5    3K4I3 170855Z AUTO 28013KT 10SM SCT018 05/02 A2985 RMK AO2K4I32019-10-17T08:55:00Z40.33-82.535.02.02801310.029.84941TRUETRUEVFRSPECI363.02019-10-17 09:04:03J:) 5    3K49A 170855Z AUTO 01005KT 10SM CLR 06/04 A2997 RMK AO2 T00640035K49A2019-10-17T08:55:00Z34.63-84.536.43.510510.029.970472TRUETRUEVFRSPECI453.02019-10-17 09:04:03I9) 5    3K3LF 170855Z AUTO 00000KT 10SM CLR 02/02 A3009 RMK AO2 T00200015K3LF2019-10-17T08:55:00Z39.17-89.672.01.50010.030.088583TRUETRUEVFRSPECI210.02019-10-17 09:04:03 +Y>@(y5    3KADC 170855Z AUTO 00000KT 10SM CLR 00/00 A2997 RMK AO2KADC2019-10-17T08:55:00Z46.45-95.220.00.00010.029.970472TRUETRUEVFRSPECI418.02019-10-17 09:04:03@?(y5    3K6A2 170855Z AUTO 31003KT 10SM CLR 07/06 A2995 RMK AO2K6A22019-10-17T08:55:00Z33.23-84.277.06.0310310.029.949802TRUETRUEVFRSPECI292.02019-10-17 09:04:03L>) 5    3K54J 170855Z AUTO 35005KT 10SM CLR 13/11 A2999 RMK AO2 T01260113K54J2019-10-17T08:55:00Z30.73-86.1512.611.3350510.029.991142TRUETRUEVFRSPECI88.02019-10-17 09:04:03O=)5    3K4V0 170855Z AUTO 00000KT 10SM CLR M01/M11 A3003 RMK AO2 T10151110K4V02019-10-17T08:55:00Z40.1-108.77-1.5-11.00010.030.029528TRUETRUEVFRMETAR1608.02019-10-17 09:04:03 0uQD)5    3KAPY 170855Z AUTO 33003KT 10SM OVC024 19/15 A3006 RMK AO2 T01880149KAPY2019-10-17T08:55:00Z26.97-99.2518.814.9330310.030.059055TRUETRUEMVFRSPECI129.02019-10-17 09:04:03DC) 5    3KALX 170855Z AUTO 00000KT 10SM CLR 06/06 A3000 RMK AO2 T00630057KALX2019-10-17T08:55:00Z32.92-85.976.35.70010.030.0TRUETRUEVFRSPECI209.02019-10-17 09:04:035B(u5   3KAFP 170855Z AUTO 10SM 06/04 A2985 RMK AO2 T00560038KAFP2019-10-17T08:55:00Z35.02-80.085.63.810.029.84941TRUETRUESPECI92.02019-10-17 09:04:03JA) 5    3KAFK 170855Z AUTO 16004KT 10SM CLR 04/04 A2999 RMK AO2 T00420039KAFK2019-10-17T08:55:00Z40.6-95.854.23.9160410.029.991142TRUETRUEVFRSPECI354.02019-10-17 09:04:03 5r@I(y5    3KLKR 170855Z AUTO 29003KT 10SM CLR 07/05 A2987 RMK AO2KLKR2019-10-17T08:55:00Z34.72-80.857.05.0290310.029.870079TRUETRUEVFRMETAR149.02019-10-17 09:04:03OH)5    3KLMO 170855Z AUTO 22004KT 10SM CLR 06/M03 A2999 RMK AO2 T00551029KLMO2019-10-17T08:55:00Z40.17-105.175.5-2.9220410.029.991142TRUETRUEVFRSPECI1541.02019-10-17 09:04:03=G(y5    3KLRJ 170855Z AUTO 00000KT 10SM CLR 03/02 A2996 RMK AO2KLRJ2019-10-17T08:55:00Z42.77-96.23.02.00010.029.958662TRUETRUEVFRSPECI365.02019-10-17 09:04:03=F(y5    3KLRO 170855Z AUTO 00000KT 10SM CLR 11/10 A2986 RMK AO2KLRO2019-10-17T08:55:00Z32.9-79.7811.010.00010.029.861221TRUETRUEVFRMETAR4.02019-10-17 09:04:03EE(5   3KHEG 170855Z AUTO 31004G11KT 10SM CLR 18/13 A2992 RMK AO2KHEG2019-10-17T08:55:00Z30.28-81.818.013.031041110.029.920275TRUETRUEVFRMETAR27.02019-10-17 09:04:03 #^>M(y5    3KKY8 170855Z AUTO 00000KT 10SM CLR 05/05 A3006 RMK A01KKY82019-10-17T08:55:00Z37.95-86.875.05.00010.030.059055TRUETRUEVFRMETAR126.02019-10-17 09:04:03TL)5    3KL08 170855Z AUTO 30005KT 10SM FEW047 FEW060 FEW070 17/01 A2975 RMK AO2KL082019-10-17T08:55:00Z33.27-116.3217.01.0300510.029.749016TRUETRUEVFRSPECI159.02019-10-17 09:04:03?K(y5    3KL52 170855Z AUTO 09004KT 10SM CLR 11/10 A2988 RMK A01KL522019-10-17T08:55:00Z35.1-120.6211.010.090410.029.878937TRUETRUEVFRSPECI4.02019-10-17 09:04:03WJ)!5     3KLBE 170855Z AUTO 25011KT 7SM -DZ BKN017 BKN023 OVC027 06/06 A2967 RMK AO2KLBE2019-10-17T08:55:00Z40.27-79.46.06.0250117.029.66929TRUETRUE-DZMVFRSPECI361.02019-10-17 09:04:03 />|/;R(s5   3KJKJ 170855Z AUTO 14004KT 10SM 02/M01 A2996 RMK AO2KJKJ2019-10-17T08:55:00Z46.83-96.672.0-1.0140410.029.958662TRUETRUESPECI280.02019-10-17 09:04:03>Q(y5    3KJQF 170855Z AUTO 00000KT 10SM CLR 06/03 A2988 RMK AO2KJQF2019-10-17T08:55:00Z35.38-80.726.03.00010.029.878937TRUETRUEVFRMETAR210.02019-10-17 09:04:03BP(5    3KJVL 170855Z AUTO 31003KT 10SM BKN120 05/02 A3002 RMK AO2KJVL2019-10-17T08:55:00Z42.62-89.055.02.0310310.030.02067TRUETRUEVFRSPECI246.02019-10-17 09:04:03W(y5    3KICL 170855Z AUTO 00000KT 10SM CLR 00/00 A3004 RMK AO2KICL2019-10-17T08:55:00Z40.72-95.020.00.00010.030.041338TRUETRUEVFRSPECI303.02019-10-17 09:04:03KV)5   3KIDI 170855Z AUTO 29013G19KT 10SM OVC017 06/05 A2964 RMK A01KIDI2019-10-17T08:55:00Z40.62-79.086.05.0290131910.029.639763TRUETRUEMVFRSPECI429.02019-10-17 09:04:03>U({5    3KIKV 170855Z AUTO 00000KT 8SM CLR M00/M00 A3005 RMK AO2KIKV2019-10-17T08:55:00Z41.68-93.570.00.0008.030.050198TRUETRUEVFRSPECI275.02019-10-17 09:04:033T(i5    3KJFX 170855Z AUTO 10SM CLR 04/04 A3003 RMK AO2KJFX2019-10-17T08:55:00Z33.9-87.324.04.010.030.029528TRUETRUEVFRMETAR148.02019-10-17 09:04:03FS(5   3KJGG 170855Z AUTO 28010G15KT 10SM CLR 11/04 A2968 RMK AO1KJGG2019-10-17T08:55:00Z37.23-76.7211.04.0280101510.029.681103TRUETRUEVFRMETAR15.02019-10-17 09:04:03 7p>\(y5    3KHPT 170855Z AUTO 00000KT 10SM CLR 00/00 A3003 RMK AO2KHPT2019-10-17T08:55:00Z42.58-93.230.00.00010.030.029528TRUETRUEVFRSPECI358.02019-10-17 09:04:03>[(y5    3KHVS 170855Z AUTO 00000KT 10SM CLR 10/06 A2986 RMK AO2KHVS2019-10-17T08:55:00Z34.4-80.1210.06.00010.029.861221TRUETRUEVFRMETAR111.02019-10-17 09:04:03MZ)5    3KHWY 170855Z AUTO 00000KT 10SM OVC065 11/01 A2961 RMK AO2 T01130009KHWY2019-10-17T08:55:00Z38.58-77.7211.30.90010.029.610237TRUETRUEVFRMETAR103.02019-10-17 09:04:03AY(5   3KHXD 170855Z AUTO VRB06G11KT 10SM CLR 15/07 A2988 RMK AO2KHXD2019-10-17T08:55:00Z32.22-80.715.07.0061110.029.878937TRUETRUEVFRMETAR6.02019-10-17 09:04:03CX(}5    3KHZE 170855Z AUTO 00000KT 10SM CLR M03/M03 A2981 RMK AO2KHZE2019-10-17T08:55:00Z47.28-101.58-3.0-3.00010.029.811024TRUETRUEVFRSPECI553.02019-10-17 09:04:03 :wP`)5      3KMHL 170855Z AUTO 00000KT 10SM CLR 02/01 A3009 RMK AO2 TSNO PWINOKMHL2019-10-17T08:55:00Z39.1-93.22.01.00010.030.088583TRUETRUETRUETRUEVFRSPECI237.02019-10-17 09:04:03?_(y5    3KPLR 170855Z AUTO 34004KT 10SM CLR 08/08 A3002 RMK A01KPLR2019-10-17T08:55:00Z33.57-86.258.08.0340410.030.02067TRUETRUEVFRMETAR148.02019-10-17 09:04:03=^(y5    3KLUX 170855Z AUTO 00000KT 10SM CLR 06/05 A2989 RMK AO2KLUX2019-10-17T08:55:00Z34.5-81.956.05.00010.029.890747TRUETRUEVFRMETAR213.02019-10-17 09:04:03@](}5    3KHNR 170855Z AUTO 00000KT 10SM CLR M00/M00 A2999 RMK AO2KHNR2019-10-17T08:55:00Z41.58-95.330.00.00010.029.991142TRUETRUEVFRSPECI375.02019-10-17 09:04:03 1bKd) 5    3KVUJ 170855Z AUTO 28003KT 10SM CLR 07/02 A2989 RMK AO2 T00650021KVUJ2019-10-17T08:55:00Z35.42-80.156.52.1280310.029.890747TRUETRUEVFRSPECI186.02019-10-17 09:04:03Lc) 5    3KAXH 170855Z AUTO 35003KT 10SM CLR 15/12 A3003 RMK AO2 T01500123KAXH2019-10-17T08:55:00Z29.52-95.4815.012.3350310.030.029528TRUETRUEVFRSPECI21.02019-10-17 09:04:03Ib) 5    3KASL 170855Z AUTO 36003KT 5SM CLR 07/07 A3010 RMK AO1 T00720065KASL2019-10-17T08:55:00Z32.52-94.37.26.536035.030.100393TRUETRUEMVFRSPECI109.02019-10-17 09:04:03Ia) 5    3KASN 170855Z AUTO 00000KT 10SM CLR 06/06 A3001 RMK AO2 T00600058KASN2019-10-17T08:55:00Z33.57-86.056.05.80010.030.008858TRUETRUEVFRSPECI162.02019-10-17 09:04:03 "LkKh)5     3KX07 170855Z AUTO 00000KT 3/4SM BR VV005 22/22 A2990 RMK A01KX072019-10-17T08:55:00Z27.9-81.6222.022.0000.7529.899607TRUETRUEBRLIFR500SPECI39.02019-10-17 09:04:03[g))5   3KW99 170855Z AUTO 27013G25KT 240V310 10SM BKN042 09/01 A2968 RMK AO2 T00870012KW992019-10-17T08:55:00Z39.0-79.158.71.2270132510.029.681103TRUETRUEVFRSPECI293.02019-10-17 09:04:03Pf)5    3KWBF 170855Z AUTO 00000KT 10SM FEW023 SCT040 BKN055 28/23 A2990 RMK A01KWBF2019-10-17T08:55:00Z26.93-90.528.023.00010.029.899607TRUETRUEVFRSPECI10.02019-10-17 09:04:03Xe)!5   3KW22 170855Z AUTO 25011G21KT 10SM SCT018 BKN026 OVC042 06/04 A2981 RMK AO2KW222019-10-17T08:55:00Z39.0-80.276.04.0250112110.029.811024TRUETRUEMVFRSPECI499.02019-10-17 09:04:03 1jHl) 5    3K3T5 170855Z AUTO 00000KT 10SM CLR 11/08 A3004 RMK AO2 T01060084K3T52019-10-17T08:55:00Z29.9-96.9510.68.40010.030.041338TRUETRUEVFRSPECI99.02019-10-17 09:04:03Kk)5     3K42J 170855Z AUTO 33003KT 10SM CLR 18/18 A2990 RMK A01 TSNOK42J2019-10-17T08:55:00Z29.85-82.0518.018.0330310.029.899607TRUETRUETRUEVFRMETAR60.02019-10-17 09:04:03Aj(y5    3K46D 170855Z AUTO 15011KT 10SM CLR 01/00 A2986 RMK AO2K46D2019-10-17T08:55:00Z47.45-99.151.00.01501110.029.861221TRUETRUEVFRSPECI490.02019-10-17 09:04:03Ii) 5    3KXBP 170855Z AUTO 00000KT 10SM CLR 06/04 A3011 RMK AO2 T00640036KXBP2019-10-17T08:55:00Z33.18-97.836.43.60010.030.109253TRUETRUEVFRSPECI260.02019-10-17 09:04:03 *\Mp)5    3KLRU 170855Z AUTO 00000KT 10SM CLR 08/M01 A3011 RMK AO2 T00781010KLRU2019-10-17T08:55:00Z32.27-106.927.8-1.00010.030.109253TRUETRUEVFRSPECI1358.02019-10-17 09:04:03Ho) 5    3KSCD 170855Z AUTO 00000KT 10SM CLR 09/06 A3001 RMK AO2 T00920060KSCD2019-10-17T08:55:00Z33.17-86.39.26.00010.030.008858TRUETRUEVFRSPECI173.02019-10-17 09:04:03Hn) 5    3KAXS 170855Z AUTO 00000KT 10SM CLR 09/01 A3009 RMK AO2 T00890005KAXS2019-10-17T08:55:00Z34.7-99.338.90.50010.030.088583TRUETRUEVFRSPECI437.02019-10-17 09:04:03Pm)5   3K3D2 170855Z AUTO 32009G14KT 10SM CLR 05/03 A2994 RMK AO2 T00470025K3D22019-10-17T08:55:00Z45.13-87.184.72.532091410.029.940945TRUETRUEVFRSPECI234.02019-10-17 09:04:03 1VUt)5    3KLHM 170855Z AUTO 15011KT 10SM BKN050 BKN075 BKN120 16/10 A2984 RMK AO1KLHM2019-10-17T08:55:00Z38.92-121.3516.010.01501110.029.840551TRUETRUEVFRSPECI37.02019-10-17 09:04:03Js) 5    3KLKU 170855Z AUTO 21004KT 10SM CLR 07/03 A2969 RMK AO2 T00670027KLKU2019-10-17T08:55:00Z38.02-77.976.72.7210410.029.68996TRUETRUEVFRMETAR150.02019-10-17 09:04:03Ur)!5    3KLNA 170855Z AUTO 26004KT 10SM CLR 25/24 A2989 RMK AO2 6//// T02510240 PNOKLNA2019-10-17T08:55:00Z26.6-80.0225.124.0260410.029.890747TRUETRUEVFRMETAR11.02019-10-17 09:04:03Iq) 5    3KLNC 170855Z AUTO 00000KT 10SM CLR 08/06 A3011 RMK AO2 T00800064KLNC2019-10-17T08:55:00Z32.58-96.728.06.40010.030.109253TRUETRUEVFRSPECI153.02019-10-17 09:04:03 %=nKx) 5    3KK88 170855Z AUTO 15005KT 10SM CLR 05/04 A3008 RMK AO1 T00470035KK882019-10-17T08:55:00Z37.87-95.384.73.5150510.030.079725TRUETRUEVFRMETAR309.02019-10-17 09:04:03Iw)5     3KL18 170855Z AUTO 00000KT 5SM BR SCT003 15/14 A2984 RMK AO2KL182019-10-17T08:55:00Z33.35-117.2515.014.0005.029.840551TRUETRUEBRMVFRSPECI216.02019-10-17 09:04:03bv)55   3KLCK 170855Z AUTO 28011G15KT 10SM SCT030 SCT034 OVC050 08/03 A2989 RMK AO2 T00750030KLCK2019-10-17T08:55:00Z39.82-82.927.53.0280111510.029.890747TRUETRUEVFRSPECI227.02019-10-17 09:04:03Uu)!5    3KLDM 170855Z AUTO 33007KT 10SM BKN029 OVC034 08/03 A2992 RMK AO2 T00800034KLDM2019-10-17T08:55:00Z43.97-86.48.03.4330710.029.920275TRUETRUEMVFRSPECI197.02019-10-17 09:04:03 )]=|(y5    3KJSV 170855Z AUTO 00000KT 10SM CLR 05/05 A3012 RMK AO2KJSV2019-10-17T08:55:00Z35.43-94.85.05.00010.030.121063TRUETRUEVFRMETAR161.02019-10-17 09:04:03I{) 5    3KJWY 170855Z AUTO 00000KT 10SM CLR 08/06 A3010 RMK AO2 T00760061KJWY2019-10-17T08:55:00Z32.45-96.927.66.10010.030.100393TRUETRUEVFRSPECI217.02019-10-17 09:04:03Fz) 5    3KJXI 170855Z AUTO 00000KT 7SM CLR 08/08 A3009 RMK AO2 T00770075KJXI2019-10-17T08:55:00Z32.7-94.957.77.5007.030.088583TRUETRUEVFRSPECI127.02019-10-17 09:04:03Qy)5   3KJYM 170855Z AUTO 31011G17KT 10SM CLR 04/02 A2989 RMK AO2 T00420018KJYM2019-10-17T08:55:00Z41.92-84.584.21.8310111710.029.890747TRUETRUEVFRSPECI360.02019-10-17 09:04:03 0CtI) 5    3KIGQ 170855Z AUTO 00000KT 10SM CLR 05/03 A3001 RMK AO2 T00510029KIGQ2019-10-17T08:55:00Z41.53-87.535.12.90010.030.008858TRUETRUEVFRSPECI188.02019-10-17 09:04:03I) 5    3KINJ 170855Z AUTO 00000KT 10SM CLR 10/06 A3008 RMK AO2 T01040064KINJ2019-10-17T08:55:00Z32.08-97.110.46.40010.030.079725TRUETRUEVFRSPECI209.02019-10-17 09:04:03g~)35    3KIRK 170855Z AUTO 19003KT 10SM CLR 02/01 A3008 RMK AO2 SLP195 I3000 T00170011 58005KIRK2019-10-17T08:55:00Z40.1-92.551.71.1190310.030.0797251019.5TRUETRUEVFR-0.5SPECI293.02019-10-17 09:04:03J})5     3KIZA 170855Z AUTO 22003KT 3SM BR OVC001 10/10 A2989 RMK AO2KIZA2019-10-17T08:55:00Z34.6-120.0710.010.022033.029.890747TRUETRUEBRLIFRSPECI205.02019-10-17 09:04:03 1luI) 5    3KBEC 170855Z AUTO 17006KT 10SM CLR 06/03 A3002 RMK AO2 T00630030KBEC2019-10-17T08:55:00Z37.7-97.226.33.0170610.030.02067TRUETRUEVFRSPECI429.02019-10-17 09:04:03q)?5    3KNBG 170855Z AUTO 03007KT 10SM CLR 16/13 A2999 RMK AO2 SLP153 6//// T01610128 58007 PNO $KNBG2019-10-17T08:55:00Z29.82-90.0216.112.830710.029.9911421015.3TRUETRUETRUEVFR-0.7METAR1.02019-10-17 09:04:03?(y5    3KI67 170855Z AUTO 28005KT 10SM CLR 05/01 A2998 RMK AO1KI672019-10-17T08:55:00Z39.25-84.785.01.0280510.029.97933TRUETRUEVFRSPECI178.02019-10-17 09:04:03I)5   3KI74 170855Z AUTO 28007G15KT 10SM OVC044 07/03 A2991 RMK AO2KI742019-10-17T08:55:00Z40.35-83.757.03.028071510.029.911417TRUETRUEVFRSPECI325.02019-10-17 09:04:03 +WB(}5     3KSYI 170855Z AUTO 00000KT 5SM BR CLR 04/03 A3005 RMK A01KSYI2019-10-17T08:55:00Z35.57-86.454.03.0005.030.050198TRUETRUEBRMVFRSPECI245.02019-10-17 09:04:03N)5    3KT82 170855Z AUTO 34003KT 10SM SCT110 09/05 A3009 RMK AO2 T00850050KT822019-10-17T08:55:00Z30.25-98.928.55.0340310.030.088583TRUETRUEVFRSPECI517.02019-10-17 09:04:03N) 5    3KTCY 170855Z AUTO 30010KT 10SM SCT019 BKN080 17/12 A2987 RMK A01KTCY2019-10-17T08:55:00Z37.68-121.4317.012.03001010.029.870079TRUETRUEVFRMETAR59.02019-10-17 09:04:03O)5    3KAXX 170855Z AUTO 00000KT 10SM CLR M10/M13 A3029 RMK AO2 T10991133KAXX2019-10-17T08:55:00Z36.42-105.28-9.9-13.30010.030.28937TRUETRUEVFRMETAR2548.02019-10-17 09:04:03 <zT )5     3KSNL 170855Z AUTO 17003KT 10SM CLR 07/04 A3008 RMK AO2 T00700035 TSNOKSNL2019-10-17T08:55:00Z35.35-96.957.03.5170310.030.079725TRUETRUETRUEVFRSPECI327.02019-10-17 09:04:03Q )5    3KSOA 170855Z AUTO 00000KT 10SM SCT070 BKN085 BKN120 13/04 A3015 RMK AO2KSOA2019-10-17T08:55:00Z30.58-100.6513.04.00010.030.15059TRUETRUEVFRSPECI652.02019-10-17 09:04:03< (w5    3KSRB 170855Z AUTO 00000KT 8SM CLR 01/01 A3003 RMK A01KSRB2019-10-17T08:55:00Z36.05-85.531.01.0008.030.029528TRUETRUEVFRSPECI313.02019-10-17 09:04:03> (y5    3KSRE 170855Z AUTO 00000KT 10SM CLR 05/03 A3008 RMK AO2KSRE2019-10-17T08:55:00Z35.27-96.685.03.00010.030.079725TRUETRUEVFRSPECI312.02019-10-17 09:04:03 >zC(y5    3KSEE 170855Z AUTO 29004KT 10SM CLR 16/11 A2983 RMK AO2KSEE2019-10-17T08:55:00Z32.82-116.9716.011.0290410.029.828741TRUETRUEVFRSPECI117.02019-10-17 09:04:03L) 5    3KSEF 170855Z AUTO 29004KT 10SM CLR 24/23 A2989 RMK AO2 T02350231KSEF2019-10-17T08:55:00Z27.45-81.3523.523.1290410.029.890747TRUETRUEVFRSPECI19.02019-10-17 09:04:03@(y5    3KSFY 170855Z AUTO 30003KT 10SM CLR 06/02 A3005 RMK AO2KSFY2019-10-17T08:55:00Z42.05-90.126.02.0300310.030.050198TRUETRUEVFRSPECI188.02019-10-17 09:04:03>(y5    3KSME 170855Z AUTO 00000KT 10SM CLR 02/02 A3004 RMK AO2KSME2019-10-17T08:55:00Z37.05-84.622.02.00010.030.041338TRUETRUEVFRSPECI283.02019-10-17 09:04:03< (w5    3KSNH 170855Z AUTO 00000KT 7SM CLR 04/04 A3007 RMK A01KSNH2019-10-17T08:55:00Z35.17-88.224.04.0007.030.070866TRUETRUEVFRSPECI144.02019-10-17 09:04:03 <rI) 5    3KS39 170855Z AUTO 00000KT 10SM BKN065 OVC075 07/06 A2977 RMK AO2KS392019-10-17T08:55:00Z44.28-120.97.06.00010.029.769686TRUETRUEVFRSPECI991.02019-10-17 09:04:03M)5    3KSBS 170855Z AUTO 00000KT 10SM CLR 00/M10 A3013 RMK AO1 T00011096KSBS2019-10-17T08:55:00Z40.52-106.870.1-9.60010.030.129921TRUETRUEVFRSPECI2096.02019-10-17 09:04:03D(5    3KSCF 170855Z AUTO 05015KT 10SM OVC015 19/16 A2997 RMK A01KSCF2019-10-17T08:55:00Z29.12-91.8719.016.0501510.029.970472TRUETRUEMVFRSPECI8.02019-10-17 09:04:03>(y5    3KSCX 170855Z AUTO 00000KT 10SM CLR 01/01 A3001 RMK A01KSCX2019-10-17T08:55:00Z36.45-84.581.01.00010.030.008858TRUETRUEVFRSPECI471.02019-10-17 09:04:03 ApK) 5    3KRQO 170855Z AUTO 17010KT 10SM CLR 08/02 A3006 RMK AO2 T00750025KRQO2019-10-17T08:55:00Z35.47-98.07.52.51701010.030.059055TRUETRUEVFRSPECI432.02019-10-17 09:04:03K)5   3KRTS 170855Z AUTO 26016G22KT 10SM CLR 12/M05 A2985 RMK AO2KRTS2019-10-17T08:55:00Z39.67-119.8812.0-5.0260162210.029.84941TRUETRUEVFRSPECI1540.02019-10-17 09:04:03K) 5    3KRWV 170855Z AUTO 35005KT 10SM CLR 12/08 A3006 RMK AO2 T01160079KRWV2019-10-17T08:55:00Z30.52-96.711.67.9350510.030.059055TRUETRUEVFRSPECI119.02019-10-17 09:04:039(y5    3KRZR 170855Z AUTO 01004KT 10SM CLR 06/05 A3000 RMK A01KRZR2019-10-17T08:55:00Z35.22-84.86.05.010410.030.0TRUETRUEVFRSPECI263.02019-10-17 09:04:03 /lF(5   3KLUA 170855Z AUTO 26015G22KT 10SM CLR 10/01 A2964 RMK AO2KLUA2019-10-17T08:55:00Z38.67-78.510.01.0260152210.029.639763TRUETRUEVFRMETAR275.02019-10-17 09:04:03E) 5    3KREG 170855Z AUTO 02004KT 10SM CLR 14/11 A3000 RMK AO2 T01430109KREG2019-10-17T08:55:00Z30.17-90.9314.310.920410.030.0TRUETRUEVFRSPECI4.02019-10-17 09:04:039(y5    3KRKW 170855Z AUTO 00000KT 10SM CLR 04/02 A3000 RMK A01KRKW2019-10-17T08:55:00Z35.92-84.684.02.00010.030.0TRUETRUEVFRSPECI508.02019-10-17 09:04:03=(y5    3KRNC 170855Z AUTO 00000KT 10SM CLR 03/03 A3003 RMK A01KRNC2019-10-17T08:55:00Z35.7-85.853.03.00010.030.029528TRUETRUEVFRSPECI315.02019-10-17 09:04:03K)5    3KRNH 170855Z AUTO 00000KT 10SM OVC120 03/03 A3002 RMK AO2 T00330030KRNH2019-10-17T08:55:00Z45.15-92.533.33.00010.030.02067TRUETRUEVFRSPECI304.02019-10-17 09:04:03 4cM")5    3KSAR 170855Z AUTO 27004KT 10SM SCT038 04/04 A3010 RMK AO2 T00420041KSAR2019-10-17T08:55:00Z38.15-89.74.24.1270410.030.100393TRUETRUEVFRSPECI164.02019-10-17 09:04:03C!(5    3KRZT 170855Z AUTO 29007KT 10SM OVC050 07/02 A2991 RMK AO2KRZT2019-10-17T08:55:00Z39.43-83.027.02.0290710.029.911417TRUETRUEVFRSPECI221.02019-10-17 09:04:03K ) 5    3KRSV 170855Z AUTO 30004KT 10SM CLR 02/02 A3007 RMK AO2 T00200017KRSV2019-10-17T08:55:00Z39.02-87.652.01.7300410.030.070866TRUETRUEVFRSPECI141.02019-10-17 09:04:03F) 5    3KRSN 170855Z AUTO 00000KT 7SM CLR 06/06 A3011 RMK AO2 T00610055KRSN2019-10-17T08:55:00Z32.52-92.586.15.5007.030.109253TRUETRUEVFRMETAR95.02019-10-17 09:04:03 /kG&) 5    3KRFI 170855Z AUTO 00000KT 7SM CLR 08/07 A3009 RMK AO2 T00770074KRFI2019-10-17T08:55:00Z32.15-94.857.77.4007.030.088583TRUETRUEVFRSPECI135.02019-10-17 09:04:03;%(y5    3KRGA 170855Z AUTO 24004KT 10SM CLR 04/03 A3000 RMK AO2KRGA2019-10-17T08:55:00Z37.63-84.334.03.0240410.030.0TRUETRUEVFRMETAR305.02019-10-17 09:04:03>$(y5    3KRKR 170855Z AUTO 00000KT 10SM CLR 05/03 A3012 RMK AO2KRKR2019-10-17T08:55:00Z35.02-94.625.03.00010.030.121063TRUETRUEVFRMETAR138.02019-10-17 09:04:03K#) 5    3KRMY 170855Z AUTO 29003KT 10SM CLR 05/02 A2991 RMK AO2 T00530024KRMY2019-10-17T08:55:00Z42.23-84.955.32.4290310.029.911417TRUETRUEVFRSPECI287.02019-10-17 09:04:03 *XA*(}5    3KPWC 170855Z AUTO 00000KT 10SM CLR M01/M02 A3002 RMK AO2KPWC2019-10-17T08:55:00Z46.72-94.37-1.0-2.00010.030.02067TRUETRUEVFRSPECI395.02019-10-17 09:04:03L)) 5    3KPXE 170855Z AUTO 31008KT 10SM CLR 10/07 A2994 RMK AO2 T01030066KPXE2019-10-17T08:55:00Z32.52-83.7710.36.6310810.029.940945TRUETRUEVFRMETAR127.02019-10-17 09:04:03L() 5    3KPYX 170855Z AUTO 20007KT 10SM CLR 06/00 A2999 RMK AO2 T00580002KPYX2019-10-17T08:55:00Z36.42-100.755.80.2200710.029.991142TRUETRUEVFRSPECI889.02019-10-17 09:04:03P')5    3KRCV 170855Z AUTO 27008KT 10SM CLR 05/M12 A3024 RMK AO2 T00451121KRCV2019-10-17T08:55:00Z37.72-106.354.5-12.1270810.030.239174TRUETRUEVFRSPECI2424.02019-10-17 09:04:03 1jM.) 5    3KPRS 170855Z AUTO 34004KT 10SM CLR 15/08 A3010 RMK AO2 T01460082KPRS2019-10-17T08:55:00Z29.63-104.3514.68.2340410.030.100393TRUETRUEVFRSPECI896.02019-10-17 09:04:03T-)5   3KPSK 170855Z AUTO 30012G20KT 10SM OVC032 07/02 A2983 RMK AO2 T00730017KPSK2019-10-17T08:55:00Z37.12-80.677.31.7300122010.029.828741TRUETRUEVFRMETAR642.02019-10-17 09:04:03A,(y5    3KPUJ 170855Z AUTO 32011KT 10SM CLR 07/03 A2996 RMK AO2KPUJ2019-10-17T08:55:00Z33.92-84.937.03.03201110.029.958662TRUETRUEVFRMETAR393.02019-10-17 09:04:03I+) 5    3KPVJ 170855Z AUTO 00000KT 10SM CLR 04/04 A3008 RMK AO2 T00410041KPVJ2019-10-17T08:55:00Z34.72-97.224.14.10010.030.079725TRUETRUEVFRMETAR295.02019-10-17 09:04:03 QK2) 5    3KLYO 170855Z AUTO 15009KT 10SM CLR 06/02 A2997 RMK AO2 T00600023KLYO2019-10-17T08:55:00Z38.35-98.236.02.3150910.029.970472TRUETRUEVFRMETAR515.02019-10-17 09:04:03>1(y5    3KMCJ 170855Z AUTO VRB06KT 10SM CLR 16/11 A3001 RMK A01KMCJ2019-10-17T08:55:00Z29.72-95.416.011.00610.030.008858TRUETRUEVFRSPECI69.02019-10-17 09:04:03?0(y5    3KMGC 170855Z AUTO 33004KT 10SM CLR 07/07 A2999 RMK AO2KMGC2019-10-17T08:55:00Z41.7-86.827.07.0330410.029.991142TRUETRUEVFRSPECI200.02019-10-17 09:04:03d/)-5    3KMKG 170855Z AUTO 32009KT 10SM OVC031 08/03 A2993 RMK AO2 SLP139 T00830033 51001KMKG2019-10-17T08:55:00Z43.17-86.238.33.3320910.029.9291341013.9TRUETRUEVFR0.1SPECI191.02019-10-17 09:04:03 /YI6) 5    3KSEP 170855Z AUTO 00000KT 10SM CLR 08/05 A3012 RMK AO2 T00750048KSEP2019-10-17T08:55:00Z32.22-98.177.54.80010.030.121063TRUETRUEVFRSPECI402.02019-10-17 09:04:03C5(5    3KMWC 170855Z AUTO 28004KT 10SM SCT110 03/00 A3001 RMK AO2KMWC2019-10-17T08:55:00Z43.12-88.033.00.0280410.030.008858TRUETRUEVFRSPECI227.02019-10-17 09:04:03P4)5     3KLUD 170855Z AUTO 15004KT 4SM HZ CLR 12/04 A3009 RMK AO2 T01240040KLUD2019-10-17T08:55:00Z33.25-97.5812.44.015044.030.088583TRUETRUEHZMVFRSPECI319.02019-10-17 09:04:03K3) 5    3KLXY 170855Z AUTO 29006KT 10SM CLR 09/06 A3008 RMK AO2 T00910062KLXY2019-10-17T08:55:00Z31.63-96.529.16.2290610.030.079725TRUETRUEVFRSPECI166.02019-10-17 09:04:03 2e?:(y5    3KFRH 170855Z AUTO 25003KT 10SM CLR 03/01 A3005 RMK AO1KFRH2019-10-17T08:55:00Z38.5-86.633.01.0250310.030.050198TRUETRUEVFRSPECI241.02019-10-17 09:04:03H9(5   3KSEZ 170855Z AUTO 13012G17KT 10SM CLR 18/00 A3002 RMK AO2KSEZ2019-10-17T08:55:00Z34.85-111.7818.00.0130121710.030.02067TRUETRUEVFRSPECI1473.02019-10-17 09:04:03G8) 5    3KSFQ 170855Z AUTO 00000KT 10SM CLR 09/04 A2972 RMK AO2 T00910044KSFQ2019-10-17T08:55:00Z36.68-76.69.14.40010.029.719488TRUETRUEVFRSPECI22.02019-10-17 09:04:03H7) 5    3KSGS 170855Z AUTO 00000KT 10SM CLR 02/02 A3002 RMK AO2 T00230019KSGS2019-10-17T08:55:00Z44.87-93.032.31.90010.030.02067TRUETRUEVFRSPECI250.02019-10-17 09:04:03 :jI>) 5    3KGDJ 170855Z AUTO 00000KT 10SM CLR 08/05 A3011 RMK AO2 T00780051KGDJ2019-10-17T08:55:00Z32.45-97.827.85.10010.030.109253TRUETRUEVFRSPECI237.02019-10-17 09:04:03Y=)!5    3KGCD 170855Z AUTO 28017KT 10SM BKN065 OVC075 11/05 A2976 RMK AO2 T01100047KGCD2019-10-17T08:55:00Z44.38-118.9711.04.72801710.029.760826TRUETRUEVFRSPECI1127.02019-10-17 09:04:03J<) 5    3KFVX 170855Z AUTO 24006KT 10SM CLR 09/02 A2969 RMK AO2 T00900022KFVX2019-10-17T08:55:00Z37.35-78.429.02.2240610.029.68996TRUETRUEVFRMETAR125.02019-10-17 09:04:03@;(y5    3KFSE 170855Z AUTO 15004KT 10SM CLR 01/00 A2996 RMK AO2KFSE2019-10-17T08:55:00Z47.58-95.771.00.0150410.029.958662TRUETRUEVFRSPECI389.02019-10-17 09:04:03 ?pJB) 5    3KGYB 170855Z AUTO 00000KT 10SM CLR 15/09 A3005 RMK AO2 T01460091KGYB2019-10-17T08:55:00Z30.17-96.9814.69.10010.030.050198TRUETRUEVFRSPECI148.02019-10-17 09:04:03BA(5    3KGWB 170855Z AUTO 28006KT 10SM SCT049 06/05 A2993 RMK AO2KGWB2019-10-17T08:55:00Z41.3-85.076.05.0280610.029.929134TRUETRUEVFRSPECI269.02019-10-17 09:04:03I@) 5    3KGPM 170855Z AUTO 00000KT 10SM CLR 11/06 A3011 RMK AO2 T01120061KGPM2019-10-17T08:55:00Z32.7-97.0511.26.10010.030.109253TRUETRUEVFRSPECI180.02019-10-17 09:04:03;?(w5    3KGMJ 170855Z AUTO 00000KT 7SM CLR 03/03 A3011 RMK AO2KGMJ2019-10-17T08:55:00Z36.6-94.733.03.0007.030.109253TRUETRUEVFRMETAR254.02019-10-17 09:04:03 3nUF)5   3KHLX 170855Z AUTO 30016G28KT 10SM OVC028 05/00 A2979 RMK AO2 T00530000KHLX2019-10-17T08:55:00Z36.77-80.825.30.0300162810.029.790354TRUETRUEMVFRMETAR834.02019-10-17 09:04:03GE) 5    3KHHF 170855Z AUTO 00000KT 10SM CLR 07/01 A3002 RMK AO2 T00710014KHHF2019-10-17T08:55:00Z35.9-100.47.11.40010.030.02067TRUETRUEVFRSPECI712.02019-10-17 09:04:03?D(y5    3KHFJ 170855Z AUTO 13005KT 10SM CLR 05/04 A3009 RMK AO2KHFJ2019-10-17T08:55:00Z36.9-94.025.04.0130510.030.088583TRUETRUEVFRMETAR401.02019-10-17 09:04:03GC) 5    3KGYI 170855Z AUTO 00000KT 7SM CLR 09/07 A3010 RMK AO2 T00870072KGYI2019-10-17T08:55:00Z33.72-96.678.77.2007.030.100393TRUETRUEVFRSPECI228.02019-10-17 09:04:03 IzHJ) 5    3KHUM 170855Z AUTO 03007KT 7SM CLR 16/14 A2999 RMK AO2 T01600140KHUM2019-10-17T08:55:00Z29.57-90.6716.014.03077.029.991142TRUETRUEVFRMETAR3.02019-10-17 09:04:03II) 5    3KHSB 170855Z AUTO 00000KT 10SM CLR 03/01 A3009 RMK AO2 T00290011KHSB2019-10-17T08:55:00Z37.82-88.552.91.10010.030.088583TRUETRUEVFRSPECI121.02019-10-17 09:04:03IH) 5    3KHQZ 170855Z AUTO 00000KT 10SM CLR 08/07 A3010 RMK AO1 T00760072KHQZ2019-10-17T08:55:00Z32.75-96.537.67.20010.030.100393TRUETRUEVFRSPECI136.02019-10-17 09:04:03bG)'5    3KHON 170855Z AUTO 14006KT 10SM CLR 02/01 A2988 RMK AO2 SLP125 T00220006 56010KHON2019-10-17T08:55:00Z44.38-98.232.20.6140610.029.8789371012.5TRUETRUEVFR-1.0SPECI390.02019-10-17 09:04:03 &VIN)5    3KI16 170855Z AUTO 10SM BKN024 OVC031 08/03 A2994 RMK AO2 T00800032KI162019-10-17T08:55:00Z37.6-81.578.03.210.029.940945TRUETRUEMVFRSPECI544.02019-10-17 09:04:03IM) 5    3KI35 170855Z AUTO 00000KT 10SM CLR 03/02 A2999 RMK AO2 T00250019KI352019-10-17T08:55:00Z36.87-83.372.51.90010.029.991142TRUETRUEVFRMETAR473.02019-10-17 09:04:03JL) 5    3KMKN 170855Z AUTO 18004KT 10SM CLR 09/03 A3009 RMK AO2 T00880032KMKN2019-10-17T08:55:00Z31.92-98.68.83.2180410.030.088583TRUETRUEVFRSPECI423.02019-10-17 09:04:03TK)5   3KHSP 170855Z AUTO 28021G35KT 10SM OVC009 02/02 A2969 RMK AO2 T00180018KHSP2019-10-17T08:55:00Z37.95-79.821.81.8280213510.029.68996TRUETRUEIFRMETAR1156.02019-10-17 09:04:03 %8r%=S(y5    3KGZL 170855Z AUTO 00000KT 10SM CLR 04/04 A3011 RMK AO2KGZL2019-10-17T08:55:00Z35.28-95.14.04.00010.030.109253TRUETRUEVFRMETAR183.02019-10-17 09:04:03>R(y5    3KLBO 170855Z AUTO 00000KT 10SM CLR 03/02 A3010 RMK AO2KLBO2019-10-17T08:55:00Z37.65-92.653.02.00010.030.100393TRUETRUEVFRSPECI403.02019-10-17 09:04:03@Q(}5     3KFYG 170855Z AUTO 00000KT 2SM BR CLR 03/03 A3009 RMK AO2KFYG2019-10-17T08:55:00Z38.58-91.03.03.0002.030.088583TRUETRUEBRIFRMETAR149.02019-10-17 09:04:03@P(y5    3KGGP 170855Z AUTO 26005KT 10SM CLR 01/00 A3001 RMK AO2KGGP2019-10-17T08:55:00Z40.72-86.371.00.0260510.030.008858TRUETRUEVFRMETAR225.02019-10-17 09:04:03BO({5    3KHVE 170855Z AUTO 00000KT 10SM CLR 02/M17 A3001 RMK AO2KHVE2019-10-17T08:55:00Z38.42-110.72.0-17.00010.030.008858TRUETRUEVFRSPECI1350.02019-10-17 09:04:03 0gOW)5    3KGNT 170855Z AUTO 28004KT 10SM CLR 00/M12 A3020 RMK AO2 T00001120KGNT2019-10-17T08:55:00Z35.17-107.90.0-12.0280410.030.200787TRUETRUEVFRSPECI1987.02019-10-17 09:04:03LV) 5    3KGVE 170855Z AUTO 25003KT 10SM CLR 10/02 A2964 RMK AO1 T01010020KGVE2019-10-17T08:55:00Z38.15-78.1710.12.0250310.029.639763TRUETRUEVFRMETAR138.02019-10-17 09:04:03CU(5    3KGWR 170855Z AUTO 13005KT 10SM FEW045 01/01 A2990 RMK A01KGWR2019-10-17T08:55:00Z46.22-97.651.01.0130510.029.899607TRUETRUEVFRSPECI386.02019-10-17 09:04:03JT) 5    3KGWW 170855Z AUTO 24005KT 10SM CLR 09/04 A2981 RMK AO2 T00870039KGWW2019-10-17T08:55:00Z35.47-77.978.73.9240510.029.811024TRUETRUEVFRMETAR41.02019-10-17 09:04:03 1mO[)5    3KFLY 170855Z AUTO 34005KT 10SM CLR 06/M09 A3010 RMK AO2 T00601089KFLY2019-10-17T08:55:00Z38.95-104.576.0-8.9340510.030.100393TRUETRUEVFRSPECI2096.02019-10-17 09:04:03eZ);5    3KFSO 170855Z AUTO 36010G15KT 4SM +RA BKN007 BKN010 OVC018 09/08 A2926 RMK AO2 T00900083KFSO2019-10-17T08:55:00Z44.93-73.19.08.336010154.029.258858TRUETRUE+RAIFRSPECI70.02019-10-17 09:04:03>Y(y5    3KFSW 170855Z AUTO 00000KT 10SM CLR 03/02 A3007 RMK AO2KFSW2019-10-17T08:55:00Z40.67-91.323.02.00010.030.070866TRUETRUEVFRSPECI221.02019-10-17 09:04:03IX) 5    3KFYJ 170855Z AUTO 28007KT 10SM CLR 09/05 A2966 RMK AO1 T00900047KFYJ2019-10-17T08:55:00Z37.52-76.779.04.7280710.029.660433TRUETRUEVFRMETAR7.02019-10-17 09:04:03 QT_)5     3KETC 170855Z AUTO 23007KT 10SM CLR 09/04 A2978 RMK AO2 PWINO T00860038KETC2019-10-17T08:55:00Z35.93-77.558.63.8230710.029.778543TRUETRUETRUEVFRMETAR17.02019-10-17 09:04:03E^)5     3KFFL 170855Z AUTO 00000KT 5SM BR CLR M00/M00 A3006 RMK A01KFFL2019-10-17T08:55:00Z41.03-91.970.00.0005.030.059055TRUETRUEBRMVFRSPECI244.02019-10-17 09:04:03H]) 5    3KFKN 170855Z AUTO 24006KT 10SM CLR 08/03 A2972 RMK AO2 T00830033KFKN2019-10-17T08:55:00Z36.7-76.98.33.3240610.029.719488TRUETRUEVFRMETAR12.02019-10-17 09:04:03[\)/5    3KFKS 170855Z AUTO 33005KT 10SM SCT026 BKN032 OVC038 10/03 A2991 RMK AO2 T00950025KFKS2019-10-17T08:55:00Z44.63-86.29.52.5330510.029.911417TRUETRUEVFRSPECI193.02019-10-17 09:04:03 1\Jc) 5    3KDYT 170855Z AUTO 21005KT 10SM BKN036 OVC095 06/03 A3002 RMK AO2KDYT2019-10-17T08:55:00Z46.72-92.036.03.0210510.030.02067TRUETRUEVFRSPECI186.02019-10-17 09:04:03Ab(}5    3KEBS 170855Z AUTO 00000KT 10SM CLR M01/M01 A3002 RMK AO2KEBS2019-10-17T08:55:00Z42.42-93.87-1.0-1.00010.030.02067TRUETRUEVFRSPECI342.02019-10-17 09:04:03Oa)5   3KEDE 170855Z AUTO 28009G15KT 10SM CLR 12/07 A2975 RMK AO2 T01170072KEDE2019-10-17T08:55:00Z36.02-76.5711.77.228091510.029.749016TRUETRUEVFRMETAR6.02019-10-17 09:04:03I`) 5    3KEFT 170855Z AUTO 30007KT 10SM CLR 05/02 A3002 RMK AO2 T00450018KEFT2019-10-17T08:55:00Z42.62-89.64.51.8300710.030.02067TRUETRUEVFRSPECI331.02019-10-17 09:04:03 *;|*Bh(}5    3KD60 170855Z AUTO 00000KT 10SM CLR M01/M01 A2977 RMK AO2KD602019-10-17T08:55:00Z48.38-102.9-1.0-1.00010.029.769686TRUETRUEVFRSPECI693.02019-10-17 09:04:03=g(y5    3KDEH 170855Z AUTO 00000KT 10SM CLR 03/03 A3002 RMK AO2KDEH2019-10-17T08:55:00Z43.27-91.723.03.00010.030.02067TRUETRUEVFRSPECI353.02019-10-17 09:04:03Af(y5    3KDNA 170855Z AUTO 08007KT 10SM CLR 13/01 A3010 RMK AO2KDNA2019-10-17T08:55:00Z31.88-106.713.01.080710.030.100393TRUETRUEVFRSPECI1253.02019-10-17 09:04:039e(y5    3KDNS 170855Z AUTO 00000KT 10SM CLR 01/01 A3000 RMK AO2KDNS2019-10-17T08:55:00Z41.97-95.371.01.00010.030.0TRUETRUEVFRSPECI388.02019-10-17 09:04:03?d(y5    3KDYB 170855Z AUTO 00000KT 10SM CLR 11/10 A2986 RMK AO2KDYB2019-10-17T08:55:00Z33.07-80.2811.010.00010.029.861221TRUETRUEVFRMETAR18.02019-10-17 09:04:03 7q?m(5    3KCWA 170855Z AUTO 28004KT 10SM OVC028 05/02 A3000 RMK AO2KCWA2019-10-17T08:55:00Z44.78-89.675.02.0280410.030.0TRUETRUEMVFRSPECI389.02019-10-17 09:04:03Jl) 5    3KCXE 170855Z AUTO 27006KT 10SM CLR 09/02 A2974 RMK AO1 T00880022KCXE2019-10-17T08:55:00Z36.78-78.58.82.2270610.029.740158TRUETRUEVFRMETAR153.02019-10-17 09:04:03@k(y5    3KD50 170855Z AUTO 21009KT 10SM CLR 02/01 A2974 RMK AO2KD502019-10-17T08:55:00Z48.93-103.32.01.0210910.029.740158TRUETRUEVFRSPECI595.02019-10-17 09:04:03@j(y5    3KD55 170855Z AUTO 15013KT 10SM CLR 01/01 A2986 RMK AO2KD552019-10-17T08:55:00Z48.75-98.41.01.01501310.029.861221TRUETRUEVFRSPECI491.02019-10-17 09:04:03Ci(}5    3KD57 170855Z AUTO 00000KT 10SM CLR M01/M02 A2980 RMK AO2KD572019-10-17T08:55:00Z46.82-101.87-1.0-2.00010.029.799213TRUETRUEVFRSPECI637.02019-10-17 09:04:03 <xHq)5    3KMDZ 170855Z AUTO 28003KT 10SM OVC022 04/03 A3000 RMK AO2 T00410025KMDZ2019-10-17T08:55:00Z45.1-90.34.12.5280310.030.0TRUETRUEMVFRSPECI448.02019-10-17 09:04:03Up)5   3KMKJ 170855Z AUTO 27016G28KT 10SM OVC025 06/02 A2987 RMK AO2 T00610020KMKJ2019-10-17T08:55:00Z36.88-81.336.12.0270162810.029.870079TRUETRUEMVFRMETAR780.02019-10-17 09:04:03>o(y5    3KMUT 170855Z AUTO 00000KT 10SM CLR 02/01 A3007 RMK AO2KMUT2019-10-17T08:55:00Z41.37-91.152.01.00010.030.070866TRUETRUEVFRSPECI167.02019-10-17 09:04:03>n(w5    3KCSQ 170855Z AUTO 15004KT 9SM CLR 02/02 A3003 RMK AO2KCSQ2019-10-17T08:55:00Z41.02-94.372.02.015049.030.029528TRUETRUEVFRSPECI394.02019-10-17 09:04:03 8u=v(w5  3KXPY 170855Z AUTO 03013G20KT 10SM 21/19 A2996 RMK A01KXPY2019-10-17T08:55:00Z29.12-90.221.019.030132010.029.958662TRUETRUESPECI2.02019-10-17 09:04:03Au(5    3KXNX 170855Z AUTO 00000KT 10SM SCT033 04/03 A3008 RMK A01KXNX2019-10-17T08:55:00Z36.38-86.424.03.00010.030.079725TRUETRUEVFRSPECI178.02019-10-17 09:04:03Pt)5   3KXIH 170855Z AUTO 06015G20KT 10SM SCT021 SCT037 20/15 A2998 RMK A01KXIH2019-10-17T08:55:00Z29.18-94.5220.015.060152010.029.97933TRUETRUEVFRSPECI75.02019-10-17 09:04:03=s(y5    3KM40 170855Z AUTO 00000KT 8SM CLR 06/M03 A3007 RMK AO2KM402019-10-17T08:55:00Z33.87-88.486.0-3.0008.030.070866TRUETRUEVFRMETAR69.02019-10-17 09:04:03Br({5    3KMAN 170855Z AUTO 00000KT 10SM CLR 14/M06 A2966 RMK A01KMAN2019-10-17T08:55:00Z43.58-116.5214.0-6.00010.029.660433TRUETRUEVFRSPECI774.02019-10-17 09:04:03 +>mKz) 5    3KHHG 170855Z AUTO 27005KT 10SM CLR 05/02 A2996 RMK AO2 T00490021KHHG2019-10-17T08:55:00Z40.85-85.454.92.1270510.029.958662TRUETRUEVFRMETAR246.02019-10-17 09:04:03Ky) 5    3KHDE 170855Z AUTO 18006KT 10SM CLR 04/01 A2989 RMK AO2 T00430013KHDE2019-10-17T08:55:00Z40.45-99.324.31.3180610.029.890747TRUETRUEVFRSPECI705.02019-10-17 09:04:03gx)+5    3PAAD 170855Z AUTO 10022G29KT 10SM CLR M02/M04 A2945 RMK AO2 T10221040 410201112PAAD2019-10-17T08:55:00Z70.13-146.28-2.2-4.0100222910.029.450787TRUETRUEVFR-2.0-11.2SPECI8.02019-10-17 09:04:03Ow)5    3KZPH 170855Z AUTO 36004KT 10SM SCT065 22/21 A2990 RMK A02 T02220215KZPH2019-10-17T08:55:00Z28.23-82.1522.221.5360410.029.899607TRUETRUEVFRSPECI26.02019-10-17 09:04:03 -aT~)5    3K1S5 170855Z AUTO 00000KT 10SM OVC095 12/09 A2968 RMK AO2 60002 T01190091K1S52019-10-17T08:55:00Z46.33-119.9711.99.10010.029.681103TRUETRUEVFRSPECI234.02019-10-17 09:04:03O})5    3KMMH 170855Z AUTO 13006KT 10SM CLR 07/M06 A2999 RMK AO2 T00731058KMMH2019-10-17T08:55:00Z37.62-118.827.3-5.8130610.029.991142TRUETRUEVFRSPECI2173.02019-10-17 09:04:03F|) 5     3KMNE 170855Z AUTO 1/2SM FG OVC002 08/08 A3009 RMK AO2 T00820080KMNE2019-10-17T08:55:00Z32.65-93.38.28.00.530.088583TRUETRUEFGLIFRMETAR85.02019-10-17 09:04:03M{) 5    3KHHV 170855Z AUTO 06021KT 10SM BKN021 BKN027 27/22 A2991 RMK A01KHHV2019-10-17T08:55:00Z26.93-94.6827.022.0602110.029.911417TRUETRUEMVFRSPECI25.02019-10-17 09:04:03 :k@(5    3KMRJ 170855Z AUTO 00000KT 10SM OVC032 05/03 A3002 RMK AO2KMRJ2019-10-17T08:55:00Z42.88-90.235.03.00010.030.02067TRUETRUEVFRSPECI359.02019-10-17 09:04:03K)5    3KSHD 170855Z AUTO 00000KT 10SM OVC045 10/01 A2972 RMK AO2 T00950008KSHD2019-10-17T08:55:00Z38.27-78.99.50.80010.029.719488TRUETRUEVFRSPECI366.02019-10-17 09:04:03I) 5    3KMNZ 170855Z AUTO 00000KT 10SM CLR 10/03 A3009 RMK AO2 T00970029KMNZ2019-10-17T08:55:00Z31.67-98.159.72.90010.030.088583TRUETRUEVFRSPECI396.02019-10-17 09:04:03@(y5    3K2C8 170855Z AUTO 15005KT 10SM CLR 01/01 A2991 RMK AO2K2C82019-10-17T08:55:00Z48.78-97.631.01.0150510.029.911417TRUETRUEVFRSPECI272.02019-10-17 09:04:03 -WE({5    3KDTA 170855Z AUTO 16007KT 10SM CLR 10/M10 A2991 RMK AO1KDTA2019-10-17T08:55:00Z39.38-112.510.0-10.0160710.029.911417TRUETRUEVFRMETAR1402.02019-10-17 09:04:03?(y5    3KDVK 170855Z AUTO 29004KT 10SM CLR 05/01 A3002 RMK AO2KDVK2019-10-17T08:55:00Z37.58-84.775.01.0290410.030.02067TRUETRUEVFRMETAR312.02019-10-17 09:04:03P)5    3KEAN 170855Z AUTO 18010KT 10SM CLR 10/M09 A2990 RMK AO2 T00961095KEAN2019-10-17T08:55:00Z42.05-104.939.6-9.51801010.029.899607TRUETRUEVFRMETAR1456.02019-10-17 09:04:03M) 5    3KEHA 170855Z AUTO 23012KT 10SM CLR 14/01 A2994 RMK AO2 T01360005KEHA2019-10-17T08:55:00Z37.0-101.913.60.52301210.029.940945TRUETRUEVFRMETAR1099.02019-10-17 09:04:03 %P= (y5    3KDUA 170855Z AUTO 00000KT 10SM CLR 08/06 A3011 RMK AO2KDUA2019-10-17T08:55:00Z33.95-96.48.06.00010.030.109253TRUETRUEVFRMETAR213.02019-10-17 09:04:03F ({5    3KDUB 170855Z AUTO 28013KT 10SM CLR 03/M12 A2995 RMK AO2KDUB2019-10-17T08:55:00Z43.55-109.683.0-12.02801310.029.949802TRUETRUEVFRMETAR2224.02019-10-17 09:04:03O)5    3KE11 170855Z AUTO 21006KT 10SM CLR 10/M02 A3010 RMK AO2 T01011025KE112019-10-17T08:55:00Z32.33-102.5310.1-2.5210610.030.100393TRUETRUEVFRMETAR967.02019-10-17 09:04:03U)!5    3KEBG 170855Z AUTO 32009KT 10SM SCT017 BKN035 16/12 A3002 RMK AO2 T01600121KEBG2019-10-17T08:55:00Z26.45-98.1316.012.1320910.030.02067TRUETRUEVFRMETAR24.02019-10-17 09:04:03 ?y>(y5    3KCEY 170855Z AUTO 00000KT 10SM CLR 03/03 A3007 RMK AO1KCEY2019-10-17T08:55:00Z36.67-88.373.03.00010.030.070866TRUETRUEVFRMETAR176.02019-10-17 09:04:03K) 5    3KCKF 170855Z AUTO 33004KT 10SM CLR 12/07 A2995 RMK AO2 T01150068KCKF2019-10-17T08:55:00Z31.98-83.7711.56.8330410.029.949802TRUETRUEVFRMETAR91.02019-10-17 09:04:03H ) 5    3KCOM 170855Z AUTO 00000KT 10SM CLR 08/03 A3008 RMK AO2 T00820029KCOM2019-10-17T08:55:00Z31.83-99.48.22.90010.030.079725TRUETRUEVFRMETAR517.02019-10-17 09:04:03@ (y5    3KDBN 170855Z AUTO 30004KT 10SM CLR 10/07 A2994 RMK AO2KDBN2019-10-17T08:55:00Z32.57-82.9810.07.0300410.029.940945TRUETRUEVFRMETAR94.02019-10-17 09:04:03; (y5    3KDNN 170855Z AUTO 33006KT 10SM CLR 08/04 A3000 RMK AO2KDNN2019-10-17T08:55:00Z34.72-84.878.04.0330610.030.0TRUETRUEVFRMETAR216.02019-10-17 09:04:03 /a;(y5    3KBIJ 170855Z AUTO 00000KT 10SM CLR 09/08 A2997 RMK AO2KBIJ2019-10-17T08:55:00Z31.4-84.99.08.00010.029.970472TRUETRUEVFRMETAR65.02019-10-17 09:04:03N)5    3KBPG 170855Z AUTO 14008KT 10SM CLR 09/M02 A3010 RMK AO2 T00901024KBPG2019-10-17T08:55:00Z32.22-101.529.0-2.4140810.030.100393TRUETRUEVFRMETAR784.02019-10-17 09:04:03H) 5    3KBQP 170855Z AUTO 00000KT 10SM CLR 08/07 A3008 RMK AO2 T00750072KBQP2019-10-17T08:55:00Z32.75-91.887.57.20010.030.079725TRUETRUEVFRMETAR51.02019-10-17 09:04:03K)5    3KC29 170855Z AUTO 00000KT 10SM OVC037 06/03 A3002 RMK AO1 T00600026KC292019-10-17T08:55:00Z43.12-89.536.02.60010.030.02067TRUETRUEVFRMETAR283.02019-10-17 09:04:03 1\>(}5    3KAJG 170855Z AUTO 10SM CLR 01/01 A3006 RMK AO2 T00140006KAJG2019-10-17T08:55:00Z38.62-87.731.40.610.030.059055TRUETRUEVFRMETAR131.02019-10-17 09:04:03H) 5    3KAJR 170855Z AUTO 30003KT 7SM CLR 06/03 A2989 RMK AO2 T00590033KAJR2019-10-17T08:55:00Z34.5-83.555.93.330037.029.890747TRUETRUEVFRMETAR441.02019-10-17 09:04:03O)5    3KAJZ 170855Z AUTO 07005KT 10SM CLR 05/M12 A3009 RMK AO2 T00471122KAJZ2019-10-17T08:55:00Z38.78-108.074.7-12.270510.030.088583TRUETRUEVFRMETAR1583.02019-10-17 09:04:03I) 5    3KALN 170855Z AUTO 00000KT 10SM CLR 03/03 A3009 RMK AO2 T00290029KALN2019-10-17T08:55:00Z38.88-90.032.92.90010.030.088583TRUETRUEVFRMETAR166.02019-10-17 09:04:03 9rD({5    3K82V 170855Z AUTO 19005KT 10SM CLR 01/M03 A2997 RMK AO2K82V2019-10-17T08:55:00Z41.15-104.131.0-3.0190510.029.970472TRUETRUEVFRMETAR1570.02019-10-17 09:04:03I) 5    3KAAA 170855Z AUTO 00000KT 10SM CLR 04/03 A3007 RMK AO2 T00420025KAAA2019-10-17T08:55:00Z40.17-89.334.22.50010.030.070866TRUETRUEVFRMETAR182.02019-10-17 09:04:03A(y5    3KACJ 170855Z AUTO 34006KT 10SM CLR 13/08 A2996 RMK AO2KACJ2019-10-17T08:55:00Z32.12-84.1813.08.0340610.029.958662TRUETRUEVFRMETAR143.02019-10-17 09:04:03A(}5     3KADH 170855Z AUTO 00000KT 5SM HZ CLR 07/03 A3009 RMK AO2KADH2019-10-17T08:55:00Z34.8-96.677.03.0005.030.088583TRUETRUEHZMVFRMETAR308.02019-10-17 09:04:03 3hA({5    3K3K3 170855Z AUTO 00000KT 10SM CLR 02/M05 A2994 RMK AO2K3K32019-10-17T08:55:00Z38.0-101.752.0-5.00010.029.940945TRUETRUEVFRMETAR1013.02019-10-17 09:04:03J)5    3K41U 170855Z AUTO 09006KT 10SM CLR 00/M10 A3000 RMK AO1 T10021097K41U2019-10-17T08:55:00Z39.33-111.72-0.2-9.790610.030.0TRUETRUEVFRMETAR1676.02019-10-17 09:04:03E)5   3K6A1 170855Z AUTO 31006KT 10SM 10/05 A2996 RMK AO2 T01020051K6A12019-10-17T08:55:00Z32.57-84.2510.25.1310610.029.958662TRUETRUEMETAR203.02019-10-17 09:04:03G) 5    3K6R3 170855Z AUTO 00000KT 7SM CLR 12/12 A3006 RMK AO2 T01210121K6R32019-10-17T08:55:00Z30.35-95.012.112.1007.030.059055TRUETRUEVFRMETAR46.02019-10-17 09:04:03 0bJ#) 5    3KRNV 170855Z AUTO 33003KT 10SM CLR 07/07 A3007 RMK AO2 T00700070KRNV2019-10-17T08:55:00Z33.77-90.757.07.0330310.030.070866TRUETRUEVFRMETAR41.02019-10-17 09:04:03C"({5    3KSAA 170855Z AUTO 00000KT 10SM CLR 02/M10 A3008 RMK AO2KSAA2019-10-17T08:55:00Z41.45-106.832.0-10.00010.030.079725TRUETRUEVFRMETAR2138.02019-10-17 09:04:03H!) 5    3K0R4 170855Z AUTO 00000KT 10SM CLR 10/09 A3004 RMK AO2 T01000087K0R42019-10-17T08:55:00Z31.57-91.510.08.70010.030.041338TRUETRUEVFRMETAR17.02019-10-17 09:04:03J ) 5    3K11R 170855Z AUTO 00000KT 10SM CLR 12/10 A3005 RMK AO2 T01210100K11R2019-10-17T08:55:00Z30.22-96.3712.110.00010.030.050198TRUETRUEVFRMETAR94.02019-10-17 09:04:03 /`K') 5    3KPNT 170855Z AUTO 28004KT 10SM CLR 04/03 A3005 RMK AO2 T00400033KPNT2019-10-17T08:55:00Z40.92-88.624.03.3280410.030.050198TRUETRUEVFRMETAR201.02019-10-17 09:04:03J&) 5    3KPRG 170855Z AUTO 29004KT 10SM CLR 03/02 A3005 RMK AO2 T00310022KPRG2019-10-17T08:55:00Z39.7-87.673.12.2290410.030.050198TRUETRUEVFRMETAR199.02019-10-17 09:04:03I%) 5    3KPTB 170855Z AUTO 21004KT 10SM CLR 07/02 A2969 RMK AO2 T00740023KPTB2019-10-17T08:55:00Z37.17-77.527.42.3210410.029.68996TRUETRUEVFRMETAR59.02019-10-17 09:04:03K$) 5    3KPTT 170855Z AUTO 19014KT 10SM CLR 09/01 A2997 RMK AO2 T00880011KPTT2019-10-17T08:55:00Z37.7-98.758.81.11901410.029.970472TRUETRUEVFRMETAR595.02019-10-17 09:04:03 :mI+) 5    3KFWC 170855Z AUTO 00000KT 10SM CLR 04/03 A3007 RMK AO1 T00370025KFWC2019-10-17T08:55:00Z38.38-88.423.72.50010.030.070866TRUETRUEVFRMETAR133.02019-10-17 09:04:03G*) 5    3KOKM 170855Z AUTO 00000KT 7SM CLR 04/04 A3009 RMK AO2 T00440044KOKM2019-10-17T08:55:00Z35.67-95.954.44.4007.030.088583TRUETRUEVFRMETAR220.02019-10-17 09:04:03G)) 5    3KOSA 170855Z AUTO 00000KT 5SM CLR 07/06 A3011 RMK AO1 T00710064KOSA2019-10-17T08:55:00Z33.1-94.977.16.4005.030.109253TRUETRUEMVFRMETAR111.02019-10-17 09:04:03@((y5    3KOZS 170855Z AUTO 15003KT 10SM CLR 02/02 A3010 RMK AO2KOZS2019-10-17T08:55:00Z37.97-92.682.02.0150310.030.100393TRUETRUEVFRMETAR324.02019-10-17 09:04:03 2_U/)!5    3KPMH 170855Z AUTO 28005KT 10SM BKN041 BKN050 07/04 A2994 RMK AO2 T00700035KPMH2019-10-17T08:55:00Z38.83-82.857.03.5280510.029.940945TRUETRUEVFRSPECI202.02019-10-17 09:04:03J.) 5    3KPMV 170855Z AUTO 15008KT 10SM CLR 06/05 A2998 RMK AO2 T00580053KPMV2019-10-17T08:55:00Z40.95-95.925.85.3150810.029.97933TRUETRUEVFRSPECI367.02019-10-17 09:04:03M-)5    3KELA 170855Z AUTO 02006KT 10SM SCT045 14/11 A3003 RMK AO2 T01400114KELA2019-10-17T08:55:00Z29.6-96.3214.011.420610.030.029528TRUETRUEVFRMETAR56.02019-10-17 09:04:03H,) 5    3KEXX 170855Z AUTO 00000KT 10SM CLR 06/03 A2984 RMK AO2 T00550027KEXX2019-10-17T08:55:00Z35.78-80.35.52.70010.029.840551TRUETRUEVFRMETAR223.02019-10-17 09:04:03 +\rN3)5    3KPEZ 170855Z AUTO 00000KT 10SM BKN030 16/08 A3006 RMK AO2 T01600075KPEZ2019-10-17T08:55:00Z28.95-98.5216.07.50010.030.059055TRUETRUEMVFRSPECI132.02019-10-17 09:04:03d2))5    3KPHP 170855Z AUTO 28003KT 10SM CLR 00/M02 A2983 RMK AO2 SLP104 T00001017 58011KPHP2019-10-17T08:55:00Z44.05-101.60.0-1.7280310.029.8287411010.4TRUETRUEVFR-1.1SPECI672.02019-10-17 09:04:03I1) 5    3KPIM 170855Z AUTO 00000KT 10SM CLR 09/05 A2997 RMK AO2 T00930053KPIM2019-10-17T08:55:00Z32.83-84.889.35.30010.029.970472TRUETRUEVFRMETAR275.02019-10-17 09:04:03O0)5    3KPKV 170855Z AUTO 01010KT 10SM OVC023 18/14 A3001 RMK AO2 T01820138KPKV2019-10-17T08:55:00Z28.65-96.6818.213.8101010.030.008858TRUETRUEMVFRSPECI9.02019-10-17 09:04:03 7rQ7)5   3KOQN 170855Z AUTO 26009G18KT 10SM SCT048 SCT050 10/04 A2943 RMK AO2KOQN2019-10-17T08:55:00Z39.98-75.5810.04.026091810.029.430119TRUETRUEVFRSPECI142.02019-10-17 09:04:03T6)5     3KOWP 170855Z AUTO 12003KT 4SM CLR 08/06 A3010 RMK AO2 T00810058 PWINOKOWP2019-10-17T08:55:00Z36.18-96.158.15.812034.030.100393TRUETRUETRUEMVFRMETAR272.02019-10-17 09:04:03?5(y5    3KOXI 170855Z AUTO 26004KT 10SM CLR 02/01 A2998 RMK AO1KOXI2019-10-17T08:55:00Z41.33-86.672.01.0260410.029.97933TRUETRUEVFRSPECI209.02019-10-17 09:04:03C4)5    3KOZA 170855Z AUTO 18007KT SCT070 12/03 A3013 RMK AO2 PWINOKOZA2019-10-17T08:55:00Z30.73-101.212.03.0180730.129921TRUETRUETRUESPECI726.02019-10-17 09:04:03 2p@;(y5    3KOJA 170855Z AUTO 20005KT 10SM CLR 09/01 A3006 RMK AO2KOJA2019-10-17T08:55:00Z35.55-98.679.01.0200510.030.059055TRUETRUEVFRMETAR490.02019-10-17 09:04:03W:)5    3KOLE 170855Z AUTO 27010G18KT 210V330 4SM -DZ OVC007 03/03 A2942 RMK AO2KOLE2019-10-17T08:55:00Z42.23-78.373.03.027010184.029.421259TRUETRUE-DZIFRSPECI651.02019-10-17 09:04:03<9(5    3KOLG 170855Z AUTO 00000KT 10SM OVC029 04/03 A3000 RMK AO1KOLG2019-10-17T08:55:00Z46.3-91.824.03.00010.030.0TRUETRUEMVFRSPECI336.02019-10-17 09:04:03H8) 5    3KOOA 170855Z AUTO 00000KT 10SM CLR 01/00 A3006 RMK AO2 T00050000KOOA2019-10-17T08:55:00Z41.23-92.50.50.00010.030.059055TRUETRUEVFRSPECI256.02019-10-17 09:04:03 9vJ@) 5    3KOCQ 170855Z AUTO 29003KT 10SM CLR 04/02 A2998 RMK AO1 T00380024KOCQ2019-10-17T08:55:00Z44.87-87.923.82.4290310.029.97933TRUETRUEVFRSPECI183.02019-10-17 09:04:03K?)5    3KPBH 170855Z AUTO 00000KT 10SM OVC029 04/04 A2999 RMK AO2 T00380035KPBH2019-10-17T08:55:00Z45.7-90.43.83.50010.029.991142TRUETRUEMVFRSPECI449.02019-10-17 09:04:03=>(y5    3KBRY 170855Z AUTO 00000KT 10SM CLR 01/01 A3003 RMK AO1KBRY2019-10-17T08:55:00Z37.82-85.51.01.00010.030.029528TRUETRUEVFRSPECI204.02019-10-17 09:04:03==(y5    3KBBP 170855Z AUTO 00000KT 10SM CLR 07/06 A2986 RMK AO2KBBP2019-10-17T08:55:00Z34.62-79.737.06.00010.029.861221TRUETRUEVFRSPECI45.02019-10-17 09:04:03A<(y5    3KOBE 170855Z AUTO 27003KT 10SM CLR 23/22 A2988 RMK AO2KOBE2019-10-17T08:55:00Z27.27-80.8523.022.0270310.029.878937TRUETRUEVFRMETAR11.02019-10-17 09:04:03 1nXD)#5   3KFFA 170855Z AUTO 28013G23KT 230V310 10SM CLR 12/04 A2970 RMK AO2 T01230044KFFA2019-10-17T08:55:00Z36.02-75.6712.34.4280132310.029.698818TRUETRUEVFRMETAR4.02019-10-17 09:04:03CC(y5    3KTSP 170855Z AUTO 28005KT 10SM CLR 12/00 A2994 RMK AO2KTSP2019-10-17T08:55:00Z35.13-118.4312.00.0280510.029.940945TRUETRUEVFRSPECI1220.02019-10-17 09:04:03=B(y5    3KTQH 170855Z AUTO 00000KT 10SM CLR 03/02 A3012 RMK AO2KTQH2019-10-17T08:55:00Z35.93-95.03.02.00010.030.121063TRUETRUEVFRSPECI266.02019-10-17 09:04:03IA) 5    3KTOC 170855Z AUTO 33005KT 10SM CLR 08/04 A2989 RMK AO2 T00760040KTOC2019-10-17T08:55:00Z34.6-83.37.64.0330510.029.890747TRUETRUEVFRSPECI304.02019-10-17 09:04:03 NsLH)5    3KTFP 170855Z AUTO 01007KT 10SM SCT100 18/12 A3000 RMK AO2 T01820121 PNOKTFP2019-10-17T08:55:00Z27.92-97.2218.212.110710.030.0TRUETRUEVFRSPECI6.02019-10-17 09:04:03UG)5      3KFWB 170855Z AUTO 00000KT 10SM CLR 04/04 A3011 RMK AO2 P0002 PWINO PNOKFWB2019-10-17T08:55:00Z36.7-93.44.04.00010.030.109253TRUETRUETRUEVFR0.02SPECI406.02019-10-17 09:04:03KF) 5    3KMOP 170855Z AUTO 29006KT 10SM CLR 05/03 A2986 RMK AO2 T00480026KMOP2019-10-17T08:55:00Z43.62-84.734.82.6290610.029.861221TRUETRUEVFRSPECI230.02019-10-17 09:04:03[E)'5   3KMRT 170855Z AUTO 32009G15KT 10SM BKN025 OVC035 08/03 A2990 RMK AO2 T00750033KMRT2019-10-17T08:55:00Z40.22-83.357.53.332091510.029.899607TRUETRUEMVFRSPECI312.02019-10-17 09:04:03 /^XL)5     3KSYF 170855Z AUTO 22008KT 10SM CLR 06/M04 A2991 RMK AO2 T00621045 PWINOKSYF2019-10-17T08:55:00Z39.77-101.86.2-4.5220810.029.911417TRUETRUETRUEVFRMETAR1025.02019-10-17 09:04:03AK(5    3KSZT 170855Z AUTO 00000KT 10SM OVC048 07/06 A2966 RMK AO2KSZT2019-10-17T08:55:00Z48.3-116.577.06.00010.029.660433TRUETRUEVFRSPECI648.02019-10-17 09:04:03KJ) 5    3KT20 170855Z AUTO 01003KT 10SM CLR 15/09 A3005 RMK AO2 T01500087KT202019-10-17T08:55:00Z29.52-97.4715.08.710310.030.050198TRUETRUEVFRSPECI108.02019-10-17 09:04:03KI) 5    3KT35 170855Z AUTO 29003KT 10SM CLR 10/07 A3007 RMK AO2 T00970072KT352019-10-17T08:55:00Z30.88-96.979.77.2290310.030.070866TRUETRUEVFRSPECI123.02019-10-17 09:04:03 ,cbP)-5     3KS52 170855Z AUTO 11004KT 3SM -RA BR BKN060 OVC075 06/06 A2961 RMK AO2 T00590056KS522019-10-17T08:55:00Z48.38-120.155.95.611043.029.610237TRUETRUE-RA BRMVFRMETAR520.02019-10-17 09:04:03GO) 5    3KSCR 170855Z AUTO 00000KT 10SM CLR 08/02 A2983 RMK AO2 T00750022KSCR2019-10-17T08:55:00Z35.7-79.57.52.20010.029.828741TRUETRUEVFRMETAR188.02019-10-17 09:04:03CN({5    3KSUN 170855Z AUTO 32009KT 10SM CLR 07/M07 A2983 RMK AO2KSUN2019-10-17T08:55:00Z43.5-114.287.0-7.0320910.029.828741TRUETRUEVFRSPECI1620.02019-10-17 09:04:03NM)5    3KSVC 170855Z AUTO 36005KT 10SM CLR 07/M01 A3015 RMK AO2 T00711006KSVC2019-10-17T08:55:00Z32.63-108.157.1-0.6360510.030.15059TRUETRUEVFRSPECI1659.02019-10-17 09:04:03 /fJT) 5    3KRUQ 170855Z AUTO 28003KT 10SM CLR 05/02 A2985 RMK AO2 T00500023KRUQ2019-10-17T08:55:00Z35.65-80.525.02.3280310.029.84941TRUETRUEVFRMETAR236.02019-10-17 09:04:03JS) 5    3KRYW 170855Z AUTO 03005KT 10SM CLR 12/04 A3005 RMK AO2 T01170043KRYW2019-10-17T08:55:00Z30.5-97.9711.74.330510.030.050198TRUETRUEVFRSPECI376.02019-10-17 09:04:03CR(5    3KRZL 170855Z AUTO 27006KT 10SM SCT120 03/02 A3001 RMK AO2KRZL2019-10-17T08:55:00Z40.95-87.183.02.0270610.030.008858TRUETRUEVFRSPECI213.02019-10-17 09:04:03KQ)5    3KRZN 170855Z AUTO 00000KT 10SM OVC120 04/03 A3002 RMK AO2 T00400031KRZN2019-10-17T08:55:00Z45.82-92.374.03.10010.030.02067TRUETRUEVFRSPECI301.02019-10-17 09:04:03 /_IX)5    3KRAS 170855Z AUTO 01015KT 10SM BKN100 19/14 A3000 RMK AO2 T01890140KRAS2019-10-17T08:55:00Z27.82-97.0818.914.0101510.030.0TRUETRUEVFRSPECI2.02019-10-17 09:04:03>W(y5    3KRBW 170855Z AUTO 00000KT 10SM CLR 10/08 A2988 RMK AO2KRBW2019-10-17T08:55:00Z32.92-80.6310.08.00010.029.878937TRUETRUEVFRSPECI31.02019-10-17 09:04:03JV) 5    3KRHP 170855Z AUTO 04005KT 10SM CLR 06/02 A2996 RMK AO2 T00560020KRHP2019-10-17T08:55:00Z35.18-83.855.62.040510.029.958662TRUETRUEVFRSPECI518.02019-10-17 09:04:03KU) 5    3KRPJ 170855Z AUTO 27003KT 10SM CLR 04/03 A3004 RMK AO2 T00400031KRPJ2019-10-17T08:55:00Z41.88-89.084.03.1270310.030.041338TRUETRUEVFRSPECI238.02019-10-17 09:04:03 0fQ\)5    3KPCM 170855Z AUTO 00000KT 10SM BKN020 BKN028 OVC042 24/24 A2991 RMK AO2KPCM2019-10-17T08:55:00Z28.0-82.1724.024.00010.029.911417TRUETRUEMVFRSPECI47.02019-10-17 09:04:03F[) 5    3KPEX 170855Z AUTO 15005KT 10SM CLR 02/03 A3000 RMK AO2 T00240025KPEX2019-10-17T08:55:00Z45.37-94.732.42.5150510.030.0TRUETRUEVFRSPECI360.02019-10-17 09:04:03DZ({5    3KPOY 170855Z AUTO 12007KT 10SM CLR 11/M05 A2980 RMK AO2KPOY2019-10-17T08:55:00Z44.87-108.811.0-5.0120710.029.799213TRUETRUEVFRSPECI1552.02019-10-17 09:04:03JY) 5    3KPSN 170855Z AUTO 35003KT 10SM CLR 07/07 A3008 RMK AO2 T00800079KPSN2019-10-17T08:55:00Z31.78-95.78.07.9350310.030.079725TRUETRUEVFRSPECI129.02019-10-17 09:04:03 /bJ`) 5    3KOKZ 170855Z AUTO 00000KT 10SM CLR 10/08 A2991 RMK AO2 T01030080KOKZ2019-10-17T08:55:00Z32.97-82.8310.38.00010.029.911417TRUETRUEVFRSPECI134.02019-10-17 09:04:03Y_)5     3KONP 170855Z AUTO 18010KT 5SM BR SCT006 SCT021 SCT029 11/11 A2983 RMK AO2KONP2019-10-17T08:55:00Z44.57-124.0311.011.0180105.029.828741TRUETRUEBRMVFRSPECI48.02019-10-17 09:04:03G^) 5    3KONX 170855Z AUTO 24008KT 10SM CLR 09/06 A2971 RMK AO2 T00900055KONX2019-10-17T08:55:00Z36.4-76.029.05.5240810.029.71063TRUETRUEVFRSPECI5.02019-10-17 09:04:03K]) 5    3KPCD 170855Z AUTO 23003KT 10SM CLR 02/01 A3009 RMK AO2 T00220012KPCD2019-10-17T08:55:00Z37.87-89.872.21.2230310.030.088583TRUETRUEVFRSPECI113.02019-10-17 09:04:03 /^Ud)!5    3KBEA 170855Z AUTO 01007KT 10SM BKN020 OVC090 19/09 A3001 RMK AO2 T01900087KBEA2019-10-17T08:55:00Z28.37-97.7819.08.710710.030.008858TRUETRUEMVFRSPECI82.02019-10-17 09:04:03Lc) 5    3KBGE 170855Z AUTO 28005KT 10SM CLR 13/11 A2997 RMK AO2 T01260113KBGE2019-10-17T08:55:00Z30.97-84.6312.611.3280510.029.970472TRUETRUEVFRSPECI43.02019-10-17 09:04:03Kb) 5    3KBQK 170855Z AUTO 29005KT 10SM CLR 14/12 A2990 RMK AO2 T01390115KBQK2019-10-17T08:55:00Z31.25-81.4713.911.5290510.029.899607TRUETRUEVFRSPECI8.02019-10-17 09:04:03Ka) 5    3KBTA 170855Z AUTO 16005KT 10SM CLR 06/04 A2997 RMK AO2 T00560036KBTA2019-10-17T08:55:00Z41.42-96.125.63.6160510.029.970472TRUETRUEVFRSPECI396.02019-10-17 09:04:03 %V@h(y5    3KASW 170855Z AUTO 28007KT 10SM CLR 05/03 A2995 RMK AO2KASW2019-10-17T08:55:00Z41.27-85.835.03.0280710.029.949802TRUETRUEVFRSPECI259.02019-10-17 09:04:03Lg) 5    3KAVQ 170855Z AUTO 11007KT 10SM CLR 26/02 A2982 RMK AO2 T02550017KAVQ2019-10-17T08:55:00Z32.4-111.2225.51.7110710.029.819881TRUETRUEVFRSPECI619.02019-10-17 09:04:03If) 5    3KAZE 170855Z AUTO 00000KT 10SM CLR 13/09 A2990 RMK AO2 T01300091KAZE2019-10-17T08:55:00Z31.88-82.6513.09.10010.029.899607TRUETRUEVFRSPECI78.02019-10-17 09:04:03Ue)5   3KBCB 170855Z AUTO 29013G28KT 10SM OVC029 07/02 A2982 RMK AO2 T00690018KBCB2019-10-17T08:55:00Z37.22-80.426.91.8290132810.029.819881TRUETRUEMVFRSPECI650.02019-10-17 09:04:03 +[Ml)5     3KADM 170855Z AUTO 00000KT 3SM BR CLR 05/05 A3009 RMK AO2 T00540054KADM2019-10-17T08:55:00Z34.28-97.025.45.4003.030.088583TRUETRUEBRMVFRSPECI232.02019-10-17 09:04:03Nk)5    3KAEJ 170855Z AUTO 00000KT 10SM CLR 02/M14 A3021 RMK AO2 T00201138KAEJ2019-10-17T08:55:00Z38.82-106.122.0-13.80010.030.209646TRUETRUEVFRSPECI2422.02019-10-17 09:04:03Jj) 5    3KAPS 170855Z AUTO 07009KT 10SM CLR 16/10 A3001 RMK AO2 T01590103KAPS2019-10-17T08:55:00Z30.08-90.5815.910.370910.030.008858TRUETRUEVFRSPECI2.02019-10-17 09:04:03Oi)5    3KARM 170855Z AUTO 36005KT 10SM OVC047 16/11 A3003 RMK AO2 T01600111KARM2019-10-17T08:55:00Z29.25-96.1516.011.1360510.030.029528TRUETRUEVFRSPECI31.02019-10-17 09:04:03Y88@HPX`hpx (08@HPX`hpx (08@HPX`hpxKWL[M_NcOhPmQqRvSzT~UVKWL[M_NcOhPmQqRvSzT~UVW XYZ[\]#^'_+`/a3b7c;d@eDfHgLhPiTjXk\l`mdnholqprtsxt|uvwx yz{|} ~$(,048<@DHLPTX\`eimquy}  !%)-15:? 9jIp) 5    3K66R 170855Z AUTO 00000KT 10SM CLR 11/07 A3005 RMK AO2 T01100073K66R2019-10-17T08:55:00Z29.65-96.5211.07.30010.030.050198TRUETRUEVFRSPECI74.02019-10-17 09:04:03No)5    3K8W2 170855Z AUTO 26006KT 10SM OVC046 10/01 A2968 RMK AO1 T01000006K8W22019-10-17T08:55:00Z38.65-78.710.00.6260610.029.681103TRUETRUEVFRSPECI297.02019-10-17 09:04:03In) 5    3K9A5 170855Z AUTO 01006KT 10SM CLR 08/03 A3002 RMK AO2 T00760028K9A52019-10-17T08:55:00Z34.68-85.287.62.810610.030.02067TRUETRUEVFRSPECI237.02019-10-17 09:04:03Am(y5    3KA39 170855Z AUTO 09005KT 10SM CLR 21/04 A2982 RMK AO2KA392019-10-17T08:55:00Z32.98-111.9221.04.090510.029.819881TRUETRUEVFRSPECI396.02019-10-17 09:04:03 0_Tt)5     3K4S1 170855Z AUTO 19007KT 1 3/4SM BR SCT003 OVC011 11/11 A2989 RMK AO2K4S12019-10-17T08:55:00Z42.42-124.4211.011.019071.7529.890747TRUETRUEBRIFRMETAR5.02019-10-17 09:04:03Ms)5    3K57C 170855Z AUTO 29004KT 10SM OVC120 04/03 A3001 RMK AO2 T00400027K57C2019-10-17T08:55:00Z42.8-88.374.02.7290410.030.008858TRUETRUEVFRSPECI262.02019-10-17 09:04:03Kr) 5    3K5M9 170855Z AUTO 29003KT 10SM CLR 03/03 A3007 RMK AO2 T00300026K5M92019-10-17T08:55:00Z37.33-88.123.02.6290310.030.070866TRUETRUEVFRSPECI199.02019-10-17 09:04:03Jq) 5    3K5R8 170855Z AUTO 00000KT 10SM CLR 11/10 A3005 RMK AO2 T01140100K5R82019-10-17T08:55:00Z30.43-93.4711.410.00010.030.050198TRUETRUEVFRSPECI24.02019-10-17 09:04:03 1`YMx) 5    3K19S 170855Z AUTO 20010KT 10SM CLR 08/00 A2994 RMK AO2 T00820003K19S2019-10-17T08:55:00Z37.48-100.838.20.32001010.029.940945TRUETRUEVFRSPECI886.02019-10-17 09:04:03w)e5     3K1P1 170855Z AUTO 07011G22KT 040V110 10SM -RA SCT027 BKN033 OVC055 12/08 A2893 RMK AO2 P0005 6//// T01160082K1P12019-10-17T08:55:00Z43.78-71.7511.68.270112210.028.931103TRUETRUE-RAVFR0.05SPECI154.02019-10-17 09:04:03Kv) 5    3K3N8 170855Z AUTO 13004KT 10SM CLR 01/00 A2995 RMK AO2 T00050001K3N82019-10-17T08:55:00Z47.25-95.880.50.1130410.029.949802TRUETRUEVFRSPECI383.02019-10-17 09:04:03Iu)5    3K4R5 170855Z AUTO 32003KT 10SM OVC033 06/03 A3000 RMK AO2 T00620033K4R52019-10-17T08:55:00Z46.78-90.776.23.3320310.030.0TRUETRUEVFRSPECI198.02019-10-17 09:04:03 0jlO|)5    3KY23 170855Z AUTO 10SM SCT033 SCT085 OVC120 05/04 A3001 RMK AO2 T00450036KY232019-10-17T08:55:00Z45.3-91.634.53.610.030.008858TRUETRUEVFRSPECI322.02019-10-17 09:04:03x{)Q5     3PAUT 170855Z AUTO 26028G34KT 10SM -RA SCT038 BKN044 OVC050 06/00 A2942 RMK AO2 T00600003 400900039PAUT2019-10-17T08:55:00Z54.15-165.66.00.3260283410.029.421259TRUETRUE-RAVFR9.03.9SPECI25.02019-10-17 09:04:03@z(5    3K04W 170855Z AUTO 00000KT 10SM OVC060 03/03 A3001 RMK AO2K04W2019-10-17T08:55:00Z46.02-92.93.03.00010.030.008858TRUETRUEVFRSPECI311.02019-10-17 09:04:03Jy) 5    3K13K 170855Z AUTO 15006KT 10SM CLR 04/03 A3005 RMK AO2 T00430035K13K2019-10-17T08:55:00Z37.85-96.34.33.5150610.030.050198TRUETRUEVFRSPECI369.02019-10-17 09:04:03 QJ)5   3KUYF 170855Z AUTO 29014G17KT 10SM OVC044 07/04 A2990 RMK AO2KUYF2019-10-17T08:55:00Z39.93-83.477.04.0290141710.029.899607TRUETRUEVFRSPECI330.02019-10-17 09:04:03K) 5    3KVYS 170855Z AUTO 30003KT 10SM CLR 04/02 A3004 RMK AO2 T00430018KVYS2019-10-17T08:55:00Z41.35-89.154.31.8300310.030.041338TRUETRUEVFRSPECI199.02019-10-17 09:04:03@~(y5    3KWDR 170855Z AUTO 28005KT 10SM CLR 08/05 A2995 RMK AO2KWDR2019-10-17T08:55:00Z33.98-83.678.05.0280510.029.949802TRUETRUEVFRSPECI287.02019-10-17 09:04:03c})-5    3KXLL 170855Z AUTO 27011G22KT 10SM SCT036 SCT043 OVC100 10/05 A2938 RMK AO2 P0012KXLL2019-10-17T08:55:00Z40.57-75.4810.05.0270112210.029.379921TRUETRUEVFR0.12SPECI122.02019-10-17 09:04:03 'fR)!5    3KTXW 170855Z AUTO 35009KT 10SM BKN017 OVC022 17/11 A3000 RMK AO2 T01720109KTXW2019-10-17T08:55:00Z26.18-97.9717.210.9350910.030.0TRUETRUEMVFRSPECI21.02019-10-17 09:04:03J)5    3KTYL 170855Z AUTO 21012KT 10SM SCT046 13/M02 A3010 RMK AO2KTYL2019-10-17T08:55:00Z34.45-110.1213.0-2.02101210.030.100393TRUETRUEVFRSPECI1745.02019-10-17 09:04:03;(5    3KUBE 170855Z AUTO 00000KT 10SM OVC120 03/02 A3000 RMK AO2KUBE2019-10-17T08:55:00Z45.5-91.983.02.00010.030.0TRUETRUEVFRSPECI379.02019-10-17 09:04:03S)5   3KUNI 170855Z AUTO 28009G14KT 10SM BKN050 08/03 A2989 RMK AO2 T00750033KUNI2019-10-17T08:55:00Z39.22-82.237.53.328091410.029.890747TRUETRUEVFRSPECI193.02019-10-17 09:04:03 FoJ) 5    3KLXN 170855Z AUTO 09003KT 10SM CLR 02/00 A2989 RMK AO2 T00180000KLXN2019-10-17T08:55:00Z40.78-99.771.80.090310.029.890747TRUETRUEVFRSPECI734.02019-10-17 09:04:03N)5    3KMDD 170855Z AUTO 27004KT 10SM CLR 10/M02 A3009 RMK AO2 T01031020KMDD2019-10-17T08:55:00Z32.03-102.110.3-2.0270410.030.088583TRUETRUEVFRSPECI854.02019-10-17 09:04:03Q)5   3KMFV 170855Z AUTO 28013G22KT 10SM CLR 12/05 A2963 RMK AO2 T01210051KMFV2019-10-17T08:55:00Z37.63-75.7712.15.1280132210.029.630905TRUETRUEVFRMETAR15.02019-10-17 09:04:034(s5    3KCFE 170855Z 10SM CLR 01/00 A3002 RMK AO2 T00080000KCFE2019-10-17T08:55:00Z45.17-93.850.80.010.030.02067TRUEVFRMETAR295.02019-10-17 09:04:03 2W@ (y5    3KLHZ 170855Z AUTO 24004KT 10SM CLR 08/02 A2980 RMK AO2KLHZ2019-10-17T08:55:00Z36.02-78.338.02.0240410.029.799213TRUETRUEVFRMETAR113.02019-10-17 09:04:03J ) 5    3KLUL 170855Z AUTO 35004KT 10SM CLR 09/08 A3003 RMK A02 T00940085KLUL2019-10-17T08:55:00Z31.67-89.179.48.5350410.030.029528TRUETRUEVFRMETAR73.02019-10-17 09:04:03U )5    3KLUV 170855Z AUTO 22006KT 10SM SCT075 BKN100 BKN120 06/M01 A3010 RMK AO2KLUV2019-10-17T08:55:00Z32.75-101.926.0-1.0220610.030.100393TRUETRUEVFRSPECI912.02019-10-17 09:04:03H ) 5    3KLVL 170855Z AUTO 00000KT 10SM CLR 06/03 A2973 RMK AO1 T00590026KLVL2019-10-17T08:55:00Z36.78-77.85.92.60010.029.731298TRUETRUEVFRMETAR100.02019-10-17 09:04:03 /gI) 5    3KJYL 170855Z AUTO 28003KT 10SM CLR 10/08 A2990 RMK AO2 T00980082KJYL2019-10-17T08:55:00Z32.65-81.69.88.2280310.029.899607TRUETRUEVFRMETAR57.02019-10-17 09:04:03K)5   3KJYO 170855Z AUTO 28015G25KT 10SM OVC042 11/05 A2960 RMK AO2KJYO2019-10-17T08:55:00Z39.07-77.5711.05.0280152510.029.601377TRUETRUEVFRMETAR119.02019-10-17 09:04:03B({5    3KL35 170855Z AUTO 00000KT 10SM CLR 02/M03 A3005 RMK AO2KL352019-10-17T08:55:00Z34.27-116.852.0-3.00010.030.050198TRUETRUEVFRSPECI2059.02019-10-17 09:04:03K ) 5    3KLHB 170855Z AUTO 30003KT 10SM CLR 11/09 A3007 RMK AO2 T01050089KLHB2019-10-17T08:55:00Z30.87-96.6210.58.9300310.030.070866TRUETRUEVFRSPECI87.02019-10-17 09:04:03 /a=(y5    3KJDD 170855Z AUTO 00000KT 10SM CLR 07/07 A3009 RMK AO2KJDD2019-10-17T08:55:00Z32.75-95.57.07.00010.030.088583TRUETRUEVFRSPECI132.02019-10-17 09:04:03O)5    3KJHN 170855Z AUTO 23004KT 10SM CLR 03/M03 A2994 RMK AO2 T00291026KJHN2019-10-17T08:55:00Z37.58-101.732.9-2.6230410.029.940945TRUETRUEVFRMETAR1013.02019-10-17 09:04:03H) 5    3KJVY 170855Z AUTO 00000KT 10SM CLR 02/02 A3002 RMK AO2 T00200020KJVY2019-10-17T08:55:00Z38.37-85.732.02.00010.030.02067TRUETRUEVFRSPECI145.02019-10-17 09:04:03K) 5    3KJWG 170855Z AUTO 18005KT 10SM CLR 08/01 A3006 RMK AO2 T00840015KJWG2019-10-17T08:55:00Z35.87-98.428.41.5180510.030.059055TRUETRUEVFRMETAR472.02019-10-17 09:04:03 .mG) 5    3KIER 170855Z AUTO 00000KT 10SM CLR 09/09 A3007 RMK AO2 T00890089KIER2019-10-17T08:55:00Z31.73-93.18.98.90010.030.070866TRUETRUEVFRMETAR37.02019-10-17 09:04:03I) 5    3KIIB 170855Z AUTO 00000KT 10SM CLR 01/00 A3005 RMK AO2 T00050002KIIB2019-10-17T08:55:00Z42.45-91.950.50.20010.030.050198TRUETRUEVFRSPECI298.02019-10-17 09:04:03;(y5    3KIOB 170855Z AUTO 27005KT 10SM CLR 03/02 A3000 RMK AO2KIOB2019-10-17T08:55:00Z38.05-83.983.02.0270510.030.0TRUETRUEVFRMETAR311.02019-10-17 09:04:03L) 5    3KIWA 170855Z AUTO 13009KT 10SM CLR 24/02 A2979 RMK AO2 T02390024KIWA2019-10-17T08:55:00Z33.3-111.6523.92.4130910.029.790354TRUETRUEVFRSPECI412.02019-10-17 09:04:03 /U;(w5    3KGCM 170855Z AUTO 00000KT 7SM CLR 03/03 A3012 RMK AO2KGCM2019-10-17T08:55:00Z36.3-95.483.03.0007.030.121063TRUETRUEVFRSPECI221.02019-10-17 09:04:03K)5    3KGRN 170855Z AUTO 00000KT 10SM CLR 01/M01 A2985 RMK AO2 T00101015KGRN2019-10-17T08:55:00Z42.8-102.171.0-1.50010.029.84941TRUETRUEVFRSPECI1086.02019-10-17 09:04:03T)5      3KHDC 170855Z AUTO 00000KT 10SM CLR 11/10 A3003 RMK AO2 P0001 PWINOKHDC2019-10-17T08:55:00Z30.52-90.4211.010.00010.030.029528TRUETRUETRUEVFR0.01SPECI13.02019-10-17 09:04:03K) 5    3KHQU 170855Z AUTO 36003KT 10SM CLR 09/06 A2989 RMK AO2 T00880063KHQU2019-10-17T08:55:00Z33.53-82.528.86.3360310.029.890747TRUETRUEVFRMETAR152.02019-10-17 09:04:03 =oK ) 5    3KFET 170855Z AUTO 12004KT 10SM CLR 05/03 A2997 RMK AO2 T00510034KFET2019-10-17T08:55:00Z41.45-96.525.13.4120410.029.970472TRUETRUEVFRSPECI367.02019-10-17 09:04:03K) 5    3KFHB 170855Z AUTO 33009KT 10SM CLR 17/13 A2989 RMK AO2 T01690133KFHB2019-10-17T08:55:00Z30.62-81.4716.913.3330910.029.890747TRUETRUEVFRSPECI5.02019-10-17 09:04:03H) 5    3KFWS 170855Z AUTO 00000KT 10SM CLR 08/07 A3011 RMK AO2 T00790068KFWS2019-10-17T08:55:00Z32.57-97.37.96.80010.030.109253TRUETRUEVFRSPECI208.02019-10-17 09:04:03=(y5    3KFXY 170855Z AUTO 00000KT 10SM CLR 00/00 A3002 RMK AO2KFXY2019-10-17T08:55:00Z43.23-93.620.00.00010.030.02067TRUETRUEVFRSPECI375.02019-10-17 09:04:03 1^H$) 5    3KENL 170855Z AUTO 00000KT 10SM CLR 02/01 A3008 RMK AO2 T00150005KENL2019-10-17T08:55:00Z38.52-89.11.50.50010.030.079725TRUETRUEVFRSPECI163.02019-10-17 09:04:03I#) 5    3KETN 170855Z AUTO 00000KT 10SM CLR 06/04 A3010 RMK AO2 T00550043KETN2019-10-17T08:55:00Z32.42-98.825.54.30010.030.100393TRUETRUEVFRSPECI446.02019-10-17 09:04:03M")5    3KEZF 170855Z AUTO 23006KT 10SM SCT070 08/05 A2963 RMK AO2 T00810052KEZF2019-10-17T08:55:00Z38.27-77.458.15.2230610.029.630905TRUETRUEVFRSPECI26.02019-10-17 09:04:03I!) 5    3KF00 170855Z AUTO 00000KT 10SM CLR 07/06 A3010 RMK AO2 T00660061KF002019-10-17T08:55:00Z33.62-96.186.66.10010.030.100393TRUETRUEVFRSPECI188.02019-10-17 09:04:03 %aO() 5    3KDUX 170855Z AUTO 21012KT 10SM CLR 08/00 A3001 RMK AO2 T00841002KDUX2019-10-17T08:55:00Z35.85-102.028.4-0.22101210.030.008858TRUETRUEVFRSPECI1129.02019-10-17 09:04:03J') 5    3KDZJ 170855Z AUTO 25003KT 10SM CLR 04/03 A2996 RMK AO2 T00450028KDZJ2019-10-17T08:55:00Z34.85-84.04.52.8250310.029.958662TRUETRUEVFRSPECI582.02019-10-17 09:04:03>&(y5    3KEDC 170855Z AUTO 00000KT 10SM CLR 12/06 A3007 RMK AO2KEDC2019-10-17T08:55:00Z30.4-97.5712.06.00010.030.070866TRUETRUEVFRSPECI189.02019-10-17 09:04:03U%)!5    3KEGV 170855Z AUTO 31003KT 10SM SCT030 OVC110 03/03 A2996 RMK AO2 T00330033KEGV2019-10-17T08:55:00Z45.93-89.273.33.3310310.029.958662TRUETRUEVFRSPECI500.02019-10-17 09:04:03 /`J,) 5    3KD73 170855Z AUTO 29005KT 10SM CLR 08/05 A2993 RMK AO2 T00830050KD732019-10-17T08:55:00Z33.78-83.78.35.0290510.029.929134TRUETRUEVFRSPECI267.02019-10-17 09:04:03A+(y5    3KDED 170855Z AUTO 31006KT 10SM CLR 21/20 A2987 RMK AO2KDED2019-10-17T08:55:00Z29.07-81.2821.020.0310610.029.870079TRUETRUEVFRSPECI24.02019-10-17 09:04:03I*) 5    3KDNV 170855Z AUTO 29005KT 10SM CLR 04/03 A3001 RMK AO2 T00400025KDNV2019-10-17T08:55:00Z40.2-87.64.02.5290510.030.008858TRUETRUEVFRSPECI212.02019-10-17 09:04:03K)) 5    3KDUC 170855Z AUTO 12003KT 10SM CLR 07/03 A3009 RMK AO2 T00660031KDUC2019-10-17T08:55:00Z34.47-97.976.63.1120310.030.088583TRUETRUEVFRSPECI339.02019-10-17 09:04:03 /hJ0) 5    3KCFD 170855Z AUTO 00000KT 10SM CLR 12/10 A3006 RMK AO2 T01200098KCFD2019-10-17T08:55:00Z30.72-96.3312.09.80010.030.059055TRUETRUEVFRSPECI112.02019-10-17 09:04:03[/)%5   3KCGF 170855Z AUTO 31014G27KT 10SM OVC026 08/04 A2975 RMK AO2 T00820037 60008KCGF2019-10-17T08:55:00Z41.57-81.478.23.7310142710.029.749016TRUETRUEMVFRSPECI268.02019-10-17 09:04:03A.(}5     3KCKI 170855Z AUTO 00000KT 5SM BR CLR 07/07 A2986 RMK AO2KCKI2019-10-17T08:55:00Z33.72-79.857.07.0005.029.861221TRUETRUEBRMVFRSPECI21.02019-10-17 09:04:03K-) 5    3KCQB 170855Z AUTO 14004KT 10SM CLR 06/04 A3008 RMK AO2 T00570037KCQB2019-10-17T08:55:00Z35.72-96.825.73.7140410.030.079725TRUETRUEVFRSPECI300.02019-10-17 09:04:03 B1Bi4);5    3KINL 170855Z AUTO 00000KT 10SM FEW018 OVC120 03/02 A2999 RMK AO2 SLP170 T00280022 56004KINL2019-10-17T08:55:00Z48.57-93.42.82.20010.029.9911421017.0TRUETRUEVFR-0.4SPECI360.02019-10-17 09:04:03[3)5   3KLLJ 170855Z AUTO 16003KT 10SM 05/M05 A2975 RMK AO2 SLP041 T00501050 $KLLJ2019-10-17T08:55:00Z44.52-114.225.0-5.0160310.029.7490161004.1TRUETRUETRUESPECI1536.02019-10-17 09:04:032)]5   3KRNO 170855Z 21023G29KT 10SM FEW150 FEW200 16/M03 A2980 RMK AO2 PK WND 20029/0855 SLP047 T01611033 56012KRNO2019-10-17T08:55:00Z39.5-119.7716.1-3.3210232910.029.7992131004.7TRUEVFR-1.2SPECI1342.02019-10-17 09:04:03c1)'5    3KSCK 170855Z AUTO 31004KT 10SM CLR 16/10 A2988 RMK AO2 SLP117 T01560100 51002KSCK2019-10-17T08:55:00Z37.88-121.2215.610.0310410.029.8789371011.7TRUETRUEVFR0.2SPECI10.02019-10-17 09:04:03 V.BVf8)-5    3KAST 170855Z AUTO 18007KT 10SM BKN027 12/10 A2972 RMK AO2 SLP062 T01170100 51000KAST2019-10-17T08:55:00Z46.15-123.8811.710.0180710.029.7194881006.2TRUETRUEMVFR0.0SPECI3.02019-10-17 09:04:03f7)+5     3KCMA 170855Z AUTO 26005KT 6SM HZ CLR 16/13 A2980 RMK AO2 SLP098 T01560128 55006KCMA2019-10-17T08:55:00Z34.22-119.115.612.826056.029.7992131009.8TRUETRUEHZVFR-0.6SPECI23.02019-10-17 09:04:03`6)15    3KDLH 170855Z 00000KT 10SM BKN080 OVC120 06/02 A2999 RMK AO2 SLP168 T00560017 56008KDLH2019-10-17T08:55:00Z46.85-92.25.61.70010.029.9911421016.8TRUEVFR-0.8SPECI435.02019-10-17 09:04:03f5)+5    3KEAT 170855Z AUTO 35005KT 10SM CLR 08/07 A2963 RMK AO2 SLP037 T00830067 55000 $KEAT2019-10-17T08:55:00Z47.4-120.28.36.7350510.029.6309051003.7TRUETRUETRUEVFR0.0SPECI377.02019-10-17 09:04:03 !VI<) 5     3EHRD 170855Z AUTO 21007KT 180V240 9999 BKN044 14/12 Q1009 NOSIGEHRD2019-10-17T08:55:00Z51.954.4514.012.021076.2129.793306TRUETRUEVFRMETAR-5.02019-10-17 09:04:03E;)5   3PGWT 170855Z 09005KT 7SM FEW016 27/24 A2986 RMK WIND DATA ESTIMATEDPGWT2019-10-17T08:55:00Z14.98145.6227.024.09057.029.861221VFRMETAR82.02019-10-17 09:04:03k:)35   3KAAT 170855Z AUTO 26009G20KT 10SM OVC065 08/01 A2986 RMK AO2 SLP083 T00780011 53004KAAT2019-10-17T08:55:00Z41.48-120.577.81.126092010.029.8612211008.3TRUETRUEVFR0.4SPECI1331.02019-10-17 09:04:03h9)35   3KANJ 170855Z AUTO 33008G16KT 10SM FEW025 04/00 A2985 RMK AO2 SLP111 T00440000 53002KANJ2019-10-17T08:55:00Z46.47-84.374.40.033081610.029.849411011.1TRUETRUEVFR0.2SPECI218.02019-10-17 09:04:03 3UF@(5   3KWWR 170855Z AUTO 21014G18KT 10SM CLR 11/00 A3002 RMK AO2KWWR2019-10-17T08:55:00Z36.45-99.5211.00.0210141810.030.02067TRUETRUEVFRSPECI667.02019-10-17 09:04:03??)5    3EHAM 170855Z 19008KT 160V220 9999 FEW008 14/12 Q1009 NOSIGEHAM2019-10-17T08:55:00Z52.324.7814.012.019086.2129.793306TRUEVFRMETAR9.02019-10-17 09:04:03X>)'5     3EHBK 170855Z AUTO 23007KT 200V270 9999 FEW009 SCT025 BKN033 14/12 Q1011 NOSIGEHBK2019-10-17T08:55:00Z50.925.7714.012.023076.2129.852362TRUETRUEVFRMETAR116.02019-10-17 09:04:03G=) 5     3EHGG 170855Z AUTO 21006KT 9999 SCT005 SCT007 13/12 Q1008 NOSIGEHGG2019-10-17T08:55:00Z53.126.5713.012.021066.2129.763779TRUETRUEVFRMETAR4.02019-10-17 09:04:03 :`~DD(5   3KUKF 170855Z AUTO 32009G16KT 10SM CLR 07/00 A2990 RMK AO2KUKF2019-10-17T08:55:00Z36.22-81.17.00.032091610.029.899607TRUETRUEVFRSPECI396.02019-10-17 09:04:03\C)/5    3KUVA 170855Z AUTO 08003KT 10SM SCT042 SCT065 OVC090 16/09 A3008 RMK AO2 T01580093KUVA2019-10-17T08:55:00Z29.22-99.7515.89.380310.030.079725TRUETRUEVFRSPECI287.02019-10-17 09:04:03TB)5   3KVJI 170855Z AUTO 29006G14KT 10SM OVC023 06/01 A2994 RMK AO2 T00550011KVJI2019-10-17T08:55:00Z36.67-82.025.51.129061410.029.940945TRUETRUEMVFRSPECI631.02019-10-17 09:04:03@A(y5    3KWDG 170855Z AUTO 18003KT 10SM CLR 04/02 A3003 RMK AO2KWDG2019-10-17T08:55:00Z36.37-97.774.02.0180310.030.029528TRUETRUEVFRSPECI356.02019-10-17 09:04:03 MbNH)5    3KTQK 170855Z AUTO 21004KT 10SM CLR 02/M01 A2991 RMK AO1 T00231007KTQK2019-10-17T08:55:00Z38.47-100.882.3-0.7210410.029.911417TRUETRUEVFRSPECI904.02019-10-17 09:04:03eG)/5     3KTZR 170855Z AUTO 30009G15KT 10SM OVC046 08/04 A2989 RMK AO2 T00750037 PWINO TSNOKTZR2019-10-17T08:55:00Z39.9-83.137.53.730091510.029.890747TRUETRUETRUETRUEVFRSPECI276.02019-10-17 09:04:03EF({5    3KU68 170855Z AUTO 25004KT 10SM CLR 06/M38 A2980 RMK AO2KU682019-10-17T08:55:00Z44.92-108.456.0-38.0250410.029.799213TRUETRUEVFRSPECI1247.02019-10-17 09:04:03bE)+5    3KUGN 170855Z AUTO 30005KT 10SM CLR 06/02 A3000 RMK AO2 SLP161 T00560017 58000 $KUGN2019-10-17T08:55:00Z42.42-87.875.61.7300510.030.01016.1TRUETRUETRUEVFR0.0SPECI222.02019-10-17 09:04:03 $Q9L(k5    3KTBX 170855Z AUTO 10SM CLR 08/M12 A3001 RMK AO2KTBX2019-10-17T08:55:00Z43.47-108.238.0-12.010.030.008858TRUETRUEVFRSPECI2225.02019-10-17 09:04:03@K(y5    3KTDF 170855Z AUTO 30004KT 10SM CLR 08/01 A2979 RMK AO2KTDF2019-10-17T08:55:00Z36.28-78.988.01.0300410.029.790354TRUETRUEVFRSPECI186.02019-10-17 09:04:03MJ) 5    3KTMA 170855Z AUTO 28004KT 10SM CLR 13/10 A2993 RMK AO2 T01260100KTMA2019-10-17T08:55:00Z31.43-83.4812.610.0280410.029.929134TRUETRUEVFRSPECI109.02019-10-17 09:04:03VI)5   3KTNB 170855Z AUTO 31013G25KT 10SM BKN025 03/M02 A2984 RMK AO2 T00321016KTNB2019-10-17T08:55:00Z36.2-81.653.2-1.6310132510.029.840551TRUETRUEMVFRSPECI911.02019-10-17 09:04:03 2aIP) 5    3KSLO 170855Z AUTO 00000KT 10SM CLR 02/01 A3008 RMK AO2 T00180012KSLO2019-10-17T08:55:00Z38.65-88.971.81.20010.030.079725TRUETRUEVFRSPECI175.02019-10-17 09:04:03IO) 5    3KSLR 170855Z AUTO 00000KT 10SM CLR 08/05 A3012 RMK AO2 T00770054KSLR2019-10-17T08:55:00Z33.17-95.627.75.40010.030.121063TRUETRUEVFRSPECI149.02019-10-17 09:04:03KN)5    3KSNK 170855Z AUTO 00000KT 10SM CLR 07/M01 A3009 RMK AO2 T00661011KSNK2019-10-17T08:55:00Z32.7-100.956.6-1.10010.030.088583TRUETRUEVFRSPECI741.02019-10-17 09:04:03HM) 5    3KSVH 170855Z AUTO 00000KT 10SM CLR 07/01 A2985 RMK AO2 T00710010KSVH2019-10-17T08:55:00Z35.75-80.957.11.00010.029.84941TRUETRUEVFRSPECI294.02019-10-17 09:04:03 q0`qT)#5    3EHEH 170855Z AUTO 22008KT 180V250 8000 BR FEW006 BKN010 BKN012 14/12 Q1010 GRN 22008KT 6000 SCT007 BKN010 BKN040 BECMG FEW009 SCT015 BKN040EHEH2019-10-17T08:55:00Z51.455.3814.012.022084.9729.822834TRUEBRSCT700MVFRMETAR22.02019-10-17 09:04:03IS) 5    3KHJH 170855Z AUTO 00000KT 10SM CLR 05/02 A2994 RMK AO2 T00450021KHJH2019-10-17T08:55:00Z40.15-97.584.52.10010.029.940945TRUETRUEVFRSPECI447.02019-10-17 09:04:03JR) 5    3KHMP 170855Z AUTO 31008KT 10SM CLR 08/05 A2998 RMK AO2 T00850048KHMP2019-10-17T08:55:00Z33.38-84.338.54.8310810.029.97933TRUETRUEVFRSPECI269.02019-10-17 09:04:03JQ) 5    3KPPO 170855Z AUTO 31006KT 10SM CLR 06/04 A2998 RMK AO2 T00620040KPPO2019-10-17T08:55:00Z41.57-86.736.24.0310610.029.97933TRUETRUEVFRSPECI248.02019-10-17 09:04:03 ?{qX)?5     3PATL 170855Z AUTO VRB02KT 10SM CLR M05/M08 A2914 RMK AO2 SLP887 T10531083 410211094 54001PATL2019-10-17T08:55:00Z62.9-155.97-5.3-8.30210.029.140747988.7TRUETRUEVFR-2.1-9.4METAR294.02019-10-17 09:04:03]W)=5    3EHKD 170855Z AUTO 23008KT 190V260 9999 OVC072 14/08 Q1008 BLU 28005KT 9999 FEW020 SCT040EHKD2019-10-17T08:55:00Z52.924.7714.08.023086.2129.763779TRUEVFRMETAR14.02019-10-17 09:04:03>V(y5    3KGPH 170855Z AUTO 00000KT 10SM CLR 03/02 A3006 RMK AO2KGPH2019-10-17T08:55:00Z39.33-94.323.02.00010.030.059055TRUETRUEVFRSPECI235.02019-10-17 09:04:03;U(w5    3KDCM 170855Z AUTO 00000KT 7SM CLR 07/02 A2988 RMK AO2KDCM2019-10-17T08:55:00Z34.78-81.27.02.0007.029.878937TRUETRUEVFRMETAR200.02019-10-17 09:04:03 IIH\) 5    3K3F3 170855Z AUTO 00000KT 10SM CLR 09/08 A3010 RMK AO2 T00850080K3F32019-10-17T08:55:00Z32.07-93.778.58.00010.030.100393TRUETRUEVFRSPECI96.02019-10-17 09:04:03{[)E5    3PAIM 170855Z AUTO 09014G21KT 10SM CLR M05/M10 A2926 RMK AO2 SLP934 T10551099 410541077 57007PAIM2019-10-17T08:55:00Z66.0-153.7-5.5-9.990142110.029.258858993.4TRUETRUEVFR-0.7-5.4-7.7METAR389.02019-10-17 09:04:03uZ)?5     3PASV 170855Z AUTO 00000KT 10SM CLR M01/M12 A2900 RMK AO2 SLP838 T10151117 402001038 52004PASV2019-10-17T08:55:00Z61.1-155.57-1.5-11.70010.028.999016983.8TRUETRUEVFR0.420.0-3.8METAR484.02019-10-17 09:04:03gY)15    3PATC 170855Z AUTO 04006KT 10SM BKN027 M02/M07 A2920 RMK AO2 SLP894 T10251074 52004PATC2019-10-17T08:55:00Z65.57-167.92-2.5-7.440610.029.199802989.4TRUETRUEMVFR0.4METAR83.02019-10-17 09:04:03 :dC`(5    3K2LS 170855Z AUTO 02007KT 10SM OVC015 18/15 A2999 RMK AO2K2LS2019-10-17T08:55:00Z29.42-90.318.015.020710.029.991142TRUETRUEMVFRMETAR-2.02019-10-17 09:04:03C_(5    3K2M2 170855Z AUTO 35004KT 10SM FEW028 04/03 A3005 RMK A01K2M22019-10-17T08:55:00Z35.23-87.254.03.0350410.030.050198TRUETRUEVFRSPECI286.02019-10-17 09:04:03P^)5   3K33N 170855Z AUTO 25011G17KT 10SM SCT047 OVC060 11/06 A2950 RMK A01K33N2019-10-17T08:55:00Z39.22-75.611.06.0250111710.029.500984TRUETRUEVFRMETAR17.02019-10-17 09:04:03@](y5    3K3AU 170855Z AUTO 17008KT 10SM CLR 06/03 A3003 RMK AO2K3AU2019-10-17T08:55:00Z37.67-97.086.03.0170810.030.029528TRUETRUEVFRSPECI405.02019-10-17 09:04:03 .kJe) 5    3K1H2 170855Z AUTO 00000KT 10SM CLR 02/00 A3008 RMK AO2 T00221003K1H22019-10-17T08:55:00Z39.07-88.532.2-0.30010.030.079725TRUETRUEVFRSPECI179.02019-10-17 09:04:03;d(w5    3K1M5 170855Z AUTO 00000KT 9SM CLR 04/03 A3004 RMK A01K1M52019-10-17T08:55:00Z36.6-86.484.03.0009.030.041338TRUETRUEVFRSPECI250.02019-10-17 09:04:03Bc({5    3K1U7 170855Z AUTO 00000KT 10SM CLR 02/M04 A2992 RMK A01K1U72019-10-17T08:55:00Z42.25-111.332.0-4.00010.029.920275TRUETRUEVFRMETAR1807.02019-10-17 09:04:03=b(y5    3K2A0 170855Z AUTO 00000KT 10SM CLR 05/03 A3002 RMK A01K2A02019-10-17T08:55:00Z35.48-84.935.03.00010.030.02067TRUETRUEVFRSPECI219.02019-10-17 09:04:03La) 5      3K2G9 170855Z AUTO 28018G28KT 7SM RA OVC010 A2963 RMK AO2 P0001K2G92019-10-17T08:55:00Z40.03-79.0228018287.029.630905TRUETRUERAMVFR0.01METAR693.02019-10-17 09:04:03 1TCi(5    3K0A9 170855Z AUTO 29003KT 10SM OVC039 05/02 A2996 RMK AO2K0A92019-10-17T08:55:00Z36.37-82.175.02.0290310.029.958662TRUETRUEVFRSPECI486.02019-10-17 09:04:03:h(w5    3K0R0 170855Z AUTO 00000KT 8SM CLR 09/08 A3007 RMK AO2K0R02019-10-17T08:55:00Z31.3-89.829.08.0008.030.070866TRUETRUEVFRSPECI81.02019-10-17 09:04:03Wg)!5   3K18H 170855Z AUTO 06009G15KT 10SM FEW027 BKN037 OVC085 28/24 A2987 RMK A01K18H2019-10-17T08:55:00Z26.13-92.0328.024.06091510.029.870079TRUETRUEVFRMETAR10.02019-10-17 09:04:03If) 5    3K1A6 170855Z AUTO 00000KT 10SM CLR 04/02 A3001 RMK AO2 T00400024K1A62019-10-17T08:55:00Z36.62-83.734.02.40010.030.008858TRUETRUEVFRSPECI352.02019-10-17 09:04:03 /hAm(5    3KGZS 170855Z AUTO 00000KT 10SM BKN031 05/04 A3005 RMK A01KGZS2019-10-17T08:55:00Z35.15-87.055.04.00010.030.050198TRUETRUEVFRSPECI209.02019-10-17 09:04:03>l(y5    3KH71 170855Z AUTO 00000KT 10SM CLR 03/03 A3010 RMK AO2KH712019-10-17T08:55:00Z36.22-95.333.03.00010.030.100393TRUETRUEVFRSPECI190.02019-10-17 09:04:03Ak(y5  3K05U 170855Z AUTO 18007G13KT 10SM 14/M09 A2991 RMK A01K05U2019-10-17T08:55:00Z39.6-116.014.0-9.018071310.029.911417TRUETRUESPECI1816.02019-10-17 09:04:03Kj)5    3K06C 170855Z AUTO 00000KT 10SM SCT120 05/03 A3001 RMK AO2 T00480027K06C2019-10-17T08:55:00Z41.98-88.14.82.70010.030.008858TRUETRUEVFRSPECI244.02019-10-17 09:04:03 /e=q(y5    3KGOP 170855Z AUTO 00000KT 10SM CLR 08/07 A3008 RMK AO2KGOP2019-10-17T08:55:00Z31.42-97.88.07.00010.030.079725TRUETRUEVFRMETAR276.02019-10-17 09:04:03@p(y5    3KGPC 170855Z AUTO 31003KT 10SM CLR 04/02 A3001 RMK AO2KGPC2019-10-17T08:55:00Z39.63-86.824.02.0310310.030.008858TRUETRUEVFRSPECI257.02019-10-17 09:04:03Do)5     3KGUL 170855Z AUTO 05018KT 10SM FEW021 SCT032 OVC049 A2992 RMK A01KGUL2019-10-17T08:55:00Z27.3-93.53501810.029.920275TRUETRUEVFRSPECI30.02019-10-17 09:04:03Kn) 5    3KGYY 170855Z AUTO 27005KT 10SM CLR 07/03 A3001 RMK AO2 T00660025KGYY2019-10-17T08:55:00Z41.62-87.426.62.5270510.030.008858TRUETRUEVFRSPECI180.02019-10-17 09:04:03 1rTu)5    3KGHB 170855Z AUTO 07017KT 10SM FEW017 BKN022 OVC032 26/22 A2992 RMK A01KGHB2019-10-17T08:55:00Z27.83-91.9826.022.0701710.029.920275TRUETRUEMVFRSPECI30.02019-10-17 09:04:03Bt(y5    3KGIC 170855Z AUTO 09003KT 10SM CLR 10/01 A2970 RMK AO1KGIC2019-10-17T08:55:00Z45.95-116.1210.01.090310.029.698818TRUETRUEVFRSPECI1009.02019-10-17 09:04:039s(y5    3KGKT 170855Z AUTO 00000KT 10SM CLR 04/04 A3000 RMK A01KGKT2019-10-17T08:55:00Z35.85-83.534.04.00010.030.0TRUETRUEVFRSPECI309.02019-10-17 09:04:03Ir) 5    3KGLW 170855Z AUTO 00000KT 10SM CLR 02/02 A3005 RMK AO2 T00230023KGLW2019-10-17T08:55:00Z37.03-85.952.32.30010.030.050198TRUETRUEVFRSPECI218.02019-10-17 09:04:03 =xUy)#5    3KGAO 170855Z AUTO 03009KT 010V070 10SM OVC014 18/14 A2998 RMK AO2 T01820143KGAO2019-10-17T08:55:00Z29.45-90.2718.214.330910.029.97933TRUETRUEMVFRSPECI1.02019-10-17 09:04:03Lx)5    3KGBG 170855Z AUTO 00000KT 10SM SCT110 01/01 A3007 RMK AO2 T00120011KGBG2019-10-17T08:55:00Z40.93-90.431.21.10010.030.070866TRUETRUEVFRMETAR233.02019-10-17 09:04:03?w(y5    3KGBK 170855Z AUTO 04019KT 10SM CLR 27/23 A2989 RMK A01KGBK2019-10-17T08:55:00Z27.2-92.227.023.0401910.029.890747TRUETRUEVFRSPECI59.02019-10-17 09:04:03=v(y5    3KGCY 170855Z AUTO 00000KT 10SM CLR 04/02 A2997 RMK A01KGCY2019-10-17T08:55:00Z36.2-82.824.02.00010.029.970472TRUETRUEVFRSPECI490.02019-10-17 09:04:03 $[H})5    3KFOT 170855Z AUTO 00000KT M1/4SM OVC002 10/10 A2995 RMK AO1KFOT2019-10-17T08:55:00Z40.55-124.1310.010.0000.2529.949802TRUETRUELIFRMETAR120.02019-10-17 09:04:03E|(5    3KFTN 170855Z AUTO 05004KT 10SM BKN100 17/16 A3004 RMK A01KFTN2019-10-17T08:55:00Z28.22-100.0217.016.050410.030.041338TRUETRUEVFRSPECI236.02019-10-17 09:04:03C{(5    3KFYM 170855Z AUTO 35004KT 10SM FEW027 06/04 A3003 RMK A01KFYM2019-10-17T08:55:00Z35.07-86.576.04.0350410.030.029528TRUETRUEVFRSPECI300.02019-10-17 09:04:03Vz)5     3KFZG 170855Z AUTO 33005KT 10SM CLR 13/09 A2995 RMK AO2 T01320087 PWINOKFZG2019-10-17T08:55:00Z31.68-83.2713.28.7330510.029.949802TRUETRUETRUEVFRSPECI111.02019-10-17 09:04:03 ,[?(y5    3KF70 170855Z AUTO 00000KT 10SM CLR 15/04 A2985 RMK AO1KF702019-10-17T08:55:00Z33.57-117.1315.04.00010.029.84941TRUETRUEVFRMETAR412.02019-10-17 09:04:03F(5   3KFCH 170855Z AUTO 32010G15KT 10SM CLR 17/08 A2985 RMK A01KFCH2019-10-17T08:55:00Z36.72-119.8217.08.0320101510.029.84941TRUETRUEVFRSPECI85.02019-10-17 09:04:03K) 5    3KFEP 170855Z AUTO 27004KT 10SM CLR 03/03 A3005 RMK AO2 T00320026KFEP2019-10-17T08:55:00Z42.25-89.583.22.6270410.030.050198TRUETRUEVFRMETAR262.02019-10-17 09:04:03N~)5    3KFMM 170855Z AUTO 27008KT 10SM CLR 05/M07 A2995 RMK AO2 T00521071KFMM2019-10-17T08:55:00Z40.33-103.85.2-7.1270810.029.949802TRUETRUEVFRSPECI1393.02019-10-17 09:04:03 0lL) 5    3KEMK 170855Z AUTO 04023KT 10SM FEW023 OVC033 26/20 A2994 RMK A01KEMK2019-10-17T08:55:00Z27.82-94.3226.020.0402310.029.940945TRUETRUEVFRSPECI26.02019-10-17 09:04:03K) 5    3KEZZ 170855Z AUTO 14006KT 10SM CLR 03/02 A3006 RMK AO2 T00310023KEZZ2019-10-17T08:55:00Z39.72-94.283.12.3140610.030.059055TRUETRUEVFRSPECI317.02019-10-17 09:04:03>(y5    3KF44 170855Z AUTO 00000KT 10SM CLR 09/08 A3007 RMK AO2KF442019-10-17T08:55:00Z32.17-95.839.08.00010.030.070866TRUETRUEVFRSPECI135.02019-10-17 09:04:03J)5     3KF45 170855Z AUTO 21004KT 10SM CLR 23/23 A2989 RMK AO2 TSNOKF452019-10-17T08:55:00Z26.85-80.2223.023.0210410.029.890747TRUETRUETRUEVFRSPECI7.02019-10-17 09:04:03 3bM ) 5    3KE38 170855Z AUTO 23006KT 10SM CLR 08/06 A3018 RMK AO2 T00800056KE382019-10-17T08:55:00Z30.38-103.688.05.6230610.030.180119TRUETRUEVFRSPECI1376.02019-10-17 09:04:03D(5    3KEDU 170855Z AUTO 20005KT 10SM FEW120 15/12 A2985 RMK AO1KEDU2019-10-17T08:55:00Z38.53-121.7815.012.0200510.029.84941TRUETRUEVFRSPECI21.02019-10-17 09:04:03K)5   3KEIR 170855Z AUTO 05015G22KT 10SM OVC017 22/19 A2996 RMK A01KEIR2019-10-17T08:55:00Z28.63-91.4822.019.050152210.029.958662TRUETRUEMVFRSPECI28.02019-10-17 09:04:03G({5    3KEKS 170855Z AUTO 17017KT 10SM CLR 14/M11 A2980 RMK AO2KEKS2019-10-17T08:55:00Z45.27-111.6514.0-11.01701710.029.799213TRUETRUEVFRSPECI1641.02019-10-17 09:04:03 7g> (y5    3KDPL 170855Z AUTO 23003KT 10SM CLR 08/06 A2983 RMK AO2KDPL2019-10-17T08:55:00Z35.0-77.978.06.0230310.029.828741TRUETRUEVFRSPECI42.02019-10-17 09:04:03M ) 5    3KDSF 170855Z AUTO 02018KT 10SM FEW018 SCT024 26/22 A2991 RMK A01KDSF2019-10-17T08:55:00Z28.35-88.2726.022.0201810.029.911417TRUETRUEVFRSPECI130.02019-10-17 09:04:03J ) 5    3KDVO 170855Z AUTO 00000KT 10SM FEW030 SCT036 14/13 A2989 RMK AO2KDVO2019-10-17T08:55:00Z38.15-122.5514.013.00010.029.890747TRUETRUEVFRMETAR1.02019-10-17 09:04:03C (5    3KE16 170855Z AUTO 13003KT 10SM OVC040 12/09 A2992 RMK AO2KE162019-10-17T08:55:00Z37.08-121.612.09.0130310.029.920275TRUETRUEVFRSPECI86.02019-10-17 09:04:03 *iJ) 5    3KDCY 170855Z AUTO 27006KT 10SM CLR 04/02 A3005 RMK AO2 T00360021KDCY2019-10-17T08:55:00Z38.7-87.133.62.1270610.030.050198TRUETRUEVFRSPECI144.02019-10-17 09:04:03I) 5    3KDKB 170855Z AUTO 30006KT 10SM CLR 04/03 A3002 RMK AO2 T00440025KDKB2019-10-17T08:55:00Z41.93-88.74.42.5300610.030.02067TRUETRUEVFRSPECI279.02019-10-17 09:04:03;(w5    3KDKX 170855Z AUTO 00000KT 9SM CLR 06/06 A3002 RMK A01KDKX2019-10-17T08:55:00Z35.97-83.876.06.0009.030.02067TRUETRUEVFRSPECI254.02019-10-17 09:04:03P)5   3KDLP 170855Z AUTO 06008G21KT 030V090 9SM OVC018 24/19 A2993 RMK A01KDLP2019-10-17T08:55:00Z29.12-89.5524.019.0608219.029.929134TRUETRUEMVFRSPECI36.02019-10-17 09:04:03 5[{E)5    3KCVC 170855Z AUTO 32003KT 10SM CLR 09/05 A2992 RMK AO2 PNOKCVC2019-10-17T08:55:00Z33.63-83.859.05.0320310.029.920275TRUETRUEVFRSPECI247.02019-10-17 09:04:03Z)'5      3KCWF 170855Z 05005KT 10SM CLR 13/10 A3002 RMK AO2 P0001 60001 T01270102 PWINOKCWF2019-10-17T08:55:00Z30.22-93.1512.710.250510.030.02067TRUETRUEVFR0.01SPECI4.02019-10-17 09:04:03T)5   3KCXP 170855Z AUTO 23016G21KT 190V250 10SM CLR 16/M04 A2981 RMK AO2KCXP2019-10-17T08:55:00Z39.18-119.7316.0-4.0230162110.029.811024TRUETRUEVFRSPECI1435.02019-10-17 09:04:03E)5     3KCXW 170855Z AUTO 00000KT 5SM BR FEW038 06/06 A3011 RMK A01KCXW2019-10-17T08:55:00Z35.02-92.556.06.0005.030.109253TRUETRUEBRMVFRSPECI84.02019-10-17 09:04:03 %VI) 5    3KCTJ 170855Z AUTO 00000KT 10SM CLR 06/04 A3001 RMK AO2 T00610043KCTJ2019-10-17T08:55:00Z33.63-85.156.14.30010.030.008858TRUETRUEVFRSPECI354.02019-10-17 09:04:03D)5   3KCTY 170855Z AUTO 35006KT 10SM 19/18 A2991 RMK AO2 T01880176KCTY2019-10-17T08:55:00Z29.63-83.118.817.6350610.029.911417TRUETRUESPECI13.02019-10-17 09:04:03I) 5    3KCUH 170855Z AUTO 00000KT 10SM CLR 06/04 A3007 RMK AO2 T00560038KCUH2019-10-17T08:55:00Z35.95-96.775.63.80010.030.070866TRUETRUEVFRSPECI279.02019-10-17 09:04:03U)!5    3KCVB 170855Z AUTO 01004KT 10SM SCT048 BKN110 15/09 A3007 RMK AO2 T01450087KCVB2019-10-17T08:55:00Z29.35-98.8514.58.710410.030.070866TRUETRUEVFRSPECI235.02019-10-17 09:04:03 ;aB(y5    3KCCB 170855Z AUTO 34005KT 10SM CLR 19/06 A2983 RMK AO2KCCB2019-10-17T08:55:00Z34.12-117.6819.06.0340510.029.828741TRUETRUEVFRMETAR440.02019-10-17 09:04:03L) 5    3KCCO 170855Z AUTO 33007KT 10SM CLR 10/06 A2996 RMK AO2 T01020062KCCO2019-10-17T08:55:00Z33.32-84.7710.26.2330710.029.958662TRUETRUEVFRSPECI296.02019-10-17 09:04:03T)5     3KCMR 170855Z AUTO 11004KT 3SM HZ OVC045 08/M05 A3013 RMK AO2 PWINOKCMR2019-10-17T08:55:00Z35.3-112.28.0-5.011043.030.129921TRUETRUETRUEHZMVFRSPECI2036.02019-10-17 09:04:03?(y5    3KCRX 170855Z AUTO 33003KT 10SM CLR 06/05 A3008 RMK AO2KCRX2019-10-17T08:55:00Z34.92-88.66.05.0330310.030.079725TRUETRUEVFRSPECI130.02019-10-17 09:04:03 ,S?!(y5    3KC65 170855Z AUTO 28007KT 10SM CLR 05/03 A2996 RMK A01KC652019-10-17T08:55:00Z41.37-86.35.03.0280710.029.958662TRUETRUEVFRSPECI244.02019-10-17 09:04:03I ) 5    3KC75 170855Z AUTO 00000KT 10SM CLR 04/02 A3005 RMK AO2 T00360021KC752019-10-17T08:55:00Z41.02-89.383.62.10010.030.050198TRUETRUEVFRSPECI173.02019-10-17 09:04:03S)5   3KC83 170855Z AUTO 23009G14KT 10SM BKN028 BKN033 16/12 A2988 RMK AO2KC832019-10-17T08:55:00Z37.83-121.6216.012.023091410.029.878937TRUETRUEMVFRSPECI24.02019-10-17 09:04:03N)5     3KCBK 170855Z AUTO 25007KT 10SM CLR 04/M03 A2991 RMK AO2 PWINOKCBK2019-10-17T08:55:00Z39.43-101.054.0-3.0250710.029.911417TRUETRUETRUEVFRSPECI971.02019-10-17 09:04:03 0oQ%)5    3KBVS 170855Z AUTO 00000KT 10SM FEW019 SCT050 OVC055 10/09 A2966 RMK A01KBVS2019-10-17T08:55:00Z48.47-122.4210.09.00010.029.660433TRUETRUEVFRSPECI43.02019-10-17 09:04:039$(q5   3KBWP 170855Z AUTO 13006KT 10SM 01/00 A2996 RMK AO1KBWP2019-10-17T08:55:00Z46.25-96.621.00.0130610.029.958662TRUETRUESPECI295.02019-10-17 09:04:03;#(y5    3KBYL 170855Z AUTO 00000KT 10SM CLR 03/03 A3002 RMK AO1KBYL2019-10-17T08:55:00Z36.8-84.23.03.00010.030.02067TRUETRUEVFRSPECI359.02019-10-17 09:04:03J") 5    3KC09 170855Z AUTO 29007KT 10SM CLR 04/03 A3002 RMK AO2 T00410030KC092019-10-17T08:55:00Z41.43-88.424.13.0290710.030.02067TRUETRUEVFRSPECI178.02019-10-17 09:04:03 /ZS))5     3KBMT 170855Z AUTO 03004KT 10SM CLR 14/11 A3002 RMK AO2 T01410110 TSNOKBMT2019-10-17T08:55:00Z30.07-94.2214.111.030410.030.02067TRUETRUETRUEVFRSPECI10.02019-10-17 09:04:03J()5   3KBQX 170855Z AUTO 05016G22KT 10SM OVC018 22/19 A2997 RMK A01KBQX2019-10-17T08:55:00Z28.5-95.7222.019.050162210.029.970472TRUETRUEMVFRSPECI34.02019-10-17 09:04:03O')5    3KBRG 170855Z AUTO 18003KT 10SM CLR 09/M04 A3013 RMK AO2 T00851041KBRG2019-10-17T08:55:00Z34.65-106.838.5-4.1180310.030.129921TRUETRUEVFRSPECI1585.02019-10-17 09:04:03K&) 5    3KBVN 170855Z AUTO 12004KT 10SM CLR 03/01 A2992 RMK AO2 T00330011KBVN2019-10-17T08:55:00Z41.73-98.053.31.1120410.029.920275TRUETRUEVFRSPECI551.02019-10-17 09:04:03 -k?-(y5    3KBHC 170855Z AUTO 34004KT 10SM CLR 12/08 A2990 RMK AO2KBHC2019-10-17T08:55:00Z31.72-82.412.08.0340410.029.899607TRUETRUEVFRSPECI61.02019-10-17 09:04:03K,) 5    3KBIE 170855Z AUTO 14006KT 10SM CLR 07/03 A2997 RMK AO2 T00670031KBIE2019-10-17T08:55:00Z40.28-96.756.73.1140610.029.970472TRUETRUEVFRSPECI403.02019-10-17 09:04:03<+({5    3KBKD 170855Z AUTO 7SM CLR 10/03 A3009 RMK AO2 T00950033KBKD2019-10-17T08:55:00Z32.72-98.889.53.37.030.088583TRUETRUEVFRSPECI392.02019-10-17 09:04:03M*)5    3KBKS 170855Z AUTO 34007KT 10SM OVC020 20/09 A3002 RMK AO1 T01950091KBKS2019-10-17T08:55:00Z27.2-98.1219.59.1340710.030.02067TRUETRUEMVFRSPECI34.02019-10-17 09:04:03 <n?1(y5    3KBBD 170855Z AUTO 00000KT 10SM CLR 10/03 A3008 RMK AO2KBBD2019-10-17T08:55:00Z31.18-99.3210.03.00010.030.079725TRUETRUEVFRSPECI557.02019-10-17 09:04:03O0)5   3KBBF 170855Z AUTO 05020G27KT 10SM SCT017 OVC065 60/57 A2993 RMK A01KBBF2019-10-17T08:55:00Z27.83-96.020.00.050202710.029.929134TRUETRUEVFRSPECI36.02019-10-17 09:04:03H/)5   3KBDG 170855Z AUTO 02006KT 10SM 09/M13 A3016 RMK AO1 T00851129KBDG2019-10-17T08:55:00Z37.58-109.478.5-12.920610.030.159449TRUETRUESPECI1788.02019-10-17 09:04:03>.(y5    3KBGF 170855Z AUTO 00000KT 10SM CLR 05/03 A3003 RMK A01KBGF2019-10-17T08:55:00Z35.18-86.075.03.00010.030.029528TRUETRUEVFRSPECI299.02019-10-17 09:04:03 8^E5(5    3KAUN 170855Z AUTO 15007KT 10SM OVC044 14/08 A2987 RMK A01KAUN2019-10-17T08:55:00Z38.95-121.0814.08.0150710.029.870079TRUETRUEVFRSPECI467.02019-10-17 09:04:03?4(5    3KAVK 170855Z AUTO 18012KT 10SM FEW055 07/03 A3000 RMK AO2KAVK2019-10-17T08:55:00Z36.77-98.677.03.01801210.030.0TRUETRUEVFRSPECI449.02019-10-17 09:04:03T3)5     3KAYS 170855Z AUTO 32003KT 10SM CLR 13/10 A2991 RMK AO2 T01290101 TSNOKAYS2019-10-17T08:55:00Z31.25-82.412.910.1320310.029.911417TRUETRUETRUEVFRSPECI46.02019-10-17 09:04:03B2({5    3KAZC 170855Z AUTO 00000KT 10SM CLR 07/M07 A3003 RMK AO2KAZC2019-10-17T08:55:00Z36.97-113.027.0-7.00010.030.029528TRUETRUEVFRSPECI1486.02019-10-17 09:04:03 0kB:)5    3EHPG 170855Z AUTO /////KT 9999 FEW025 SCT049 14/08 Q1008 W///H///EHPG2019-10-17T08:55:00Z52.373.3514.08.06.2129.763779TRUEVFRMETAR50.02019-10-17 09:04:03=9)5   3EHQE 170855Z AUTO 18013KT 9999 ////// 14/06 Q1008 W///H///EHQE2019-10-17T08:55:00Z52.924.1514.06.0180136.2129.763779TRUEMETAR50.02019-10-17 09:04:03>8)5   3EHSA 170855Z AUTO 18019KT 9999 ///////// 14/11 Q1008 W14/H6EHSA2019-10-17T08:55:00Z52.03.2814.011.0180196.2129.763779TRUEMETAR50.02019-10-17 09:04:03?7)5   3EHSC 170855Z AUTO 22020KT 9999 ///////// 14/11 Q1008 W15/H6EHSC2019-10-17T08:55:00Z51.933.6714.011.0220206.2129.763779TRUEMETAR50.02019-10-17 09:04:03J6) 5    3KAUH 170855Z AUTO 16005KT 10SM CLR 05/03 A2992 RMK AO2 T00530025KAUH2019-10-17T08:55:00Z40.88-98.05.32.5160510.029.920275TRUETRUEVFRSPECI550.02019-10-17 09:04:03 &3q&D?) 5    3EHHW 170855Z AUTO 26011KT 200V310 9999 NSC 14/06 Q1007 W///H///EHHW2019-10-17T08:55:00Z54.036.0314.06.0260116.2129.734253TRUEVFRMETAR0.02019-10-17 09:04:039>)5  3EHJR 170855Z AUTO 23014KT //// // ///////// 14/06 Q//// RE// W16/H9EHJR2019-10-17T08:55:00Z53.223.2214.06.023014TRUEMETAR50.02019-10-17 09:04:03<=({5    3EHKV 170855Z AUTO 15015KT 9999 NCD 14/05 Q1008 W///H///EHKV2019-10-17T08:55:00Z53.273.6314.05.0150156.2129.763779TRUEVFRMETAR50.02019-10-17 09:04:03<<({5    3EHMA 170855Z AUTO 20010KT 9999 NSC 14/11 Q1008 W///H///EHMA2019-10-17T08:55:00Z53.55.9514.011.0200106.2129.763779TRUEVFRMETAR50.02019-10-17 09:04:03G;)5    3EHMG 170855Z AUTO 23011KT 9999 FEW035 SCT042 13/08 Q1008 W///H///EHMG2019-10-17T08:55:00Z53.624.9713.08.0230116.2129.763779TRUEVFRMETAR50.02019-10-17 09:04:03 :mCC)5    3EHAK 170855Z AUTO 25017KT 9999 FEW021/// 12/07 Q1005 W///H///EHAK2019-10-17T08:55:00Z55.423.8212.07.0250176.2129.675198TRUEVFRMETAR50.02019-10-17 09:04:03CB)5    3EHDV 170855Z AUTO 23012KT 9999 FEW028/// 13/06 Q1006 W///H///EHDV2019-10-17T08:55:00Z54.322.9313.06.0230126.2129.704725TRUEVFRMETAR50.02019-10-17 09:04:03GA) 5    3EHFD 170855Z AUTO 26020KT 9999 FEW024/// M89/M89 Q1005 W///H///EHFD2019-10-17T08:55:00Z54.854.7-89.0-89.0260206.2129.675198TRUEVFRMETAR50.02019-10-17 09:04:03@@)5    3EHFZ 170855Z AUTO 24013KT 9999 FEW029 13/06 Q1007 W///H///EHFZ2019-10-17T08:55:00Z54.124.0213.06.0240136.2129.734253TRUEVFRMETAR50.02019-10-17 09:04:03 z DzDG({5    3KTEX 170855Z AUTO 15005KT 10SM CLR 05/M14 A3028 RMK AO2KTEX2019-10-17T08:55:00Z37.95-107.95.0-14.0150510.030.280512TRUETRUEVFRSPECI2769.02019-10-17 09:04:03AF(5    3KTHA 170855Z AUTO 00000KT 10SM FEW029 04/03 A3003 RMK A01KTHA2019-10-17T08:55:00Z35.38-86.254.03.00010.030.029528TRUETRUEVFRSPECI331.02019-10-17 09:04:03cE))5    3PGUA 170855Z 07007KT 10SM FEW015 27/24 A2988 RMK AO2A SLP109 T02670235 53013 $PGUA2019-10-17T08:55:00Z13.57144.9226.723.570710.029.8789371010.9TRUETRUEVFR1.3METAR187.02019-10-17 09:04:03D)k5     3RJOI 170855Z 30004KT 9999 -RA SCT050 BKN080 OVC120 17/15 A3018 RMK SLP220 FG BANK W P0002 60014 T01670150 51007RJOI2019-10-17T08:55:00Z34.13132.2216.715.030046.2130.1801191022.0-RAVFR0.70.020.14METAR2.02019-10-17 09:04:03 =oGK) 5    3KLGC 170855Z AUTO 00000KT 10SM CLR 08/05 A2998 RMK AO2 T00800049KLGC2019-10-17T08:55:00Z33.0-85.078.04.90010.029.97933TRUETRUEVFRMETAR211.02019-10-17 09:04:03BJ(y5    3KBXK 170855Z AUTO 11009KT 10SM CLR 24/04 A2975 RMK A01KBXK2019-10-17T08:55:00Z33.42-112.6824.04.0110910.029.749016TRUETRUEVFRSPECI315.02019-10-17 09:04:03HI) 5    3K3R7 170855Z AUTO 05005KT 10SM CLR 13/10 A3002 RMK AO2 T01250097K3R72019-10-17T08:55:00Z30.25-92.6712.59.750510.030.02067TRUETRUEVFRSPECI7.02019-10-17 09:04:03=H(y5    3KAEL 170855Z AUTO 00000KT 10SM CLR 01/01 A3002 RMK AO2KAEL2019-10-17T08:55:00Z43.68-93.371.01.00010.030.02067TRUETRUEVFRMETAR383.02019-10-17 09:04:03 *eIO) 5    3KJKA 170855Z AUTO 01007KT 10SM CLR 14/10 A2997 RMK AO2 T01360096KJKA2019-10-17T08:55:00Z30.28-87.6713.69.610710.029.970472TRUETRUEVFRMETAR5.02019-10-17 09:04:03HN) 5    3KJOT 170855Z AUTO 00000KT 10SM CLR 05/04 A3002 RMK AO2 T00460040KJOT2019-10-17T08:55:00Z41.52-88.184.64.00010.030.02067TRUETRUEVFRMETAR177.02019-10-17 09:04:03?M(y5    3KJYR 170855Z AUTO 16004KT 10SM CLR 04/02 A2994 RMK AO2KJYR2019-10-17T08:55:00Z40.9-97.624.02.0160410.029.940945TRUETRUEVFRMETAR509.02019-10-17 09:04:03PL)5   3KJZP 170855Z AUTO 02011G16KT 10SM CLR 07/03 A2997 RMK AO2 T00680032KJZP2019-10-17T08:55:00Z34.45-84.476.83.220111610.029.970472TRUETRUEVFRMETAR468.02019-10-17 09:04:03 %TKS) 5    3KIDP 170855Z AUTO 17004KT 10SM CLR 04/04 A3009 RMK AO2 T00440038KIDP2019-10-17T08:55:00Z37.17-95.784.43.8170410.030.088583TRUETRUEVFRMETAR251.02019-10-17 09:04:03OR)5    3KIKG 170855Z AUTO 31005KT 10SM OVC021 19/10 A3002 RMK AO2 T01850103KIKG2019-10-17T08:55:00Z27.55-98.0318.510.3310510.030.02067TRUETRUEMVFRMETAR40.02019-10-17 09:04:03KQ) 5    3KIKK 170855Z AUTO 28007KT 10SM CLR 03/02 A3004 RMK AO2 T00300021KIKK2019-10-17T08:55:00Z41.07-87.853.02.1280710.030.041338TRUETRUEVFRMETAR192.02019-10-17 09:04:03UP)!5    3KJAQ 170855Z AUTO 00000KT 10SM BKN012 BKN033 12/08 A2991 RMK AO1 T01150083KJAQ2019-10-17T08:55:00Z38.37-120.811.58.30010.029.911417TRUETRUEMVFRMETAR512.02019-10-17 09:04:03 <t@X(y5    3KTVI 170855Z AUTO 34003KT 10SM CLR 12/11 A2995 RMK AO2KTVI2019-10-17T08:55:00Z30.9-83.8812.011.0340310.029.949802TRUETRUEVFRMETAR80.02019-10-17 09:04:03FW) 5    3KTYQ 170855Z AUTO 30004KT 10SM CLR 03/03 A3000 RMK AO2 T00250025KTYQ2019-10-17T08:55:00Z40.03-86.252.52.5300410.030.0TRUETRUEVFRMETAR281.02019-10-17 09:04:03?V(y5    3KVDI 170855Z AUTO 31005KT 10SM CLR 12/08 A2991 RMK AO2KVDI2019-10-17T08:55:00Z32.2-82.3712.08.0310510.029.911417TRUETRUEVFRMETAR84.02019-10-17 09:04:03BU(5    3KVES 170855Z AUTO 28007KT 10SM BKN050 05/00 A2994 RMK AO2KVES2019-10-17T08:55:00Z40.2-84.535.00.0280710.029.940945TRUETRUEVFRMETAR307.02019-10-17 09:04:03>T(y5    3KHZR 170855Z AUTO 00000KT 10SM CLR 11/09 A3004 RMK AO2KHZR2019-10-17T08:55:00Z30.72-91.4811.09.00010.030.041338TRUETRUEVFRMETAR12.02019-10-17 09:04:03 0aX\)5    3KLSV 170855Z 00000KT 10SM CLR 18/M06 A2978 RMK AO2A SLP065 T01751057 $KLSV2019-10-17T08:55:00Z36.22-115.0217.5-5.70010.029.7785431006.5TRUETRUEVFRMETAR570.02019-10-17 09:04:03P[)5    3KSWW 170855Z AUTO 18010KT 10SM CLR 12/M01 A3010 RMK AO2 T01151012KSWW2019-10-17T08:55:00Z32.47-100.4711.5-1.21801010.030.100393TRUETRUEVFRMETAR727.02019-10-17 09:04:03IZ) 5    3KTBR 170855Z AUTO 00000KT 10SM CLR 10/08 A2990 RMK AO2 T01000084KTBR2019-10-17T08:55:00Z32.48-81.7310.08.40010.029.899607TRUETRUEVFRMETAR57.02019-10-17 09:04:03JY)5   3KTRK 170855Z AUTO 23004G14KT 10SM CLR 08/M04 A2991 RMK AO2KTRK2019-10-17T08:55:00Z39.32-120.128.0-4.023041410.029.911417TRUETRUEVFRMETAR1798.02019-10-17 09:04:03 8gE`({5    3K46U 170855Z AUTO 13010KT 10SM CLR 04/M07 A2996 RMK A01K46U2019-10-17T08:55:00Z43.18-111.054.0-7.01301010.029.958662TRUETRUEVFRSPECI1717.02019-10-17 09:04:03K_) 5    3K48A 170855Z AUTO 31007KT 10SM CLR 11/07 A2992 RMK AO2 T01070072K48A2019-10-17T08:55:00Z32.4-83.2710.77.2310710.029.920275TRUETRUEVFRSPECI115.02019-10-17 09:04:03K^) 5    3K40J 170855Z AUTO 01004KT 10SM CLR 17/14 A2994 RMK AO2 T01710138K40J2019-10-17T08:55:00Z30.07-83.5717.113.810410.029.940945TRUETRUEVFRSPECI13.02019-10-17 09:04:03B]({5    3K6S5 170855Z AUTO 00000KT 10SM CLR 04/M02 A2963 RMK AO2K6S52019-10-17T08:55:00Z46.25-114.134.0-2.00010.029.630905TRUETRUEVFRMETAR1110.02019-10-17 09:04:03 1ZLd) 5    3K5T9 170855Z AUTO 00000KT 10SM FEW043 OVC085 17/14 A3007 RMK A01K5T92019-10-17T08:55:00Z28.85-100.5217.014.00010.030.070866TRUETRUEVFRSPECI270.02019-10-17 09:04:03Kc) 5    3K4A9 170855Z AUTO 10003KT 10SM CLR 05/04 A3001 RMK AO2 T00490042K4A92019-10-17T08:55:00Z34.47-85.724.94.2100310.030.008858TRUETRUEVFRSPECI267.02019-10-17 09:04:03Qb)5    3K54A 170855Z AUTO 00000KT 10SM FEW021 BKN032 BKN041 25/24 A2988 RMK AO2K54A2019-10-17T08:55:00Z26.85-82.2525.024.00010.029.878937TRUETRUEVFRMETAR14.02019-10-17 09:04:03Ia) 5    3K5C1 170855Z AUTO 00000KT 10SM SCT095 SCT120 12/05 A3008 RMK AO1K5C12019-10-17T08:55:00Z29.72-98.712.05.00010.030.079725TRUETRUEVFRSPECI423.02019-10-17 09:04:03 1kGh) 5    3KW81 170855Z AUTO 00000KT 10SM CLR 07/01 A2969 RMK AO1 T00700006KW812019-10-17T08:55:00Z37.18-78.17.00.60010.029.68996TRUETRUEVFRMETAR129.02019-10-17 09:04:03Lg) 5    3KX60 170855Z AUTO 35004KT 10SM CLR 20/19 A2990 RMK AO2 T02010191KX602019-10-17T08:55:00Z29.35-82.4720.119.1350410.029.899607TRUETRUEVFRMETAR23.02019-10-17 09:04:03@f(y5    3KY19 170855Z AUTO 16004KT 10SM CLR 01/01 A2981 RMK AO2KY192019-10-17T08:55:00Z46.77-100.91.01.0160410.029.811024TRUETRUEVFRSPECI593.02019-10-17 09:04:03Ie) 5    3K65S 170855Z AUTO 00000KT 10SM FEW040 OVC060 06/05 A2964 RMK AO2K65S2019-10-17T08:55:00Z48.73-116.36.05.00010.029.639763TRUETRUEVFRSPECI713.02019-10-17 09:04:03 /hFl)5     3KVDF 170855Z AUTO 00000KT 3SM BR SCT025 22/22 A2989 RMK AO2KVDF2019-10-17T08:55:00Z28.02-82.3322.022.0003.029.890747TRUETRUEBRMVFRMETAR7.02019-10-17 09:04:03Ek(5    3KVQQ 170855Z AUTO 32007KT 10SM BKN012 18/15 A2990 RMK AO2KVQQ2019-10-17T08:55:00Z30.22-81.8818.015.0320710.029.899607TRUETRUEMVFRMETAR25.02019-10-17 09:04:03Aj({5    3KVVV 170855Z AUTO 14005KT 10SM CLR 01/M01 A2994 RMK AO2KVVV2019-10-17T08:55:00Z45.3-96.421.0-1.0140510.029.940945TRUETRUEVFRSPECI335.02019-10-17 09:04:03Ki) 5    3KW78 170855Z AUTO 30005KT 10SM CLR 09/02 A2975 RMK AO1 T00900015KW782019-10-17T08:55:00Z36.68-78.859.01.5300510.029.749016TRUETRUEVFRMETAR129.02019-10-17 09:04:03 :u (y5    3KRDK 170855Z AUTO 00000KT 10SM CLR 01/01 A3001 RMK AO2KRDK2019-10-17T08:55:00Z41.02-95.271.01.00010.030.008858TRUETRUEVFRSPECI318.02019-10-17 09:04:03 Ap.(g5   3K6I2 170855Z AUTO 00000KT 04/03 A3003 RMK AO2K6I22019-10-17T08:55:00Z37.63-85.254.03.00030.029528TRUETRUESPECI264.02019-10-17 09:04:03K) 5    3K6P9 170855Z AUTO 19003KT 10SM CLR 11/03 A3009 RMK AO2 T01050027K6P92019-10-17T08:55:00Z32.43-98.610.52.7190310.030.088583TRUETRUEVFRSPECI449.02019-10-17 09:04:03?(y5    3KARW 170855Z AUTO 31009KT 10SM CLR 14/08 A2987 RMK AO2KARW2019-10-17T08:55:00Z32.42-80.6314.08.0310910.029.870079TRUETRUEVFRMETAR4.02019-10-17 09:04:03t)K5     3KPOV 170855Z AUTO 28012G15KT 7SM BKN011 BKN018 OVC023 06/04 A2971 RMK AO2 P0004 T00550041 PWINOKPOV2019-10-17T08:55:00Z41.22-81.255.54.128012157.029.71063TRUETRUETRUEMVFR0.04SPECI365.02019-10-17 09:04:03 7_m`)55   3FJDG 170855Z 06010KT 9999 SCT024 SCT250 33/26 A2979 RMK SLP085 8/102 T03330257 57017FJDG2019-10-17T08:55:00Z-7.3272.4233.325.760106.2129.7903541008.5VFR-1.7METAR3.02019-10-17 09:04:03l)C5    3OKAS 170855Z 26006KT 9999 BKN260 37/00 A3001 RMK AO2A SLP157 WND DATA ESTMD T03740001 58009OKAS2019-10-17T08:55:00Z29.3547.3537.40.126066.2130.0088581015.7TRUEVFR-0.9METAR144.02019-10-17 09:04:03R)+5    3ORBD 170855Z VRB05KT 5000 HZ SCT150 BKN200 33/03 A3003 RMK WND DATA ALSTG ESTMDORBD2019-10-17T08:55:00Z33.9344.3733.03.0053.1130.029528HZMVFRMETAR49.02019-10-17 09:04:03C({5    3K6S0 170855Z AUTO 20004KT 10SM CLR 08/M06 A2974 RMK A01K6S02019-10-17T08:55:00Z45.8-109.978.0-6.0200410.029.740158TRUETRUEVFRMETAR1363.02019-10-17 09:04:03 -^?(y5    3KJNX 170855Z AUTO 23003KT 10SM CLR 07/06 A2981 RMK AO2KJNX2019-10-17T08:55:00Z35.53-78.387.06.0230310.029.811024TRUETRUEVFRSPECI50.02019-10-17 09:04:03>(y5    3KM25 170855Z AUTO 00000KT 10SM CLR 03/03 A3009 RMK AO2KM252019-10-17T08:55:00Z36.77-88.583.03.00010.030.088583TRUETRUEVFRSPECI160.02019-10-17 09:04:03<(y5    3KMBO 170855Z AUTO 00000KT 10SM CLR 07/07 A3006 RMK AO2KMBO2019-10-17T08:55:00Z32.43-90.17.07.00010.030.059055TRUETRUEVFRSPECI99.02019-10-17 09:04:03I) 5    3KSIF 170855Z AUTO 00000KT 10SM CLR 06/02 A2981 RMK AO2 T00560019KSIF2019-10-17T08:55:00Z36.43-79.855.61.90010.029.811024TRUETRUEVFRSPECI211.02019-10-17 09:04:03M)5   3KW75 170855Z AUTO 24006G14KT 10SM CLR 09/04 A2964 RMK AO1 T00920038KW752019-10-17T08:55:00Z37.6-76.459.23.824061410.029.639763TRUETRUEVFRSPECI9.02019-10-17 09:04:03 Bl? (y5    3KGGE 170855Z AUTO 33004KT 10SM CLR 11/06 A2985 RMK AO2KGGE2019-10-17T08:55:00Z33.32-79.3211.06.0330410.029.84941TRUETRUEVFRSPECI12.02019-10-17 09:04:03<(y5    3KSIK 170855Z AUTO 00000KT 10SM CLR 05/04 A3010 RMK AO2KSIK2019-10-17T08:55:00Z36.9-89.575.04.00010.030.100393TRUETRUEVFRSPECI96.02019-10-17 09:04:03G) 5    3KW96 170855Z AUTO 00000KT 10SM CLR 08/03 A2965 RMK AO1 T00800032KW962019-10-17T08:55:00Z37.5-77.128.03.20010.029.648623TRUETRUEVFRSPECI37.02019-10-17 09:04:03P)5    3KANK 170855Z AUTO 33008KT 10SM CLR 06/M14 A3027 RMK AO1 T00621139KANK2019-10-17T08:55:00Z38.53-106.056.2-13.9330810.030.268702TRUETRUEVFRMETAR2293.02019-10-17 09:04:038(u5    3KCKM 170855Z AUTO 00000KT 4SM BR 07/07 A3009 RMK A01KCKM2019-10-17T08:55:00Z34.3-90.527.07.0004.030.088583TRUETRUEBRSPECI53.02019-10-17 09:04:03 <m0$(e5   3MUHA 170855Z 25001KT 8000 FEW018 23/23 Q1013MUHA2019-10-17T08:55:00Z22.97-82.4223.023.025014.9729.911417MVFRMETAR64.02019-10-17 09:04:03f#)+5     3KNKX 170855Z 00000KT 1/4SM FG VV001 18/16 A2983 RMK AO2 SLP096 T01780161 56000 KNKX2019-10-17T08:55:00Z32.87-117.1317.816.1000.2529.8287411009.6TRUEFGLIFR0.0100METAR146.02019-10-17 09:04:03I") 5    3K1A5 170855Z AUTO 00000KT 10SM CLR 02/01 A2996 RMK AO2 T00240013K1A52019-10-17T08:55:00Z35.22-83.422.41.30010.029.958662TRUETRUEVFRSPECI616.02019-10-17 09:04:03>!)5   3KEMV 170855Z AUTO 19004KT CLR 07/03 A2973 RMK AO2 T00690031KEMV2019-10-17T08:55:00Z36.68-77.486.93.1190429.731298TRUETRUESPECI39.02019-10-17 09:04:03 <mI() 5    3KGGI 170855Z AUTO 00000KT 10SM CLR 01/00 A3006 RMK AO2 T00050001KGGI2019-10-17T08:55:00Z41.72-92.730.50.10010.030.059055TRUETRUEVFRMETAR307.02019-10-17 09:04:03L') 5    3KELK 170855Z AUTO 20010KT 10SM CLR 09/00 A3004 RMK AO2 T00901002KELK2019-10-17T08:55:00Z35.43-99.49.0-0.22001010.030.041338TRUETRUEVFRMETAR610.02019-10-17 09:04:03I&) 5    3K9V9 170855Z AUTO 00000KT 10SM CLR 03/03 A2986 RMK AO2 T00340034K9V92019-10-17T08:55:00Z43.77-99.323.43.40010.029.861221TRUETRUEVFRMETAR519.02019-10-17 09:04:03>%(y5    3K8A0 170855Z AUTO 02003KT 10SM CLR 08/03 A3002 RMK AO2K8A02019-10-17T08:55:00Z34.23-86.258.03.020310.030.02067TRUETRUEVFRMETAR315.02019-10-17 09:04:03 =jD,({5    3KSPF 170855Z AUTO 19006KT 10SM CLR 08/M03 A2984 RMK AO2KSPF2019-10-17T08:55:00Z44.47-103.778.0-3.0190610.029.840551TRUETRUEVFRMETAR1188.02019-10-17 09:04:03R+)5    3KO22 170855Z AUTO 00000KT 10SM SCT032 SCT038 BKN045 12/05 A2992 RMK A01KO222019-10-17T08:55:00Z38.03-120.4212.05.00010.029.920275TRUETRUEVFRMETAR646.02019-10-17 09:04:03M*)5    3KRPD 170855Z AUTO 00000KT 10SM OVC120 05/M05 A3002 RMK AO2 T00481055KRPD2019-10-17T08:55:00Z45.42-91.774.8-5.50010.030.02067TRUETRUEVFRMETAR338.02019-10-17 09:04:03=)(y5    3KMNI 170855Z AUTO 00000KT 10SM CLR 07/06 A2987 RMK AO2KMNI2019-10-17T08:55:00Z33.58-80.227.06.00010.029.870079TRUETRUEVFRMETAR32.02019-10-17 09:04:03 =t=0(y5    3K8A3 170855Z AUTO 00000KT 10SM CLR 04/02 A3002 RMK A01K8A32019-10-17T08:55:00Z36.42-85.324.02.00010.030.02067TRUETRUEVFRSPECI419.02019-10-17 09:04:03I/) 5    3KA08 170855Z AUTO 28003KT 10SM CLR 07/06 A3002 RMK AO2 T00680062KA082019-10-17T08:55:00Z32.52-87.386.86.2280310.030.02067TRUETRUEVFRSPECI69.02019-10-17 09:04:03C.({5    3K2V5 170855Z AUTO 27005KT 10SM CLR 07/M07 A2991 RMK AO2K2V52019-10-17T08:55:00Z40.1-102.257.0-7.0270510.029.911417TRUETRUEVFRMETAR1118.02019-10-17 09:04:03=-(y5    3KW63 170855Z AUTO 00000KT 10SM CLR 07/02 A2975 RMK AO1KW632019-10-17T08:55:00Z36.6-78.557.02.00010.029.749016TRUETRUEVFRMETAR129.02019-10-17 09:04:03 +eK4) 5    3KPRO 170855Z AUTO 12003KT 10SM CLR 01/00 A3003 RMK AO2 T00050000KPRO2019-10-17T08:55:00Z41.83-94.170.50.0120310.030.029528TRUETRUEVFRMETAR308.02019-10-17 09:04:03@3(y5    3KPLD 170855Z AUTO 28009KT 10SM CLR 05/00 A2995 RMK AO2KPLD2019-10-17T08:55:00Z40.45-84.985.00.0280910.029.949802TRUETRUEVFRMETAR282.02019-10-17 09:04:03@2(y5    3KAAS 170855Z AUTO 25003KT 10SM CLR 03/02 A3008 RMK AO1KAAS2019-10-17T08:55:00Z37.35-85.323.02.0250310.030.079725TRUETRUEVFRSPECI281.02019-10-17 09:04:03O1)5    3KTMT 170855Z AUTO 20009KT 10SM CLR 12/M09 A2986 RMK AO2 T01241086KTMT2019-10-17T08:55:00Z39.47-117.212.4-8.6200910.029.861221TRUETRUEVFRMETAR1748.02019-10-17 09:04:03 +e@9(y5    3KRCR 170855Z AUTO 26004KT 10SM CLR 05/02 A2997 RMK AO2KRCR2019-10-17T08:55:00Z41.07-86.185.02.0260410.029.970472TRUETRUEVFRSPECI241.02019-10-17 09:04:03,8(g5   3KPMU 170855Z AUTO 00000KT 05/05 A3008 RMK AO2KPMU2019-10-17T08:55:00Z34.37-89.95.05.00030.079725TRUETRUESPECI67.02019-10-17 09:04:03R7)5      3KPTD 170855Z AUTO 02009KT 8SM -RA OVC006 08/07 A2929 RMK AO2 P0005KPTD2019-10-17T08:55:00Z44.68-74.958.07.02098.029.291338TRUETRUE-RAIFR0.05SPECI144.02019-10-17 09:04:03@6(}5     3KPVE 170855Z AUTO 00000KT 6SM BR CLR 04/03 A3007 RMK A01KPVE2019-10-17T08:55:00Z35.65-88.24.03.0006.030.070866TRUETRUEBRVFRSPECI149.02019-10-17 09:04:03O5)5    3KPVW 170855Z AUTO 24003KT 10SM CLR 04/M01 A3007 RMK AO2 T00431006KPVW2019-10-17T08:55:00Z34.17-101.724.3-0.6240310.030.070866TRUETRUEVFRSPECI1028.02019-10-17 09:04:03 ;kJ=) 5    3KADS 170855Z AUTO 00000KT 10SM CLR 11/05 A3011 RMK AO2 T01070054KADS2019-10-17T08:55:00Z32.97-96.8210.75.40010.030.109253TRUETRUEVFRSPECI196.02019-10-17 09:04:03K<)5    3KRCX 170855Z AUTO 30003KT 10SM OVC031 06/04 A3002 RMK AO2 T00550038KRCX2019-10-17T08:55:00Z45.5-91.05.53.8300310.030.02067TRUETRUEVFRMETAR377.02019-10-17 09:04:03J;) 5    3KSUT 170855Z AUTO 33005KT 10SM CLR 12/06 A2984 RMK AO2 T01200058KSUT2019-10-17T08:55:00Z33.93-78.0812.05.8330510.029.840551TRUETRUEVFRMETAR8.02019-10-17 09:04:03?:)5   3TXKF 170855Z 21013KT 9999 SCT025 BKN040 BKN300 25/20 Q1009 TXKF2019-10-17T08:55:00Z32.37-64.6825.020.0210136.2129.793306VFRMETAR6.02019-10-17 09:04:03 -\EA(5   3KUSE 170855Z AUTO 30009G14KT 10SM CLR 05/05 A2988 RMK AO2KUSE2019-10-17T08:55:00Z41.62-84.135.05.030091410.029.878937TRUETRUEVFRSPECI238.02019-10-17 09:04:03C@(5    3KUES 170855Z AUTO 28003KT 10SM SCT120 03/01 A3001 RMK AO2KUES2019-10-17T08:55:00Z43.05-88.253.01.0280310.030.008858TRUETRUEVFRSPECI278.02019-10-17 09:04:03K?) 5    3KANW 170855Z AUTO 23003KT 10SM CLR 04/00 A2987 RMK AO2 T00390001KANW2019-10-17T08:55:00Z42.57-100.03.90.1230310.029.870079TRUETRUEVFRMETAR789.02019-10-17 09:04:03M>)5    3KAHQ 170855Z AUTO 15004KT 10SM SCT110 02/02 A2997 RMK AO2 T00240018KAHQ2019-10-17T08:55:00Z41.23-96.62.41.8150410.029.970472TRUETRUEVFRSPECI374.02019-10-17 09:04:03 1jTE)5    3KVAF 170855Z AUTO 06021KT 10SM SCT021 BKN030 OVC048 26/21 A2991 RMK A01KVAF2019-10-17T08:55:00Z27.35-94.6326.021.0602110.029.911417TRUETRUEMVFRSPECI46.02019-10-17 09:04:03ED(5    3KVKY 170855Z AUTO 06019KT 10SM OVC025 22/16 A2997 RMK A01KVKY2019-10-17T08:55:00Z29.25-88.4322.016.0601910.029.970472TRUETRUEMVFRSPECI32.02019-10-17 09:04:03AC(y5    3KVOA 170855Z AUTO 03018KT 10SM CLR 22/17 A2994 RMK A01KVOA2019-10-17T08:55:00Z29.23-87.7822.017.0301810.029.940945TRUETRUEVFRSPECI53.02019-10-17 09:04:03IB)5   3KVQT 170855Z AUTO 06012G18KT 9SM BKN017 24/21 A2994 RMK A01KVQT2019-10-17T08:55:00Z28.27-92.2724.021.06012189.029.940945TRUETRUEMVFRSPECI25.02019-10-17 09:04:03 ,iQI)!5    3KLUM 170855Z AUTO 00000KT 10SM SCT037 BKN120 03/02 A3002 RMK AO2 T00320019KLUM2019-10-17T08:55:00Z44.9-91.873.21.90010.030.02067TRUETRUEVFRMETAR273.02019-10-17 09:04:03@H(y5    3KMAO 170855Z AUTO 32004KT 10SM CLR 10/05 A2986 RMK AO2KMAO2019-10-17T08:55:00Z34.18-79.3310.05.0320410.029.861221TRUETRUEVFRMETAR28.02019-10-17 09:04:03=G(y5    3KPGV 170855Z AUTO 24006KT 10SM CLR 07/05 A2982 RMK AO2KPGV2019-10-17T08:55:00Z35.62-77.47.05.0240610.029.819881TRUETRUEVFRMETAR8.02019-10-17 09:04:03NF)5    3K3S8 170855Z AUTO 00000KT 9SM FEW017 BKN041 BKN047 10/09 A2991 RMK AO2K3S82019-10-17T08:55:00Z42.5-123.410.09.0009.029.911417TRUETRUEVFRMETAR343.02019-10-17 09:04:03 -[@M(y5    3KFDW 170855Z AUTO 34006KT 10SM CLR 07/03 A2987 RMK AO1KFDW2019-10-17T08:55:00Z34.32-81.127.03.0340610.029.870079TRUETRUEVFRSPECI176.02019-10-17 09:04:03AL(5    3KI43 170855Z AUTO 00000KT 10SM BKN055 07/03 A2993 RMK AO2KI432019-10-17T08:55:00Z38.98-82.587.03.00010.029.929134TRUETRUEVFRSPECI221.02019-10-17 09:04:03LK) 5    3KANQ 170855Z AUTO 29005KT 10SM BKN030 OVC045 07/04 A2992 RMK AO2KANQ2019-10-17T08:55:00Z41.63-85.087.04.0290510.029.920275TRUETRUEMVFRMETAR303.02019-10-17 09:04:03MJ)5    3KIFA 170855Z AUTO 12003KT 10SM CLR 01/M01 A3005 RMK AO2 T00071013KIFA2019-10-17T08:55:00Z42.47-93.270.7-1.3120310.030.050198TRUETRUEVFRMETAR347.02019-10-17 09:04:03 2hJQ) 5    3KTIF 170855Z AUTO 00000KT 10SM CLR 04/00 A2987 RMK AO2 T00410000KTIF2019-10-17T08:55:00Z41.97-100.574.10.00010.029.870079TRUETRUEVFRSPECI892.02019-10-17 09:04:03IP) 5    3KHBI 170855Z AUTO 21004KT 10SM CLR 08/02 A2985 RMK AO2 T00800020KHBI2019-10-17T08:55:00Z35.65-79.98.02.0210410.029.84941TRUETRUEVFRSPECI205.02019-10-17 09:04:03DO) 5    3KMCX 170855Z AUTO 00000KT 10SM CLR 02/01 A3000 RMK AO2 T00210007KMCX2019-10-17T08:55:00Z40.72-86.772.10.70010.030.0TRUETRUEVFRSPECI206.02019-10-17 09:04:03HN) 5    3KDYA 170855Z AUTO 00000KT 10SM CLR 07/07 A3004 RMK AO2 T00710065KDYA2019-10-17T08:55:00Z32.47-87.957.16.50010.030.041338TRUETRUEVFRSPECI34.02019-10-17 09:04:03 /]HU) 5    3KRCZ 170855Z AUTO 00000KT 10SM CLR 09/02 A2985 RMK AO2 T00870020KRCZ2019-10-17T08:55:00Z34.88-79.778.72.00010.029.84941TRUETRUEVFRSPECI109.02019-10-17 09:04:03:T(q5   3KTMK 170855Z AUTO 14005KT 10SM 10/09 A2978 RMK AO2KTMK2019-10-17T08:55:00Z45.42-123.8210.09.0140510.029.778543TRUETRUESPECI11.02019-10-17 09:04:03LS)5    3KTKV 170855Z AUTO 00000KT 10SM OVC120 03/02 A2999 RMK AO2 T00300015KTKV2019-10-17T08:55:00Z45.47-89.823.01.50010.029.991142TRUETRUEVFRSPECI453.02019-10-17 09:04:03KR) 5    3KTIP 170855Z AUTO 30005KT 10SM CLR 03/02 A3004 RMK AO2 T00300020KTIP2019-10-17T08:55:00Z40.28-88.153.02.0300510.030.041338TRUETRUEVFRSPECI225.02019-10-17 09:04:03 'UDY(}5    3KPNA 170855Z AUTO 31004KT 10SM CLR M04/M08 A3004 RMK AO2KPNA2019-10-17T08:55:00Z42.8-109.8-4.0-8.0310410.030.041338TRUETRUEVFRMETAR2160.02019-10-17 09:04:03BX({5    3KW43 170855Z AUTO 00000KT 10SM CLR 08/M02 A2983 RMK AO2KW432019-10-17T08:55:00Z44.67-104.578.0-2.00010.029.828741TRUETRUEVFRMETAR1300.02019-10-17 09:04:03LW) 5     3KNY0 170855Z AUTO 32007KT 7SM OVC042 06/06 A2918 RMK AO2 P0011KNY02019-10-17T08:55:00Z42.98-74.336.06.032077.029.179134TRUETRUEVFR0.11METAR271.02019-10-17 09:04:03SV)5    3KO54 170855Z AUTO 19005KT 10SM FEW023 SCT065 BKN075 09/07 A2988 RMK AO1KO542019-10-17T08:55:00Z40.75-122.929.07.0190510.029.878937TRUETRUEVFRMETAR717.02019-10-17 09:04:03 ;nK])5     3KUCY 170855Z AUTO 00000KT 1/4SM FG VV002 04/04 A3008 RMK A01KUCY2019-10-17T08:55:00Z36.38-88.984.04.0000.2530.079725TRUETRUEFGLIFR200SPECI104.02019-10-17 09:04:03@\(y5    3K2J9 170855Z AUTO 34004KT 10SM CLR 14/11 A2996 RMK AO2K2J92019-10-17T08:55:00Z30.6-84.5514.011.0340410.029.958662TRUETRUEVFRMETAR69.02019-10-17 09:04:03G[)5     3K96D 170855Z AUTO 14008KT 5SM BR OVC002 01/01 A2989 RMK AO2K96D2019-10-17T08:55:00Z48.93-97.91.01.014085.029.890747TRUETRUEBRLIFRMETAR290.02019-10-17 09:04:03?Z(y5    3KMYZ 170855Z AUTO 13005KT 10SM CLR 05/02 A2998 RMK AO2KMYZ2019-10-17T08:55:00Z39.85-96.635.02.0130510.029.97933TRUETRUEVFRMETAR319.02019-10-17 09:04:03Y88@HPX`hpx (08@HPX`hpx (08@HPX`hpxGKOSX\`dhlptGKOSX\`dhlpty}  $(,049·=÷AķEŷIƷMǷQȷUɷYʷ]̷aͷeηiϷmзqѷuҷyӷ}Էշַ ׷ طٷڷ۷ܷ!ݷ%޷)߷-159=AEILORUX[^bfimquy} " kASkba)15    3PGSN 170854Z 08008KT 10SM FEW015 SCT020 27/25 A2987 RMK AO2 SLP137 T02720250 53013PGSN2019-10-17T08:54:00Z15.12145.7227.225.080810.029.8700791013.7TRUEVFR1.3METAR65.02019-10-17 09:04:03h`)15      3KASJ 170855Z AUTO 22004KT 10SM CLR 07/04 A2975 RMK AO2 P0001 60001 T00660042 PWINOKASJ2019-10-17T08:55:00Z36.28-77.176.64.2220410.029.749016TRUETRUETRUEVFR0.010.01METAR21.02019-10-17 09:04:03K_) 5    3K7W4 170855Z AUTO 22004KT 10SM CLR 07/02 A2965 RMK AO1 T00680022K7W42019-10-17T08:55:00Z37.97-77.756.82.2220410.029.648623TRUETRUEVFRMETAR106.02019-10-17 09:04:03h^)A5    3PTYA 170855Z VRB03KT 12SM FEW016 BKN300 28/24 A2982 RMK SLP098 60002 8/101 T02770243 55000PTYA2019-10-17T08:55:00Z9.48138.0827.724.30312.029.8198811009.8VFR0.00.02METAR17.02019-10-17 09:04:03 C.GC~e)[5     3KBUF 170854Z 29013KT 10SM BKN015 OVC020 06/04 A2944 RMK AO2 RAB28E35 SLP974 P0000 60000 T00610044 55001KBUF2019-10-17T08:54:00Z42.93-78.736.14.42901310.029.438976997.4TRUEMVFR-0.10.005SPECI211.02019-10-17 09:04:03ad)'5    3KAAO 170854Z AUTO 17008KT 10SM CLR 07/03 A3002 RMK AO2 SLP166 T00720033 58006KAAO2019-10-17T08:54:00Z37.75-97.227.23.3170810.030.020671016.6TRUETRUEVFR-0.6METAR434.02019-10-17 09:04:03[c)#5    3KACY 170854Z 25015KT 10SM BKN050 11/04 A2943 RMK AO2 SLP965 T01110044 53004KACY2019-10-17T08:54:00Z39.45-74.5711.14.42501510.029.430119996.5TRUEVFR0.4SPECI23.02019-10-17 09:04:03kb)15     3PHMK 170854Z AUTO 03007KT 10SM CLR 26/19 A3006 RMK AO2 SLP177 T02610194 51011 TSNOPHMK2019-10-17T08:54:00Z21.15-157.126.119.430710.030.0590551017.7TRUETRUETRUEVFR1.1METAR141.02019-10-17 09:04:03 M4Mai)'5    3KBUY 170854Z AUTO 21006KT 10SM CLR 08/02 A2980 RMK AO2 SLP088 T00830017 55000KBUY2019-10-17T08:54:00Z36.05-79.478.31.7210610.029.7992131008.8TRUETRUEVFR0.0METAR180.02019-10-17 09:04:03>h({5    3KBJC 170854Z AUTO 26003KT 10SM CLR 12/M07 A3000 RMK AO2KBJC2019-10-17T08:54:00Z39.9-105.112.0-7.0260310.030.0TRUETRUEVFRSPECI1724.02019-10-17 09:04:03ig)35    3KBOS 170854Z 15011KT 10SM OVC013 17/16 A2880 RMK AO2 SLP753 60041 T01720156 56081 $KBOS2019-10-17T08:54:00Z42.37-71.0217.215.61501110.028.801182975.3TRUETRUEMVFR-8.1SPECI6.02019-10-17 09:04:03f)s5     3KBTV 170854Z AUTO 35016G25KT 4SM +RA BR BKN007 BKN026 OVC034 09/07 A2919 RMK AO2 SLP885 P0016 60033 T00890072 56027KBTV2019-10-17T08:54:00Z44.47-73.158.97.235016254.029.190945988.5TRUETRUE+RA BRIFR-2.70.16SPECI105.02019-10-17 09:04:03 b4Uwbm)g5     3KDDH 170854Z AUTO 27013G20KT 6SM RA BR BKN007 OVC011 09/07 A2904 RMK AO2 SLP834 P0023 60122 T00890072 56033 $KDDH2019-10-17T08:54:00Z42.9-73.258.97.227013206.029.040354983.4TRUETRUETRUERA BRIFR-3.30.23SPECI244.02019-10-17 09:04:03Xl)5    3KDEC 170854Z 29005KT 10SM CLR 04/01 A3006 RMK AO2 SLP183 T00440011 50001KDEC2019-10-17T08:54:00Z39.83-88.854.41.1290510.030.0590551018.3TRUEVFR0.1SPECI207.02019-10-17 09:04:03Yk)5    3KDSM 170854Z 14006KT 10SM CLR 03/01 A3004 RMK AO2 SLP176 T00280006 58012KDSM2019-10-17T08:54:00Z41.53-93.672.80.6140610.030.0413381017.6TRUEVFR-1.2SPECI295.02019-10-17 09:04:03Fj({5    3K4BM 170854Z AUTO 24013KT 10SM CLR 04/M18 A3037 RMK AO2K4BM2019-10-17T08:54:00Z39.05-105.524.0-18.02401310.030.369095TRUETRUEVFRSPECI3438.02019-10-17 09:04:03 W 6WYq)5    3KBFL 170854Z 00000KT 10SM CLR 17/04 A2982 RMK AO2 SLP094 T01670044 55005KBFL2019-10-17T08:54:00Z35.43-119.0516.74.40010.029.8198811009.4TRUEVFR-0.5METAR151.02019-10-17 09:04:03ap)'5    3KCEU 170854Z AUTO 27003KT 10SM CLR 08/03 A2989 RMK AO2 SLP117 T00830033 51002KCEU2019-10-17T08:54:00Z34.67-82.888.33.3270310.029.8907471011.7TRUETRUEVFR0.2METAR268.02019-10-17 09:04:03ho)+5    3KCOU 170854Z AUTO 20005KT 10SM CLR 03/02 A3009 RMK AO2 SLP193 T00280017 58005 $KCOU2019-10-17T08:54:00Z38.82-92.222.81.7200510.030.0885831019.3TRUETRUETRUEVFR-0.5METAR271.02019-10-17 09:04:03on)E5   3KCRW 170854Z 27007G15KT 10SM BKN026 BKN032 OVC041 08/03 A2990 RMK AO2 SLP127 T00780033 52001KCRW2019-10-17T08:54:00Z38.38-81.587.83.327071510.029.8996071012.7TRUEMVFR0.1SPECI309.02019-10-17 09:04:03 11gu)-5    3KAPC 170854Z AUTO 26011KT 10SM BKN009 14/13 A2988 RMK AO2 SLP109 T01440128 58001KAPC2019-10-17T08:54:00Z38.2-122.2814.412.82601110.029.8789371010.9TRUETRUEIFR-0.1SPECI13.02019-10-17 09:04:03kt)35   3KAPN 170854Z AUTO 31010G17KT 10SM OVC027 06/02 A2982 RMK AO2 SLP102 T00560017 53008KAPN2019-10-17T08:54:00Z45.07-83.575.61.7310101710.029.8198811010.2TRUETRUEMVFR0.8SPECI210.02019-10-17 09:04:03ds)-5    3KAUW 170854Z AUTO 29005KT 10SM OVC035 06/03 A2998 RMK AO2 SLP163 T00560028 55003KAUW2019-10-17T08:54:00Z44.93-89.625.62.8290510.029.979331016.3TRUETRUEVFR-0.3SPECI362.02019-10-17 09:04:03r)W5   3KAVL 170854Z AUTO 35012G20KT 10SM CLR 06/M01 A2989 RMK AO2 PK WND 36028/0807 SLP113 T00561006 50000 $KAVL2019-10-17T08:54:00Z35.43-82.535.6-0.6350122010.029.8907471011.3TRUETRUETRUEVFR0.0METAR670.02019-10-17 09:04:03 J/EbJy)y5     3KDSV 170854Z AUTO 30008G15KT 8SM -RA FEW020 BKN031 OVC039 08/06 A2941 RMK AO2 RAB22 SLP967 P0001 60001 T00830056 55007KDSV2019-10-17T08:54:00Z42.57-77.728.35.63008158.029.409449996.7TRUETRUE-RAVFR-0.70.01SPECI198.02019-10-17 09:04:03]x)%5    3KALO 170854Z AUTO 00000KT 7SM CLR 02/01 A3004 RMK AO2 SLP177 T00220006 58011KALO2019-10-17T08:54:00Z42.55-92.42.20.6007.030.0413381017.7TRUETRUEVFR-1.1SPECI264.02019-10-17 09:04:03dw)-5    3KCAR 170854Z AUTO 07008KT 10SM BKN120 08/02 A2965 RMK AO2 SLP045 T00780017 56045KCAR2019-10-17T08:54:00Z46.87-68.027.81.770810.029.6486231004.5TRUETRUEVFR-4.5SPECI191.02019-10-17 09:04:03Kv)5   3KCCU 170854Z AUTO 22009G15KT 10SM CLR 06/M22 A3040 RMK AO2KCCU2019-10-17T08:54:00Z39.48-106.156.0-22.022091510.030.398623TRUETRUEVFRSPECI3680.02019-10-17 09:04:03 (B })5     3KFIG 170854Z AUTO 28016G28KT 9SM -RA BKN021 OVC028 06/03 A2951 RMK AO2 PK WND 29028/0843 RAB45 SLP997 P0000 60000 T00610028 57008KFIG2019-10-17T08:54:00Z41.05-78.426.12.828016289.029.509842999.7TRUETRUE-RAMVFR-0.80.005SPECI462.02019-10-17 09:04:03`|)'5    3KEWN 170854Z AUTO 29006KT 10SM CLR 10/05 A2981 RMK AO2 SLP094 T01000050 53009KEWN2019-10-17T08:54:00Z35.07-77.0510.05.0290610.029.8110241009.4TRUETRUEVFR0.9METAR3.02019-10-17 09:04:03a{)'5    3KEVV 170854Z AUTO 31003KT 10SM CLR 05/02 A3007 RMK AO2 SLP185 T00500022 51001KEVV2019-10-17T08:54:00Z38.05-87.525.02.2310310.030.0708661018.5TRUETRUEVFR0.1SPECI117.02019-10-17 09:04:03kz)15    3KEUG 170854Z AUTO 16004KT 10SM FEW025 08/07 A2983 RMK AO2 SLP103 T00830072 53006 $KEUG2019-10-17T08:54:00Z44.13-123.228.37.2160410.029.8287411010.3TRUETRUETRUEVFR0.6SPECI114.02019-10-17 09:04:03 L,*LX)5    3KGSO 170854Z 29010KT 10SM CLR 07/01 A2981 RMK AO2 SLP090 T00720011 53003KGSO2019-10-17T08:54:00Z36.1-79.957.21.12901010.029.8110241009.0TRUEVFR0.3METAR275.02019-10-17 09:04:03|)[5     3KBWI 170854Z 24008KT 10SM SCT049 BKN065 11/05 A2953 RMK AO2 RAB32E46 SLP000 P0000 60000 T01110050 53000KBWI2019-10-17T08:54:00Z39.17-76.6811.15.0240810.029.5305121000.0TRUEVFR0.00.005SPECI59.02019-10-17 09:04:03e))5    3KGCN 170854Z AUTO 00000KT 10SM CLR 03/M11 A3013 RMK AO2 SLP132 T00281111 56008KGCN2019-10-17T08:54:00Z35.95-112.152.8-11.10010.030.1299211013.2TRUETRUEVFR-0.8SPECI2016.02019-10-17 09:04:03c~)'5    3KGCK 170854Z AUTO 19006KT 10SM CLR 04/00 A2993 RMK AO2 SLP119 T00440000 58015KGCK2019-10-17T08:54:00Z37.92-100.724.40.0190610.029.9291341011.9TRUETRUEVFR-1.5METAR877.02019-10-17 09:04:03 d/DdZ)5    3KRIC 170854Z 25010KT 10SM CLR 10/03 A2966 RMK AO2 SLP048 T01000033 58002KRIC2019-10-17T08:54:00Z37.52-77.3210.03.32501010.029.6604331004.8TRUEVFR-0.2METAR50.02019-10-17 09:04:03e))5    3KRKS 170854Z AUTO 17006KT 10SM CLR 08/M13 A3002 RMK AO2 SLP102 T00781133 56016KRKS2019-10-17T08:54:00Z41.6-109.077.8-13.3170610.030.020671010.2TRUETRUEVFR-1.6METAR2060.02019-10-17 09:04:03[)'5    3KIND 170854Z 32008KT 10SM FEW050 04/02 A3000 RMK AO2 SLP161 T00440017 58000 $KIND2019-10-17T08:54:00Z39.72-86.34.41.7320810.030.01016.1TRUETRUEVFR0.0SPECI241.02019-10-17 09:04:03j)95    3KILN 170854Z AUTO 31009KT 10SM SCT049 07/02 A2993 RMK AO2 SLP147 60000 T00670022 58003KILN2019-10-17T08:54:00Z39.43-83.86.72.2310910.029.9291341014.7TRUETRUEVFR-0.3SPECI322.02019-10-17 09:04:03 Y2NYo )35   3KSLC 170854Z COR 16014G20KT 10SM SCT200 17/M07 A2984 RMK AO2 SLP056 T01721072 56018KSLC2019-10-17T08:54:00Z40.77-111.9717.2-7.2160142010.029.8405511005.6TRUETRUEVFR-1.8SPECI1286.02019-10-17 09:04:03^)%5    3KSUS 170854Z AUTO 00000KT 8SM CLR 03/02 A3009 RMK AO2 SLP192 T00280022 58002KSUS2019-10-17T08:54:00Z38.65-90.652.82.2008.030.0885831019.2TRUETRUEVFR-0.2METAR141.02019-10-17 09:04:03a)'5    3KUIN 170854Z AUTO 21003KT 10SM CLR 03/01 A3008 RMK AO2 SLP187 T00280011 58004KUIN2019-10-17T08:54:00Z39.95-91.22.81.1210310.030.0797251018.7TRUETRUEVFR-0.4SPECI234.02019-10-17 09:04:03a)'5    3KINT 170854Z AUTO 27006KT 10SM CLR 08/01 A2984 RMK AO2 SLP100 T00830011 53001KINT2019-10-17T08:54:00Z36.13-80.228.31.1270610.029.8405511010.0TRUETRUEVFR0.1METAR291.02019-10-17 09:04:03 m7Kcmp )75   3KVAY 170854Z AUTO 26010G18KT 10SM OVC055 12/04 A2939 RMK AO2 SLP952 T01170044 56006 $KVAY2019-10-17T08:54:00Z39.93-74.8311.74.4260101810.029.388779995.2TRUETRUETRUEVFR-0.6SPECI15.02019-10-17 09:04:03b ))5    3KRST 170854Z AUTO 21005KT 10SM CLR 01/M01 A3003 RMK AO2 SLP179 T00061006 58010KRST2019-10-17T08:54:00Z43.9-92.50.6-0.6210510.030.0295281017.9TRUETRUEVFR-1.0SPECI403.02019-10-17 09:04:03f )-5   3KSBY 170854Z AUTO 26013G21KT 10SM CLR 11/04 A2957 RMK AO2 SLP016 T01110039 53005KSBY2019-10-17T08:54:00Z38.33-75.511.13.9260132110.029.5688971001.6TRUETRUEVFR0.5SPECI19.02019-10-17 09:04:03C )5     3KSET 170854Z AUTO A3009 RMK AO2 SLPNO 50000 PWINO FZRANO $KSET2019-10-17T08:54:00Z38.93-90.4330.088583TRUETRUETRUETRUETRUE0.0METAR134.02019-10-17 09:04:03 S&>Se))5    3KCOS 170854Z 02009KT 10SM BKN250 06/M08 A3006 RMK AO2 SLP124 T00611083 56016 $KCOS2019-10-17T08:54:00Z38.82-104.686.1-8.320910.030.0590551012.4TRUETRUEVFR-1.6METAR1856.02019-10-17 09:04:03b)'5    3KWLD 170854Z AUTO 16004KT 10SM CLR 07/04 A3006 RMK AO2 SLP177 T00720044 58002KWLD2019-10-17T08:54:00Z37.17-97.037.24.4160410.030.0590551017.7TRUETRUEVFR-0.2METAR350.02019-10-17 09:04:03m)15   3KVTA 170854Z AUTO 29011G16KT 10SM CLR 07/03 A2986 RMK AO2 SLP113 T00670028 50005 $KVTA2019-10-17T08:54:00Z40.02-82.476.72.8290111610.029.8612211011.3TRUETRUETRUEVFR0.5SPECI268.02019-10-17 09:04:03a)'5    3KUZA 170854Z AUTO 34004KT 10SM CLR 06/03 A2987 RMK AO2 SLP110 T00560033 50002KUZA2019-10-17T08:54:00Z34.98-81.055.63.3340410.029.8700791011.0TRUETRUEVFR0.2METAR202.02019-10-17 09:04:03 $$E({5    3K04V 170854Z AUTO 33011KT 10SM CLR 02/M15 A3023 RMK AO2K04V2019-10-17T08:54:00Z38.1-106.172.0-15.03301110.030.230314TRUETRUEVFRSPECI2385.02019-10-17 09:04:03)W5      3KHWD 170854Z AUTO 00000KT 7SM -RA OVC013 15/13 A2990 RMK AO2 RAB48 SLP132 P0000 60000 T01500128 57001KHWD2019-10-17T08:54:00Z37.67-122.1215.012.8007.029.8996071013.2TRUETRUE-RAMVFR-0.10.0050.005METAR21.02019-10-17 09:04:03)w5     3KORH 170854Z AUTO 27017G25KT 10SM -RA BKN007 OVC034 11/11 A2883 RMK AO2 WSHFT 0759 SLP761 P0008 60078 T01110106 55025KORH2019-10-17T08:54:00Z42.27-71.8711.110.6270172510.028.83071976.1TRUETRUE-RAIFR-2.50.08SPECI304.02019-10-17 09:04:03d)'5    3KOLS 170854Z AUTO 05005KT 10SM CLR 16/07 A2997 RMK AO2 SLP083 T01610067 56005KOLS2019-10-17T08:54:00Z31.42-110.8516.16.750510.029.9704721008.3TRUETRUEVFR-0.5SPECI1184.02019-10-17 09:04:03 C$>)C`)'5    3KPIA 170854Z 00000KT 10SM SCT110 04/01 A3006 RMK AO2 SLP181 T00390011 58006 $KPIA2019-10-17T08:54:00Z40.67-89.683.91.10010.030.0590551018.1TRUETRUEVFR-0.6SPECI205.02019-10-17 09:04:03)s5      3KIPT 170854Z AUTO 27012KT 10SM -RA FEW032 OVC045 09/04 A2940 RMK AO2 RAB11E31B50 SLP957 P0000 60000 T00890039 58014KIPT2019-10-17T08:54:00Z41.25-76.928.93.92701210.029.40059995.7TRUETRUE-RAVFR-1.40.005SPECI164.02019-10-17 09:04:03`)-5    3KISW 170854Z AUTO 28004KT 10SM OVC032 06/03 A3000 RMK AO2 SLP167 T00610028 58006KISW2019-10-17T08:54:00Z44.37-89.836.12.8280410.030.01016.7TRUETRUEVFR-0.6SPECI307.02019-10-17 09:04:03V)5    3KJAN 170854Z AUTO 10SM CLR 10/06 A3005 RMK AO2 SLP173 T01000061 55010KJAN2019-10-17T08:54:00Z32.32-90.0810.06.110.030.0501981017.3TRUETRUEVFR-1.0METAR91.02019-10-17 09:04:03 4oW)5    3PGUM 170854Z 08004KT 10SM CLR 27/24 A2988 RMK AO2 SLP110 T02720239 53015PGUM2019-10-17T08:54:00Z13.48144.827.223.980410.029.8789371011.0TRUEVFR1.5METAR91.02019-10-17 09:04:03C({5    3K2V6 170854Z AUTO 26008KT 10SM CLR 07/M06 A2991 RMK AO2K2V62019-10-17T08:54:00Z40.1-102.727.0-6.0260810.029.911417TRUETRUEVFRSPECI1261.02019-10-17 09:04:03?(y5    3KOWA 170854Z AUTO 14003KT 10SM CLR 01/00 A3002 RMK AO2KOWA2019-10-17T08:54:00Z44.12-93.251.00.0140310.030.02067TRUETRUEVFRMETAR350.02019-10-17 09:04:03F({5    3KMYP 170854Z AUTO 25019KT 10SM CLR 03/M17 A3050 RMK AO2KMYP2019-10-17T08:54:00Z38.48-106.323.0-17.02501910.030.499016TRUETRUEVFRSPECI3667.02019-10-17 09:04:03 K"?TK!)]5      3MMMX 170854Z 34004KT 4SM -RA FEW008 BKN015 OVC080 14/13 A3024 NOSIG RMK SLP074 57007 958 60105 8/57/ HZYMMMX2019-10-17T08:54:00Z19.42-99.0814.013.034044.030.2391741007.4TRUE-RAMVFR-0.71.05METAR2238.02019-10-17 09:04:03e )/5   3KGED 170854Z AUTO 25010G17KT 10SM CLR 12/05 A2954 RMK AO2 SLPNO T01170050 53006 $KGED2019-10-17T08:54:00Z38.68-75.3711.75.0250101710.029.53937TRUETRUETRUEVFR0.6SPECI19.02019-10-17 09:04:03])!5    3KNKT 170854Z 29010KT 10SM CLR 12/04 A2981 RMK AO2 SLP090 T01170039 53008 $KNKT2019-10-17T08:54:00Z34.9-76.8811.73.92901010.029.8110241009.0TRUETRUEVFR0.8METAR9.02019-10-17 09:04:03X)5     3K1V4 170854Z AUTO 09/08 A2909 RMK AO1 SLP847 P0010 60018 T00940078 58086K1V42019-10-17T08:54:00Z44.42-72.029.47.829.090551984.7TRUETRUE-8.60.10.18METAR210.02019-10-17 09:04:03 . %)i5      3KFZY 170854Z AUTO 31007KT 10SM -RA BKN018 BKN025 OVC033 09/07 A2932 RMK AO2 SLP930 P0001 60001 T00940067 56010KFZY2019-10-17T08:54:00Z43.35-76.389.46.7310710.029.320866993.0TRUETRUE-RAMVFR-1.00.01SPECI138.02019-10-17 09:04:03B$(5    3KFOZ 170854Z AUTO 00000KT 10SM OVC029 02/02 A3004 RMK AO2KFOZ2019-10-17T08:54:00Z47.77-93.652.02.00010.030.041338TRUETRUEMVFRSPECI411.02019-10-17 09:04:03#) 5     3KLWM 170854Z AUTO 10012G23KT 7SM -RA OVC007 16/14 A2881 RMK AO2 PK WND 10030/0800 CIG 006V010 SLP756 P0000 60142 T01610144 56113KLWM2019-10-17T08:54:00Z42.72-71.1316.114.410012237.028.81004975.6TRUETRUE-RAIFR0.00.005SPECI54.02019-10-17 09:04:03a")'5    3KLAF 170854Z AUTO 24003KT 10SM CLR 02/02 A3001 RMK AO2 SLP165 T00220017 50000KLAF2019-10-17T08:54:00Z40.42-86.932.21.7240310.030.0088581016.5TRUETRUEVFR0.0SPECI182.02019-10-17 09:04:03 10I1))y5      3KMVL 170854Z AUTO 36008KT 6SM RA BR SCT011 SCT035 OVC055 08/07 A2917 RMK AO2 PRESFR SLP880 P0037 60062 T00830072 56064KMVL2019-10-17T08:54:00Z44.53-72.628.37.236086.029.170275988.0TRUETRUERA BRVFR-6.40.37SPECI234.02019-10-17 09:04:03a()'5    3KECG 170854Z AUTO 25010KT 10SM CLR 09/04 A2972 RMK AO2 SLP065 T00940039 53008KECG2019-10-17T08:54:00Z36.27-76.189.43.92501010.029.7194881006.5TRUETRUEVFR0.8METAR11.02019-10-17 09:04:03b')'5    3KFFZ 170854Z AUTO 00000KT 10SM CLR 23/03 A2978 RMK AO2 SLP061 T02280033 55006KFFZ2019-10-17T08:54:00Z33.47-111.7222.83.30010.029.7785431006.1TRUETRUEVFR-0.6SPECI424.02019-10-17 09:04:03b&)15    3KFWA 170854Z 28007KT 10SM FEW050 BKN200 06/03 A2995 RMK AO2 SLP146 T00560033 53005KFWA2019-10-17T08:54:00Z40.98-85.185.63.3280710.029.9498021014.6TRUEVFR0.5SPECI248.02019-10-17 09:04:03 ?6?q-)75   3KDYL 170854Z AUTO 27010G17KT 10SM BKN038 11/04 A2936 RMK AO2 SLP943 T01060044 56008 $KDYL2019-10-17T08:54:00Z40.33-75.1210.64.4270101710.029.359253994.3TRUETRUETRUEVFR-0.8METAR117.02019-10-17 09:04:03a,)'5    3KTQE 170854Z AUTO 18004KT 10SM CLR 02/01 A2998 RMK AO2 SLP152 T00170006 56013KTQE2019-10-17T08:54:00Z41.77-96.181.70.6180410.029.979331015.2TRUETRUEVFR-1.3SPECI312.02019-10-17 09:04:03q+)K5    3KROC 170854Z 28011KT 10SM SCT010 BKN021 BKN047 08/07 A2939 RMK A02 SLP954 60002 T00830067 55013KROC2019-10-17T08:54:00Z43.12-77.688.36.72801110.029.388779995.4TRUEMVFR-1.3SPECI178.02019-10-17 09:04:03f*)-5    3KIMT 170854Z AUTO 31004KT 10SM BKN014 03/01 A2995 RMK AO2 SLP153 T00280011 55001KIMT2019-10-17T08:54:00Z45.82-88.122.81.1310410.029.9498021015.3TRUETRUEMVFR-0.1METAR349.02019-10-17 09:04:03 47%4^1)-5    3KMEM 170854Z 08007KT 050V120 10SM CLR 09/05 A3009 RMK AO2 SLP187 T00940050 51003KMEM2019-10-17T08:54:00Z35.07-89.989.45.080710.030.0885831018.7TRUEVFR0.3METAR86.02019-10-17 09:04:030)Y5       3PAKN 170854Z 30003KT 7SM -RA OVC025 03/02 A2898 RMK AO2 SLP814 P0004 60004 T00280017 400830000 53013 $PAKN2019-10-17T08:54:00Z58.68-156.652.81.730037.028.981298981.4TRUETRUE-RAMVFR1.38.30.040.04METAR17.02019-10-17 09:04:03 /)c5     3KNAK 170854Z AUTO 27009G17KT 10SM -RA OVC055 12/04 A2955 RMK AO2 RAB43 SLP008 P0000 60000 T01220044 53002 $KNAK2019-10-17T08:54:00Z38.98-76.4812.24.427091710.029.5511821000.8TRUETRUETRUE-RAVFR0.20.005SPECI2.02019-10-17 09:04:03C.)5    3KDMH 170854Z AUTO 12/04 A2953 RMK AO1 SLP999 T01220039 53001KDMH2019-10-17T08:54:00Z39.28-76.6212.23.929.530512999.9TRUETRUE0.1SPECI5.02019-10-17 09:04:03 v-NvR5)5    3KLEX 170854Z 25003KT 10SM CLR 05/01 A3000 RMK AO2 SLP160 T00500011 55000KLEX2019-10-17T08:54:00Z38.03-84.65.01.1250310.030.01016.0TRUEVFR0.0METAR300.02019-10-17 09:04:03Y4)5    3KLNK 170854Z 16007KT 10SM CLR 05/01 A2997 RMK AO2 SLP152 T00500011 56015KLNK2019-10-17T08:54:00Z40.85-96.775.01.1160710.029.9704721015.2TRUEVFR-1.5SPECI364.02019-10-17 09:04:03e3))5    3KLWT 170854Z AUTO 12003KT 10SM CLR 09/M03 A2967 RMK AO2 SLP022 T00891033 56018KLWT2019-10-17T08:54:00Z47.03-109.478.9-3.3120310.029.669291002.2TRUETRUEVFR-1.8METAR1270.02019-10-17 09:04:03b2)-5    3KLYH 170854Z AUTO VRB03KT 10SM OVC047 11/01 A2973 RMK AO2 SLP064 T01060011 53003KLYH2019-10-17T08:54:00Z37.32-79.210.61.10310.029.7312981006.4TRUETRUEVFR0.3METAR295.02019-10-17 09:04:03 % C%9)5      3KVSF 170854Z AUTO 35007G17KT 300V030 3SM RA FEW014 BKN029 OVC036 10/ A2891 RMK AO2 PRESFR SLP789 P0003 6//// T0100 58096 $KVSF2019-10-17T08:54:00Z43.35-72.5210.03507173.028.910433978.9TRUETRUETRUERAMVFR-9.60.03SPECI175.02019-10-17 09:04:03D8({5    3KVTP 170854Z AUTO 25010KT 10SM CLR 05/M13 A3031 RMK AO2KVTP2019-10-17T08:54:00Z37.5-105.175.0-13.02501010.030.31004TRUETRUEVFRSPECI3114.02019-10-17 09:04:03f7)-5   3KWAL 170854Z AUTO 27009G21KT 10SM CLR 12/05 A2959 RMK AO2 SLP018 T01170050 51007KWAL2019-10-17T08:54:00Z37.93-75.4711.75.027092110.029.5895671001.8TRUETRUEVFR0.7METAR14.02019-10-17 09:04:036)c5   3KJST 170854Z AUTO 28019G30KT 10SM OVC009 04/02 A2958 RMK AO2 PK WND 29038/0810 SLP026 60002 T00440022 51002KJST2019-10-17T08:54:00Z40.32-78.834.42.2280193010.029.580711002.6TRUETRUEIFR0.2SPECI694.02019-10-17 09:04:03 --j=);5    3KSBN 170854Z AUTO 29006KT 10SM SCT032 BKN041 08/04 A2996 RMK AO2 SLP147 T00780039 50001KSBN2019-10-17T08:54:00Z41.7-86.327.83.9290610.029.9586621014.7TRUETRUEVFR0.1SPECI237.02019-10-17 09:04:03d<))5    3KSJN 170854Z AUTO 00000KT 10SM CLR 05/M07 A3010 RMK AO2 SLP126 T00501067 57004KSJN2019-10-17T08:54:00Z34.52-109.385.0-6.70010.030.1003931012.6TRUETRUEVFR-0.4SPECI1745.02019-10-17 09:04:03;)a5      3KSYR 170854Z 28006KT 10SM -RA BKN010 OVC043 08/07 A2932 RMK AO2 RAB12 SLP926 P0000 60000 T00830067 56021 $KSYR2019-10-17T08:54:00Z43.12-76.18.36.7280610.029.320866992.6TRUETRUE-RAMVFR-2.10.005SPECI127.02019-10-17 09:04:03g:))5    3KTAD 170854Z AUTO 26011KT 10SM CLR 08/M07 A3005 RMK AO2 SLP110 T00781067 58007KTAD2019-10-17T08:54:00Z37.27-104.337.8-6.72601110.030.0501981011.0TRUETRUEVFR-0.7SPECI1756.02019-10-17 09:04:03 S .:SaA)-5    3KMFI 170854Z AUTO 30006KT 10SM OVC028 06/03 A3000 RMK AO2 SLP165 T00560033 58001KMFI2019-10-17T08:54:00Z44.63-90.185.63.3300610.030.01016.5TRUETRUEMVFR-0.1SPECI389.02019-10-17 09:04:03n@)?5   3KMGJ 170854Z AUTO 28011G22KT 10SM BKN038 09/04 A2923 RMK AO2 SLP898 60001 T00890039 53000KMGJ2019-10-17T08:54:00Z41.52-74.278.93.9280112210.029.22933989.8TRUETRUEVFR0.0SPECI108.02019-10-17 09:04:03X?)#5    3KRFD 170854Z 00000KT 10SM BKN120 05/03 A3004 RMK AO2 SLP177 T00500028 56007KRFD2019-10-17T08:54:00Z42.2-89.15.02.80010.030.0413381017.7TRUEVFR-0.7SPECI221.02019-10-17 09:04:03n>)55    3KROA 170854Z 33012G19KT 10SM OVC045 10/01 A2979 RMK AO2 SLP084 60000 T01000011 58003KROA2019-10-17T08:54:00Z37.32-79.9710.01.1330121910.029.7903541008.4TRUEVFR-0.30.005METAR362.02019-10-17 09:04:03 W9JWmE);5    3KMRY 170854Z AUTO 15004KT 10SM BKN037 OVC044 17/09 A2991 RMK AO2 SLP139 T01670094 58006KMRY2019-10-17T08:54:00Z36.58-121.8516.79.4150410.029.9114171013.9TRUETRUEVFR-0.6SPECI66.02019-10-17 09:04:03iD)35   3KMIV 170854Z AUTO 25011G19KT 10SM SCT060 11/05 A2947 RMK AO2 SLP977 T01060050 53001KMIV2019-10-17T08:54:00Z39.37-75.0810.65.0250111910.029.471457997.7TRUETRUEVFR0.1SPECI23.02019-10-17 09:04:03VC)5    3KMKC 170854Z 00000KT 10SM CLR 07/04 A3006 RMK AO2 SLP178 T00720039 58005KMKC2019-10-17T08:54:00Z39.12-94.67.23.90010.030.0590551017.8TRUEVFR-0.5METAR227.02019-10-17 09:04:03eB))5    3KMOT 170854Z AUTO 12004KT 10SM CLR 01/M01 A2977 RMK AO2 SLP094 T00111006 55003KMOT2019-10-17T08:54:00Z48.25-101.271.1-0.6120410.029.7696861009.4TRUETRUEVFR-0.3SPECI519.02019-10-17 09:04:03 8,8nI);5   3KPHL 170854Z 26017G25KT 10SM BKN055 BKN080 11/04 A2943 RMK AO2 SLP964 T01110039 56009 $KPHL2019-10-17T08:54:00Z39.87-75.2311.13.9260172510.029.430119996.4TRUETRUEVFR-0.9SPECI18.02019-10-17 09:04:03cH)-5    3KPLN 170854Z AUTO 32007KT 10SM FEW027 04/01 A2988 RMK AO2 SLP124 T00390006 51003KPLN2019-10-17T08:54:00Z45.57-84.83.90.6320710.029.8789371012.4TRUETRUEVFR0.3SPECI217.02019-10-17 09:04:03vG)E5   3KPNE 170854Z AUTO 25015G21KT 10SM BKN043 OVC055 12/04 A2940 RMK AO2 SLP955 T01220044 56007 $KPNE2019-10-17T08:54:00Z40.08-75.0212.24.4250152110.029.40059995.5TRUETRUETRUEVFR-0.7SPECI28.02019-10-17 09:04:03iF)95   3PHOG 170854Z 09010G16KT 10SM CLR 27/18 A3003 RMK AO2 WSHFT 0830 SLP175 T02670183 51010PHOG2019-10-17T08:54:00Z20.9-156.4326.718.390101610.030.0295281017.5TRUEVFR1.0METAR12.02019-10-17 09:04:03 `L)'5    3KOFP 170854Z AUTO 26007KT 10SM CLR 09/02 A2966 RMK AO2 SLP044 T00890022 58001KOFP2019-10-17T08:54:00Z37.7-77.438.92.2260710.029.6604331004.4TRUETRUEVFR-0.1METAR62.02019-10-17 09:04:03xK)M5     3KOLM 170854Z 19005KT 10SM FEW032 09/09 A2971 RMK AO2 RAB10E20 SLP060 P0000 60000 T00940089 51003KOLM2019-10-17T08:54:00Z46.97-122.99.48.9190510.029.710631006.0TRUEVFR0.30.0050.005METAR58.02019-10-17 09:04:03J)Q5     3KPHF 170854Z AUTO 26010KT 10SM CLR 10/03 A2967 RMK AO2 RAB10E20 SLP046 P0000 60000 T01000028 50000KPHF2019-10-17T08:54:00Z37.13-76.510.02.82601010.029.669291004.6TRUETRUEVFR0.00.0050.005METAR12.02019-10-17 09:04:03 lO)=5    3KPTW 170854Z AUTO 28007KT 230V300 10SM OVC045 10/04 A2942 RMK AO2 SLP959 T01000039 56010KPTW2019-10-17T08:54:00Z40.23-75.5510.03.9280710.029.421259995.9TRUETRUEVFR-1.0SPECI92.02019-10-17 09:04:03tN)G5    3KRBL 170854Z AUTO 29005KT 10SM SCT060 OVC080 14/10 A2984 RMK AO2 SLP102 60001 T01390100 53010KRBL2019-10-17T08:54:00Z40.15-122.2513.910.0290510.029.8405511010.2TRUETRUEVFR1.0SPECI104.02019-10-17 09:04:03M)5     3KPSF 170854Z AUTO 29020G30KT 2SM +RA BR OVC031 07/05 A2904 RMK AO2 PK WND 30030/0846 SLP825 P0077 60130 T00670050 58018 $KPSF2019-10-17T08:54:00Z42.43-73.286.75.029020302.029.040354982.5TRUETRUETRUE+RA BRIFR-1.80.77SPECI355.02019-10-17 09:04:03 ^R)'5    3KBKB 170854Z AUTO 00000KT 10SM CLR 10/09 A3002 RMK AO2 SLP194 T01000089 56009KBKB2019-10-17T08:54:00Z31.0-92.9210.08.90010.030.020671019.4TRUETRUEVFR-0.9METAR94.02019-10-17 09:04:03Q)c5    3KRDG 170854Z AUTO 27010KT 10SM BKN040 OVC048 11/06 A2940 RMK AO2 PK WND 29028/0810 SLP961 T01110056 56009 $KRDG2019-10-17T08:54:00Z40.37-75.9711.15.62701010.029.40059996.1TRUETRUETRUEVFR-0.9SPECI109.02019-10-17 09:04:03|P)K5      3PAHN 170854Z AUTO 30009KT 10SM OVC038 04/03 A2913 RMK AO2 SLP868 T00440028 400560017 58005 TSNOPAHN2019-10-17T08:54:00Z59.25-135.524.42.8300910.029.128937986.8TRUETRUETRUEVFR-0.55.61.7METAR5.02019-10-17 09:04:03 ++^U)'5    3KAKH 170854Z AUTO 00000KT 10SM CLR 09/01 A2986 RMK AO2 SLP109 T00940011 50002KAKH2019-10-17T08:54:00Z35.2-81.159.41.10010.029.8612211010.9TRUETRUEVFR0.2METAR243.02019-10-17 09:04:03_T)'5    3KAKQ 170854Z AUTO 25006KT 10SM CLR 08/03 A2969 RMK AO2 SLP055 T00830033 58001KAKQ2019-10-17T08:54:00Z36.98-77.08.33.3250610.029.689961005.5TRUETRUEVFR-0.1METAR34.02019-10-17 09:04:03S)c5     3KAKR 170854Z AUTO 28011KT 10SM BKN027 OVC034 08/05 A2974 RMK AO2 RAE0756 SLP072 P0000 60000 T00780050 52003KAKR2019-10-17T08:54:00Z41.03-81.477.85.02801110.029.7401581007.2TRUETRUEMVFR0.30.005SPECI363.02019-10-17 09:04:03  X)a5      3PAKV 170853Z AUTO 03011KT 10SM FEW028 M03/M10 A2926 RMK SLP913 T10331100 410171139 50003 TSNO VIA AUTODIALPAKV2019-10-17T08:53:00Z64.33-158.75-3.3-10.0301110.029.258858991.3TRUETRUEVFR0.3-1.7-13.9METAR61.02019-10-17 09:04:03%W)5       3PAKW 170853Z AUTO 04007KT 10SM -RA OVC046 08/06 A2894 RMK RAE03B38 SLP800 P0001 60004 T00830061 401170083 58007 TSNO VIA AUTODIALPAKW2019-10-17T08:53:00Z55.58-133.078.36.140710.028.93996980.0TRUETRUE-RAVFR-0.711.78.30.010.04METAR15.02019-10-17 09:04:03V)5      3PAGY 170853Z AUTO 00000KT 10SM OVC048 06/05 A2915 RMK RAB27E50 SLP870 P0000 60001 T00560050 401000056 51001 TSNO VIA AUTODIALPAGY2019-10-17T08:53:00Z59.47-135.35.65.00010.029.149607987.0TRUETRUEVFR0.110.05.60.0050.01METAR5.02019-10-17 09:04:03 ee#[)5        3PASN 170853Z AUTO 29026G37KT 6SM -RA BKN017 OVC026 A2912 RMK PK WND 30044/0822 SNB27E33 SLP863 P0002 60012 53020 TSNO $ VIA AUTODIALPASN2019-10-17T08:53:00Z57.15-170.2229026376.029.120079986.3TRUETRUETRUE-RAMVFR2.00.020.12METAR29.02019-10-17 09:04:03"Z) 5      3PATK 170853Z AUTO 01006KT 10SM OVC055 04/M04 A2905 RMK RAB13E53 SLP841 P0000 60000 T00391044 400611006 56002 TSNO VIA AUTODIALPATK2019-10-17T08:53:00Z62.3-150.13.9-4.410610.029.049213984.1TRUETRUEVFR-0.26.1-0.60.0050.005METAR109.02019-10-17 09:04:03DY)E5      3PAKT 170853Z AUTO 14012G28KT 10SM -RA FEW033 OVC045 09/06 A2900 RMK PK WND 11032/0834 RAB0757 SLP821 P0002 60006 T00890061 401220083 58019 TSNO VIA AUTODIALPAKT2019-10-17T08:53:00Z55.35-131.78.96.1140122810.028.999016982.1TRUETRUE-RAVFR-1.912.28.30.020.06METAR28.02019-10-17 09:04:03 Q^)5    3KBKL 170853Z 32028G36KT 10SM OVC045 A2973 RMK AO2 RAE50 SLPNO 6//// PNO $KBKL2019-10-17T08:53:00Z41.53-81.67320283610.029.731298TRUETRUEVFRMETAR184.02019-10-17 09:04:03])Q5     3KBKV 170853Z AUTO 34004KT 10SM CLR 22/19 A2990 RMK AO2 RAB03E13 SLP121 P0000 60000 T02220194 58006KBKV2019-10-17T08:53:00Z28.47-82.4522.219.4340410.029.8996071012.1TRUETRUEVFR-0.60.0050.005METAR20.02019-10-17 09:04:03$\)5       3PAWI 170853Z AUTO 06013KT 2 1/2SM -SN OVC023 00/M03 A2948 RMK SLP984 P0000 60000 T00001028 400061011 58001 TSNO VIA AUTODIALPAWI2019-10-17T08:53:00Z70.62-159.850.0-2.860132.529.480314998.4TRUETRUE-SNIFR-0.10.6-1.10.0050.005METAR27.02019-10-17 09:04:03 `-G`ab)'5    3KBLI 170853Z AUTO 17005KT 10SM CLR 11/07 A2965 RMK AO2 SLP047 T01060072 50008KBLI2019-10-17T08:53:00Z48.8-122.5310.67.2170510.029.6486231004.7TRUETRUEVFR0.8SPECI50.02019-10-17 09:04:03`a)%5    3KBIL 170853Z 20007KT 10SM BKN220 11/M01 A2970 RMK AO2 SLP038 T01061011 56022KBIL2019-10-17T08:53:00Z45.8-108.5510.6-1.1200710.029.6988181003.8TRUEVFR-2.2METAR1091.02019-10-17 09:04:03c`)-5    3KBIV 170853Z AUTO 35005KT 10SM OVC035 08/04 A2994 RMK AO2 SLP141 T00780039 51001KBIV2019-10-17T08:53:00Z42.75-86.17.83.9350510.029.9409451014.1TRUETRUEVFR0.1SPECI208.02019-10-17 09:04:03d_))5    3KBKE 170853Z AUTO VRB04KT 10SM CLR 11/M01 A2970 RMK AO2 SLP037 T01111011 53004KBKE2019-10-17T08:53:00Z44.85-117.8211.1-1.10410.029.6988181003.7TRUETRUEVFR0.4METAR1024.02019-10-17 09:04:03 x1gxif)35   3KGLR 170853Z AUTO 34009G17KT 10SM OVC022 04/00 A2985 RMK AO2 SLP119 T00390000 53005KGLR2019-10-17T08:53:00Z45.02-84.683.90.034091710.029.849411011.9TRUETRUEMVFR0.5METAR407.02019-10-17 09:04:03De({5    3KC07 170853Z AUTO 24005KT 10SM CLR 05/M15 A3030 RMK AO2KC072019-10-17T08:53:00Z40.35-106.75.0-15.0240510.030.301182TRUETRUEVFRSPECI3224.02019-10-17 09:04:03cd)+5     3KTMB 170853Z AUTO 00000KT 2SM BR CLR 24/24 A2990 RMK AO2 SLP125 T02440244 58001KTMB2019-10-17T08:53:00Z25.65-80.4324.424.4002.029.8996071012.5TRUETRUEBRIFR-0.1METAR2.02019-10-17 09:04:03`c)'5    3KBMG 170853Z AUTO 31003KT 10SM CLR 04/02 A3002 RMK AO2 SLP167 T00440017 51001KBMG2019-10-17T08:53:00Z39.15-86.624.41.7310310.030.020671016.7TRUETRUEVFR0.1SPECI257.02019-10-17 09:04:03 `i)'5    3KJLN 170853Z AUTO 15004KT 10SM CLR 06/04 A3010 RMK AO2 SLP193 T00560039 55000KJLN2019-10-17T08:53:00Z37.15-94.55.63.9150410.030.1003931019.3TRUETRUEVFR0.0METAR299.02019-10-17 09:04:03`h)-5    3KFLD 170853Z AUTO 28005KT 10SM BKN120 06/02 A3000 RMK AO2 SLP165 T00560022 55002KFLD2019-10-17T08:53:00Z43.77-88.485.62.2280510.030.01016.5TRUETRUEVFR-0.2METAR240.02019-10-17 09:04:03g)y5     3KGFL 170853Z AUTO 33014G23KT 6SM RA BR OVC049 09/07 A2909 RMK AO2 PK WND 34027/0840 SLP853 P0021 60064 T00890072 56043KGFL2019-10-17T08:53:00Z43.33-73.628.97.233014236.029.090551985.3TRUETRUERA BRVFR-4.30.210.64METAR103.02019-10-17 09:04:03 $$dm))5    3KCNY 170853Z AUTO 00000KT 10SM CLR 07/M15 A2998 RMK AO2 SLP118 T00671150 56015KCNY2019-10-17T08:53:00Z38.77-109.756.7-15.00010.029.979331011.8TRUETRUEVFR-1.5METAR1390.02019-10-17 09:04:03bl)'5    3KLXT 170853Z AUTO 18003KT 10SM CLR 06/03 A3006 RMK AO2 SLP181 T00560033 58005KLXT2019-10-17T08:53:00Z38.97-94.375.63.3180310.030.0590551018.1TRUETRUEVFR-0.5METAR306.02019-10-17 09:04:03dk))5    3KLND 170853Z AUTO VRB03KT 10SM CLR 08/M06 A2987 RMK AO2 SLP065 T00831061 56024KLND2019-10-17T08:53:00Z42.82-108.738.3-6.10310.029.8700791006.5TRUETRUEVFR-2.4METAR1694.02019-10-17 09:04:03j)}5      3KLKV 170853Z AUTO 21013KT 10SM -RA OVC041 05/03 A2985 RMK AO2 PK WND 22031/0820 RAB03 SLP093 P0000 60000 T00500028 53002KLKV2019-10-17T08:53:00Z42.17-120.45.02.82101310.029.849411009.3TRUETRUE-RAVFR0.20.0050.005METAR1441.02019-10-17 09:04:03 M19Mfq))5    3KDRA 170853Z AUTO 06004KT 10SM CLR 14/M02 A2984 RMK AO2 SLP061 T01441022 56015KDRA2019-10-17T08:53:00Z36.62-116.0314.4-2.260410.029.8405511006.1TRUETRUEVFR-1.5SPECI1006.02019-10-17 09:04:03rp)95     3KPIL 170853Z AUTO 32017KT 10SM OVC012 19/14 A2996 RMK AO2 SLP146 60000 T01940139 58002KPIL2019-10-17T08:53:00Z26.17-97.3319.413.93201710.029.9586621014.6TRUETRUEMVFR-0.20.005METAR5.02019-10-17 09:04:03co))5    3KOLF 170853Z AUTO 06007KT 10SM CLR 02/M01 A2970 RMK AO2 SLP060 T00221006 56016KOLF2019-10-17T08:53:00Z48.1-105.582.2-0.660710.029.6988181006.0TRUETRUEVFR-1.6METAR604.02019-10-17 09:04:03`n)'5    3KBRL 170853Z AUTO 00000KT 10SM CLR 01/00 A3007 RMK AO2 SLP185 T00110000 58007KBRL2019-10-17T08:53:00Z40.77-91.131.10.00010.030.0708661018.5TRUETRUEVFR-0.7METAR211.02019-10-17 09:04:03 x-DxFu)5    3KP92 170853Z AUTO 15/12 A2997 RMK AO1 SLP149 T01500122 58009KP922019-10-17T08:53:00Z29.57-91.5315.012.229.9704721014.9TRUETRUE-0.9METAR1.02019-10-17 09:04:03ct)15    3KNIP 170853Z 33010KT 10SM FEW020 BKN250 19/12 A2990 RMK AO2 SLP121 T01940122 53001KNIP2019-10-17T08:53:00Z30.22-81.6719.412.23301010.029.8996071012.1TRUEVFR0.1METAR7.02019-10-17 09:04:03hs))5    3KSDB 170853Z AUTO 30011KT 10SM CLR 16/M02 A2996 RMK AO2 SLP092 T01611017 56012KSDB2019-10-17T08:53:00Z34.75-118.7216.1-1.73001110.029.9586621009.2TRUETRUEVFR-1.2SPECI1377.02019-10-17 09:04:03_r)%5    3KPAH 170853Z AUTO 24003KT 7SM CLR 03/01 A3007 RMK AO2 SLP184 T00280011 58000KPAH2019-10-17T08:53:00Z37.07-88.772.81.124037.030.0708661018.4TRUETRUEVFR0.0METAR119.02019-10-17 09:04:03 , ,gy))5    3KAKO 170853Z AUTO 27011KT 10SM CLR 09/M07 A2994 RMK AO2 SLP095 T00941072 56012KAKO2019-10-17T08:53:00Z40.17-103.229.4-7.22701110.029.9409451009.5TRUETRUEVFR-1.2METAR1421.02019-10-17 09:04:03ex))5    3KAIA 170853Z AUTO 27004KT 10SM CLR 00/M03 A2987 RMK AO2 SLP098 T00001033 56011KAIA2019-10-17T08:53:00Z42.05-102.80.0-3.3270410.029.8700791009.8TRUETRUEVFR-1.1METAR1196.02019-10-17 09:04:03w)]5     3KACK 170853Z AUTO 23034G45KT OVC016 14/11 A2904 RMK AO2 PK WND 22045/0824 SLP833 60003 T01390111 53006 $KACK2019-10-17T08:53:00Z41.25-70.0713.911.1230344529.040354983.3TRUETRUETRUE0.60.03METAR16.02019-10-17 09:04:03pv)35     3KTCS 170853Z AUTO 28007KT 10SM CLR 11/M02 A3011 RMK AO2 SLP132 T01061017 58006 TSNOKTCS2019-10-17T08:53:00Z33.23-107.2710.6-1.7280710.030.1092531013.2TRUETRUETRUEVFR-0.6METAR1469.02019-10-17 09:04:03 `})%5    3KAPA 170853Z 13007KT 10SM SCT220 09/M07 A3001 RMK AO2 SLP107 T00941067 56012KAPA2019-10-17T08:53:00Z39.57-104.859.4-6.7130710.030.0088581010.7TRUEVFR-1.2METAR1775.02019-10-17 09:04:03g|))5    3KASE 170853Z AUTO 18005KT 10SM CLR 00/M12 A3019 RMK AO2 SLP139 T00001117 56008KASE2019-10-17T08:53:00Z39.23-106.870.0-11.7180510.030.1889761013.9TRUETRUEVFR-0.8METAR2354.02019-10-17 09:04:03#{)5    3KAOO 170853Z AUTO 30016G38KT 10SM BKN022 OVC075 07/02 A2955 RMK AO2 PK WND 29038/0844 RAB07E28 SLP011 P0000 60000 T00720022 58002KAOO2019-10-17T08:53:00Z40.3-78.327.22.2300163810.029.5511821001.1TRUETRUEMVFR-0.20.0050.005METAR455.02019-10-17 09:04:03dz)'5    3KAMA 170853Z AUTO 21006KT 10SM CLR 06/00 A3004 RMK AO2 SLP144 T00610000 58008KAMA2019-10-17T08:53:00Z35.22-101.726.10.0210610.030.0413381014.4TRUETRUEVFR-0.8METAR1093.02019-10-17 09:04:03 ])5    3KBOI 170853Z 14008KT 10SM CLR 18/M09 A2966 RMK AO2 SLP016 T01831094 56015KBOI2019-10-17T08:53:00Z43.57-116.2318.3-9.4140810.029.6604331001.6TRUEVFR-1.5SPECI875.02019-10-17 09:04:03g)+5    3KBPI 170853Z AUTO 10003KT 10SM CLR M03/M12 A3002 RMK AO2 SLP110 T10281117 56017KBPI2019-10-17T08:53:00Z42.58-110.1-2.8-11.7100310.030.020671011.0TRUETRUEVFR-1.7METAR2117.02019-10-17 09:04:03)~)5     3KAUG 170853Z AUTO 05017G27KT 7SM -RA OVC010 11/10 A2915 RMK AO2 PK WND 06030/0823 CIG 007V011 PRESFR SLP872 P0004 60031 T01060100 58094KAUG2019-10-17T08:53:00Z44.32-69.810.610.05017277.029.149607987.2TRUETRUE-RAMVFR-9.40.040.31METAR109.02019-10-17 09:04:03 \1D\b))5    3KBBW 170853Z AUTO 00000KT 10SM CLR 00/M01 A2987 RMK AO2 SLP119 T00001011 56018KBBW2019-10-17T08:53:00Z41.43-99.630.0-1.10010.029.8700791011.9TRUETRUEVFR-1.8METAR776.02019-10-17 09:04:03g)+5    3KBMQ 170853Z AUTO 00000KT 10SM CLR 11/04 A3009 RMK AO2 SLP181 T01060039 58014 $KBMQ2019-10-17T08:53:00Z30.73-98.2310.63.90010.030.0885831018.1TRUETRUETRUEVFR-1.4METAR389.02019-10-17 09:04:03W)5    3KBNA 170853Z 00000KT 10SM CLR 06/03 A3006 RMK AO2 SLP178 T00560033 58002KBNA2019-10-17T08:53:00Z36.12-86.685.63.30010.030.0590551017.8TRUEVFR-0.2METAR210.02019-10-17 09:04:03l)35   3KBNO 170853Z AUTO 28012G19KT 10SM BKN100 11/01 A2977 RMK AO2 SLP052 T01110011 53004KBNO2019-10-17T08:53:00Z43.6-118.9511.11.1280121910.029.7696861005.2TRUETRUEVFR0.4METAR1264.02019-10-17 09:04:03 ()5     3KBVY 170853Z AUTO 13017G24KT 2SM -RA BR BKN006 OVC012 16/14 A2881 RMK AO2 PK WND 12038/0759 RAB40 SLP750 P0001 60084 T01560144 58038KBVY2019-10-17T08:53:00Z42.58-70.9215.614.413017242.028.81004975.0TRUETRUE-RA BRIFR-3.80.010.84METAR28.02019-10-17 09:04:03$)5     3KBGR 170853Z 07017G25KT 4SM RA BR BKN017 BKN021 OVC028 10/09 A2936 RMK AO2 PK WND 08027/0802 PRESFR SLP940 P0014 60014 T01000089 56095KBGR2019-10-17T08:53:00Z44.8-68.8210.08.97017254.029.359253994.0TRUERA BRMVFR-9.50.140.14METAR57.02019-10-17 09:04:03)u5     3KBFD 170853Z AUTO 29014G25KT 8SM -RA OVC010 05/03 A2947 RMK AO2 PK WND 31027/0808 SLP983 P0001 60005 T00500028 58003KBFD2019-10-17T08:53:00Z41.8-78.635.02.829014258.029.471457998.3TRUETRUE-RAMVFR-0.30.010.05METAR647.02019-10-17 09:04:03 L)=Lk )35   3KCHO 170853Z AUTO 30011G19KT 10SM FEW055 12/01 A2964 RMK AO2 SLP032 T01220006 53001KCHO2019-10-17T08:53:00Z38.13-78.4512.20.6300111910.029.6397631003.2TRUETRUEVFR0.1METAR192.02019-10-17 09:04:03f )+5    3KCEZ 170853Z AUTO 00000KT 10SM CLR M03/M11 A3012 RMK AO2 SLP162 T10281111 58012KCEZ2019-10-17T08:53:00Z37.3-108.63-2.8-11.10010.030.1210631016.2TRUETRUEVFR-1.2METAR1797.02019-10-17 09:04:03e ))5    3KCDR 170853Z AUTO 26005KT 10SM CLR 01/M01 A2984 RMK AO2 SLP105 T00061006 56010KCDR2019-10-17T08:53:00Z42.83-103.10.6-0.6260510.029.8405511010.5TRUETRUEVFR-1.0METAR1010.02019-10-17 09:04:03f)+5    3KCAG 170853Z AUTO 00000KT 10SM CLR M04/M12 A3009 RMK AO2 SLP160 T10391117 58009KCAG2019-10-17T08:53:00Z40.5-107.52-3.9-11.70010.030.0885831016.0TRUETRUEVFR-0.9METAR1887.02019-10-17 09:04:03 J#8Jh))5    3KCPR 170853Z AUTO 23013KT 10SM CLR 11/M10 A2989 RMK AO2 SLP067 T01111100 56013KCPR2019-10-17T08:53:00Z42.9-106.4711.1-10.02301310.029.8907471006.7TRUETRUEVFR-1.3METAR1621.02019-10-17 09:04:03e))5    3KPUB 170853Z AUTO 28005KT 10SM CLR 03/M08 A2999 RMK AO2 SLP123 T00281083 58012KPUB2019-10-17T08:53:00Z38.28-104.52.8-8.3280510.029.9911421012.3TRUETRUEVFR-1.2METAR1420.02019-10-17 09:04:03n )-5    3KBYG 170853Z AUTO 19013KT 10SM CLR 16/M07 A2980 RMK AO2 SLP039 T01561072 56023 $KBYG2019-10-17T08:53:00Z44.38-106.7215.6-7.21901310.029.7992131003.9TRUETRUETRUEVFR-2.3METAR1497.02019-10-17 09:04:03c )'5    3KCNM 170853Z AUTO 18007KT 10SM CLR 09/04 A3005 RMK AO2 SLP146 T00890039 58016KCNM2019-10-17T08:53:00Z32.33-104.258.93.9180710.030.0501981014.6TRUETRUEVFR-1.6METAR985.02019-10-17 09:04:03 ((d))5    3KRTN 170853Z AUTO 07007KT 10SM CLR 01/M07 A3011 RMK AO2 SLP145 T00061067 56010KRTN2019-10-17T08:53:00Z36.73-104.50.6-6.770710.030.1092531014.5TRUETRUEVFR-1.0METAR1936.02019-10-17 09:04:03g)+5    3KRQE 170853Z AUTO 00000KT 10SM CLR M01/M13 A3017 RMK AO2 SLP142 T10061128 56010KRQE2019-10-17T08:53:00Z35.65-109.07-0.6-12.80010.030.1712591014.2TRUETRUEVFR-1.0METAR2055.02019-10-17 09:04:03g))5    3KRIL 170853Z AUTO 21004KT 10SM CLR 02/M14 A3011 RMK AO2 SLP158 T00171139 58005KRIL2019-10-17T08:53:00Z39.53-107.731.7-13.9210410.030.1092531015.8TRUETRUEVFR-0.5METAR1678.02019-10-17 09:04:03)k5      3KRME 170853Z AUTO 28008KT 5SM RA BR FEW016 BKN023 OVC033 08/08 A2928 RMK AO2 SLP915 P0006 60020 T00830083 56028KRME2019-10-17T08:53:00Z43.22-75.48.38.328085.029.279528991.5TRUETRUERA BRMVFR-2.80.060.2METAR154.02019-10-17 09:04:03 Y)AYb)'5    3KSDL 170853Z AUTO 00000KT 10SM CLR 23/02 A2980 RMK AO2 SLP065 T02330022 56004KSDL2019-10-17T08:53:00Z33.62-111.9223.32.20010.029.7992131006.5TRUETRUEVFR-0.4METAR447.02019-10-17 09:04:03b)'5    3KCSV 170853Z AUTO 34005KT 10SM CLR 03/01 A3001 RMK AO2 SLP162 T00280006 55001KCSV2019-10-17T08:53:00Z35.95-85.082.80.6340510.030.0088581016.2TRUETRUEVFR-0.1METAR570.02019-10-17 09:04:03g))5    3KRWL 170853Z AUTO 22009KT 10SM CLR 11/M13 A3003 RMK AO2 SLP089 T01061133 56014KRWL2019-10-17T08:53:00Z41.78-107.210.6-13.3220910.030.0295281008.9TRUETRUEVFR-1.4METAR2077.02019-10-17 09:04:03d))5    3KSAF 170853Z AUTO 03007KT 10SM CLR 06/M08 A3016 RMK AO2 SLP142 T00611078 56006KSAF2019-10-17T08:53:00Z35.62-106.16.1-7.830710.030.1594491014.2TRUETRUEVFR-0.6METAR1930.02019-10-17 09:04:03 ..d))5    3KTOR 170853Z AUTO 00000KT 10SM CLR 02/M02 A2989 RMK AO2 SLP097 T00221022 56008KTOR2019-10-17T08:53:00Z42.07-104.152.2-2.20010.029.8907471009.7TRUETRUEVFR-0.8METAR1277.02019-10-17 09:04:03[)5    3KTUS 170853Z 11008KT 10SM CLR 23/04 A2990 RMK AO2 SLP075 T02330039 56010KTUS2019-10-17T08:53:00Z32.13-110.9523.33.9110810.029.8996071007.5TRUEVFR-1.0METAR776.02019-10-17 09:04:03f))5    3KSNY 170853Z AUTO 28011KT 10SM CLR 05/M05 A2991 RMK AO2 SLP097 T00501050 57012KSNY2019-10-17T08:53:00Z41.1-102.985.0-5.02801110.029.9114171009.7TRUETRUEVFR-1.2METAR1307.02019-10-17 09:04:03)s5      3KALW 170853Z AUTO 14007KT 10SM -RA SCT049 OVC060 13/06 A2974 RMK AO2 RAB02E11B52 SLP069 P0000 60000 T01280061 51027KALW2019-10-17T08:53:00Z46.1-118.2812.86.1140710.029.7401581006.9TRUETRUE-RAVFR2.70.0050.005METAR363.02019-10-17 09:04:03 )u5    3KWST 170853Z AUTO 25015G28KT 10SM SCT028 BKN060 13/08 A2903 RMK AO2 PK WND 25028/0851 SLP831 60001 T01330083 53025 $KWST2019-10-17T08:53:00Z41.35-71.813.38.3250152810.029.028543983.1TRUETRUETRUEVFR2.50.01METAR21.02019-10-17 09:04:03$)5    3KUUU 170853Z AUTO VRB05G20KT 10SM SCT016 OVC024 12/08 A2896 RMK AO2 PK WND 27026/0821 RAB06E15 PRESRR SLP806 P0000 60001 T01170083 53027KUUU2019-10-17T08:53:00Z41.53-71.2811.78.3052010.028.96063980.6TRUETRUEMVFR2.70.0050.01METAR51.02019-10-17 09:04:03g))5    3KTCC 170853Z AUTO 24011KT 10SM CLR 12/M01 A3003 RMK AO2 SLP126 T01221006 56008KTCC2019-10-17T08:53:00Z35.18-103.612.2-0.62401110.030.0295281012.6TRUETRUEVFR-0.8METAR1235.02019-10-17 09:04:03 j#5jE"({5    3K0CO 170853Z AUTO 30019KT 10SM CLR 00/M10 A3038 RMK AO2K0CO2019-10-17T08:53:00Z39.8-105.770.0-10.03001910.030.380905TRUETRUEVFRSPECI3807.02019-10-17 09:04:03h!))5    3KCYS 170853Z AUTO 27011KT 10SM CLR 11/M11 A3001 RMK AO2 SLP086 T01111111 56010KCYS2019-10-17T08:53:00Z41.15-104.811.1-11.12701110.030.0088581008.6TRUETRUEVFR-1.0METAR1868.02019-10-17 09:04:03f ))5    3KCUT 170853Z AUTO 32003KT 10SM CLR 03/M02 A2991 RMK AO2 SLP090 T00281022 58016KCUT2019-10-17T08:53:00Z43.73-103.622.8-2.2320310.029.9114171009.0TRUETRUEVFR-1.6METAR1725.02019-10-17 09:04:03k)55     3PABE 170853Z 04005KT 10SM CLR M03/M04 A2904 RMK AO2 SLP837 T10281039 400441039 53010PABE2019-10-17T08:53:00Z60.78-161.83-2.8-3.940510.029.040354983.7TRUEVFR1.04.4-3.9METAR41.02019-10-17 09:04:03 y5Ldye&))5    3KDGW 170853Z AUTO 32004KT 10SM CLR 01/M04 A2989 RMK AO2 SLP090 T00061044 58016KDGW2019-10-17T08:53:00Z42.8-105.380.6-4.4320410.029.8907471009.0TRUETRUEVFR-1.6METAR1499.02019-10-17 09:04:03b%)%5    3KDEN 170853Z 21014KT 10SM BKN200 13/M07 A2997 RMK AO2 SLP079 T01281072 56013KDEN2019-10-17T08:53:00Z39.85-104.6512.8-7.22101410.029.9704721007.9TRUEVFR-1.3METAR1640.02019-10-17 09:04:03c$)'5    3KDAN 170853Z AUTO 28012KT 10SM CLR 09/02 A2978 RMK AO2 SLP075 T00940017 56009KDAN2019-10-17T08:53:00Z36.57-79.339.41.72801210.029.7785431007.5TRUETRUEVFR-0.9METAR175.02019-10-17 09:04:03E#({5    3KCPW 170853Z AUTO 22011KT 10SM CLR 02/M13 A3047 RMK AO2KCPW2019-10-17T08:53:00Z37.45-106.82.0-13.02201110.030.469488TRUETRUEVFRSPECI3584.02019-10-17 09:04:03